SQLite format 3@ #dᾌh#d-â)ìûöñìvƒ?tablebuoy_nowbuoy_nowCREATE TABLE buoy_now ( STN, LAT, LON, YYYY, MM, DD, hh, minute, WDIR, WSPD, GST, WVHT, DPD, APD, MWD, PRES, PTDY, ATMP, WTMP, DEWP, VIS, TIDE, raw_text DEFAULT '', timestamp TIMESTAMP DEFAULT CURRENT_TIMESTAMP )jƒ7tablebuoybuoyCREATE TABLE buoy ( STN, LAT, LON, YYYY, MM, DD, hh, minute, WDIR, WSPD, GST, WVHT, DPD, APD, MWD, PRES, PTDY, ATMP, WTMP, DEWP, VIS, TIDE, raw_text DEFAULT '', timestamp TIMESTAMP DEFAULT C   Ø­øðèàØÐÈÀ¸°¨ ˜ˆ€xph`XPH@80( øðèàØÐÈÀ¸°¨ ˜ˆ€xph`XPH@80( øðèàØÐÈÀ¸°¨ ˜ˆ€xph`XPH@80( øðèàØ26#ɛ¤#n›¡3#›žC"¸››;"]›˜-"›•?!§›’N!L›[ ñ›Œ> –›‰= ;›†3à›ƒ…›€)*›ŒýAϛŒúOt›Œ÷`›Œôl¾›Œòc›Œî{›Œëo­›ŒèZR›Œåb÷›Œâpœ›ŒàA›ŒÝ曌Ùx‹›Œ×0›ŒÔ՛ŒÑz›ŒÎ›ŒËěŒÇYi›ŒÄP›ŒÂ³›Œ¿bX›Œ½ ý›Œº¢›Œ·3G›Œµ 워²‘›Œ¯6›Œ«|ۛŒ© €›Œ¦%›Œ£#ʛŒ o›Œ ›Œš¹›Œ—^›Œ” ›Œ‘¨›ŒŽ1M›Œ‹(ò›Œˆ—›Œ„}<›ŒeᛋþK†›‹ûU+›‹ømЛ‹öu›‹ó›‹ð ¿›‹í d›‹ê ›‹ç) ®›‹ä. S›‹á/ ø›‹ÞB ›‹ÛN B›‹Ø@ 盋Õ9 Œ›‹Ò5 1›‹Ï ֛‹Ì {›‹É ›‹Æś‹Ã6j›‹ÀD›‹½U´›‹ºrY›‹·|þ›‹´X£›‹±MH›‹®?훋«R’›‹¨c7›‹¥Kܛ‹¢D›‹Ÿ[&›‹œj˛‹™op›‹–l›‹“Nº›‹6_›‹/›‹ŠA›•ƒHm›“VH쑖|$›J$€›ƒ jƒ7tablebuoybuoyCREATE TABLE buoy ( STN, LAT, LON, YYYY, MM, DD, hh, minute, WDIR, WSPD, GST, WVHT, DPD, APD, MWD, PRES, PTDY, ATMP, WTMP, DEWP, VIS, TIDE, raw_text DEFAULT '', timestamp TIMESTAMP DEFAULT CURRENT_TIMESTAMP )vƒ?tablebuoy_nowbuoy_nowCREATE TABLE buoy_now ( STN, LAT, LON, YYYY, MM, DD, hh, minute, WDIR, WSPD, GST, WVHT, DPD, APD, MWD, PRES, PTDY, ATMP, WTMP, DEWP, VIS, TIDE, raw_text DEFAULT '', timestamp TIMESTAMP DEFAULT CURRENT_TIMESTAMP ) nnj…‰}tablemetarmetarCREATE TABLE metar ( raw_text DEFAULT '', station_id, observation_time, latitude, longitude, temp_c, dewpoint_c, wind_dir_degrees, wind_speed_kt, wind_gust_kt, visibility_statute_mi, altim_in_hg, sea_level_pressure_mb, corrected, auto, auto_station, maintenance_indicator_on, no_signal, lightning_sensor_off, freezing_rain_sensor_off, present_weather_sensor_off, wx_string, sky_cover, cloud_base_ft_agl, flight_category, three_hr_pressure_tendency_mb, maxT_c, minT_c, maxT24hr_c, minT24hr_c, precip_in, pcp3hr_in, pcp6hr_in, pcp24hr_in, snow_in, vert_vis_ft, metar_type, elevation_m, timestamp TIMESTAMP DEFAULT CURRENT_TIMESTAMP ) ÊÙ»úôîèâÜÖÐÊÎÉÄ¿ºµ°«¦¡œ—’ˆƒ~ytoic]WQKE?93-'! ý÷ñëåßÙÓÍÇÁ»µ¯©£—‘‹…ysmga[UOIC=71+% ûõïéãÝ×ÑËÅ¿¹³­§¡›•‰ƒ}wqke_YSMGA;5/)#AÖ„Ö„ Ö„ Ö„Ö „Ö ƒ}Ö ƒyÖ ƒuÖ ƒqÖƒmÖƒiÖƒeÖƒaÖƒ]ÖƒYÖƒUÖƒQփMÕÿƒIÕþƒEÕýƒAÕüƒ=Õûƒ9Õúƒ5Õùƒ1Õøƒ-Õ÷ƒ)Õöƒ%Õõƒ!ÕôƒÕóƒÕòƒÕñƒÕðƒ Õïƒ ÕîƒÕíƒÕì‚~Õë‚zÕê‚vÕé‚rÕè‚nÕç‚jÕæ‚fÕå‚bÕä‚^Õã‚ZÕâ‚VÕá‚RÕà‚NÕ߂JÕނFÕ݂BÕ܂>Õۂ:Õڂ6Õق2Õ؂.Õׂ*Õւ&ÕՂ"ÕԂÕӂÕ҂ÕтÕЂÕς Õ΂Õ͂Ṍ~ÕˁzÕʁvÕɁrÕȁnÕǁjÕƁfÕŁbÕā^ÕÁZՁVÕÁRÕÀNÕ¿JÕ¾FÕ½BÕ¼>Õ»:Õº6Õ¹2Õ¸.Õ·*Õ¶&Õµ"Õ´Õ³Õ²Õ±Õ°Õ¯ Õ®Õ­Õ¬~Õ«zÕªvÕ©rÕ¨nÕ§jÕ¦fÕ¥bÕ¤^Õ£ZÕ¢VÕ¡RÕ N՟I՞E՝A՜<՛7ÙJ¡SØٞQØhšb×÷–[׆’]׎s֕‹Ö‡/ÖƒY ‹‹)‡…Štablemetar_nowmetar_nowCREATE TABLE metar_now ( raw_text DEFAULT '', station_id, observation_time, latitude, longitude, temp_c, dewpoint_c, wind_dir_degrees, wind_speed_kt, wind_gust_kt, visibility_statute_mi, altim_in_hg, sea_level_pressure_mb, corrected, auto, auto_station, maintenance_indicator_on, no_signal, lightning_sensor_off, freezing_rain_sensor_off, present_weather_sensor_off, wx_string, sky_cover, cloud_base_ft_agl, flight_category, three_hr_pressure_tendency_mb, maxT_c, minT_c, maxT24hr_c, minT24hr_c, precip_in, pcp3hr_in, pcp6hr_in, pcp24hr_in, snow_in, vert_vis_ft, metar_type, elevation_m, timestamp TIMESTAMP DEFAULT CURRENT_TIMESTAMP )Tƒ tableshipship CREATE TABLE ship (day, dewpoint_c, gust, latitude, longitude, maxgst, sea_level_pressure_mb, station_id, temp_c, wind, raw_text DEFAULT '', timestamp TIMESTAMP DEFAULT CURRENT_TIMESTAMP )B2ÚXùòëäÝÖÏÈÁº³¬¥ž—‰‚{tmf_XQJC<5.'  ýöïèáÚÓÌž·°©¢›”†xqjc\UNG@92IÝËB   315/2115.6G1925.9-85.61017.84200322.6280162018-12-17 21:04:31AÝËA     315/21G1627.5-62.91027.041049120122018-12-17 21:04:31AÝË@     315/21G2127.5-71.51021.841047170172018-12-17 21:04:31AÝË?     315/21G1623.8-68.41023.041046120122018-12-17 21:04:31IÝË>   315/2120.7G1721.6-58.61023.84104425.9080162018-12-17 21:04:31IÝË=   315/2122.0G2121.1-64.91022.04104325.11001ÚWÝÒOÚVÝÒ?ÚUÝÒ0ÚTÝÒ!ÚSÝÒÚRÝÒÚQÝÑuÚPÝÑgÚOÝÑYÚNÝÑKÚMÝÑ<ÚLÝÑ.ÚKÝÑ ÚJÝÑÚIÝÑÚHÝÐuÚGÝÐfÚFÝÐXÚEÝÐJÚDÝÐ;ÚCÝÐ,ÚBÝÐÚAÝÐÚ@ÝÐÚ?ÝÏtÚ>ÝÏgÚ=ÝÏZÚ<ÝÏKÚ;ÝÏ=Ú:ÝÏ0Ú9ÝÏ#Ú8ÝÏÚ7ÝÏÚ6ÝÎ{Ú5ÝÎmÚ4ÝÎ`Ú3ÝÎSÚ2ÝÎFÚ1ÝÎ8Ú0ÝÎ+Ú/ÝÎÚ.ÝÎÚ-ÝÎÚ,ÝÍuÚ+ÝÍhÚ*ÝÍ[Ú)ÝÍMÚ(ÝÍ?Ú'ÝÍ2Ú&ÝÍ%Ú%ÝÍÚ$ÝÍ Ú#ÝÌ|Ú"ÝÌkÚ!ÝÌ[Ú ÝÌOÚÝÌBÚÝÌ3ÚÝÌ&ÚÝÌÚÝÌÚÝËzÚÝËlÚÝË^ÚÝËPÚÝËCA‚Ú¯ûöñìçâÝØÒÌÆÀº´®¨¢œ–Š„~xrlf`ZTNHB<60*$ úôîèâÜÖÐÊľ¸²¬¦ š”Žˆ‚-18 20:58:269     315/21-2.0-110.032317220372018-12-18 20:58:268     315/212.0-110.032316120142018-12-18 20:58:26?    315/217.85.0-110.13231527.6080142018-12-18 20:58:265     315/21-5.0-95.032304122018-12-18 20:58:266     315/215.0-95.03230311082018-12-18 20:58:267     315/21-33.5-10.5315002202018-12-18 20:58:267     315/21-21.3-30.2156072202018-12-18 20:58:26<     315/21-20.6-2.81020.9149401102018-12-18 20:58:266     315/2Ú®‡Ú­‡Ú¬‡Ú«†sÚª†eÚ©†WÚ¨†IÚ§†:Ú¦†,Ú¥†Ú¤†Ú£†Ú¢…vÚ¡…hÚ …Zڟ…Lڞ…>ڝ…0ڜ…"ڛ…ښ…ڙ„xژ„jڗ„\ږ„Nڕ„Aڔ„2ړ„$ڒ„ڑ„ ڐƒ{ڏƒmڎƒ_ڍƒPڌƒBڋƒ4ڊƒ'ډƒڈƒ ڇ‚}چ‚oڅ‚`ڄ‚Qڃ‚Cڂ‚4ځ‚%ڀ‚Ú‚Ú~yÚ}jÚ|[Ú{LÚz=Úy,ÚxÚwÚvÚuvÚthÚsXÚrJÚq<Úp-ÚoÚn ââż=u­ŸWFuindexi3buoyCREATE UNIQUE INDEX i3 ON buoy(STN,YYYY,MM,DD,hh,mm)F kindexi2metar_nowCREATE UNIQUE INDEX i2 ON metar_now(station_id)`ƒtableship_nowship_now CREATE TABLE ship_now (day, dewpoint_c, gust, latitude, longitude, maxgst, sea_level_pressure_mb, station_id, temp_c, wind, raw_text DEFAULT '', timestamp TIMESTAMP DEFAULT CURRENT_TIMESTAMP )tƒ;tablestationss`ƒtableship_nowship_now CREATE TABLE ship_now (day, dewpoint_c, gust, latitude, longitude, maxgst, sea_level_pressure_mb, station_id, temp_c, wind, raw_text DEFAULT '', timestamp TIMESTAMP DEFAULT CURRENT_TIMESTAMP )tƒ;tablestationsstations CREATE TABLE stations ( metar TEXT, wmob INT, wmos INT, city TEXT, state TEXT, country TEXT, latitude DOUBLE, longitude DOUBLE, elevation DOUBLE, x DOUBLE, y DOUBLE, z DOUBLE, humor TEXT, source TEXT )B[indexi_metarstations CREATE INDEX i_metar ON stations(metar) ÊÞæúôîèâÜÖÐÊÎÉÄ¿º´®¨¢œ–Š„~xrlf`ZTNHB<60*$ úôîèâÜÖÐÊľ¸²¬¦ š”Žˆ‚|vpjd^XRLF@:4.(" þøòìæàÚÔÎȼ¶°ª¤ž˜’Œ†€ztnhb\VPJD>82,& DDÛ<ˆuÛ;ˆmÛ:ˆeÛ9ˆ\Û8ˆSÛ7ˆJÛ6ˆAÛ5ˆ8Û4ˆ/Û3ˆ&Û2ˆÛ1ˆÛ0ˆ Û/ˆÛ.‡yÛ-‡oÛ,‡eÛ+‡[Û*‡RÛ)‡IÛ(‡@Û'‡7Û&‡.Û%‡$Û$‡Û#‡Û"‡Û!†|Û †rÛ†hÛ†^Û†TÛ†IÛ†?Û†5Û†+Û†!Û†Û†Û†Û…~Û…uÛ…lÛ…cÛ…ZÛ…QÛ…HÛ …?Û …6Û …-Û …$Û …Û…Û…Û„Û„vÛ„mÛ„dÛ„[Û„RۄJÚÿ„BÚþ„9Úý„0Úü„'Úû„Úú„Úù„ Úø„Ú÷ƒ{ÚöƒrÚõƒiÚôƒ`ÚóƒWÚòƒOÚñƒGÚðƒ>Úïƒ6Úîƒ.Úíƒ'ÚìƒÚëƒÚêƒ ÚéƒÚè‚zÚç‚qÚæ‚iÚå‚`Úä‚XÚã‚OÚâ‚FÚá‚>Úà‚6Ú߂.Úނ%Ú݂Ú܂Úۂ ÚڂÚف{Ú؁rÚׁiÚց`ÚՁYÚԁQÚӁIÚҁ@Úс7ÚЁ.Úρ%Ú΁Ú́Ú́ ÚˁÚÊzÚÉrÚÈjÞuÂ#Þ»Sݓ´}Ý"¬qܱ¤qÜ@AÛÀ–cÛ@Û?‡yòá‚òå×É»­Ÿ‘ƒugYK=/!÷éÛÍ¿±£•‡yk]OA3% ûíßÑõ§™‹}oaSE7) ÿñãÕǹ«…{á~ KNBG éá} KMSS ´á| KMJXá{ KMAI <áz KLOT áy KLAM Íáx KJFX_áw KIGC ^áv KHRL ,áu KHCD öát KGPT Ãás KFYV ‹ár KFGN Sáq KESF áp KECP çáo KDNV ²án KD19 zám KCOS Cál KCEW ák KBUR Ôáj KBIH ™ái KAWI cáh KALY1ág K9W7æáf K87Q³áe K62W„ád K4A6các K36Yáb K25Råáa K13A«á` HSTR!×á_ HFFF7á^ GUMAá] GCLAÃá\ FYWBá[ FQLCVáZ FLMPáY FCOGØáX FAMM£áW ETUNwáV ESSK4áU EPSKáT ENHEÓáS EHMA ñáR EGSY[áQ EGDYáP EDSB×áO EBLB§áN DISSfáM DABCáL CYYUïáK CYSK¥áJ CYLK^áI CYCQáH CXOXïáG CXBKÛáF CWVOžáE CWRHZáD CWMZáC CWIUÊáB CWET€áACWAR4ၠKMJXÊá5îÜʸ¦”‚p^L:(òàμ«™‡ucQ?- ÷æÔ°žŒzhVD2 üêØÆ´¢~õçÙËàÉ ¿¼ŸÅ£|DA àÈ ¿¾%ý*þ%åàÇ ¿¿ÔA VàÆ ¿ÀЫ“M©PàÅ ¿ÂJ×÷ ÀÛüàÄ ¿ÃK÷ñWX1¿àà ¿Ä#쇡Ìè ƒà ¿Å Ù¦Z= ÍàÁ ¿Åàp”q#aàÀ ¿ÆÚȚÛÙ à¿ ¿Çóò†ª²-Èྠ¿É+Ÿ;>}ûiའ¿Ê Qò­zã༠¿ËD÷ìN•v*à» ¿Ì˜\ó}èຠ¿Í½\‚Ÿ„? =๠¿Î­Ñ‰p# ภ¿Ï”UÒ”Zñà· ¿Ð_üð¬Ì€à¶ ¿Ñ"~ª~¶ൠ¿Ñî:þ£_õAà´ ¿Ò´Öâ2×Úà³ ¿Óh)L¸%ï >ಠ¿Ô¥+’ÅÈvà± ¿Ôè!%瀕Wà° ¿ÕÉV¡/mŒ#௠¿Övfrí©ôßà® ¿×&±F:f Tà­ ¿×l9Îxõ÷#ଠ¿×æã™Iҽૠ¿ØFÌw¨Ÿ àª ¿Ø’'žùƒ4zà© ¿ØÛQWšõGਠ¿ÙP«W¿M>à§ ¿ÙØ;h#«é Eঠ¿ÚNŽhß5 ‡à¥ ¿Ú½…Ž¿ठ¿Û=ü^‚Ï-0࣠¿Ü¤v“£#ࢠ¿Ýõ1¡°}{à¡ ¿ÞÌ\Y%Bà  ¿ßÛ]x”>0LàŸ ¿àõðÕù#Ÿàž ¿á³Ña¤Óc>à ¿âšÉ MªÖàœ ¿ã›rp‰ÛË#¶à› ¿äà “þðÓá ?âáU«WsUyàÍ ?ÃÅbƒy+Ý¡àÌ ¿ÂJ×÷ ÀÛüÊàîÜʸ¦”‚p^L:(òàμª˜†tbP>,öäÒÀ®œŠxfTB0 úèÖIJ Ž| þðâÔà! ¿çW†ðŸéÁgà ¿çfØ>‰« à ¿çy–#8¼à ¿ç‹ß[J´à ¿ç™)™ùYG bà ¿ç¬¸@™ Šà ¿ç¿OŒÝ-‰à ¿çΜ éé¾¸à ¿çÞóufbõ+à ¿çìÍàÎÆ à ¿èÓ°%àlÃà ¿èið$ ƒà ¿è/…bh® §à ¿èE5xeŒãà ¿è_ƒLÆé]à ¿èxniôñðà ¿è¡z20£@Êà ¿èÊ¢Àžy@à ¿èäQ@d«šòà ¿é ÙÙç¡1 à ¿é.7¶… ;Ûà ¿éQÃøpG"à ¿é}ÙGd¼K ãà ¿é›‹Ï`qxþà ¿é¸^·ƒ* ½à ¿éÔ­ ß·A Tà ¿é÷öعTŸà ¿êÐÛä„Ià ¿ê,¢½ áéà ¿êK³Vbª­à ¿êt çê͗½à ¿êšÞ°ò !1à ¿ê¼NÑÄi~ éà ¿êà÷Åè÷ [ßÿ ¿ë Ñ-p !ßþ ¿ë8Hó‚J  ßý ¿ë_ÅáõwNßü ¿ë…Å«‘\4ëßû ¿ëJi‚r/ßú ¿ëºíGÀVïßù ¿ëãí>Ò^#ßø ¿ìÿNßÝOAß÷ ¿ì%c‰g¤ßßö ¿ìRCÈ(ë _ßõ ¿ì€'ååßô ¿íT63pÖßó ¿í•{2‡tf¶àY ?Ò¿t‘/õ(ˆà% ¿Û•à|0Ûieà$ ¿ç¬¸@™ ŠÊßåîÜʸ¦”‚p^L:(òàμª˜†tbP>,öäÒÀ®œŠxfTB0 úèÖIJ Ž|!÷éÛßy ?à1m¸rOGúßx ?à¤ÉZZßw ?ß­PU¥Ä^…ßv ?ß=@©!Àßu ?Þ·Írø!Åßt ?ÞO=¨òž8ßs ?Ýᵇ¼jÁßr ?Ý 42020= 42019< 42012; 42003: 420029 416908 416067 411596 411155 411144 411133 411122 411101 411080 41064/ 41056. 41053- 41049, 41047+ 41046* 41044) 41043( 41041' 41040& 41038% 41037$ 41033# 41029" 41024! 41013 41010 41009 41008 41004 41002 3FAD8 3ETB9 33970 33520 33518 32323 32321 323Ú» VAKF1YÚº RCPT2 Ú¹ MWYG6»Ú¸ JKYF1uÚ· EUCDE08>Ú¶ CGSBìÚµ BATEU00¨Ú´ 9HJD9gÚ³ 62138!Ú² 51207ÛÚ± 46087•Ú° 44013KGÚmêÔ¾¨’|fP8" øâ̶ Št_Gn\J8&ðÞ̺¨–„r`N<*ôâо¬šˆv4111015/21f!4110815/21f 4106415/21h4105615/21h4105315/21h4104915/21eÁ4104715/21eÀ4104615/21e¿4104415/21e¾4104315/21e½4104115/21e¼4104015/21f4103815/21h4103715/21h4103315/21h4102915/21h4102415/21h4101315/21e»4101015/21eº4100915/21e¹4100815/21f4100415/21e¸4100215/21e·3FAD815/21i3ETB915/21h3397015/21ÚlWDE876115/21góÚkVCBW15/21gÛÚjSJSN415/21g½ÚiPTCR115/21gšÚhOLCN615/21gtÚgMCYI315/21fÚfJNEA215/21g1ÚeFCGT215/21gÚdDHEB15/21i<ÚcCGUM15/21fÎÚbBHBM315/21f¯ÚaAMOUK6715/21h½Ú`9VAW615/21i&Ú_6216515/21hˆÚ^6211615/21iÚ]5121215/21f}Ú\4622915/21fkÚ[4606615/21fKÚZ4406515/21eÎÚY4104915/21eÁ A+AK›Šù/)5   3PADG 172102Z 35029G32KT 15SM DRSN FEW050 SCT070 M23/M26 A2918PADG2018-12-17T21:02:00Z68.03-162.9-23.0-26.0350293215.029.179134DRSNVFRSPECI297.02018-12-17 21:05:43j›Šù.)'5      3PAVA 172102Z AUTO 30005KT 1 1/2SM -SN BR M13/M14 A2943 RMK AO2 P0000 FZRANO $PAVA2018-12-17T21:02:00Z61.53-165.6-13.0-14.030051.529.430119TRUETRUETRUETRUE-SN BR0.005SPECI23.02018-12-17 21:05:43‚#›Šù-)‚ 5      3PASM 172102Z AUTO 32006KT 10SM CLR M21/M22 A2937 RMK AO2 SNB2019201820192059E20192009 SLP962 P0000 60000 T12061222 51007 FZRANOPASM2018-12-17T21:02:00Z62.07-163.3-20.6-22.2320610.029.371063996.2TRUETRUETRUEVFR0.70.0050.005METAR92.02018-12-17 21:05:43O›Šù,)5      3PAMO 172102Z AUTO 1SM BR CLR M22/M24 A2937 RMK AO2 FZRANO $PAMO2018-12-17T21:02:00Z62.1-163.68-22.0-24.01.029.371063TRUETRUETRUETRUEBRIFRSPECI103.02018-12-17 21:05:43 x7D-x/›Šù3(e5   3SKCG 172100Z 35013KT 9999 FEW025 30/24 A2979SKCG2018-12-17T21:00:00Z10.43-75.5230.024.0350136.2129.790354VFRMETAR1.02018-12-17 21:05:43‚›Šù2)e5      3PAFS 172101Z AUTO 22003KT 9SM OVC095 M23/M25 A2916 RMK AO2 SNE2058 SLP894 P0000 60000 T12281250 51028 FZRANOPAFS2018-12-17T21:01:00Z63.02-154.35-22.8-25.022039.029.161417989.4TRUETRUETRUEVFR2.80.0050.005METAR126.02018-12-17 21:05:43m›Šù1))5     3PATE 172101Z AUTO 34021KT 3/4SM BR OVC012 M18/M21 A2944 RMK AO2 PWINO FZRANO $PATE2018-12-17T21:01:00Z65.23-166.33-18.0-21.0340210.7529.438976TRUETRUETRUETRUETRUEBRLIFRSPECI90.02018-12-17 21:05:43C›Šù0)5    3YLIS 172101Z AUTO 08001KT 9999 // SCT015 SCT030 25/20 Q1013YLIS2018-12-17T21:01:00Z-28.83153.2725.020.08016.2129.911417TRUEVFRSPECI11.02018-12-17 21:05:43 D;v¼üD2›Šù8(g5    3GMML 172100Z 04009KT CAVOK 18/M02 Q1023 NOSIGGMML2018-12-17T21:00:00Z27.13-13.2318.0-2.04096.2130.206694TRUEVFRMETAR6.02018-12-17 21:05:43:›Šù7(q5    3GMMW 172100Z 12003KT 8000 BKN013 13/12 Q1027 NOSIGGMMW2018-12-17T21:00:00Z34.98-3.0213.012.012034.9730.324802TRUEMVFRMETAR175.02018-12-17 21:05:434›Šù6(q5   3GMMZ 172100Z 25003KT CAVOK 14/M03 Q1028 BECMG 6000GMMZ2018-12-17T21:00:00Z30.92-6.914.0-3.025036.2130.35433VFRMETAR1140.02018-12-17 21:05:43?›Šù5(5    3GMTA 172100Z 16006KT 9999 FEW023 SCT026 13/11 Q1027 NOSIGGMTA2018-12-17T21:00:00Z35.17-3.8513.011.016066.2130.324802TRUEVFRMETAR14.02018-12-17 21:05:43?›Šù4)5   3SBCZ 172100Z 36004KT 9999 FEW006 SCT020 BKN100 26/23 Q1011SBCZ2018-12-17T21:00:00Z-7.62-72.7726.023.036046.2129.852362VFRMETAR170.02018-12-17 21:05:43 CC€ÊCJ›Šù=)5    3NTAA 172100Z 35004KT 320V030 9999 FEW026 SCT056 30/24 Q1014 NOSIGNTAA2018-12-17T21:00:00Z-17.55-149.6230.024.035046.2129.940945TRUEVFRMETAR2.02018-12-17 21:05:431›Šù<(e5    3GMFF 172100Z 16006KT CAVOK 09/06 Q1027 NOSIGGMFF2018-12-17T21:00:00Z33.92-4.979.06.016066.2130.324802TRUEVFRMETAR579.02018-12-17 21:05:430›Šù;(e5    3GMFK 172100Z VRB02KT CAVOK 11/00 Q1030 NOSIGGMFK2018-12-17T21:00:00Z31.95-4.411.00.0026.2130.413385TRUEVFRMETAR1045.02018-12-17 21:05:43=›Šù:(5    3GMFO 172100Z 20005KT 9999 FEW026 SCT230 09/08 Q1028 NOSIGGMFO2018-12-17T21:00:00Z34.77-1.929.08.020056.2130.35433TRUEVFRMETAR470.02018-12-17 21:05:437›Šù9(k5    3GMMH 172100Z 06013KT 6000 NSC 20/12 Q1019 NOSIGGMMH2018-12-17T21:00:00Z23.72-15.9320.012.060133.7330.088583TRUEMVFRMETAR11.02018-12-17 21:05:43 &F…¯í&A›ŠùB)5    3EPMO 172100Z VRB02KT 0100 R08/0100N FZFG NSC M08/M09 Q1025EPMO2018-12-17T21:00:00Z52.4520.65-8.0-9.0020.0630.265747FZFGLIFRMETAR104.02018-12-17 21:05:43<›ŠùA(}5    3EPSC 172100Z 13005KT 5000 BR SCT020 OVC028 M01/M02 Q1025EPSC2018-12-17T21:00:00Z53.5814.9-1.0-2.013053.1130.265747BRMVFRMETAR47.02018-12-17 21:05:43P›Šù@)5    3EPSY 172100Z 04003KT 0600 R01/1900D FZFG OVC002 M01/M02 Q1025 R01/710293EPSY2018-12-17T21:00:00Z53.4720.93-1.0-2.04030.3730.265747FZFGLIFRMETAR141.02018-12-17 21:05:43;›Šù?({5    3EPWR 172100Z 17004KT 5000 BR FEW028 BKN045 01/M01 Q1025EPWR2018-12-17T21:00:00Z51.116.871.0-1.017043.1130.265747BRMVFRMETAR121.02018-12-17 21:05:434›Šù>(y5    3EPZG 172100Z 00000KT 2100 BR BKN022 OVC028 00/00 Q1025EPZG2018-12-17T21:00:00Z52.1315.80.00.0001.330.265747BRIFRMETAR59.02018-12-17 21:05:43 DD‰ÆD8›ŠùG(o5    3YMOR 172100Z AUTO 01010KT 9999 // NCD 25/18 Q1012YMOR2018-12-17T21:00:00Z-29.5149.8525.018.010106.2129.88189TRUEVFRMETAR214.02018-12-17 21:05:43>›ŠùF)5   3MYNN 172100Z 33008KT 300V360 9999 FEW022 BKN045 23/18 A3005MYNN2018-12-17T21:00:00Z25.03-77.4723.018.033086.2130.050198VFRMETAR3.02018-12-17 21:05:43=›ŠùE)5    3EPBY 172100Z VRB01KT 3000 BR OVC022 M02/M03 Q1025 R26/29//95EPBY2018-12-17T21:00:00Z53.118.0-2.0-3.0011.8630.265747BRIFRMETAR71.02018-12-17 21:05:435›ŠùD(o5    3EPKT 172100Z 22007KT 2600 BR OVC015 M00/M02 Q1025EPKT2018-12-17T21:00:00Z50.4719.080.0-2.022071.6230.265747BRIFRMETAR284.02018-12-17 21:05:436›ŠùC(o5    3EPLB 172100Z 27005KT 4000 BR OVC025 M03/M04 Q1025EPLB2018-12-17T21:00:00Z51.2322.72-3.0-4.027052.4930.265747BRIFRMETAR206.02018-12-17 21:05:43 š3nmšM›ŠùK)5    3YPXM 172100Z AUTO 14007KT 9999 // BKN019 BKN024 OVC031 23/20 Q1014YPXM2018-12-17T21:00:00Z-10.45105.6723.020.014076.2129.940945TRUEMVFRMETAR259.02018-12-17 21:05:43{›ŠùJ)s5    3YSSY 172100Z 19015KT 9999 FEW018 OVC024 22/20 Q1013 HTTP://ASOSWEB.BOM.GOV.AU/OMDB/REPORTS.A37METARSPECI?NUTCOFFSETYSSY2018-12-17T21:00:00Z-33.95151.1722.020.0190156.2129.911417PEMVFRMETAR3.02018-12-17 21:05:43?›ŠùI(5    3YBAS 172100Z AUTO 19005KT 150V260 9999 // NCD 26/00 Q1008YBAS2018-12-17T21:00:00Z-23.8133.926.00.019056.2129.763779TRUEVFRMETAR541.02018-12-17 21:05:43G›ŠùH) 5    3MNMG 172100Z 07010KT 9999 FEW026 SCT300 31/18 Q1010 A2984 NOSIGMNMG2018-12-17T21:00:00Z12.15-86.1731.018.070106.2129.822834TRUEVFRMETAR59.02018-12-17 21:05:43 J‹“ځ5›ŠùP(s5   3SBFZ 172100Z 09005KT 9999 FEW020 BKN100 26/24 Q1014SBFZ2018-12-17T21:00:00Z-3.77-38.5226.024.09056.2129.940945VFRMETAR25.02018-12-17 21:05:433›ŠùO(s5   3SBMO 172100Z 10012KT 9999 SCT017 SCT070 26/22 Q1016SBMO2018-12-17T21:00:00Z-9.52-35.7726.022.0100126.2130.0VFRMETAR115.02018-12-17 21:05:43r›ŠùN)E5   3KNEL 172100Z 31009G22KT 10SM OVC050 08/M02 A2974 RMK AO2 SLP070 6//// T00831017 53001 PNO $ KNEL2018-12-17T21:00:00Z40.02-74.338.3-1.731092210.029.7401581007.0TRUETRUEVFR0.1METAR31.02018-12-17 21:05:439›ŠùM(q5    3GVNP 172100Z 03014KT 9999 FEW016 22/18 Q1018 NOSIGGVNP2018-12-17T21:00:00Z14.95-23.4822.018.030146.2130.059055TRUEVFRMETAR70.02018-12-17 21:05:430›ŠùL(e5    3LEMO 172100Z 11003KT CAVOK 07/06 Q1026 NOSIGLEMO2018-12-17T21:00:00Z37.17-5.627.06.011036.2130.295275TRUEVFRMETAR88.02018-12-17 21:05:43 MEˆÉM@›ŠùU)5    3EPGD 172100Z VRB02KT 3000 BR OVC023 M03/M04 Q1025 R11/290095EPGD2018-12-17T21:00:00Z54.3718.47-3.0-4.0021.8630.265747BRIFRMETAR138.02018-12-17 21:05:430›ŠùT(e5   3SBTE 172100Z 36015KT 9999 BKN020 28/22 Q1012SBTE2018-12-17T21:00:00Z-5.03-42.8228.022.0360156.2129.88189MVFRMETAR69.02018-12-17 21:05:439›ŠùS(u5    3VHHH 172100Z 11006KT 070V160 CAVOK 15/08 Q1022 NOSIGVHHH2018-12-17T21:00:00Z22.32113.9215.08.011066.2130.177166TRUEVFRMETAR9.02018-12-17 21:05:437›ŠùR(y5   3SBCT 172100Z 27010KT 9999 SCT045 FEW050TCU 31/17 Q1016SBCT2018-12-17T21:00:00Z-25.52-49.1731.017.0270106.2130.0VFRMETAR908.02018-12-17 21:05:435›ŠùQ(s5   3SBBV 172100Z 11009KT 9999 FEW040 BKN080 32/17 Q1010SBBV2018-12-17T21:00:00Z2.85-60.732.017.011096.2129.822834VFRMETAR140.02018-12-17 21:05:43 OB‰ÒO0›ŠùZ(e5   3SBNT 172100Z 12011KT 9999 SCT017 28/23 Q1014SBNT2018-12-17T21:00:00Z-5.92-35.2528.023.0120116.2129.940945VFRMETAR49.02018-12-17 21:05:43G›ŠùY)5     3OJAM 172100Z 24007KT 4000 -RA SCT030 SCT040 12/06 Q1021 NOSIGOJAM2018-12-17T21:00:00Z31.9735.9712.06.024072.4930.147638TRUE-RAIFRMETAR773.02018-12-17 21:05:431›ŠùX(e5    3OJAQ 172100Z 36004KT CAVOK 17/04 Q1021 NOSIGOJAQ2018-12-17T21:00:00Z29.6235.0217.04.036046.2130.147638TRUEVFRMETAR51.02018-12-17 21:05:433›ŠùW(o5    3EPKK 172100Z 24008KT 4500 BR BKN050 M00/M02 Q1026EPKK2018-12-17T21:00:00Z50.0719.80.0-2.024082.830.295275BRIFRMETAR237.02018-12-17 21:05:438›ŠùV(q5    3GMTN 172100Z 35003KT 7000 FEW026 11/09 Q1027 NOSIGGMTN2018-12-17T21:00:00Z35.57-5.3211.09.035034.3530.324802TRUEMVFRMETAR10.02018-12-17 21:05:43 /C‡Òõ/@›Šù_)5   3SBRF 172100Z 12010KT 090V150 9999 SCT020 SCT060 27/23 Q1015SBRF2018-12-17T21:00:00Z-8.13-34.9227.023.0120106.2129.970472VFRMETAR19.02018-12-17 21:05:43W›Šù^)%5     3BKPR 172100Z 03009KT 9999 -SN SCT010 BKN030 M02/M05 Q1021 NOSIG RMK 17290195BKPR2018-12-17T21:00:00Z42.5821.03-2.0-5.03096.2130.147638TRUE-SNMVFRMETAR576.02018-12-17 21:05:43/›Šù](e5   3SBSL 172100Z 10003KT 9999 BKN017 27/24 Q1013SBSL2018-12-17T21:00:00Z-2.6-44.2227.024.010036.2129.911417MVFRMETAR53.02018-12-17 21:05:436›Šù\(u5   3SBSV 172100Z 10009KT 080V140 9999 FEW020 28/22 Q1017SBSV2018-12-17T21:00:00Z-12.9-38.3228.022.010096.2130.029528VFRMETAR6.02018-12-17 21:05:437›Šù[(y5   3SBEG 172100Z 05005KT 9999 FEW020 FEW025TCU 29/22 Q1010SBEG2018-12-17T21:00:00Z-3.02-60.0329.022.05056.2129.822834VFRMETAR2.02018-12-17 21:05:43 1@ƒÅ1P›Šùd)%5   3SPMS 172100Z 34004KT 9999 SCT015 29/24 Q1011 RMK BIRD HAZARD RWY 09/27 PP000SPMS2018-12-17T21:00:00Z-5.9-76.1229.024.034046.2129.852362VFRMETAR179.02018-12-17 21:05:438›Šùc(s5   3SBCY 172100Z 13007KT 9999 SCT020 SCT100 34/19 Q1010SBCY2018-12-17T21:00:00Z-15.65-56.1234.019.013076.2129.822834VFRMETAR182.02018-12-17 21:05:438›Šùb(u5   3SBPS 172100Z 07010KT 040V100 9999 FEW030 26/20 Q1017SBPS2018-12-17T21:00:00Z-16.43-39.0726.020.070106.2130.029528VFRMETAR51.02018-12-17 21:05:437›Šùa(s5   3SBFN 172100Z 12009KT 9999 SCT014 BKN025 27/24 Q1015SBFN2018-12-17T21:00:00Z-3.85-32.4227.024.012096.2129.970472MVFRMETAR56.02018-12-17 21:05:43:›Šù`(q5    3WADL 172100Z 35003KT 6000 SCT016 26/24 Q1011 NOSIGWADL2018-12-17T21:00:00Z-8.75116.2826.024.035033.7329.852362TRUEMVFRMETAR97.02018-12-17 21:05:43 Ò*n“ҁ;›Šùh(y5   3SPJL 172100Z 09011KT 9999 SCT020 14/05 Q1030 RMK PPOOOSPJL2018-12-17T21:00:00Z-15.47-70.1514.05.090116.2130.413385VFRMETAR3827.02018-12-17 21:05:43U›Šùg)#5    3SPJR 172100Z 31004KT 9999 VCSH SCT026 BKN046 16/10 Q1025 RMK RAB35E40 PP002SPJR2018-12-17T21:00:00Z-7.12-78.4716.010.031046.2130.265747VCSHVFRMETAR2622.02018-12-17 21:05:436›Šùf(}5   3SPLO 172100Z /////KT CAVOK 24/17 Q1011 RMK TX 25.8 PP000SPLO2018-12-17T21:00:00Z-17.7-71.3524.017.06.2129.852362VFRMETAR9.02018-12-17 21:05:43P›Šùe)%5   3SPME 172100Z 34009KT 9999 BKN013 27/22 Q1009 RMK BIRD HAZARD RWY 32/14 PP000SPME2018-12-17T21:00:00Z-3.53-80.427.022.034096.2129.793306MVFRMETAR27.02018-12-17 21:05:43 ':u­í'@›Šùm)5   3NFTV 172100Z 34006KT 9999 FEW017 SCT040 BKN120 28/25 Q1013NFTV2018-12-17T21:00:00Z-18.58-173.9728.025.034066.2129.911417VFRMETAR71.02018-12-17 21:05:43:›Šùl(y5   3SPCL 172100Z 36006KT 9999 SCT022 28/23 Q1010 RMK PP000SPCL2018-12-17T21:00:00Z-8.38-74.5828.023.036066.2129.822834VFRMETAR149.02018-12-17 21:05:43B›Šùk)5   3SPGM 172100Z 36010KT 9999 SCT040 31/22 Q1011 RMK TX31.2 PP000SPGM2018-12-17T21:00:00Z-9.28-76.031.022.0360106.2129.852362VFRMETAR665.02018-12-17 21:05:43?›Šùj)5   3SPHO 172100Z VRB02KT 9999 BKN070 23/05 Q1022 RMK SH S PP000SPHO2018-12-17T21:00:00Z-13.17-74.2223.05.0026.2130.177166VFRMETAR2749.02018-12-17 21:05:43@›Šùi)5   3SPJI 172100Z 00000KT 9999 FEW025 31/23 Q1017 RMK TX32.6 PP000SPJI2018-12-17T21:00:00Z-7.17-76.7231.023.0006.2130.029528VFRMETAR363.02018-12-17 21:05:43 ÙB~¹ÙZ›Šùq)35     3UBBB 172100Z 08003KT 5000 -RA BKN008 OVC017 06/05 Q1026 R16/290058 R17/290055 NOSIGUBBB2018-12-17T21:00:00Z40.4550.076.05.08033.1130.295275TRUE-RAIFRMETAR-6.02018-12-17 21:05:43?›Šùp)5   3SBMQ 172100Z 08006KT 9999 SCT017 FEW023TCU BKN080 30/23 Q1011SBMQ2018-12-17T21:00:00Z0.05-51.0730.023.08066.2129.852362VFRMETAR15.02018-12-17 21:05:43>›Šùo)5   3NFTL 172100Z 28008KT 9999 FEW010 SCT017 SCT110 28/26 Q1012NFTL2018-12-17T21:00:00Z-19.78-174.3328.026.028086.2129.88189VFRMETAR3.02018-12-17 21:05:438›Šùn(s5   3NFTF 172100Z 29011KT 9999 FEW010 BKN300 28/24 Q1012NFTF2018-12-17T21:00:00Z-21.23-175.1528.024.0290116.2129.88189VFRMETAR38.02018-12-17 21:05:43  5| V›Šùu)#5    3SPQU 172100Z 25012KT 180V290 9999 FEW060 SCT100 20/05 Q1025 NOSIG RMK PP000SPQU2018-12-17T21:00:00Z-16.33-71.5720.05.0250126.2130.265747TRUEVFRMETAR2554.02018-12-17 21:05:433›Šùt(m5   3SPRU 172100Z 18009KT CAVOK 24/20 Q1010 RMK PP000SPRU2018-12-17T21:00:00Z-8.08-79.1224.020.018096.2129.822834VFRMETAR30.02018-12-17 21:05:43L›Šùs)5   3SPSO 172100Z 22021KT CAVOK 23/19 Q1009 RMK BIRD HAZARD RWY 22/04 PP000SPSO2018-12-17T21:00:00Z-13.73-76.2223.019.0220216.2129.793306VFRMETAR10.02018-12-17 21:05:43s›Šùr)]5    3SPZO 172100Z 27015KT 240V300 9999 FEW043TCU SCT050 BKN080 14/05 Q1029 NOSIG RMK BIRD HAZARD RWY 28 PP000SPZO2018-12-17T21:00:00Z-13.55-71.9714.05.0270156.2130.383858TRUEVFRMETAR3249.02018-12-17 21:05:43 ¶%NŽ¶R›Šùy)5    3KFBR 172100Z AUTO 20005KT 10SM BKN120 M03/M07 A3014 RMK AO2 T10271072KFBR2018-12-17T21:00:00Z41.4-110.4-2.7-7.2200510.030.138779TRUETRUEVFRMETAR2144.02018-12-17 21:05:43:›Šùx(y5   3SBFI 172100Z 16006KT 9999 FEW030TCU SCT040 29/24 Q1009SBFI2018-12-17T21:00:00Z-25.6-54.4829.024.016066.2129.793306VFRMETAR243.02018-12-17 21:05:43Q›Šùw)%5   3SPHI 172100Z 21014KT 9999 FEW016 26/19 Q1009 RMK BIRD HAZARD RWY 19/01 PP000SPHI2018-12-17T21:00:00Z-6.77-79.8226.019.0210146.2129.793306VFRMETAR34.02018-12-17 21:05:43U›Šùv)#5    3SPQT 172100Z 17006KT 130V200 9999 BKN015 SCT100 27/24 Q1010 NOSIG RMK PP008SPQT2018-12-17T21:00:00Z-3.78-73.3227.024.017066.2129.822834TRUEMVFRMETAR126.02018-12-17 21:05:43 QH‘ÓQF›Šù~)5    3YPTN 172100Z AUTO 29006KT 9999 // BKN016 OVC019 28/24 Q1007YPTN2018-12-17T21:00:00Z-14.52132.3828.024.029066.2129.734253TRUEMVFRMETAR109.02018-12-17 21:05:430›Šù}(e5    3OEDR 172100Z VRB03KT CAVOK 16/12 Q1019 NOSIGOEDR2018-12-17T21:00:00Z26.2750.1716.012.0036.2130.088583TRUEVFRMETAR17.02018-12-17 21:05:438›Šù|(q5    3OEJN 172100Z 36006KT 9999 FEW040 26/18 Q1017 NOSIGOEJN2018-12-17T21:00:00Z21.6839.1526.018.036066.2130.029528TRUEVFRMETAR15.02018-12-17 21:05:431›Šù{(e5    3OEMA 172100Z 36003KT CAVOK 22/07 Q1021 NOSIGOEMA2018-12-17T21:00:00Z24.5539.722.07.036036.2130.147638TRUEVFRMETAR631.02018-12-17 21:05:432›Šùz(e5    3OERK 172100Z 17007KT CAVOK 17/09 Q1022 NOSIGOERK2018-12-17T21:00:00Z24.9546.7217.09.017076.2130.177166TRUEVFRMETAR612.02018-12-17 21:05:43 ;KŒÏ;R›Šú)5     3YPCC 172100Z AUTO 14013KT 9999 -SHRA SCT009 BKN020 OVC031 25/24 Q1012YPCC2018-12-17T21:00:00Z-12.1796.8225.024.0140136.2129.88189TRUE-SHRAMVFRMETAR3.02018-12-17 21:05:436›Šú(s5   3YPDN 172100Z 27007KT 9999 FEW020 BKN400 29/24 Q1007YPDN2018-12-17T21:00:00Z-12.42130.929.024.027076.2129.734253VFRMETAR30.02018-12-17 21:05:437›Šú(o5    3YPKU 172100Z AUTO 00000KT 9000 // NCD 27/26 Q1005YPKU2018-12-17T21:00:00Z-15.77128.6827.026.0005.5929.675198TRUEVFRMETAR45.02018-12-17 21:05:439›Šú(o5    3YPLM 172100Z AUTO 21013KT 9999 // NCD 19/16 Q1010YPLM2018-12-17T21:00:00Z-22.22114.0719.016.0210136.2129.822834TRUEVFRMETAR6.02018-12-17 21:05:43/›Šù(e5    3YPPH 172100Z 18009KT CAVOK 15/10 Q1016 NOSIGYPPH2018-12-17T21:00:00Z-31.93115.9815.010.018096.2130.0TRUEVFRMETAR13.02018-12-17 21:05:43 Ó=„“Ӂ:›Šú(}5    3EPLL 172100Z VRB01KT 2400 BR FEW015 OVC022 M03/M04 Q1025EPLL2018-12-17T21:00:00Z51.7219.4-3.0-4.0011.4930.265747BRIFRMETAR184.02018-12-17 21:05:43k›Šú)U5    3YBBN 172100Z 13007KT 9999 VCSH FEW015 SCT035 BKN050 24/21 Q1012 INTER 2100/2300 4000 DZ -SHRA BKN015YBBN2018-12-17T21:00:00Z-27.38153.1324.021.013076.2129.88189VCSHVFRMETAR5.02018-12-17 21:05:433›Šú(e5    3YBCS 172100Z 15001KT CAVOK 26/21 Q1007 NOSIGYBCS2018-12-17T21:00:00Z-16.87145.7526.021.015016.2129.734253TRUEVFRMETAR7.02018-12-17 21:05:43=›Šú)5   3YPAD 172100Z 34001KT 9999 FEW020 SCT180 BKN220 21/15 Q1012YPAD2018-12-17T21:00:00Z-34.95138.5221.015.034016.2129.88189VFRMETAR4.02018-12-17 21:05:43 ’1Yƒ’k›Šú )Y5   3SPTU 172100Z 36003KT 320V030 9999 FEW020 26/24 Q1009 RMK TCU SE/S BIRD HAZARD RWY 01/19 RAB07E27 PP112SPTU2018-12-17T21:00:00Z-12.62-69.226.024.036036.2129.793306VFRMETAR266.02018-12-17 21:05:43P›Šú )%5   3SPST 172100Z 04006KT 9999 SCT020 31/21 Q1009 RMK BIRD HAZARD RWY 17/35 PP000SPST2018-12-17T21:00:00Z-6.52-76.3731.021.04066.2129.793306VFRMETAR282.02018-12-17 21:05:43R›Šú )'5   3SPYL 172100Z 23012KT CAVOK 26/18 Q1010 RMK BIRD HAZARD RWY 17/35 TX28.1 PP000SPYL2018-12-17T21:00:00Z-4.57-81.2526.018.0230126.2129.822834VFRMETAR90.02018-12-17 21:05:43I›Šú)5    3KSAA 172100Z AUTO 22012KT 10SM OVC090 05/M05 A3010 RMK AO2KSAA2018-12-17T21:00:00Z41.45-106.835.0-5.02201210.030.100393TRUETRUEVFRMETAR2138.02018-12-17 21:05:43 F†¸çM›Šú)5    3SEQM 172100Z 02013KT 9999 SCT030 SCT080 19/12 Q1022 NOSIG RMK A3020SEQM2018-12-17T21:00:00Z-0.12-78.3519.012.020136.2130.177166TRUEVFRMETAR2400.02018-12-17 21:05:43K›Šú)5    3SCIP 172100Z 08012KT 020V100 9999 FEW020 SCT030 25/17 Q1023 NOSIGSCIP2018-12-17T21:00:00Z-27.17-109.4325.017.080126.2130.206694TRUEVFRMETAR69.02018-12-17 21:05:43H›Šú)5    3SCPQ 172100Z AUTO 13007KT 080V180 //// R35/P2000N NCD 16/07 Q1023SCPQ2018-12-17T21:00:00Z-42.33-73.7216.07.013071.2430.206694TRUEIFRMETAR5.02018-12-17 21:05:43:›Šú )5   3SCTN 172100Z AUTO 19013KT //// R/////// // NCD 14/09 Q1024SCTN2018-12-17T21:00:00Z-42.92-72.714.09.01901330.236221TRUEMETAR4.02018-12-17 21:05:434›Šú (i5   3SCCH 172100Z 17011KT 9999 FEW040CB 29/12 Q1013SCCH2018-12-17T21:00:00Z-36.57-72.0229.012.0170116.2129.911417VFRMETAR148.02018-12-17 21:05:43 ?Q±ô?/›Šú(w5   3OSKL 172100Z 07002KT 4000BR SCT026 OVC100 09/08 Q1019OSKL2018-12-17T21:00:00Z37.0341.29.08.070230.088583BRMETAR455.02018-12-17 21:05:437›Šú(q5    3WAJJ 172100Z 00000KT 9999 FEW010 25/24 Q1008 NOSIGWAJJ2018-12-17T21:00:00Z-2.58140.5225.024.0006.2129.763779TRUEVFRMETAR88.02018-12-17 21:05:43H›Šú)5     3VOHS 172100Z 33005KT 3000 -DZ SCT010 SCT015 OVC080 16/15 Q1016 NOSIGVOHS2018-12-17T21:00:00Z17.2378.4316.015.033051.8630.0TRUE-DZIFRMETAR1.02018-12-17 21:05:43L›Šú)5    3SCRM 172100Z 18005KT 150V240 9999 -SHSN SCT015 OVC020 00/M02 Q0971SCRM2018-12-17T21:00:00Z-62.18-58.980.0-2.018056.2128.671259-SHSNMVFRMETAR45.02018-12-17 21:05:43)›Šú(Y5   3SBGL 172100Z 13009KT CAVOK 32/23 Q1010SBGL2018-12-17T21:00:00Z-22.82-43.2532.023.013096.2129.822834VFRMETAR6.02018-12-17 21:05:43 <3y­÷<5›Šú(g5    3HSSS 172100Z 34013KT CAVOK 24/M03 Q1017 NOSIGHSSS2018-12-17T21:00:00Z15.5832.5324.0-3.0340136.2130.029528TRUEVFRMETAR380.02018-12-17 21:05:430›Šú(e5   3FIMP 172100Z 11012KT 9999 SCT017 26/20 Q1017FIMP2018-12-17T21:00:00Z-20.4257.6726.020.0110126.2130.029528VFRMETAR57.02018-12-17 21:05:43F›Šú)5    3TNCM 172100Z 12007KT 090V150 9999 FEW022 27/20 Q1016 NOSIG RMK A3002TNCM2018-12-17T21:00:00Z18.05-63.1227.020.012076.2130.0TRUEVFRMETAR4.02018-12-17 21:05:434›Šú(s5   3OSDI 172100Z 21008KT 9999 SCT030 BKN100 10/08 Q1020OSDI2018-12-17T21:00:00Z33.4236.5210.08.021086.2130.11811VFRMETAR605.02018-12-17 21:05:43G›Šú)5    3OSLK 172100Z 06006KT 6000 SHRA FEW026CB BKN030 BKN100 13/12 Q1018OSLK2018-12-17T21:00:00Z35.435.9513.012.06063.7330.059055SHRAMVFRMETAR48.02018-12-17 21:05:43 4A{¶ï45›Šú(k5   3SCGE 172100Z 18016KT 9999 FEW030TCU 28/13 Q1015SCGE2018-12-17T21:00:00Z-37.38-72.4228.013.0180166.2129.970472VFRMETAR114.02018-12-17 21:05:43A›Šú)5   3SCIC 172100Z 17005KT 120V230 9999 FEW045 SCT150 30/11 Q1011SCIC2018-12-17T21:00:00Z-34.97-71.2230.011.017056.2129.852362VFRMETAR242.02018-12-17 21:05:43?›Šú(y5    3KFYM 172100Z AUTO 01006KT 10SM CLR 14/02 A3015 RMK A01KFYM2018-12-17T21:00:00Z35.07-86.5714.02.010610.030.15059TRUETRUEVFRMETAR300.02018-12-17 21:05:43@›Šú(5    3GVSV 172100Z 06016KT 9999 FEW023 BKN100 23/17 Q1019 NOSIGGVSV2018-12-17T21:00:00Z16.83-25.0723.017.060166.2130.088583TRUEVFRMETAR20.02018-12-17 21:05:439›Šú(q5    3WIII 172100Z 25006KT 6000 FEW020 26/22 Q1010 NOSIGWIII2018-12-17T21:00:00Z-6.13106.6726.022.025063.7329.822834TRUEMVFRMETAR8.02018-12-17 21:05:43 DH€¾ÿD5›Šú$(s5   3SESA 172100Z 23012KT 9999 SCT012 SCT100 25/22 Q1009SESA2018-12-17T21:00:00Z-2.2-80.9725.022.0230126.2129.793306VFRMETAR8.02018-12-17 21:05:439›Šú#(s5   3SELT 172100Z 18017KT 9999 BKN030 BKN100 16/09 Q1027SELT2018-12-17T21:00:00Z-0.92-78.6216.09.0180176.2130.324802MVFRMETAR2785.02018-12-17 21:05:43<›Šú"(5   3SETN 172100Z 28007KT 9999 BKN023 BKN080 28/25 Q1009 A2981SETN2018-12-17T21:00:00Z0.98-79.6328.025.028076.2129.793306MVFRMETAR10.02018-12-17 21:05:43B›Šú!)5   3SEMT 172100Z 18010KT 9999 FEW026 BKN100 31/23 Q1009 RMK A2980SEMT2018-12-17T21:00:00Z-0.95-80.6731.023.0180106.2129.793306VFRMETAR14.02018-12-17 21:05:432›Šú (i5   3SCCY 172100Z 27010KT 220V360 CAVOK 17/05 Q1019SCCY2018-12-17T21:00:00Z-45.57-72.117.05.0270106.2130.088583VFRMETAR311.02018-12-17 21:05:43 <;†Ê <K›Šú))5    3SEJD 172100Z 33001KT 9999 VCSH SCT013 BKN100 24/24 Q1013 RMK A2991SEJD2018-12-17T21:00:00Z-1.07-77.5824.024.033016.2129.911417VCSHVFRMETAR375.02018-12-17 21:05:437›Šú((s5   3SECU 172100Z 07010KT 9999 BKN040 SCT100 20/09 Q1023SECU2018-12-17T21:00:00Z-2.87-78.9720.09.070106.2130.206694VFRMETAR2531.02018-12-17 21:05:436›Šú'(s5   3SEAM 172100Z 00000KT 9999 SCT033 BKN100 17/12 Q1025SEAM2018-12-17T21:00:00Z-1.18-78.5717.012.0006.2130.265747VFRMETAR2520.02018-12-17 21:05:43/›Šú&(e5   3SETU 172100Z 12008KT 9999 BKN020 16/09 Q1029SETU2018-12-17T21:00:00Z0.82-77.716.09.012086.2130.383858MVFRMETAR2940.02018-12-17 21:05:43?›Šú%)5   3SERO 172100Z 30007KT 9999 FEW013 BKN030 BKN080 29/23 Q1009SERO2018-12-17T21:00:00Z-3.43-79.9829.023.030076.2129.793306MVFRMETAR51.02018-12-17 21:05:43 'Dw±é'<›Šú.)5   3SEMC 172100Z 08003KT 9999 SCT026 BKN100 22/21 Q1016 RMK A3001SEMC2018-12-17T21:00:00Z-2.3-78.1222.021.08036.2130.0VFRMETAR1052.02018-12-17 21:05:43B›Šú-)5   3SECO 172100Z 32005KT 9999 SCT020 BKN100 25/22 Q1011 RMK A2988SECO2018-12-17T21:00:00Z-0.45-76.9825.022.032056.2129.852362VFRMETAR220.02018-12-17 21:05:43@›Šú,)5   3SENL 172100Z 29008KT 9999 FEW020 BKN100 26/24 Q1011 RMK A2987SENL2018-12-17T21:00:00Z0.1-76.8726.024.029086.2129.852362VFRMETAR293.02018-12-17 21:05:43G›Šú+)5   3SEST 172100Z 19013KT 9999 FEW013 SCT080 BKN300 28/23 Q1008 RMK A2977SEST2018-12-17T21:00:00Z-0.9-89.5828.023.0190136.2129.763779VFRMETAR6.02018-12-17 21:05:436›Šú*(s5   3SECA 172100Z 07009KT 9999 SCT040 BKN100 27/14 Q1015SECA2018-12-17T21:00:00Z-4.0-79.3727.014.07096.2129.970472VFRMETAR1121.02018-12-17 21:05:43 d4xÆd+›Šú3(Y5   3SCAR 172100Z 20012KT CAVOK 22/14 Q1011SCAR2018-12-17T21:00:00Z-18.35-70.3222.014.0200126.2129.852362VFRMETAR59.02018-12-17 21:05:43+›Šú2(Y5   3SCBA 172100Z 31027KT CAVOK 16/02 Q1017SCBA2018-12-17T21:00:00Z-45.92-71.6716.02.0310276.2130.029528VFRMETAR524.02018-12-17 21:05:43,›Šú1([5   3SCCF 172100Z 28021KT CAVOK 23/M02 Q1022SCCF2018-12-17T21:00:00Z-22.5-68.923.0-2.0280216.2130.177166VFRMETAR2312.02018-12-17 21:05:436›Šú0(q5   3SEGS 172100Z 13012KT 9999 FEW020 30/20 Q1010 A2982SEGS2018-12-17T21:00:00Z-0.45-90.2730.020.0130126.2129.822834VFRMETAR16.02018-12-17 21:05:43F›Šú/)5    3SESM 172100Z 07002KT 9999 VCSH BKN026 BKN100 24/19 Q1016 RMK A3001SESM2018-12-17T21:00:00Z-1.5-78.0724.019.07026.2130.0VCSHMVFRMETAR1056.02018-12-17 21:05:43 >?l®><›Šú8(5   3MGPB 172100Z 27004KT 9999 FEW018 BKN200 25/18 Q1018 A3006MGPB2018-12-17T21:00:00Z15.72-88.5825.018.027046.2130.059055VFRMETAR10.02018-12-17 21:05:43(›Šú7(g5   3MGHT 172100Z 09012KT 9999 SCT035 24/11 FEW200MGHT2018-12-17T21:00:00Z15.32-91.524.011.090126.21VFRMETAR1901.02018-12-17 21:05:438›Šú6(s5   3SBPL 172100Z 14010KT 9999 SCT035 SCT080 31/17 Q1015SBPL2018-12-17T21:00:00Z-9.37-40.5731.017.0140106.2129.970472VFRMETAR375.02018-12-17 21:05:43M›Šú5)5     3LUKK 172100Z 06008KT 9999 -SG OVC007 M02/M04 Q1025 R08/150095 NOSIGLUKK2018-12-17T21:00:00Z46.9328.93-2.0-4.06086.2130.265747TRUE-SGIFRMETAR122.02018-12-17 21:05:43;›Šú4(q5    3SCFA 172100Z 20012KT 9999 FEW025 19/12 Q1012 NOSIGSCFA2018-12-17T21:00:00Z-23.42-70.4219.012.0200126.2129.88189TRUEVFRMETAR120.02018-12-17 21:05:43 FzÂ*›Šú=(k5   3MGES 172100Z 07006KT 9999 OVC014 17/14 QFE911.0MGES2018-12-17T21:00:00Z14.57-89.3217.014.07066.21MVFRMETAR965.02018-12-17 21:05:439›Šú<)5   3MGZA 172100Z 02010KT 9999 FEW025 26/15 QFE991/0 FEW090 FEW200MGZA2018-12-17T21:00:00Z14.97-89.5226.015.020106.21VFRMETAR490.02018-12-17 21:05:43s›Šú;)g5    3MGRT 172100Z 27008KT 9999 FEW022TCU SCT200 31/22 Q1014 A2994 TCU N VOL. STA. MARIA Y SANTIAGUITO EN ACTIVIDADMGRT2018-12-17T21:00:00Z14.53-91.731.022.027086.2129.940945SAVFRMETAR200.02018-12-17 21:05:43F›Šú:)5   3MGCB 172100Z 05006KT 9999 FEW014 OVC016 17/13 QFE872.5 MTN NE/NE/E CUB/CLMGCB2018-12-17T21:00:00Z15.48-90.4217.013.05066.21MVFRMETAR1316.02018-12-17 21:05:434›Šú9(s5   3MGSJ 172100Z 18004KT CAVOK 33/20 Q1012 A2988 BKN200MGSJ2018-12-17T21:00:00Z13.92-90.8333.020.018046.2129.88189VFRMETAR9.02018-12-17 21:05:43 :Ib¦ñ:1›ŠúB(e5   3SBGR 172100Z 31006KT 9999 SCT045 33/20 Q1015SBGR2018-12-17T21:00:00Z-23.42-46.4733.020.031066.2129.970472VFRMETAR750.02018-12-17 21:05:43/›ŠúA(e5    3OBBI 172100Z VRB02KT CAVOK 21/14 Q1021 NOSIGOBBI2018-12-17T21:00:00Z26.2750.6321.014.0026.2130.147638TRUEVFRMETAR2.02018-12-17 21:05:436›Šú@(q5    3GLRB 172100Z 00000KT 9999 SCT012 25/24 Q1014 NOSIGGLRB2018-12-17T21:00:00Z6.25-10.3325.024.0006.2129.940945TRUEVFRMETAR18.02018-12-17 21:05:43a›Šú?)55     3LWSK 172100Z 31002KT 1800 -SN BR FEW004 SCT010 OVC033 M00/M01 Q1022 R99/1///95 NOSIGLWSK2018-12-17T21:00:00Z41.9721.630.0-1.031021.1230.177166TRUE-SN BRIFRMETAR239.02018-12-17 21:05:431›Šú>(e5   3SBCF 172100Z 11007KT 9999 FEW049 29/13 Q1018SBCF2018-12-17T21:00:00Z-19.63-43.9729.013.011076.2130.059055VFRMETAR828.02018-12-17 21:05:43 7Eu©æ7)›ŠúG(e5   3FQBR 172100Z /////KT 9999 FEW020 27/23 Q1012FQBR2018-12-17T21:00:00Z-19.834.8827.023.06.2129.88189VFRMETAR16.02018-12-17 21:05:43=›ŠúF(5    3FNLU 172100Z VRB02KT 9999 FEW015 SCT070 27/22 Q1013 NOSIGFNLU2018-12-17T21:00:00Z-8.8313.2227.022.0026.2129.911417TRUEVFRMETAR70.02018-12-17 21:05:43F›ŠúE) 5   3MGGT 172100Z 03012KT 9999 FEW020 SCT200 22/12 Q1025 A3027 FEW080MGGT2018-12-17T21:00:00Z14.57-90.5322.012.030126.2130.265747VFRMETAR1509.02018-12-17 21:05:43J›ŠúD)5    3LRCT 172100Z VRB02KT 1500 SN BR BKN004 OVC020 M01/M01 Q1023 AMB AMBLRCT2018-12-17T21:00:00Z46.523.88-1.0-1.0020.9330.206694SN BRLIFRMETAR331.02018-12-17 21:05:435›ŠúC(e5    3SCEL 172100Z 22017KT CAVOK 28/11 Q1012 NOSIGSCEL2018-12-17T21:00:00Z-33.37-70.7728.011.0220176.2129.88189TRUEVFRMETAR476.02018-12-17 21:05:43 >:i±ó>/›ŠúL(e5   3SBRB 172100Z 26004KT 9999 SCT020 25/22 Q1012SBRB2018-12-17T21:00:00Z-10.0-67.7825.022.026046.2129.88189VFRMETAR143.02018-12-17 21:05:438›ŠúK(y5   3SBMN 172100Z 03008KT 9999 FEW025 FEW030TCU 30/22 Q1010SBMN2018-12-17T21:00:00Z-3.13-59.9730.022.03086.2129.822834VFRMETAR84.02018-12-17 21:05:432›ŠúJ(e5   3SBBR 172100Z 10007KT 9999 FEW040 27/13 Q1019SBBR2018-12-17T21:00:00Z-15.87-47.9227.013.010076.2130.088583VFRMETAR1061.02018-12-17 21:05:43K›ŠúI)5    3SBSJ 172100Z 14003KT 9999 SCT040 FEW045TCU SCT100 26/22 Q1014 R ETSSBSJ2018-12-17T21:00:00Z-23.22-45.8726.022.014036.2129.940945TSVFRMETAR646.02018-12-17 21:05:43@›ŠúH)5   3SBPV 172100Z 36005KT 9999 FEW040 FEW045TCU SCT100 29/22 Q1009SBPV2018-12-17T21:00:00Z-8.72-63.929.022.036056.2129.793306VFRMETAR88.02018-12-17 21:05:43 'B†ÁÕ'(›ŠúQ(Y5   3SBCP 172100Z 06018KT CAVOK 27/20 Q1014SBCP2018-12-17T21:00:00Z-21.7-41.327.020.060186.2129.940945VFRMETAR11.02018-12-17 21:05:43f›ŠúP)95   3SBPA 172100Z 19011KT 170V250 2500 -TSRA FEW013 BKN025 FEW044CB OVC070 23/23 Q1009 RERASBPA2018-12-17T21:00:00Z-30.0-51.1723.023.0190111.5529.793306-TSRAOVC7000IFRMETAR3.02018-12-17 21:05:43?›ŠúO(5  3SBKP 172100Z 27008G24KT 9999 FEW052TCU SCT070 32/18 Q1014SBKP2018-12-17T21:00:00Z-23.0-47.1232.018.02708246.2129.940945VFRMETAR661.02018-12-17 21:05:436›ŠúN(q5     3OPMT 172100Z 00000KT 4000 FU NSC 09/06 Q1020 NOSIGOPMT2018-12-17T21:00:00Z30.1871.429.06.0002.4930.11811TRUEFUIFRMETAR123.02018-12-17 21:05:438›ŠúM(y5   3TUPJ 172100Z 20006KT 10SM SCT020 27/20 A3003 RMK Q1016TUPJ2018-12-17T21:00:00Z18.43-64.5227.020.0200610.030.029528VFRMETAR4.02018-12-17 21:05:43 0"s¯ú0D›ŠúV)5    3SBCG 172100Z 34007KT 9999 VCSH SCT045 FEW050TCU SCT080 32/19 Q1 013SBCG2018-12-17T21:00:00Z-20.47-54.6732.019.034076.21VCSHVFRMETAR567.02018-12-17 21:05:43/›ŠúU(e5   3SBCR 172100Z 04009KT 9999 FEW040 35/21 Q1008SBCR2018-12-17T21:00:00Z-19.0-57.6735.021.04096.2129.763779VFRMETAR141.02018-12-17 21:05:43>›ŠúT({5    3SBJP 172100Z 11010KT 9999 -RA SCT020 BKN070 26/23 Q1015SBJP2018-12-17T21:00:00Z-7.15-34.9526.023.0110106.2129.970472-RAVFRMETAR66.02018-12-17 21:05:43)›ŠúS(Y5   3SBVT 172100Z 05011KT CAVOK 28/23 Q1015SBVT2018-12-17T21:00:00Z-20.27-40.2728.023.050116.2129.970472VFRMETAR4.02018-12-17 21:05:43X›ŠúR)/5    3UBBN 172100Z 14008KT 8000 OVC050 03/01 Q1019 R14R/CLRD// NOSIG RMK MT OBSC QFE689UBBN2018-12-17T21:00:00Z39.1845.453.01.014084.9730.088583TRUEMVFRMETAR873.02018-12-17 21:05:43 1B…Ãî17›Šú[(s5   3SERB 172100Z 09005KT 9999 BKN040 SCT100 17/11 Q1026SERB2018-12-17T21:00:00Z-1.62-78.6717.011.09056.2130.295275VFRMETAR2796.02018-12-17 21:05:43O›ŠúZ)5     3UGTB 172100Z 00000KT 5000 BR BKN004 OVC023 04/04 Q1027 R31L/290056 NOSIGUGTB2018-12-17T21:00:00Z41.6744.954.04.0003.1130.324802TRUEBRLIFRMETAR495.02018-12-17 21:05:43<›ŠúY(w5   3UGKO 172100Z 08025G43KT 9999 BKN046 11/00 Q1017 NOSIGUGKO2018-12-17T21:00:00Z42.1842.4811.00.08025436.2130.029528TRUEVFRMETAR68.02018-12-17 21:05:437›ŠúX(q5    3UGSB 172100Z 12015KT 9999 BKN065 15/03 Q1015 NOSIGUGSB2018-12-17T21:00:00Z41.6241.615.03.0120156.2129.970472TRUEVFRMETAR32.02018-12-17 21:05:438›ŠúW(}5    3TFFF 172100Z AUTO 12011KT 9999 SCT033 BKN039 27/20 Q1016TFFF2018-12-17T21:00:00Z14.6-61.027.020.0120116.2130.0TRUEVFRMETAR5.02018-12-17 21:05:43 5j“ׁ>›Šú`)5   3NGTA 172100Z 06009KT 9999 FEW019TCU SCT020 OVC090 29/25 Q1011NGTA2018-12-17T21:00:00Z1.37173.1329.025.06096.2129.852362VFRMETAR2.02018-12-17 21:05:436›Šú_(s5   3PLCH 172100Z 10010KT 9999 FEW020 SCT300 30/24 Q1010PLCH2018-12-17T21:00:00Z1.98-157.3530.024.0100106.2129.822834VFRMETAR3.02018-12-17 21:05:43Q›Šú^)5     3YBCG 172100Z AUTO 15005KT 9999 -SHRA SCT008 BKN014 BKN029 23/22 Q1012YBCG2018-12-17T21:00:00Z-28.17153.523.022.015056.2129.88189TRUE-SHRAMVFRMETAR6.02018-12-17 21:05:43E›Šú]) 5    3FSIA 172100Z AUTO 29011KT 9999 FEW029/// OVC090/// 27/22 Q1011FSIA2018-12-17T21:00:00Z-4.6755.5227.022.0290116.2129.852362TRUEVFRMETAR3.02018-12-17 21:05:43E›Šú\)5    3YKRY 172100Z AUTO 12007KT 9999 // OVC008 OVC012 21/20 Q1013YKRY2018-12-17T21:00:00Z-26.57151.8321.020.012076.2129.911417TRUEIFRSPECI434.02018-12-17 21:05:43 -'f«ë-8›Šúe(o5    3YBTL 172100Z AUTO 18004KT 9999 // NCD 29/24 Q1007YBTL2018-12-17T21:00:00Z-19.25146.7529.024.018046.2129.734253TRUEVFRMETAR6.02018-12-17 21:05:43:›Šúd(u5    3YBWP 172100Z AUTO 00000KT 9999 // SCT021 27/25 Q1008YBWP2018-12-17T21:00:00Z-12.68141.9227.025.0006.2129.763779TRUEVFRMETAR12.02018-12-17 21:05:435›Šúc(k5    3VOML 172100Z 09003KT 6000 NSC 21/19 Q1012 NOSIGVOML2018-12-17T21:00:00Z12.9774.8821.019.09033.7329.88189TRUEMVFRMETAR103.02018-12-17 21:05:43;›Šúb(u5    3YWLM 172100Z AUTO 20011KT 9999 // OVC010 23/20 Q1012YWLM2018-12-17T21:00:00Z-32.8151.8323.020.0200116.2129.88189TRUEMVFRMETAR9.02018-12-17 21:05:43S›Šúa)5     3UBBG 172100Z 07004KT 0700 R30/1400 FG VV001 04/04 Q1025 R30/CLRD// NOSIGUBBG2018-12-17T21:00:00Z40.7346.324.04.07040.4330.265747TRUEFGLIFR100METAR330.02018-12-17 21:05:43 80n­ó85›Šúj(u5   3YCAS 172100Z AUTO 20003KT //// // ////// 23/20 Q1013YCAS2018-12-17T21:00:00Z-28.88153.0723.020.0200329.911417TRUEMETAR26.02018-12-17 21:05:434›Šúi(u5   3YBWX 172100Z AUTO 21019KT //// // ////// 22/18 Q1008YBWX2018-12-17T21:00:00Z-20.88115.422.018.02101929.763779TRUEMETAR6.02018-12-17 21:05:43;›Šúh(u5    3YCOM 172100Z AUTO 05006KT 9999 // OVC005 15/15 Q1017YCOM2018-12-17T21:00:00Z-36.3148.9715.015.05066.2130.029528TRUEIFRSPECI941.02018-12-17 21:05:43<›Šúg(u5    3YMTG 172100Z AUTO 13008KT 9999 // OVC009 14/12 Q1017YMTG2018-12-17T21:00:00Z-37.75140.7814.012.013086.2130.029528TRUEIFRSPECI65.02018-12-17 21:05:43J›Šúf)5    3YBUD 172100Z AUTO 16009KT 9999 // BKN008 OVC012 OVC021 24/22 Q1009YBUD2018-12-17T21:00:00Z-24.9152.3224.022.016096.2129.793306TRUEIFRMETAR82.02018-12-17 21:05:43 CBÂûC2›Šúo(u5   3YCCY 172100Z AUTO 00000KT //// // ////// 28/06 Q1007YCCY2018-12-17T21:00:00Z-20.67140.528.06.00029.734253TRUEMETAR570.02018-12-17 21:05:43A›Šún(5    3YCBP 172100Z AUTO 36005KT 330V030 9999 // NCD 28/06 Q1007YCBP2018-12-17T21:00:00Z-29.03134.7228.06.036056.2129.734253TRUEVFRMETAR226.02018-12-17 21:05:439›Šúm(o5    3YCBA 172100Z AUTO 10006KT 9999 // NCD 28/11 Q1011YCBA2018-12-17T21:00:00Z-31.53145.828.011.010066.2129.852362TRUEVFRMETAR221.02018-12-17 21:05:43;›Šúl(o5    3YCBB 172100Z AUTO 34016KT 9999 // NCD 24/18 Q1013YCBB2018-12-17T21:00:00Z-31.33149.2724.018.0340166.2129.911417TRUEVFRMETAR645.02018-12-17 21:05:438›Šúk(o5    3YCAR 172100Z AUTO 17012KT 9999 // NCD 19/16 Q1012YCAR2018-12-17T21:00:00Z-24.88113.6719.016.0170126.2129.88189TRUEVFRMETAR8.02018-12-17 21:05:43 EAÁE8›Šút(o5    3YTRE 172100Z AUTO 20003KT 9999 // NCD 23/20 Q1012YTRE2018-12-17T21:00:00Z-31.88152.5223.020.020036.2129.88189TRUEVFRMETAR12.02018-12-17 21:05:438›Šús(o5    3YTEF 172100Z AUTO 00000KT 9999 // NCD 22/10 Q1008YTEF2018-12-17T21:00:00Z-21.72122.2322.010.0006.2129.763779TRUEVFRMETAR296.02018-12-17 21:05:43:›Šúr(o5    3YTNK 172100Z AUTO 34006KT 9999 // NCD 30/16 Q1007YTNK2018-12-17T21:00:00Z-19.63134.1830.016.034066.2129.734253TRUEVFRMETAR377.02018-12-17 21:05:43:›Šúq(o5    3YSWG 172100Z AUTO 10008KT 9999 // NCD 23/15 Q1013YSWG2018-12-17T21:00:00Z-35.13147.4723.015.010086.2129.911417TRUEVFRMETAR213.02018-12-17 21:05:439›Šúp(o5    3YSTW 172100Z AUTO 01002KT 9999 // NCD 25/17 Q1013YSTW2018-12-17T21:00:00Z-31.07150.8525.017.01026.2129.911417TRUEVFRMETAR410.02018-12-17 21:05:43 MA‚ËMH›Šúy)5   3LZIB 172100Z 05002KT 8000 FEW043 M05/M06 Q1027 R04/710695 R13/0///95LZIB2018-12-17T21:00:00Z48.1717.22-5.0-6.05024.9730.324802MVFRMETAR134.02018-12-17 21:05:43*›Šúx(Y5   3SBRJ 172100Z 19010KT CAVOK 31/23 Q1010SBRJ2018-12-17T21:00:00Z-22.88-43.1731.023.0190106.2129.822834VFRMETAR3.02018-12-17 21:05:431›Šúw(e5    3HECA 172100Z 25007KT CAVOK 17/07 Q1022 NOSIGHECA2018-12-17T21:00:00Z30.1231.3817.07.025076.2130.177166TRUEVFRMETAR74.02018-12-17 21:05:439›Šúv(o5    3YWHA 172100Z AUTO 20009KT 9999 // NCD 22/19 Q1010YWHA2018-12-17T21:00:00Z-33.07137.5222.019.020096.2129.822834TRUEVFRMETAR13.02018-12-17 21:05:439›Šúu(o5    3YWGT 172100Z AUTO 21003KT 9999 // NCD 20/15 Q1013YWGT2018-12-17T21:00:00Z-36.42146.320.015.021036.2129.911417TRUEVFRMETAR153.02018-12-17 21:05:43 SKŽ¾S/›Šú~(e5   3MKJP 172100Z 13010KT 9999 FEW020 28/20 Q1014MKJP2018-12-17T21:00:00Z17.92-76.7828.020.0130106.2129.940945VFRMETAR3.02018-12-17 21:05:430›Šú}(i5   3LZTT 172100Z VRB02KT 9999 OVC018 M06/M08 Q1023LZTT2018-12-17T21:00:00Z49.0720.25-6.0-8.0026.2130.206694MVFRMETAR707.02018-12-17 21:05:43J›Šú|)5    3SBUG 172100Z 12015KT 9999 -TSRA FEW010 BKN033 SCT040CB 21/20 Q1 011 RERASBUG2018-12-17T21:00:00Z-29.77-57.0221.020.0120156.21-TSRAVFRMETAR74.02018-12-17 21:05:437›Šú{(q5    3TNCA 172100Z 10019KT 9999 FEW023 29/22 Q1012 NOSIGTNCA2018-12-17T21:00:00Z12.5-70.029.022.0100196.2129.88189TRUEVFRMETAR18.02018-12-17 21:05:43/›Šúz(i5   3LZKZ 172100Z VRB01KT 9999 BKN032 M03/M04 Q1025LZKZ2018-12-17T21:00:00Z48.6721.23-3.0-4.0016.2130.265747VFRMETAR232.02018-12-17 21:05:43 /|ÅáG›Šû) 5    3UKBB 172100Z 13004MPS 9999 OVC009 M06/M07 Q1029 R88/811045 NOSIGUKBB2018-12-17T21:00:00Z50.3330.9-6.0-7.013086.2130.383858TRUEIFRMETAR119.02018-12-17 21:05:43^›Šû)?5    3SOCA 172100Z AUTO 06009KT 9999 FEW018 SCT027 OVC052 27/23 Q1013 TEMPO 4000 SHRA SCT015TCUSOCA2018-12-17T21:00:00Z4.82-52.3727.023.06096.2129.911417TRUEVFRMETAR9.02018-12-17 21:05:431›Šû(k5   3NGFU 172100Z 11007KT 9999 SCT018TCU 31/25 Q1011NGFU2018-12-17T21:00:00Z-8.52179.2231.025.011076.2129.852362VFRMETAR1.02018-12-17 21:05:43-›Šû(c5    3TFFR 172100Z AUTO 12009KT CAVOK 27/19 Q1016TFFR2018-12-17T21:00:00Z16.27-61.5327.019.012096.2130.0TRUEVFRMETAR11.02018-12-17 21:05:43K›Šú)5    3FMMI 172100Z 12009KT 090V170 9999 FEW017 BKN020 19/15 Q1022 NOSIGFMMI2018-12-17T21:00:00Z-18.847.4719.015.012096.2130.177166TRUEMVFRMETAR1276.02018-12-17 21:05:43 ½*[½J›Šû)5    3UKDE 172100Z 07006MPS 9999 BKN014 M03/M07 Q1027 R02R/710370 NOSIGUKDE2018-12-17T21:00:00Z47.8735.32-3.0-7.070126.2130.324802TRUEMVFRMETAR113.02018-12-17 21:05:43H›Šû) 5    3UKDD 172100Z 09008MPS 9999 OVC016 M03/M06 Q1027 R08/090070 NOSIGUKDD2018-12-17T21:00:00Z48.3735.1-3.0-6.090166.2130.324802TRUEMVFRMETAR149.02018-12-17 21:05:43I›Šû) 5    3UKHH 172100Z 07005MPS 9999 OVC015 M07/M09 Q1031 R07/71//72 NOSIGUKHH2018-12-17T21:00:00Z49.9236.28-7.0-9.070106.2130.442913TRUEMVFRMETAR155.02018-12-17 21:05:43P›Šû)5    3UKOO 172100Z 06005MPS 010V090 9999 OVC010 M01/M02 Q1024 R34/190058 NOSIGUKOO2018-12-17T21:00:00Z46.4230.68-1.0-2.060106.2130.236221TRUEMVFRMETAR35.02018-12-17 21:05:43 ,1Z¡ã,1›Šû (k5    3LBPG 172100Z 21004KT 4000 BR OVC017 03/02 Q1019LBPG2018-12-17T21:00:00Z42.2824.723.02.021042.4930.088583BRIFRMETAR58.02018-12-17 21:05:438›Šû (y5    3LBIA 172100Z 35004KT 2000 RA SCT003 OVC011 04/04 Q1020LBIA2018-12-17T21:00:00Z42.4526.354.04.035041.2430.11811RAIFRMETAR155.02018-12-17 21:05:433›Šû (m5    3LBPL 172100Z 33002KT 3000 BR OVC017 00/M01 Q1023LBPL2018-12-17T21:00:00Z43.4524.50.0-1.033021.8630.206694BRIFRMETAR101.02018-12-17 21:05:43Q›Šû )5    3UKDR 172100Z 08006MPS 040V130 9999 OVC015 M03/M07 Q1026 R36/09//60 NOSIGUKDR2018-12-17T21:00:00Z48.0533.22-3.0-7.080126.2130.295275TRUEMVFRMETAR124.02018-12-17 21:05:43I›Šû) 5    3UKLL 172100Z 30001MPS 6000 BKN026 M04/M05 Q1025 R31/690531 NOSIGUKLL2018-12-17T21:00:00Z49.8223.93-4.0-5.030023.7330.265747TRUEMVFRMETAR325.02018-12-17 21:05:43 ¸8y¸;›Šû(w5     3LBBG 172100Z 32008KT 9999 RA OVC019 04/02 Q1020 NOSIGLBBG2018-12-17T21:00:00Z42.5727.524.02.032086.2130.11811TRUERAMVFRMETAR28.02018-12-17 21:05:439›Šû(u5    3LBSF 172100Z 28009KT 9999 OVC037 M02/M04 Q1020 NOSIGLBSF2018-12-17T21:00:00Z42.723.42-2.0-4.028096.2130.11811TRUEVFRMETAR530.02018-12-17 21:05:43U›Šû)/5    3LBWN 172100Z 28006KT 250V320 8000 -RA OVC010 03/02 Q1020 R99/29//95 TEMPO 5000 RALBWN2018-12-17T21:00:00Z43.2227.823.02.028064.9730.11811-RAMVFRMETAR43.02018-12-17 21:05:43g›Šû )C5    3LHBP 172100Z VRB01KT 1200 R31L/0900N R31R/0275N FZBCFG BR NSC M10/M10 Q1027 TEMPO 0600 FZFGLHBP2018-12-17T21:00:00Z47.4219.27-10.0-10.0010.7530.324802BCFG BRLIFRMETAR185.02018-12-17 21:05:43 2Dl²ç2/›Šû(e5   3SKCC 172100Z 01010KT 9999 SCT022 29/20 A2989SKCC2018-12-17T21:00:00Z7.92-72.5229.020.010106.2129.890747VFRMETAR317.02018-12-17 21:05:43E›Šû(}5     3KHAF 172100Z AUTO 23005KT 3SM HZ CLR 14/11 A3021 RMK AO2KHAF2018-12-17T21:00:00Z37.52-122.514.011.023053.030.209646TRUETRUEHZMVFRSPECI21.02018-12-17 21:05:434›Šû(s5   3SBPB 172100Z 13005KT 9999 FEW017 OVC090 26/20 Q1012SBPB2018-12-17T21:00:00Z-2.92-41.7526.020.013056.2129.88189VFRMETAR5.02018-12-17 21:05:43R›Šû)5     3LBGO 172100Z AUTO 28004KT 2900 -SN FEW006 OVC048 M01/M01 Q1023 R09/493093LBGO2018-12-17T21:00:00Z43.1525.72-1.0-1.028041.830.206694TRUE-SNIFRMETAR86.02018-12-17 21:05:436›Šû(o5    3LBPD 172100Z AUTO 30003KT 9999 OVC028 03/03 Q1019LBPD2018-12-17T21:00:00Z42.1324.83.03.030036.2130.088583TRUEMVFRMETAR185.02018-12-17 21:05:43 ?;vªü?7›Šû(s5   3SKPE 172100Z 09010KT 9999 SCT021 SCT090 26/19 A2997SKPE2018-12-17T21:00:00Z4.82-75.7326.019.090106.2129.970472VFRMETAR1346.02018-12-17 21:05:43(›Šû(]5   3OPPS 172100Z 23004KT 4000 HZ 09/03 Q1021OPPS2018-12-17T21:00:00Z34.0271.529.03.023042.4930.147638HZMETAR360.02018-12-17 21:05:43F›Šû)5   3SKRG 172100Z 09006KT 9999 FEW020TCU SCT200 22/13 A3022 RMK TCU S/WSKRG2018-12-17T21:00:00Z6.17-75.4222.013.09066.2130.221457VFRMETAR2137.02018-12-17 21:05:43?›Šû)5   3SKSP 172100Z 05010KT 010V180 9999 FEW018 BKN200 32/22 A2990SKSP2018-12-17T21:00:00Z12.57-81.7232.022.050106.2129.899607VFRMETAR-2.02018-12-17 21:05:43?›Šû)5   3SKBG 172100Z 33006KT 9999 SCT017 SCT240 25/20 A2995 WS R35SKBG2018-12-17T21:00:00Z7.13-73.1825.020.033066.2129.949802VFRMETAR1189.02018-12-17 21:05:43 )N‡½Þ)/›Šû(e5    3OEDF 172100Z 00000KT CAVOK 16/12 Q1021 NOSIGOEDF2018-12-17T21:00:00Z26.4749.816.012.0006.2130.147638TRUEVFRMETAR22.02018-12-17 21:05:43Y›Šû)'5   3PKWA 172100Z AUTO 08017G21KT 10SM SCT026 SCT039 29/23 A2989 RMK AO2 T02880234PKWA2018-12-17T21:00:00Z8.72167.7228.823.480172110.029.890747TRUETRUEVFRMETAR8.02018-12-17 21:05:43D›Šû(5     3NWWW 172100Z AUTO 11006KT 040V140 CAVOK 26/18 Q1012 NOSIGNWWW2018-12-17T21:00:00Z-22.02166.2226.018.011066.2129.88189TRUETRUEVFRMETAR16.02018-12-17 21:05:43A›Šû)5   3NIUE 172100Z 35007KT 310V030 9999 SCT018 BKN300 29/27 Q1014NIUE2018-12-17T21:00:00Z-19.07-169.9229.027.035076.2129.940945VFRMETAR20.02018-12-17 21:05:43,›Šû(e5   3SKLT 172100Z VRB02KT 9999 SCT020 32/24 A2979SKLT2018-12-17T21:00:00Z-4.2-69.9332.024.0026.2129.790354VFRMETAR84.02018-12-17 21:05:43 o@ŠÒ"o-›Šû$(_5  3SKBQ 172100Z 01012G22KT CAVOK 29/22 A2980SKBQ2018-12-17T21:00:00Z10.9-74.7729.022.01012226.2129.799213VFRMETAR10.02018-12-17 21:05:43*›Šû#(e5   3TKPN 172100Z 13007KT 9999 FEW024 27/18 Q1016TKPN2018-12-17T21:00:00Z17.18-62.5727.018.013076.2130.0VFRMETAR17.02018-12-17 21:05:432›Šû"(q5    3TLPC 172100Z 10007KT 9999 FEW024 27/21 Q1016 NOSIGTLPC2018-12-17T21:00:00Z14.02-61.027.021.010076.2130.0TRUEVFRMETAR2.02018-12-17 21:05:430›Šû!(k5   3OMFJ 172100Z 30005KT 8000 NSC 20/13 Q1020 A3014OMFJ2018-12-17T21:00:00Z25.156.3220.013.030054.9730.11811MVFRMETAR28.02018-12-17 21:05:43:›Šû (q5    3SUMU 172100Z 17015KT 8000 OVC010 19/17 Q1012 NOSIGSUMU2018-12-17T21:00:00Z-34.82-56.019.017.0170154.9729.88189TRUEMVFRMETAR32.02018-12-17 21:05:43 ;9y¾ÿ;>›Šû)(}5   3LDSP 172100Z 05011G21KT 010V090 CAVOK 08/M09 Q1018 NOSIGLDSP2018-12-17T21:00:00Z43.5216.38.0-9.05011216.2130.059055TRUEVFRMETAR21.02018-12-17 21:05:439›Šû((u5    3LDZA 172100Z 00000KT 7000 BKN020 M01/M03 Q1028 NOSIGLDZA2018-12-17T21:00:00Z45.7216.07-1.0-3.0004.3530.35433TRUEMVFRMETAR107.02018-12-17 21:05:435›Šû'(s5    3LDZD 172100Z VRB03KT 9999 FEW050 04/M04 Q1021 NOSIGLDZD2018-12-17T21:00:00Z44.115.374.0-4.0036.2130.147638TRUEVFRMETAR84.02018-12-17 21:05:43:›Šû&(s5    3LFVP 172100Z 12022KT 9999 OVC016 01/M02 Q1007 NOSIGLFVP2018-12-17T21:00:00Z46.77-56.181.0-2.0120226.2129.734253TRUEMVFRMETAR8.02018-12-17 21:05:43A›Šû%(5    3MRPV 172100Z 11010KT 9999 FEW045 SCT200 25/14 A3001 NOSIGMRPV2018-12-17T21:00:00Z9.95-84.1525.014.0110106.2130.008858TRUEVFRMETAR994.02018-12-17 21:05:43 3EŽÌ3Z›Šû.);5   3SEGU 172100Z 06004KT 040V100 9999 BKN026 OVC100 30/23 Q1008 BECMG FM2115 8000 RMK A2977SEGU2018-12-17T21:00:00Z-2.13-79.8730.023.06046.2129.763779MVFRMETAR9.02018-12-17 21:05:433›Šû-(g5    3LDDU 172100Z 04023KT CAVOK 09/M04 Q1014 NOSIGLDDU2018-12-17T21:00:00Z42.5718.279.0-4.040236.2129.940945TRUEVFRMETAR165.02018-12-17 21:05:43<›Šû,(q5    3LDOS 172100Z 24003KT 0400 FZFG VV002 M06/M06 Q1027LDOS2018-12-17T21:00:00Z45.4718.82-6.0-6.024030.2530.324802FZFGLIFR200METAR89.02018-12-17 21:05:431›Šû+(g5    3LDPL 172100Z 03009KT CAVOK 07/M03 Q1024 NOSIGLDPL2018-12-17T21:00:00Z44.8813.927.0-3.03096.2130.236221TRUEVFRMETAR63.02018-12-17 21:05:435›Šû*(w5   3LDRI 172100Z 01009KT 330V040 9999 FEW030 07/M03 Q1024LDRI2018-12-17T21:00:00Z45.2214.577.0-3.01096.2130.236221VFRMETAR85.02018-12-17 21:05:43 PDŠÊP1›Šû3(e5    3GMAD 172100Z 18005KT CAVOK 12/06 Q1025 NOSIGGMAD2018-12-17T21:00:00Z30.32-9.4212.06.018056.2130.265747TRUEVFRMETAR74.02018-12-17 21:05:43=›Šû2({5    3GMME 172100Z 12003KT 090V170 8000 NSC 10/08 Q1025 NOSIGGMME2018-12-17T21:00:00Z34.03-6.7710.08.012034.9730.265747TRUEMVFRMETAR75.02018-12-17 21:05:43:›Šû1({5   3GMMN 172100Z 05002KT 8000 FEW010 12/12 Q1025 BECMG 5000GMMN2018-12-17T21:00:00Z33.37-7.5712.012.05024.9730.265747MVFRMETAR206.02018-12-17 21:05:434›Šû0(k5    3GMMX 172100Z 00000KT 7000 NSC 14/08 Q1025 NOSIGGMMX2018-12-17T21:00:00Z31.62-8.0214.08.0004.3530.265747TRUEMVFRMETAR466.02018-12-17 21:05:436›Šû/(q5    3GMTT 172100Z 10008KT 9999 FEW026 11/08 Q1026 NOSIGGMTT2018-12-17T21:00:00Z35.72-5.911.08.010086.2130.295275TRUEVFRMETAR21.02018-12-17 21:05:43 ä:ªä@›Šû7(5    3TBPB 172100Z 09013KT 9999 FEW016 SCT020 27/22 Q1015 NOSIGTBPB2018-12-17T21:00:00Z13.07-59.4827.022.090136.2129.970472TRUEVFRMETAR52.02018-12-17 21:05:43O›Šû6)5    3EPPO 172100Z 09001KT 0800 R28/P2000U FZFG BKN034 M03/M03 Q1025 R10/29//95EPPO2018-12-17T21:00:00Z52.4216.82-3.0-3.09010.530.265747FZFGLIFRMETAR92.02018-12-17 21:05:435›Šû5(o5    3EPRZ 172100Z 26007KT 4000 BR OVC030 M02/M04 Q1026EPRZ2018-12-17T21:00:00Z50.122.05-2.0-4.026072.4930.295275BRIFRMETAR202.02018-12-17 21:05:43@›Šû4)5    3EPWA 172100Z 00000KT 4000 BR BKN034 M06/M07 Q1025 TEMPO 3000EPWA2018-12-17T21:00:00Z52.1720.97-6.0-7.0002.4930.265747BRIFRMETAR107.02018-12-17 21:05:43 Ã>Ã8›Šû;(k5   3SCCI 172100Z 23029G42KT CAVOK 13/03 Q1008 NOSIGSCCI2018-12-17T21:00:00Z-53.0-70.8313.03.023029426.2129.763779TRUEVFRMETAR37.02018-12-17 21:05:437›Šû:(u5   3SKCL 172100Z 33009KT 280V340 9999 FEW040 31/18 A2987SKCL2018-12-17T21:00:00Z3.53-76.3731.018.033096.2129.870079VFRMETAR969.02018-12-17 21:05:43>›Šû9)5   3SKBO 172100Z 23007KT 180V260 9999 FEW015 SCT023 18/09 A3026SKBO2018-12-17T21:00:00Z4.7-74.1218.09.023076.2130.259842VFRMETAR2548.02018-12-17 21:05:43x›Šû8)K5       3PAQT 172100Z AUTO 23006KT 3SM -SN BR OVC038 M23/M25 A2944 RMK P0000 T12281250 TSNO VIA AUTODIALPAQT2018-12-17T21:00:00Z70.22-151.0-22.8-25.023063.029.438976TRUETRUE-SN BRMVFR0.005SPECI12.02018-12-17 21:05:43 ‚J’æ8‚0›Šû@(e5   3SCSE 172100Z 27009KT 9999 SCT017 17/13 Q1014SCSE2018-12-17T21:00:00Z-29.92-71.217.013.027096.2129.940945VFRMETAR146.02018-12-17 21:05:43(›Šû?(Y5   3SCJO 172100Z 19009KT CAVOK 19/05 Q1021SCJO2018-12-17T21:00:00Z-40.6-73.0319.05.019096.2130.147638VFRMETAR65.02018-12-17 21:05:43&›Šû>(Y5   3SCQP 172100Z 20010KT CAVOK 25/11 Q1016SCQP2018-12-17T21:00:00Z-38.92-72.6525.011.0200106.2130.0VFRMETAR97.02018-12-17 21:05:432›Šû=(i5   3SCVD 172100Z 18009KT 140V220 CAVOK 23/10 Q1018SCVD2018-12-17T21:00:00Z-39.65-73.0723.010.018096.2130.059055VFRMETAR14.02018-12-17 21:05:430›Šû<(e5   3SCNT 172100Z 26021KT 9999 BKN040 12/02 Q1013SCNT2018-12-17T21:00:00Z-51.67-72.5312.02.0260216.2129.911417VFRMETAR67.02018-12-17 21:05:43 dO–Ô#d9›ŠûE)5   3MHCA 172100Z 01004KT 9999 SCT026 BKN080 27/18 Q1016 TCU E SMHCA2018-12-17T21:00:00Z14.9-85.7827.018.01046.2130.0VFRMETAR442.02018-12-17 21:05:43+›ŠûD(Y5   3SCIE 172100Z 23014KT CAVOK 22/12 Q1014SCIE2018-12-17T21:00:00Z-36.77-73.0722.012.0230146.2129.940945VFRMETAR16.02018-12-17 21:05:43<›ŠûC(5   3MGMM 172100Z 30008KT 9999 SCT020 BKN090 24/18 Q1020 A3012MGMM2018-12-17T21:00:00Z16.97-89.8724.018.030086.2130.11811VFRMETAR123.02018-12-17 21:05:433›ŠûB(i5   3SCAT 172100Z 25009KT 200V280 CAVOK 20/11 Q1014SCAT2018-12-17T21:00:00Z-27.27-70.7720.011.025096.2129.940945VFRMETAR204.02018-12-17 21:05:43+›ŠûA(Y5   3SCDA 172100Z 20017KT CAVOK 23/13 Q1011SCDA2018-12-17T21:00:00Z-20.52-70.1723.013.0200176.2129.852362VFRMETAR52.02018-12-17 21:05:43 /:‚µò/=›ŠûJ(5    3WSSS 172100Z VRB02KT 9999 FEW015 BKN140 26/25 Q1011 NOSIGWSSS2018-12-17T21:00:00Z1.37103.9726.025.0026.2129.852362TRUEVFRMETAR16.02018-12-17 21:05:43=›ŠûI) 5    3VGHS 172100Z 02007KT 2800 DZ BKN010 BKN100 19/17 Q1016 TEMPO RAVGHS2018-12-17T21:00:00Z23.8590.419.017.02071.7430.0DZIFRMETAR10.02018-12-17 21:05:43G›ŠûH) 5    3GVAC 172100Z 04009KT 9999 FEW014 SCT100 BKN200 23/17 Q1018 NOSIGGVAC2018-12-17T21:00:00Z16.72-22.9323.017.04096.2130.059055TRUEVFRMETAR55.02018-12-17 21:05:432›ŠûG(e5    3MRLB 172100Z 07020KT CAVOK 31/19 A2980 NOSIGMRLB2018-12-17T21:00:00Z10.6-85.5531.019.070206.2129.799213TRUEVFRMETAR82.02018-12-17 21:05:43@›ŠûF(5    3NFFN 172100Z 05004KT 9999 FEW030 BKN300 29/22 Q1011 NOSIGNFFN2018-12-17T21:00:00Z-17.75177.4529.022.05046.2129.852362TRUEVFRMETAR18.02018-12-17 21:05:43 ?A’ß ?F›ŠûO) 5    3MHLM 172100Z 04004KT 9999 FEW024 BKN080 23/18 Q1018 A3006 NOSIGMHLM2018-12-17T21:00:00Z15.45-87.9323.018.04046.2130.059055TRUEVFRMETAR26.02018-12-17 21:05:43N›ŠûN)5   3MHTG 172100Z 36010G20KT 9999 SCT028 BKN250 19/13 Q1020 A3012 NOSIGMHTG2018-12-17T21:00:00Z14.07-87.2219.013.036010206.2130.11811TRUEVFRMETAR1004.02018-12-17 21:05:43-›ŠûM(e5   3MWCR 172100Z 12009KT 9999 FEW018 29/22 Q1015MWCR2018-12-17T21:00:00Z19.3-81.3729.022.012096.2129.970472VFRMETAR3.02018-12-17 21:05:43)›ŠûL(e5   3MWCB 172100Z 12006KT 9999 SCT018 29/23 Q1016MWCB2018-12-17T21:00:00Z19.68-79.8829.023.012066.2130.0VFRMETAR2.02018-12-17 21:05:439›ŠûK(y5   3SBNF 172100Z 27006KT 9999 SCT014 FEW025TCU 27/25 Q1010SBNF2018-12-17T21:00:00Z-26.88-48.6527.025.027066.2129.822834VFRMETAR5.02018-12-17 21:05:43 *3V¤æ*6›ŠûT(u5    3OMDB 172100Z 06004KT 300V100 CAVOK 21/09 Q1020 NOSIGOMDB2018-12-17T21:00:00Z25.2555.3721.09.06046.2130.11811TRUEVFRMETAR5.02018-12-17 21:05:438›ŠûS(u5    3OMDW 172100Z 04003KT 350V070 CAVOK 15/10 Q1021 NOSIGOMDW2018-12-17T21:00:00Z24.955.1715.010.04036.2130.147638TRUEVFRMETAR25.02018-12-17 21:05:43,›ŠûR(e5   3SBAR 172100Z 12012KT 9999 BKN018 27/21 Q1016SBAR2018-12-17T21:00:00Z-10.97-37.0727.021.0120126.2130.0MVFRMETAR9.02018-12-17 21:05:43W›ŠûQ)'5     3MHRO 172100Z 29008KT 3000 -RA SCT008 SCT016TCU OVC070 22/18 Q1017 A3003 NOSIGMHRO2018-12-17T21:00:00Z16.32-86.5322.018.029081.8630.029528TRUE-RAIFRMETAR5.02018-12-17 21:05:43G›ŠûP) 5    3MHLC 172100Z 22007KT 9999 SCT020 OVC080 22/19 Q1018 A3006 NOSIGMHLC2018-12-17T21:00:00Z15.75-86.8522.019.022076.2130.059055TRUEVFRMETAR15.02018-12-17 21:05:43 kI”Þ$k3›ŠûY(s5   3WSSL 172100Z VRB01KT 9999 FEW016 BKN150 26/24 Q1010WSSL2018-12-17T21:00:00Z1.42103.8726.024.0016.2129.822834VFRMETAR14.02018-12-17 21:05:434›ŠûX(q5    3TAPA 172100Z 10005KT 9999 FEW018 26/20 Q1016 NOSIGTAPA2018-12-17T21:00:00Z17.12-61.7826.020.010056.2130.0TRUEVFRMETAR14.02018-12-17 21:05:430›ŠûW(e5    3OMAA 172100Z VRB02KT CAVOK 20/13 Q1019 NOSIGOMAA2018-12-17T21:00:00Z24.4254.6320.013.0026.2130.088583TRUEVFRMETAR27.02018-12-17 21:05:43/›ŠûV(e5    3OMAD 172100Z 03004KT CAVOK 22/15 Q1020 NOSIGOMAD2018-12-17T21:00:00Z24.4254.4722.015.03046.2130.11811TRUEVFRMETAR3.02018-12-17 21:05:431›ŠûU(e5    3OMAL 172100Z 10006KT CAVOK 19/08 Q1021 NOSIGOMAL2018-12-17T21:00:00Z24.2555.619.08.010066.2130.147638TRUEVFRMETAR262.02018-12-17 21:05:43 Ù3i¢ÙC›Šû](5    3KGOO 172100Z AUTO 24005KT 10SM SCT022 09/03 A3018 RMK AO1KGOO2018-12-17T21:00:00Z39.22-121.09.03.0240510.030.180119TRUETRUEVFRMETAR962.02018-12-17 21:05:43A›Šû\({5    3KHSD 172100Z AUTO 02003KT 10SM CLR 11/M01 A3020 RMK A01KHSD2018-12-17T21:00:00Z35.6-97.7211.0-1.020310.030.200787TRUETRUEVFRMETAR364.02018-12-17 21:05:43D›Šû[(5    3KEMK 172100Z AUTO 16007KT 10SM FEW028 19/12 A3018 RMK A01KEMK2018-12-17T21:00:00Z27.82-94.3219.012.0160710.030.180119TRUETRUEVFRMETAR26.02018-12-17 21:05:43G›ŠûZ)5  3KGRY 172100Z AUTO 01007G13KT 320V050 10SM 16/13 A3020 RMK A01KGRY2018-12-17T21:00:00Z27.63-90.4516.013.01071310.030.200787TRUETRUEMETAR58.02018-12-17 21:05:43 Ñ$_Ñ9›Šûa(w5     3VOTV 172100Z 00000KT 2500 HZ FEW015 26/24 Q1011 NOSIGVOTV2018-12-17T21:00:00Z8.4776.9526.024.0001.5529.852362TRUEHZIFRMETAR8.02018-12-17 21:05:43I›Šû`)5     3VANP 172100Z 02004KT 2500 -RA FEW010 SCT020 OVC080 16/15 Q1016 NOSIGVANP2018-12-17T21:00:00Z21.0879.0516.015.02041.5530.0TRUE-RAIFRMETAR310.02018-12-17 21:05:43?›Šû_(5    3VOVZ 172100Z 21008KT 6000 SCT014 OVC070 23/21 Q1010 NOSIGVOVZ2018-12-17T21:00:00Z17.7583.2223.021.021083.7329.822834TRUEMVFRMETAR5.02018-12-17 21:05:43V›Šû^)5    3KBKL 172100Z 29017KT 10SM BKN029 OVC039 03/M03 A3007 RMK AO2 T00281028 $KBKL2018-12-17T21:00:00Z41.53-81.672.8-2.82901710.030.070866TRUETRUEMVFRSPECI184.02018-12-17 21:05:43 68x¿ 6O›Šûf)5     3SMZO 172100Z 05004KT 9999 VCSH SCT010 SCT020 25/24 Q1013 RESHRA NOSIGSMZO2018-12-17T21:00:00Z5.82-55.1825.024.05046.2129.911417TRUEVCSHVFRMETAR10.02018-12-17 21:05:43.›Šûe(e5   3SBSN 172100Z 09009KT 9999 FEW020 29/24 Q1010SBSN2018-12-17T21:00:00Z-2.42-54.7829.024.09096.2129.822834VFRMETAR72.02018-12-17 21:05:433›Šûd(s5   3WSAP 172100Z 00000KT 9999 FEW016 BKN150 27/25 Q1010WSAP2018-12-17T21:00:00Z1.37103.9227.025.0006.2129.822834VFRMETAR32.02018-12-17 21:05:43:›Šûc(q5    3FQMA 172100Z 03011KT 9999 BKN020 26/22 Q1014 NOSIGFQMA2018-12-17T21:00:00Z-25.9232.5726.022.030116.2129.940945TRUEMVFRMETAR44.02018-12-17 21:05:43B›Šûb)5     3VOCI 172100Z 07004KT 4000 HZ FEW015 SCT080 24/22 Q1011 NOSIGVOCI2018-12-17T21:00:00Z10.1576.424.022.07042.4929.852362TRUEHZIFRMETAR8.02018-12-17 21:05:43 V%rÁ V1›Šûk(e5   3SBRP 172100Z 31006KT 9999 FEW049 34/16 Q1013SBRP2018-12-17T21:00:00Z-21.12-47.7734.016.031066.2129.911417VFRMETAR549.02018-12-17 21:05:43.›Šûj(e5   3SVMI 172100Z 11003KT 9999 SCT016 27/22 Q1009SVMI2018-12-17T21:00:00Z10.58-67.027.022.011036.2129.793306VFRMETAR48.02018-12-17 21:05:43+›Šûi(e5   3SBGO 172100Z 09006KT 9999 FEW045 31/13 Q1016SBGO2018-12-17T21:00:00Z-16.62-49.2231.013.09066.2130.0VFRMETAR747.02018-12-17 21:05:43-›Šûh(e5   3SBCJ 172100Z 00000KT 9999 SCT019 27/21 Q1015SBCJ2018-12-17T21:00:00Z-6.12-50.027.021.0006.2129.970472VFRMETAR621.02018-12-17 21:05:43U›Šûg)5     3SMJP 172100Z 07011KT 8000 -SHRA SCT010 FEW015CB SCT025 24/23 Q1013 NOSIGSMJP2018-12-17T21:00:00Z5.45-55.1724.023.070114.9729.911417TRUE-SHRAMVFRMETAR16.02018-12-17 21:05:43 Bg…ρ1›Šûp(o5   3NCRK 172100Z AUTO 12007KT //// ////// 31/24 Q1012NCRK2018-12-17T21:00:00Z-10.05-161.0831.024.0120729.88189TRUEMETAR5.02018-12-17 21:05:430›Šûo(s5   3NCRG 172100Z 06007KT 9999 FEW012 BKN045 29/27 Q1016NCRG2018-12-17T21:00:00Z-21.2-159.8229.027.06076.2130.0VFRMETAR7.02018-12-17 21:05:43\›Šûn)35     3UBBQ 172100Z 28005KT 4000 BR BKN002 OVC011 04/03 Q1025 R34/190065 NOSIG RMK MT OBSCUBBQ2018-12-17T21:00:00Z40.8247.724.03.028052.4930.265747TRUEBRLIFRMETAR338.02018-12-17 21:05:43U›Šûm)-5    3UBBY 172100Z 16004KT 9999 BKN007 OVC018 04/04 Q1028 R33/////// NOSIG RMK MT OBSCUBBY2018-12-17T21:00:00Z41.5746.674.04.016046.2130.35433TRUEIFRMETAR390.02018-12-17 21:05:438›Šûl(w5   3FLKK 172100Z 08005KT 9999 FEW///CB SCT100 21/19 Q1020FLKK2018-12-17T21:00:00Z-15.3228.4521.019.08056.2130.11811VFRMETAR1154.02018-12-17 21:05:43 =I’Û=W›Šûu))5     3UBBL 172100Z 32008KT 8000 -RA OVC004 06/06 Q1026 R33/CLRD// NOSIG RMK MT OBSC UBBL2018-12-17T21:00:00Z38.7548.826.06.032084.9730.295275TRUE-RALIFRMETAR10.02018-12-17 21:05:43;›Šût({5     3OPST 172100Z 00000KT 3500 FU NSC 06/03 Q1020 NOSIG RH84OPST2018-12-17T21:00:00Z32.5374.376.03.0002.1730.11811TRUEFUIFRMETAR247.02018-12-17 21:05:431›Šûs(o5   3NCMH 172100Z AUTO 12006KT //// ////// 32/25 Q1013NCMH2018-12-17T21:00:00Z-10.38-161.032.025.0120629.911417TRUEMETAR0.02018-12-17 21:05:431›Šûr(o5   3NCMK 172100Z AUTO 09006KT //// ////// 29/24 Q1014NCMK2018-12-17T21:00:00Z-20.15-157.3829.024.090629.940945TRUEMETAR9.02018-12-17 21:05:431›Šûq(o5   3NCPY 172100Z AUTO 10016KT //// ////// 30/24 Q1012NCPY2018-12-17T21:00:00Z-9.02-158.0730.024.01001629.88189TRUEMETAR2.02018-12-17 21:05:43 ÍKl¨ÍU›Šûy)5  3SAWH 172100Z 23024G34KT 9999 DZ FEW015 SCT038 BKN048 BKN070 08/06 Q1002SAWH2018-12-17T21:00:00Z-54.85-68.38.06.023024346.2129.586615DZBKN7000VFRMETAR14.02018-12-17 21:05:43>›Šûx(}5    3SBMA 172100Z 30006KT 9999 TS FEW030CB SCT080 28/24 Q1011SBMA2018-12-17T21:00:00Z-5.37-49.1328.024.030066.2129.852362TSVFRMETAR102.02018-12-17 21:05:43Y›Šûw)+5    3SPJC 172100Z 18011KT 9999 SCT012 23/18 Q1010 NOSIG RMK BIRD HAZARD RWY 15 PP000SPJC2018-12-17T21:00:00Z-12.02-77.1223.018.0180116.2129.822834TRUEVFRMETAR13.02018-12-17 21:05:43/›Šûv(e5   3SBFL 172100Z 01013KT 9999 FEW030 28/23 Q1008SBFL2018-12-17T21:00:00Z-27.67-48.5328.023.010136.2129.763779VFRMETAR5.02018-12-17 21:05:43 `(zË`-›Šû~(e5   3MDAB 172100Z 09006KT 9999 SCT020 29/24 Q1014MDAB2018-12-17T21:00:00Z19.2-69.4329.024.09066.2129.940945VFRMETAR35.02018-12-17 21:05:432›Šû}(e5   3SCVM 172100Z 29008KT 9999 BKN015 18/14 Q1015SCVM2018-12-17T21:00:00Z-32.95-71.4818.014.029086.2129.970472MVFRMETAR141.02018-12-17 21:05:43)›Šû|(Y5   3GBYD 172100Z 27006KT CAVOK 23/18 Q1014GBYD2018-12-17T21:00:00Z13.33-16.6523.018.027066.2129.940945VFRMETAR36.02018-12-17 21:05:43(›Šû{(e5   3TKPK 172100Z 05005KT 9999 FEW022 27/21 Q1016TKPK2018-12-17T21:00:00Z17.3-62.7227.021.05056.2130.0VFRMETAR48.02018-12-17 21:05:43R›Šûz)5    3ZMUB 172100Z VRB01MPS 6000NW NSC M24/M27 Q1013 NOSIG RMK QFE653.0 75 NTZMUB2018-12-17T21:00:00Z47.83106.78-24.0-27.0023.7329.911417TRUEMVFRMETAR1330.02018-12-17 21:05:43 pP›ß p*›Šü(e5   3MDBH 172100Z 13012KT 9999 SCT023 28/22 Q1016MDBH2018-12-17T21:00:00Z18.25-71.1228.022.0130126.2130.0VFRMETAR3.02018-12-17 21:05:439›Šü(q5    3MDJB 172100Z 16008KT 9999 SCT020 27/23 Q1014 NOSIGMDJB2018-12-17T21:00:00Z18.57-69.9827.023.016086.2129.940945TRUEVFRMETAR30.02018-12-17 21:05:436›Šü(s5   3MDSD 172100Z 18008KT 9999 SCT022 SCT300 28/22 Q1015MDSD2018-12-17T21:00:00Z18.42-69.6728.022.018086.2129.970472VFRMETAR18.02018-12-17 21:05:43/›Šü(e5   3MDLR 172100Z 19014KT 9999 SCT020 28/24 Q1015MDLR2018-12-17T21:00:00Z18.45-68.9228.024.0190146.2129.970472VFRMETAR8.02018-12-17 21:05:43*›Šû(e5   3MDCY 172100Z 13006KT 9999 SCT020 27/24 Q1016MDCY2018-12-17T21:00:00Z19.27-69.7327.024.013066.2130.0VFRMETAR10.02018-12-17 21:05:43 m?ƒ¿m ›Šü(a5  3MPSM 172100Z 35015KT(E) FEW020 31/20 Q1009MPSM2018-12-17T21:00:00Z8.35-80.1331.020.029.793306METAR0.02018-12-17 21:05:43&›Šü(g5    3MPBO 172100Z 35006KT 9999 FEW015 SCT090 Q1014MPBO2018-12-17T21:00:00Z9.35-82.2535066.2129.940945VFRMETAR3.02018-12-17 21:05:43>›Šü(5    3MDPP 172100Z 06006KT 9999 FEW025 BKN300 28/24 Q1014 NOSIGMDPP2018-12-17T21:00:00Z19.75-70.5728.024.06066.2129.940945TRUEVFRMETAR5.02018-12-17 21:05:436›Šü(s5   3MDST 172100Z 12012KT 9999 SCT025 BKN300 31/19 Q1014MDST2018-12-17T21:00:00Z19.4-70.631.019.0120126.2129.940945VFRMETAR184.02018-12-17 21:05:43;›Šü(5    3MDPC 172100Z 17008KT 9999 FEW025 SCT300 28/21 Q1016 NOSIGMDPC2018-12-17T21:00:00Z18.57-68.3728.021.017086.2130.0TRUEVFRMETAR12.02018-12-17 21:05:43 ‚EÞ4‚,›Šü (e5   3OMRK 172100Z 23002KT CAVOK 15/08 Q1020 A3014OMRK2018-12-17T21:00:00Z25.6255.9215.08.023026.2130.11811VFRMETAR31.02018-12-17 21:05:43$›Šü (Y5   3OMSJ 172100Z 00000KT CAVOK 18/08 Q1020OMSJ2018-12-17T21:00:00Z25.3255.5218.08.0006.2130.11811VFRMETAR33.02018-12-17 21:05:439›Šü (q5    3MPTO 172100Z 34015KT 9999 SCT018 31/19 Q1010 NOSIGMPTO2018-12-17T21:00:00Z9.05-79.3731.019.0340156.2129.822834TRUEVFRMETAR45.02018-12-17 21:05:43"›Šü ([5  3MPPA 172100Z 36012KT FEW020 30/22 Q1009MPPA2018-12-17T21:00:00Z8.92-79.630.022.03601229.793306METAR13.02018-12-17 21:05:435›Šü (u5   3MPDA 172100Z 20006KT 150V250 9999 FEW020 31/23 Q1009MPDA2018-12-17T21:00:00Z8.4-82.4331.023.020066.2129.793306VFRMETAR27.02018-12-17 21:05:43 :?Å:B›Šü) 5    3ETHL 172100Z 23005KT 5000 BR BKN040 02/01 Q1028 WHT FCST CANCELETHL2018-12-17T21:00:00Z48.229.922.01.023053.1130.35433BRMVFRSPECI549.02018-12-17 21:05:43=›Šü(}5    3MZBZ 172100Z 31009KT 9999 FEW023 26/17 A3005 Q1017 NOSIGMZBZ2018-12-17T21:00:00Z17.52-88.326.017.031096.2130.029528TRUEVFRMETAR5.02018-12-17 21:05:436›Šü(s5   3SUDU 172100Z 13007KT 9999 SCT013 BKN070 20/19 Q1010SUDU2018-12-17T21:00:00Z-33.35-56.520.019.013076.2129.822834VFRMETAR93.02018-12-17 21:05:438›Šü(s5   3SULS 172100Z 17012KT 8000 BKN010 OVC070 19/17 Q1011SULS2018-12-17T21:00:00Z-34.87-55.119.017.0170124.9729.852362MVFRMETAR30.02018-12-17 21:05:43;›Šü(q5   3SUAA 172100Z 17010G20KT 5000 BR OVC013 19/18 Q1012SUAA2018-12-17T21:00:00Z-34.77-56.2519.018.017010203.1129.88189BRMVFRMETAR54.02018-12-17 21:05:43 >.g°ý>9›Šü(o5    3YMIA 172100Z AUTO 15009KT 9999 // NCD 21/16 Q1013YMIA2018-12-17T21:00:00Z-34.23142.0821.016.015096.2129.911417TRUEVFRMETAR51.02018-12-17 21:05:43-›Šü(e5   3YMML 172100Z 21008KT 9999 OVC020 16/12 Q1016YMML2018-12-17T21:00:00Z-37.67144.8216.012.021086.2130.0MVFRMETAR141.02018-12-17 21:05:431›Šü(e5    3OKBK 172100Z 18007KT CAVOK 16/15 Q1020 NOSIGOKBK2018-12-17T21:00:00Z29.2247.9716.015.018076.2130.11811TRUEVFRMETAR55.02018-12-17 21:05:43A›Šü(5    3OLBA 172100Z 17010KT 8000 SCT027 SCT070 16/12 Q1019 NOSIGOLBA2018-12-17T21:00:00Z33.8235.4716.012.0170104.9730.088583TRUEMVFRMETAR19.02018-12-17 21:05:43L›Šü) 5    3PAIL 172100Z 28003KT 10SM BKN028 M19/M22 A2916 RMK AO2 T11941222PAIL2018-12-17T21:00:00Z59.75-154.92-19.4-22.2280310.029.161417TRUEMVFRSPECI49.02018-12-17 21:05:43 FB…ÆF:›Šü(o5    3YMAY 172100Z AUTO 15003KT 9999 // NCD 22/16 Q1013YMAY2018-12-17T21:00:00Z-36.07146.9322.016.015036.2129.911417TRUEVFRMETAR171.02018-12-17 21:05:43:›Šü(o5    3YMDG 172100Z AUTO 33001KT 9999 // NCD 23/16 Q1014YMDG2018-12-17T21:00:00Z-32.57149.6223.016.033016.2129.940945TRUEVFRMETAR471.02018-12-17 21:05:439›Šü(o5    3YMEK 172100Z AUTO 16008KT 9999 // NCD 19/10 Q1012YMEK2018-12-17T21:00:00Z-26.62118.5519.010.016086.2129.88189TRUEVFRMETAR522.02018-12-17 21:05:437›Šü(u5    3YMEN 172100Z AUTO 17003KT 9999 // OVC023 17/14 Q1016YMEN2018-12-17T21:00:00Z-37.72144.917.014.017036.2130.0TRUEMVFRMETAR86.02018-12-17 21:05:438›Šü(u5    3YMER 172100Z AUTO 00000KT 9999 // SCT028 20/16 Q1015YMER2018-12-17T21:00:00Z-36.92149.920.016.0006.2129.970472TRUEVFRMETAR2.02018-12-17 21:05:43 %CƒÉ %a›Šü!)#5     3KRND 172059Z AUTO 23003KT 10SM -DZ FEW170 21/M02 A3016 RMK AO2 DZB56 SLP211KRND2018-12-17T20:59:00Z29.52-98.2721.0-2.0230310.030.1594491021.1TRUETRUE-DZVFRMETAR232.02018-12-17 21:05:437›Šü (q5    3TGPY 172100Z 07014KT 9999 FEW020 28/23 Q1014 NOSIGTGPY2018-12-17T21:00:00Z12.0-61.7828.023.070146.2129.940945TRUEVFRMETAR7.02018-12-17 21:05:434›Šü(s5   3MKJS 172100Z 09012KT 9999 FEW022 SCT034 28/21 Q1014MKJS2018-12-17T21:00:00Z18.5-77.9228.021.090126.2129.940945VFRMETAR1.02018-12-17 21:05:43:›Šü(o5    3YLRE 172100Z AUTO 06016KT 9999 // NCD 30/17 Q1008YLRE2018-12-17T21:00:00Z-23.43144.2830.017.060166.2129.763779TRUEVFRMETAR193.02018-12-17 21:05:437›Šü(u5    3YMAV 172100Z AUTO 21008KT 9999 // OVC022 16/12 Q1016YMAV2018-12-17T21:00:00Z-38.03144.4816.012.021086.2130.0TRUEMVFRMETAR8.02018-12-17 21:05:43 i7Pia›Šü%)#5    3CYNM 172059Z AUTO 31016G21KT 3SM -SN SCT024 OVC110 M12/M14 A2985 RMK SLP128CYNM2018-12-17T20:59:00Z49.77-77.82-12.0-14.031016213.029.849411012.8TRUE-SNMVFRSPECI281.02018-12-17 21:05:43a›Šü$)+5     3CYMT 172059Z AUTO 30006KT 2SM -SN BKN020 BKN025 OVC080 M11/M13 A2967 RMK SLP078CYMT2018-12-17T20:59:00Z49.77-74.52-11.0-13.030062.029.669291007.8TRUE-SNIFRSPECI387.02018-12-17 21:05:43C›Šü#({5    3KDVP 172059Z AUTO 14013KT 10SM CLR 02/M06 A3006 RMK AO2KDVP2018-12-17T20:59:00Z43.98-95.782.0-6.01401310.030.059055TRUETRUEVFRMETAR495.02018-12-17 21:05:43z›Šü")Q5     3KMPV 172059Z AUTO 31011G18KT 2SM -SN BR FEW017 BKN023 OVC030 M01/M02 A2958 RMK AO2 P0000 T10111022KMPV2018-12-17T20:59:00Z44.2-72.57-1.1-2.231011182.029.58071TRUETRUE-SN BRIFR0.005METAR343.02018-12-17 21:05:43 v&9v=›Šü))5   3PKMJ 172058Z 08012KT 15SM FEW015 SCT050 BKN300 29/25 A2984 PKMJ2018-12-17T20:58:00Z7.07171.2729.025.0801215.029.840551VFRMETAR3.02018-12-17 21:05:43g›Šü()55      3KPBG 172059Z AUTO 33005KT 5SM -SN BKN028 OVC035 01/M02 A2962 RMK AO2 P0000 T00111017KPBG2018-12-17T20:59:00Z44.65-73.471.1-1.733055.029.619095TRUETRUE-SNMVFR0.005METAR72.02018-12-17 21:05:43[›Šü')#5    3KNGU 172059Z 26009KT 10SM SCT230 14/02 A2987 RMK AO2 SLP114 T01390022 55005KNGU2018-12-17T20:59:00Z36.92-76.2713.92.2260910.029.8700791011.4TRUEVFR-0.5SPECI5.02018-12-17 21:05:43s›Šü&)I5    3KNOZ 172059Z AUTO 05004KT 10SM FEW048 SCT090 OVC110 18/01 A3010 RMK AO2 SLP143 T01830006 58025KNOZ2018-12-17T20:59:00Z32.5-114.4518.30.650410.030.1003931014.3TRUETRUEVFR-2.5SPECI103.02018-12-17 21:05:43 o5Ghos›Šü-)=5    3KGOV 172058Z AUTO 33009KT 10SM OVC021 M02/M06 A3009 RMK AO2 SLP210 T10191057 52015 PNO $KGOV2018-12-17T20:58:00Z44.68-84.73-1.9-5.7330910.030.0885831021.0TRUETRUETRUEMVFR1.5METAR353.02018-12-17 21:05:43Y›Šü,)5    3KMEI 172058Z 35003KT 10SM CLR 19/08 A3018 RMK AO2 SLP218 T01890078 56020KMEI2018-12-17T20:58:00Z32.33-88.7518.97.8350310.030.1801191021.8TRUEVFR-2.0METAR89.02018-12-17 21:05:43h›Šü+)+5    3KMRH 172058Z AUTO 28010KT 10SM CLR 16/04 A2992 RMK AO2 SLP133 T01610039 55004 $KMRH2018-12-17T20:58:00Z34.73-76.6516.13.92801010.029.9202751013.3TRUETRUETRUEVFR-0.4METAR3.02018-12-17 21:05:43E›Šü*) 5    3KVNY 172058Z 00000KT 10SM BKN033 19/09 A3013 RMK AO2 T01890094KVNY2018-12-17T20:58:00Z34.22-118.4818.99.40010.030.129921TRUEVFRMETAR245.02018-12-17 21:05:43 g.Kg^›Šü1)%5    3KHLR 172058Z 28003KT 10SM OVC150 16/01 A3014 RMK AO2A SLP204 T01610014 56022KHLR2018-12-17T20:58:00Z31.13-97.7216.11.4280310.030.1387791020.4TRUEVFR-2.2SPECI283.02018-12-17 21:05:43]›Šü0)'5    3RKSO 172058Z 08004KT 7SM FEW040 M06/M07 A3014 RMK AO2A SLP210 T10581067 56007RKSO2018-12-17T20:58:00Z37.07127.02-5.8-6.78047.030.1387791021.0TRUEVFR-0.7METAR12.02018-12-17 21:05:43`›Šü/)'5    3KEUF 172058Z AUTO VRB04KT 10SM CLR 20/04 A3010 RMK AO2 SLP192 T02000044 56017KEUF2018-12-17T20:58:00Z31.95-85.1320.04.40410.030.1003931019.2TRUETRUEVFR-1.7SPECI87.02018-12-17 21:05:43f›Šü.)+5    3K0J4 172058Z AUTO VRB04KT 10SM CLR 18/07 A3016 RMK AO2 SLP213 T01830072 56016 $K0J42018-12-17T20:58:00Z31.05-86.3218.37.20410.030.1594491021.3TRUETRUETRUEVFR-1.6SPECI96.02018-12-17 21:05:43 Aô(Aa›Šü5)%5    3KSXS 172058Z AUTO 33006KT 8SM CLR 18/05 A3013 RMK AO2 SLP205 T01820052 57016KSXS2018-12-17T20:58:00Z31.37-85.8518.25.233068.030.1299211020.5TRUETRUEVFR-1.6METAR122.02018-12-17 21:05:43f›Šü4)35    3KRIV 172058Z 34006KT 10SM FEW030 FEW150 16/10 A3015 RMK AO2A SLP208 T01600101 57023KRIV2018-12-17T20:58:00Z33.87-117.2716.010.1340610.030.150591020.8TRUEVFR-2.3METAR469.02018-12-17 21:05:43Z›Šü3)#5    3KGRK 172058Z 00000KT 8SM OVC150 16/03 A3017 RMK AO2A SLP216 T01610029 56022KGRK2018-12-17T20:58:00Z31.07-97.8316.12.9008.030.1712591021.6TRUEVFR-2.2SPECI309.02018-12-17 21:05:43‚›Šü2)]5     3PAFR 172058Z AUTO 02005KT 10SM OVC010 M05/M06 A2893 RMK AO2 OVC V BKN SLP807 P0002 60008 T10501056 52020PAFR2018-12-17T20:58:00Z61.27-149.65-5.0-5.620510.028.931103980.7TRUETRUEMVFR2.00.020.08METAR115.02018-12-17 21:05:43 B(?Bw›Šü9)A5    3KCVS 172058Z AUTO 18008KT 10SM SCT100 BKN140 14/M06 A3014 RMK AO2 SLP196 T01421056 57034 $KCVS2018-12-17T20:58:00Z34.37-103.3214.2-5.6180810.030.1387791019.6TRUETRUETRUEVFR-3.4SPECI1309.02018-12-17 21:05:43c›Šü8)%5    3K9L2 172058Z AUTO 24013KT 8SM CLR 17/06 A3010 RMK AO2 SLP189 T01680064 57024K9L22018-12-17T20:58:00Z34.97-117.8716.86.4240138.030.1003931018.9TRUETRUEVFR-2.4SPECI701.02018-12-17 21:05:43l›Šü7)-5    3KT70 172058Z AUTO 15007KT 10SM CLR 22/M03 A3011 RMK AO2 SLP191 T02211034 57036 $KT702018-12-17T20:58:00Z29.12-100.4822.1-3.4150710.030.1092531019.1TRUETRUETRUEVFR-3.6METAR298.02018-12-17 21:05:43`›Šü6)'5    3KHEY 172058Z AUTO 00000KT 10SM CLR 18/07 A3012 RMK AO2 SLP202 T01840069 56017KHEY2018-12-17T20:58:00Z31.35-85.6518.46.90010.030.1210631020.2TRUETRUEVFR-1.7METAR97.02018-12-17 21:05:43 @06@p›Šü=)?5    3KLSV 172058Z 08003KT 10SM BKN130 14/M04 A3009 RMK AO2A SLP193 SLP ESTMD T01391043 57023 $KLSV2018-12-17T20:58:00Z36.22-115.0213.9-4.380310.030.0885831019.3TRUETRUEVFR-2.3METAR570.02018-12-17 21:05:43t›Šü<)?5    3KMUO 172058Z AUTO 10011KT 10SM BKN047 OVC150 07/07 A3007 RMK AO2 SLP191 T00670067 56008 $KMUO2018-12-17T20:58:00Z43.03-115.876.76.71001110.030.0708661019.1TRUETRUETRUEVFR-0.8METAR913.02018-12-17 21:05:43i›Šü;)/5     3KEDW 172058Z 24015KT 50SM VCSH SCT050 17/06 A3009 RMK AO2A SLP186 T01660064 57026KEDW2018-12-17T20:58:00Z34.88-117.8716.66.42401550.030.0885831018.6TRUEVCSHVFR-2.6METAR702.02018-12-17 21:05:43[›Šü:)!5    3KBKF 172058Z 33004KT 10SM CLR 14/M12 A3000 RMK AO2A SLP137 T01391123 57024KBKF2018-12-17T20:58:00Z39.72-104.7513.9-12.3330410.030.01013.7TRUEVFR-2.4SPECI1726.02018-12-17 21:05:43 '+'~›ŠüA)K5     3K4MR 172058Z AUTO 22005KT 10SM SCT110 SCT160 14/M07 A3014 RMK AO2 SLP195 T01361071 57032 TSNO $K4MR2018-12-17T20:58:00Z34.3-103.813.6-7.1220510.030.1387791019.5TRUETRUETRUETRUEVFR-3.2METAR1326.02018-12-17 21:05:43h›Šü@))5    3KAFF 172058Z AUTO 18008KT 10SM CLR 14/M16 A3001 RMK AO2 SLP163 T01441157 56021KAFF2018-12-17T20:58:00Z38.97-104.8214.4-15.7180810.030.0088581016.3TRUETRUEVFR-2.1METAR2003.02018-12-17 21:05:43i›Šü?)+5    3KBAB 172058Z AUTO 19004KT 10SM CLR 15/08 A3019 RMK AO2 SLP226 T01520077 58001 $KBAB2018-12-17T20:58:00Z39.12-121.4215.27.7190410.030.1889761022.6TRUETRUETRUEVFR-0.1METAR34.02018-12-17 21:05:43r›Šü>)75   3KGRF 172058Z AUTO 16013G19KT 10SM FEW040 11/08 A2990 RMK AO2 SLP130 T01110076 57016 $KGRF2018-12-17T20:58:00Z47.07-122.5711.17.6160131910.029.8996071013.0TRUETRUETRUEVFR-1.6METAR92.02018-12-17 21:05:43 !(‚ ›ŠüE)e5   3MHSC 172058Z AUTO 36021G27KT 9999 SCT047 OVC060 20/16 A3009 RMK AO2 PK WND 34028/56 SLP168 T02020164 56017 $MHSC2018-12-17T20:58:00Z14.37-87.6220.216.436021276.2130.0885831016.8TRUETRUETRUEVFR-1.7METAR626.02018-12-17 21:05:43s›ŠüD)35   3KFEW 172058Z AUTO 28018G23KT 10SM CLR 13/M10 A3002 RMK AO2 SLP162 T01331105 57019 $KFEW2018-12-17T20:58:00Z41.13-104.8713.3-10.5280182310.030.020671016.2TRUETRUETRUEVFR-1.9METAR1878.02018-12-17 21:05:43g›ŠüC)-5     3OAIX 172058Z 00000KT 6000 HZ CLR M01/M07 A3031 RMK AO2A SLP232 T10071075 58003 $OAIX2018-12-17T20:58:00Z34.9569.27-0.7-7.5003.7330.310041023.2TRUETRUEHZMVFR-0.3METAR1492.02018-12-17 21:05:43l›ŠüB)55     3K1YT 172058Z AUTO 00000KT 1/8SM FG VV002 01/01 A2995 RMK AO2 SLPNO T00140006 57019 $K1YT2018-12-17T20:58:00Z46.67-120.451.40.6000.1329.949802TRUETRUETRUEFGLIFR-1.9200METAR438.02018-12-17 21:05:43 C ";Cr›ŠüI)A5     3PAFB 172058Z 08003KT 9SM BKN030 BKN095 M23/M25 A2913 RMK AO2A SLP883 60000 T12261254 52031PAFB2018-12-17T20:58:00Z64.83-147.62-22.6-25.48039.029.128937988.3TRUEMVFR3.10.005METAR137.02018-12-17 21:05:43a›ŠüH)#5    3KSKA 172058Z 20008KT 10SM CLR 06/06 A2996 RMK AO2A SLP160 T00610061 58004 $KSKA2018-12-17T20:58:00Z47.62-117.656.16.1200810.029.9586621016.0TRUETRUEVFR-0.4METAR750.02018-12-17 21:05:43e›ŠüG)15    3KSLI 172058Z 22008KT 8SM BKN023 BKN029 18/13 A3014 RMK AO2A SLP209 T01770132 57030KSLI2018-12-17T20:58:00Z33.77-118.0317.713.222088.030.1387791020.9TRUEMVFR-3.0METAR11.02018-12-17 21:05:43m›ŠüF)15    3KTCM 172058Z AUTO 19011KT 10SM BKN046 11/07 A2991 RMK AO2 SLP133 T01140073 57017 $KTCM2018-12-17T20:58:00Z47.12-122.4711.47.31901110.029.9114171013.3TRUETRUETRUEVFR-1.7METAR98.02018-12-17 21:05:43 ;!2;q›ŠüM)35    3KFCS 172058Z AUTO 20010KT 10SM FEW140 14/M10 A2999 RMK AO2 SLP168 T01351097 57027 $KFCS2018-12-17T20:58:00Z38.67-104.7713.5-9.72001010.029.9911421016.8TRUETRUETRUEVFR-2.7METAR1789.02018-12-17 21:05:43i›ŠüL)+5    3KFHU 172058Z AUTO 00000KT 10SM CLR 15/04 A3017 RMK AO2 SLP181 T01460040 57026 $KFHU2018-12-17T20:58:00Z31.58-110.3514.64.00010.030.1712591018.1TRUETRUETRUEVFR-2.6METAR1438.02018-12-17 21:05:43p›ŠüK)35    3KGFA 172058Z AUTO 23012KT 10SM OVC110 11/M01 A2986 RMK AO2 SLP124 T01091013 57008 $KGFA2018-12-17T20:58:00Z47.5-111.1710.9-1.32301210.029.8612211012.4TRUETRUETRUEVFR-0.8SPECI1075.02018-12-17 21:05:43c›ŠüJ))5    3KLUF 172058Z 00000KT 10SM BKN140 19/02 A3010 RMK AO2A SLP191 T01920017 57023 $KLUF2018-12-17T20:58:00Z33.52-112.3719.21.70010.030.1003931019.1TRUETRUEVFR-2.3METAR332.02018-12-17 21:05:43 YY5›ŠüQ(m5  3KSCH 172058Z 29008G15KT 15SM BKN070 03/M01 A2966KSCH2018-12-17T20:58:00Z42.85-73.923.0-1.029081515.029.660433VFRMETAR115.02018-12-17 21:05:43y›ŠüP)C5     3KBIF 172058Z AUTO 29005KT 5SM HZ BKN060 OVC080 14/02 A3013 RMK AO2 SLP172 T01370022 56030 $KBIF2018-12-17T20:58:00Z31.85-106.3813.72.229055.030.1299211017.2TRUETRUETRUEHZMVFR-3.0METAR1203.02018-12-17 21:05:43w›ŠüO)A5    3KCWN 172058Z AUTO 15004KT 10SM SCT150 BKN220 12/M16 A2998 RMK AO2 SLP031 T01151159 57022 $KCWN2018-12-17T20:58:00Z38.75-104.8511.5-15.9150410.029.979331003.1TRUETRUETRUEVFR-2.2SPECI2040.02018-12-17 21:05:43j›ŠüN)+5    3KDMA 172058Z AUTO 25006KT 10SM CLR 21/04 A3011 RMK AO2 SLP171 T02100041 57028 $KDMA2018-12-17T20:58:00Z32.17-110.8721.04.1250610.030.1092531017.1TRUETRUETRUEVFR-2.8METAR824.02018-12-17 21:05:43 ž Yƒž_›ŠüU)%5    3KHUA 172058Z AUTO 00000KT 8SM CLR 14/06 A3014 RMK AO2 SLP208 T01420063 57019KHUA2018-12-17T20:58:00Z34.68-86.6814.26.3008.030.1387791020.8TRUETRUEVFR-1.9METAR209.02018-12-17 21:05:43P›ŠüT)5     3CYBC 172058Z AUTO 08010KT 2SM -SN OVC005 M02/M02 A2955 RMK SLP010CYBC2018-12-17T20:58:00Z49.12-68.2-2.0-2.080102.029.5511821001.0TRUE-SNIFRSPECI22.02018-12-17 21:05:43A›ŠüS(y5    3KHZR 172058Z AUTO 14004KT 10SM CLR 15/10 A3020 RMK AO2KHZR2018-12-17T20:58:00Z30.72-91.4815.010.0140410.030.200787TRUETRUEVFRMETAR12.02018-12-17 21:05:43Z›ŠüR)5    3KROG 172058Z 00000KT 10SM CLR 14/M02 A3021 RMK AO2 SLP231 T01391022 56023KROG2018-12-17T20:58:00Z36.37-94.0813.9-2.20010.030.2096461023.1TRUEVFR-2.3METAR415.02018-12-17 21:05:43 2%!2i›ŠüY)75    3KLGF 172058Z AUTO 10004KT 10SM BKN110 16/02 A3010 RMK AO2 SLPNO T01610015 57024 PNO $KLGF2018-12-17T20:58:00Z32.87-114.416.11.5100410.030.100393TRUETRUETRUEVFR-2.4METAR132.02018-12-17 21:05:43~›ŠüX)Y5    3KM63 172058Z AUTO 28003KT 10SM SCT050 BKN080 15/01 A3011 RMK AO2 SLP209 WND DATA ESTMD T01450012 56031KM632018-12-17T20:58:00Z32.05-106.1514.51.2280310.030.1092531020.9TRUETRUEVFR-3.1METAR1283.02018-12-17 21:05:43m›ŠüW)15    3KHMN 172058Z AUTO 01004KT 10SM BKN075 12/02 A3018 RMK AO2 SLP190 T01220018 57028 $KHMN2018-12-17T20:58:00Z32.85-106.0812.21.810410.030.1801191019.0TRUETRUETRUEVFR-2.8METAR1248.02018-12-17 21:05:43b›ŠüV)'5    3KLOR 172058Z AUTO 30005KT 10SM CLR 19/06 A3013 RMK AO2 SLP186 T01900063 57016KLOR2018-12-17T20:58:00Z31.35-85.7519.06.3300510.030.1299211018.6TRUETRUEVFR-1.6METAR74.02018-12-17 21:05:43 ‹&?X‹G›Šü])5    3K4I3 172057Z AUTO 30011KT 10SM OVC031 03/M01 A3008 RMK AO2K4I32018-12-17T20:57:00Z40.33-82.533.0-1.03001110.030.079725TRUETRUEVFRMETAR363.02018-12-17 21:05:43a›Šü\)'5    3KPOV 172057Z AUTO 30010G16KT 10SM OVC030 01/M05 A3004 RMK AO2 T00101047 PWINOKPOV2018-12-17T20:57:00Z41.22-81.251.0-4.7300101610.030.041338TRUETRUETRUEMVFRMETAR365.02018-12-17 21:05:43a›Šü[)%5    3KFLG 172057Z 24012KT 10SM OVC100 08/M07 A3018 RMK AO2 SLP189 T00781067 56021KFLG2018-12-17T20:57:00Z35.13-111.677.8-6.72401210.030.1801191018.9TRUEVFR-2.1METAR2134.02018-12-17 21:05:43T›ŠüZ)5    3KNY0 172057Z AUTO 32008KT 10SM SCT023 BKN031 OVC070 01/M01 A2965 RMK AO2KNY02018-12-17T20:57:00Z42.98-74.331.0-1.0320810.029.648623TRUETRUEVFRMETAR271.02018-12-17 21:05:43 ¬7o„¬R›Šüa)5   3KHAI 172057Z AUTO 31010G14KT 10SM CLR 04/M03 A3013 RMK AO2 T00351029KHAI2018-12-17T20:57:00Z41.97-85.63.5-2.9310101410.030.129921TRUETRUEVFRMETAR251.02018-12-17 21:05:43e›Šü`)=5    3KGXF 172057Z 35006KT 10SM BKN120 21/00 A3010 RMK AO2A SLPNO WND DATA ESTMD ALSTG ESTMD $KGXF2018-12-17T20:57:00Z32.87-112.7221.00.0350610.030.100393TRUETRUEVFRMETAR262.02018-12-17 21:05:43B›Šü_({5    3KAEL 172057Z AUTO 13006KT 10SM CLR 01/M06 A3019 RMK AO2KAEL2018-12-17T20:57:00Z43.68-93.371.0-6.0130610.030.188976TRUETRUEVFRMETAR383.02018-12-17 21:05:43C›Šü^({5    3KJMR 172057Z AUTO 10004KT 10SM CLR 00/M10 A3023 RMK AO2KJMR2018-12-17T20:57:00Z45.88-93.270.0-10.0100410.030.230314TRUETRUEVFRMETAR309.02018-12-17 21:05:43 ’,Co’W›Šüe)5   3KSJX 172057Z AUTO 34009G14KT 10SM OVC023 M02/M06 A3014 RMK AO2 T10171062KSJX2018-12-17T20:57:00Z45.7-85.57-1.7-6.234091410.030.138779TRUETRUEMVFRMETAR204.02018-12-17 21:05:43N›Šüd)5    3KTKC 172057Z AUTO 14011KT 10SM CLR 02/M03 A3007 RMK AO2 T00181027KTKC2018-12-17T20:57:00Z44.25-95.621.8-2.71401110.030.070866TRUETRUEVFRMETAR408.02018-12-17 21:05:43c›Šüc)'5    3KEAR 172057Z AUTO 19014KT 10SM CLR 10/01 A3006 RMK AO2 SLP187 T01000011 56031KEAR2018-12-17T20:57:00Z40.72-99.010.01.11901410.030.0590551018.7TRUETRUEVFR-3.1METAR649.02018-12-17 21:05:43N›Šüb)5    3KFFX 172057Z AUTO 34007KT 10SM SCT026 02/M04 A3015 RMK AO2 T00161044KFFX2018-12-17T20:57:00Z43.43-86.01.6-4.4340710.030.15059TRUETRUEVFRMETAR236.02018-12-17 21:05:43 Öù h›Šüi)75    3PHNG 172057Z 05009KT 10SM FEW043 SCT050 26/17 A3015 RMK AO2 SLP205 T02610172 50000 $ PHNG2018-12-17T20:57:00Z21.43-157.7726.117.250910.030.150591020.5TRUETRUEVFR0.0METAR3.02018-12-17 21:05:43i›Šüh)=5    3KNYL 172057Z 10008KT 7SM SCT070 BKN150 BKN220 19/02 A3009 RMK AO2 SLP189 T01890017 58028KNYL2018-12-17T20:57:00Z32.63-114.6218.91.710087.030.0885831018.9TRUEVFR-2.8METAR65.02018-12-17 21:05:43W›Šüg)5   3KLWA 172057Z AUTO 34010G16KT 10SM BKN022 03/M03 A3018 RMK AO2 T00251026KLWA2018-12-17T20:57:00Z42.35-86.252.5-2.6340101610.030.180119TRUETRUEMVFRMETAR203.02018-12-17 21:05:43‚$›Šüf)‚ 5     3PAJC 172057Z AUTO 24021G26KT 9SM OVC041 M07/M12 A2923 RMK AO2 PK WND 24027/2004 SNE56 SLP898 P0000 60000 T10671122 51019 FZRANOPAJC2018-12-17T20:57:00Z56.32-158.37-6.7-12.224021269.029.22933989.8TRUETRUETRUEVFR1.90.0050.005METAR15.02018-12-17 21:05:43 4 4e›Šüm))5    3KFRI 172056Z AUTO 20009KT 10SM CLR 15/M04 A3019 RMK AO2 SLP228 T01461042 57028KFRI2018-12-17T20:56:00Z39.03-96.7714.6-4.2200910.030.1889761022.8TRUETRUEVFR-2.8METAR325.02018-12-17 21:05:43^›Šül)5    3KMXF 172056Z AUTO 25004KT 10SM CLR 18/06 A3014 RMK AO2 SLP209 T01760055 $KMXF2018-12-17T20:56:00Z32.37-86.3717.65.5250410.030.1387791020.9TRUETRUETRUEVFRMETAR51.02018-12-17 21:05:43‚›Šük)W5     3KHST 172056Z AUTO 28006KT 10SM BKN038 22/13 A3005 RMK AO2 SLP179 T02210134 56010 FZRANO VISNO RWY24 $KHST2018-12-17T20:56:00Z25.47-80.3722.113.4280610.030.0501981017.9TRUETRUETRUETRUEVFR-1.0METAR2.02018-12-17 21:05:43o›Šüj)?5    3KNTD 172057Z 15009KT 10SM BKN010 BKN044 17/13 A3015 RMK AO2 SLP212 VCSH T01720133 58025 $KNTD2018-12-17T20:57:00Z34.12-119.1217.213.3150910.030.150591021.2TRUETRUEMVFR-2.5METAR4.02018-12-17 21:05:43 K29Kh›Šüq)+5    3KOZR 172056Z AUTO 30007KT 10SM CLR 19/06 A3013 RMK AO2 SLP205 T01870062 57018 $KOZR2018-12-17T20:56:00Z31.28-85.7218.76.2300710.030.1299211020.5TRUETRUETRUEVFR-1.8METAR93.02018-12-17 21:05:43s›Šüp)95     3KSVN 172056Z AUTO 22005KT 10SM CLR 16/10 A3002 RMK AO2 SLP169 T01630104 57018 FZRANO $KSVN2018-12-17T20:56:00Z32.02-81.1516.310.4220510.030.020671016.9TRUETRUETRUETRUEVFR-1.8SPECI13.02018-12-17 21:05:43\›Šüo)'5    3KTBN 172056Z AUTO 00000KT 10SM CLR 11/M03 A3022 RMK AO2 SLPNO T01141028 56017KTBN2018-12-17T20:56:00Z37.72-92.1211.4-2.80010.030.221457TRUETRUEVFR-1.7METAR353.02018-12-17 21:05:43f›Šün)+5    3KSKF 172056Z AUTO 00000KT 10SM CLR 21/00 A3015 RMK AO2 SLP208 T02080000 57030 $KSKF2018-12-17T20:56:00Z29.37-98.5720.80.00010.030.150591020.8TRUETRUETRUEVFR-3.0METAR210.02018-12-17 21:05:43 22c›Šüu))5    3KHRT 172056Z 35008KT 10SM SCT250 18/09 A3014 RMK AO2A SLP208 T01810086 57017 $KHRT2018-12-17T20:56:00Z30.42-86.6718.18.6350810.030.1387791020.8TRUETRUEVFR-1.7METAR12.02018-12-17 21:05:43e›Šüt)75    3ETAR 172056Z 00000KT 9999 BKN008 OVC028 03/03 A3032 RMK AO2A BKN V OVC SLP282 52017 $ETAR2018-12-17T20:56:00Z49.427.583.03.0006.2130.3188971028.2TRUETRUEIFR1.7METAR238.02018-12-17 21:05:43‚›Šüs)g5     3ETAD 172056Z AUTO 20004KT 9999 FEW005 OVC025 03/03 A3029 RMK AO2 CIG 005 RWY23 SLP263 60000 T00300030 52016 $ETAD2018-12-17T20:56:00Z49.986.73.03.020046.2130.289371026.3TRUETRUETRUEMVFR1.60.005METAR365.02018-12-17 21:05:43g›Šür)+5    3KDLF 172056Z 15008KT 10SM FEW200 22/M04 A3013 RMK AO2A SLP198 T02161038 57038 $KDLF2018-12-17T20:56:00Z29.37-100.7721.6-3.8150810.030.1299211019.8TRUETRUEVFR-3.8METAR330.02018-12-17 21:05:43 P>Ph›Šüy)+5    3KGSB 172056Z AUTO 27009KT 10SM CLR 17/03 A2992 RMK AO2 SLP135 T01690025 55004 $KGSB2018-12-17T20:56:00Z35.32-77.9716.92.5270910.029.9202751013.5TRUETRUETRUEVFR-0.4METAR33.02018-12-17 21:05:43W›Šüx)5    3KGTR 172056Z VRB03KT 10SM CLR 11/08 A3022 RMK AO2 SLP235 T01060083 56014KGTR2018-12-17T20:56:00Z33.45-88.5710.68.30310.030.2214571023.5TRUEVFR-1.4METAR80.02018-12-17 21:05:43n›Šüw)35    3KLTS 172056Z AUTO 11004KT 10SM OVC150 12/M02 A3019 RMK AO2 SLP228 T01151023 57028 $KLTS2018-12-17T20:56:00Z34.67-99.2711.5-2.3110410.030.1889761022.8TRUETRUETRUEVFR-2.8METAR420.02018-12-17 21:05:43k›Šüv)-5    3KIAB 172056Z AUTO 18004KT 10SM CLR 13/M04 A3019 RMK AO2 SLP231 T01271036 57024 $KIAB2018-12-17T20:56:00Z37.62-97.2712.7-3.6180410.030.1889761023.1TRUETRUETRUEVFR-2.4METAR418.02018-12-17 21:05:43 L);Li›Šü})+5    3KPAM 172056Z AUTO 29010KT 10SM CLR 16/11 A3014 RMK AO2 SLP210 T01590109 56014 $KPAM2018-12-17T20:56:00Z30.07-85.5715.910.92901010.030.1387791021.0TRUETRUETRUEVFR-1.4METAR5.02018-12-17 21:05:43h›Šü|)+5    3KSSC 172056Z AUTO 28007KT 10SM CLR 19/06 A2999 RMK AO2 SLP157 T01850060 55011 $KSSC2018-12-17T20:56:00Z33.97-80.4718.56.0280710.029.9911421015.7TRUETRUETRUEVFR-1.1METAR74.02018-12-17 21:05:43d›Šü{))5    3KTIK 172056Z AUTO 04005KT 10SM CLR 13/M03 A3018 RMK AO2 SLP230 T01321031 57032KTIK2018-12-17T20:56:00Z35.42-97.3713.2-3.140510.030.1801191023.0TRUETRUEVFR-3.2METAR394.02018-12-17 21:05:43g›Šüz)+5    3KTTS 172056Z AUTO 04004KT 10SM CLR 18/11 A3006 RMK AO2 SLP184 T01810107 56011 $KTTS2018-12-17T20:56:00Z28.62-80.7218.110.740410.030.0590551018.4TRUETRUETRUEVFR-1.1METAR3.02018-12-17 21:05:43 @-@g›Šý)-5    3KCOE 172056Z AUTO 19006KT 10SM OVC017 07/04 A2999 RMK AO2 SLP185 T00720039 58003KCOE2018-12-17T20:56:00Z47.77-116.827.23.9190610.029.9911421018.5TRUETRUEMVFR-0.3METAR707.02018-12-17 21:05:43g›Šý)+5    3KXMR 172056Z AUTO 04006KT 10SM CLR 17/10 A3006 RMK AO2 SLP182 T01740103 56011 $KXMR2018-12-17T20:56:00Z28.47-80.5717.410.340610.030.0590551018.2TRUETRUETRUEVFR-1.1METAR3.02018-12-17 21:05:43g›Šü)+5    3KXNO 172056Z AUTO 23008KT 10SM CLR 19/02 A3002 RMK AO2 SLP168 T01860016 55012 $KXNO2018-12-17T20:56:00Z33.62-81.0718.61.6230810.030.020671016.8TRUETRUETRUEVFR-1.2METAR98.02018-12-17 21:05:43s›Šü~)95     3KMCF 172056Z AUTO 34005KT 10SM CLR 16/10 A3010 RMK AO2 SLP196 T01610104 56016 FZRANO $KMCF2018-12-17T20:56:00Z27.85-82.5216.110.4340510.030.1003931019.6TRUETRUETRUETRUEVFR-1.6METAR4.02018-12-17 21:05:43 O#9Od›Šý))5    3KCWI 172056Z AUTO 29006KT 10SM CLR 06/M04 A3024 RMK AO2 SLP267 T00561039 55001KCWI2018-12-17T20:56:00Z41.82-90.325.6-3.9290610.030.2391741026.7TRUETRUEVFR-0.1METAR216.02018-12-17 21:05:43d›Šý)-5    3KCVO 172056Z AUTO 17006KT 10SM BKN120 09/07 A2999 RMK AO2 SLP159 T00940072 56017KCVO2018-12-17T20:56:00Z44.5-123.279.47.2170610.029.9911421015.9TRUETRUEVFR-1.7METAR75.02018-12-17 21:05:43j›Šý)/5    3KCVN 172056Z AUTO 20009KT 10SM OVC100 14/M06 A3014 RMK AO2 SLP210 T01391056 56032KCVN2018-12-17T20:56:00Z34.42-103.0713.9-5.6200910.030.1387791021.0TRUETRUEVFR-3.2METAR1284.02018-12-17 21:05:43g›Šý))5    3KCOD 172056Z AUTO 18003KT 10SM CLR 12/M06 A2994 RMK AO2 SLP136 T01221061 56016KCOD2018-12-17T20:56:00Z44.52-109.0212.2-6.1180310.029.9409451013.6TRUETRUEVFR-1.6METAR1553.02018-12-17 21:05:43Y8q8@HPX`hpx€ˆ˜ ¨°¸ÀÈÐØàèðø (08@HPX`hpx€ˆ˜ ¨°¸ÀÈÐØàèðø (08@HPX`hpx€ˆ˜ ¨°¸ÀÈÐØàèðø ¨°¸ÀÈÐØàèðø›Šù/›Šù3›Šù8›Šù=›ŠùB›ŠùG›ŠùK›ŠùP ›ŠùU!›ŠùZ"›Šù_#›Šùd›Šù/›Šù3›Šù8›Šù=›ŠùB›ŠùG›ŠùK›ŠùP ›ŠùU!›ŠùZ"›Šù_#›Šùd$›Šùh%›Šùm&›Šùq'›Šùu(›Šùy)›Šù~*›Šú+›Šú,›Šú -›Šú.›Šú/›Šú0›Šú1›Šú$2›Šú)3›Šú.4›Šú35›Šú86›Šú=7›ŠúB8›ŠúG9›ŠúL:›ŠúQ;›ŠúV<›Šú[=›Šú`>›Šúe?›Šúj@›ŠúoA›ŠútB›ŠúyC›Šú~D›ŠûE›ŠûF›Šû G›ŠûH›ŠûI›ŠûJ›ŠûK›Šû$L›Šû)M›Šû.N›Šû3O›Šû7P›Šû;Q›Šû@R›ŠûES›ŠûJT›ŠûOU›ŠûTV›ŠûYW›Šû]X›ŠûaY›ŠûfZ›Šûk[›Šûp\›Šûu]›Šûy^›Šû~_›Šü`›Šüa›Šü b›Šüc›Šüd›Šüe›Šü!f›Šü%g›Šü)h›Šü-i›Šü1j›Šü5k›Šü9l›Šü=m›ŠüAn›ŠüEo›ŠüIp›ŠüMY8Í8@HPX`hpx€ˆ˜ ¨°¸ÀÈÐØàèðø (08@HPX`hpx€ˆ˜ ¨°¸ÀÈÐØàèðø (08@HPX`hpx€ˆ˜ ¨°¸ÀÈÐØàèðø ¨°¸ÀÈÐØàèðør›ŠüUs›ŠüYt›Šü]u›Šüav›Šüew›Šüix›Šümy›Šüqz›Šüu{›Šüy|›Šü}}›Šýr›ŠüUs›ŠüYt›Šü]u›Šüav›Šüew›Šüix›Šümy›Šüqz›Šüu{›Šüy|›Šü}}›Šý~›Šý›Šý ‚›Šý ƒ›Šý„›Šý…›Šý†›Šý‡›Šý ˆ›Šý$‰›Šý'Š›Šý*‹›Šý-Œ›Šý0›Šý3Ž›Šý7›Šý:›Šý>‘›ŠýB’›ŠýE“›ŠýH”›ŠýK•›ŠýO–›ŠýS—›ŠýW˜›ŠýZ™›Šý]š›Šý`››Šýcœ›Šýf›Šýjž›ŠýnŸ›Šýr ›Šýv¡›Šýy¢›Šý}£›Šþ¤›Šþ¥›Šþ¦›Šþ §›Šþ¨›Šþ©›Šþª›Šþ«›Šþ¬›Šþ!­›Šþ%®›Šþ)¯›Šþ-°›Šþ1±›Šþ5²›Šþ9³›Šþ=´›ŠþAµ›ŠþE¶›ŠþI·›ŠþM¸›ŠþQ¹›ŠþUº›ŠþY»›Šþ]¼›Šþa½›Šþe¾›Šþi¿›ŠþlÀ›ŠþoÁ›Šþr›ŠþuۊþxěŠþ{śŠþ~ƛŠÿǛŠÿțŠÿ ɛŠÿʛŠÿ˛Šÿ̛Šÿ E#!*E_›Šý )#5   3KLZU 172056Z 27009G16KT 10SM CLR 16/00 A3008 RMK AO2 SLP196 T01560000 55008KLZU2018-12-17T20:56:00Z33.98-83.9715.60.027091610.030.0797251019.6TRUEVFR-0.8METAR323.02018-12-17 21:05:43q›Šý)C5     3KM19 172056Z AUTO 00000KT 3/4SM HZ CLR 13/01 A3022 RMK AO2 VIS 1/4V3 SLP239 T01280011 56022KM192018-12-17T20:56:00Z35.65-91.1712.81.1000.7530.2214571023.9TRUETRUEHZLIFR-2.2METAR73.02018-12-17 21:05:43|›Šý)O5     3KMBL 172056Z AUTO 33007KT 290V360 10SM OVC021 M01/M05 A3017 RMK AO2 SLP240 T10061050 53010 FZRANOKMBL2018-12-17T20:56:00Z44.27-86.25-0.6-5.0330710.030.1712591024.0TRUETRUETRUEMVFR1.0METAR189.02018-12-17 21:05:43W›Šý)5   3KD95 172056Z AUTO 32010G15KT 10SM OVC028 01/M05 A3008 RMK AO2 T00121046KD952018-12-17T20:56:00Z43.07-83.271.2-4.6320101510.030.079725TRUETRUEMVFRMETAR255.02018-12-17 21:05:43 J*)JY›Šý )5    3KEAU 172056Z 00000KT 10SM CLR 01/M09 A3023 RMK AO2 SLP249 T00061094 56002KEAU2018-12-17T20:56:00Z44.87-91.470.6-9.40010.030.2303141024.9TRUEVFR-0.2METAR276.02018-12-17 21:05:43{›Šý )O5    3KEEN 172056Z AUTO 30007KT 260V350 10SM OVC070 03/M01 A2955 RMK AO2 SLP027 6//// T00281011 55005 $KEEN2018-12-17T20:56:00Z42.88-72.272.8-1.1300710.029.5511821002.7TRUETRUETRUEVFR-0.5METAR149.02018-12-17 21:05:43n›Šý );5    3KLPC 172056Z AUTO 25006KT 10SM SCT020 SCT031 17/13 A3016 RMK AO2 SLP217 T01720128 58016KLPC2018-12-17T20:56:00Z34.67-120.4717.212.8250610.030.1594491021.7TRUETRUEVFR-1.6METAR27.02018-12-17 21:05:43\›Šý )5    3KLRD 172056Z 13009KT 10SM CLR 23/M02 A3013 RMK AO2 SLP216 T02331022 56038KLRD2018-12-17T20:56:00Z27.55-99.4723.3-2.2130910.030.1299211021.6TRUEVFR-3.8METAR155.02018-12-17 21:05:43 XBKPXr›Šý)95     3KDVL 172056Z AUTO 12013KT 10SM CLR M04/M08 A3001 RMK AO2 SLP206 T10441083 58033 FZRANOKDVL2018-12-17T20:56:00Z48.12-98.92-4.4-8.31201310.030.0088581020.6TRUETRUETRUEVFR-3.3METAR443.02018-12-17 21:05:43u›Šý)A5    3KDWU 172056Z AUTO 27007KT 10SM CLR 11/M01 A3008 RMK AO2 SLP189 6//// T01061006 55003 PNO $KDWU2018-12-17T20:56:00Z38.55-82.7310.6-0.6270710.030.0797251018.9TRUETRUETRUEVFR-0.3METAR166.02018-12-17 21:05:43q›Šý)?5    3KDYR 172056Z AUTO 28007KT 10SM CLR 14/02 A3021 RMK AO2 SLP249 6//// T01390022 56015 PNO $KDYR2018-12-17T20:56:00Z36.0-89.413.92.2280710.030.2096461024.9TRUETRUETRUEVFR-1.5METAR103.02018-12-17 21:05:438›Šý(m5    3KDYT 172056Z AUTO 10SM CLR M01/M09 A3025 RMK AO2KDYT2018-12-17T20:56:00Z46.72-92.03-1.0-9.010.030.250984TRUETRUEVFRMETAR186.02018-12-17 21:05:43 K-BMK|›Šý)Y5   3KMJX 172056Z AUTO 30016G22KT 10SM OVC055 07/M02 A2975 RMK AO2 PK WND 31026/2029 SLP080 T00721017 53012KMJX2018-12-17T20:56:00Z39.93-74.37.2-1.7300162210.029.7490161008.0TRUETRUEVFR1.2METAR25.02018-12-17 21:05:43o›Šý)75     3KMKT 172056Z AUTO 12009KT 10SM CLR 01/M06 A3019 RMK AO2 SLP240 T00061061 57016 FZRANOKMKT2018-12-17T20:56:00Z44.22-93.920.6-6.1120910.030.1889761024.0TRUETRUETRUEVFR-1.6METAR311.02018-12-17 21:05:43e›Šý)-5    3KMKY 172056Z AUTO 31011KT 10SM FEW025 18/13 A3010 RMK AO2 SLP192 T01830128 56010KMKY2018-12-17T20:56:00Z26.0-81.6718.312.83101110.030.1003931019.2TRUETRUEVFR-1.0METAR2.02018-12-17 21:05:43M›Šý)5    3KDUH 172056Z AUTO 30005KT 10SM CLR 05/M03 A3009 RMK AO2 T00451028KDUH2018-12-17T20:56:00Z41.73-83.654.5-2.8300510.030.088583TRUETRUEVFRMETAR204.02018-12-17 21:05:43 q KqT›Šý)5    3KD07 172056Z AUTO 03004KT 07/M02 A2988 RMK AO1 SLP142 T00671017 56020KD072018-12-17T20:56:00Z45.03-102.026.7-1.730429.8789371014.2TRUETRUE-2.0METAR784.02018-12-17 21:05:43?›Šý(y5    3KMQJ 172056Z AUTO 32009KT 10SM CLR 05/01 A3014 RMK AO1KMQJ2018-12-17T20:56:00Z39.85-85.95.01.0320910.030.138779TRUETRUEVFRMETAR263.02018-12-17 21:05:43t›Šý);5     3KMNM 172056Z AUTO 33005KT 10SM CLR 00/M09 A3019 RMK AO2 SLP244 T00001089 53007 FZRANO $KMNM2018-12-17T20:56:00Z45.12-87.620.0-8.9330510.030.1889761024.4TRUETRUETRUETRUEVFR0.7METAR191.02018-12-17 21:05:43p›Šý)75     3KMML 172056Z AUTO 13012KT 10SM CLR 02/M04 A3008 RMK AO2 SLP204 T00171044 56029 FZRANOKMML2018-12-17T20:56:00Z44.45-95.821.7-4.41301210.030.0797251020.4TRUETRUETRUEVFR-2.9METAR359.02018-12-17 21:05:43 æ"Þær›Šý)95     3KGPZ 172056Z AUTO 16004KT 10SM CLR M03/M11 A3021 RMK AO2 SLP257 T10281111 57007 FZRANOKGPZ2018-12-17T20:56:00Z47.22-93.52-2.8-11.1160410.030.2096461025.7TRUETRUETRUEVFR-0.7METAR413.02018-12-17 21:05:43‚>›Šý)‚95      3KMSV 172056Z AUTO 29014G23KT 9SM -SN BKN028 OVC041 01/M03 A2968 RMK AO2 PK WND 29026/2036 RAE20UPB33E39SNB39 SLP064 P0000 60000 T00111033 51008 FZRANOKMSV2018-12-17T20:56:00Z41.7-74.781.1-3.329014239.029.6811031006.4TRUETRUETRUE-SNMVFR0.80.0050.005METAR428.02018-12-17 21:05:43X›Šý)5    3KMQY 172056Z 00000KT 10SM CLR 14/02 A3017 RMK AO2 SLP194 T01390017 56019KMQY2018-12-17T20:56:00Z36.02-86.5213.91.70010.030.1712591019.4TRUEVFR-1.9METAR166.02018-12-17 21:05:43 Ù!Y“ف4›Šý (o5   3KEMV 172056Z AUTO 24005KT CLR 13/02 A2992 RMK AO2KEMV2018-12-17T20:56:00Z36.68-77.4813.02.0240529.920275TRUETRUEMETAR39.02018-12-17 21:05:43@›Šý(y5    3KJES 172056Z AUTO 28003KT 10SM CLR 17/09 A3007 RMK AO2KJES2018-12-17T20:56:00Z31.55-81.8817.09.0280310.030.070866TRUETRUEVFRMETAR33.02018-12-17 21:05:43B›Šý({5    3KSFY 172056Z AUTO 28003KT 10SM CLR 06/M06 A3024 RMK AO2KSFY2018-12-17T20:56:00Z42.05-90.126.0-6.0280310.030.239174TRUETRUEVFRMETAR188.02018-12-17 21:05:43Y›Šý)5    3KGTU 172056Z 01004KT 10SM CLR 18/04 A3020 RMK AO2 SLP226 T01780039 56022KGTU2018-12-17T20:56:00Z30.68-97.6817.83.910410.030.2007871022.6TRUEVFR-2.2METAR240.02018-12-17 21:05:43 (üY›Šý$)5      3KNXF 172056Z AUTO 21006KT 10SM FEW034 A3016 RMK AO2 SLPNO 58024 PWINO $ KNXF2018-12-17T20:56:00Z33.28-117.45210610.030.159449TRUETRUETRUETRUEVFR-2.4METAR27.02018-12-17 21:05:43‚&›Šý#)‚5     3PAEI 172056Z COR 15005KT 10SM FEW010 BKN020 BKN120 M22/M25 A2911 RMK AO2A SNE23 CIG 014V028 SLP877 P0000 60000 T12191254 $ COR 2100PAEI2018-12-17T20:56:00Z64.67-147.1-21.9-25.4150510.029.111221987.7TRUETRUETRUEMVFR0.0050.005METAR167.02018-12-17 21:05:43k›Šý")-5    3KRYM 172056Z AUTO 11005KT 10SM CLR 01/M10 A3019 RMK AO2 SLP244 T00101100 57011 $KRYM2018-12-17T20:56:00Z46.08-94.371.0-10.0110510.030.1889761024.4TRUETRUETRUEVFR-1.1METAR351.02018-12-17 21:05:43a›Šý!)'5    3KNDZ 172056Z 32007KT 10SM BKN250 18/09 A3016 RMK AO2 SLP201 T01780089 56017 $KNDZ2018-12-17T20:56:00Z30.7-87.0217.88.9320710.030.1594491020.1TRUETRUEVFR-1.7SPECI54.02018-12-17 21:05:43 ñ ñ‚›Šý')g5       3PAGH 172056Z AUTO 00000KT 3/4SM -SN BR OVC012 M24/M26 A2915 RMK AO2 SLP884 P0000 60001 T12391261 53008 FZRANOPAGH2018-12-17T20:56:00Z66.88-157.17-23.9-26.1000.7529.149607988.4TRUETRUETRUE-SN BRLIFR0.80.0050.01METAR60.02018-12-17 21:05:43q›Šý&)95     3PAGL 172056Z AUTO 34010KT 10SM CLR M20/M22 A2933 RMK AO2 SLP927 T12001222 51013 FZRANOPAGL2018-12-17T20:56:00Z64.55-163.03-20.0-22.23401010.029.329725992.7TRUETRUETRUEVFR1.3METAR8.02018-12-17 21:05:43v›Šý%)?5     3PAGM 172056Z AUTO 36018KT 10SM BKN018 M18/M21 A2966 RMK AO2 SLP052 T11781206 51011 FZRANOPAGM2018-12-17T20:56:00Z63.77-171.73-17.8-20.63601810.029.6604331005.2TRUETRUETRUEMVFR1.1METAR8.02018-12-17 21:05:43 ÁëÅÁ~›Šý*)Q5     3PAFE 172056Z AUTO 08007KT 10SM SCT070 06/04 A2922 RMK AO2 RAE15 SLP905 P0000 60000 T00560039 58006PAFE2018-12-17T20:56:00Z56.97-133.925.63.980710.029.220472990.5TRUETRUEVFR-0.60.0050.005METAR9.02018-12-17 21:05:43‚ ›Šý))y5       3PAFM 172056Z AUTO 21003KT 1 3/4SM -SN BR BKN019 OVC027 M21/M23 A2915 RMK AO2 SLP886 P0000 60000 T12061228 53003 FZRANOPAFM2018-12-17T20:56:00Z67.1-157.85-20.6-22.821031.7529.149607988.6TRUETRUETRUE-SN BRIFR0.30.0050.005METAR88.02018-12-17 21:05:43‚›Šý()]5       3PAGA 172056Z AUTO 25005KT 9SM -SN OVC065 M19/M21 A2917 RMK AO2 SLP883 P0000 60000 T11891206 53013 FZRANOPAGA2018-12-17T20:56:00Z64.73-156.93-18.9-20.625059.029.170275988.3TRUETRUETRUE-SNVFR1.30.0050.005METAR46.02018-12-17 21:05:43 ëùë‚(›Šý-)‚5       3PACM 172056Z AUTO 32015KT 1 1/4SM -SN BR FEW010 SCT019 OVC044 M12/M13 A2945 RMK AO2 SLP968 P0000 60000 T11171133 53016 FZRANOPACM2018-12-17T20:56:00Z61.85-165.57-11.7-13.3320151.2529.450787996.8TRUETRUETRUE-SN BRIFR1.60.0050.005METAR4.02018-12-17 21:05:43Z›Šý,)!5    3PADL 172056Z 00000KT 10SM CLR M19/M22 A2926 RMK AO2 SLP912 T11941217 51022PADL2018-12-17T20:56:00Z59.05-158.5-19.4-21.70010.029.258858991.2TRUEVFR2.2METAR26.02018-12-17 21:05:43‚›Šý+)Y5     3PADU 172056Z 33018KT 10SM BKN050 OVC060 M01/M08 A2955 RMK AO2 SNE14 SLP013 P0000 60000 T10111078 51022PADU2018-12-17T20:56:00Z53.9-166.53-1.1-7.83301810.029.5511821001.3TRUEVFR2.20.0050.005METAR4.02018-12-17 21:05:43 ðý ð‚›Šý0)q5      3PAAK 172056Z AUTO 32009KT 10SM FEW032 OVC055 M01/M07 A2987 RMK AO2 SNE46 SLP116 P0000 60000 T10111072 51029 FZRANOPAAK2018-12-17T20:56:00Z52.22-174.2-1.1-7.2320910.029.8700791011.6TRUETRUETRUEVFR2.90.0050.005METAR17.02018-12-17 21:05:43l›Šý/)95     3PABL 172056Z AUTO 27009KT 10SM CLR M21/M23 A2925 RMK AO2 SLP906 T12061233 53007 FZRANOPABL2018-12-17T20:56:00Z65.98-161.15-20.6-23.3270910.029.25990.6TRUETRUETRUEVFR0.7METAR7.02018-12-17 21:05:43}›Šý.)K5      3PABV 172056Z AUTO 03004KT 10SM OVC019 M06/M07 A2899 RMK AO2 SLP825 60000 T10561067 51023 FZRANOPABV2018-12-17T20:56:00Z61.42-149.52-5.6-6.730410.028.990158982.5TRUETRUETRUEMVFR2.30.005METAR29.02018-12-17 21:05:43 ×îI›Šý3)5   3KRZT 172056Z AUTO 32011G14KT 10SM CLR 06/M01 A3010 RMK AO2KRZT2018-12-17T20:56:00Z39.43-83.026.0-1.0320111410.030.100393TRUETRUEVFRMETAR221.02018-12-17 21:05:43c›Šý2))5    3KSDY 172056Z AUTO 20007KT 10SM CLR 06/M02 A2984 RMK AO2 SLP128 T00611017 56017KSDY2018-12-17T20:56:00Z47.7-104.26.1-1.7200710.029.8405511012.8TRUETRUEVFR-1.7METAR605.02018-12-17 21:05:43‚#›Šý1)‚5     3KSFM 172056Z AUTO 35003KT 10SM SCT028 SCT033 OVC043 02/01 A2948 RMK AO2 UPB15E28B50E53RAB28E50 SLP989 6//// T00170006 56001 FZRANO PNO $KSFM2018-12-17T20:56:00Z43.38-70.721.70.6350310.029.480314998.9TRUETRUETRUETRUEVFR-0.1METAR74.02018-12-17 21:05:43 VËû)VM›Šý7)5    3KRMY 172056Z AUTO 29009KT 10SM CLR 04/M03 A3011 RMK AO2 T00401033KRMY2018-12-17T20:56:00Z42.23-84.954.0-3.3290910.030.109253TRUETRUEVFRMETAR287.02018-12-17 21:05:43L›Šý6)5    3KRNP 172056Z AUTO 32007KT 10SM CLR 02/M04 A3011 RMK AO2 T00211036KRNP2018-12-17T20:56:00Z43.0-84.132.1-3.6320710.030.109253TRUETRUEVFRMETAR224.02018-12-17 21:05:43J›Šý5)5    3KROS 172056Z AUTO 00000KT 10SM CLR 01/M10 A3023 RMK AO2 T00051097KROS2018-12-17T20:56:00Z45.7-92.950.5-9.70010.030.230314TRUETRUEVFRMETAR281.02018-12-17 21:05:43‚/›Šý4)‚!5      3KRUT 172056Z AUTO 32006KT 10SM BKN037 BKN050 OVC070 01/M02 A2958 RMK AO2 UPB14E16RAB38E56SNE14 SLP039 P0000 60003 T00111017 51014 FZRANO $KRUT2018-12-17T20:56:00Z43.52-72.951.1-1.7320610.029.580711003.9TRUETRUETRUETRUEVFR1.40.0050.03METAR240.02018-12-17 21:05:43 õÍÝõb›Šý:)'5    3KPWG 172056Z AUTO 01004KT 10SM CLR 13/05 A3019 RMK AO2 SLP242 T01280050 56023KPWG2018-12-17T20:56:00Z31.47-97.3212.85.010410.030.1889761024.2TRUETRUEVFR-2.3METAR180.02018-12-17 21:05:43j›Šý9)35   3KPWT 172056Z AUTO 20009G15KT 10SM FEW080 09/06 A2990 RMK AO2 SLP142 T00890061 58016KPWT2018-12-17T20:56:00Z47.5-122.758.96.120091510.029.8996071014.2TRUETRUEVFR-1.6METAR147.02018-12-17 21:05:43‚-›Šý8)‚%5      3KRKD 172056Z AUTO 33004KT 10SM BKN010 OVC021 01/00 A2943 RMK AO2 RAB10E48UPB46E47SNE10 CIG 008V013 SLP969 P0000 60002 T00060000 56002 FZRANOKRKD2018-12-17T20:56:00Z44.07-69.080.60.0330410.029.430119996.9TRUETRUETRUEMVFR-0.20.0050.02METAR17.02018-12-17 21:05:43 6ù"6f›Šý>))5    3KHYS 172056Z AUTO 18014KT 10SM CLR 14/M03 A3010 RMK AO2 SLP201 T01441033 56036KHYS2018-12-17T20:56:00Z38.85-99.2714.4-3.31801410.030.1003931020.1TRUETRUEVFR-3.6METAR609.02018-12-17 21:05:43Q›Šý=)5   3KI69 172056Z AUTO 30006G09KT 10SM CLR 08/M03 A3011 RMK AO2 T00771033KI692018-12-17T20:56:00Z39.08-84.227.7-3.33006910.030.109253TRUETRUEVFRMETAR255.02018-12-17 21:05:43‚›Šý<)y5    3KPVC 172056Z AUTO 30016G25KT 10SM BKN026 BKN033 OVC040 04/01 A2951 RMK AO2 RAB23E33 SLP992 P0000 60000 T00440006 58006KPVC2018-12-17T20:56:00Z42.07-70.224.40.6300162510.029.509842999.2TRUETRUEMVFR-0.60.0050.005METAR2.02018-12-17 21:05:43e›Šý;)35    3KPVU 172056Z 00000KT 10SM BKN070 OVC080 08/M01 A3014 RMK AO2 SLP214 T00781011 58010KPVU2018-12-17T20:56:00Z40.22-111.727.8-1.10010.030.1387791021.4TRUEVFR-1.0METAR1369.02018-12-17 21:05:43 ; ";a›ŠýB)'5    3KHEZ 172056Z AUTO 25005KT 10SM CLR 17/09 A3020 RMK AO2 SLP229 T01720094 56020KHEZ2018-12-17T20:56:00Z31.62-91.317.29.4250510.030.2007871022.9TRUETRUEVFR-2.0METAR83.02018-12-17 21:05:43e›ŠýA))5    3KHNB 172056Z AUTO 34006KT 10SM CLR 10/M02 A3018 RMK AO2 SLP222 T01001022 55009KHNB2018-12-17T20:56:00Z38.25-86.9510.0-2.2340610.030.1801191022.2TRUETRUEVFR-0.9METAR161.02018-12-17 21:05:43‚ ›Šý@)a5     3KHND 172056Z 03004KT 10SM SCT085 BKN110 13/M03 A3011 RMK AO2 RAB39E50 SLP198 P0000 60000 T01281028 58022 $KHND2018-12-17T20:56:00Z35.98-115.1312.8-2.830410.030.1092531019.8TRUETRUEVFR-2.20.0050.005METAR749.02018-12-17 21:05:43\›Šý?)5    3KHYI 172056Z 26004KT 10SM CLR 21/M01 A3018 RMK AO2 SLP214 T02111006 56027KHYI2018-12-17T20:56:00Z29.88-97.8721.1-0.6260410.030.1801191021.4TRUEVFR-2.7METAR182.02018-12-17 21:05:43 ''f›ŠýE))5    3KGXY 172056Z AUTO 00000KT 10SM CLR 12/M10 A2999 RMK AO2 SLP181 T01221100 56028KGXY2018-12-17T20:56:00Z40.42-104.6212.2-10.00010.029.9911421018.1TRUETRUEVFR-2.8METAR1420.02018-12-17 21:05:43v›ŠýD)?5     3KHDN 172056Z AUTO 12004KT 10SM FEW080 M01/M07 A3017 RMK AO2 SLP248 T10061067 56017 FZRANOKHDN2018-12-17T20:56:00Z40.47-107.22-0.6-6.7120410.030.1712591024.8TRUETRUETRUEVFR-1.7METAR2012.02018-12-17 21:05:43k›ŠýC)75    3KHEF 172056Z 34006KT 10SM CLR 13/M01 A2984 RMK AO2 SLP116 6//// T01281011 55001 PNO $KHEF2018-12-17T20:56:00Z38.72-77.5212.8-1.1340610.029.8405511011.6TRUETRUEVFR-0.1METAR59.02018-12-17 21:05:43 ÖÖÛց›ŠýH)W5     3PAGN 172056Z AUTO 08006KT 10SM OVC036 06/04 A2921 RMK AO2 RAB11E24 SLP880 P0000 60000 T00560039 50004PAGN2018-12-17T20:56:00Z57.5-134.585.63.980610.029.208662988.0TRUETRUEVFR0.40.0050.005METAR2.02018-12-17 21:05:43u›ŠýG)?5     3KGUC 172056Z AUTO 00000KT 10SM BKN070 M08/M13 A3025 RMK AO2 SLP358 T10781128 56026 FZRANOKGUC2018-12-17T20:56:00Z38.52-106.92-7.8-12.80010.030.2509841035.8TRUETRUETRUEVFR-2.6METAR2339.02018-12-17 21:05:43‚$›ŠýF)‚5      3KGVQ 172056Z AUTO 29018G22KT 8SM -RA OVC021 01/M02 A2986 RMK AO2 RAE09B47UPB09E47 SLP141 P0000 60000 T00061017 53011 FZRANOKGVQ2018-12-17T20:56:00Z43.03-78.170.6-1.729018228.029.8612211014.1TRUETRUETRUE-RAMVFR1.10.0050.005METAR278.02018-12-17 21:05:43 ¿ 㿂›ŠýK)q5       3PAHP 172056Z AUTO 35016KT 4SM -SN BR FEW027 OVC036 M11/M13 A2943 RMK AO2 SLP003 P0000 60000 T11111133 52021 FZRANOPAHP2018-12-17T20:56:00Z61.52-166.15-11.1-13.3350164.029.4301191000.3TRUETRUETRUE-SN BRMVFR2.10.0050.005METAR5.02018-12-17 21:05:43‚!›ŠýJ)5       3PAHL 172056Z AUTO 00000KT 5SM -SN BR SCT020 BKN028 OVC045 M19/M22 A2913 RMK AO2 SLP873 P0000 60000 T11941217 53009 FZRANOPAHL2018-12-17T20:56:00Z65.7-156.35-19.4-21.7005.029.128937987.3TRUETRUETRUE-SN BRMVFR0.90.0050.005METAR65.02018-12-17 21:05:43p›ŠýI)I5    3PAGS 172056Z AUTO 13008KT 10SM BKN032 BKN038 OVC055 07/03 A2918 RMK AO2 SLP880 T00670028 50004PAGS2018-12-17T20:56:00Z58.42-135.736.72.8130810.029.179134988.0TRUETRUEVFR0.4METAR9.02018-12-17 21:05:43 V7?<V`›ŠýO)'5    3KCBM 172056Z AUTO 00000KT 10SM CLR 11/07 A3021 RMK AO2 SLP234 T01050074 57016KCBM2018-12-17T20:56:00Z33.63-88.4510.57.40010.030.2096461023.4TRUETRUEVFR-1.6METAR67.02018-12-17 21:05:43}›ŠýN)S5   3KCTB 172056Z AUTO 25022G28KT 10SM CLR 09/M03 A2982 RMK AO2 PK WND 24028/2056 SLP101 T00941033 56006KCTB2018-12-17T20:56:00Z48.6-112.379.4-3.3250222810.029.8198811010.1TRUETRUEVFR-0.6METAR1175.02018-12-17 21:05:43r›ŠýM)G5    3KNSE 172056Z 31006KT 10SM BKN250 18/09 A3016 RMK AO2 SLP201 FU DSNT N AND E T01780094 56018 $KNSE2018-12-17T20:56:00Z30.73-87.0217.89.4310610.030.1594491020.1TRUETRUEVFR-1.8METAR61.02018-12-17 21:05:43C›ŠýL(}5    3KFGN 172056Z AUTO 00000KT 10SM CLR M11/M14 A3019 RMK AO2KFGN2018-12-17T20:56:00Z49.32-94.9-11.0-14.00010.030.188976TRUETRUEVFRSPECI328.02018-12-17 21:05:43 Z!4FZf›ŠýS)+5    3KCOF 172056Z AUTO 01005KT 10SM CLR 18/10 A3008 RMK AO2 SLP190 T01820103 55008 $KCOF2018-12-17T20:56:00Z28.23-80.618.210.310510.030.0797251019.0TRUETRUETRUEVFR-0.8METAR3.02018-12-17 21:05:43h›ŠýR)+5    3KPOB 172056Z AUTO 31008KT 10SM CLR 18/01 A2995 RMK AO2 SLP145 T01800006 55005 $KPOB2018-12-17T20:56:00Z35.17-79.0218.00.6310810.029.9498021014.5TRUETRUETRUEVFR-0.5METAR66.02018-12-17 21:05:43g›ŠýQ)+5    3KVAD 172056Z AUTO 30006KT 10SM CLR 18/09 A3008 RMK AO2 SLP188 T01770091 56017 $KVAD2018-12-17T20:56:00Z30.97-83.217.79.1300610.030.0797251018.8TRUETRUETRUEVFR-1.7METAR71.02018-12-17 21:05:43Y›ŠýP)%5    3K2DP 172056Z AUTO 27008KT 10SM CLR 14/04 A2988 RMK AO2 SLPNO T01400042 55003K2DP2018-12-17T20:56:00Z35.68-75.914.04.2270810.029.878937TRUETRUEVFR-0.3METAR3.02018-12-17 21:05:43 y*9y:›ŠýW({5  3KFMH 172056Z 30011G18KT 10SM BKN038 BKN 047 03/00 A2954KFMH2018-12-17T20:56:00Z41.63-70.523.00.0300111810.029.53937VFRMETAR40.02018-12-17 21:05:43k›ŠýV)55    3KNJK 172056Z 14003KT 10SM FEW120 SCT250 18/03 A3011 RMK AO2 SLP210 T01830028 58023 $KNJK2018-12-17T20:56:00Z32.82-115.6718.32.8140310.030.1092531021.0TRUETRUEVFR-2.3SPECI-13.02018-12-17 21:05:43a›ŠýU)+5    3CYPX 172056Z AUTO 35027G32KT 1 1/4SM -SN SCT016 BKN039 M06/M07 A2927 RMK SLP917CYPX2018-12-17T20:56:00Z60.03-77.27-6.0-7.035027321.2529.27067991.7TRUE-SNIFRSPECI23.02018-12-17 21:05:43i›ŠýT)+5    3KBIX 172056Z AUTO 23009KT 10SM CLR 15/11 A3019 RMK AO2 SLP226 T01530105 57019 $KBIX2018-12-17T20:56:00Z30.42-88.9215.310.5230910.030.1889761022.6TRUETRUETRUEVFR-1.9METAR10.02018-12-17 21:05:43 ¸å踂*›ŠýZ)‚ 5       3PAIW 172056Z AUTO 35023KT 3/4SM -SN BR OVC018 M18/M19 A2954 RMK AO2 PK WND 35028/2046 SLP004 P0000 60000 T11781194 51007 FZRANOPAIW2018-12-17T20:56:00Z65.62-168.1-17.8-19.4350230.7529.539371000.4TRUETRUETRUE-SN BRLIFR0.70.0050.005METAR7.02018-12-17 21:05:43w›ŠýY)M5     3PAII 172056Z AUTO 08007KT 10SM BKN020 OVC028 M18/M21 A2925 RMK AO2 SLP908 T11781211 53025 FZRANOPAII2018-12-17T20:56:00Z58.18-157.38-17.8-21.180710.029.25990.8TRUETRUETRUEMVFR2.5METAR30.02018-12-17 21:05:43‚›ŠýX)g5      3PAIG 172056Z AUTO 20006KT 10SM CLR M26/M28 A2922 RMK AO2 SNB25E35 SLP907 P0000 60000 T12561278 51021 FZRANO $PAIG2018-12-17T20:56:00Z59.32-155.9-25.6-27.8200610.029.220472990.7TRUETRUETRUETRUEVFR2.10.0050.005METAR28.02018-12-17 21:05:43 ¶ä㶂'›Šý])‚ 5      3PAKF 172056Z AUTO 34013G19KT 9SM -SN FEW008 SCT020 BKN080 M04/M10 A2944 RMK AO2 SNB08 SLP970 P0000 60000 T10441100 51026 FZRANOPAKF2018-12-17T20:56:00Z54.85-163.42-4.4-10.034013199.029.438976997.0TRUETRUETRUE-SNVFR2.60.0050.005METAR6.02018-12-17 21:05:43{›Šý\)M5     3PAIK 172056Z AUTO 30003KT 10SM FEW080 BKN110 M23/M26 A2921 RMK AO2 SLP899 T12331261 53001 FZRANOPAIK2018-12-17T20:56:00Z66.98-160.43-23.3-26.1300310.029.208662989.9TRUETRUETRUEVFR0.1METAR51.02018-12-17 21:05:43‚›Šý[)c5      3PAIN 172056Z AUTO 35011G18KT 9SM -SN OVC046 M18/M21 A2891 RMK AO2 SLP848 P0000 60000 T11781206 51028 FZRANOPAIN2018-12-17T20:56:00Z63.73-148.92-17.8-20.635011189.028.910433984.8TRUETRUETRUE-SNVFR2.80.0050.005METAR524.02018-12-17 21:05:43 ôåãôi›Šý`)?5    3KNGP 172056Z 04006KT 10SM FEW018 BKN180 BKN250 21/15 A3017 RMK AO2 SLP216 T02110150 56029KNGP2018-12-17T20:56:00Z27.68-97.2721.115.040610.030.1712591021.6TRUEVFR-2.9SPECI6.02018-12-17 21:05:43|›Šý_)G5      3PAJZ 172056Z AUTO 26003KT 6SM BR OVC042 M24/M26 A2927 RMK AO2 SLP919 T12391261 51022 FZRANO $PAJZ2018-12-17T20:56:00Z59.73-157.27-23.9-26.126036.029.27067991.9TRUETRUETRUETRUEBRVFR2.2METAR82.02018-12-17 21:05:43‚›Šý^)a5       3PAKH 172056Z AUTO 35009KT 5SM -SN OVC022 M08/M11 A2908 RMK AO2 SLP847 P0000 60000 T10781111 51020 FZRANO $PAKH2018-12-17T20:56:00Z56.93-154.18-7.8-11.135095.029.078741984.7TRUETRUETRUETRUE-SNMVFR2.00.0050.005METAR14.02018-12-17 21:05:43 ñùp›Šýc)35    3KDRA 172056Z AUTO 14009KT 10SM FEW110 15/M03 A3007 RMK AO2 SLP161 T01501033 58011 $KDRA2018-12-17T20:56:00Z36.62-116.0315.0-3.3140910.030.0708661016.1TRUETRUETRUEVFR-1.1METAR1006.02018-12-17 21:05:43r›Šýb)A5    3KNBT 172056Z AUTO 26009KT 10SM CLR 15/05 A2991 RMK AO2 SLP132 6//// T01500050 55005 PNO $ KNBT2018-12-17T20:56:00Z35.02-76.4715.05.0260910.029.9114171013.2TRUETRUETRUEVFR-0.5METAR5.02018-12-17 21:05:43‚ ›Šýa)g5    3PGUA 172056Z 08012G21KT 10SM SCT012 BKN160 26/24 A2986 RMK AO2A CIG 011 RWY24L SLP102 T02640240 52014 PWINO $PGUA2018-12-17T20:56:00Z13.57144.9226.424.080122110.029.8612211010.2TRUETRUETRUEVFR1.4METAR187.02018-12-17 21:05:43 ëåçëv›Šýf)M5   3KBID 172056Z AUTO 30011G21KT 10SM BKN040 OVC049 06/00 A2960 RMK AO2 SLP026 6//// T00560000 53000KBID2018-12-17T20:56:00Z41.17-71.585.60.0300112110.029.6013771002.6TRUETRUEVFR0.0METAR33.02018-12-17 21:05:43x›Šýe)G5     3KWMC 172056Z AUTO 16009KT 10SM FEW045 SCT055 11/01 A3008 RMK AO2 SLP178 60000 T01060011 55009KWMC2018-12-17T20:56:00Z40.9-117.810.61.1160910.030.0797251017.8TRUETRUEVFR-0.90.005METAR1310.02018-12-17 21:05:43‚›Šýd)u5      3KWVL 172056Z AUTO 10SM OVC043 00/M01 A2943 RMK AO2 RAB10E37UPB37E50SNE10 SLP996 P0005 60013 T00001006 56012 FZRANO $KWVL2018-12-17T20:56:00Z44.52-69.670.0-0.610.029.430119999.6TRUETRUETRUETRUEVFR-1.20.050.13METAR101.02018-12-17 21:05:43 Ìõc›Šýj)'5    3KAUO 172056Z AUTO 32008KT 10SM CLR 17/03 A3013 RMK AO2 SLP228 T01720033 56016KAUO2018-12-17T20:56:00Z32.62-85.4217.23.3320810.030.1299211022.8TRUETRUEVFR-1.6METAR236.02018-12-17 21:05:43n›Šýi);5    3KAWO 172056Z AUTO 15012KT 10SM SCT037 BKN049 11/04 A2990 RMK AO2 SLP130 T01110044 58014KAWO2018-12-17T20:56:00Z48.17-122.1711.14.41501210.029.8996071013.0TRUETRUEVFR-1.4METAR42.02018-12-17 21:05:43Q›Šýh)5    3KBAX 172056Z AUTO 30008KT 10SM OVC028 00/M04 A3006 RMK AO2 T00021042KBAX2018-12-17T20:56:00Z43.78-82.980.2-4.2300810.030.059055TRUETRUEMVFRMETAR234.02018-12-17 21:05:43‚.›Šýg)‚5       3KBHB 172056Z AUTO 34007KT 2SM -SN BR BKN006 OVC023 00/M01 A2941 RMK AO2 VIS 1 1/4V4 CIG 005V011 SLP964 P0001 60001 T00001006 56011 FZRANOKBHB2018-12-17T20:56:00Z44.45-68.370.0-0.634072.029.409449996.4TRUETRUETRUE-SN BRIFR-1.10.010.01METAR26.02018-12-17 21:05:43   'T .›Šýn(s5    3KAJO 172056Z AUTO 10SM RMK AO2 SLPNO 6//// FZRANO $KAJO2018-12-17T20:56:00Z33.9-117.610.0TRUETRUETRUETRUEMETAR163.02018-12-17 21:05:43M›Šým)5    3KAMN 172056Z AUTO 31006KT 10SM CLR 02/M05 A3012 RMK AO2 T00151055KAMN2018-12-17T20:56:00Z43.32-84.681.5-5.5310610.030.121063TRUETRUEVFRMETAR230.02018-12-17 21:05:43^›Šýl)%5    3KARG 172056Z AUTO 00000KT 7SM CLR 13/02 A3022 RMK AO2 SLP237 T01280017 56008KARG2018-12-17T20:56:00Z36.12-90.9212.81.7007.030.2214571023.7TRUETRUEVFR-0.8METAR83.02018-12-17 21:05:43o›Šýk)C5    3KASH 172056Z 29007KT 10SM FEW030 SCT045 BKN065 04/00 A2953 RMK AO2 SLP010 T00390000 55008 $KASH2018-12-17T20:56:00Z42.78-71.523.90.0290710.029.5305121001.0TRUETRUEVFR-0.8METAR61.02018-12-17 21:05:43 s*;sB›Šýr({5    3KACQ 172056Z AUTO 11006KT 10SM CLR 00/M05 A3021 RMK AO2KACQ2018-12-17T20:56:00Z44.07-93.550.0-5.0110610.030.209646TRUETRUEVFRMETAR343.02018-12-17 21:05:43i›Šýq)15     3KADF 172056Z AUTO 00000KT 10SM CLR 13/11 A3020 RMK AO2 SLP232 T01280111 56026 TSNOKADF2018-12-17T20:56:00Z34.1-93.0712.811.10010.030.2007871023.2TRUETRUETRUEVFR-2.6METAR56.02018-12-17 21:05:43g›Šýp)/5    3KAFJ 172056Z AUTO 30011KT 10SM OVC039 04/M03 A3003 RMK AO2 SLP177 T00391028 53007KAFJ2018-12-17T20:56:00Z40.12-80.273.9-2.83001110.030.0295281017.7TRUETRUEVFR0.7METAR361.02018-12-17 21:05:43c›Šýo))5    3KAIZ 172056Z AUTO 08003KT 10SM CLR 12/M03 A3024 RMK AO2 SLP247 T01171028 56018KAIZ2018-12-17T20:56:00Z38.1-92.5311.7-2.880310.030.2391741024.7TRUETRUEVFR-1.8METAR265.02018-12-17 21:05:43 {)D{~›Šýv)K5     3PAPN 172056Z AUTO 05008KT 10SM OVC022 M16/M19 A2924 RMK AO2 SLP904 T11561189 51024 PWINO FZRANOPAPN2018-12-17T20:56:00Z57.58-157.57-15.6-18.950810.029.241142990.4TRUETRUETRUETRUEMVFR2.4METAR18.02018-12-17 21:05:43?›Šýu(}5    3K14Y 172056Z AUTO 11003KT CLR 00/M09 A3017 RMK AO2 PWINOK14Y2018-12-17T20:56:00Z45.9-94.870.0-9.0110330.171259TRUETRUETRUEMETAR406.02018-12-17 21:05:43_›Šýt)'5    3K7N0 172056Z AUTO 00000KT 10SM CLR 16/09 A3022 RMK AO2 SLP235 T01610089 56021K7N02018-12-17T20:56:00Z29.95-90.0716.18.90010.030.2214571023.5TRUETRUEVFR-2.1METAR0.02018-12-17 21:05:43Q›Šýs)5    3KACB 172056Z AUTO 33006KT 10SM OVC023 00/M06 A3014 RMK AO2 T10021056KACB2018-12-17T20:56:00Z44.98-85.2-0.2-5.6330610.030.138779TRUETRUEMVFRMETAR190.02018-12-17 21:05:43 ÷p›Šýy)95     3PANA 172056Z AUTO 32007KT 10SM CLR M20/M22 A2937 RMK AO2 SLP944 T12001222 53025 FZRANOPANA2018-12-17T20:56:00Z60.68-161.98-20.0-22.2320710.029.371063994.4TRUETRUETRUEVFR2.5METAR5.02018-12-17 21:05:43‚›Šýx)k5       3PANI 172056Z AUTO 26004KT 9SM -SN FEW022 SCT100 M21/M23 A2929 RMK AO2 SLP889 P0000 60000 T12111233 51016 FZRANOPANI2018-12-17T20:56:00Z61.58-159.53-21.1-23.326049.029.291338988.9TRUETRUETRUE-SNVFR1.60.0050.005METAR26.02018-12-17 21:05:43g›Šýw)35   3PAOH 172056Z AUTO 07010G16KT 10SM OVC027 05/03 A2917 RMK AO2 SLP880 T00500033 50006PAOH2018-12-17T20:56:00Z58.1-135.455.03.370101610.029.170275988.0TRUETRUEMVFR0.6METAR9.02018-12-17 21:05:43 /ßæ/N›Šý})5    3KY70 172056Z AUTO 29010KT 10SM CLR 03/M06 A3011 RMK AO2 T00251057KY702018-12-17T20:56:00Z42.93-85.072.5-5.72901010.030.109253TRUETRUEVFRMETAR250.02018-12-17 21:05:43]›Šý|)'5    3KYKN 172056Z AUTO 14008KT 10SM CLR 08/01 A3000 RMK AO2 SLP185 T00780011 56027KYKN2018-12-17T20:56:00Z42.92-97.377.81.1140810.030.01018.5TRUETRUEVFR-2.7METAR398.02018-12-17 21:05:43s›Šý{)?5     3PAKK 172056Z AUTO 31004KT 10SM BKN095 M21/M23 A2923 RMK AO2 SLP913 T12111233 51012 FZRANOPAKK2018-12-17T20:56:00Z64.93-161.15-21.1-23.3310410.029.22933991.3TRUETRUETRUEVFR1.2METAR47.02018-12-17 21:05:43‚›Šýz)o5       3PAKP 172056Z AUTO 04013KT 3/4SM -SN BKN015 OVC020 M26/M28 A2909 RMK AO2 SLP938 P0000 60000 T12561283 52001 FZRANOPAKP2018-12-17T20:56:00Z68.13-151.73-25.6-28.340130.7529.090551993.8TRUETRUETRUE-SNLIFR0.10.0050.005METAR642.02018-12-17 21:05:43 H*H\›Šþ)5    3KBMI 172056Z 33010KT 10SM CLR 06/M02 A3022 RMK AO2 SLP258 T00561022 55004KBMI2018-12-17T20:56:00Z40.47-88.925.6-2.23301010.030.2214571025.8TRUEVFR-0.4METAR267.02018-12-17 21:05:43`›Šþ))5    3KBKX 172056Z AUTO 15010KT 10SM CLR 07/M02 A3000 RMK AO2 SLP192 T00671017 56023KBKX2018-12-17T20:56:00Z44.28-96.826.7-1.71501010.030.01019.2TRUETRUEVFR-2.3METAR502.02018-12-17 21:05:43k›Šý)35     3KVPZ 172056Z AUTO 34008KT 10SM CLR 04/M03 A3019 RMK AO2 SLP230 T00441033 53005 TSNOKVPZ2018-12-17T20:56:00Z41.45-87.04.4-3.3340810.030.1889761023.0TRUETRUETRUEVFR0.5SPECI231.02018-12-17 21:05:43y›Šý~)G5     3KY50 172056Z AUTO 29006KT 10SM CLR 01/M08 A3022 RMK AO2 SLP261 6//// T00111083 53005 FZRANO $KY502018-12-17T20:56:00Z44.03-89.31.1-8.3290610.030.2214571026.1TRUETRUETRUETRUEVFR0.5METAR262.02018-12-17 21:05:43 &ü&r›Šþ)C5   3KBLM 172056Z AUTO 29015G21KT 10SM BKN049 OVC055 07/M02 A2974 RMK AO2 SLP076 T00671017 53012KBLM2018-12-17T20:56:00Z40.17-74.126.7-1.7290152110.029.7401581007.6TRUETRUEVFR1.2METAR48.02018-12-17 21:05:43a›Šþ)'5    3KBVX 172056Z AUTO 00000KT 10SM CLR 14/01 A3022 RMK AO2 SLP233 T01390006 56020KBVX2018-12-17T20:56:00Z35.73-91.6513.90.60010.030.2214571023.3TRUETRUEVFR-2.0METAR141.02018-12-17 21:05:43q›Šþ)C5    3KBTP 172056Z AUTO 30007G18KT 10SM OVC031 02/M03 A3000 RMK AO2 SLP174 T00171033 53010 FZRANOKBTP2018-12-17T20:56:00Z40.77-79.951.7-3.330071810.030.01017.4TRUETRUETRUEVFR1.0METAR380.02018-12-17 21:05:43~›Šþ)S5    3KBOK 172056Z AUTO 16011G18KT 6SM HZ FEW036 BKN050 OVC110 11/07 A3011 RMK AO2 SLP212 T01110072 58003KBOK2018-12-17T20:56:00Z42.07-124.2811.17.216011186.030.1092531021.2TRUETRUEHZVFR-0.3METAR140.02018-12-17 21:05:43 öú ö‚›Šþ)g5       3PASX 172056Z AUTO 00000KT 5SM BR OVC017 M05/M07 A2901 RMK AO2 SNE26 SLP833 P0000 60000 T10501067 51026 FZRANOPASX2018-12-17T20:56:00Z60.48-151.03-5.0-6.7005.029.010826983.3TRUETRUETRUEBRMVFR2.60.0050.005METAR32.02018-12-17 21:05:43h›Šþ)+5    3KCGZ 172056Z AUTO 00000KT 10SM CLR 19/04 A3011 RMK AO2 SLP194 T01940044 56026 $KCGZ2018-12-17T20:56:00Z32.95-111.7719.44.40010.030.1092531019.4TRUETRUETRUEVFR-2.6METAR446.02018-12-17 21:05:43‚›Šþ)K5      3KCIU 172056Z AUTO 30014KT 10SM OVC018 M03/M06 A3008 RMK AO2 SLP212 60000 T10281056 53017 FZRANOKCIU2018-12-17T20:56:00Z46.25-84.47-2.8-5.63001410.030.0797251021.2TRUETRUETRUEMVFR1.70.005METAR244.02018-12-17 21:05:43 s›Šþ )C5     3PASK 172056Z AUTO 23007KT 10SM OVC080 M24/M27 A2923 RMK AO2 SLP895 6//// T12441267 FZRANO $PASK2018-12-17T20:56:00Z66.6-160.0-24.4-26.7230710.029.22933989.5TRUETRUETRUETRUEVFRMETAR8.02018-12-17 21:05:43o›Šþ )95     3PAUN 172056Z AUTO 36005KT 10SM CLR M20/M23 A2930 RMK AO2 SLP927 T12001233 51014 FZRANOPAUN2018-12-17T20:56:00Z63.88-160.8-20.0-23.3360510.029.300198992.7TRUETRUETRUEVFR1.4METAR6.02018-12-17 21:05:43r›Šþ )95     3PATG 172056Z AUTO 31014KT 10SM CLR M17/M22 A2931 RMK AO2 SLP024 T11721222 51021 FZRANOPATG2018-12-17T20:56:00Z59.05-160.38-17.2-22.23101410.029.3090551002.4TRUETRUETRUEVFR2.1METAR4.02018-12-17 21:05:43 žŁs›Šþ)95     3PAWN 172056Z AUTO 36010KT 10SM CLR M22/M25 A2928 RMK AO2 SLP932 T12171250 58002 FZRANOPAWN2018-12-17T20:56:00Z67.57-162.98-21.7-25.03601010.029.279528993.2TRUETRUETRUEVFR-0.2METAR30.02018-12-17 21:05:43~›Šþ )K5      3PAWS 172056Z AUTO 07004KT 10SM OVC012 M06/M08 A2898 RMK AO2 SLP830 60000 T10561078 51023 FZRANOPAWS2018-12-17T20:56:00Z61.57-149.53-5.6-7.870410.028.981298983.0TRUETRUETRUEMVFR2.30.005METAR107.02018-12-17 21:05:43‚8›Šþ )‚+5      3PAVC 172056Z AUTO 30015G19KT 9SM UP FEW022 BKN029 OVC055 M06/M11 A2942 RMK AO2 UPB26E33B53SNE26B33E53 SLP967 P0000 60000 T10561111 51029 FZRANOPAVC2018-12-17T20:56:00Z55.12-162.27-5.6-11.130015199.029.421259996.7TRUETRUETRUEUPMVFR2.90.0050.005METAR47.02018-12-17 21:05:43  øb›Šþ)-5     3PFCL 172056Z AUTO 14003KT 10SM CLR M18/M20 RMK AO2 SLPNO T11781200 FZRANO TSNO $PFCL2018-12-17T20:56:00Z58.83-158.53-17.8-20.0140310.0TRUETRUETRUETRUETRUEVFRMETAR24.02018-12-17 21:05:43q›Šþ)95     3PFEL 172056Z AUTO 30009KT 10SM CLR M18/M22 A2929 RMK AO2 SLP921 T11831222 53011 FZRANOPFEL2018-12-17T20:56:00Z64.62-162.27-18.3-22.2300910.029.291338992.1TRUETRUETRUEVFR1.1METAR49.02018-12-17 21:05:43‚ ›Šþ)g5      3PAVD 172056Z 00000KT 4SM -SN BR FEW002 BKN030 OVC050 M01/M01 A2897 RMK AO2 SLP835 P0000 60000 T10061011 51021PAVD2018-12-17T20:56:00Z61.13-146.25-0.6-1.1004.028.969488983.5TRUE-SN BRMVFR2.10.0050.005METAR37.02018-12-17 21:05:43p›Šþ)75     3PAWM 172056Z AUTO 34017KT 8SM CLR M19/M22 A2930 RMK AO2 SLP932 T11941217 51010 FZRANOPAWM2018-12-17T20:56:00Z64.68-163.42-19.4-21.7340178.029.300198993.2TRUETRUETRUEVFR1.0METAR82.02018-12-17 21:05:43   `›Šþ)'5    3KSGT 172056Z AUTO 02005KT 10SM CLR 14/03 A3022 RMK AO2 SLP233 T01440033 56017KSGT2018-12-17T20:56:00Z34.6-91.5714.43.320510.030.2214571023.3TRUETRUEVFR-1.7METAR68.02018-12-17 21:05:43{›Šþ)M5    3KNFL 172056Z 15004KT 10SM FEW050 FEW080 SCT090 SCT220 11/02 A3011 RMK AO2 SLP162 T01060017 56009KNFL2018-12-17T20:56:00Z39.42-118.710.61.7150410.030.1092531016.2TRUESCT22000VFR-0.9METAR1199.02018-12-17 21:05:43‚›Šþ)i5      3PFKW 172056Z AUTO 31005KT 10SM OVC090 M19/M21 A2935 RMK AO2 SNB10E27 SLP940 P0000 60000 T11891211 53025 FZRANOPFKW2018-12-17T20:56:00Z60.8-161.43-18.9-21.1310510.029.350393994.0TRUETRUETRUEVFR2.50.0050.005METAR8.02018-12-17 21:05:43\›Šþ)!5    3PFYU 172056Z 00000KT 10SM CLR M27/M29 A2904 RMK AO2 SLP860 T12721294 52015PFYU2018-12-17T20:56:00Z66.57-145.27-27.2-29.40010.029.040354986.0TRUEVFR1.5METAR131.02018-12-17 21:05:43 !‚›Šþ)c5       3PPIZ 172056Z AUTO 36006KT 6SM -SN BR OVC016 M24/M26 A2951 RMK AO2 SLP998 P0000 60000 T12391261 51002 FZRANOPPIZ2018-12-17T20:56:00Z69.73-163.0-23.9-26.136066.029.509842999.8TRUETRUETRUE-SN BRMVFR0.20.0050.005METAR8.02018-12-17 21:05:43~›Šþ)W5     3KSFZ 172056Z AUTO 29010KT 10SM FEW039 BKN049 OVC060 03/M01 A2954 RMK AO2 SLP954 60000 T00331006 55006KSFZ2018-12-17T20:56:00Z41.92-71.53.3-0.62901010.029.53937995.4TRUETRUEVFR-0.60.005METAR134.02018-12-17 21:05:43Y›Šþ)5    3KSGJ 172056Z 27005KT 10SM CLR 16/10 A3009 RMK AO2 SLP188 T01610100 56014KSGJ2018-12-17T20:56:00Z29.97-81.3216.110.0270510.030.0885831018.8TRUEVFR-1.4METAR3.02018-12-17 21:05:43 -þ-a›Šþ)'5    3KSRC 172056Z AUTO 08005KT 10SM CLR 14/04 A3021 RMK AO2 SLP242 T01440039 56021KSRC2018-12-17T20:56:00Z35.22-91.7314.43.980510.030.2096461024.2TRUETRUEVFR-2.1METAR80.02018-12-17 21:05:43n›Šþ)75     3KSUE 172056Z AUTO 33006KT 10SM CLR 00/M07 A3018 RMK AO2 SLP247 T00001067 53006 FZRANOKSUE2018-12-17T20:56:00Z44.85-87.420.0-6.7330610.030.1801191024.7TRUETRUETRUEVFR0.6METAR221.02018-12-17 21:05:43p›Šþ)95     3KTVF 172056Z AUTO 10007KT 10SM CLR M03/M09 A3015 RMK AO2 SLP233 T10331089 56023 FZRANOKTVF2018-12-17T20:56:00Z48.07-96.17-3.3-8.9100710.030.150591023.3TRUETRUETRUEVFR-2.3METAR340.02018-12-17 21:05:43|›Šþ)I5     3PPIT 172056Z AUTO 32013KT 10SM SCT110 M19/M21 A2937 RMK AO2 SLP945 T11941211 53025 FZRANO TSNOPPIT2018-12-17T20:56:00Z60.9-162.43-19.4-21.13201310.029.371063994.5TRUETRUETRUETRUEVFR2.5METAR4.02018-12-17 21:05:43 R/GRo›Šþ!)35    3KSKX 172056Z AUTO 17003KT 10SM OVC120 07/M06 A3021 RMK AO2 SLP245 T00671056 56027 $KSKX2018-12-17T20:56:00Z36.45-105.676.7-5.6170310.030.2096461024.5TRUETRUETRUEVFR-2.7METAR2161.02018-12-17 21:05:43b›Šþ ))5    3KSLG 172056Z AUTO 00000KT 10SM CLR 14/M02 A3021 RMK AO2 SLP232 T01441017 56022KSLG2018-12-17T20:56:00Z36.2-94.4714.4-1.70010.030.2096461023.2TRUETRUEVFR-2.2METAR300.02018-12-17 21:05:43b›Šþ)'5    3KSOP 172056Z AUTO 27005KT 10SM CLR 17/01 A2997 RMK AO2 SLP169 T01670006 55006KSOP2018-12-17T20:56:00Z35.22-79.416.70.6270510.029.9704721016.9TRUETRUEVFR-0.6METAR141.02018-12-17 21:05:43c›Šþ))5    3KSQI 172056Z AUTO 29007KT 10SM CLR 06/M04 A3023 RMK AO2 SLP261 T00611039 53002KSQI2018-12-17T20:56:00Z41.75-89.676.1-3.9290710.030.2303141026.1TRUETRUEVFR0.2METAR197.02018-12-17 21:05:43 T5=Tc›Šþ%)'5    3KEKY 172056Z AUTO 34006KT 10SM CLR 16/05 A3018 RMK AO2 SLP242 T01560050 55015KEKY2018-12-17T20:56:00Z33.32-86.9315.65.0340610.030.1801191024.2TRUETRUEVFR-1.5METAR213.02018-12-17 21:05:43r›Šþ$)=5     3KENV 172056Z AUTO 00000KT 10SM OVC055 02/M03 A3014 RMK AO2 SLP238 T00171033 56007 FZRANOKENV2018-12-17T20:56:00Z40.72-114.021.7-3.30010.030.1387791023.8TRUETRUETRUEVFR-0.7METAR1292.02018-12-17 21:05:43]›Šþ#)75   3MUGM 172056Z 19010KT 9999 FEW030 FEW170 BKN260 29/24 A3000 RMK SLP159 T02890244 56006MUGM2018-12-17T20:56:00Z19.9-75.228.924.4190106.2130.01015.9VFR-0.6METAR17.02018-12-17 21:05:43b›Šþ"))5    3KSGU 172056Z AUTO 00000KT 10SM CLR 09/M04 A3015 RMK AO2 SLP209 T00941044 56019KSGU2018-12-17T20:56:00Z37.07-113.529.4-4.40010.030.150591020.9TRUETRUEVFR-1.9METAR896.02018-12-17 21:05:43 R*<Rd›Šþ))#5    3PHNY 172056Z AUTO 26007KT 10SM 23/14 A3020 RMK AO2 SLP208 T02280144 58005 $PHNY2018-12-17T20:56:00Z20.77-156.9322.814.4260710.030.2007871020.8TRUETRUETRUE-0.5METAR399.02018-12-17 21:05:43h›Šþ()35   3PMDY 172056Z AUTO 03009G14KT 10SM SCT055 19/08 A3043 RMK AO2 SLP306 T01940078 51023PMDY2018-12-17T20:56:00Z28.22-177.3719.47.83091410.030.4311031030.6TRUETRUEVFR2.3METAR4.02018-12-17 21:05:43g›Šþ')55    3KEGE 172056Z 00000KT 10SM FEW075 SCT100 M01/M08 A3022 RMK AO2 SLP301 T10111083 56030KEGE2018-12-17T20:56:00Z39.63-106.92-1.1-8.30010.030.2214571030.1TRUEVFR-3.0METAR1993.02018-12-17 21:05:43c›Šþ&)'5    3KEKQ 172056Z AUTO 31007KT 10SM CLR 11/04 A3016 RMK AO2 SLP243 T01060039 56010KEKQ2018-12-17T20:56:00Z36.85-84.8510.63.9310710.030.1594491024.3TRUETRUEVFR-1.0METAR294.02018-12-17 21:05:43 (äû(e›Šþ-)/5    3KUCP 172056Z AUTO 31009KT 10SM OVC032 02/M04 A3002 RMK AO2 SLP192 T00171044 53013KUCP2018-12-17T20:56:00Z41.03-80.421.7-4.4310910.030.020671019.2TRUETRUEVFR1.3METAR327.02018-12-17 21:05:43b›Šþ,)'5    3KUDG 172056Z AUTO 29005KT 10SM CLR 18/04 A2999 RMK AO2 SLP163 T01830044 55007KUDG2018-12-17T20:56:00Z34.45-79.8818.34.4290510.029.9911421016.3TRUETRUEVFR-0.7METAR59.02018-12-17 21:05:43c›Šþ+))5    3KVBT 172056Z AUTO 00000KT 10SM CLR 14/M03 A3022 RMK AO2 SLP240 T01441028 56023KVBT2018-12-17T20:56:00Z36.35-94.2214.4-2.80010.030.2214571024.0TRUETRUEVFR-2.3METAR395.02018-12-17 21:05:43‚›Šþ*)‚5    3KVIS 172056Z AUTO 27003KT 10SM BKN007 BKN013 OVC034 13/12 A3019 RMK AO2 RAE15 CIG 006V010 SLP234 6//// T01330117 56013 PNO $KVIS2018-12-17T20:56:00Z36.32-119.413.311.7270310.030.1889761023.4TRUETRUETRUEIFR-1.3METAR89.02018-12-17 21:05:43 ûúóQ›Šþ1) 5    3KVOK 172056Z 28006KT 10SM CLR 02/M07 A3022 RMK AO2A SLP248 53002KVOK2018-12-17T20:56:00Z43.92-90.272.0-7.0280610.030.2214571024.8TRUEVFR0.2METAR277.02018-12-17 21:05:43‚›Šþ0)Y5   3KWRI 172056Z AUTO 30018G31KT 10SM OVC055 07/M03 A2973 RMK AO2 PK WND 30031/51 SLP068 T00741029 53009 $KWRI2018-12-17T20:56:00Z40.02-74.587.4-2.9300183110.029.7312981006.8TRUETRUETRUEVFR0.9SPECI41.02018-12-17 21:05:43{›Šþ/)K5     3KNOG 172056Z AUTO 11005KT 10SM CLR 22/08 A3016 RMK AO2 SLP196 6//// T02170078 56032 PWINO PNO $KNOG2018-12-17T20:56:00Z27.9-98.0521.77.8110510.030.1594491019.6TRUETRUETRUETRUEVFR-3.2METAR78.02018-12-17 21:05:43›Šþ.)E5      3RJTY 172056Z AUTO 34014KT 10SM CLR 07/00 A2983 RMK AO2 SLP108 60000 T00691003 52022 FZRANO $RJTY2018-12-17T20:56:00Z35.75139.336.9-0.33401410.029.8287411010.8TRUETRUETRUETRUEVFR2.20.005METAR139.02018-12-17 21:05:43 33d›Šþ5)/5     3KFKL 172056Z AUTO 31008G15KT 10SM OVC024 A2996 RMK AO2 SLPNO 6//// 53010 FZRANO $KFKL2018-12-17T20:56:00Z41.37-79.8731081510.029.958662TRUETRUETRUETRUEMVFR1.0METAR469.02018-12-17 21:05:43c›Šþ4))5    3KFAM 172056Z AUTO VRB03KT 10SM CLR 12/M03 A3023 RMK AO2 SLP238 T01171033 56013KFAM2018-12-17T20:56:00Z37.77-90.4211.7-3.30310.030.2303141023.8TRUETRUEVFR-1.3METAR288.02018-12-17 21:05:43‚›Šþ3)W5     3PHSF 172056Z AUTO 19007KT 10SM CLR 24/M08 A3039 RMK AO2 SLP170 WND DATA ESTMD T02371081 58004 PWINO $PHSF2018-12-17T20:56:00Z19.77-155.5523.7-8.1190710.030.3897631017.0TRUETRUETRUETRUEVFR-0.4METAR1887.02018-12-17 21:05:43h›Šþ2)15    3RKJK 172056Z AUTO 10005KT 10SM OVC055 01/00 A3016 RMK AO2 SLP218 T00100001 55006 $RKJK2018-12-17T20:56:00Z35.9126.621.00.1100510.030.1594491021.8TRUETRUETRUEVFR-0.6METAR9.02018-12-17 21:05:43 N9NNz›Šþ9)K5      3KEUL 172056Z AUTO 19003KT BKN060 08/04 A3009 RMK AO2 SLP198 60001 T00780039 56004 PWINO RVRNO $KEUL2018-12-17T20:56:00Z43.62-116.627.83.9190330.0885831019.8TRUETRUETRUETRUE-0.40.01METAR740.02018-12-17 21:05:43e›Šþ8))5    3KEWK 172056Z AUTO 19009KT 10SM CLR 13/M04 A3019 RMK AO2 SLP229 T01281039 56023KEWK2018-12-17T20:56:00Z38.03-97.2712.8-3.9190910.030.1889761022.9TRUETRUEVFR-2.3METAR467.02018-12-17 21:05:43\›Šþ7)%5    3KPSM 172056Z 27008KT 10SM BKN040 03/00 A2948 RMK AO2A SLP986 T00321001 55010KPSM2018-12-17T20:56:00Z43.07-70.823.2-0.1270810.029.480314998.6TRUEVFR-1.0METAR31.02018-12-17 21:05:43_›Šþ6)%5    3KFLP 172056Z AUTO 00000KT 8SM CLR 14/01 A3021 RMK AO2 SLP232 T01390011 56026KFLP2018-12-17T20:56:00Z36.28-92.5813.91.1008.030.2096461023.2TRUETRUEVFR-2.6METAR219.02018-12-17 21:05:43 U1=?Ud›Šþ=))5    3KFOD 172056Z AUTO 18007KT 10SM CLR 06/M02 A3017 RMK AO2 SLP258 T00561017 56020KFOD2018-12-17T20:56:00Z42.53-94.175.6-1.7180710.030.1712591025.8TRUETRUEVFR-2.0METAR355.02018-12-17 21:05:43x›Šþ<)A5    3KFNL 172056Z AUTO 18007KT 10SM CLR 14/M13 A2999 RMK AO2 SLP152 6//// T01391128 56024 PNO $KFNL2018-12-17T20:56:00Z40.45-105.0213.9-12.8180710.029.9911421015.2TRUETRUETRUEVFR-2.4METAR1529.02018-12-17 21:05:43n›Šþ;)75     3KESC 172056Z AUTO 31007KT 10SM CLR 00/M08 A3017 RMK AO2 SLP240 T00001083 53006 FZRANOKESC2018-12-17T20:56:00Z45.75-87.080.0-8.3310710.030.1712591024.0TRUETRUETRUEVFR0.6METAR187.02018-12-17 21:05:43I›Šþ:)5   3KETH 172056Z AUTO 10015G18KT 10SM CLR 03/M06 A3010 RMK AO2KETH2018-12-17T20:56:00Z45.78-96.553.0-6.0100151810.030.100393TRUETRUEVFRMETAR313.02018-12-17 21:05:43 R(>Rf›ŠþA))5    3KGBD 172056Z AUTO 17014KT 10SM CLR 14/M03 A3013 RMK AO2 SLP212 T01391028 56033KGBD2018-12-17T20:56:00Z38.35-98.8713.9-2.81701410.030.1299211021.2TRUETRUEVFR-3.3METAR575.02018-12-17 21:05:43d›Šþ@))5    3KGDV 172056Z AUTO 16008KT 10SM CLR 08/M02 A2985 RMK AO2 SLP129 T00781022 56017KGDV2018-12-17T20:56:00Z47.12-104.787.8-2.2160810.029.849411012.9TRUETRUEVFR-1.7METAR749.02018-12-17 21:05:43c›Šþ?)'5    3KILE 172056Z AUTO 31003KT 10SM CLR 16/02 A3019 RMK AO2 SLP244 T01610022 56022KILE2018-12-17T20:56:00Z31.07-97.6716.12.2310310.030.1889761024.4TRUETRUEVFR-2.2METAR258.02018-12-17 21:05:43i›Šþ>)+5    3KRCA 172056Z AUTO 01012KT 10SM CLR 08/00 A2988 RMK AO2 SLP139 T00780000 55010 $KRCA2018-12-17T20:56:00Z44.13-103.087.80.0101210.029.8789371013.9TRUETRUETRUEVFR-1.0METAR999.02018-12-17 21:05:43 J÷!JQ›ŠþE)5   3KIRS 172056Z AUTO 31008G14KT 10SM CLR 05/M02 A3012 RMK AO2 T00491024KIRS2018-12-17T20:56:00Z41.8-85.434.9-2.431081410.030.121063TRUETRUEVFRMETAR282.02018-12-17 21:05:43h›ŠþD)55     3KFRM 172056Z AUTO 14008KT 10SM CLR 01/M03 A3016 RMK AO2 SLPNO T00111028 58019 FZRANOKFRM2018-12-17T20:56:00Z43.63-94.421.1-2.8140810.030.159449TRUETRUETRUEVFR-1.9METAR354.02018-12-17 21:05:43b›ŠþC)'5    3KGAD 172056Z AUTO 33008KT 10SM CLR 16/04 A3015 RMK AO2 SLP215 T01610039 56016KGAD2018-12-17T20:56:00Z33.97-86.0716.13.9330810.030.150591021.5TRUETRUEVFR-1.6METAR173.02018-12-17 21:05:43‚›ŠþB)c5   3KGAI 172056Z AUTO 33009G17KT 280V360 10SM CLR 10/M03 A2984 RMK AO2 PK WND 31028/2036 SLP136 T01001033 53005KGAI2018-12-17T20:56:00Z39.17-77.1710.0-3.333091710.029.8405511013.6TRUETRUEVFR0.5METAR165.02018-12-17 21:05:43 ûõ]›ŠþI)!5    3KJAC 172056Z 00000KT 10SM CLR M04/M09 A3007 RMK AO2 SLP261 T10391094 56020KJAC2018-12-17T20:56:00Z43.62-110.73-3.9-9.40010.030.0708661026.1TRUEVFR-2.0METAR1961.02018-12-17 21:05:43‚›ŠþH)Q5     3KIWD 172056Z AUTO 26003KT 10SM CLR M03/M09 A3021 RMK AO2 SLP250 6//// T10331094 55000 FZRANO PNO $KIWD2018-12-17T20:56:00Z46.52-90.12-3.3-9.4260310.030.2096461025.0TRUETRUETRUETRUEVFR0.0METAR375.02018-12-17 21:05:43‚›ŠþG)m5     3KITH 172056Z 30014G26KT 9SM -SN OVC018 01/M02 A2979 RMK AO2 PK WND 30026/2048 SLP096 P0000 60000 T00111017 53014KITH2018-12-17T20:56:00Z42.47-76.451.1-1.730014269.029.7903541009.6TRUE-SNMVFR1.40.0050.005METAR335.02018-12-17 21:05:43h›ŠþF)55    3KISM 172056Z 00000KT 10SM CLR 18/10 A3010 RMK AO2 SLP194 6//// T01830100 56011 PNO $KISM2018-12-17T20:56:00Z28.28-81.4318.310.00010.030.1003931019.4TRUETRUEVFR-1.1METAR25.02018-12-17 21:05:43 Iÿ6Ig›ŠþM)/5    3KNXP 172056Z AUTO 00000KT 10SM FEW095 16/M06 A3017 RMK AO2 SLP198 T01611056 58025KNXP2018-12-17T20:56:00Z34.28-116.1716.1-5.60010.030.1712591019.8TRUETRUEVFR-2.5METAR626.02018-12-17 21:05:43C›ŠþL({5    3KJYM 172056Z AUTO 31010KT 10SM CLR 03/M04 A3008 RMK AO2KJYM2018-12-17T20:56:00Z41.92-84.583.0-4.03101010.030.079725TRUETRUEVFRMETAR360.02018-12-17 21:05:43‚›ŠþK)g5     3KJHW 172056Z AUTO 31014G20KT 9SM OVC013 M01/M03 A2990 RMK AO2 SNE54 SLP149 P0000 60000 T10111028 53012 FZRANOKJHW2018-12-17T20:56:00Z42.13-79.27-1.1-2.831014209.029.8996071014.9TRUETRUETRUEMVFR1.20.0050.005METAR525.02018-12-17 21:05:43a›ŠþJ)/5    3KJRB 172056Z AUTO VRB04KT 10SM OVC048 07/M02 A2972 RMK AO2 SLP065 T00721017 53009KJRB2018-12-17T20:56:00Z40.7-74.027.2-1.70410.029.7194881006.5TRUETRUEVFR0.9METAR7.02018-12-17 21:05:43 \ "5\S›ŠþQ)5    3K2WX 172056Z AUTO 27007KT 09/M02 A2985 RMK AO1 SLP126 T00891017 56018K2WX2018-12-17T20:56:00Z45.6-103.558.9-1.7270729.849411012.6TRUETRUE-1.8METAR915.02018-12-17 21:05:43g›ŠþP)-5    3KAQV 172056Z AUTO VRB03KT 10SM CLR 17/M02 A3016 RMK AO2 SLP213 T01671022 56023 $KAQV2018-12-17T20:56:00Z31.4-93.316.7-2.20310.030.1594491021.3TRUETRUETRUEVFR-2.3METAR111.02018-12-17 21:05:43d›ŠþO)75    3KNYG 172056Z 28006KT 10SM SCT150 13/02 A2984 RMK AO2 SLP106 6//// T01330022 55004 PNOKNYG2018-12-17T20:56:00Z38.5-77.2813.32.2280610.029.8405511010.6TRUEVFR-0.4SPECI4.02018-12-17 21:05:43n›ŠþN)A5    3KSPD 172056Z AUTO 17022G32KT 16/M06 A3002 RMK AO1 PK WND 18033/2043 SLP152 T01561061 56030KSPD2018-12-17T20:56:00Z37.28-102.6215.6-6.1170223230.020671015.2TRUETRUE-3.0METAR1335.02018-12-17 21:05:43 e%3Meb›ŠþU)'5    3KPRN 172056Z AUTO 32008KT 10SM CLR 17/06 A3015 RMK AO2 SLP209 T01720061 56015KPRN2018-12-17T20:56:00Z31.85-86.6217.26.1320810.030.150591020.9TRUETRUEVFR-1.5METAR138.02018-12-17 21:05:43`›ŠþT)'5    3K79J 172056Z AUTO 30009KT 10SM CLR 19/07 A3015 RMK AO2 SLP206 T01940067 56016K79J2018-12-17T20:56:00Z31.32-86.419.46.7300910.030.150591020.6TRUETRUEVFR-1.6METAR94.02018-12-17 21:05:43l›ŠþS)=5    3KNLC 172056Z 33013KT 10SM SCT017 OVC040 14/10 A3021 RMK AO2 SLP230 RH/77 T01390100 56010KNLC2018-12-17T20:56:00Z36.32-119.9513.910.03301310.030.2096461023.0TRUEVFR-1.0METAR72.02018-12-17 21:05:43U›ŠþR)5    3KP28 172056Z AUTO 15006KT 11/M01 A3017 RMK AO1 SLP225 T01061011 56033KP282018-12-17T20:56:00Z37.28-98.5510.6-1.1150630.1712591022.5TRUETRUE-3.3METAR469.02018-12-17 21:05:43 b,Hb`›ŠþY)'5    3KNTU 172056Z 26008KT 10SM FEW250 14/02 A2985 RMK AO2 SLP109 T01390017 55005 $KNTU2018-12-17T20:56:00Z36.82-76.0213.91.7260810.029.849411010.9TRUETRUEVFR-0.5SPECI7.02018-12-17 21:05:43^›ŠþX)'5    3KNFE 172056Z AUTO VRB04KT 10SM CLR 16/03 A2986 RMK AO2 SLP113 T01560028 55004KNFE2018-12-17T20:56:00Z36.7-76.1315.62.80410.029.8612211011.3TRUETRUEVFR-0.4METAR5.02018-12-17 21:05:43a›ŠþW)+5    3ROTM 172056Z AUTO 03005KT 8SM OVC055 14/07 A3020 RMK AO2 SLP215 T01440072 53004ROTM2018-12-17T20:56:00Z26.27127.7514.47.23058.030.2007871021.5TRUETRUEVFR0.4METAR75.02018-12-17 21:05:43g›ŠþV)/5    3KMEH 172056Z AUTO 00000KT 10SM FEW036 07/M01 A2997 RMK AO2 SLP158 T00671011 58009KMEH2018-12-17T20:56:00Z45.52-118.426.7-1.10010.029.9704721015.8TRUETRUEVFR-0.9METAR1136.02018-12-17 21:05:43 ‡!Af‡Y›Šþ])5    3KNCA 172056Z 26009KT 10SM CLR 17/13 A2993 RMK AO2 SLP136 T01720128 56008KNCA2018-12-17T20:56:00Z34.72-77.4517.212.8260910.029.9291341013.6TRUEVFR-0.8METAR8.02018-12-17 21:05:43U›Šþ\)5    3K8D3 172056Z AUTO 14013KT 02/M06 A3006 RMK AO1 SLP201 T00221056 56024K8D32018-12-17T20:56:00Z45.67-96.982.2-5.61401330.0590551020.1TRUETRUE-2.4METAR354.02018-12-17 21:05:43Z›Šþ[)5    3KMQE 172056Z AUTO 29015G24KT 02/M01 A2950 RMK AO1 SLP004 T00221006 56006KMQE2018-12-17T20:56:00Z42.22-71.122.2-0.6290152429.5009841000.4TRUETRUE-0.6METAR199.02018-12-17 21:05:43Y›ŠþZ)5    3KNBC 172056Z 21006KT 10SM CLR 17/09 A3003 RMK AO2 SLP169 T01670089 56020KNBC2018-12-17T20:56:00Z32.47-80.7216.78.9210610.030.0295281016.9TRUEVFR-2.0SPECI12.02018-12-17 21:05:43 5!75|›Šþa)Q5   3KNID 172056Z 24016G23KT 10SM FEW060 19/03 A3005 RMK AO2 PK WND 25029/2003 SLP174 T01890028 58020 $KNID2018-12-17T20:56:00Z35.67-117.6718.92.8240162310.030.0501981017.4TRUETRUEVFR-2.0METAR696.02018-12-17 21:05:43d›Šþ`)'5    3KALK 172056Z AUTO 25003KT 10SM CLR 14/02 A3016 RMK AO2 SLP161 T01440022 56025KALK2018-12-17T20:56:00Z31.6-110.4314.42.2250310.030.1594491016.1TRUETRUEVFR-2.5METAR1453.02018-12-17 21:05:43q›Šþ_)C5    3KNRS 172056Z 29005KT 10SM SCT031 SCT110 BKN200 18/12 A3018 RMK AO2 SLP217 T01780117 58019 $KNRS2018-12-17T20:56:00Z32.57-117.1217.811.7290510.030.1801191021.7TRUETRUEVFR-1.9SPECI7.02018-12-17 21:05:43b›Šþ^)'5    3PHBK 172056Z AUTO 31006KT 10SM CLR 26/18 A3018 RMK AO2 SLP222 T02560178 50001PHBK2018-12-17T20:56:00Z22.03-159.7825.617.8310610.030.1801191022.2TRUETRUEVFR0.1METAR8.02018-12-17 21:05:43 Y 4YU›Šþe)5    3KGNA 172056Z AUTO VRB05KT M01/M13 A3021 RMK AO1 SLP247 T10111133 55002KGNA2018-12-17T20:56:00Z47.75-90.35-1.1-13.30530.2096461024.7TRUETRUE-0.2METAR185.02018-12-17 21:05:43[›Šþd)5    3KP53 172056Z AUTO 34012G19KT M02/M06 A3016 RMK AO1 SLP221 T10171061 51010KP532018-12-17T20:56:00Z46.42-86.65-1.7-6.1340121930.1594491022.1TRUETRUE1.0METAR187.02018-12-17 21:05:43q›Šþc)C5    3KNUC 172056Z 09005KT 10SM FEW015 FEW030 SCT200 17/11 A3017 RMK AO2 SLP213 T01720111 58030 $KNUC2018-12-17T20:56:00Z33.02-118.5717.211.190510.030.1712591021.3TRUETRUEVFR-3.0METAR55.02018-12-17 21:05:43n›Šþb);5    3KMHS 172056Z AUTO 11003KT 10SM BKN035 OVC045 05/02 A3012 RMK AO2 SLP226 T00500022 58005KMHS2018-12-17T20:56:00Z41.32-122.325.02.2110310.030.1210631022.6TRUETRUEVFR-0.5METAR1078.02018-12-17 21:05:43 j&9EjU›Šþi)#5     3PFWS 172056Z AUTO 00000KT 10SM CLR M21/M23 RMK AO2 SLPNO T12111228 FZRANO $PFWS2018-12-17T20:56:00Z58.7-157.0-21.1-22.80010.0TRUETRUETRUETRUEVFRMETAR49.02018-12-17 21:05:43n›Šþh)?5    3KNMM 172056Z 31006KT 10SM SCT300 18/07 A3018 RMK AO2 SLP231 T01830072 56020 VISNO SOUTH $KNMM2018-12-17T20:56:00Z32.53-88.5718.37.2310610.030.1801191023.1TRUETRUEVFR-2.0METAR97.02018-12-17 21:05:43g›Šþg)15     3KGNR 172056Z AUTO VRB05KT M02/M04 A2939 RMK AO1 SLP970 P0001 60006 T10221039 56015KGNR2018-12-17T20:56:00Z45.47-69.55-2.2-3.90529.388779997.0TRUETRUE-1.50.010.06METAR427.02018-12-17 21:05:43T›Šþf)5    3KP60 172056Z AUTO VRB06KT 01/M07 A3007 RMK AO1 SLP215 T00111067 56011KP602018-12-17T20:56:00Z44.55-110.421.1-6.70630.0708661021.5TRUETRUE-1.1METAR2388.02018-12-17 21:05:43 Éåɂ›Šþl)i5       3PARY 172056Z AUTO 23003KT 9SM -SN OVC050 M20/M23 A2907 RMK AO2 SNB39 SLP875 P0000 60000 T12001233 53027 FZRANOPARY2018-12-17T20:56:00Z64.73-155.47-20.0-23.323039.029.069881987.5TRUETRUETRUE-SNVFR2.70.0050.005METAR199.02018-12-17 21:05:43‚›Šþk)u5     3PASH 172056Z AUTO 33023G32KT 10SM FEW014 M18/M21 A2943 RMK AO2 PK WND 33032/2047 SLP969 60000 T11831206 51002 FZRANOPASH2018-12-17T20:56:00Z66.27-166.08-18.3-20.6330233210.029.430119996.9TRUETRUETRUEVFR0.20.005METAR2.02018-12-17 21:05:43y›Šþj)M5     3PFNO 172056Z AUTO 00000KT 10SM BKN090 OVC110 M29/M32 A2922 RMK AO2 SLP897 T12941322 53003 FZRANOPFNO2018-12-17T20:56:00Z66.82-161.02-29.4-32.20010.029.220472989.7TRUETRUETRUEVFR0.3METAR17.02018-12-17 21:05:43 ýúøýu›Šþo)?5     3PAQH 172056Z AUTO 31010KT 10SM FEW110 M20/M22 A2939 RMK AO2 SLP954 T12001222 53021 FZRANOPAQH2018-12-17T20:56:00Z59.75-161.85-20.0-22.23101010.029.388779995.4TRUETRUETRUEVFR2.1METAR13.02018-12-17 21:05:43|›Šþn)S5       3PARC 172056Z AUTO 4SM -SN FEW029 BKN037 OVC075 A2896 RMK AO2 SNB52 SLPNO P0000 60000 51003 FZRANO $PARC2018-12-17T20:56:00Z68.12-145.584.028.96063TRUETRUETRUETRUE-SNMVFR0.30.0050.005METAR636.02018-12-17 21:05:43‚›Šþm)I5      3PARS 172056Z AUTO VRB03KT 10SM CLR M21/M22 A2931 RMK AO2 SLP931 60000 T12061222 51025 FZRANO $PARS2018-12-17T20:56:00Z61.77-161.32-20.6-22.20310.029.309055993.1TRUETRUETRUETRUEVFR2.50.005METAR16.02018-12-17 21:05:43 ¶÷Ķ‚›Šþr)i5      3PAPG 172056Z 18005KT 7SM -RA FEW007 SCT026 BKN040 06/03 A2924 RMK AO2 RAB24 SLP904 P0002 60002 T00610033 58012PAPG2018-12-17T20:56:00Z56.82-132.976.13.318057.029.241142990.4TRUE-RAVFR-1.20.020.02METAR15.02018-12-17 21:05:43‚-›Šþq)‚5       3PAPH 172056Z AUTO 32016KT 2SM -SN BR FEW013 BKN026 OVC033 M08/M11 A2924 RMK AO2 VIS 1/2V5 SLP906 P0000 60000 T10831106 51024 FZRANOPAPH2018-12-17T20:56:00Z56.95-158.62-8.3-10.6320162.029.241142990.6TRUETRUETRUE-SN BRIFR2.40.0050.005METAR29.02018-12-17 21:05:43‚›Šþp)a5     3PAPO 172056Z AUTO 36022KT 8SM FEW010 M22/M24 A2952 RMK AO2 PK WND 36026/2053 SLP995 T12221244 51004 FZRANOPAPO2018-12-17T20:56:00Z68.35-166.8-22.2-24.4360228.029.518702999.5TRUETRUETRUEVFR0.4METAR6.02018-12-17 21:05:43 ÔÈÎԁt›Šþu)?5     3PANW 172056Z AUTO 32005KT 10SM SCT043 M21/M24 A2922 RMK AO2 SLP913 T12111239 51022 FZRANOPANW2018-12-17T20:56:00Z59.45-157.37-21.1-23.9320510.029.220472991.3TRUETRUETRUEVFR2.2METAR92.02018-12-17 21:05:43t›Šþt)?5     3PAOO 172056Z AUTO 32009KT 10SM OVC044 M14/M17 A2944 RMK AO2 SLP980 T11391167 51022 FZRANOPAOO2018-12-17T20:56:00Z60.53-165.12-13.9-16.7320910.029.438976998.0TRUETRUETRUEVFR2.2METAR18.02018-12-17 21:05:43‚2›Šþs)‚%5      3PAOU 172056Z AUTO 34023G31KT 1/2SM SN FEW010 BKN026 OVC045 M06/M09 A2936 RMK AO2 PK WND 34034/2016 SLP943 P0000 60000 T10611089 51018 FZRANOPAOU2018-12-17T20:56:00Z56.0-161.17-6.1-8.934023310.529.359253994.3TRUETRUETRUESNLIFR1.80.0050.005METAR4.02018-12-17 21:05:43 ‚È¡‚‚›Šþx)q5      3PAMK 172056Z AUTO 28010KT 10SM BKN020 OVC110 M18/M21 A2932 RMK AO2 SNE35 SLP932 P0000 60000 T11831211 51014 FZRANOPAMK2018-12-17T20:56:00Z63.48-162.12-18.3-21.12801010.029.320866993.2TRUETRUETRUEMVFR1.40.0050.005METAR28.02018-12-17 21:05:43‚!›Šþw)‚5     3PAMM 172056Z AUTO 12013G22KT 10SM -RA BKN027 BKN034 OVC047 09/04 A2925 RMK AO2 PK WND 14032/1959 SLP895 P0001 60007 T00890039 56018PAMM2018-12-17T20:56:00Z55.13-131.588.93.9120132210.029.25989.5TRUETRUE-RAMVFR-1.80.010.07METAR1.02018-12-17 21:05:43‚2›Šþv)‚5      3PAMY 172056Z AUTO 33025G31KT 1SM -SN BR OVC035 M09/M12 A2945 RMK AO2 PK WND 32031/2052 SLP976 P0000 60000 T10941117 51021 FZRANO $PAMY2018-12-17T20:56:00Z60.37-166.27-9.4-11.733025311.029.450787997.6TRUETRUETRUETRUE-SN BRIFR2.10.0050.005METAR13.02018-12-17 21:05:43 òíöò~›Šþ{)K5      3PAKI 172056Z AUTO 34007KT 10SM BKN042 M17/M19 A2944 RMK AO2 SLP970 60000 T11671189 53022 FZRANOPAKI2018-12-17T20:56:00Z59.93-164.03-16.7-18.9340710.029.438976997.0TRUETRUETRUEVFR2.20.005METAR4.02018-12-17 21:05:43q›Šþz)=5     3PAMB 172056Z AUTO 00000KT 10SM CLR M18/M21 A2925 RMK AO2 SLP913 T11831206 51021 FZRANO $PAMB2018-12-17T20:56:00Z58.98-159.05-18.3-20.60010.029.25991.3TRUETRUETRUETRUEVFR2.1METAR16.02018-12-17 21:05:43‚ ›Šþy)]5       3PAMH 172056Z AUTO 00000KT 9SM -SN OVC085 M21/M22 A2909 RMK AO2 SLP613 P0000 60000 T12061222 53030 FZRANOPAMH2018-12-17T20:56:00Z63.9-152.32-20.6-22.2009.029.090551961.3TRUETRUETRUE-SNVFR3.00.0050.005METAR214.02018-12-17 21:05:43 'ú'f›Šþ~)-5    3KPRX 172056Z AUTO 06008KT 10SM SCT009 12/11 A3017 RMK AO2 SLP236 T01170106 56015KPRX2018-12-17T20:56:00Z33.62-95.4511.710.660810.030.1712591023.6TRUETRUEVFR-1.5METAR167.02018-12-17 21:05:43a›Šþ})'5    3KPTN 172056Z AUTO 07005KT 10SM CLR 15/10 A3022 RMK AO2 SLP233 T01500100 56028KPTN2018-12-17T20:56:00Z29.72-91.3215.010.070510.030.2214571023.3TRUETRUEVFR-2.8METAR3.02018-12-17 21:05:43‚›Šþ|)U5     3KPTV 172056Z AUTO 29006KT 10SM SCT014 BKN047 OVC055 15/12 A3019 RMK AO2 SLP236 60003 T01500122 58015KPTV2018-12-17T20:56:00Z36.02-119.0715.012.2290610.030.1889761023.6TRUETRUEVFR-1.50.03METAR135.02018-12-17 21:05:43 MÛ/M\›Šÿ)5    3KOWB 172056Z 30009KT 10SM CLR 11/M01 A3019 RMK AO2 SLP237 T01111006 55008KOWB2018-12-17T20:56:00Z37.72-87.1711.1-0.6300910.030.1889761023.7TRUEVFR-0.8METAR124.02018-12-17 21:05:43`›Šÿ)'5    3KPIB 172056Z AUTO 00000KT 10SM CLR 18/09 A3020 RMK AO2 SLP225 T01780089 56021KPIB2018-12-17T20:56:00Z31.47-89.3217.88.90010.030.2007871022.5TRUETRUEVFR-2.1METAR91.02018-12-17 21:05:43@›Šÿ({5    3KPNM 172056Z AUTO 08003KT 10SM CLR 02/M09 A3021 RMK AO2KPNM2018-12-17T20:56:00Z45.57-93.62.0-9.080310.030.209646TRUETRUEVFRMETAR298.02018-12-17 21:05:43‚›Šþ)y5       3KPQI 172056Z AUTO 36006KT 1 1/4SM -SN BR FEW007 OVC014 M02/M03 A2947 RMK AO2 SLP023 P0002 60005 T10171028 56019 FZRANOKPQI2018-12-17T20:56:00Z46.67-68.03-1.7-2.836061.2529.4714571002.3TRUETRUETRUE-SN BRIFR-1.90.020.05METAR146.02018-12-17 21:05:43 S,=Sd›Šÿ))5    3KOKK 172056Z AUTO 31010KT 10SM CLR 05/M02 A3016 RMK AO2 SLP221 T00501017 53001KOKK2018-12-17T20:56:00Z40.53-86.075.0-1.73101010.030.1594491022.1TRUETRUEVFR0.1METAR253.02018-12-17 21:05:43i›Šÿ)-5   3KOLU 172056Z AUTO 18014G18KT 10SM CLR 10/02 A3009 RMK AO2 SLP203 T01000017 56027KOLU2018-12-17T20:56:00Z41.45-97.3210.01.7180141810.030.0885831020.3TRUETRUEVFR-2.7METAR440.02018-12-17 21:05:43e›Šÿ))5    3KOTG 172056Z AUTO 14012KT 10SM CLR 03/M02 A3007 RMK AO2 SLP203 T00331017 56027KOTG2018-12-17T20:56:00Z43.63-95.573.3-1.71401210.030.0708661020.3TRUETRUEVFR-2.7METAR480.02018-12-17 21:05:43c›Šÿ)15    3KOTH 172056Z 17006KT 10SM BKN042 OVC095 11/08 A3001 RMK AO2 SLP162 T01060078 58013KOTH2018-12-17T20:56:00Z43.42-124.2510.67.8170610.030.0088581016.2TRUEVFR-1.3METAR4.02018-12-17 21:05:43 s8^se›Šÿ ))5    3KMVN 172056Z AUTO 30005KT 10SM CLR 10/M03 A3021 RMK AO2 SLP233 T01001033 56010KMVN2018-12-17T20:56:00Z38.32-88.8710.0-3.3300510.030.2096461023.3TRUETRUEVFR-1.0METAR146.02018-12-17 21:05:43T›Šÿ )5    3KMYR 172056Z 26010KT 10SM CLR 17/06 A3000 RMK AO2 SLP160 T01720061 55014KMYR2018-12-17T20:56:00Z33.67-78.9217.26.12601010.030.01016.0TRUEVFR-1.4METAR8.02018-12-17 21:05:43Y›Šÿ)5    3KOAJ 172056Z 26007KT 10SM CLR 17/04 A2994 RMK AO2 SLP142 T01670039 56007KOAJ2018-12-17T20:56:00Z34.82-77.6216.73.9260710.029.9409451014.2TRUEVFR-0.7METAR29.02018-12-17 21:05:43c›Šÿ)'5    3KOCH 172056Z AUTO 23007KT 10SM CLR 17/07 A3018 RMK AO2 SLP223 T01670072 55017KOCH2018-12-17T20:56:00Z31.57-94.7216.77.2230710.030.1801191022.3TRUETRUEVFR-1.7METAR108.02018-12-17 21:05:43 %  "%w›Šÿ)A5     3KLCI 172056Z AUTO 24007KT 10SM OVC035 02/M01 A2950 RMK AO2 SLP008 T00171006 53001 FZRANO $KLCI2018-12-17T20:56:00Z43.57-71.421.7-0.6240710.029.5009841000.8TRUETRUETRUETRUEVFR0.1METAR166.02018-12-17 21:05:43x›Šÿ )G5      3KLEW 172056Z AUTO 30005KT 10SM OVC055 02/01 A2947 RMK AO2 SLP995 60001 T00170006 56004 FZRANOKLEW2018-12-17T20:56:00Z44.03-70.271.70.6300510.029.471457999.5TRUETRUETRUEVFR-0.40.01METAR88.02018-12-17 21:05:43f›Šÿ )-5    3KLGD 172056Z AUTO 17018KT 10SM BKN049 05/02 A3003 RMK AO2 SLP305 T00500022 58007KLGD2018-12-17T20:56:00Z45.27-118.05.02.21701810.030.0295281030.5TRUETRUEVFR-0.7METAR827.02018-12-17 21:05:43n›Šÿ )75     3KMTW 172056Z AUTO 31006KT 10SM CLR 02/M07 A3019 RMK AO2 SLP248 T00171072 53004 FZRANOKMTW2018-12-17T20:56:00Z44.12-87.671.7-7.2310610.030.1889761024.8TRUETRUETRUEVFR0.4METAR198.02018-12-17 21:05:43 V)6VZ›Šÿ)5    3KJXN 172056Z 30009KT 10SM CLR 04/M04 A3009 RMK AO2 SLP200 T00391039 53009KJXN2018-12-17T20:56:00Z42.27-84.473.9-3.9300910.030.0885831020.0TRUEVFR0.9METAR305.02018-12-17 21:05:43m›Šÿ)A5    3KLAS 172056Z 06005KT 10SM FEW090 BKN120 BKN150 14/M04 A3008 RMK AO2 SLP183 T01391039 56020KLAS2018-12-17T20:56:00Z36.07-115.1713.9-3.960510.030.0797251018.3TRUEVFR-2.0METAR636.02018-12-17 21:05:43d›Šÿ)-5    3KKLS 172056Z AUTO 16009KT 10SM BKN065 11/07 A2994 RMK AO2 SLP144 T01110067 58020KKLS2018-12-17T20:56:00Z46.12-122.911.16.7160910.029.9409451014.4TRUETRUEVFR-2.0METAR5.02018-12-17 21:05:43g›Šÿ))5    3KLBL 172056Z AUTO 17014KT 10SM CLR 14/M06 A3010 RMK AO2 SLP198 T01441061 56034KLBL2018-12-17T20:56:00Z37.03-100.9714.4-6.11701410.030.1003931019.8TRUETRUEVFR-3.4METAR879.02018-12-17 21:05:43 t2Xt^›Šÿ)%5    3KBZN 172056Z 00000KT 10SM OVC085 07/M03 A2991 RMK AO2 SLP147 T00721033 56014KBZN2018-12-17T20:56:00Z45.78-111.177.2-3.30010.029.9114171014.7TRUEVFR-1.4METAR1361.02018-12-17 21:05:43T›Šÿ)5    3KCAE 172056Z 32006KT 10SM CLR 18/05 A3000 RMK AO2 SLP159 T01830050 55010KCAE2018-12-17T20:56:00Z33.93-81.1218.35.0320610.030.01015.9TRUEVFR-1.0METAR70.02018-12-17 21:05:43b›Šÿ)15    3KJAX 172056Z 27006KT 10SM FEW150 BKN200 17/09 A3006 RMK AO2 SLP179 T01670094 56019KJAX2018-12-17T20:56:00Z30.5-81.6816.79.4270610.030.0590551017.9TRUEVFR-1.9METAR10.02018-12-17 21:05:43`›Šÿ))5    3KJMS 172056Z AUTO 12011KT 10SM CLR 01/M06 A3000 RMK AO2 SLP181 T00111056 58024KJMS2018-12-17T20:56:00Z46.93-98.671.1-5.61201110.030.01018.1TRUETRUEVFR-2.4METAR455.02018-12-17 21:05:43 )%)v›Šÿ)M5     3KBED 172056Z 28007KT 10SM SCT020 BKN025 BKN050 04/M01 A2952 RMK AO2 SLP011 60000 T00441011 55006KBED2018-12-17T20:56:00Z42.47-71.34.4-1.1280710.029.5187021001.1TRUEMVFR-0.60.005METAR50.02018-12-17 21:05:43g›Šÿ))5    3KBIH 172056Z AUTO 35005KT 10SM CLR 15/M03 A3007 RMK AO2 SLP170 T01501028 56014KBIH2018-12-17T20:56:00Z37.37-118.3515.0-2.8350510.030.0708661017.0TRUETRUEVFR-1.4METAR1253.02018-12-17 21:05:43h›Šÿ)/5    3KBJJ 172056Z AUTO 32010KT 10SM OVC029 02/M03 A3006 RMK AO2 SLP191 T00171028 53016KBJJ2018-12-17T20:56:00Z40.87-81.881.7-2.83201010.030.0590551019.1TRUETRUEMVFR1.6METAR343.02018-12-17 21:05:43  Ýó c›Šÿ))5    3KLNR 172056Z AUTO 29004KT 10SM CLR 04/M08 A3022 RMK AO2 SLP237 T00441078 50000KLNR2018-12-17T20:56:00Z43.22-90.184.4-7.8290410.030.2214571023.7TRUETRUEVFR0.0METAR217.02018-12-17 21:05:43d›Šÿ))5    3KAND 172056Z AUTO 23004KT 10SM CLR 19/M01 A3001 RMK AO2 SLP160 T01891006 56013KAND2018-12-17T20:56:00Z34.5-82.7218.9-0.6230410.030.0088581016.0TRUETRUEVFR-1.3METAR239.02018-12-17 21:05:43‚›Šÿ)}5      3KART 172056Z AUTO 30008KT 4SM -SN BR BKN020 OVC026 02/M01 A2975 RMK AO2 UPB37E50SNB50 SLP077 P0000 60000 T00171006 53014KART2018-12-17T20:56:00Z43.98-76.031.7-0.630084.029.7490161007.7TRUETRUE-SN BRMVFR1.40.0050.005METAR100.02018-12-17 21:05:43 WÿW?›Šÿ (5   3KFBG 172056Z 30009KT 10SM CLR 18/00 A2995 RMK SLPNO 55004KFBG2018-12-17T20:56:00Z35.12-78.9218.00.0300910.029.949802VFR-0.4METAR74.02018-12-17 21:05:43u›Šÿ)=5      3OTBH 172056Z 00000KT 9000 BR CLR 17/12 A3017 RMK AO2A SLP218 T01730124 402530147 55003 $OTBH2018-12-17T20:56:00Z25.1251.3217.312.4005.5930.1712591021.8TRUETRUEBRVFR-0.325.314.7METAR40.02018-12-17 21:05:43b›Šÿ)#5    3KMGE 172056Z 29012KT 10SM CLR 15/00 A3010 RMK AO2A SLP191 T01530003 56013 $KMGE2018-12-17T20:56:00Z33.92-84.5215.30.32901210.030.1003931019.1TRUETRUEVFR-1.3METAR326.02018-12-17 21:05:43{›Šÿ)]5   3KHPN 172056Z 30018G33KT 10SM BKN045 BKN055 05/M03 A2966 RMK AO2 PK WND 28033/2050 SLP049 T00501033 53005KHPN2018-12-17T20:56:00Z41.07-73.75.0-3.3300183310.029.6604331004.9TRUEVFR0.5METAR121.02018-12-17 21:05:43 ? ?Z›Šÿ#)5    3KFSD 172056Z 17013KT 10SM CLR 08/00 A3001 RMK AO2 SLP175 T00830000 56028KFSD2018-12-17T20:56:00Z43.58-96.758.30.01701310.030.0088581017.5TRUEVFR-2.8METAR436.02018-12-17 21:05:43h›Šÿ")?5    3KGON 172056Z 27007KT 10SM FEW039 BKN050 OVC060 06/00 A2960 RMK AO2 SLP023 T00560000 55001KGON2018-12-17T20:56:00Z41.33-72.055.60.0270710.029.6013771002.3TRUEVFR-0.1METAR3.02018-12-17 21:05:43m›Šÿ!)95    3KEND 172056Z 15006KT 10SM SCT150 BKN150 12/M02 A3019 RMK AO2A SLP231 T01201019 57028 $KEND2018-12-17T20:56:00Z36.32-97.9212.0-1.9150610.030.1889761023.1TRUETRUEVFR-2.8METAR398.02018-12-17 21:05:43 ×·Ãׁf›Šÿ&))5    3KEED 172056Z AUTO 11005KT 10SM CLR 17/M04 A3010 RMK AO2 SLP182 T01671039 58029KEED2018-12-17T20:56:00Z34.77-114.6216.7-3.9110510.030.1003931018.2TRUETRUEVFR-2.9METAR302.02018-12-17 21:05:43n›Šÿ%);5    3KEKO 172056Z AUTO 20008KT 10SM FEW075 SCT120 08/00 A3009 RMK AO2 SLP193 T00780000 56011KEKO2018-12-17T20:56:00Z40.82-115.787.80.0200810.030.0885831019.3TRUETRUEVFR-1.1METAR1547.02018-12-17 21:05:43‚C›Šÿ$)‚E5     3KELZ 172056Z AUTO 31016G27KT 3SM -SN BR BKN014 OVC022 M02/M03 A2982 RMK AO2 PK WND 31027/2056 UPB00E05B23E30SNB05E23B30 SLP121 P0000 60000 T10171028 53011 $KELZ2018-12-17T20:56:00Z42.1-77.98-1.7-2.831016273.029.8198811012.1TRUETRUETRUE-SN BRMVFR1.10.005SPECI646.02018-12-17 21:05:43 P)EPo›Šÿ*)I5    3KCXY 172056Z 30010KT 10SM OVC049 07/M04 A2985 RMK AO2 PK WND 28026/2010 SLP110 T00721039 53014KCXY2018-12-17T20:56:00Z40.22-76.857.2-3.93001010.029.849411011.0TRUEVFR1.4METAR106.02018-12-17 21:05:43^›Šÿ))%5    3KDAY 172056Z 30010KT 10SM BKN027 06/M01 A3012 RMK AO2 SLP206 T00561011 53003KDAY2018-12-17T20:56:00Z39.9-84.225.6-1.13001010.030.1210631020.6TRUEMVFR0.3METAR305.02018-12-17 21:05:43c›Šÿ())5    3KDIK 172056Z AUTO 19005KT 10SM CLR 07/M03 A2983 RMK AO2 SLP121 T00671033 56023KDIK2018-12-17T20:56:00Z46.8-102.86.7-3.3190510.029.8287411012.1TRUETRUEVFR-2.3METAR788.02018-12-17 21:05:43h›Šÿ')-5    3KDUG 172056Z AUTO 20006KT 10SM BKN033 14/05 A3016 RMK AO2 SLP183 T01390050 56027KDUG2018-12-17T20:56:00Z31.47-109.5813.95.0200610.030.1594491018.3TRUETRUEVFR-2.7METAR1265.02018-12-17 21:05:43 [#1G[f›Šÿ.))5    3KTPH 172056Z AUTO 25005KT 10SM CLR 09/M03 A3011 RMK AO2 SLP180 T00941033 58011KTPH2018-12-17T20:56:00Z38.05-117.089.4-3.3250510.030.1092531018.0TRUETRUEVFR-1.1METAR1652.02018-12-17 21:05:43d›Šÿ-)-5    3KUKI 172056Z AUTO 00000KT 10SM SCT010 11/07 A3021 RMK AO2 SLP227 T01060072 58004KUKI2018-12-17T20:56:00Z39.12-123.210.67.20010.030.2096461022.7TRUETRUEVFR-0.4METAR187.02018-12-17 21:05:43l›Šÿ,)95    3KCEC 172056Z AUTO 17013KT 7SM FEW065 BKN120 12/08 A3011 RMK AO2 SLP197 T01170078 58004KCEC2018-12-17T20:56:00Z41.77-124.2211.77.8170137.030.1092531019.7TRUETRUEVFR-0.4SPECI17.02018-12-17 21:05:43W›Šÿ+)5    3KCHS 172056Z 25005KT 10SM CLR 16/06 A3002 RMK AO2 SLP166 T01610061 55016KCHS2018-12-17T20:56:00Z32.9-80.0316.16.1250510.030.020671016.6TRUEVFR-1.6METAR13.02018-12-17 21:05:43 u CZu_›Šÿ2)%5    3KSDF 172056Z 26006KT 10SM FEW250 12/M02 A3014 RMK AO2 SLP208 T01221017 55007KSDF2018-12-17T20:56:00Z38.18-85.7312.2-1.7260610.030.1387791020.8TRUEVFR-0.7METAR146.02018-12-17 21:05:43c›Šÿ1)15    3KSFO 172056Z 08004KT 10SM SCT011 BKN160 13/10 A3020 RMK AO2 SLP225 T01330100 58005KSFO2018-12-17T20:56:00Z37.62-122.3713.310.080410.030.2007871022.5TRUEVFR-0.5METAR3.02018-12-17 21:05:43W›Šÿ0)5    3KSHV 172056Z VRB04KT 10SM CLR 15/07 A3016 RMK AO2 SLP212 T01500072 56022KSHV2018-12-17T20:56:00Z32.45-93.8315.07.20410.030.1594491021.2TRUEVFR-2.2METAR83.02018-12-17 21:05:43Z›Šÿ/)#5    3KSLE 172056Z 19008KT 10SM FEW060 11/06 A2998 RMK AO2 SLP151 T01060061 56015KSLE2018-12-17T20:56:00Z44.9-123.010.66.1190810.029.979331015.1TRUEVFR-1.5METAR59.02018-12-17 21:05:43 h:Mh_›Šÿ6)#5    3KWJF 172056Z 24018KT 10SM BKN038 15/07 A3012 RMK AO2 SLP201 T01500072 58024KWJF2018-12-17T20:56:00Z34.72-118.2215.07.22401810.030.1210631020.1TRUEVFR-2.4METAR715.02018-12-17 21:05:43g›Šÿ5)A5    3TJSJ 172056Z 15007KT 120V190 10SM FEW035 SCT100 29/19 A3000 RMK AO2 SLP157 T02890194 55005TJSJ2018-12-17T20:56:00Z18.43-66.0228.919.4150710.030.01015.7TRUEVFR-0.5METAR21.02018-12-17 21:05:43]›Šÿ4)5    3KRDM 172056Z 20010KT 10SM CLR 09/M01 A2997 RMK AO2 SLP153 T00941006 56019KRDM2018-12-17T20:56:00Z44.25-121.159.4-0.62001010.029.9704721015.3TRUEVFR-1.9METAR938.02018-12-17 21:05:43]›Šÿ3)#5    3KSBP 172056Z 26003KT 10SM SCT035 17/08 A3016 RMK AO2 SLP212 T01720083 58016KSBP2018-12-17T20:56:00Z35.23-120.6317.28.3260310.030.1594491021.2TRUEVFR-1.6METAR59.02018-12-17 21:05:43 ‘%;W‘@›Šÿ:({5    3KMZH 172056Z AUTO 00000KT 10SM CLR 00/M12 A3020 RMK AO2KMZH2018-12-17T20:56:00Z46.42-92.80.0-12.00010.030.200787TRUETRUEVFRMETAR328.02018-12-17 21:05:43^›Šÿ9)!5    3KNUQ 172056Z 01005KT 10SM CLR 16/08 A3021 RMK AO2 SLP233 T01560078 58007 $KNUQ2018-12-17T20:56:00Z37.4-122.0515.67.810510.030.2096461023.3TRUETRUEVFR-0.7SPECI12.02018-12-17 21:05:43d›Šÿ8)'5    3KOFK 172056Z AUTO 18011KT 10SM CLR 10/01 A3004 RMK AO2 SLP185 T01000011 56027KOFK2018-12-17T20:56:00Z41.98-97.4310.01.11801110.030.0413381018.5TRUETRUEVFR-2.7METAR470.02018-12-17 21:05:43U›Šÿ7)5    3KOGD 172056Z 32006KT 10SM BKN075 OVC090 04/M01 A3013 RMK AO2 T00441011 $KOGD2018-12-17T20:56:00Z41.2-112.024.4-1.1320610.030.129921TRUETRUEVFRMETAR1353.02018-12-17 21:05:43 c%Lcc›Šÿ>)'5    3KGRD 172056Z AUTO 26004KT 10SM CLR 18/03 A3003 RMK AO2 SLP169 T01780033 55008KGRD2018-12-17T20:56:00Z34.25-82.1517.83.3260410.030.0295281016.9TRUETRUEVFR-0.8METAR185.02018-12-17 21:05:43S›Šÿ=)5    3KLWS 172056Z 32004KT 8SM BKN075 07/05 A3002 RMK AO2 SLPNO T00720050 58006KLWS2018-12-17T20:56:00Z46.37-117.027.25.032048.030.02067TRUEVFR-0.6METAR438.02018-12-17 21:05:43s›Šÿ<)O5   3KMDT 172056Z 30021G28KT 10SM BKN050 07/M03 A2983 RMK AO2 PK WND 31033/2003 SLP103 T00671028 53015KMDT2018-12-17T20:56:00Z40.2-76.776.7-2.8300212810.029.8287411010.3TRUEVFR1.5METAR95.02018-12-17 21:05:43\›Šÿ;)#5    3KMOB 172056Z 29005KT 10SM BKN250 19/09 A3018 RMK AO2 SLP219 T01890089 56019KMOB2018-12-17T20:56:00Z30.68-88.2518.98.9290510.030.1801191021.9TRUEVFR-1.9METAR63.02018-12-17 21:05:43 ðëåðo›ŠÿA)=5    3KDIJ 172056Z AUTO 20008KT 10SM FEW047 OVC085 05/M05 A3008 RMK AO2 SLP213 T00501050 56004KDIJ2018-12-17T20:56:00Z43.75-111.15.0-5.0200810.030.0797251021.3TRUETRUEVFR-0.4METAR1899.02018-12-17 21:05:43‚›Šÿ@)U5    3KHYA 172056Z 30007G16KT 10SM SCT035 04/M01 A2950 RMK AO2 RAB14E27 SLP992 P0000 60000 T00441006 58005KHYA2018-12-17T20:56:00Z41.67-70.274.4-0.630071610.029.500984999.2TRUEVFR-0.50.0050.005METAR22.02018-12-17 21:05:43‚›Šÿ?)s5    3KHWV 172056Z AUTO 29015G24KT 10SM FEW050 BKN065 06/M02 A2965 RMK AO2 PK WND 31029/2019 SLP041 60000 T00611022 53004KHWV2018-12-17T20:56:00Z40.82-72.876.1-2.2290152410.029.6486231004.1TRUETRUEVFR0.40.005METAR21.02018-12-17 21:05:43 ¢RS¢+›ŠÿE(_5   3KISO 172056Z 25006KT 10SM CLR 16/02 A2994KISO2018-12-17T20:56:00Z35.32-77.6216.02.0250610.029.940945VFRMETAR29.02018-12-17 21:05:43y›ŠÿD)]5   3KISP 172056Z 30015G25KT 10SM FEW035 BKN060 07/M02 A2966 RMK AO2 PK WND 28031/2036 SLP043 T00671022 53005KISP2018-12-17T20:56:00Z40.8-73.16.7-2.2300152510.029.6604331004.3TRUEVFR0.5METAR43.02018-12-17 21:05:43<›ŠÿC(w5     3KABH 172056Z AUTO 20010KT A3001 RMK AO2 SLPNO 56020 $KABH2018-12-17T20:56:00Z38.75-104.32001030.008858TRUETRUETRUE-2.0METAR1840.02018-12-17 21:05:43f›ŠÿB)15    3ETIH 172056Z AUTO 00000KT 9999 OVC007 02/02 A3033 RMK AO2 SLP296 T00160016 52017 $ETIH2018-12-17T20:56:00Z49.2211.821.61.6006.2130.330711029.6TRUETRUETRUEIFR1.7METAR442.02018-12-17 21:05:43 ÔԂ&›ŠÿH)‚5     3ETEB 172056Z AUTO 23003KT 9999 BKN009 BKN015 OVC023 03/03 A3032 RMK AO2 CIG 009V016 BKN009 V SCT SLP303 P0000 60000 T00260026 52016 $ETEB2018-12-17T20:56:00Z49.3210.622.62.623036.2130.3188971030.3TRUETRUETRUEIFR1.60.0050.005METAR467.02018-12-17 21:05:43‚ ›ŠÿG)]5      3ETIC 172056Z AUTO 20003KT 9999 -RA OVC011 02/02 A3029 RMK AO2 RAB53 SLP281 P0000 60000 T00150015 52017 $ETIC2018-12-17T20:56:00Z49.711.931.51.520036.2130.289371028.1TRUETRUETRUE-RAMVFR1.70.0050.005METAR415.02018-12-17 21:05:43i›ŠÿF)/5    3KINW 172056Z AUTO 07004KT 10SM OVC120 12/M06 A3014 RMK AO2 SLP191 T01171056 56026KINW2018-12-17T20:56:00Z35.03-110.7211.7-5.670410.030.1387791019.1TRUETRUEVFR-2.6METAR1490.02018-12-17 21:05:43 Óâîӂ›ŠÿK){5     3ETIK 172056Z AUTO 23008KT 9999 FEW028 SCT036 OVC045 04/04 A3033 RMK AO2 RAB1957E09 SLP286 P0001 60002 T00420042 52015 $ETIK2018-12-17T20:56:00Z49.4710.374.24.223086.2130.330711028.6TRUETRUETRUEVFR1.50.010.02METAR325.02018-12-17 21:05:43n›ŠÿJ)95     3ETOU 172056Z AUTO 00000KT 5000 HZ OVC049 02/M02 A3032 RMK AO2 SLP277 T00231022 52017 $ETOU2018-12-17T20:56:00Z50.038.322.3-2.2003.1130.3188971027.7TRUETRUETRUEHZMVFR1.7METAR141.02018-12-17 21:05:43‚›ŠÿI){5   3KNUW 172056Z 15026G30KT 10SM FEW028 SCT080 BKN150 OVC250 12/06 A2987 RMK AO2 PK WND 14035/2031 SLP114 T01170056 58014 $KNUW2018-12-17T20:56:00Z48.35-122.6511.75.6150263010.029.8700791011.4TRUETRUEOVC25000VFR-1.4METAR14.02018-12-17 21:05:43 åÏÛåp›ŠÿN)55     3KDAA 172056Z AUTO 26004KT 10SM CLR 14/01 A2983 RMK AO2 SLP105 T01350005 55000 TSNO $KDAA2018-12-17T20:56:00Z38.72-77.1713.50.5260410.029.8287411010.5TRUETRUETRUETRUEVFR0.0METAR21.02018-12-17 21:05:43n›ŠÿM)C5    3KFSI 172056Z 00000KT 10SM BKN140 BKN170 11/02 A3020 RMK AO2A SLP230 T01080016 56021 RVRNO $KFSI2018-12-17T20:56:00Z34.65-98.410.81.60010.030.2007871023.0TRUETRUEVFR-2.1METAR362.02018-12-17 21:05:43‚+›ŠÿL)‚5      3KGTB 172056Z AUTO 31011KT 8SM -SN BKN016 OVC022 01/M02 A2972 RMK AO2 SNE22RAB22E42SNB42 CIG 015 RWY03 SLP071 P0000 60000 T00071017 53015KGTB2018-12-17T20:56:00Z44.07-75.720.7-1.7310118.029.7194881007.1TRUETRUE-SNMVFR1.50.0050.005METAR207.02018-12-17 21:05:43 ú÷d›ŠÿR))5    3KFTK 172056Z AUTO 27008KT 10SM CLR 11/M01 A3015 RMK AO2 SLP217 T01091015 55006KFTK2018-12-17T20:56:00Z37.88-85.9710.9-1.5270810.030.150591021.7TRUETRUEVFR-0.6METAR230.02018-12-17 21:05:43l›ŠÿQ)-5    3KMIB 172056Z AUTO 16010KT 10SM CLR 05/M04 A2986 RMK AO2 SLP138 T00461042 56030 $KMIB2018-12-17T20:56:00Z48.42-101.334.6-4.21601010.029.8612211013.8TRUETRUETRUEVFR-3.0METAR508.02018-12-17 21:05:43}›ŠÿP)Q5     3BGTL 172056Z AUTO 00000KT 9999 CLR M18/M21 A2955 RMK AO2 SLP998 T11811213 52012 TSNO CHINO RWY26 $BGTL2018-12-17T20:56:00Z76.53-68.7-18.1-21.3006.2129.551182999.8TRUETRUETRUETRUEVFR1.2METAR77.02018-12-17 21:05:43‚›ŠÿO)S5   3KADW 172056Z AUTO 30015G22KT 10SM CLR 12/M03 A2980 RMK AO2 PK WND 28032/03 SLP099 T01191031 55003 $KADW2018-12-17T20:56:00Z38.82-76.8711.9-3.1300152210.029.7992131009.9TRUETRUETRUEVFR-0.3METAR86.02018-12-17 21:05:43 G&5Gh›ŠÿV)+5    3KOFF 172056Z AUTO 15009KT 10SM CLR 08/05 A3014 RMK AO2 SLP221 T00780053 57032 $KOFF2018-12-17T20:56:00Z41.12-95.927.85.3150910.030.1387791022.1TRUETRUETRUEVFR-3.2METAR319.02018-12-17 21:05:43k›ŠÿU)-5    3KBLV 172056Z AUTO 30008KT 10SM CLR 11/M05 A3022 RMK AO2 SLP239 T01101051 55010 $KBLV2018-12-17T20:56:00Z38.53-89.8311.0-5.1300810.030.2214571023.9TRUETRUETRUEVFR-1.0METAR138.02018-12-17 21:05:43f›ŠÿT)+5    3KDOV 172056Z AUTO 27008KT 10SM CLR 10/01 A2978 RMK AO2 SLP088 T01030014 53001 $KDOV2018-12-17T20:56:00Z39.12-75.4710.31.4270810.029.7785431008.8TRUETRUETRUEVFR0.1SPECI9.02018-12-17 21:05:43h›ŠÿS)/5    3KFFO 172056Z AUTO 31010KT 10SM BKN029 05/M02 A3011 RMK AO2 SLP206 T00491018 53003KFFO2018-12-17T20:56:00Z39.82-84.034.9-1.83101010.030.1092531020.6TRUETRUEMVFR0.3SPECI251.02018-12-17 21:05:43 9 *9k›ŠÿZ)/5    3KRDR 172056Z AUTO 14008KT 10SM CLR M04/M09 A3011 RMK AO2 SLP219 T10391089 57025 $KRDR2018-12-17T20:56:00Z47.97-97.4-3.9-8.9140810.030.1092531021.9TRUETRUETRUEVFR-2.5METAR278.02018-12-17 21:05:43Z›ŠÿY)5    3KWRB 172056Z 30008KT 10SM CLR 20/02 A3006 RMK AO2A SLP182 T02010015 56017KWRB2018-12-17T20:56:00Z32.62-83.5820.11.5300810.030.0590551018.2TRUEVFR-1.7METAR90.02018-12-17 21:05:43p›ŠÿX)15     3PHHI 172056Z AUTO 10010KT 10SM BKN039 24/15 A3018 RMK AO2 SLP212 60000 T02440150 $PHHI2018-12-17T20:56:00Z21.48-158.0524.415.01001010.030.1801191021.2TRUETRUETRUEVFR0.005METAR255.02018-12-17 21:05:43z›ŠÿW)K5     3RODN 172056Z AUTO 02006KT 10SM BKN050 BKN060 16/07 A3019 RMK AO2 SLP231 T01570069 52003 PWINO $RODN2018-12-17T20:56:00Z26.35127.7715.76.920610.030.1889761023.1TRUETRUETRUETRUEVFR0.3METAR45.02018-12-17 21:05:43 i!9iJ›Šÿ^)5    3KMMT 172056Z AUTO 28006KT 10SM CLR 19/05 M RMK AO2 SLPNO T01900047 $KMMT2018-12-17T20:56:00Z33.92-80.7819.04.7280610.0TRUETRUETRUEVFRMETAR77.02018-12-17 21:05:43b›Šÿ])'5    3KHOP 172056Z AUTO 32006KT 10SM CLR 13/01 A3017 RMK AO2 SLP220 T01280008 55011KHOP2018-12-17T20:56:00Z36.67-87.512.80.8320610.030.1712591022.0TRUETRUEVFR-1.1METAR174.02018-12-17 21:05:43j›Šÿ\)-5    3KGUS 172056Z AUTO 30011KT 10SM CLR 05/M01 A3014 RMK AO2 SLP217 T00511009 53002 $KGUS2018-12-17T20:56:00Z40.63-86.155.1-0.93001110.030.1387791021.7TRUETRUETRUEVFR0.2METAR247.02018-12-17 21:05:43i›Šÿ[)15   3KMUI 172056Z 29008G20KT 10SM BKN050 06/M04 A2982 RMK AO2A SLP104 T00601039 53010 $KMUI2018-12-17T20:56:00Z40.42-76.576.0-3.929082010.029.8198811010.4TRUETRUEVFR1.0METAR149.02018-12-17 21:05:43 ˜$O_˜A›Šÿb({5    3KEOK 172055Z AUTO 00000KT 10SM CLR 10/M09 A3022 RMK AO2KEOK2018-12-17T20:55:00Z40.47-91.4210.0-9.00010.030.221457TRUETRUEVFRMETAR205.02018-12-17 21:05:43j›Šÿa)15     3RKSG 172056Z 13004KT 4SM BR FEW050 M03/M03 A3014 RMK AO2A SLP211 T10331033 56009 $RKSG2018-12-17T20:56:00Z36.97127.02-3.3-3.313044.030.1387791021.1TRUETRUEBRMVFR-0.9METAR16.02018-12-17 21:05:43O›Šÿ`)5    3KLRF 172056Z 00000KT 10SM CLR 16/M01 A3021 RMK AO2A SLPNO T01611006 $KLRF2018-12-17T20:56:00Z34.92-92.1516.1-0.60010.030.209646TRUETRUEVFRMETAR95.02018-12-17 21:05:43V›Šÿ_)5    3KLSF 172056Z 29006KT 10SM CLR 19/03 A3009 RMK AO2A SLP195 T01930034 $KLSF2018-12-17T20:56:00Z32.32-84.9719.33.4290610.030.0885831019.5TRUETRUEVFRMETAR71.02018-12-17 21:05:43 7t£Ý<›Šÿg({5     3EHGG 172055Z AUTO 21008KT 9999 FEW035 05/04 Q1020 NOSIGEHGG2018-12-17T20:55:00Z53.126.575.04.021086.2130.11811TRUETRUEVFRMETAR4.02018-12-17 21:05:43@›Šÿf({5     3EHBK 172055Z AUTO 20011KT 9999 BKN044 05/04 Q1024 NOSIGEHBK2018-12-17T20:55:00Z50.925.775.04.0200116.2130.236221TRUETRUEVFRMETAR116.02018-12-17 21:05:43K›Šÿe) 5    3KK88 172055Z AUTO 00000KT 5SM CLR 13/M03 A3023 RMK AO1 T01311029KK882018-12-17T20:55:00Z37.87-95.3813.1-2.9005.030.230314TRUETRUEMVFRMETAR309.02018-12-17 21:05:43=›Šÿd) 5   3EHAM 172055Z 17007KT 9999 FEW009 03/02 Q1022 BECMG 7000 BKN008EHAM2018-12-17T20:55:00Z52.324.783.02.017076.2130.177166VFRMETAR9.02018-12-17 21:05:43C›Šÿc)5   3KY51 172055Z AUTO 00000KT 10SM 02/M06 A3020 RMK AO1 T00191056KY512018-12-17T20:55:00Z43.58-90.91.9-5.60010.030.200787TRUETRUESPECI394.02018-12-17 21:05:43 È-h ÈR›Šÿk)5   3KCMR 172055Z AUTO 23009G18KT 10SM FEW075 SCT085 07/M03 A3018 RMK AO2KCMR2018-12-17T20:55:00Z35.3-112.27.0-3.023091810.030.180119TRUETRUEVFRMETAR2036.02018-12-17 21:05:43B›Šÿj({5    3KCNC 172055Z AUTO 19007KT 10SM CLR 09/M02 A3019 RMK AO2KCNC2018-12-17T20:55:00Z41.02-93.379.0-2.0190710.030.188976TRUETRUEVFRMETAR320.02018-12-17 21:05:43?›Šÿi(y5    3KCQW 172055Z AUTO 30003KT 10SM CLR 18/02 A2998 RMK AO2KCQW2018-12-17T20:55:00Z34.72-79.9518.02.0300310.029.97933TRUETRUEVFRMETAR73.02018-12-17 21:05:43M›Šÿh)5     3EHRD 172055Z AUTO 18008KT 9999 FEW008 BKN009 BKN010 06/05 Q1022 NOSIGEHRD2018-12-17T20:55:00Z51.954.456.05.018086.2130.177166TRUETRUEIFRMETAR-5.02018-12-17 21:05:43 Ã5[–ÁM›Šÿo)5    3KCFJ 172055Z AUTO 32006KT 10SM CLR 04/M02 A3017 RMK AO2 T00401017KCFJ2018-12-17T20:55:00Z39.98-86.924.0-1.7320610.030.171259TRUETRUEVFRMETAR244.02018-12-17 21:05:43?›Šÿn(y5    3KCIN 172055Z AUTO 18007KT 10SM CLR 04/01 A3015 RMK AO2KCIN2018-12-17T20:55:00Z42.03-94.774.01.0180710.030.15059TRUETRUEVFRMETAR375.02018-12-17 21:05:43T›Šÿm)5   3KCKZ 172055Z AUTO 29012G18KT 270V330 10SM OVC048 05/M03 A2978 RMK AO2KCKZ2018-12-17T20:55:00Z40.38-75.285.0-3.0290121810.029.778543TRUETRUEVFRMETAR173.02018-12-17 21:05:43E›Šÿl(5    3KCLW 172055Z AUTO 33008KT 10SM BKN020 15/10 A3011 RMK AO2KCLW2018-12-17T20:55:00Z27.98-82.7515.010.0330810.030.109253TRUETRUEMVFRMETAR22.02018-12-17 21:05:43 ªKƒ¬ª|›Šÿs)g5    3OAKN 172055Z 00000KT 9999 CLR 03/M10 A3029 RMK AO2A SLP239 WND DATA ESTMD Q1026 PA2964 DA2246 T00281100 57006OAKN2018-12-17T20:55:00Z31.565.832.8-10.0006.2130.289371023.9TRUEVFR-0.6METAR1010.02018-12-17 21:05:43Q›Šÿr)5    3KOZW 172055Z AUTO 30008KT 10SM OVC027 02/M03 A3008 RMK AO2 T00201034KOZW2018-12-17T20:55:00Z42.62-83.972.0-3.4300810.030.079725TRUETRUEMVFRMETAR293.02018-12-17 21:05:43B›Šÿq({5    3KCCY 172055Z AUTO 15004KT 10SM CLR 04/M04 A3021 RMK AO2KCCY2018-12-17T20:55:00Z43.07-92.624.0-4.0150410.030.209646TRUETRUEVFRMETAR343.02018-12-17 21:05:43/›Šÿp(o5   3KCDN 172055Z AUTO 30004KT CLR 18/05 A3000 RMK AO2KCDN2018-12-17T20:55:00Z34.28-80.5718.05.0300430.0TRUETRUEMETAR92.02018-12-17 21:05:43 No®åE›Šÿx(}5    3KRRT 172055Z AUTO 05005KT 10SM CLR M10/M12 A3017 RMK AO2KRRT2018-12-17T20:55:00Z48.93-95.33-10.0-12.050510.030.171259TRUETRUEVFRMETAR327.02018-12-17 21:05:43C›Šÿw(}5    3KROX 172055Z AUTO 09007KT 10SM CLR M06/M10 A3016 RMK AO2KROX2018-12-17T20:55:00Z48.85-95.7-6.0-10.090710.030.159449TRUETRUEVFRMETAR323.02018-12-17 21:05:43;›Šÿv(y5    3KCKI 172055Z AUTO 22005KT 10SM CLR 17/06 A3000 RMK AO2KCKI2018-12-17T20:55:00Z33.72-79.8517.06.0220510.030.0TRUETRUEVFRMETAR21.02018-12-17 21:05:43Y›Šÿu)!5   3KCLS 172055Z AUTO 19012G18KT 10SM SCT028 BKN034 OVC055 11/07 A2991 RMK AO2KCLS2018-12-17T20:55:00Z46.68-122.9811.07.0190121810.029.911417TRUETRUEVFRMETAR54.02018-12-17 21:05:43,›Šÿt(_5   3KCNW 172055Z 35006KT 10SM SKC 13/05 A3019KCNW2018-12-17T20:55:00Z31.63-97.0713.05.0350610.030.188976VFRMETAR156.02018-12-17 21:05:43 Ñ3eÑF›Šÿ|)5    3KMGC 172055Z AUTO 35009KT 10SM BKN022 02/M03 A3020 RMK AO2KMGC2018-12-17T20:55:00Z41.7-86.822.0-3.0350910.030.200787TRUETRUEMVFRMETAR200.02018-12-17 21:05:43B›Šÿ{({5    3KSAZ 172055Z AUTO 12005KT 10SM CLR 01/M12 A3016 RMK AO2KSAZ2018-12-17T20:55:00Z46.37-94.81.0-12.0120510.030.159449TRUETRUEVFRMETAR392.02018-12-17 21:05:43H›Šÿz)5     3KMBO 172055Z AUTO 00000KT 10SM CLR 17/08 A3018 RMK AO2 PWINOKMBO2018-12-17T20:55:00Z32.43-90.117.08.00010.030.180119TRUETRUETRUEVFRMETAR99.02018-12-17 21:05:43G›Šÿy)5    3KPHN 172055Z AUTO 31005KT 10SM OVC029 01/M04 A3008 RMK AO2KPHN2018-12-17T20:55:00Z42.92-82.521.0-4.0310510.030.079725TRUETRUEMVFRMETAR198.02018-12-17 21:05:43Y8(8@HPX`hpx€ˆ˜ ¨°¸ÀÈÐØàèðø (08@HPX`hpx€ˆ˜ ¨°¸ÀÈÐØàèðø (08@HPX`hpx€ˆ˜ ¨°¸ÀÈÐØàèðø ¨°¸ÀÈÐØàèðøˊÿ ϛŠÿ#ЛŠÿ&ћŠÿ*қŠÿ.ӛŠÿ2ԛŠÿ6՛Šÿ:֛Šÿ>כŠÿA؛ŠÿEٛŠÿHˊÿ ϛŠÿ#ЛŠÿ&ћŠÿ*қŠÿ.ӛŠÿ2ԛŠÿ6՛Šÿ:֛Šÿ>כŠÿA؛ŠÿEٛŠÿHڛŠÿKۛŠÿNܛŠÿRݛŠÿVޛŠÿZߛŠÿ^à›Šÿbᛊÿg⛊ÿk㛊ÿo䛊ÿs囊ÿx曊ÿ|蛋€é›‹€ꛋ€ 뛋€ 웋€훋€€€𛋀!ñ›‹€%ò›‹€)󛋀-ô›‹€1õ›‹€5ö›‹€9÷›‹€=ø›‹€Aù›‹€Eú›‹€Iû›‹€Mü›‹€Rý›‹€Vþ›‹€Zÿ›‹€^›‹€b›‹€f›‹€j›‹€n›‹€r›‹€v›‹€z›‹€~›‹ ›‹ ›‹  ›‹ ›‹ ›‹›‹›‹›‹"›‹&›‹+›‹/›‹3›‹7›‹;›‹?›‹C›‹G›‹K›‹O›‹S›‹W›‹[›‹_ ›‹c!›‹g"›‹k#›‹o$›‹s%›‹x&›‹|'›‹‚ :OfS›‹€)5   3KCNB 172055Z AUTO 12012G17KT 10SM CLR 04/M02 A3008 RMK AO2 T00351020KCNB2018-12-17T20:55:00Z44.73-96.273.5-2.0120121710.030.079725TRUETRUEVFRMETAR364.02018-12-17 21:05:43c›Šÿ)'5    3KCNK 172055Z AUTO 18012KT 10SM CLR 12/00 A3015 RMK AO2 SLP216 T01170000 56027KCNK2018-12-17T20:55:00Z39.55-97.6511.70.01801210.030.150591021.6TRUETRUEVFR-2.7METAR447.02018-12-17 21:05:43e›Šÿ~)15    3KCMA 172055Z 27005KT 10SM BKN015 OVC021 18/13 A3014 RMK AO2 SLP215 T01780128 58026KCMA2018-12-17T20:55:00Z34.22-119.117.812.8270510.030.1387791021.5TRUEMVFR-2.6METAR23.02018-12-17 21:05:43@›Šÿ}(y5    3KMKS 172055Z AUTO 23007KT 10SM CLR 17/07 A3001 RMK AO2KMKS2018-12-17T20:55:00Z33.18-80.0317.07.0230710.030.008858TRUETRUEVFRMETAR23.02018-12-17 21:05:43 9p«âG›‹€)5    3KGEV 172055Z AUTO 09005KT 10SM CLR 08/M04 A3000 RMK AO2 T00781040KGEV2018-12-17T20:55:00Z36.43-81.427.8-4.090510.030.0TRUETRUEVFRSPECI969.02018-12-17 21:05:43C›‹€({5    3KGPH 172055Z AUTO 12003KT 10SM CLR 11/M03 A3023 RMK AO2KGPH2018-12-17T20:55:00Z39.33-94.3211.0-3.0120310.030.230314TRUETRUEVFRSPECI235.02018-12-17 21:05:43?›‹€(y5    3K2J9 172055Z AUTO 33005KT 10SM CLR 16/06 A3013 RMK AO2K2J92018-12-17T20:55:00Z30.6-84.5516.06.0330510.030.129921TRUETRUEVFRMETAR69.02018-12-17 21:05:43C›‹€(}5    3KCQM 172055Z AUTO 00000KT 10SM CLR M04/M13 A3020 RMK AO2KCQM2018-12-17T20:55:00Z47.82-92.68-4.0-13.00010.030.200787TRUETRUEVFRMETAR404.02018-12-17 21:05:43A›‹€(}5    3KCOQ 172055Z AUTO 00000KT 10SM CLR M01/M13 A3020 RMK AO2KCOQ2018-12-17T20:55:00Z46.7-92.5-1.0-13.00010.030.200787TRUETRUEVFRMETAR390.02018-12-17 21:05:43 Ï/j¤ÏO›‹€ )5    3KCWC 172055Z AUTO 36006KT 10SM BKN120 10/02 A3022 RMK AO2 T01000022KCWC2018-12-17T20:55:00Z33.85-98.4810.02.2360610.030.221457TRUETRUEVFRMETAR305.02018-12-17 21:05:43@›‹€(y5    3KMAO 172055Z AUTO 26010KT 10SM CLR 17/03 A2998 RMK AO2KMAO2018-12-17T20:55:00Z34.18-79.3317.03.02601010.029.97933TRUETRUEVFRSPECI28.02018-12-17 21:05:43?›‹€({5    3KMHL 172055Z AUTO 00000KT 10SM CLR 10/M02 A3025 RMK AO2KMHL2018-12-17T20:55:00Z39.1-93.210.0-2.00010.030.250984TRUETRUEVFRSPECI237.02018-12-17 21:05:43K›‹€)5    3KIIB 172055Z AUTO 00000KT 10SM CLR 07/M05 A3022 RMK AO2 T00661053KIIB2018-12-17T20:55:00Z42.45-91.956.6-5.30010.030.221457TRUETRUEVFRMETAR298.02018-12-17 21:05:43 Ó:s˜Ó?›‹€ (y5    3KGGE 172055Z AUTO 25007KT 10SM CLR 16/06 A3002 RMK AO2KGGE2018-12-17T20:55:00Z33.32-79.3216.06.0250710.030.02067TRUETRUEVFRMETAR12.02018-12-17 21:05:43U›‹€ )5     3KUNU 172055Z AUTO 31005KT 10SM CLR 01/M08 A3020 RMK AO2 T00111076 TSNOKUNU2018-12-17T20:55:00Z43.42-88.71.1-7.6310510.030.200787TRUETRUETRUEVFRSPECI285.02018-12-17 21:05:43A›‹€ (5    3KSIF 172055Z AUTO 10SM CLR 16/M02 A2995 RMK AO2 T01551023KSIF2018-12-17T20:55:00Z36.43-79.8515.5-2.310.029.949802TRUETRUEVFRSPECI211.02018-12-17 21:05:43@›‹€ ({5    3KRCM 172055Z AUTO 00000KT 10SM CLR 11/M03 A3024 RMK AO2KRCM2018-12-17T20:55:00Z38.78-93.811.0-3.00010.030.239174TRUETRUEVFRSPECI244.02018-12-17 21:05:43 »1`Ž»M›‹€)5    3KIFA 172055Z AUTO 15003KT 10SM CLR 07/M02 A3021 RMK AO2 T00681017KIFA2018-12-17T20:55:00Z42.47-93.276.8-1.7150310.030.209646TRUETRUEVFRMETAR347.02018-12-17 21:05:43L›‹€) 5    3KJSO 172055Z AUTO 26004KT 10SM CLR 13/07 A3019 RMK AO2 T01400076KJSO2018-12-17T20:55:00Z31.87-95.2214.07.6260410.030.188976TRUETRUEVFRMETAR206.02018-12-17 21:05:43K›‹€) 5    3KLUL 172055Z AUTO 23004KT 10SM CLR 19/08 A3019 RMK AO2 T01860084KLUL2018-12-17T20:55:00Z31.67-89.1718.68.4230410.030.188976TRUETRUEVFRSPECI73.02018-12-17 21:05:43I›‹€) 5    3KCXU 172055Z AUTO 00000KT 10SM CLR 19/07 A3011 RMK AO1 T01850070KCXU2018-12-17T20:55:00Z31.22-84.2318.57.00010.030.109253TRUETRUEVFRMETAR53.02018-12-17 21:05:43 «-Y†«U›‹€)5     3KRRL 172055Z AUTO 31003KT 10SM CLR 01/M10 A3019 RMK AO2 T00051098 TSNOKRRL2018-12-17T20:55:00Z45.2-89.720.5-9.8310310.030.188976TRUETRUETRUEVFRMETAR401.02018-12-17 21:05:43M›‹€)5    3KCLI 172055Z AUTO 31004KT 10SM CLR 02/M10 A3019 RMK AO2 T00171096KCLI2018-12-17T20:55:00Z44.62-88.731.7-9.6310410.030.188976TRUETRUEVFRMETAR250.02018-12-17 21:05:43N›‹€)5    3KEGV 172055Z AUTO 29006KT 10SM CLR M02/M10 A3015 RMK AO2 T10171097KEGV2018-12-17T20:55:00Z45.93-89.27-1.7-9.7290610.030.15059TRUETRUEVFRMETAR500.02018-12-17 21:05:43M›‹€)5    3KEZS 172055Z AUTO 31005KT 10SM CLR 03/M09 A3018 RMK AO2 T00301091KEZS2018-12-17T20:55:00Z44.78-88.573.0-9.1310510.030.180119TRUETRUEVFRMETAR248.02018-12-17 21:05:43 ¼/f’¼P›‹€)5    3KD25 172055Z AUTO 29003KT 10SM CLR M03/M10 A3017 RMK AO2 T10261103KD252018-12-17T20:55:00Z46.12-89.88-2.6-10.3290310.030.171259TRUETRUEVFRMETAR491.02018-12-17 21:05:43N›‹€)5    3KPBH 172055Z AUTO 31003KT 10SM CLR M01/M11 A3018 RMK AO2 T10061111KPBH2018-12-17T20:55:00Z45.7-90.4-0.6-11.1310310.030.180119TRUETRUEVFRMETAR449.02018-12-17 21:05:43C›‹€(5    3KPLD 172055Z AUTO 32005KT 10SM SCT027 05/00 A3011 RMK AO2KPLD2018-12-17T20:55:00Z40.45-84.985.00.0320510.030.109253TRUETRUEVFRMETAR282.02018-12-17 21:05:43K›‹€)5    3KRPD 172055Z AUTO 00000KT 10SM CLR 00/M09 A3023 RMK AO2 T00031090KRPD2018-12-17T20:55:00Z45.42-91.770.3-9.00010.030.230314TRUETRUEVFRMETAR338.02018-12-17 21:05:43 Ì Z•ÌC›‹€(}5    3KD55 172055Z AUTO 14013KT 10SM CLR M06/M08 A3002 RMK AO2KD552018-12-17T20:55:00Z48.75-98.4-6.0-8.01401310.030.02067TRUETRUEVFRMETAR491.02018-12-17 21:05:43?›‹€(y5    3KDCM 172055Z AUTO 29003KT 7SM CLR 16/M01 A3002 RMK AO2KDCM2018-12-17T20:55:00Z34.78-81.216.0-1.029037.030.02067TRUETRUEVFRSPECI200.02018-12-17 21:05:43@›‹€(y5    3KCZL 172055Z AUTO 36005KT 10SM CLR 16/00 A3015 RMK AO2KCZL2018-12-17T20:55:00Z34.47-84.9316.00.0360510.030.15059TRUETRUEVFRMETAR195.02018-12-17 21:05:43Z›‹€)!5    3KDLH 172055Z 00000KT 10SM CLR M01/M12 A3019 RMK AO2 SLP250 T10061117 53001KDLH2018-12-17T20:55:00Z46.85-92.2-0.6-11.70010.030.1889761025.0TRUEVFR0.1METAR435.02018-12-17 21:05:43 ¾'a¾L›‹€!) 5    3KO54 172055Z AUTO 19003KT 10SM BKN041 OVC050 09/04 A3016 RMK AO1KO542018-12-17T20:55:00Z40.75-122.929.04.0190310.030.159449TRUETRUEVFRMETAR717.02018-12-17 21:05:43K›‹€ ) 5    3KDRI 172055Z AUTO 17005KT 10SM CLR 18/10 A3020 RMK AO2 T01760098KDRI2018-12-17T20:55:00Z30.83-93.3317.69.8170510.030.200787TRUETRUEVFRMETAR63.02018-12-17 21:05:43@›‹€(y5    3KDNN 172055Z AUTO 33008KT 10SM CLR 16/03 A3015 RMK AO2KDNN2018-12-17T20:55:00Z34.72-84.8716.03.0330810.030.15059TRUETRUEVFRMETAR216.02018-12-17 21:05:43S›‹€)5    3KDLO 172055Z AUTO 00000KT 7SM BKN021 OVC026 13/10 A3018 RMK AO2 T01300097KDLO2018-12-17T20:55:00Z35.75-119.2313.09.7007.030.180119TRUETRUEMVFRMETAR96.02018-12-17 21:05:43 ³/R’³Y›‹€%)5   3KMCD 172055Z AUTO 30010G19KT 10SM OVC019 M02/M08 A3010 RMK AO2 T10231080KMCD2018-12-17T20:55:00Z45.85-84.63-2.3-8.0300101910.030.100393TRUETRUEMVFRMETAR226.02018-12-17 21:05:43:›‹€$(q5   3KMDS 172055Z AUTO 17013KT 10SM 07/00 A2999 RMK AO2KMDS2018-12-17T20:55:00Z44.02-97.087.00.01701310.029.991142TRUETRUEMETAR524.02018-12-17 21:05:43W›‹€#)5     3KMDZ 172055Z AUTO 28004KT 10SM CLR M01/M11 A3019 RMK AO2 T10081106 TSNOKMDZ2018-12-17T20:55:00Z45.1-90.3-0.8-10.6280410.030.188976TRUETRUETRUEVFRMETAR448.02018-12-17 21:05:43K›‹€") 5    3KMFV 172055Z AUTO 27006KT 10SM CLR 11/04 A2983 RMK AO2 T01110040KMFV2018-12-17T20:55:00Z37.63-75.7711.14.0270610.029.828741TRUETRUEVFRMETAR15.02018-12-17 21:05:43 ¼.\Ž¼L›‹€)) 5    3KLXY 172055Z AUTO 31008KT 10SM CLR 13/04 A3018 RMK AO2 T01290041KLXY2018-12-17T20:55:00Z31.63-96.5212.94.1310810.030.180119TRUETRUEVFRMETAR166.02018-12-17 21:05:43H›‹€() 5    3KLZZ 172055Z AUTO 00000KT 10SM CLR 16/02 A3018 RMK AO2 T01570019KLZZ2018-12-17T20:55:00Z31.1-98.215.71.90010.030.180119TRUETRUEVFRMETAR371.02018-12-17 21:05:43L›‹€')5    3KM21 172055Z AUTO 00000KT 10SM CLR 11/M01 A3018 RMK AO2 T01121013KM212018-12-17T20:55:00Z37.22-87.1511.2-1.30010.030.180119TRUETRUEVFRMETAR129.02018-12-17 21:05:43L›‹€&)5     3KM25 172055Z AUTO 31004KT 10SM CLR 13/01 A3020 RMK AO2 PWINOKM252018-12-17T20:55:00Z36.77-88.5813.01.0310410.030.200787TRUETRUETRUEVFRMETAR160.02018-12-17 21:05:43 Â0^‡Â?›‹€-(5    3KEFT 172055Z AUTO 10SM CLR 05/M08 A3020 RMK AO2 T00471076KEFT2018-12-17T20:55:00Z42.62-89.64.7-7.610.030.200787TRUETRUEVFRMETAR331.02018-12-17 21:05:43Q›‹€,)5   3KLNA 172055Z AUTO 28010G14KT 10SM CLR 19/12 A3008 RMK AO2 T01850120KLNA2018-12-17T20:55:00Z26.6-80.0218.512.0280101410.030.079725TRUETRUEVFRMETAR11.02018-12-17 21:05:43L›‹€+) 5    3KLNC 172055Z AUTO 25003KT 10SM CLR 12/04 A3021 RMK AO2 T01180040KLNC2018-12-17T20:55:00Z32.58-96.7211.84.0250310.030.209646TRUETRUEVFRMETAR153.02018-12-17 21:05:43J›‹€*) 5    3KLUD 172055Z AUTO 00000KT 10SM CLR 12/05 A3020 RMK AO2 T01170047KLUD2018-12-17T20:55:00Z33.25-97.5811.74.70010.030.200787TRUETRUEVFRMETAR319.02018-12-17 21:05:43 µ3o…µJ›‹€1) 5    3KDZB 172055Z AUTO 00000KT 10SM CLR 18/03 A3019 RMK AO2 T01810033KDZB2018-12-17T20:55:00Z30.53-98.3718.13.30010.030.188976TRUETRUEVFRMETAR334.02018-12-17 21:05:43d›‹€0)-5    3KEAT 172055Z AUTO 09004KT 10SM OVC003 01/00 A2997 RMK AO2 SLP160 T00110000 58005KEAT2018-12-17T20:55:00Z47.4-120.21.10.090410.029.9704721016.0TRUETRUELIFR-0.5METAR377.02018-12-17 21:05:43>›‹€/(y5    3KEDC 172055Z AUTO 00000KT 10SM CLR 19/04 A3019 RMK AO2KEDC2018-12-17T20:55:00Z30.4-97.5719.04.00010.030.188976TRUETRUEVFRMETAR189.02018-12-17 21:05:43G›‹€.)5    3KEDJ 172055Z AUTO 31008KT 10SM BKN025 03/M02 A3010 RMK AO1KEDJ2018-12-17T20:55:00Z40.37-83.823.0-2.0310810.030.100393TRUETRUEMVFRMETAR342.02018-12-17 21:05:43 Ç:q™ÇL›‹€5)5    3KMKN 172055Z AUTO 00000KT 10SM SCT120 12/02 A3020 RMK AO2 T01200017KMKN2018-12-17T20:55:00Z31.92-98.612.01.70010.030.200787TRUETRUEVFRMETAR423.02018-12-17 21:05:43R›‹€4)5   3KW99 172055Z AUTO 31008G16KT 10SM CLR 10/M04 A2988 RMK AO2 T01001044KW992018-12-17T20:55:00Z39.0-79.1510.0-4.431081610.029.878937TRUETRUEVFRMETAR293.02018-12-17 21:05:43C›‹€3({5    3KDXX 172055Z AUTO 12014KT 10SM CLR 04/M02 A3008 RMK AO2KDXX2018-12-17T20:55:00Z44.98-96.184.0-2.01201410.030.079725TRUETRUEVFRMETAR330.02018-12-17 21:05:43@›‹€2(y5    3KDYB 172055Z AUTO 20005KT 10SM CLR 17/07 A3003 RMK AO1KDYB2018-12-17T20:55:00Z33.07-80.2817.07.0200510.030.029528TRUETRUEVFRMETAR18.02018-12-17 21:05:43 °M}°G›‹€9)5    3KMJQ 172055Z AUTO 13011KT 10SM SCT110 01/M03 A3012 RMK AO2KMJQ2018-12-17T20:55:00Z43.63-94.971.0-3.01301110.030.121063TRUETRUEVFRMETAR441.02018-12-17 21:05:43J›‹€8) 5    3KMNE 172055Z AUTO 16003KT 10SM CLR 16/09 A3018 RMK AO2 T01620092KMNE2018-12-17T20:55:00Z32.65-93.316.29.2160310.030.180119TRUETRUEVFRMETAR85.02018-12-17 21:05:43B›‹€7(y5    3KMLJ 172055Z AUTO 31010KT 10SM CLR 18/02 A3006 RMK AO2KMLJ2018-12-17T20:55:00Z33.15-83.2318.02.03101010.030.059055TRUETRUEVFRMETAR117.02018-12-17 21:05:43e›‹€6)35    3KMKG 172055Z 33010KT 10SM SCT030 BKN250 03/M05 A3017 RMK AO2 SLP223 T00281050 53013KMKG2018-12-17T20:55:00Z43.17-86.232.8-5.03301010.030.1712591022.3TRUEVFR1.3METAR191.02018-12-17 21:05:43 ±-[ˆ±Q›‹€=)5    3KMRT 172055Z AUTO 34007KT 10SM OVC029 04/M02 A3009 RMK AO2 T00361017KMRT2018-12-17T20:55:00Z40.22-83.353.6-1.7340710.030.088583TRUETRUEMVFRMETAR312.02018-12-17 21:05:43M›‹€<)5    3KMQB 172055Z AUTO 31005KT 10SM CLR 07/M03 A3025 RMK AO2 T00721032KMQB2018-12-17T20:55:00Z40.52-90.657.2-3.2310510.030.250984TRUETRUEVFRMETAR215.02018-12-17 21:05:43L›‹€;) 5    3KMNZ 172055Z AUTO 32005KT 10SM CLR 15/01 A3019 RMK AO2 T01500014KMNZ2018-12-17T20:55:00Z31.67-98.1515.01.4320510.030.188976TRUETRUEVFRMETAR396.02018-12-17 21:05:43M›‹€:)5    3KMOP 172055Z AUTO 34005KT 10SM CLR 01/M06 A3011 RMK AO2 T00071061KMOP2018-12-17T20:55:00Z43.62-84.730.7-6.1340510.030.109253TRUETRUEVFRMETAR230.02018-12-17 21:05:43 Ô:qŸÔE›‹€A(5   3KPQN 172055Z AUTO 17011G16KT 10SM CLR 06/00 A3002 RMK AO2KPQN2018-12-17T20:55:00Z43.97-96.326.00.0170111610.030.02067TRUETRUEVFRMETAR529.02018-12-17 21:05:43L›‹€@)5    3KPEA 172055Z AUTO 17005KT 10SM CLR 09/M05 A3022 RMK AO2 T00941050KPEA2018-12-17T20:55:00Z41.4-92.959.4-5.0170510.030.221457TRUETRUEVFRMETAR270.02018-12-17 21:05:43C›‹€?({5    3KGLY 172055Z AUTO 13003KT 10SM CLR 12/M02 A3024 RMK AO2KGLY2018-12-17T20:55:00Z38.35-93.6812.0-2.0130310.030.239174TRUETRUEVFRMETAR251.02018-12-17 21:05:43@›‹€>({5    3KGMJ 172055Z AUTO 00000KT 10SM CLR 15/M01 A3021 RMK AO2KGMJ2018-12-17T20:55:00Z36.6-94.7315.0-1.00010.030.209646TRUETRUEVFRMETAR254.02018-12-17 21:05:43 ´"L{´A›‹€E(y5    3KEOE 172055Z AUTO 25006KT 10SM CLR 17/05 A3004 RMK AO2KEOE2018-12-17T20:55:00Z34.32-81.6317.05.0250610.030.041338TRUETRUEVFRMETAR174.02018-12-17 21:05:43K›‹€D)5    3KRCX 172055Z AUTO 28003KT 10SM CLR 01/M10 A3023 RMK AO2 T00051097KRCX2018-12-17T20:55:00Z45.5-91.00.5-9.7280310.030.230314TRUETRUEVFRMETAR377.02018-12-17 21:05:43P›‹€C)5     3KSPF 172055Z AUTO 13004KT 10SM CLR 12/M01 A2990 RMK AO2 PWINOKSPF2018-12-17T20:55:00Z44.47-103.7712.0-1.0130410.029.899607TRUETRUETRUEVFRMETAR1188.02018-12-17 21:05:43X›‹€B)5   3KPZQ 172055Z AUTO 29011G17KT 10SM OVC022 M01/M05 A3009 RMK AO2 T10131055KPZQ2018-12-17T20:55:00Z45.4-83.82-1.3-5.5290111710.030.088583TRUETRUEMVFRMETAR204.02018-12-17 21:05:43 â1jâ%›‹€I(c5  3KX07 172055Z AUTO 35006KT CLR 19/10 RMK A01KX072018-12-17T20:55:00Z27.9-81.6219.010.03506TRUETRUESPECI39.02018-12-17 21:05:43W›‹€H)5   3KANK 172055Z AUTO 21013G22KT 10SM CLR 10/M12 A3017 RMK AO1 T01001116KANK2018-12-17T20:55:00Z38.53-106.0510.0-11.6210132210.030.171259TRUETRUEVFRMETAR2293.02018-12-17 21:05:43A›‹€G({5    3KBDN 172055Z AUTO 20008KT 10SM CLR 08/M01 A2998 RMK AO2KBDN2018-12-17T20:55:00Z44.1-121.28.0-1.0200810.029.97933TRUETRUEVFRMETAR1055.02018-12-17 21:05:43I›‹€F) 5    3KDYA 172055Z AUTO 30005KT 7SM CLR 17/07 A3018 RMK AO2 T01670071KDYA2018-12-17T20:55:00Z32.47-87.9516.77.130057.030.180119TRUETRUEVFRMETAR34.02018-12-17 21:05:43 ¸%`Œ¸N›‹€M)5     3KD57 172055Z AUTO 16005KT 10SM CLR 04/M04 A2988 RMK AO2 PWINOKD572018-12-17T20:55:00Z46.82-101.874.0-4.0160510.029.878937TRUETRUETRUEVFRMETAR637.02018-12-17 21:05:43N›‹€L) 5     3KGAF 172055Z AUTO 13009KT 10SM CLR M05/M09 A3014 RMK AO2 PWINOKGAF2018-12-17T20:55:00Z48.4-97.37-5.0-9.0130910.030.138779TRUETRUETRUEVFRMETAR252.02018-12-17 21:05:43?›‹€K(y5    3KLUX 172055Z AUTO 28003KT 10SM CLR 18/03 A3002 RMK AO2KLUX2018-12-17T20:55:00Z34.5-81.9518.03.0280310.030.02067TRUETRUEVFRSPECI213.02018-12-17 21:05:43U›‹€J)5   3KOIN 172055Z AUTO 17016G19KT 10SM CLR 15/M04 A3007 RMK AO1 T01481037KOIN2018-12-17T20:55:00Z39.83-100.5314.8-3.7170161910.030.070866TRUETRUEVFRSPECI824.02018-12-17 21:05:43 8s¬çC›‹€R({5    3KSPA 172055Z AUTO 33011KT 10SM CLR 17/M06 A3002 RMK AO2KSPA2018-12-17T20:55:00Z34.92-81.9317.0-6.03301110.030.02067TRUETRUEVFRSPECI303.02018-12-17 21:05:43?›‹€Q(w5    3KVNC 172055Z AUTO 32012KT 8SM CLR 18/12 A3010 RMK AO2KVNC2018-12-17T20:55:00Z27.07-82.4318.012.0320128.030.100393TRUETRUEVFRSPECI6.02018-12-17 21:05:43A›‹€P(y5    3KAIK 172055Z AUTO 25006KT 10SM CLR 17/04 A3005 RMK AO2KAIK2018-12-17T20:55:00Z33.65-81.6817.04.0250610.030.050198TRUETRUEVFRSPECI161.02018-12-17 21:05:43?›‹€O(y5    3KBNL 172055Z AUTO 22006KT 10SM CLR 18/07 A3002 RMK AO2KBNL2018-12-17T20:55:00Z33.25-81.3818.07.0220610.030.02067TRUETRUEVFRSPECI75.02018-12-17 21:05:43B›‹€N({5    3KBRY 172055Z AUTO 27006KT 10SM CLR 11/M01 A3013 RMK AO1KBRY2018-12-17T20:55:00Z37.82-85.511.0-1.0270610.030.129921TRUETRUEVFRSPECI204.02018-12-17 21:05:43 È=UŒÈ>›‹€V(y5    3KMAW 172055Z AUTO 32005KT 10SM CLR 13/02 A3022 RMK AO2KMAW2018-12-17T20:55:00Z36.6-90.013.02.0320510.030.221457TRUETRUEVFRSPECI90.02018-12-17 21:05:43C›‹€U({5    3KRID 172055Z AUTO 29010KT 10SM CLR 04/M01 A3011 RMK AO2KRID2018-12-17T20:55:00Z39.75-84.854.0-1.02901010.030.109253TRUETRUEVFRMETAR348.02018-12-17 21:05:43b›‹€T)35   3KSDC 172055Z AUTO 29007G19KT 260V330 10SM SCT023 BKN029 OVC035 02/M02 A2982 RMK AO2KSDC2018-12-17T20:55:00Z43.23-77.122.0-2.029071910.029.819881TRUETRUEMVFRMETAR129.02018-12-17 21:05:43=›‹€S(y5    3KSIK 172055Z AUTO 00000KT 10SM CLR 13/02 A3022 RMK AO2KSIK2018-12-17T20:55:00Z36.9-89.5713.02.00010.030.221457TRUETRUEVFRSPECI96.02018-12-17 21:05:43 »6b»N›‹€Z)5    3KOWP 172055Z AUTO 11003KT 10SM CLR 15/M04 A3021 RMK AO2 T01511037KOWP2018-12-17T20:55:00Z36.18-96.1515.1-3.7110310.030.209646TRUETRUEVFRMETAR272.02018-12-17 21:05:43M›‹€Y)5    3KGGI 172055Z AUTO 18004KT 10SM CLR 07/M04 A3021 RMK AO2 T00741042KGGI2018-12-17T20:55:00Z41.72-92.737.4-4.2180410.030.209646TRUETRUEVFRSPECI307.02018-12-17 21:05:43N›‹€X)5    3KSUW 172055Z AUTO 23006KT 10SM CLR 00/M12 A3024 RMK AO2 T10051119KSUW2018-12-17T20:55:00Z46.68-92.1-0.5-11.9230610.030.239174TRUETRUEVFRSPECI206.02018-12-17 21:05:43D›‹€W) 5    3KLQK 172055Z AUTO 00000KT 10SM CLR 19/01 A3000 RMK AO2 T01860005KLQK2018-12-17T20:55:00Z34.82-82.718.60.50010.030.0TRUETRUEVFRSPECI309.02018-12-17 21:05:43 Í;h¦ÍS›‹€^)5   3KCCO 172055Z AUTO 33009G16KT 10SM CLR 18/M04 A3011 RMK AO2 T01751045KCCO2018-12-17T20:55:00Z33.32-84.7717.5-4.533091610.030.109253TRUETRUEVFRMETAR296.02018-12-17 21:05:43<›‹€](s5     3OPKC 172055Z 34006KT 5000 HZ NSC 11/M05 Q1021 NOSIGOPKC2018-12-17T20:55:00Z24.8867.1711.0-5.034063.1130.147638TRUEHZMVFRMETAR22.02018-12-17 21:05:43M›‹€\)5     3OPLA 172055Z 00000KT 4000 FU NSC 10/06 Q1020 NOSIG RMK QFE994 RMK A30.11OPLA2018-12-17T20:55:00Z31.5274.410.06.0002.4930.11811TRUEFUIFRMETAR217.02018-12-17 21:05:43?›‹€[)5    3OPNH 172055Z 36004KT 2000M BR NSC 11/08 Q1021 TEMPO 1800 BROPNH2018-12-17T20:55:00Z26.2268.3711.08.036041.2430.147638BRIFRMETAR38.02018-12-17 21:05:43 Å-ZŠÅ?›‹€b(y5    3KBHC 172055Z AUTO 23005KT 10SM CLR 18/08 A3007 RMK AO2KBHC2018-12-17T20:55:00Z31.72-82.418.08.0230510.030.070866TRUETRUEVFRMETAR61.02018-12-17 21:05:43J›‹€a) 5    3KBKD 172055Z AUTO 00000KT 10SM CLR 11/00 A3021 RMK AO2 T01100000KBKD2018-12-17T20:55:00Z32.72-98.8811.00.00010.030.209646TRUETRUEVFRMETAR392.02018-12-17 21:05:43M›‹€`)5    3KC09 172055Z AUTO 32006KT 10SM CLR 05/M03 A3021 RMK AO2 T00461029KC092018-12-17T20:55:00Z41.43-88.424.6-2.9320610.030.209646TRUETRUEVFRMETAR178.02018-12-17 21:05:43M›‹€_)5    3KC75 172055Z AUTO 32007KT 10SM CLR 05/M02 A3024 RMK AO2 T00501019KC752018-12-17T20:55:00Z41.02-89.385.0-1.9320710.030.239174TRUETRUEVFRMETAR173.02018-12-17 21:05:43 Ä4XˆÄ>›‹€f(y5    3KAQR 172055Z AUTO 00000KT 10SM CLR 13/06 A3019 RMK AO2KAQR2018-12-17T20:55:00Z34.4-96.1513.06.00010.030.188976TRUETRUEVFRMETAR189.02018-12-17 21:05:43J›‹€e) 5    3KAYS 172055Z AUTO 29006KT 10SM CLR 17/09 A3007 RMK AO2 T01710090KAYS2018-12-17T20:55:00Z31.25-82.417.19.0290610.030.070866TRUETRUEVFRMETAR46.02018-12-17 21:05:43V›‹€d)#5   3KBCB 172055Z AUTO 29014G22KT 240V310 10SM CLR 10/00 A3000 RMK AO2 T01021005KBCB2018-12-17T20:55:00Z37.22-80.4210.2-0.5290142210.030.0TRUETRUEVFRMETAR650.02018-12-17 21:05:43F›‹€c)5   3KBDG 172055Z AUTO 00000KT 10SM 05/M07 A3025 RMK AO1 T00451069KBDG2018-12-17T20:55:00Z37.58-109.474.5-6.90010.030.250984TRUETRUEMETAR1788.02018-12-17 21:05:43 È9k›ÈM›‹€j)5    3KAAA 172055Z AUTO 32005KT 10SM CLR 07/M01 A3022 RMK AO2 T00711012KAAA2018-12-17T20:55:00Z40.17-89.337.1-1.2320510.030.221457TRUETRUEVFRMETAR182.02018-12-17 21:05:43J›‹€i) 5    3KACP 172055Z AUTO 00000KT 10SM CLR 17/11 A3019 RMK AO2 T01670114KACP2018-12-17T20:55:00Z30.75-92.6816.711.40010.030.188976TRUETRUEVFRMETAR33.02018-12-17 21:05:43H›‹€h)5    3KAFO 172055Z AUTO 00000KT 10SM BKN120 M04/M08 A3009 RMK AO2KAFO2018-12-17T20:55:00Z42.72-110.95-4.0-8.00010.030.088583TRUETRUEVFRMETAR1897.02018-12-17 21:05:43A›‹€g(y5    3KAQO 172055Z AUTO 30003KT 10SM CLR 20/02 A3021 RMK AO2KAQO2018-12-17T20:55:00Z30.78-98.6720.02.0300310.030.209646TRUETRUEVFRMETAR336.02018-12-17 21:05:43 °)Wƒ°M›‹€n)5    3K8W2 172055Z AUTO 23003KT 10SM CLR 12/M08 A2984 RMK AO1 T01241084K8W22018-12-17T20:55:00Z38.65-78.712.4-8.4230310.029.840551TRUETRUEVFRMETAR297.02018-12-17 21:05:43N›‹€m)5    3K9A5 172055Z AUTO 36007KT 10SM CLR 15/M01 A3014 RMK AO2 T01511011K9A52018-12-17T20:55:00Z34.68-85.2815.1-1.1360710.030.138779TRUETRUEVFRMETAR237.02018-12-17 21:05:43L›‹€l) 5    3K9V9 172055Z AUTO 16003KT 10SM CLR 11/01 A2993 RMK AO2 T01050005K9V92018-12-17T20:55:00Z43.77-99.3210.50.5160310.029.929134TRUETRUEVFRMETAR519.02018-12-17 21:05:43Q›‹€k)5   3KA08 172055Z AUTO 29011G15KT 10SM CLR 17/09 A3017 RMK AO2 T01660087KA082018-12-17T20:55:00Z32.52-87.3816.68.7290111510.030.171259TRUETRUEVFRMETAR69.02018-12-17 21:05:43 ±2\€±I›‹€r) 5    3K66R 172055Z AUTO 00000KT 10SM CLR 23/00 A3019 RMK AO2 T02300002K66R2018-12-17T20:55:00Z29.65-96.5223.00.20010.030.188976TRUETRUEVFRMETAR74.02018-12-17 21:05:43V›‹€q)#5    3K6B0 172055Z AUTO 34005KT 10SM SCT032 OVC038 01/M02 A2960 RMK AO2 T00091021K6B02018-12-17T20:55:00Z43.98-73.10.9-2.1340510.029.601377TRUETRUEVFRMETAR149.02018-12-17 21:05:43P›‹€p)5    3K6P9 172055Z AUTO 01006KT 10SM CLR 11/01 A3019 RMK AO2 6//// T01110012K6P92018-12-17T20:55:00Z32.43-98.611.11.210610.030.188976TRUETRUEVFRMETAR449.02018-12-17 21:05:43H›‹€o) 5    3K6R3 172055Z AUTO 24003KT 7SM CLR 21/07 A3018 RMK AO2 T02100074K6R32018-12-17T20:55:00Z30.35-95.021.07.424037.030.180119TRUETRUEVFRMETAR46.02018-12-17 21:05:43 À8f”ÀN›‹€v)5    3K49A 172055Z AUTO 33007KT 10SM CLR 14/M01 A3014 RMK AO2 T01381006K49A2018-12-17T20:55:00Z34.63-84.5313.8-0.6330710.030.138779TRUETRUEVFRMETAR453.02018-12-17 21:05:43L›‹€u) 5    3K4A9 172055Z AUTO 33007KT 10SM CLR 15/02 A3013 RMK AO2 T01470019K4A92018-12-17T20:55:00Z34.47-85.7214.71.9330710.030.129921TRUETRUEVFRMETAR267.02018-12-17 21:05:43L›‹€t) 5    3K5A6 172055Z AUTO 30003KT 10SM CLR 17/08 A3019 RMK AO2 T01650081K5A62018-12-17T20:55:00Z33.47-89.7316.58.1300310.030.188976TRUETRUEVFRMETAR111.02018-12-17 21:05:43B›‹€s({5    3K5C1 172055Z AUTO 18004KT 10SM CLR 19/M04 A3018 RMK AO1K5C12018-12-17T20:55:00Z29.72-98.719.0-4.0180410.030.180119TRUETRUEVFRMETAR423.02018-12-17 21:05:43 Æ/^ÆC›‹€z({5    3K3AU 172055Z AUTO 18005KT 10SM CLR 12/M04 A3020 RMK AO2K3AU2018-12-17T20:55:00Z37.67-97.0812.0-4.0180510.030.200787TRUETRUEVFRMETAR405.02018-12-17 21:05:43I›‹€y) 5    3K3F3 172055Z AUTO 00000KT 10SM CLR 16/09 A3021 RMK AO2 T01620089K3F32018-12-17T20:55:00Z32.07-93.7716.28.90010.030.209646TRUETRUEVFRMETAR96.02018-12-17 21:05:43K›‹€x)5   3K3K3 172055Z AUTO 16012G16KT 10SM CLR 14/M06 A3004 RMK AO2K3K32018-12-17T20:55:00Z38.0-101.7514.0-6.0160121610.030.041338TRUETRUEVFRMETAR1013.02018-12-17 21:05:43K›‹€w) 5    3K40J 172055Z AUTO 35004KT 10SM CLR 19/09 A3011 RMK AO2 T01920085K40J2018-12-17T20:55:00Z30.07-83.5719.28.5350410.030.109253TRUETRUEVFRMETAR13.02018-12-17 21:05:43 À@o›ÀU›‹€~)5   3K19S 172055Z AUTO 17019G24KT 10SM CLR 15/M05 A3009 RMK AO2 T01481049K19S2018-12-17T20:55:00Z37.48-100.8314.8-4.9170192410.030.088583TRUETRUEVFRMETAR886.02018-12-17 21:05:43N›‹€})5    3K1A6 172055Z AUTO 26006KT 10SM CLR 13/M01 A3012 RMK AO2 T01261006K1A62018-12-17T20:55:00Z36.62-83.7312.6-0.6260610.030.121063TRUETRUEVFRMETAR352.02018-12-17 21:05:43K›‹€|) 5    3K1H2 172055Z AUTO 26006KT 10SM CLR 09/00 A3021 RMK AO2 T00900002K1H22018-12-17T20:55:00Z39.07-88.539.00.2260610.030.209646TRUETRUEVFRMETAR179.02018-12-17 21:05:43:›‹€{(s5   3K21D 172055Z AUTO 11003KT 10SM 02/M08 A3024 RMK AO2K21D2018-12-17T20:55:00Z45.0-92.852.0-8.0110310.030.239174TRUETRUEMETAR285.02018-12-17 21:05:43 ½/`½L›‹)5    3K06C 172055Z AUTO 33005KT 10SM CLR 04/M07 A3019 RMK AO2 T00441075K06C2018-12-17T20:55:00Z41.98-88.14.4-7.5330510.030.188976TRUETRUEVFRMETAR244.02018-12-17 21:05:43K›‹) 5    3K0R4 172055Z AUTO 15006KT 10SM CLR 17/11 A3018 RMK AO2 T01650112K0R42018-12-17T20:55:00Z31.57-91.516.511.2150610.030.180119TRUETRUEVFRMETAR17.02018-12-17 21:05:43I›‹) 5    3K11R 172055Z AUTO 00000KT 10SM CLR 21/02 A3019 RMK AO2 T02100022K11R2018-12-17T20:55:00Z30.22-96.3721.02.20010.030.188976TRUETRUEVFRMETAR94.02018-12-17 21:05:43K›‹€) 5    3K17J 172055Z AUTO 33006KT 10SM CLR 19/06 A3011 RMK AO2 T01860059K17J2018-12-17T20:55:00Z31.07-84.9218.65.9330610.030.109253TRUETRUEVFRMETAR45.02018-12-17 21:05:43 ¼+Z¼N›‹)5    3KW78 172055Z AUTO 27005KT 10SM CLR 14/M02 A2992 RMK AO1 T01441018KW782018-12-17T20:55:00Z36.68-78.8514.4-1.8270510.029.920275TRUETRUEVFRMETAR129.02018-12-17 21:05:43D›‹({5    3KWWR 172055Z AUTO 15008KT 10SM CLR 13/M10 A3018 RMK AO2KWWR2018-12-17T20:55:00Z36.45-99.5213.0-10.0150810.030.180119TRUETRUEVFRMETAR667.02018-12-17 21:05:43K›‹)5   3KXLL 172055Z AUTO 30009G16KT 10SM OVC049 06/M02 A2979 RMK AO2KXLL2018-12-17T20:55:00Z40.57-75.486.0-2.030091610.029.790354TRUETRUEVFRMETAR122.02018-12-17 21:05:43O›‹)5    3KY49 172055Z AUTO 08005KT 10SM CLR M04/M12 A3017 RMK AO2 T10421122KY492018-12-17T20:55:00Z47.13-94.65-4.2-12.280510.030.171259TRUETRUEVFRMETAR416.02018-12-17 21:05:43 Ã5n–ÁM›‹ )5    3KVYS 172055Z AUTO 30008KT 10SM CLR 06/M01 A3024 RMK AO2 T00571009KVYS2018-12-17T20:55:00Z41.35-89.155.7-0.9300810.030.239174TRUETRUEVFRMETAR199.02018-12-17 21:05:43R›‹ )5   3KW13 172055Z AUTO 23009G14KT 10SM CLR 13/M03 A2985 RMK AO1 T01271030KW132018-12-17T20:55:00Z38.08-78.9512.7-3.023091410.029.84941TRUETRUEVFRMETAR443.02018-12-17 21:05:43A›‹({5    3KW22 172055Z AUTO 28010KT 10SM CLR 07/M03 A2998 RMK AO2KW222018-12-17T20:55:00Z39.0-80.277.0-3.02801010.029.97933TRUETRUEVFRMETAR499.02018-12-17 21:05:43E›‹({5    3KW43 172055Z AUTO 23008KT 10SM CLR 10/M05 A2992 RMK AO2KW432018-12-17T20:55:00Z44.67-104.5710.0-5.0230810.029.920275TRUETRUEVFRMETAR1300.02018-12-17 21:05:43 É;jšÉK›‹)5    3KTOC 172055Z AUTO 32005KT 10SM CLR 19/M04 A3002 RMK AO2 T01901045KTOC2018-12-17T20:55:00Z34.6-83.319.0-4.5320510.030.02067TRUETRUEVFRMETAR304.02018-12-17 21:05:43J›‹ ) 5    3KTXW 172055Z AUTO 06005KT 10SM CLR 21/11 A3015 RMK AO2 T02060114KTXW2018-12-17T20:55:00Z26.18-97.9720.611.460510.030.15059TRUETRUEVFRMETAR21.02018-12-17 21:05:43K›‹ ) 5    3KUXL 172055Z AUTO 19004KT 10SM CLR 18/12 A3021 RMK AO2 T01800119KUXL2018-12-17T20:55:00Z30.13-93.3818.011.9190410.030.209646TRUETRUEVFRMETAR4.02018-12-17 21:05:43?›‹ (y5    3KVDI 172055Z AUTO 25005KT 10SM CLR 18/06 A3006 RMK AO2KVDI2018-12-17T20:55:00Z32.2-82.3718.06.0250510.030.059055TRUETRUEVFRMETAR84.02018-12-17 21:05:43 ·.[‡·J›‹) 5    3KT35 172055Z AUTO 00000KT 10SM CLR 18/05 A3019 RMK AO2 T01800051KT352018-12-17T20:55:00Z30.88-96.9718.05.10010.030.188976TRUETRUEVFRMETAR123.02018-12-17 21:05:43N›‹)5    3KT82 172055Z AUTO 21006KT 10SM CLR 19/M04 A3018 RMK AO2 T01871042KT822018-12-17T20:55:00Z30.25-98.9218.7-4.2210610.030.180119TRUETRUEVFRMETAR517.02018-12-17 21:05:43M›‹)5    3KTAZ 172055Z AUTO 36005KT 10SM CLR 08/M01 A3021 RMK AO2 T00811013KTAZ2018-12-17T20:55:00Z39.53-89.338.1-1.3360510.030.209646TRUETRUEVFRMETAR190.02018-12-17 21:05:43L›‹) 5    3KTIP 172055Z AUTO 31008KT 10SM CLR 06/00 A3020 RMK AO2 T00561001KTIP2018-12-17T20:55:00Z40.28-88.155.6-0.1310810.030.200787TRUETRUEVFRMETAR225.02018-12-17 21:05:43 Á0[”ÁM›‹)5    3KSHD 172055Z AUTO 30009KT 10SM CLR 13/M04 A2988 RMK AO2 T01251044KSHD2018-12-17T20:55:00Z38.27-78.912.5-4.4300910.029.878937TRUETRUEVFRMETAR366.02018-12-17 21:05:43A›‹(y5    3KSME 172055Z AUTO 26007KT 10SM CLR 10/03 A3016 RMK AO2KSME2018-12-17T20:55:00Z37.05-84.6210.03.0260710.030.159449TRUETRUEVFRMETAR283.02018-12-17 21:05:43O›‹)5    3KSNK 172055Z AUTO 00000KT 10SM BKN120 10/M01 A3018 RMK AO2 T01031012KSNK2018-12-17T20:55:00Z32.7-100.9510.3-1.20010.030.180119TRUETRUEVFRMETAR741.02018-12-17 21:05:43J›‹) 5    3KT20 172055Z AUTO 00000KT 10SM CLR 23/02 A3017 RMK AO2 T02260020KT202018-12-17T20:55:00Z29.52-97.4722.62.00010.030.171259TRUETRUEVFRMETAR108.02018-12-17 21:05:43 Ë9k£ËR›‹)5    3KPVW 172055Z AUTO 19003KT 10SM SCT110 11/M05 A3015 RMK AO2 T01111055KPVW2018-12-17T20:55:00Z34.17-101.7211.1-5.5190310.030.15059TRUETRUEVFRMETAR1028.02018-12-17 21:05:43B›‹({5    3KRCR 172055Z AUTO 30008KT 10SM CLR 05/M02 A3016 RMK AO2KRCR2018-12-17T20:55:00Z41.07-86.185.0-2.0300810.030.159449TRUETRUEVFRMETAR241.02018-12-17 21:05:43H›‹) 5    3KREG 172055Z AUTO 00000KT 10SM CLR 15/09 A3021 RMK AO2 T01500092KREG2018-12-17T20:55:00Z30.17-90.9315.09.20010.030.209646TRUETRUEVFRMETAR4.02018-12-17 21:05:43A›‹(y5    3KSBO 172055Z AUTO 27005KT 10SM CLR 19/07 A3005 RMK AO2KSBO2018-12-17T20:55:00Z32.62-82.3719.07.0270510.030.050198TRUETRUEVFRMETAR100.02018-12-17 21:05:43 ¼-W…¼C›‹({5    3KOZA 172055Z AUTO 16008KT 10SM CLR 19/M02 A3016 RMK AO2KOZA2018-12-17T20:55:00Z30.73-101.219.0-2.0160810.030.159449TRUETRUEVFRMETAR726.02018-12-17 21:05:43L›‹) 5    3KPNT 172055Z AUTO 30006KT 10SM CLR 05/00 A3023 RMK AO2 T00491001KPNT2018-12-17T20:55:00Z40.92-88.624.9-0.1300610.030.230314TRUETRUEVFRMETAR201.02018-12-17 21:05:43P›‹)5    3KPPO 172055Z AUTO 33009KT 10SM SCT021 02/M02 A3018 RMK AO2 T00181021KPPO2018-12-17T20:55:00Z41.57-86.731.8-2.1330910.030.180119TRUETRUEVFRMETAR248.02018-12-17 21:05:43M›‹)5    3KPTT 172055Z AUTO 17009KT 10SM CLR 12/M03 A3016 RMK AO2 T01201034KPTT2018-12-17T20:55:00Z37.7-98.7512.0-3.4170910.030.159449TRUETRUEVFRMETAR595.02018-12-17 21:05:43 Æ.f—ƁK›‹") 5    3KOPL 172055Z AUTO 15005KT 10SM CLR 15/11 A3019 RMK AO2 T01520107KOPL2018-12-17T20:55:00Z30.55-92.115.210.7150510.030.188976TRUETRUEVFRMETAR23.02018-12-17 21:05:43I›‹!)5   3KOPN 172055Z AUTO 32009G14KT 10SM CLR 17/M03 A3011 RMK AO2KOPN2018-12-17T20:55:00Z32.95-84.2717.0-3.032091410.030.109253TRUETRUEVFRMETAR243.02018-12-17 21:05:43B›‹ ({5    3KOXI 172055Z AUTO 32009KT 10SM CLR 03/M02 A3018 RMK AO1KOXI2018-12-17T20:55:00Z41.33-86.673.0-2.0320910.030.180119TRUETRUEVFRMETAR209.02018-12-17 21:05:43L›‹)5   3KOYM 172055Z AUTO 29013G19KT 10SM OVC023 00/M03 A2989 RMK AO2KOYM2018-12-17T20:55:00Z41.42-78.50.0-3.0290131910.029.890747TRUETRUEMVFRMETAR590.02018-12-17 21:05:43 ½-[‘½N›‹&)5    3KMTV 172055Z AUTO 30006KT 10SM CLR 15/M02 A2997 RMK AO2 T01511019KMTV2018-12-17T20:55:00Z36.63-80.0215.1-1.9300610.029.970472TRUETRUEVFRMETAR287.02018-12-17 21:05:43D›‹%({5    3KMYZ 172055Z AUTO 19011KT 10SM CLR 13/M02 A3017 RMK AO2KMYZ2018-12-17T20:55:00Z39.85-96.6313.0-2.01901110.030.171259TRUETRUEVFRMETAR319.02018-12-17 21:05:43L›‹$)5    3KMZZ 172055Z AUTO 32007KT 10SM CLR 05/M02 A3015 RMK AO2 T00451023KMZZ2018-12-17T20:55:00Z40.48-85.684.5-2.3320710.030.15059TRUETRUEVFRMETAR262.02018-12-17 21:05:43M›‹#)5    3KOLY 172055Z AUTO 33006KT 10SM CLR 09/M05 A3020 RMK AO2 T00931047KOLY2018-12-17T20:55:00Z38.72-88.189.3-4.7330610.030.200787TRUETRUEVFRMETAR147.02018-12-17 21:05:43 Fv±çL›‹+)5    3KM30 172055Z AUTO 00000KT 10SM CLR 13/M02 A3021 RMK AO2 T01271020KM302018-12-17T20:55:00Z37.18-88.7512.7-2.00010.030.209646TRUETRUEVFRMETAR117.02018-12-17 21:05:43D›‹*)5   3KMDD 172055Z AUTO 05006KT 10SM 13/03 A3016 RMK AO2 T01270031KMDD2018-12-17T20:55:00Z32.03-102.112.73.150610.030.159449TRUETRUEMETAR854.02018-12-17 21:05:43?›‹)(y5    3KMGR 172055Z AUTO 29005KT 10SM CLR 17/06 A3011 RMK AO2KMGR2018-12-17T20:55:00Z31.08-83.817.06.0290510.030.109253TRUETRUEVFRMETAR90.02018-12-17 21:05:43J›‹() 5    3KMLE 172055Z AUTO 16008KT 10SM CLR 10/03 A3014 RMK AO2 T00950026KMLE2018-12-17T20:55:00Z41.2-96.129.52.6160810.030.138779TRUETRUEVFRMETAR320.02018-12-17 21:05:434›‹'(m5  3KMMU 172055Z 33006G24KT 10SM OVC048 06/M02 A2974KMMU2018-12-17T20:55:00Z40.78-74.426.0-2.033062410.029.740158VFRMETAR57.02018-12-17 21:05:43 ¯!R€¯K›‹/) 5    3KLGC 172055Z AUTO 32008KT 10SM CLR 19/01 A3012 RMK AO2 T01850008KLGC2018-12-17T20:55:00Z33.0-85.0718.50.8320810.030.121063TRUETRUEVFRMETAR211.02018-12-17 21:05:43L›‹.) 5    3KLKU 172055Z AUTO 20003KT 10SM CLR 12/02 A2988 RMK AO2 T01220019KLKU2018-12-17T20:55:00Z38.02-77.9712.21.9200310.029.878937TRUETRUEVFRMETAR150.02018-12-17 21:05:43I›‹-)5   3KLOM 172055Z AUTO 29006G09KT 10SM OVC050 06/M02 A2979 RMK AO1KLOM2018-12-17T20:55:00Z40.13-75.276.0-2.02906910.029.790354TRUETRUEVFRMETAR92.02018-12-17 21:05:43Y›‹,)%5   3KLWB 172055Z AUTO 28007G17KT 240V320 10SM CLR 09/M02 A2997 RMK AO2 T00901025KLWB2018-12-17T20:55:00Z37.87-80.49.0-2.528071710.029.970472TRUETRUEVFRMETAR702.02018-12-17 21:05:43 Í:cœÍI›‹3)5   3KJYO 172055Z AUTO 32013G24KT 10SM CLR 12/M01 A2985 RMK AO2KJYO2018-12-17T20:55:00Z39.07-77.5712.0-1.0320132410.029.84941TRUETRUEVFRMETAR119.02018-12-17 21:05:43A›‹2(y5    3KJYR 172055Z AUTO 19011KT 10SM CLR 11/02 A3010 RMK AO2KJYR2018-12-17T20:55:00Z40.9-97.6211.02.01901110.030.100393TRUETRUEVFRMETAR509.02018-12-17 21:05:43Q›‹1)5    3KLCK 172055Z AUTO 29010KT 10SM BKN035 05/M01 A3008 RMK AO2 T00481015KLCK2018-12-17T20:55:00Z39.82-82.924.8-1.52901010.030.079725TRUETRUEVFRMETAR227.02018-12-17 21:05:43@›‹0(y5    3KLCQ 172055Z AUTO 28004KT 10SM CLR 16/09 A3009 RMK AO2KLCQ2018-12-17T20:55:00Z30.18-82.5816.09.0280410.030.088583TRUETRUEVFRMETAR61.02018-12-17 21:05:43 Ã-Z”ÁK›‹7) 5    3KJAS 172055Z AUTO 19005KT 10SM CLR 20/07 A3020 RMK AO2 T02000071KJAS2018-12-17T20:55:00Z30.88-94.0320.07.1190510.030.200787TRUETRUEVFRMETAR65.02018-12-17 21:05:43@›‹6(y5    3KJDD 172055Z AUTO 20004KT 10SM CLR 13/06 A3019 RMK AO2KJDD2018-12-17T20:55:00Z32.75-95.513.06.0200410.030.188976TRUETRUEVFRMETAR132.02018-12-17 21:05:43M›‹5)5    3KJOT 172055Z AUTO 28004KT 10SM CLR 06/M03 A3021 RMK AO2 T00591030KJOT2018-12-17T20:55:00Z41.52-88.185.9-3.0280410.030.209646TRUETRUEVFRMETAR177.02018-12-17 21:05:43M›‹4) 5    3KJWG 172055Z AUTO 12005KT 10SM CLR 13/00 A3020 RMK AO2 T01261005KJWG2018-12-17T20:55:00Z35.87-98.4212.6-0.5120510.030.200787TRUETRUEVFRMETAR472.02018-12-17 21:05:43 ¶-Zˆ¶L›‹;)5    3KI63 172055Z AUTO 29006KT 10SM CLR 08/M04 A3022 RMK AO2 T00801045KI632018-12-17T20:55:00Z39.98-90.88.0-4.5290610.030.221457TRUETRUEVFRMETAR223.02018-12-17 21:05:43L›‹:)5    3KIDP 172055Z AUTO 00000KT 10SM CLR 14/M01 A3022 RMK AO2 T01421014KIDP2018-12-17T20:55:00Z37.17-95.7814.2-1.40010.030.221457TRUETRUEVFRMETAR251.02018-12-17 21:05:43M›‹9)5    3KIJX 172055Z AUTO 30007KT 10SM CLR 09/M05 A3023 RMK AO2 T00881050KIJX2018-12-17T20:55:00Z39.77-90.258.8-5.0300710.030.230314TRUETRUEVFRMETAR190.02018-12-17 21:05:43M›‹8)5    3KIKK 172055Z AUTO 32005KT 10SM CLR 05/M03 A3022 RMK AO2 T00471035KIKK2018-12-17T20:55:00Z41.07-87.854.7-3.5320510.030.221457TRUETRUEVFRMETAR192.02018-12-17 21:05:43 ˜&V{˜]›‹?))5   3KHMZ 172055Z AUTO 31010G19KT 10SM BKN039 OVC045 04/M05 A2992 RMK AO2 T00351050KHMZ2018-12-17T20:55:00Z40.08-78.523.5-5.0310101910.029.920275TRUETRUEVFRMETAR354.02018-12-17 21:05:43U›‹>)5   3KHSG 172055Z AUTO 20012G16KT 10SM CLR 08/M05 A2993 RMK AO2 T00811050KHSG2018-12-17T20:55:00Z43.72-108.388.1-5.0200121610.029.929134TRUETRUEVFRMETAR1494.02018-12-17 21:05:43J›‹=)5   3KHSP 172055Z AUTO 28024G35KT 10SM CLR 07/M01 A2987 RMK AO2KHSP2018-12-17T20:55:00Z37.95-79.827.0-1.0280243510.029.870079TRUETRUEVFRMETAR1156.02018-12-17 21:05:43T›‹<)!5    3KHTO 172055Z AUTO 29004KT 10SM SCT045 OVC060 05/01 A2963 RMK AO2 T00460013KHTO2018-12-17T20:55:00Z40.95-72.254.61.3290410.029.630905TRUETRUEVFRMETAR17.02018-12-17 21:05:43 ¸8f‹¸M›‹C) 5    3KHDE 172055Z AUTO 17011KT 10SM CLR 11/02 A3006 RMK AO2 T01050019KHDE2018-12-17T20:55:00Z40.45-99.3210.51.91701110.030.059055TRUETRUEVFRMETAR705.02018-12-17 21:05:43U›‹B)5    3KHHG 172055Z AUTO 30009KT 270V330 10SM CLR 05/M03 A3013 RMK AO2 T00451029KHHG2018-12-17T20:55:00Z40.85-85.454.5-2.9300910.030.129921TRUETRUEVFRMETAR246.02018-12-17 21:05:43L›‹A) 5    3KHHW 172055Z AUTO 10004KT 10SM CLR 15/08 A3018 RMK AO2 T01460084KHHW2018-12-17T20:55:00Z34.03-95.5514.68.4100410.030.180119TRUETRUEVFRMETAR144.02018-12-17 21:05:43B›‹@(y5    3KHII 172055Z AUTO 25005KT 10SM CLR 14/00 A3011 RMK AO2KHII2018-12-17T20:55:00Z34.57-114.3714.00.0250510.030.109253TRUETRUEVFRMETAR238.02018-12-17 21:05:43 Ä;]•ÄK›‹G)5    3KGBG 172055Z AUTO 00000KT 10SM CLR 07/M02 A3024 RMK AO2 T00651025KGBG2018-12-17T20:55:00Z40.93-90.436.5-2.50010.030.239174TRUETRUEVFRMETAR233.02018-12-17 21:05:43B›‹F({5    3KGGP 172055Z AUTO 33006KT 10SM CLR 05/M01 A3017 RMK AO2KGGP2018-12-17T20:55:00Z40.72-86.375.0-1.0330610.030.171259TRUETRUEVFRMETAR225.02018-12-17 21:05:43X›‹E)#5    3KGNC 172055Z AUTO 00000KT 10SM BKN080 OVC120 12/M03 A3021 RMK AO2 T01241028KGNC2018-12-17T20:55:00Z32.68-102.6512.4-2.80010.030.209646TRUETRUEVFRMETAR1010.02018-12-17 21:05:43?›‹D(y5    3KGVT 172055Z AUTO 00000KT 10SM CLR 13/06 A3019 RMK AO2KGVT2018-12-17T20:55:00Z33.07-96.0713.06.00010.030.188976TRUETRUEVFRMETAR163.02018-12-17 21:05:43 »._Ž»M›‹K)5    3KELK 172055Z AUTO 15005KT 10SM CLR 11/M03 A3017 RMK AO2 T01051035KELK2018-12-17T20:55:00Z35.43-99.410.5-3.5150510.030.171259TRUETRUEVFRMETAR610.02018-12-17 21:05:43K›‹J) 5    3KEZM 172055Z AUTO 27005KT 10SM CLR 19/06 A3009 RMK AO2 T01940059KEZM2018-12-17T20:55:00Z32.22-83.1319.45.9270510.030.088583TRUETRUEVFRMETAR93.02018-12-17 21:05:43I›‹I) 5    3KFKN 172055Z AUTO 27009KT 10SM CLR 14/02 A2988 RMK AO2 T01410017KFKN2018-12-17T20:55:00Z36.7-76.914.11.7270910.029.878937TRUETRUEVFRMETAR12.02018-12-17 21:05:43L›‹H)5    3KFWC 172055Z AUTO 00000KT 10SM CLR 10/M02 A3019 RMK AO1 T01031024KFWC2018-12-17T20:55:00Z38.38-88.4210.3-2.40010.030.188976TRUETRUEVFRMETAR133.02018-12-17 21:05:43 œ&WxœV›‹O)!5    3KE11 172055Z AUTO 04009KT 10SM SCT080 OVC090 12/00 A3014 RMK AO2 T01200000KE112018-12-17T20:55:00Z32.33-102.5312.00.040910.030.138779TRUETRUEVFRMETAR967.02018-12-17 21:05:43Y›‹N)5    3KE38 172055Z AUTO 17009KT 120V180 10SM CLR 19/M11 A3018 RMK AO2 T01881108KE382018-12-17T20:55:00Z30.38-103.6818.8-10.8170910.030.180119TRUETRUEVFRMETAR1376.02018-12-17 21:05:43I›‹M) 5    3KEBG 172055Z AUTO 00000KT 10SM CLR 22/09 A3016 RMK AO2 T02210094KEBG2018-12-17T20:55:00Z26.45-98.1322.19.40010.030.159449TRUETRUEVFRMETAR24.02018-12-17 21:05:43T›‹L)5   3KEHA 172055Z AUTO 19024G28KT 10SM CLR 15/M03 A3007 RMK AO2 T01471035KEHA2018-12-17T20:55:00Z37.0-101.914.7-3.5190242810.030.070866TRUETRUEVFRMETAR1099.02018-12-17 21:05:43 Ð9h¡ÐK›‹S) 5    3KDQH 172055Z AUTO 26004KT 10SM CLR 17/08 A3009 RMK AO2 T01670083KDQH2018-12-17T20:55:00Z31.48-82.8716.78.3260410.030.088583TRUETRUEVFRMETAR78.02018-12-17 21:05:43A›‹R(y5    3KDTA 172055Z AUTO 11006KT 10SM CLR 07/00 A3012 RMK AO1KDTA2018-12-17T20:55:00Z39.38-112.57.00.0110610.030.121063TRUETRUEVFRMETAR1402.02018-12-17 21:05:43K›‹Q)5   3KDUB 172055Z AUTO 25028G35KT 10SM CLR 06/M08 A2995 RMK AO2KDUB2018-12-17T20:55:00Z43.55-109.686.0-8.0250283510.029.949802TRUETRUEVFRMETAR2224.02018-12-17 21:05:43A›‹P(y5    3KDVK 172055Z AUTO 25006KT 10SM CLR 10/00 A3014 RMK AO2KDVK2018-12-17T20:55:00Z37.58-84.7710.00.0250610.030.138779TRUETRUEVFRMETAR312.02018-12-17 21:05:43 Ä.\–āL›‹W) 5    3KD73 172055Z AUTO 32009KT 10SM CLR 16/00 A3008 RMK AO2 T01651003KD732018-12-17T20:55:00Z33.78-83.716.5-0.3320910.030.079725TRUETRUEVFRMETAR267.02018-12-17 21:05:43@›‹V(y5    3KDBN 172055Z AUTO 28007KT 10SM CLR 19/03 A3007 RMK AO2KDBN2018-12-17T20:55:00Z32.57-82.9819.03.0280710.030.070866TRUETRUEVFRMETAR94.02018-12-17 21:05:43L›‹U)5    3KDCY 172055Z AUTO 30005KT 10SM CLR 09/M03 A3018 RMK AO2 T00861029KDCY2018-12-17T20:55:00Z38.7-87.138.6-2.9300510.030.180119TRUETRUEVFRMETAR144.02018-12-17 21:05:43L›‹T)5    3KDKB 172055Z AUTO 30009KT 10SM CLR 04/M05 A3021 RMK AO2 T00411046KDKB2018-12-17T20:55:00Z41.93-88.74.1-4.6300910.030.209646TRUETRUEVFRMETAR279.02018-12-17 21:05:43 ¿0c‘¿L›‹[)5    3KCQB 172055Z AUTO 00000KT 10SM CLR 13/M02 A3020 RMK AO2 T01331019KCQB2018-12-17T20:55:00Z35.72-96.8213.3-1.90010.030.200787TRUETRUEVFRMETAR300.02018-12-17 21:05:43L›‹Z) 5    3KCVB 172055Z AUTO 17003KT 7SM CLR 22/M02 A3018 RMK AO2 T02181017KCVB2018-12-17T20:55:00Z29.35-98.8521.8-1.717037.030.180119TRUETRUEVFRMETAR235.02018-12-17 21:05:43G›‹Y)5    3KCVC 172055Z AUTO 29010KT 10SM CLR 17/00 A3007 RMK AO2 PNOKCVC2018-12-17T20:55:00Z33.63-83.8517.00.02901010.030.070866TRUETRUEVFRMETAR247.02018-12-17 21:05:43J›‹X) 5    3KCWV 172055Z AUTO 22003KT 10SM CLR 18/10 A3005 RMK AO2 T01780097KCWV2018-12-17T20:55:00Z32.2-81.8717.89.7220310.030.050198TRUETRUEVFRMETAR33.02018-12-17 21:05:43 {0_q{p›‹_)O5    3FJDG 172055Z 05004KT 9999 FEW020 SCT080 SCT250 27/26 A2981 RMK SLP091 60001 8/171 T02660258 57024FJDG2018-12-17T20:55:00Z-7.3272.4226.625.85046.2129.8110241009.1VFR-2.40.01METAR3.02018-12-17 21:05:43h›‹^)55    3KVPS 172055Z 35006KT 7SM SCT180 BKN250 18/08 A3014 RMK AO2A SLP213 T01810081 56017 $KVPS2018-12-17T20:55:00Z30.47-86.5218.18.135067.030.1387791021.3TRUETRUEVFR-1.7SPECI26.02018-12-17 21:05:43K›‹]) 5    3KCKF 172055Z AUTO 27006KT 10SM CLR 20/03 A3009 RMK AO2 T01960025KCKF2018-12-17T20:55:00Z31.98-83.7719.62.5270610.030.088583TRUETRUEVFRMETAR91.02018-12-17 21:05:43J›‹\) 5    3KCPK 172055Z AUTO 25009KT 10SM CLR 14/02 A2987 RMK AO2 T01360019KCPK2018-12-17T20:55:00Z36.67-76.3213.61.9250910.029.870079TRUETRUEVFRMETAR6.02018-12-17 21:05:43 Æ0aŒÆ@›‹c(y5    3KSDA 172055Z AUTO 16008KT 10SM CLR 08/02 A3019 RMK AO2KSDA2018-12-17T20:55:00Z40.75-95.428.02.0160810.030.188976TRUETRUEVFRMETAR296.02018-12-17 21:05:43O›‹b)5    3KSEP 172055Z AUTO 36008KT 10SM SCT120 12/01 A3021 RMK AO2 T01200008KSEP2018-12-17T20:55:00Z32.22-98.1712.00.8360810.030.209646TRUETRUEVFRMETAR402.02018-12-17 21:05:43I›‹a)5    3KSEZ 172055Z AUTO 17004KT 10SM BKN120 13/M05 A3017 RMK AO2KSEZ2018-12-17T20:55:00Z34.85-111.7813.0-5.0170410.030.171259TRUETRUEVFRMETAR1473.02018-12-17 21:05:43J›‹`)5   3MMCB 172055Z 00000KT 6SM SCT020 BKN080 BKN250 25/10 A3014 RMK 8/538 HZYMMCB2018-12-17T20:55:00Z18.83-99.2725.010.0006.030.138779VFRMETAR1560.02018-12-17 21:05:43 ¨ L{¨M›‹g)5    3KRYW 172055Z AUTO 25004KT 10SM CLR 18/M01 A3019 RMK AO2 T01821006KRYW2018-12-17T20:55:00Z30.5-97.9718.2-0.6250410.030.188976TRUETRUEVFRMETAR376.02018-12-17 21:05:43K›‹f) 5    3KSAR 172055Z AUTO 30004KT 10SM CLR 10/00 A3024 RMK AO2 T01010000KSAR2018-12-17T20:55:00Z38.15-89.710.10.0300410.030.239174TRUETRUEVFRMETAR164.02018-12-17 21:05:43N›‹e)5    3KSCD 172055Z AUTO 35005KT 10SM BKN120 17/05 A3016 RMK AO2 T01660052KSCD2018-12-17T20:55:00Z33.17-86.316.65.2350510.030.159449TRUETRUEVFRMETAR173.02018-12-17 21:05:43Z›‹d)5    3KSCK 172055Z 31004KT 10SM CLR 16/09 A3021 RMK AO2 SLP228 T01560089 56006KSCK2018-12-17T20:55:00Z37.88-121.2215.68.9310410.030.2096461022.8TRUEVFR-0.6METAR10.02018-12-17 21:05:43 ½.^Œ½I›‹k) 5    3KRPH 172055Z AUTO 00000KT 10SM CLR 09/03 A3020 RMK AO2 T00930031KRPH2018-12-17T20:55:00Z33.12-98.559.33.10010.030.200787TRUETRUEVFRMETAR342.02018-12-17 21:05:43L›‹j)5    3KRQB 172055Z AUTO 32008KT 10SM CLR 01/M05 A3012 RMK AO2 T00081055KRQB2018-12-17T20:55:00Z43.72-85.50.8-5.5320810.030.121063TRUETRUEVFRMETAR302.02018-12-17 21:05:43J›‹i) 5    3KRSN 172055Z AUTO 07003KT 10SM CLR 16/09 A3020 RMK AO2 T01630090KRSN2018-12-17T20:55:00Z32.52-92.5816.39.070310.030.200787TRUETRUEVFRMETAR95.02018-12-17 21:05:43L›‹h) 5    3KRSV 172055Z AUTO 33007KT 10SM CLR 08/00 A3020 RMK AO2 T00811003KRSV2018-12-17T20:55:00Z39.02-87.658.1-0.3330710.030.200787TRUETRUEVFRMETAR141.02018-12-17 21:05:43 ¾M“¾O›‹o)5    3KRCV 172055Z AUTO 08004KT 10SM CLR 02/M10 A3019 RMK AO2 T00241105KRCV2018-12-17T20:55:00Z37.72-106.352.4-10.580410.030.188976TRUETRUEVFRMETAR2424.02018-12-17 21:05:434›‹n(m5     3KRGA 172055Z AUTO 26008KT 10SM CLR A3012 RMK AO2KRGA2018-12-17T20:55:00Z37.63-84.33260810.030.121063TRUETRUEVFRMETAR305.02018-12-17 21:05:43?›‹m(y5    3KRKR 172055Z AUTO 02003KT 10SM CLR 08/08 A3020 RMK AO2KRKR2018-12-17T20:55:00Z35.02-94.628.08.020310.030.200787TRUETRUEVFRMETAR138.02018-12-17 21:05:43h›‹l)35    3KRNO 172055Z 31010KT 10SM FEW055 FEW220 12/M08 A3011 RMK AO2 SLP175 T01171078 58009KRNO2018-12-17T20:55:00Z39.5-119.7711.7-7.83101010.030.1092531017.5TRUEVFR-0.9METAR1342.02018-12-17 21:05:43 ¼*_¼M›‹s)5    3KPVB 172055Z AUTO 26004KT 10SM CLR 05/M05 A3022 RMK AO1 T00491051KPVB2018-12-17T20:55:00Z42.68-90.434.9-5.1260410.030.221457TRUETRUEVFRMETAR313.02018-12-17 21:05:43J›‹r) 5    3KPVJ 172055Z AUTO 00000KT 10SM CLR 14/00 A3018 RMK AO2 T01350003KPVJ2018-12-17T20:55:00Z34.72-97.2213.50.30010.030.180119TRUETRUEVFRMETAR295.02018-12-17 21:05:43E›‹q(}5    3KPWC 172055Z AUTO 13005KT 10SM CLR M02/M11 A3021 RMK AO2KPWC2018-12-17T20:55:00Z46.72-94.37-2.0-11.0130510.030.209646TRUETRUEVFRMETAR395.02018-12-17 21:05:43P›‹p)5    3KPYX 172055Z AUTO 17012KT 10SM CLR 15/M06 A3012 RMK AO2 T01521060KPYX2018-12-17T20:55:00Z36.42-100.7515.2-6.01701210.030.121063TRUETRUEVFRMETAR889.02018-12-17 21:05:43 9s¡ÙA›‹x({5    3KHZX 172055Z AUTO 00000KT 10SM CLR 00/M11 A3020 RMK AO2KHZX2018-12-17T20:55:00Z46.62-93.320.0-11.00010.030.200787TRUETRUEVFRMETAR374.02018-12-17 21:05:43B›‹w({5    3KI23 172055Z AUTO 32009KT 10SM CLR 05/M01 A3010 RMK AO1KI232018-12-17T20:55:00Z39.57-83.425.0-1.0320910.030.100393TRUETRUEVFRMETAR299.02018-12-17 21:05:43L›‹v) 5    3KI35 172055Z AUTO 25004KT 10SM CLR 10/00 A3011 RMK AO2 T01040002KI352018-12-17T20:55:00Z36.87-83.3710.40.2250410.030.109253TRUETRUEVFRMETAR473.02018-12-17 21:05:43@›‹u({5    3KI67 172055Z AUTO 00000KT 10SM CLR 07/M04 A3013 RMK AO1KI672018-12-17T20:55:00Z39.25-84.787.0-4.00010.030.129921TRUETRUEVFRMETAR178.02018-12-17 21:05:43A›‹t(y5    3KPUJ 172055Z AUTO 30005KT 10SM CLR 15/01 A3012 RMK AO2KPUJ2018-12-17T20:55:00Z33.92-84.9315.01.0300510.030.121063TRUETRUEVFRMETAR393.02018-12-17 21:05:43 Û.l¦ÛE›‹|)5    3KHVE 172055Z AUTO 00000KT 10SM BKN110 02/M03 A3023 RMK AO2KHVE2018-12-17T20:55:00Z38.42-110.72.0-3.00010.030.230314TRUETRUEVFRMETAR1350.02018-12-17 21:05:43@›‹{(y5    3KHVS 172055Z AUTO 26003KT 10SM CLR 17/02 A2999 RMK AO2KHVS2018-12-17T20:55:00Z34.4-80.1217.02.0260310.029.991142TRUETRUEVFRMETAR111.02018-12-17 21:05:43<›‹z(w5    3KHYW 172055Z AUTO 00000KT 7SM CLR 16/06 A2999 RMK AO2KHYW2018-12-17T20:55:00Z33.83-79.1216.06.0007.029.991142TRUETRUEVFRMETAR11.02018-12-17 21:05:43L›‹y)5   3KHYX 172055Z AUTO 32013G18KT 10SM SCT029 01/M04 A3010 RMK AO2KHYX2018-12-17T20:55:00Z43.43-83.871.0-4.0320131810.030.100393TRUETRUEVFRMETAR183.02018-12-17 21:05:43 ¡'_u¡N›‹‚)5    3KHMP 172055Z AUTO 34005KT 10SM CLR 17/M03 A3010 RMK AO2 T01701033KHMP2018-12-17T20:55:00Z33.38-84.3317.0-3.3340510.030.100393TRUETRUEVFRMETAR269.02018-12-17 21:05:43d›‹))5    3KHON 172055Z AUTO 16008KT 10SM CLR 06/M01 A2995 RMK AO2 SLP158 T00611011 56021KHON2018-12-17T20:55:00Z44.38-98.236.1-1.1160810.029.9498021015.8TRUETRUEVFR-2.1METAR390.02018-12-17 21:05:43B›‹~({5    3KHPT 172055Z AUTO 13003KT 10SM CLR 06/M01 A3020 RMK AO2KHPT2018-12-17T20:55:00Z42.58-93.236.0-1.0130310.030.200787TRUETRUEVFRMETAR358.02018-12-17 21:05:43S›‹})5    3KHRX 172055Z AUTO 18011KT 10SM SCT100 14/M06 A3015 RMK AO2 T01401060KHRX2018-12-17T20:55:00Z34.87-102.3314.0-6.01801110.030.15059TRUETRUEVFRMETAR1154.02018-12-17 21:05:43 Á-[•ÁN›‹‚)5   3KHCR 172055Z AUTO 21020G27KT 10SM SCT055 07/M06 A3010 RMK AO2KHCR2018-12-17T20:55:00Z40.48-111.437.0-6.0210202710.030.100393TRUETRUEVFRMETAR1706.02018-12-17 21:05:43@›‹‚({5    3KHFJ 172055Z AUTO 00000KT 10SM CLR 14/M01 A3020 RMK AO2KHFJ2018-12-17T20:55:00Z36.9-94.0214.0-1.00010.030.200787TRUETRUEVFRMETAR401.02018-12-17 21:05:43L›‹‚)5    3KHFY 172055Z AUTO 33008KT 10SM CLR 06/M01 A3015 RMK AO2 T00591013KHFY2018-12-17T20:55:00Z39.63-86.085.9-1.3330810.030.15059TRUETRUEVFRMETAR251.02018-12-17 21:05:43M›‹‚)5    3KHHF 172055Z AUTO 15010KT 10SM CLR 14/M04 A3015 RMK AO2 T01351041KHHF2018-12-17T20:55:00Z35.9-100.413.5-4.11501010.030.15059TRUETRUEVFRMETAR712.02018-12-17 21:05:43 !6fŸë!D›‹‚ ({5    3KSYM 172055Z AUTO 31010KT 10SM CLR 10/M01 A3012 RMK AO2KSYM2018-12-17T20:55:00Z38.22-83.5810.0-1.03101010.030.121063TRUETRUEVFRMETAR313.02018-12-17 21:05:43.›‹‚(e5   3MUHA 172055Z 03007KT 9000 FEW030 24/18 Q1018MUHA2018-12-17T20:55:00Z22.97-82.4224.018.03075.5930.059055VFRMETAR64.02018-12-17 21:05:43A›‹‚({5    3KGWB 172055Z AUTO 28009KT 10SM CLR 05/M02 A3011 RMK AO2KGWB2018-12-17T20:55:00Z41.3-85.075.0-2.0280910.030.109253TRUETRUEVFRMETAR269.02018-12-17 21:05:43J›‹‚) 5    3KGYB 172055Z AUTO 00000KT 10SM CLR 20/03 A3019 RMK AO2 T02030028KGYB2018-12-17T20:55:00Z30.17-96.9820.32.80010.030.188976TRUETRUEVFRMETAR148.02018-12-17 21:05:43D›‹‚(}5    3KHCO 172055Z AUTO 15007KT 10SM CLR M05/M09 A3013 RMK AO2KHCO2018-12-17T20:55:00Z48.75-96.93-5.0-9.0150710.030.129921TRUETRUEVFRMETAR250.02018-12-17 21:05:43 Í!Z”́A›‹‚ (y5    3KLKR 172055Z AUTO 25004KT 10SM CLR 17/02 A3001 RMK AO2KLKR2018-12-17T20:55:00Z34.72-80.8517.02.0250410.030.008858TRUETRUEVFRMETAR149.02018-12-17 21:05:43@›‹‚ (y5    3KLRJ 172055Z AUTO 17012KT 10SM CLR 06/01 A3006 RMK AO2KLRJ2018-12-17T20:55:00Z42.77-96.26.01.01701210.030.059055TRUETRUEVFRMETAR365.02018-12-17 21:05:43A›‹‚ (y5    3KM40 172055Z AUTO 23004KT 10SM CLR 10/10 A3023 RMK AO2KM402018-12-17T20:55:00Z33.87-88.4810.010.0230410.030.230314TRUETRUEVFRMETAR69.02018-12-17 21:05:43Y›‹‚ )5   3KSLH 172055Z AUTO 30011G17KT 10SM OVC021 M02/M06 A3010 RMK AO2 T10191057KSLH2018-12-17T20:55:00Z45.65-84.52-1.9-5.7300111710.030.100393TRUETRUEMVFRMETAR195.02018-12-17 21:05:43 7n ÝC›‹‚(}5    3KJFX 172055Z AUTO 27005KT 10SM 18/06 A3017 RMK AO2 PWINOKJFX2018-12-17T20:55:00Z33.9-87.3218.06.0270510.030.171259TRUETRUETRUEMETAR148.02018-12-17 21:05:43=›‹‚(y5    3KJVW 172055Z AUTO 00000KT 10SM CLR 19/09 A3018 RMK AO2KJVW2018-12-17T20:55:00Z32.3-90.4219.09.00010.030.180119TRUETRUEVFRMETAR76.02018-12-17 21:05:43H›‹‚)5     3KJZI 172055Z AUTO 25004KT 10SM CLR 17/08 A3003 RMK AO2 PWINOKJZI2018-12-17T20:55:00Z32.7-80.017.08.0250410.030.029528TRUETRUETRUEVFRMETAR6.02018-12-17 21:05:43C›‹‚({5    3KKY8 172055Z AUTO 27006KT 10SM CLR 12/M03 A3018 RMK A01KKY82018-12-17T20:55:00Z37.95-86.8712.0-3.0270610.030.180119TRUETRUEVFRMETAR126.02018-12-17 21:05:43C›‹‚({5    3KL08 172055Z AUTO 15007KT 10SM CLR 20/M00 A3009 RMK AO2KL082018-12-17T20:55:00Z33.27-116.3220.00.0150710.030.088583TRUETRUEVFRMETAR159.02018-12-17 21:05:43 À2Z“ÀM›‹‚)5     3KHZE 172055Z AUTO 16009KT 10SM CLR 04/M03 A2990 RMK AO2 TSNOKHZE2018-12-17T20:55:00Z47.28-101.584.0-3.0160910.029.899607TRUETRUETRUEVFRMETAR553.02018-12-17 21:05:43A›‹‚({5    3KICL 172055Z AUTO 19007KT 10SM CLR 09/M00 A3021 RMK AO2KICL2018-12-17T20:55:00Z40.72-95.029.00.0190710.030.209646TRUETRUEVFRMETAR303.02018-12-17 21:05:43R›‹‚)5   3KIDI 172055Z AUTO 32011G19KT 10SM SCT024 OVC033 02/M03 A2998 RMK A01KIDI2018-12-17T20:55:00Z40.62-79.082.0-3.0320111910.029.97933TRUETRUEVFRMETAR429.02018-12-17 21:05:43H›‹‚)5   3KIKV 172055Z AUTO 20006G11KT 10SM CLR 09/M05 A3020 RMK AO2KIKV2018-12-17T20:55:00Z41.68-93.579.0-5.020061110.030.200787TRUETRUEVFRMETAR275.02018-12-17 21:05:43 ï8v±ï<›‹‚(s5   3KGWR 172055Z AUTO 11014KT 10SM 02/M05 A3004 RMK A01KGWR2018-12-17T20:55:00Z46.22-97.652.0-5.01101410.030.041338TRUETRUEMETAR386.02018-12-17 21:05:43?›‹‚(y5    3KGZL 172055Z AUTO 08004KT 10SM CLR 13/03 A3020 RMK AO2KGZL2018-12-17T20:55:00Z35.28-95.113.03.080410.030.200787TRUETRUEVFRMETAR183.02018-12-17 21:05:43<›‹‚(w5    3KHEG 172055Z AUTO VRB04KT 9SM CLR 16/10 A3009 RMK AO2KHEG2018-12-17T20:55:00Z30.28-81.816.010.0049.030.088583TRUETRUEVFRMETAR27.02018-12-17 21:05:43B›‹‚({5    3KHNR 172055Z AUTO 18008KT 10SM CLR 03/M01 A3016 RMK AO2KHNR2018-12-17T20:55:00Z41.58-95.333.0-1.0180810.030.159449TRUETRUEVFRMETAR375.02018-12-17 21:05:43 §Ia§4›‹‚(s5   3KGEU 172055Z 00000KT 10SM FEW100 BKN150 19/01 A3012KGEU2018-12-17T20:55:00Z33.53-112.319.01.00010.030.121063VFRMETAR325.02018-12-17 21:05:43b›‹‚)55     3KGNT 172055Z AUTO 15006KT 10SM DZ SCT032 SCT045 OVC055 07/02 A3020 RMK AO2 T00710017KGNT2018-12-17T20:55:00Z35.17-107.97.11.7150610.030.200787TRUETRUEDZVFRMETAR1987.02018-12-17 21:05:43@›‹‚({5    3KGPC 172055Z AUTO 00000KT 10SM CLR 06/M03 A3017 RMK AO2KGPC2018-12-17T20:55:00Z39.63-86.826.0-3.00010.030.171259TRUETRUEVFRMETAR257.02018-12-17 21:05:43k›‹‚)?5    3KGPI 172055Z 26003KT 10SM FEW049 BKN085 OVC110 06/01 A2992 RMK AO2 SLP152 T00560006 56010KGPI2018-12-17T20:55:00Z48.32-114.255.60.6260310.029.9202751015.2TRUEVFR-1.0METAR908.02018-12-17 21:05:43 Ê1hžÊN›‹‚")5    3KEZZ 172055Z AUTO 19005KT 10SM CLR 11/M04 A3022 RMK AO2 T01111040KEZZ2018-12-17T20:55:00Z39.72-94.2811.1-4.0190510.030.221457TRUETRUEVFRMETAR317.02018-12-17 21:05:43D›‹‚!(5    3KF70 172055Z AUTO 17006KT 10SM SCT029 17/09 A3015 RMK AO1KF702018-12-17T20:55:00Z33.57-117.1317.09.0170610.030.15059TRUETRUEVFRSPECI412.02018-12-17 21:05:43C›‹‚ (y5    3KFOT 172055Z AUTO 12013KT 10SM CLR 12/11 A3015 RMK AO1KFOT2018-12-17T20:55:00Z40.55-124.1312.011.01201310.030.15059TRUETRUEVFRSPECI120.02018-12-17 21:05:43I›‹‚)5   3KFMM 172055Z AUTO 28003KT 10SM 13/M11 A2999 RMK AO2 T01291113KFMM2018-12-17T20:55:00Z40.33-103.812.9-11.3280310.029.991142TRUETRUEMETAR1393.02018-12-17 21:05:43 Å7h˜ÅM›‹‚&)5   3KEKS 172055Z AUTO 17015G21KT 10SM BKN080 07/M05 A2998 RMK AO2KEKS2018-12-17T20:55:00Z45.27-111.657.0-5.0170152110.029.97933TRUETRUEVFRSPECI1641.02018-12-17 21:05:43J›‹‚%) 5    3KELA 172055Z AUTO 19004KT 10SM CLR 21/03 A3018 RMK AO2 T02140032KELA2018-12-17T20:55:00Z29.6-96.3221.43.2190410.030.180119TRUETRUEVFRSPECI56.02018-12-17 21:05:43I›‹‚$) 5    3KENL 172055Z AUTO 00000KT 10SM CLR 10/00 A3021 RMK AO2 T00951001KENL2018-12-17T20:55:00Z38.52-89.19.5-0.10010.030.209646TRUETRUEVFRSPECI163.02018-12-17 21:05:43C›‹‚#({5    3KEQA 172055Z AUTO 19009KT 10SM CLR 16/M06 A3020 RMK AO2KEQA2018-12-17T20:55:00Z37.78-96.8216.0-6.0190910.030.200787TRUETRUEVFRMETAR420.02018-12-17 21:05:43 Æ]ŒÆ@›‹‚*(y5    3KGCY 172055Z AUTO 25006KT 10SM CLR 11/02 A3010 RMK A01KGCY2018-12-17T20:55:00Z36.2-82.8211.02.0250610.030.100393TRUETRUEVFRMETAR490.02018-12-17 21:05:43K›‹‚))5   3KGHG 172055Z AUTO VRB04G10KT 10SM FEW042 FEW050 05/00 A2951 RMK AO2KGHG2018-12-17T20:55:00Z42.1-70.675.00.0041010.029.509842TRUETRUEVFRSPECI4.02018-12-17 21:05:439›‹‚((q5   3KVDF 172055Z AUTO 30003KT 10SM 18/10 A3010 RMK AO2KVDF2018-12-17T20:55:00Z28.02-82.3318.010.0300310.030.100393TRUETRUEMETAR7.02018-12-17 21:05:43^›‹‚')#5    3KEFK 172055Z AUTO 29010G14KT 5SM -SN OVC016 M01/M03 A2955 RMK AO2 T10111026KEFK2018-12-17T20:55:00Z44.88-72.23-1.1-2.629010145.029.551182TRUETRUE-SNMVFRSPECI284.02018-12-17 21:05:43 ×0o©×L›‹‚.) 5    3KFVX 172055Z AUTO 21004KT 10SM CLR 12/02 A2987 RMK AO2 T01150024KFVX2018-12-17T20:55:00Z37.35-78.4211.52.4210410.029.870079TRUETRUEVFRMETAR125.02018-12-17 21:05:43@›‹‚-(y5    3KFYE 172055Z AUTO 33005KT 10SM CLR 14/02 A3019 RMK A01KFYE2018-12-17T20:55:00Z35.2-89.3814.02.0330510.030.188976TRUETRUEVFRMETAR133.02018-12-17 21:05:43;›‹‚,(s5   3KFYG 172055Z AUTO 34004KT 10SM 11/M02 A3024 RMK AO2KFYG2018-12-17T20:55:00Z38.58-91.011.0-2.0340410.030.239174TRUETRUEMETAR149.02018-12-17 21:05:43J›‹‚+)5    3KFZG 172055Z AUTO 26004KT CLR 18/09 A3010 RMK AO2 T01800088 PWINOKFZG2018-12-17T20:55:00Z31.68-83.2718.08.8260430.100393TRUETRUETRUEMETAR111.02018-12-17 21:05:43 Ö6n¦ÖJ›‹‚2) 5    3KDVO 172055Z AUTO 34006KT 8SM FEW006 FEW050 13/12 A3022 RMK AO2KDVO2018-12-17T20:55:00Z38.15-122.5513.012.034068.030.221457TRUETRUEVFRSPECI1.02018-12-17 21:05:43B›‹‚1({5    3KECS 172055Z AUTO 00000KT 10SM CLR 08/M05 A2994 RMK AO2KECS2018-12-17T20:55:00Z43.88-104.328.0-5.00010.029.940945TRUETRUEVFRSPECI1273.02018-12-17 21:05:43B›‹‚0(y5    3KEDU 172055Z AUTO 13004KT 10SM CLR 14/10 A3021 RMK AO1KEDU2018-12-17T20:55:00Z38.53-121.7814.010.0130410.030.209646TRUETRUEVFRMETAR21.02018-12-17 21:05:43D›‹‚/({5    3KFTN 172055Z AUTO 12008KT 10SM CLR 23/M02 A3013 RMK A01KFTN2018-12-17T20:55:00Z28.22-100.0223.0-2.0120810.030.129921TRUETRUEVFRSPECI236.02018-12-17 21:05:43 Ð0i¢ÐL›‹‚6)5    3KD39 172055Z AUTO 09010KT 10SM CLR 01/M09 A3016 RMK AO2 T00101088KD392018-12-17T20:55:00Z45.7-94.931.0-8.8901010.030.159449TRUETRUEVFRSPECI380.02018-12-17 21:05:43A›‹‚5(y5    3KDED 172055Z AUTO 27005KT 10SM CLR 18/10 A3007 RMK AO2KDED2018-12-17T20:55:00Z29.07-81.2818.010.0270510.030.070866TRUETRUEVFRMETAR24.02018-12-17 21:05:43A›‹‚4(y5    3KDKX 172055Z AUTO 22004KT 10SM CLR 13/03 A3013 RMK A01KDKX2018-12-17T20:55:00Z35.97-83.8713.03.0220410.030.129921TRUETRUEVFRMETAR254.02018-12-17 21:05:43J›‹‚3) 5    3KDUC 172055Z AUTO 00000KT 10SM CLR 12/00 A3022 RMK AO2 T01150001KDUC2018-12-17T20:55:00Z34.47-97.9711.50.10010.030.221457TRUETRUEVFRMETAR339.02018-12-17 21:05:43 È<k™ÈK›‹‚:) 5    3KCTY 172055Z AUTO 33004KT 10SM CLR 18/10 A3010 RMK AO2 T01840103KCTY2018-12-17T20:55:00Z29.63-83.118.410.3330410.030.100393TRUETRUEVFRMETAR13.02018-12-17 21:05:43L›‹‚9)5    3KCUH 172055Z AUTO 00000KT 10SM CLR 13/M01 A3020 RMK AO2 T01261014KCUH2018-12-17T20:55:00Z35.95-96.7712.6-1.40010.030.200787TRUETRUEVFRMETAR279.02018-12-17 21:05:43K›‹‚8) 5    3KCXE 172055Z AUTO 26005KT 10SM CLR 13/01 A2991 RMK AO1 T01330005KCXE2018-12-17T20:55:00Z36.78-78.513.30.5260510.029.911417TRUETRUEVFRMETAR153.02018-12-17 21:05:43>›‹‚7(y5    3KCXW 172055Z AUTO 00000KT 10SM CLR 15/05 A3020 RMK A01KCXW2018-12-17T20:55:00Z35.02-92.5515.05.00010.030.200787TRUETRUEVFRMETAR84.02018-12-17 21:05:43 Y+>Y_›‹‚>)15    3CYQI 172055Z 33008KT 3SM -SHRA BR OVC009 03/02 A2927 RMK SF8 CVCTV CLD EMBD SLP913CYQI2018-12-17T20:55:00Z43.83-66.083.02.033083.029.27067991.3-SHRA BRIFRSPECI43.02018-12-17 21:05:43g›‹‚=)A5    3PTKK 172055Z VRB03KT 15SM FEW014 SCT280 28/25 A2978 RMK SLP088 60003 8/101 T02780248 52017PTKK2018-12-17T20:55:00Z7.47151.8527.824.80315.029.7785431008.8VFR1.70.03METAR2.02018-12-17 21:05:43m›‹‚<)C5    3KNBG 172055Z 00000KT 10SM FEW030 BKN150 OVC200 16/09 A3021 RMK AO2 SLP229 T01610094 56022 $KNBG2018-12-17T20:55:00Z29.82-90.0216.19.40010.030.2096461022.9TRUETRUEVFR-2.2METAR1.02018-12-17 21:05:43\›‹‚;)!5    3KNFG 172055Z 25006KT 7SM BKN030 18/12 A3015 RMK AO2 SLP209 T01780117 58025KNFG2018-12-17T20:55:00Z33.28-117.3317.811.725067.030.150591020.9TRUEMVFR-2.5METAR24.02018-12-17 21:05:43 -.[F›‹‚B)5   3KDNS 172055Z AUTO 17007G14KT 10SM CLR 05/M00 A3015 RMK AO2KDNS2018-12-17T20:55:00Z41.97-95.375.00.017071410.030.15059TRUETRUEVFRMETAR388.02018-12-17 21:05:43M›‹‚A)5     3KFFL 172055Z AUTO 25003KT 10SM CLR 09/M07 A3021 RMK AO2 PWINOKFFL2018-12-17T20:55:00Z41.03-91.979.0-7.0250310.030.209646TRUETRUETRUEVFRMETAR244.02018-12-17 21:05:43y›‹‚@)K5   3KBYS 172055Z AUTO 21013G21KT 10SM CLR 18/02 A3009 RMK AO2 SLP197 WND DATA ESTMD T01790015 56029KBYS2018-12-17T20:55:00Z35.28-116.6217.91.5210132110.030.0885831019.7TRUETRUEVFR-2.9METAR716.02018-12-17 21:05:43M›‹‚?)5     3EHDL 172055Z AUTO 21007KT 160V230 4400 BR FEW016 BKN350 04/04 Q1022 GRNEHDL2018-12-17T20:55:00Z52.075.874.04.021072.7330.177166TRUEBRIFRMETAR52.02018-12-17 21:05:43 À!NˆÀB›‹‚F({5    3KD60 172055Z AUTO 21008KT 10SM CLR 05/M02 A2984 RMK AO2KD602018-12-17T20:55:00Z48.38-102.95.0-2.0210810.029.840551TRUETRUEVFRMETAR693.02018-12-17 21:05:43@›‹‚E({5    3KDEH 172055Z AUTO 00000KT 10SM CLR 03/M07 A3020 RMK AO2KDEH2018-12-17T20:55:00Z43.27-91.723.0-7.00010.030.200787TRUETRUEVFRMETAR353.02018-12-17 21:05:43M›‹‚D)5    3KDLL 172055Z AUTO 28004KT 10SM CLR 02/M08 A3021 RMK AO2 T00151084KDLL2018-12-17T20:55:00Z43.52-89.771.5-8.4280410.030.209646TRUETRUEVFRMETAR299.02018-12-17 21:05:43Y›‹‚C)#5     3KDNA 172055Z AUTO 00000KT 10SM -DZ BKN055 BKN065 BKN080 13/04 A3016 RMK AO2KDNA2018-12-17T20:55:00Z31.88-106.713.04.00010.030.159449TRUETRUE-DZVFRMETAR1253.02018-12-17 21:05:43 Ý7o Ý=›‹‚J(y5    3KMCJ 172055Z AUTO 00000KT 10SM CLR 21/06 A3017 RMK A01KMCJ2018-12-17T20:55:00Z29.72-95.421.06.00010.030.171259TRUETRUEVFRMETAR69.02018-12-17 21:05:43I›‹‚I) 5    3KMNI 172055Z AUTO 25007KT 210V270 10SM CLR 17/06 A3001 RMK AO2KMNI2018-12-17T20:55:00Z33.58-80.2217.06.0250710.030.008858TRUETRUEVFRMETAR32.02018-12-17 21:05:43B›‹‚H({5    3KCSQ 172055Z AUTO 19007KT 10SM CLR 09/M03 A3020 RMK AO2KCSQ2018-12-17T20:55:00Z41.02-94.379.0-3.0190710.030.200787TRUETRUEVFRMETAR394.02018-12-17 21:05:43C›‹‚G({5    3KD50 172055Z AUTO 20012KT 10SM CLR 04/M01 A2981 RMK AO2KD502018-12-17T20:55:00Z48.93-103.34.0-1.02001210.029.811024TRUETRUEVFRMETAR595.02018-12-17 21:05:43 Å+QÅB›‹‚N({5  3K96D 172055Z AUTO 14008G15KT 10SM M06/M10 A3009 RMK AO2K96D2018-12-17T20:55:00Z48.93-97.9-6.0-10.014081510.030.088583TRUETRUEMETAR290.02018-12-17 21:05:43>›‹‚M(y5    3KCCA 172055Z AUTO 00000KT 10SM CLR 16/01 A3020 RMK AO2KCCA2018-12-17T20:55:00Z35.6-92.4516.01.00010.030.200787TRUETRUEVFRMETAR157.02018-12-17 21:05:43T›‹‚L)5   3KLDJ 172055Z AUTO 32017G24KT 10SM OVC060 06/M03 A2974 RMK AO2 T00641035KLDJ2018-12-17T20:55:00Z40.62-74.256.4-3.5320172410.029.740158TRUETRUEVFRMETAR7.02018-12-17 21:05:43O›‹‚K)5    3KLNL 172055Z AUTO 32003KT 10SM CLR M01/M09 A3017 RMK AO2 T10151088KLNL2018-12-17T20:55:00Z46.15-89.22-1.5-8.8320310.030.171259TRUETRUEVFRMETAR520.02018-12-17 21:05:43 Ó2iŸÓF›‹‚R(}5    3KRUG 172055Z AUTO 13017KT 10SM CLR M04/M07 A2993 RMK AO2KRUG2018-12-17T20:55:00Z48.38-100.02-4.0-7.01301710.029.929134TRUETRUEVFRMETAR472.02018-12-17 21:05:43D›‹‚Q(}5    3KS32 172055Z AUTO 12015KT 10SM CLR M02/M06 A3005 RMK AO2KS322018-12-17T20:55:00Z47.42-98.1-2.0-6.01201510.030.050198TRUETRUEVFRMETAR684.02018-12-17 21:05:43C›‹‚P({5    3K2V5 172055Z AUTO 17006KT 10SM CLR 16/M07 A2998 RMK AO2K2V52018-12-17T20:55:00Z40.1-102.2516.0-7.0170610.029.97933TRUETRUEVFRMETAR1118.02018-12-17 21:05:43H›‹‚O)5    3K74V 172055Z AUTO 00000KT 10SM SCT110 M02/M07 A3022 RMK AO2K74V2018-12-17T20:55:00Z40.28-110.05-2.0-7.00010.030.221457TRUETRUEVFRMETAR1576.02018-12-17 21:05:43 Á-]–ÁO›‹‚V)5    3KONZ 172055Z AUTO 31008KT 10SM OVC038 04/M04 A3008 RMK AO2 T00351041KONZ2018-12-17T20:55:00Z42.1-83.153.5-4.1310810.030.079725TRUETRUEVFRMETAR180.02018-12-17 21:05:43A›‹‚U({5    3KMBY 172055Z AUTO 00000KT 10SM CLR 11/M06 A3025 RMK AO2KMBY2018-12-17T20:55:00Z39.47-92.4311.0-6.00010.030.250984TRUETRUEVFRSPECI264.02018-12-17 21:05:43J›‹‚T)5    3TXKF 172055Z 26019KT 9999 -SHRA SCT035 BKN065 BKN300 21/15 Q1009 TXKF2018-12-17T20:55:00Z32.37-64.6821.015.0260196.2129.793306-SHRAVFRMETAR6.02018-12-17 21:05:43M›‹‚S)5    3KPCZ 172055Z AUTO 25007KT 10SM CLR 03/M08 A3021 RMK AO2 T00261079KPCZ2018-12-17T20:55:00Z44.33-89.022.6-7.9250710.030.209646TRUETRUEVFRMETAR252.02018-12-17 21:05:43 ò*XB›‹‚Z({5    3KMBT 172055Z AUTO 22003KT 10SM CLR 14/M01 A3015 RMK A01KMBT2018-12-17T20:55:00Z35.88-86.3814.0-1.0220310.030.15059TRUETRUEVFRMETAR188.02018-12-17 21:05:43L›‹‚Y) 5    3KMDQ 172055Z AUTO 34007KT 10SM CLR 15/04 A3016 RMK A02 T01460039KMDQ2018-12-17T20:55:00Z34.87-86.5514.63.9340710.030.159449TRUETRUEVFRMETAR230.02018-12-17 21:05:43B›‹‚X({5    3KMEV 172055Z AUTO 00000KT 10SM CLR 09/M07 A3011 RMK AO2KMEV2018-12-17T20:55:00Z38.98-119.759.0-7.00010.030.109253TRUETRUEVFRSPECI1439.02018-12-17 21:05:43‚›‹‚W)}5   3NZCM 172055Z 19024G31KT 9999 FEW030 SCT110 SCT190 M03/M09 A2909 RMK AO2A PK WND 21033/36 ACSL SW AND NW SLP852 T10281093NZCM2018-12-17T20:55:00Z-77.85166.67-2.8-9.319024316.2129.090551985.2TRUEVFRMETAR8.02018-12-17 21:05:43 Å:o˜ÅM›‹‚^)5    3KMGG 172055Z AUTO 11003KT 10SM CLR 02/M06 A3021 RMK AO2 T00151062KMGG2018-12-17T20:55:00Z45.23-93.981.5-6.2110310.030.209646TRUETRUEVFRSPECI313.02018-12-17 21:05:43Q›‹‚])5   3KMKJ 172055Z AUTO 26015G19KT 10SM CLR 09/04 A3004 RMK AO2 T00930040KMKJ2018-12-17T20:55:00Z36.88-81.339.34.0260151910.030.041338TRUETRUEVFRMETAR780.02018-12-17 21:05:43E›‹‚\)5    3KM75 172055Z AUTO 00000KT 10SM OVC120 02/M01 A2980 RMK A01KM752018-12-17T20:55:00Z48.37-107.922.0-1.00010.029.799213TRUETRUEVFRMETAR687.02018-12-17 21:05:43@›‹‚[(y5    3KM91 172055Z AUTO 28005KT 10SM CLR 13/01 A3015 RMK A01KM912018-12-17T20:55:00Z36.53-86.9213.01.0280510.030.15059TRUETRUEVFRMETAR215.02018-12-17 21:05:43 =v¯à?›‹‚c(y5    3KMRC 172055Z AUTO 00000KT 10SM CLR 14/01 A3016 RMK A01KMRC2018-12-17T20:55:00Z35.55-87.1814.01.00010.030.159449TRUETRUEVFRMETAR208.02018-12-17 21:05:43I›‹‚b)5    3KMVH 172055Z AUTO 29007KT 10SM OVC085 12/M07 A2988 RMK AO2KMVH2018-12-17T20:55:00Z46.83-108.9312.0-7.0290710.029.878937TRUETRUEVFRSPECI1355.02018-12-17 21:05:43A›‹‚a(y5    3KMOR 172055Z AUTO 25008KT 10SM CLR 12/03 A3010 RMK A01KMOR2018-12-17T20:55:00Z36.18-83.3712.03.0250810.030.100393TRUETRUEVFRMETAR400.02018-12-17 21:05:43A›‹‚`(y5    3KMNV 172055Z AUTO 35005KT 10SM CLR 14/02 A3013 RMK A01KMNV2018-12-17T20:55:00Z35.55-84.3814.02.0350510.030.129921TRUETRUEVFRMETAR314.02018-12-17 21:05:43=›‹‚_(y5    3KMMI 172055Z AUTO 00000KT 10SM CLR 14/03 A3015 RMK A01KMMI2018-12-17T20:55:00Z35.4-84.5714.03.00010.030.15059TRUETRUEVFRMETAR266.02018-12-17 21:05:43 ½.gŽ½K›‹‚g)5   3KN38 172055Z AUTO 30008G16KT 10SM OVC022 00/M04 A2980 RMK AO2KN382018-12-17T20:55:00Z41.73-77.40.0-4.030081610.029.799213TRUETRUEMVFRSPECI577.02018-12-17 21:05:43S›‹‚f)5    3KO32 172055Z AUTO 00000KT 10SM SCT016 BKN034 OVC043 14/13 A3020 RMK AO2KO322018-12-17T20:55:00Z36.67-119.4514.013.00010.030.200787TRUETRUEVFRSPECI117.02018-12-17 21:05:43A›‹‚e({5    3KMPZ 172055Z AUTO 00000KT 10SM CLR 10/M06 A3023 RMK AO2KMPZ2018-12-17T20:55:00Z40.95-91.5210.0-6.00010.030.230314TRUETRUEVFRSPECI224.02018-12-17 21:05:43L›‹‚d)5   3KMQS 172055Z AUTO 31017G26KT 10SM BKN049 06/M03 A2981 RMK AO2KMQS2018-12-17T20:55:00Z39.98-75.876.0-3.0310172610.029.811024TRUETRUEVFRSPECI201.02018-12-17 21:05:43 ¿.e•¿P›‹‚k)5    3KONM 172055Z AUTO 19008KT 10SM OVC090 11/02 A3017 RMK AO2 T01050016KONM2018-12-17T20:55:00Z34.02-106.910.51.6190810.030.171259TRUETRUEVFRSPECI1410.02018-12-17 21:05:43J›‹‚j) 5    3KOSA 172055Z AUTO 06005KT 10SM CLR 14/07 A3018 RMK AO1 T01390065KOSA2018-12-17T20:55:00Z33.1-94.9713.96.560510.030.180119TRUETRUEVFRSPECI111.02018-12-17 21:05:43C›‹‚i({5    3KOWI 172055Z AUTO 12003KT 10SM CLR 14/M02 A3021 RMK AO2KOWI2018-12-17T20:55:00Z38.53-95.2514.0-2.0120310.030.209646TRUETRUEVFRMETAR292.02018-12-17 21:05:43L›‹‚h)5    3KMWO 172055Z AUTO 31009KT 10SM CLR 06/M02 A3013 RMK AO2 T00651024KMWO2018-12-17T20:55:00Z39.53-84.46.5-2.4310910.030.129921TRUETRUEVFRSPECI198.02018-12-17 21:05:43 Æ._‹Æ?›‹‚o(y5    3KO69 172055Z AUTO 00000KT 10SM CLR 13/13 A3021 RMK A01KO692018-12-17T20:55:00Z38.25-122.613.013.00010.030.209646TRUETRUEVFRSPECI28.02018-12-17 21:05:43N›‹‚n)5    3KOGA 172055Z AUTO 13004KT 10SM CLR 08/M01 A2999 RMK AO2 T00781006KOGA2018-12-17T20:55:00Z41.12-101.777.8-0.6130410.029.991142TRUETRUEVFRSPECI999.02018-12-17 21:05:43I›‹‚m)5   3KOKV 172055Z AUTO 32014G23KT 10SM CLR 08/M03 A2987 RMK AO2KOKV2018-12-17T20:55:00Z39.13-78.158.0-3.0320142310.029.870079TRUETRUEVFRMETAR222.02018-12-17 21:05:43L›‹‚l) 5    3KONL 172055Z AUTO 19008KT 10SM CLR 10/00 A2998 RMK AO2 T01001001KONL2018-12-17T20:55:00Z42.47-98.6710.0-0.1190810.029.97933TRUETRUEVFRSPECI619.02018-12-17 21:05:43 ;s¡ÛB›‹‚t({5    3KOZS 172055Z AUTO 01004KT 10SM CLR 12/M03 A3023 RMK AO2KOZS2018-12-17T20:55:00Z37.97-92.6812.0-3.010410.030.230314TRUETRUEVFRMETAR324.02018-12-17 21:05:43@›‹‚s(y5    3KP08 172055Z AUTO VRB06KT 10SM CLR 20/05 A3012 RMK AO2KP082018-12-17T20:55:00Z32.93-111.4320.05.00610.030.121063TRUETRUEVFRSPECI481.02018-12-17 21:05:43L›‹‚r) 5    3KPBX 172055Z AUTO 26005KT 10SM CLR 10/01 A3008 RMK AO2 T01010012KPBX2018-12-17T20:55:00Z37.57-82.5710.11.2260510.030.079725TRUETRUEVFRMETAR449.02018-12-17 21:05:43B›‹‚q({5    3KPCW 172055Z AUTO 32006KT 10SM CLR 03/M03 A3009 RMK AO2KPCW2018-12-17T20:55:00Z41.52-82.873.0-3.0320610.030.088583TRUETRUEVFRSPECI178.02018-12-17 21:05:43?›‹‚p(y5    3KPHT 172055Z AUTO 00000KT 10SM CLR 14/01 A3018 RMK A01KPHT2018-12-17T20:55:00Z36.33-88.3814.01.00010.030.180119TRUETRUEVFRMETAR177.02018-12-17 21:05:43 Ð,\”Ё>›‹‚x(y5    3KRBW 172055Z AUTO 00000KT 10SM CLR 17/07 A3003 RMK AO2KRBW2018-12-17T20:55:00Z32.92-80.6317.07.00010.030.029528TRUETRUEVFRSPECI31.02018-12-17 21:05:43B›‹‚w({5    3KOWX 172055Z AUTO 31006KT 10SM CLR 03/M02 A3012 RMK AO1KOWX2018-12-17T20:55:00Z41.03-83.983.0-2.0310610.030.121063TRUETRUEVFRSPECI233.02018-12-17 21:05:43J›‹‚v) 5    3KAPS 172055Z AUTO 27007KT 10SM CLR 16/10 A3022 RMK AO2 T01600095KAPS2018-12-17T20:55:00Z30.08-90.5816.09.5270710.030.221457TRUETRUEVFRSPECI2.02018-12-17 21:05:43N›‹‚u)5    3K5M9 172055Z AUTO 34004KT 10SM CLR 12/M05 A3019 RMK AO2 T01201052K5M92018-12-17T20:55:00Z37.33-88.1212.0-5.2340410.030.188976TRUETRUEVFRSPECI199.02018-12-17 21:05:43 ¹'U†¹G›‹‚|) 5    3KW75 172055Z AUTO 00000KT 10SM CLR 12/05 A2984 RMK AO1 T01150045KW752018-12-17T20:55:00Z37.6-76.4511.54.50010.029.840551TRUETRUEVFRMETAR9.02018-12-17 21:05:43I›‹‚{) 5    3KW96 172055Z AUTO 25004KT 10SM CLR 12/01 A2985 RMK AO1 T01210014KW962018-12-17T20:55:00Z37.5-77.1212.11.4250410.029.84941TRUETRUEVFRMETAR37.02018-12-17 21:05:43L›‹‚z)5    3KVER 172055Z AUTO 00000KT 10SM CLR 11/M06 A3025 RMK AO2 T01061057KVER2018-12-17T20:55:00Z38.95-92.6810.6-5.70010.030.250984TRUETRUEVFRSPECI218.02018-12-17 21:05:43S›‹‚y)5    3KTFP 172055Z AUTO 15005KT 10SM BKN025 20/14 A3017 RMK AO2 T02030143 PNOKTFP2018-12-17T20:55:00Z27.92-97.2220.314.3150510.030.171259TRUETRUEMVFRMETAR6.02018-12-17 21:05:43 ½:u¢½_›‹ƒ)-5     3KBEA 172055Z AUTO 00000KT 3/4SM HZ VV005 23/04 A3016 RMK AO2 VIS 1/2V2 T02290042KBEA2018-12-17T20:55:00Z28.37-97.7822.94.2000.7530.159449TRUETRUEHZLIFR500METAR82.02018-12-17 21:05:43M›‹‚)5    3KBEC 172055Z AUTO 17005KT 10SM CLR 13/M03 A3019 RMK AO2 T01271033KBEC2018-12-17T20:55:00Z37.7-97.2212.7-3.3170510.030.188976TRUETRUEVFRMETAR429.02018-12-17 21:05:43?›‹‚~(}5    3KW31 172055Z AUTO 10SM CLR 12/02 A2989 RMK AO1 T01230017KW312018-12-17T20:55:00Z36.95-78.1812.31.710.029.890747TRUETRUEVFRMETAR162.02018-12-17 21:05:43@›‹‚}(y5    3KW63 172055Z AUTO 26006KT 10SM CLR 14/00 A2991 RMK AO1KW632018-12-17T20:55:00Z36.6-78.5514.00.0260610.029.911417TRUETRUEVFRMETAR129.02018-12-17 21:05:43 Â8d‘I›‹ƒ) 5    3KAXH 172055Z AUTO 00000KT 10SM CLR 24/08 A3019 RMK AO2 T02350084KAXH2018-12-17T20:55:00Z29.52-95.4823.58.40010.030.188976TRUETRUEVFRMETAR21.02018-12-17 21:05:43M›‹ƒ)5    3KAXS 172055Z AUTO 10003KT 10SM CLR 12/M02 A3021 RMK AO2 T01221025KAXS2018-12-17T20:55:00Z34.7-99.3312.2-2.5100310.030.209646TRUETRUEVFRMETAR437.02018-12-17 21:05:43N›‹ƒ) 5  3KAXX 172055Z AUTO 26013G21KT 10SM 03/M04 A3019 RMK AO2 T00321036KAXX2018-12-17T20:55:00Z36.42-105.283.2-3.6260132110.030.188976TRUETRUEMETAR2548.02018-12-17 21:05:43B›‹ƒ({5    3KBBB 172055Z AUTO 15008KT 10SM CLR 04/M06 A3013 RMK AO2KBBB2018-12-17T20:55:00Z45.32-95.654.0-6.0150810.030.129921TRUETRUEVFRMETAR317.02018-12-17 21:05:43 ™4:h™I›‹ƒ) 5    3KARM 172055Z AUTO 00000KT 10SM CLR 20/03 A3019 RMK AO2 T02000032KARM2018-12-17T20:55:00Z29.25-96.1520.03.20010.030.188976TRUETRUEVFRMETAR31.02018-12-17 21:05:43L›‹ƒ) 5    3KASN 172055Z AUTO 30006KT 10SM CLR 17/02 A3016 RMK AO2 T01650024KASN2018-12-17T20:55:00Z33.57-86.0516.52.4300610.030.159449TRUETRUEVFRMETAR162.02018-12-17 21:05:43t›‹ƒ)I5    3KAST 172055Z AUTO 16010KT 10SM SCT036 BKN049 BKN120 11/07 A2987 RMK AO2 SLP114 T01110067 58019KAST2018-12-17T20:55:00Z46.15-123.8811.16.71601010.029.8700791011.4TRUETRUEVFR-1.9METAR3.02018-12-17 21:05:43F›‹ƒ)5    3KASW 172055Z AUTO 30008KT 10SM SCT026 04/M02 A3013 RMK AO2KASW2018-12-17T20:55:00Z41.27-85.834.0-2.0300810.030.129921TRUETRUEVFRMETAR259.02018-12-17 21:05:43 Œ *aŒO›‹ƒ )5    3KAIG 172055Z AUTO 31005KT 10SM CLR M01/M09 A3017 RMK AO2 T10091090KAIG2018-12-17T20:55:00Z45.15-89.12-0.9-9.0310510.030.171259TRUETRUEVFRMETAR464.02018-12-17 21:05:44C›‹ƒ (}5    3KAIT 172055Z AUTO 00000KT 10SM CLR M01/M11 A3018 RMK AO2KAIT2018-12-17T20:55:00Z46.53-93.67-1.0-11.00010.030.180119TRUETRUEVFRMETAR367.02018-12-17 21:05:44[›‹ƒ )%5   3KAJR 172055Z AUTO 33012G16KT 300V360 10SM CLR 16/M03 A3005 RMK AO2 T01571031KAJR2018-12-17T20:55:00Z34.5-83.5515.7-3.1330121610.030.050198TRUETRUEVFRMETAR441.02018-12-17 21:05:44o›‹ƒ )75   3KANJ 172055Z AUTO 31012G23KT 10SM OVC017 M02/M06 A3007 RMK AO2 SLP190 T10171061 53015KANJ2018-12-17T20:55:00Z46.47-84.37-1.7-6.1310122310.030.0708661019.0TRUETRUEMVFR1.5METAR218.02018-12-17 21:05:44 ¦7Bx¦L›‹ƒ) 5    3K7W4 172055Z AUTO 22005KT 10SM CLR 12/02 A2984 RMK AO1 T01160015K7W42018-12-17T20:55:00Z37.97-77.7511.61.5220510.029.840551TRUETRUEVFRMETAR106.02018-12-17 21:05:44D›‹ƒ({5    3K82V 172055Z AUTO 00000KT 10SM CLR 15/M11 A2999 RMK AO2K82V2018-12-17T20:55:00Z41.15-104.1315.0-11.00010.029.991142TRUETRUEVFRMETAR1570.02018-12-17 21:05:44o›‹ƒ);5    3KAAT 172055Z AUTO 27006KT 10SM BKN025 OVC033 05/01 A3011 RMK AO2 SLP198 T00500006 57010KAAT2018-12-17T20:55:00Z41.48-120.575.00.6270610.030.1092531019.8TRUETRUEMVFR-1.0METAR1331.02018-12-17 21:05:44C›‹ƒ ({5    3KADC 172055Z AUTO 11008KT 10SM CLR 00/M10 A3014 RMK AO2KADC2018-12-17T20:55:00Z46.45-95.220.0-10.0110810.030.138779TRUETRUEVFRMETAR418.02018-12-17 21:05:44 µ7e‘µV›‹ƒ)5   3K4S1 172055Z AUTO 20017G28KT 7SM SCT027 SCT045 SCT050 12/07 A3004 RMK AO1K4S12018-12-17T20:55:00Z42.42-124.4212.07.020017287.030.041338TRUETRUEVFRMETAR5.02018-12-17 21:05:44N›‹ƒ)5    3K4V0 172055Z AUTO 00000KT 10SM CLR M02/M07 A3019 RMK AO2 T10191071K4V02018-12-17T20:55:00Z40.1-108.77-1.9-7.10010.030.188976TRUETRUEVFRMETAR1608.02018-12-17 21:05:44L›‹ƒ) 5    3K5R8 172055Z AUTO 18004KT 10SM CLR 18/11 A3019 RMK AO2 T01810106K5R82018-12-17T20:55:00Z30.43-93.4718.110.6180410.030.188976TRUETRUEVFRMETAR24.02018-12-17 21:05:44C›‹ƒ({5    3K6A2 172055Z AUTO 32007KT 10SM CLR 16/M02 A3010 RMK AO2K6A22018-12-17T20:55:00Z33.23-84.2716.0-2.0320710.030.100393TRUETRUEVFRMETAR292.02018-12-17 21:05:44 Ï;j£ÏN›‹ƒ)5    3K1K1 172055Z AUTO 18007KT 10SM CLR 13/M04 A3020 RMK AO2 T01321044K1K12018-12-17T20:55:00Z37.77-97.1213.2-4.4180710.030.200787TRUETRUEVFRMETAR416.02018-12-17 21:05:44A›‹ƒ(y5    3K28J 172055Z AUTO 28004KT 10SM CLR 18/10 A3009 RMK AO2K28J2018-12-17T20:55:00Z29.65-81.5818.010.0280410.030.088583TRUETRUEVFRMETAR15.02018-12-17 21:05:44K›‹ƒ) 5    3K3R7 172055Z AUTO 13004KT 10SM CLR 16/11 A3020 RMK AO2 T01640114K3R72018-12-17T20:55:00Z30.25-92.6716.411.4130410.030.200787TRUETRUEVFRMETAR7.02018-12-17 21:05:44?›‹ƒ(y5    3K4O4 172055Z AUTO 00000KT 10SM CLR 13/08 A3018 RMK AO2K4O42018-12-17T20:55:00Z33.92-94.8713.08.00010.030.180119TRUETRUEVFRMETAR144.02018-12-17 21:05:44 ­.[€­M›‹ƒ)5    3KY63 172055Z AUTO 14013KT 10SM CLR 01/M08 A3011 RMK AO2 T00131077KY632018-12-17T20:55:00Z45.98-96.01.3-7.71401310.030.109253TRUETRUEVFRMETAR367.02018-12-17 21:05:44U›‹ƒ)5   3K0E0 172055Z AUTO 17010G18KT 10SM OVC046 10/00 A3019 RMK AO2 T00990000K0E02018-12-17T20:55:00Z34.98-106.09.90.0170101810.030.188976TRUETRUEVFRMETAR1890.02018-12-17 21:05:44M›‹ƒ)5    3K0F2 172055Z AUTO 31003KT 10SM SCT120 10/03 A3021 RMK AO2 T00970031K0F22018-12-17T20:55:00Z33.6-97.789.73.1310310.030.209646TRUETRUEVFRMETAR336.02018-12-17 21:05:44L›‹ƒ) 5    3K0V4 172055Z AUTO 26006KT 10SM CLR 14/00 A2990 RMK AO1 T01390000K0V42018-12-17T20:55:00Z37.15-79.0213.90.0260610.029.899607TRUETRUEVFRMETAR182.02018-12-17 21:05:44Y8ƒ8@HPX`hpx€ˆ˜ ¨°¸ÀÈÐØàèðø (08@HPX`hpx€ˆ˜ ¨°¸ÀÈÐØàèðø (08@HPX`hpx€ˆ˜ ¨°¸ÀÈÐØàèðø ¨°¸ÀÈÐØàèðø)›‹‚ *›‹‚ +›‹‚,›‹‚-›‹‚.›‹‚/›‹‚"0›‹‚&1›‹‚*2›‹‚.3›‹‚24›‹‚6)›‹‚ *›‹‚ +›‹‚,›‹‚-›‹‚.›‹‚/›‹‚"0›‹‚&1›‹‚*2›‹‚.3›‹‚24›‹‚65›‹‚:6›‹‚>7›‹‚B8›‹‚F9›‹‚J:›‹‚N;›‹‚R<›‹‚V=›‹‚Z>›‹‚^?›‹‚c@›‹‚gA›‹‚kB›‹‚oC›‹‚tD›‹‚xE›‹‚|F›‹ƒG›‹ƒH›‹ƒI›‹ƒ J›‹ƒK›‹ƒL›‹ƒM›‹ƒO›‹ƒ P›‹ƒ$Q›‹ƒ(R›‹ƒ,S›‹ƒ0T›‹ƒ4U›‹ƒ8V›‹ƒ=W›‹ƒBX›‹ƒFY›‹ƒJZ›‹ƒO[›‹ƒS\›‹ƒW]›‹ƒ[^›‹ƒ__›‹ƒc`›‹ƒga›‹ƒkb›‹ƒpc›‹ƒud›‹ƒye›‹ƒ|f›‹ƒg›‹„h›‹„i›‹„ j›‹„k›‹„l›‹„m›‹„n›‹„o›‹„"p›‹„&q›‹„*r›‹„.s›‹„2t›‹„6u›‹„:v›‹„>w›‹„Bx›‹„Fy›‹„Jz›‹„N{›‹„S|›‹„W}›‹„[~›‹„_›‹„c€›‹„g›‹„k‚›‹„o ™Kl™M›‹ƒ )5    3KTIF 172055Z AUTO 19009KT 10SM CLR 08/M01 A2998 RMK AO2 T00781010KTIF2018-12-17T20:55:00Z41.97-100.577.8-1.0190910.029.97933TRUETRUEVFRSPECI892.02018-12-17 21:05:44Y›‹ƒ)!5   3KTMK 172055Z AUTO 15010G16KT 10SM SCT038 BKN044 OVC055 11/06 A2994 RMK AO2KTMK2018-12-17T20:55:00Z45.42-123.8211.06.0150101610.029.940945TRUETRUEVFRSPECI11.02018-12-17 21:05:44J›‹ƒ)5    3KY23 172055Z AUTO 00000KT 10SM CLR 00/M09 A3023 RMK AO2 T00001095KY232018-12-17T20:55:00Z45.3-91.630.0-9.50010.030.230314TRUETRUEVFRMETAR322.02018-12-17 21:05:44_›‹ƒ)+5   3KY31 172055Z AUTO 33007G16KT 300V360 10SM OVC028 00/M06 A3008 RMK AO2 T10041063KY312018-12-17T20:55:00Z44.25-84.18-0.4-6.333071610.030.079725TRUETRUEMVFRMETAR269.02018-12-17 21:05:44 Ø9ižØ@›‹ƒ$(y5    3KVKS 172055Z AUTO 24005KT 10SM CLR 18/09 A3020 RMK A01KVKS2018-12-17T20:55:00Z32.23-90.9318.09.0240510.030.200787TRUETRUEVFRMETAR32.02018-12-17 21:05:44E›‹ƒ#(}5    3KVWU 172055Z AUTO 12007KT 10SM CLR M02/M11 A3017 RMK AO2KVWU2018-12-17T20:55:00Z48.15-94.52-2.0-11.0120710.030.171259TRUETRUEVFRSPECI360.02018-12-17 21:05:44J›‹ƒ")5   3KULS 172055Z AUTO 17021G24KT 10SM CLR 16/M04 A3005 RMK AO2KULS2018-12-17T20:55:00Z37.6-101.3716.0-4.0170212410.030.050198TRUETRUEVFRMETAR936.02018-12-17 21:05:44A›‹ƒ!(y5    3KUCY 172055Z AUTO 35009KT 10SM CLR 13/03 A3019 RMK A01KUCY2018-12-17T20:55:00Z36.38-88.9813.03.0350910.030.188976TRUETRUEVFRMETAR104.02018-12-17 21:05:44 ´)[‡´M›‹ƒ()5    3KC62 172055Z AUTO 34008KT 10SM CLR 04/M04 A3010 RMK AO2 T00451041KC622018-12-17T20:55:00Z41.47-85.254.5-4.1340810.030.100393TRUETRUEVFRMETAR306.02018-12-17 21:05:44N›‹ƒ')5    3KBJI 172055Z AUTO 13006KT 10SM CLR M02/M10 A3015 RMK AO2 T10251103KBJI2018-12-17T20:55:00Z47.5-94.92-2.5-10.3130610.030.15059TRUETRUEVFRMETAR420.02018-12-17 21:05:44H›‹ƒ&) 5    3KBKS 172055Z AUTO 00000KT 10SM CLR 21/10 A3016 RMK AO1 T02090098KBKS2018-12-17T20:55:00Z27.2-98.1220.99.80010.030.159449TRUETRUEVFRMETAR34.02018-12-17 21:05:44Q›‹ƒ%)5     3KUTA 172055Z AUTO 01005KT 1SM +RA 13/05 A3021 RMK AO2 VIS 1/4V5 TSNOKUTA2018-12-17T20:55:00Z34.68-90.3513.05.01051.030.209646TRUETRUETRUE+RAMETAR59.02018-12-17 21:05:44 ¢6er¢J›‹ƒ,) 5    3KBYY 172055Z AUTO 00000KT 10SM CLR 21/11 A3017 RMK AO2 T02100116KBYY2018-12-17T20:55:00Z28.97-95.8721.011.60010.030.171259TRUETRUEVFRMETAR14.02018-12-17 21:05:44m›‹ƒ+)/5   3KCAO 172055Z AUTO 20021G25KT 10SM CLR 15/M06 A3008 RMK AO2 SLP167 T01501056 56024KCAO2018-12-17T20:55:00Z36.45-103.1515.0-5.6200212510.030.0797251016.7TRUETRUEVFR-2.4METAR1514.02018-12-17 21:05:44K›‹ƒ*) 5    3KBXA 172055Z AUTO 23004KT 10SM CLR 20/09 A3020 RMK AO2 T01960093KBXA2018-12-17T20:55:00Z30.82-89.8719.69.3230410.030.200787TRUETRUEVFRMETAR36.02018-12-17 21:05:44D›‹ƒ)({5    3KBPC 172055Z AUTO 19009KT 10SM CLR 15/M06 A3014 RMK AO2KBPC2018-12-17T20:55:00Z35.88-101.0315.0-6.0190910.030.138779TRUETRUEVFRMETAR845.02018-12-17 21:05:44 Ã7jŽÃE›‹ƒ0({5    3KCBK 172055Z AUTO 17018KT 10SM CLR 15/M08 A3003 RMK AO2KCBK2018-12-17T20:55:00Z39.43-101.0515.0-8.01701810.030.029528TRUETRUEVFRMETAR971.02018-12-17 21:05:44V›‹ƒ/)%5    3KCDA 172055Z AUTO 26009G24KT 10SM -SN BKN022 OVC028 00/M04 RMK AO2 T10051041KCDA2018-12-17T20:55:00Z44.57-72.02-0.5-4.126092410.0TRUETRUE-SNMVFRMETAR363.02018-12-17 21:05:44G›‹ƒ.)5     3KCDH 172055Z AUTO 02004KT 4SM HZ OVC005 12/10 A3019 RMK AO2KCDH2018-12-17T20:55:00Z33.62-92.7712.010.02044.030.188976TRUETRUEHZIFRMETAR35.02018-12-17 21:05:44C›‹ƒ-(5    3KCGC 172055Z AUTO 28006KT 10SM SCT019 15/11 A3011 RMK AO2KCGC2018-12-17T20:55:00Z28.87-82.5715.011.0280610.030.109253TRUETRUEVFRMETAR3.02018-12-17 21:05:44 ¹6n¹^›‹ƒ4)+5   3PAUT 172055Z AUTO 33013G21KT 10SM BKN031 BKN040 M02/M07 A2950 RMK AO2 T10221071PAUT2018-12-17T20:55:00Z54.15-165.6-2.2-7.1330132110.029.500984TRUETRUEVFRMETAR25.02018-12-17 21:05:44K›‹ƒ3) 5    3KCKP 172055Z AUTO 16008KT 10SM CLR 05/01 A3010 RMK AO2 T00460007KCKP2018-12-17T20:55:00Z42.73-95.554.60.7160810.030.100393TRUETRUEVFRMETAR374.02018-12-17 21:05:44B›‹ƒ2(}5    3KCKC 172055Z AUTO 00000KT 10SM CLR M06/M16 A3015 RMK AO2KCKC2018-12-17T20:55:00Z47.83-90.37-6.0-16.00010.030.15059TRUETRUEVFRMETAR548.02018-12-17 21:05:44D›‹ƒ1(}5    3KCKN 172055Z AUTO 13005KT 10SM CLR M03/M08 A3014 RMK AO2KCKN2018-12-17T20:55:00Z47.85-96.62-3.0-8.0130510.030.138779TRUETRUEVFRMETAR273.02018-12-17 21:05:44 ·Mx·;›‹ƒ8(w5    3K3S8 172055Z AUTO 00000KT 9SM CLR 08/07 A3008 RMK AO2K3S82018-12-17T20:55:00Z42.5-123.48.07.0009.030.079725TRUETRUEVFRMETAR343.02018-12-17 21:05:44O›‹ƒ7)5    3K46U 172055Z AUTO 00000KT 10SM BKN055 OVC120 M02/M06 A3011 RMK A01K46U2018-12-17T20:55:00Z43.18-111.05-2.0-6.00010.030.109253TRUETRUEVFRMETAR1717.02018-12-17 21:05:44B›‹ƒ6({5    3K5T9 172055Z AUTO VRB05KT 10SM CLR 19/M09 A3014 RMK A01K5T92018-12-17T20:55:00Z28.85-100.5219.0-9.00510.030.138779TRUETRUEVFRSPECI270.02018-12-17 21:05:44e›‹ƒ5)15    3KNKX 172055Z 00000KT 10SM BKN023 BKN031 19/10 A3017 RMK AO2 SLP211 T01890100 58019KNKX2018-12-17T20:55:00Z32.87-117.1318.910.00010.030.1712591021.1TRUEMVFR-1.9METAR146.02018-12-17 21:05:44 -i¢ÞA›‹ƒ=(y5    3K2A0 172055Z AUTO 32004KT 10SM CLR 15/02 A3013 RMK A01K2A02018-12-17T20:55:00Z35.48-84.9315.02.0320410.030.129921TRUETRUEVFRMETAR219.02018-12-17 21:05:44>›‹ƒ<(y5    3K2LS 172055Z AUTO 00000KT 10SM CLR 14/10 A3024 RMK AO2K2LS2018-12-17T20:55:00Z29.42-90.314.010.00010.030.239174TRUETRUEVFRMETAR-2.02018-12-17 21:05:44A›‹ƒ;(y5    3K2M2 172055Z AUTO 33004KT 10SM CLR 14/01 A3016 RMK A01K2M22018-12-17T20:55:00Z35.23-87.2514.01.0330410.030.159449TRUETRUEVFRMETAR286.02018-12-17 21:05:44>›‹ƒ:(y5    3K3L4 172055Z AUTO 11006KT 10SM CLR 17/12 A3019 RMK A01K3L42018-12-17T20:55:00Z29.8-92.817.012.0110610.030.188976TRUETRUEVFRMETAR2.02018-12-17 21:05:44M›‹ƒ9)5    3K3N8 172055Z AUTO 14009KT 10SM CLR 00/M10 A3012 RMK AO2 T00001099K3N82018-12-17T20:55:00Z47.25-95.880.0-9.9140910.030.121063TRUETRUEVFRMETAR383.02018-12-17 21:05:44 ;vªâ>›‹ƒB(y5    3KCRX 172055Z AUTO 00000KT 10SM CLR 15/02 A3019 RMK AO2KCRX2018-12-17T20:55:00Z34.92-88.615.02.00010.030.188976TRUETRUEVFRMETAR130.02018-12-17 21:05:44B›‹ƒA({5    3K05U 172055Z AUTO 16011KT 10SM CLR 08/M00 A3011 RMK A01K05U2018-12-17T20:55:00Z39.6-116.08.00.01601110.030.109253TRUETRUEVFRMETAR1816.02018-12-17 21:05:44F›‹ƒ@(5   3K0A9 172055Z AUTO 26006G12KT 10SM CLR 11/02 A3009 RMK AO2K0A92018-12-17T20:55:00Z36.37-82.1711.02.026061210.030.088583TRUETRUEVFRMETAR486.02018-12-17 21:05:44?›‹ƒ?(y5    3K0R0 172055Z AUTO 36003KT 10SM CLR 19/08 A3023 RMK AO2K0R02018-12-17T20:55:00Z31.3-89.8219.08.0360310.030.230314TRUETRUEVFRMETAR81.02018-12-17 21:05:44?›‹ƒ>(y5    3K1M5 172055Z AUTO 34004KT 10SM CLR 12/02 A3015 RMK A01K1M52018-12-17T20:55:00Z36.6-86.4812.02.0340410.030.15059TRUETRUEVFRMETAR250.02018-12-17 21:05:44 ¼0^…¼C›‹ƒF({5    3KLRY 172055Z AUTO 16003KT 10SM CLR 13/M04 A3025 RMK AO2KLRY2018-12-17T20:55:00Z38.62-94.3513.0-4.0160310.030.250984TRUETRUEVFRMETAR279.02018-12-17 21:05:44S›‹ƒE)5   3KCTJ 172055Z AUTO 33011G17KT 10SM CLR 15/M01 A3015 RMK AO2 T01531014KCTJ2018-12-17T20:55:00Z33.63-85.1515.3-1.4330111710.030.15059TRUETRUEVFRMETAR354.02018-12-17 21:05:44L›‹ƒD) 5    3KCFD 172055Z AUTO 31004KT 10SM CLR 19/04 A3019 RMK AO2 T01870042KCFD2018-12-17T20:55:00Z30.72-96.3318.74.2310410.030.188976TRUETRUEVFRSPECI112.02018-12-17 21:05:44J›‹ƒC) 5    3KCHK 172055Z AUTO 00000KT 10SM CLR 12/00 A3017 RMK AO2 T01221002KCHK2018-12-17T20:55:00Z35.1-97.9712.2-0.20010.030.171259TRUETRUEVFRMETAR351.02018-12-17 21:05:44 Í<i ÍM›‹ƒJ)5    3K13K 172055Z AUTO 15005KT 10SM CLR 14/M05 A3021 RMK AO2 T01381047K13K2018-12-17T20:55:00Z37.85-96.313.8-4.7150510.030.209646TRUETRUEVFRMETAR369.02018-12-17 21:05:44C›‹ƒI({5    3KRGK 172055Z AUTO 16003KT 10SM CLR 02/M10 A3023 RMK AO2KRGK2018-12-17T20:55:00Z44.58-92.482.0-10.0160310.030.230314TRUETRUEVFRMETAR239.02018-12-17 21:05:44M›‹ƒH)5    3KLUM 172055Z AUTO 00000KT 10SM CLR M01/M11 A3024 RMK AO2 T10111110KLUM2018-12-17T20:55:00Z44.9-91.87-1.1-11.00010.030.239174TRUETRUEVFRMETAR273.02018-12-17 21:05:44>›‹ƒG(y5    3KLRO 172055Z AUTO 23005KT 10SM CLR 17/07 A3003 RMK AO2KLRO2018-12-17T20:55:00Z32.9-79.7817.07.0230510.030.029528TRUETRUEVFRMETAR4.02018-12-17 21:05:44 :l©ßF›‹ƒO)5    3EHLW 172055Z AUTO 21007KT 9999 FEW016 SCT022 BKN027 04/04 Q1020 WHTEHLW2018-12-17T20:55:00Z53.225.754.04.021076.2130.11811TRUEMVFRMETAR2.02018-12-17 21:05:44D›‹ƒN) 5     3EHVK 172055Z AUTO 20005KT 4200 BR FEW009 OVC320 03/03 Q1023 GRNEHVK2018-12-17T20:55:00Z51.635.73.03.020052.6130.206694TRUEBRIFRMETAR21.02018-12-17 21:05:44=›‹ƒM(}5     3EHVL 172055Z AUTO 24011KT 8000 BR BKN310 06/05 Q1020 BLUEHVL2018-12-17T20:55:00Z53.234.926.05.0240114.9730.11811TRUEBRMVFRMETAR5.02018-12-17 21:05:44H›‹ƒL)5    3EHWO 172055Z AUTO 21007KT 170V230 9999 FEW009 OVC250 07/06 Q1023 BLUEHWO2018-12-17T20:55:00Z51.454.327.06.021076.2130.206694TRUEVFRMETAR17.02018-12-17 21:05:44@›‹ƒK({5    3K04W 172055Z AUTO 00000KT 10SM CLR 01/M10 A3023 RMK AO2K04W2018-12-17T20:55:00Z46.02-92.91.0-10.00010.030.230314TRUETRUEVFRMETAR311.02018-12-17 21:05:44 Ì<t¢ÌP›‹ƒS)5    3KTKV 172055Z AUTO 33004KT 10SM CLR M01/M11 A3018 RMK AO2 T10101111KTKV2018-12-17T20:55:00Z45.47-89.82-1.0-11.1330410.030.180119TRUETRUEVFRMETAR453.02018-12-17 21:05:44L›‹ƒR) 5    3KTMA 172055Z AUTO 29005KT 10SM CLR 17/05 A3009 RMK AO2 T01700051KTMA2018-12-17T20:55:00Z31.43-83.4817.05.1290510.030.088583TRUETRUEVFRMETAR109.02018-12-17 21:05:44B›‹ƒQ(}5    3KTOB 172055Z AUTO 00000KT 10SM CLR M01/M07 A3021 RMK AO2KTOB2018-12-17T20:55:00Z44.02-92.82-1.0-7.00010.030.209646TRUETRUEVFRMETAR398.02018-12-17 21:05:44>›‹ƒP(y5    3KTQH 172055Z AUTO 00000KT 10SM CLR 17/00 A3020 RMK AO2KTQH2018-12-17T20:55:00Z35.93-95.017.00.00010.030.200787TRUETRUEVFRMETAR266.02018-12-17 21:05:44 ±-_Š±S›‹ƒW)5    3KSXU 172055Z AUTO 21009KT 10SM BKN100 13/M03 A3012 RMK AO2 T01321030KSXU2018-12-17T20:55:00Z34.93-104.6513.2-3.0210910.030.121063TRUETRUEVFRMETAR1460.02018-12-17 21:05:44O›‹ƒV)5    3KSYF 172055Z AUTO 18015KT 10SM CLR 16/M09 A2998 RMK AO2 T01611090KSYF2018-12-17T20:55:00Z39.77-101.816.1-9.01801510.029.97933TRUETRUEVFRMETAR1025.02018-12-17 21:05:44H›‹ƒU)5    3KTBX 172055Z AUTO 12009KT 10SM SCT120 01/M09 A3009 RMK AO2KTBX2018-12-17T20:55:00Z43.47-108.231.0-9.0120910.030.088583TRUETRUEVFRMETAR2225.02018-12-17 21:05:44M›‹ƒT)5    3KTEW 172055Z AUTO 31006KT 10SM CLR 02/M04 A3010 RMK AO2 T00201040KTEW2018-12-17T20:55:00Z42.57-84.422.0-4.0310610.030.100393TRUETRUEVFRMETAR280.02018-12-17 21:05:44 ½0\ˆ½E›‹ƒ[)5    3K6S0 172055Z AUTO 00000KT 10SM SCT095 09/M06 A2989 RMK A01K6S02018-12-17T20:55:00Z45.8-109.979.0-6.00010.029.890747TRUETRUEVFRMETAR1363.02018-12-17 21:05:44N›‹ƒZ)5     3EHGR 172055Z AUTO 20007KT 160V240 5000 BR BKN270 BKN320 05/05 Q1023 WHTEHGR2018-12-17T20:55:00Z51.574.925.05.020073.1130.206694TRUEBRMVFRMETAR13.02018-12-17 21:05:44N›‹ƒY)5    3KSLO 172055Z AUTO 29008KT 10SM CLR 10/M02 A3021 RMK AO2 T01031023KSLO2018-12-17T20:55:00Z38.65-88.9710.3-2.3290810.030.209646TRUETRUEVFRMETAR175.02018-12-17 21:05:44J›‹ƒX) 5    3KSLR 172055Z AUTO 00000KT 10SM CLR 14/06 A3020 RMK AO2 T01410059KSLR2018-12-17T20:55:00Z33.17-95.6214.15.90010.030.200787TRUETRUEVFRMETAR149.02018-12-17 21:05:44 Ô:v¥ÔK›‹ƒ_) 5    3KAHQ 172055Z AUTO 18009KT 10SM CLR 11/02 A3012 RMK AO2 T01050021KAHQ2018-12-17T20:55:00Z41.23-96.610.52.1180910.030.121063TRUETRUEVFRMETAR374.02018-12-17 21:05:44K›‹ƒ^)5    3K9MN 172055Z AUTO 00000KT 10SM CLR 02/M07 A3022 RMK AO1 T00231073K9MN2018-12-17T20:55:00Z44.02-92.482.3-7.30010.030.221457TRUETRUEVFRMETAR355.02018-12-17 21:05:44>›‹ƒ](y5    3KADH 172055Z AUTO 00000KT 10SM CLR 13/01 A3019 RMK AO2KADH2018-12-17T20:55:00Z34.8-96.6713.01.00010.030.188976TRUETRUEVFRMETAR308.02018-12-17 21:05:44@›‹ƒ\(y5    3K65S 172055Z AUTO 20009KT 10SM CLR 05/03 A2994 RMK AO2K65S2018-12-17T20:55:00Z48.73-116.35.03.0200910.029.940945TRUETRUEVFRMETAR713.02018-12-17 21:05:44 ð9p ð*›‹ƒc(_5   3KADM 172055Z 00000KT 10SM CLR 14/05 A3018KADM2018-12-17T20:55:00Z34.28-97.0214.05.00010.030.180119VFRMETAR232.02018-12-17 21:05:44J›‹ƒb) 5    3KAFK 172055Z AUTO 17009KT 10SM CLR 10/01 A3017 RMK AO2 T00950010KAFK2018-12-17T20:55:00Z40.6-95.859.51.0170910.030.171259TRUETRUEVFRMETAR354.02018-12-17 21:05:44C›‹ƒa({5    3K8A0 172055Z AUTO 31007KT 10SM CLR 14/M02 A3014 RMK AO2K8A02018-12-17T20:55:00Z34.23-86.2514.0-2.0310710.030.138779TRUETRUEVFRMETAR315.02018-12-17 21:05:44A›‹ƒ`(y5    3K8A3 172055Z AUTO 24006KT 10SM CLR 11/02 A3013 RMK A01K8A32018-12-17T20:55:00Z36.42-85.3211.02.0240610.030.129921TRUETRUEVFRMETAR419.02018-12-17 21:05:44  Ht N›‹ƒg)5    3KUVA 172055Z AUTO 13004KT 10SM CLR 21/M02 A3016 RMK AO2 T02091016KUVA2018-12-17T20:55:00Z29.22-99.7520.9-1.6130410.030.159449TRUETRUEVFRMETAR287.02018-12-17 21:05:44N›‹ƒf)5    3KVBW 172055Z AUTO 30009KT 10SM CLR 12/M03 A2984 RMK AO1 T01231035KVBW2018-12-17T20:55:00Z38.37-78.9712.3-3.5300910.029.840551TRUETRUEVFRMETAR355.02018-12-17 21:05:44N›‹ƒe)5    3KERV 172055Z AUTO 18003KT 10SM CLR 21/M06 A3017 RMK AO2 T02051060KERV2018-12-17T20:55:00Z29.98-99.0820.5-6.0180310.030.171259TRUETRUEVFRMETAR510.02018-12-17 21:05:44^›‹ƒd)+5   3KERY 172055Z AUTO 32013G19KT 280V340 7SM OVC015 M03/M05 A3011 RMK AO2 T10301050KERY2018-12-17T20:55:00Z46.3-85.45-3.0-5.032013197.030.109253TRUETRUEMVFRMETAR265.02018-12-17 21:05:44 ½-M‡½D›‹ƒk({5    3KU68 172055Z AUTO 36003KT 10SM CLR 05/M07 A2995 RMK AO2KU682018-12-17T20:55:00Z44.92-108.455.0-7.0360310.029.949802TRUETRUEVFRMETAR1247.02018-12-17 21:05:44@›‹ƒj({5    3KUBE 172055Z AUTO 00000KT 10SM CLR 00/M11 A3022 RMK AO2KUBE2018-12-17T20:55:00Z45.5-91.980.0-11.00010.030.221457TRUETRUEVFRMETAR379.02018-12-17 21:05:44Z›‹ƒi)5    3KUGN 172055Z 31006KT 10SM CLR 05/M08 A3019 RMK AO2 SLP232 T00501078 53006KUGN2018-12-17T20:55:00Z42.42-87.875.0-7.8310610.030.1889761023.2TRUEVFR0.6METAR222.02018-12-17 21:05:44M›‹ƒh)5    3KUNI 172055Z AUTO 29007KT 10SM CLR 08/M03 A3007 RMK AO2 T00761026KUNI2018-12-17T20:55:00Z39.22-82.237.6-2.6290710.030.070866TRUETRUEVFRMETAR193.02018-12-17 21:05:44 +X”ԁ;›‹ƒp({5    3EHPG 172055Z AUTO 21014KT 9999 NSC 10/07 Q1020 W///H///EHPG2018-12-17T20:55:00Z52.373.3510.07.0210146.2130.11811TRUEVFRMETAR50.02018-12-17 21:05:44:›‹ƒo({5    3EHQE 172055Z AUTO 19015KT 9999 NSC 09/07 Q1020 W///H///EHQE2018-12-17T20:55:00Z52.924.159.07.0190156.2130.11811TRUEVFRMETAR50.02018-12-17 21:05:44>›‹ƒn)5   3EHSA 172055Z AUTO 20017KT 9999 ///////// 10/08 Q1021 W07/H10EHSA2018-12-17T20:55:00Z52.03.2810.08.0200176.2130.147638TRUEMETAR50.02018-12-17 21:05:44M›‹ƒm)5    3KTYQ 172055Z AUTO 32010KT 10SM CLR 04/M01 A3015 RMK AO2 T00361006KTYQ2018-12-17T20:55:00Z40.03-86.253.6-0.63201010.030.15059TRUETRUEVFRMETAR281.02018-12-17 21:05:44O›‹ƒl)5    3KU42 172055Z AUTO 00000KT 10SM OVC090 06/00 A3012 RMK AO1 T00551004KU422018-12-17T20:55:00Z40.62-111.985.5-0.40010.030.121063TRUETRUEVFRMETAR1402.02018-12-17 21:05:44 5r§Þ;›‹ƒu({5    3EHJA 172055Z AUTO 21012KT 9999 NSC 08/06 Q1019 W///H///EHJA2018-12-17T20:55:00Z53.822.958.06.0210126.2130.088583TRUEVFRMETAR50.02018-12-17 21:05:44C›‹ƒt)5   3EHJR 172055Z AUTO 23017KT //// // ///////// 10/06 Q1019 RE// W///H13EHJR2018-12-17T20:55:00Z53.223.2210.06.02301730.088583TRUEMETAR50.02018-12-17 21:05:44E›‹ƒs)5    3EHKV 172055Z AUTO 22016KT 9999 FEW013 SCT016 09/06 Q1020 W///H///EHKV2018-12-17T20:55:00Z53.273.639.06.0220166.2130.11811TRUEVFRMETAR50.02018-12-17 21:05:44=›‹ƒr)5    3EHMA 172055Z AUTO 23017KT 9999 FEW030 05/04 Q1020 W///H///EHMA2018-12-17T20:55:00Z53.55.955.04.0230176.2130.11811TRUEVFRMETAR50.02018-12-17 21:05:44E›‹ƒq)5    3EHMG 172055Z AUTO 25016KT 9999 FEW012 SCT016 08/06 Q1020 W///H///EHMG2018-12-17T20:55:00Z53.624.978.06.0250166.2130.11811TRUEVFRMETAR50.02018-12-17 21:05:44 ¿$_¿J›‹ƒy)5    3EHDV 172055Z AUTO 23011KT 180V300 9999 FEW010/// 08/06 Q1018 W///H///EHDV2018-12-17T20:55:00Z54.322.938.06.0230116.2130.059055TRUEVFRMETAR50.02018-12-17 21:05:44J›‹ƒx)5    3EHFD 172055Z AUTO 10007KT 9999 SCT026/// OVC032/// 07/05 Q1018 W///H///EHFD2018-12-17T20:55:00Z54.854.77.05.010076.2130.059055TRUEVFRMETAR50.02018-12-17 21:05:44?›‹ƒw)5    3EHFZ 172055Z AUTO 25010KT 9999 FEW014 09/05 Q1018 W///H///EHFZ2018-12-17T20:55:00Z54.124.029.05.0250106.2130.059055TRUEVFRMETAR50.02018-12-17 21:05:44V›‹ƒv)?5   3EHHW 172055Z AUTO 27021KT //// // SCT008/// BKN009/// BKN015/// 09/07 Q1018 RE// W///H///EHHW2018-12-17T20:55:00Z54.036.039.07.02702130.059055TRUEMETAR0.02018-12-17 21:05:44 $:‚/›‹ƒ|)‚5      3PATC 172055Z AUTO 02027KT 3/4SM -SN BR SCT014 SCT250 M18/M20 A2946 RMK AO2 PK WND 01033/2031 SNB1855 SLP986 P0000 60000 T11841203 52012PATC2018-12-17T20:55:00Z65.57-167.92-18.4-20.320270.7529.459646998.6TRUETRUE-SN BRLIFR1.20.0050.005METAR83.02018-12-17 21:05:44d›‹ƒ{)+5    3PATL 172055Z AUTO 00000KT 10SM CLR M21/M23 A2912 RMK AO2 SLP903 T12151231 52026PATL2018-12-17T20:55:00Z62.9-155.97-21.5-23.10010.029.120079990.3TRUETRUEVFR2.6METAR294.02018-12-17 21:05:44V›‹ƒz)/5    3EHAK 172055Z AUTO 13016KT 9999 FEW013/// SCT028/// OVC032/// 08/05 Q1017 W///H///EHAK2018-12-17T20:55:00Z55.423.828.05.0130166.2130.029528TRUEVFRMETAR50.02018-12-17 21:05:44 ¹ðÕ¹‚›‹ƒ)u5      3PAIM 172055Z AUTO 04002KT 1 3/4SM -SN BKN030 OVC042 M22/M24 A2897 RMK AO2 SNB1955 SLP867 P0000 60000 T12201240 53018PAIM2018-12-17T20:55:00Z66.0-153.7-22.0-24.04021.7528.969488986.7TRUETRUE-SNIFR1.80.0050.005METAR389.02018-12-17 21:05:44‚›‹ƒ~)u5      3PALU 172055Z AUTO 03006KT 10SM -SHSN OVC008 M22/M24 A2955 RMK AO2 SNB2039E2054SHSNB2054 SLP008 P0000 60000 T12231243PALU2018-12-17T20:55:00Z68.88-166.1-22.3-24.330610.029.5511821000.8TRUETRUE-SHSNIFR0.0050.005METAR3.02018-12-17 21:05:44‚ ›‹ƒ})_5      3PASV 172055Z AUTO 00000KT 8SM -SN OVC037 M22/M24 A2902 RMK AO2 SNB1855 SLP898 P0000 60000 T12201240 52022PASV2018-12-17T20:55:00Z61.1-155.57-22.0-24.0008.029.019686989.8TRUETRUE-SNVFR2.20.0050.005METAR484.02018-12-17 21:05:44 ¤ºv¤L›‹„) 5    3KALX 172055Z AUTO 33007KT 10SM CLR 17/07 A3014 RMK AO2 T01660069KALX2018-12-17T20:55:00Z32.92-85.9716.66.9330710.030.138779TRUETRUEVFRMETAR209.02018-12-17 21:05:44‚>›‹„)‚15     3PACZ 172055Z AUTO 35033G38KT 340V080 3/4SM -SN BR FEW013 BKN026 M12/M14 A2935 RMK AO2 PK WND 36038/2054 SNB1955 SLP956 P0000 60000 T11231143 52019PACZ2018-12-17T20:55:00Z61.78-166.03-12.3-14.335033380.7529.350393995.6TRUETRUE-SN BRLIFR1.90.0050.005METAR146.02018-12-17 21:05:44‚@›‹„)‚95     3PAEH 172055Z AUTO 34025G30KT 270V360 8SM -SHSN BKN017 M14/M17 A2933 RMK AO2 PK WND 36038/1957 SNB1944E2046SHSNB2046 SLP952 P0000 60000 T11391166 52019PAEH2018-12-17T20:55:00Z58.65-162.07-13.9-16.634025308.029.329725995.2TRUETRUE-SHSNMVFR1.90.0050.005METAR161.02018-12-17 21:05:44 Æ.^šÆN›‹„)5    3KAUH 172055Z AUTO 20012KT 10SM CLR 12/M01 A3008 RMK AO2 T01181015KAUH2018-12-17T20:55:00Z40.88-98.011.8-1.52001210.030.079725TRUETRUEVFRMETAR550.02018-12-17 21:05:44>›‹„)5   3EHSC 172055Z AUTO 22019KT 9999 ///////// 08/07 Q1021 W08/H10EHSC2018-12-17T20:55:00Z51.933.678.07.0220196.2130.147638TRUEMETAR50.02018-12-17 21:05:44J›‹„) 5    3KAPY 172055Z AUTO 08003KT 10SM CLR 22/04 A3015 RMK AO2 T02270045KAPY2018-12-17T20:55:00Z26.97-99.2522.74.580310.030.15059TRUETRUEVFRSPECI129.02018-12-17 21:05:44L›‹„) 5    3KANW 172055Z AUTO 19009KT 10SM CLR 05/00 A2995 RMK AO2 T00501005KANW2018-12-17T20:55:00Z42.57-100.05.0-0.5190910.029.949802TRUETRUEVFRMETAR789.02018-12-17 21:05:44 Å<j˜ÅM›‹„ )5    3KFKR 172055Z AUTO 34009KT 10SM CLR 06/M01 A3018 RMK AO2 T00561012KFKR2018-12-17T20:55:00Z40.27-86.575.6-1.2340910.030.180119TRUETRUEVFRMETAR262.02018-12-17 21:05:44L›‹„ ) 5    3KF46 172055Z AUTO 25003KT 10SM CLR 13/07 A3020 RMK AO2 T01270072KF462018-12-17T20:55:00Z32.93-96.4312.77.2250310.030.200787TRUETRUEVFRMETAR176.02018-12-17 21:05:44L›‹„) 5    3KAVC 172055Z AUTO 25003KT 10SM CLR 14/03 A2996 RMK AO2 T01350027KAVC2018-12-17T20:55:00Z36.68-78.0313.52.7250310.029.958662TRUETRUEVFRMETAR135.02018-12-17 21:05:44>›‹„(}5    3KASL 172055Z AUTO 10SM CLR 14/07 A3019 RMK AO1 T01360071KASL2018-12-17T20:55:00Z32.52-94.313.67.110.030.188976TRUETRUEVFRMETAR109.02018-12-17 21:05:44 »,d¥»d›‹„)+5    3KINL 172055Z AUTO 00000KT 10SM CLR M06/M12 A3022 RMK AO2 SLP260 T10611122 56011KINL2018-12-17T20:55:00Z48.57-93.4-6.1-12.20010.030.2214571026.0TRUETRUEVFR-1.1METAR360.02018-12-17 21:05:449›‹„ (q5   3KSEM 172055Z AUTO 26007KT 10SM 16/08 A3017 RMK AO2KSEM2018-12-17T20:55:00Z32.35-86.9816.08.0260710.030.171259TRUETRUEMETAR51.02018-12-17 21:05:44B›‹„ ({5    3KETB 172055Z AUTO 29009KT 10SM CLR 01/M07 A3019 RMK AO2KETB2018-12-17T20:55:00Z43.42-88.131.0-7.0290910.030.188976TRUETRUEVFRMETAR270.02018-12-17 21:05:44N›‹„ )5    3KF05 172055Z AUTO 07006KT 10SM BKN110 12/01 A3020 RMK AO1 T01180006KF052018-12-17T20:55:00Z34.23-99.2811.80.670610.030.200787TRUETRUEVFRMETAR386.02018-12-17 21:05:44 ·/]‹·N›‹„)5    3KI75 172055Z AUTO 19005KT 10SM CLR 10/M03 A3019 RMK AO2 T01031030KI752018-12-17T20:55:00Z41.05-93.6810.3-3.0190510.030.188976TRUETRUEVFRMETAR339.02018-12-17 21:05:44L›‹„)5    3KIGQ 172055Z AUTO 06003KT 10SM CLR 04/M04 A3021 RMK AO2 T00351043KIGQ2018-12-17T20:55:00Z41.53-87.533.5-4.360310.030.209646TRUETRUEVFRMETAR188.02018-12-17 21:05:44L›‹„) 5    3KIKG 172055Z AUTO 12005KT 10SM CLR 22/14 A3017 RMK AO2 T02220135KIKG2018-12-17T20:55:00Z27.55-98.0322.213.5120510.030.171259TRUETRUEVFRMETAR40.02018-12-17 21:05:44K›‹„) 5    3KINJ 172055Z AUTO 32003KT 10SM CLR 13/05 A3019 RMK AO2 T01340045KINJ2018-12-17T20:55:00Z32.08-97.113.44.5320310.030.188976TRUETRUEVFRMETAR209.02018-12-17 21:05:44 Å.f“ŁH›‹„) 5    3KGAO 172055Z AUTO 00000KT 10SM CLR 14/09 A3022 RMK AO2 T01430094KGAO2018-12-17T20:55:00Z29.45-90.2714.39.40010.030.221457TRUETRUEVFRMETAR1.02018-12-17 21:05:44M›‹„) 5    3KGCD 172055Z AUTO 20006KT 10SM CLR 07/02 A3001 RMK AO2 T00740017KGCD2018-12-17T20:55:00Z44.38-118.977.41.7200610.030.008858TRUETRUEVFRMETAR1127.02018-12-17 21:05:44B›‹„({5    3KGHW 172055Z AUTO 09012KT 10SM CLR 02/M07 A3014 RMK AO2KGHW2018-12-17T20:55:00Z45.63-95.322.0-7.0901210.030.138779TRUETRUEVFRMETAR425.02018-12-17 21:05:44L›‹„) 5    3KGLW 172055Z AUTO 27007KT 10SM CLR 13/01 A3016 RMK AO2 T01250014KGLW2018-12-17T20:55:00Z37.03-85.9512.51.4270710.030.159449TRUETRUEVFRMETAR218.02018-12-17 21:05:44 ¾8gŸ¾[›‹„))5     3KFSO 172055Z AUTO 29004KT 7SM -SN BKN018 OVC023 00/M01 A2961 RMK AO2 T00031015KFSO2018-12-17T20:55:00Z44.93-73.10.3-1.529047.029.610237TRUETRUE-SNMVFRMETAR70.02018-12-17 21:05:44B›‹„({5    3KFSW 172055Z AUTO 34004KT 10SM CLR 09/M04 A3023 RMK AO2KFSW2018-12-17T20:55:00Z40.67-91.329.0-4.0340410.030.230314TRUETRUEVFRMETAR221.02018-12-17 21:05:44K›‹„)5   3KFWZ 172055Z AUTO 25013G17KT 10SM CLR 02/M07 A3001 RMK AO2KFWZ2018-12-17T20:55:00Z42.52-108.782.0-7.0250131710.030.008858TRUETRUEVFRMETAR2588.02018-12-17 21:05:44B›‹„({5    3KFXY 172055Z AUTO 13007KT 10SM CLR 03/M02 A3018 RMK AO2KFXY2018-12-17T20:55:00Z43.23-93.623.0-2.0130710.030.180119TRUETRUEVFRMETAR375.02018-12-17 21:05:44 8Nc@›‹„({5    3KMUT 172055Z AUTO 00000KT 10SM CLR 08/M07 A3024 RMK AO2KMUT2018-12-17T20:55:00Z41.37-91.158.0-7.00010.030.239174TRUETRUEVFRMETAR167.02018-12-17 21:05:44e›‹„)35    3KVBG 172055Z VRB06KT 10SM SCT018 BKN140 16/12 A3017 RMK AO2A SLP220 T01630120 57017KVBG2018-12-17T20:55:00Z34.73-120.5816.312.00610.030.1712591022.0TRUEVFR-1.7SPECI112.02018-12-17 21:05:44d›‹„))5    3KIRK 172055Z AUTO 19007KT 10SM CLR 11/M04 A3023 RMK AO2 SLP246 T01061039 56019KIRK2018-12-17T20:55:00Z40.1-92.5510.6-3.9190710.030.2303141024.6TRUETRUEVFR-1.9METAR293.02018-12-17 21:05:44B›‹„({5    3KFRH 172055Z AUTO 26009KT 10SM CLR 08/M11 A3016 RMK AO1KFRH2018-12-17T20:55:00Z38.5-86.638.0-11.0260910.030.159449TRUETRUEVFRMETAR241.02018-12-17 21:05:44 ¦5l¦c›‹„")75   3KJAQ 172055Z AUTO 31007G14KT 270V350 10SM SCT021 SCT026 12/08 A3020 RMK AO1 T01180078KJAQ2018-12-17T20:55:00Z38.37-120.811.87.831071410.030.200787TRUETRUEVFRMETAR512.02018-12-17 21:05:44W›‹„!)5   3KJHN 172055Z AUTO 16022G26KT 10SM CLR 18/M10 A3004 RMK AO2 T01761103KJHN2018-12-17T20:55:00Z37.58-101.7317.6-10.3160222610.030.041338TRUETRUEVFRSPECI1013.02018-12-17 21:05:44C›‹„ ({5    3KAVK 172055Z AUTO 13008KT 10SM CLR 12/M02 A3018 RMK AO2KAVK2018-12-17T20:55:00Z36.77-98.6712.0-2.0130810.030.180119TRUETRUEVFRMETAR449.02018-12-17 21:05:44E›‹„(5    3KIZA 172055Z AUTO 20003KT 10SM BKN022 17/12 A3015 RMK AO2KIZA2018-12-17T20:55:00Z34.6-120.0717.012.0200310.030.15059TRUETRUEMVFRMETAR205.02018-12-17 21:05:44 Ç0h™ÇL›‹„&) 5    3KJWY 172055Z AUTO 28004KT 10SM CLR 12/04 A3020 RMK AO2 T01220039KJWY2018-12-17T20:55:00Z32.45-96.9212.23.9280410.030.200787TRUETRUEVFRMETAR217.02018-12-17 21:05:44I›‹„%) 5    3KJXI 172055Z AUTO 00000KT 10SM CLR 13/07 A3017 RMK AO2 T01280067KJXI2018-12-17T20:55:00Z32.7-94.9512.86.70010.030.171259TRUETRUEVFRMETAR127.02018-12-17 21:05:44B›‹„$({5    3KJYG 172055Z AUTO 10009KT 10SM CLR 01/M04 A3017 RMK AO2KJYG2018-12-17T20:55:00Z43.98-94.551.0-4.0100910.030.171259TRUETRUEVFRMETAR325.02018-12-17 21:05:44J›‹„#) 5    3KJYL 172055Z AUTO 28004KT 10SM CLR 18/10 A3004 RMK AO2 T01830096KJYL2018-12-17T20:55:00Z32.65-81.618.39.6280410.030.041338TRUETRUEVFRMETAR57.02018-12-17 21:05:44 Ê<mÊM›‹„*)5    3K3LF 172055Z AUTO 31007KT 10SM CLR 09/M03 A3023 RMK AO2 T00901031K3LF2018-12-17T20:55:00Z39.17-89.679.0-3.1310710.030.230314TRUETRUEVFRMETAR210.02018-12-17 21:05:44J›‹„)) 5    3K3T5 172055Z AUTO 31003KT 10SM CLR 22/02 A3016 RMK AO2 T02240016K3T52018-12-17T20:55:00Z29.9-96.9522.41.6310310.030.159449TRUETRUEVFRMETAR99.02018-12-17 21:05:44I›‹„()5     3K4S2 172055Z AUTO 00000KT 5SM BR BKN003 OVC048 05/05 A3000 RMK AO2K4S22018-12-17T20:55:00Z45.68-121.555.05.0005.030.0TRUETRUEBRLIFRMETAR192.02018-12-17 21:05:44>›‹„'(y5    3KJSV 172055Z AUTO 00000KT 10SM CLR 16/03 A3020 RMK AO2KJSV2018-12-17T20:55:00Z35.43-94.816.03.00010.030.200787TRUETRUEVFRMETAR161.02018-12-17 21:05:44 ¦+Q¦U›‹„.)5    3K18H 172055Z AUTO 04011G17KT 5SM HZ FEW038 FEW055 23/13 A3013 RMK A01K18H2018-12-17T20:55:00Z26.13-92.0323.013.04011175.030.129921TRUETRUEHZMVFRMETAR10.02018-12-17 21:05:44J›‹„-) 5    3K1A9 172055Z AUTO 30004KT 10SM CLR 17/04 A3015 RMK AO2 T01730042K1A92018-12-17T20:55:00Z32.43-86.5217.34.2300410.030.15059TRUETRUEVFRMETAR69.02018-12-17 21:05:44T›‹„,)5   3K2G9 172055Z AUTO 30011G22KT 10SM BKN028 BKN034 00/M03 A2989 RMK AO2K2G92018-12-17T20:55:00Z40.03-79.020.0-3.0300112210.029.890747TRUETRUEMVFRMETAR693.02018-12-17 21:05:44O›‹„+)5    3K3D2 172055Z AUTO 31007KT 10SM CLR M01/M08 A3016 RMK AO2 T10071079K3D22018-12-17T20:55:00Z45.13-87.18-0.7-7.9310710.030.159449TRUETRUEVFRMETAR234.02018-12-17 21:05:44 °/\Œ°V›‹„2)5     3KPIM 172055Z AUTO 29007KT 10SM CLR 17/01 A3011 RMK AO2 T01720012 PWINOKPIM2018-12-17T20:55:00Z32.83-84.8817.21.2290710.030.109253TRUETRUETRUEVFRMETAR275.02018-12-17 21:05:44J›‹„1) 5    3KPKV 172055Z AUTO 07003KT 10SM CLR 22/13 A3018 RMK AO2 T02240126KPKV2018-12-17T20:55:00Z28.65-96.6822.412.670310.030.180119TRUETRUEVFRMETAR9.02018-12-17 21:05:44M›‹„0)5    3KPRS 172055Z AUTO 00000KT 10SM CLR 19/M02 A3011 RMK AO2 T01861019KPRS2018-12-17T20:55:00Z29.63-104.3518.6-1.90010.030.109253TRUETRUEVFRMETAR896.02018-12-17 21:05:44K›‹„/) 5    3KPTB 172055Z AUTO 23007KT 10SM CLR 12/01 A2988 RMK AO2 T01210011KPTB2018-12-17T20:55:00Z37.17-77.5212.11.1230710.029.878937TRUETRUEVFRMETAR59.02018-12-17 21:05:44 ˜Ct˜V›‹„6)5   3KOSC 172055Z AUTO 32011G15KT 10SM OVC031 00/M06 A3008 RMK AO2 T10031064KOSC2018-12-17T20:55:00Z44.45-83.4-0.3-6.4320111510.030.079725TRUETRUEVFRMETAR193.02018-12-17 21:05:44I›‹„5)5   3KOVL 172055Z AUTO 13012G17KT 10SM CLR 02/M05 A3013 RMK AO2KOVL2018-12-17T20:55:00Z44.78-95.032.0-5.0130121710.030.129921TRUETRUEVFRMETAR328.02018-12-17 21:05:44L›‹„4) 5    3KPCD 172055Z AUTO 32006KT 10SM CLR 10/01 A3023 RMK AO2 T01000006KPCD2018-12-17T20:55:00Z37.87-89.8710.00.6320610.030.230314TRUETRUEVFRMETAR113.02018-12-17 21:05:44e›‹„3))5    3KPHP 172055Z AUTO 11004KT 10SM CLR 10/M01 A2987 RMK AO2 SLP126 T01001011 56024KPHP2018-12-17T20:55:00Z44.05-101.610.0-1.1110410.029.8700791012.6TRUETRUEVFR-2.4METAR672.02018-12-17 21:05:44 ².g„²L›‹„:)5    3KOEO 172055Z AUTO 10004KT 10SM CLR 02/M08 A3025 RMK AO2 T00161081KOEO2018-12-17T20:55:00Z45.32-92.71.6-8.1100410.030.250984TRUETRUEVFRMETAR275.02018-12-17 21:05:44]›‹„9)'5   3KOLE 172055Z AUTO 30009G19KT 270V330 10SM BKN014 OVC020 M02/M02 A2983 RMK AO2KOLE2018-12-17T20:55:00Z42.23-78.37-2.0-2.030091910.029.828741TRUETRUEMVFRMETAR651.02018-12-17 21:05:44A›‹„8(y5    3KOMH 172055Z AUTO 17003KT 10SM CLR 12/02 A2983 RMK AO2KOMH2018-12-17T20:55:00Z38.25-78.0512.02.0170310.029.828741TRUETRUEVFRMETAR142.02018-12-17 21:05:44L›‹„7)5    3KOOA 172055Z AUTO 23004KT 10SM CLR 08/M03 A3022 RMK AO2 T00771031KOOA2018-12-17T20:55:00Z41.23-92.57.7-3.1230410.030.221457TRUETRUEVFRMETAR256.02018-12-17 21:05:44 ´9R‰´O›‹„>)5    3KLMO 172055Z AUTO 00000KT 10SM CLR 16/M13 A3001 RMK AO2 T01551129KLMO2018-12-17T20:55:00Z40.17-105.1715.5-12.90010.030.008858TRUETRUEVFRMETAR1541.02018-12-17 21:05:44C›‹„=({5    3KMVE 172055Z AUTO 16012KT 10SM CLR 03/M06 A3010 RMK AO2KMVE2018-12-17T20:55:00Z44.97-95.723.0-6.01601210.030.100393TRUETRUEVFRMETAR315.02018-12-17 21:05:44a›‹„<)-5    3KN03 172055Z AUTO 29007G19KT 258V328 10SM -SN BKN021 OVC026 00/M01 A2977 RMK AO2KN032018-12-17T20:55:00Z42.6-76.220.0-1.029071910.029.769686TRUETRUE-SNMVFRMETAR366.02018-12-17 21:05:44A›‹„;(y5    3KOBE 172055Z AUTO 29007KT 10SM CLR 17/10 A3009 RMK AO2KOBE2018-12-17T20:55:00Z27.27-80.8517.010.0290710.030.088583TRUETRUEVFRMETAR11.02018-12-17 21:05:44 &\F›‹„B(5    3KL18 172055Z AUTO 22005KT 10SM SCT026 18/10 A3017 RMK AO2KL182018-12-17T20:55:00Z33.35-117.2518.010.0220510.030.171259TRUETRUEVFRMETAR216.02018-12-17 21:05:44D›‹„A(5    3KLHM 172055Z AUTO 25006KT 10SM SCT024 14/08 A3020 RMK AO1KLHM2018-12-17T20:55:00Z38.92-121.3514.08.0250610.030.200787TRUETRUEVFRMETAR37.02018-12-17 21:05:44f›‹„@))5    3KLIC 172055Z AUTO VRB05KT 10SM CLR 13/M12 A2999 RMK AO2 SLP161 T01281122 56026KLIC2018-12-17T20:55:00Z39.27-103.6712.8-12.20510.029.9911421016.1TRUETRUEVFR-2.6METAR1630.02018-12-17 21:05:44h›‹„?)/5    3KLLJ 172055Z AUTO 36004KT 10SM OVC070 02/M04 A2998 RMK AO2 SLP170 T00221039 56014KLLJ2018-12-17T20:55:00Z44.52-114.222.2-3.9360410.029.979331017.0TRUETRUEVFR-1.4METAR1536.02018-12-17 21:05:44 Ï;t¢ÏM›‹„F)5    3KC29 172055Z AUTO 31005KT 10SM CLR 05/M06 A3022 RMK AO1 T00451063KC292018-12-17T20:55:00Z43.12-89.534.5-6.3310510.030.221457TRUETRUEVFRMETAR283.02018-12-17 21:05:44L›‹„E)5    3KJFZ 172055Z AUTO 30006KT 10SM CLR 08/M02 A3006 RMK AO2 T00781017KJFZ2018-12-17T20:55:00Z37.07-81.87.8-1.7300610.030.059055TRUETRUEVFRMETAR809.02018-12-17 21:05:44A›‹„D({5    3KLJF 172055Z AUTO 10009KT 10SM CLR 03/M05 A3018 RMK AO2KLJF2018-12-17T20:55:00Z45.1-94.523.0-5.0100910.030.180119TRUETRUEVFRMETAR348.02018-12-17 21:05:44?›‹„C(y5    3KA39 172055Z AUTO 00000KT 10SM CLR 19/04 A3015 RMK AO2KA392018-12-17T20:55:00Z32.98-111.9219.04.00010.030.15059TRUETRUEVFRMETAR396.02018-12-17 21:05:44 Í(V’́?›‹„J(y5    3KBQK 172055Z AUTO 27004KT 10SM CLR 15/09 A3007 RMK AO2KBQK2018-12-17T20:55:00Z31.25-81.4715.09.0270410.030.070866TRUETRUEVFRMETAR8.02018-12-17 21:05:44>›‹„I(y5    3KBQX 172055Z AUTO 00000KT 10SM CLR 17/14 A3020 RMK A01KBQX2018-12-17T20:55:00Z28.5-95.7217.014.00010.030.200787TRUETRUEVFRMETAR34.02018-12-17 21:05:44L›‹„H) 5    3KBTA 172055Z AUTO 17011KT 10SM CLR 08/02 A3012 RMK AO2 T00790015KBTA2018-12-17T20:55:00Z41.42-96.127.91.51701110.030.121063TRUETRUEVFRMETAR396.02018-12-17 21:05:44R›‹„G)5   3KBVN 172055Z AUTO 19010G14KT 10SM CLR 13/01 A3004 RMK AO2 T01250011KBVN2018-12-17T20:55:00Z41.73-98.0512.51.1190101410.030.041338TRUETRUEVFRMETAR551.02018-12-17 21:05:44 Æ+SÆC›‹„N(}5    3KBGE 172055Z AUTO 30006KT 10SM 20/02 A3012 RMK AO2 PWINOKBGE2018-12-17T20:55:00Z30.97-84.6320.02.0300610.030.121063TRUETRUETRUEMETAR43.02018-12-17 21:05:44>›‹„M(y5    3KBIJ 172055Z AUTO 33005KT 10SM CLR 18/04 A3012 RMK AO2KBIJ2018-12-17T20:55:00Z31.4-84.918.04.0330510.030.121063TRUETRUEVFRMETAR65.02018-12-17 21:05:44R›‹„L)5    3KBKT 172055Z AUTO 24009KT 10SM CLR 12/02 A2988 RMK AO1 6//// T01170019KBKT2018-12-17T20:55:00Z37.07-77.9511.71.9240910.029.878937TRUETRUEVFRMETAR134.02018-12-17 21:05:44O›‹„K)5    3KBPG 172055Z AUTO 04008KT 10SM OVC100 11/01 A3018 RMK AO2 T01080011KBPG2018-12-17T20:55:00Z32.22-101.5210.81.140810.030.180119TRUETRUEVFRMETAR784.02018-12-17 21:05:44 7r¨áE›‹„S({5    3KAZC 172055Z AUTO 13005KT 10SM CLR 11/M06 A3018 RMK AO2KAZC2018-12-17T20:55:00Z36.97-113.0211.0-6.0130510.030.180119TRUETRUEVFRMETAR1486.02018-12-17 21:05:44A›‹„R(y5    3KBBD 172055Z AUTO 30005KT 10SM CLR 16/00 A3018 RMK AO2KBBD2018-12-17T20:55:00Z31.18-99.3216.00.0300510.030.180119TRUETRUEVFRMETAR557.02018-12-17 21:05:44D›‹„Q(}5     3KBBF 172055Z AUTO 06009KT 3SM HZ CLR 18/13 A3016 RMK A01KBBF2018-12-17T20:55:00Z27.83-96.0218.013.06093.030.159449TRUETRUEHZMVFRMETAR36.02018-12-17 21:05:44?›‹„P(y5    3KBBP 172055Z AUTO 27008KT 10SM CLR 17/02 A2998 RMK AO2KBBP2018-12-17T20:55:00Z34.62-79.7317.02.0270810.029.97933TRUETRUEVFRMETAR45.02018-12-17 21:05:44C›‹„O(}5    3KBFW 172055Z AUTO 20004KT 10SM CLR M01/M09 A3019 RMK AO2KBFW2018-12-17T20:55:00Z47.25-91.4-1.0-9.0200410.030.188976TRUETRUEVFRMETAR331.02018-12-17 21:05:44 é7d¢é3›‹„W(o5    3KLUA 172055Z AUTO 33003KT 10SM CLR 13/M03 RMK AO2KLUA2018-12-17T20:55:00Z38.67-78.513.0-3.0330310.0TRUETRUEVFRMETAR275.02018-12-17 21:05:44<›‹„V(}5    3KLNN 172055Z 31013G16KT 10SM BKN028 OVC037 A3007 RMK AO1KLNN2018-12-17T20:55:00Z41.67-81.37310131610.030.070866TRUEMVFRMETAR191.02018-12-17 21:05:44M›‹„U)5    3KAJG 172055Z AUTO 30007KT 10SM CLR 09/M01 A3019 RMK AO2 T00921008KAJG2018-12-17T20:55:00Z38.62-87.739.2-0.8300710.030.188976TRUETRUEVFRMETAR131.02018-12-17 21:05:44C›‹„T(}5     3KARW 172055Z AUTO 24005KT 5SM HZ CLR 15/08 A3004 RMK AO2KARW2018-12-17T20:55:00Z32.42-80.6315.08.024055.030.041338TRUETRUEHZMVFRMETAR4.02018-12-17 21:05:44 pð#@pJ›‹„[) 5    3KPTS 172055Z AUTO 00000KT 7SM CLR 13/M01 A3021 RMK AO2 T01341007KPTS2018-12-17T20:55:00Z37.45-94.7313.4-0.7007.030.209646TRUETRUEVFRMETAR290.02018-12-17 21:05:44]›‹„Z)%5      3KSVC 172055Z AUTO 00000KT 4SM -DZ OVC007 06/05 A3019 RMK AO2 60001 T00600051KSVC2018-12-17T20:55:00Z32.63-108.156.05.1004.030.188976TRUETRUE-DZIFR0.01METAR1659.02018-12-17 21:05:44G›‹„Y)5     3KTVY 172055Z AUTO 00000KT 4SM BR OVC075 01/00 A3015 RMK AO2KTVY2018-12-17T20:55:00Z40.62-112.351.00.0004.030.15059TRUETRUEBRMVFRMETAR1317.02018-12-17 21:05:44‚ ›‹„X)5   3NZWD 172055Z 14022G27KT 9999 DRSN FEW030 FEW120 SCT200 M04/M08 A2912 RMK ACSL GRID NE AND SE-S SLP858 GRID30022KT SDG/HDGNZWD2018-12-17T20:55:00Z-77.87167.07-4.0-8.014022276.2129.120079985.8DRSNVFRMETAR22.02018-12-17 21:05:44 Ê.dÊM›‹„_)5    3KHCD 172055Z AUTO 11008KT 10SM CLR 02/M05 A3019 RMK AO2 T00211055KHCD2018-12-17T20:55:00Z44.87-94.382.1-5.5110810.030.188976TRUETRUEVFRMETAR323.02018-12-17 21:05:44A›‹„^(y5    3KHDC 172055Z AUTO 24005KT 10SM CLR 16/10 A3021 RMK AO2KHDC2018-12-17T20:55:00Z30.52-90.4216.010.0240510.030.209646TRUETRUEVFRMETAR13.02018-12-17 21:05:44D›‹„](5    3KHHV 172055Z AUTO 09012KT 10SM FEW030 24/13 A3017 RMK A01KHHV2018-12-17T20:55:00Z26.93-94.6824.013.0901210.030.171259TRUETRUEVFRMETAR25.02018-12-17 21:05:44L›‹„\)5   3KOQN 172055Z AUTO 29015G20KT 10SM OVC050 07/M03 A2980 RMK AO2KOQN2018-12-17T20:55:00Z39.98-75.587.0-3.0290152010.029.799213TRUETRUEVFRMETAR142.02018-12-17 21:05:44 Î7r§ÎS›‹„c)5   3KGDB 172055Z AUTO 10010G16KT 10SM CLR 04/M04 A3011 RMK AO2 T00351041KGDB2018-12-17T20:55:00Z44.75-95.553.5-4.1100101610.030.109253TRUETRUEVFRMETAR319.02018-12-17 21:05:44E›‹„b(5    3KGHB 172055Z AUTO 07014KT 10SM OVC014 16/13 A3021 RMK A01KGHB2018-12-17T20:55:00Z27.83-91.9816.013.0701410.030.209646TRUETRUEMVFRMETAR30.02018-12-17 21:05:44?›‹„a(y5    3KGUL 172055Z AUTO 06009KT 10SM CLR 19/12 A3018 RMK A01KGUL2018-12-17T20:55:00Z27.3-93.5319.012.060910.030.180119TRUETRUEVFRMETAR30.02018-12-17 21:05:44C›‹„`({5    3KHAE 172055Z AUTO 28004KT 10SM CLR 10/M08 A3025 RMK AO2KHAE2018-12-17T20:55:00Z39.73-91.4510.0-8.0280410.030.250984TRUETRUEVFRMETAR234.02018-12-17 21:05:44 «2V‚«Q›‹„g)5    3KFLY 172055Z AUTO 11005KT 10SM CLR 13/M15 A3005 RMK AO2 T01311154KFLY2018-12-17T20:55:00Z38.95-104.5713.1-15.4110510.030.050198TRUETRUEVFRMETAR2096.02018-12-17 21:05:44N›‹„f)5    3KFOA 172055Z AUTO 31007KT 10SM CLR 10/M01 A3021 RMK AO2 T01011009KFOA2018-12-17T20:55:00Z38.67-88.4510.1-0.9310710.030.209646TRUETRUEVFRMETAR144.02018-12-17 21:05:44V›‹„e)!5   3KGBK 172055Z AUTO 04012G18KT 10SM SCT024 SCT029 SCT039 20/14 A3016 RMK A01KGBK2018-12-17T20:55:00Z27.2-92.220.014.040121810.030.159449TRUETRUEVFRMETAR59.02018-12-17 21:05:44H›‹„d)5     3KGCM 172055Z AUTO 00000KT 10SM CLR 14/00 A3022 RMK AO2 TSNOKGCM2018-12-17T20:55:00Z36.3-95.4814.00.00010.030.221457TRUETRUETRUEVFRMETAR221.02018-12-17 21:05:44 º/_ºM›‹„k)5    3KFEP 172055Z AUTO 32006KT 10SM CLR 04/M05 A3024 RMK AO2 T00401055KFEP2018-12-17T20:55:00Z42.25-89.584.0-5.5320610.030.239174TRUETRUEVFRMETAR262.02018-12-17 21:05:44L›‹„j) 5    3KFET 172055Z AUTO 17009KT 10SM CLR 11/02 A3012 RMK AO2 T01080021KFET2018-12-17T20:55:00Z41.45-96.5210.82.1170910.030.121063TRUETRUEVFRMETAR367.02018-12-17 21:05:44J›‹„i) 5    3KFHB 172055Z AUTO 28007KT 10SM CLR 16/10 A3007 RMK AO2 T01560099KFHB2018-12-17T20:55:00Z30.62-81.4715.69.9280710.030.070866TRUETRUEVFRMETAR5.02018-12-17 21:05:44K›‹„h)5    3KFKA 172055Z AUTO 00000KT 10SM CLR 00/M08 A3021 RMK AO2 T00021085KFKA2018-12-17T20:55:00Z43.68-92.170.2-8.50010.030.209646TRUETRUEVFRMETAR389.02018-12-17 21:05:44 Í9h—́D›‹„o({5    3KEVU 172055Z AUTO 19007KT 10SM CLR 11/M18 A3020 RMK AO2KEVU2018-12-17T20:55:00Z40.35-94.9211.0-18.0190710.030.200787TRUETRUEVFRMETAR349.02018-12-17 21:05:44K›‹„n) 5    3KF00 172055Z AUTO 06004KT 10SM CLR 13/08 A3018 RMK AO2 T01270084KF002018-12-17T20:55:00Z33.62-96.1812.78.460410.030.180119TRUETRUEVFRMETAR188.02018-12-17 21:05:44K›‹„m) 5    3KF17 172055Z AUTO 13003KT 10SM CLR 16/06 A3018 RMK AO2 T01560062KF172018-12-17T20:55:00Z31.83-94.1515.66.2130310.030.180119TRUETRUEVFRMETAR97.02018-12-17 21:05:44A›‹„l(y5    3KF44 172055Z AUTO 27003KT 10SM CLR 12/06 A3017 RMK AO2KF442018-12-17T20:55:00Z32.17-95.8312.06.0270310.030.171259TRUETRUEVFRMETAR135.02018-12-17 21:05:44 Î.f˜ÎD›‹„s({5    3KECU 172055Z AUTO 18005KT 10SM CLR 19/M06 A3021 RMK AO2KECU2018-12-17T20:55:00Z29.95-100.1719.0-6.0180510.030.209646TRUETRUEVFRMETAR725.02018-12-17 21:05:44H›‹„r) 5    3KEDN 172055Z AUTO 00000KT 10SM CLR 18/07 A3013 RMK AO2 T01750072KEDN2018-12-17T20:55:00Z31.3-85.917.57.20010.030.129921TRUETRUEVFRMETAR110.02018-12-17 21:05:44B›‹„q(}5   3KEIR 172055Z AUTO VRB05G10KT 9SM CLR 13/11 A3023 RMK A01KEIR2018-12-17T20:55:00Z28.63-91.4813.011.005109.030.230314TRUETRUEVFRMETAR28.02018-12-17 21:05:44L›‹„p) 5    3KETN 172055Z AUTO 35003KT 10SM CLR 11/00 A3019 RMK AO2 T01090004KETN2018-12-17T20:55:00Z32.42-98.8210.90.4350310.030.188976TRUETRUEVFRMETAR446.02018-12-17 21:05:44 º'Vº?›‹„w(y5    3KDUA 172055Z AUTO 07004KT 10SM CLR 13/07 A3020 RMK AO2KDUA2018-12-17T20:55:00Z33.95-96.413.07.070410.030.200787TRUETRUEVFRMETAR213.02018-12-17 21:05:44Q›‹„v)5    3KDUX 172055Z AUTO 19011KT 10SM CLR 13/M07 A3011 RMK AO2 T01271069KDUX2018-12-17T20:55:00Z35.85-102.0212.7-6.91901110.030.109253TRUETRUEVFRMETAR1129.02018-12-17 21:05:44K›‹„u) 5    3KDZJ 172055Z AUTO 32005KT 10SM CLR 12/01 A3011 RMK AO2 T01150007KDZJ2018-12-17T20:55:00Z34.85-84.011.50.7320510.030.109253TRUETRUEVFRMETAR582.02018-12-17 21:05:44S›‹„t)5    3KEBA 172055Z AUTO 29008KT 270V330 10SM CLR 21/00 A3004 RMK AO2 T02060001KEBA2018-12-17T20:55:00Z34.1-82.8220.60.1290810.030.041338TRUETRUEVFRMETAR184.02018-12-17 21:05:44 8z©â?›‹„|(y5    3KCVW 172055Z AUTO 17007KT 10SM CLR 15/13 A3019 RMK A01KCVW2018-12-17T20:55:00Z29.78-93.315.013.0170710.030.188976TRUETRUEVFRMETAR1.02018-12-17 21:05:44A›‹„{(y5    3KCZT 172055Z AUTO 12004KT 10SM CLR 22/00 A3013 RMK AO2KCZT2018-12-17T20:55:00Z28.52-99.8222.00.0120410.030.129921TRUETRUEVFRMETAR183.02018-12-17 21:05:44K›‹„z)5    3KDNV 172055Z AUTO 32007KT 10SM CLR 04/M01 A3017 RMK AO2 T00421008KDNV2018-12-17T20:55:00Z40.2-87.64.2-0.8320710.030.171259TRUETRUEVFRMETAR212.02018-12-17 21:05:448›‹„y(m5    3KDSF 172055Z AUTO 9SM BKN027 19/11 A3019 RMK A01KDSF2018-12-17T20:55:00Z28.35-88.2719.011.09.030.188976TRUETRUEMVFRMETAR130.02018-12-17 21:05:44B›‹„x({5    3KDTL 172055Z AUTO 14009KT 10SM CLR 00/M08 A3012 RMK AO2KDTL2018-12-17T20:55:00Z46.82-95.870.0-8.0140910.030.121063TRUETRUEVFRMETAR426.02018-12-17 21:05:44 Æ:h–ƁJ›‹…)5   3KCNI 172055Z AUTO 31011G20KT 10SM CLR 15/M02 A3012 RMK AO2KCNI2018-12-17T20:55:00Z34.32-84.4215.0-2.0310112010.030.121063TRUETRUEVFRMETAR372.02018-12-17 21:05:44L›‹„)5    3KCOM 172055Z AUTO 00000KT 10SM SCT100 12/01 A3020 RMK AO2 T01220014KCOM2018-12-17T20:55:00Z31.83-99.412.21.40010.030.200787TRUETRUEVFRMETAR517.02018-12-17 21:05:44L›‹„~)5     3KCPT 172055Z AUTO 33005KT 10SM CLR 12/04 A3021 RMK AO2 P0003KCPT2018-12-17T20:55:00Z32.35-97.4312.04.0330510.030.209646TRUETRUEVFR0.03METAR260.02018-12-17 21:05:44@›‹„}(y5    3KCQF 172055Z AUTO 33004KT 10SM CLR 17/08 A3018 RMK AO2KCQF2018-12-17T20:55:00Z30.47-87.8817.08.0330410.030.180119TRUETRUEVFRMETAR28.02018-12-17 21:05:44 »/]»L›‹…)5    3KCFE 172055Z AUTO 07007KT 10SM CLR 02/M08 A3022 RMK AO2 T00151076KCFE2018-12-17T20:55:00Z45.17-93.851.5-7.670710.030.221457TRUETRUEVFRMETAR295.02018-12-17 21:05:44J›‹…) 5    3KCIR 172055Z AUTO 01005KT 10SM CLR 12/00 A3021 RMK AO2 T01230002KCIR2018-12-17T20:55:00Z37.07-89.2212.30.210510.030.209646TRUETRUEVFRMETAR98.02018-12-17 21:05:44L›‹…) 5    3KCMD 172055Z AUTO 32004KT 10SM CLR 15/03 A3018 RMK AO2 T01500028KCMD2018-12-17T20:55:00Z34.27-86.8515.02.8320410.030.180119TRUETRUEVFRMETAR294.02018-12-17 21:05:44K›‹…)5    3KCMY 172055Z AUTO 00000KT 10SM CLR 02/M07 A3024 RMK AO2 T00201069KCMY2018-12-17T20:55:00Z43.97-90.732.0-6.90010.030.239174TRUETRUEVFRMETAR256.02018-12-17 21:05:44 Í9c’́?›‹…(y5    3KTVI 172055Z AUTO 30004KT 10SM CLR 18/07 A3011 RMK AO2KTVI2018-12-17T20:55:00Z30.9-83.8818.07.0300410.030.109253TRUETRUEVFRMETAR80.02018-12-17 21:05:44K›‹…)5   3KUYF 172055Z AUTO 32010G14KT 10SM OVC028 04/00 A3009 RMK AO2KUYF2018-12-17T20:55:00Z39.93-83.474.00.0320101410.030.088583TRUETRUEMVFRMETAR330.02018-12-17 21:05:44P›‹…)5    3KCDI 172055Z AUTO 28006KT 10SM BKN040 06/M02 A3006 RMK AO2 T00551021KCDI2018-12-17T20:55:00Z39.97-81.585.5-2.1280610.030.059055TRUETRUEVFRMETAR244.02018-12-17 21:05:44A›‹…(y5    3KCEY 172055Z AUTO 33007KT 10SM CLR 13/00 A3019 RMK AO1KCEY2018-12-17T20:55:00Z36.67-88.3713.00.0330710.030.188976TRUETRUEVFRMETAR176.02018-12-17 21:05:44 Ø,s¯ØQ›‹… )5     3KS52 172055Z AUTO 00000KT 7SM BR OVC003 01/01 A2995 RMK AO2 T00120006KS522018-12-17T20:55:00Z48.38-120.151.20.6007.029.949802TRUETRUEBRLIFRMETAR520.02018-12-17 21:05:44>›‹… (y5    3KSCF 172055Z AUTO 09008KT 10SM CLR 13/10 A3015 RMK A01KSCF2018-12-17T20:55:00Z29.12-91.8713.010.090810.030.15059TRUETRUEVFRMETAR8.02018-12-17 21:05:443›‹… (i5    3KSPR 172055Z AUTO 10SM CLR 14/10 A3021 RMK A01KSPR2018-12-17T20:55:00Z28.6-91.214.010.010.030.209646TRUETRUEVFRMETAR31.02018-12-17 21:05:44N›‹… )5    3KSTE 172055Z AUTO 26003KT 10SM CLR 00/M09 A3021 RMK AO2 T10011094KSTE2018-12-17T20:55:00Z44.55-89.53-0.1-9.4260310.030.209646TRUETRUEVFRMETAR338.02018-12-17 21:05:44 Í8i™ÍF›‹…) 5    3KRLD 172055Z AUTO 11004KT 10SM CLR 13/06 A3000 RMK AO2 T01300055KRLD2018-12-17T20:55:00Z46.3-119.313.05.5110410.030.0TRUETRUEVFRMETAR120.02018-12-17 21:05:44J›‹…) 5    3KRMN 172055Z AUTO 25005KT 10SM CLR 13/03 A2987 RMK AO2 T01280029KRMN2018-12-17T20:55:00Z38.4-77.4512.82.9250510.029.870079TRUETRUEVFRMETAR65.02018-12-17 21:05:44I›‹…) 5    3KRNV 172055Z AUTO 00000KT 10SM CLR 15/10 A3020 RMK AO2 T01490097KRNV2018-12-17T20:55:00Z33.77-90.7514.99.70010.030.200787TRUETRUEVFRMETAR41.02018-12-17 21:05:44B›‹… ({5    3KRZL 172055Z AUTO 31007KT 10SM CLR 04/M01 A3019 RMK AO2KRZL2018-12-17T20:55:00Z40.95-87.184.0-1.0310710.030.188976TRUETRUEVFRMETAR213.02018-12-17 21:05:44 É&nÉN›‹…)5    3KPPQ 172055Z AUTO 29006KT 10SM CLR 11/M07 A3024 RMK AO2 T01081075KPPQ2018-12-17T20:55:00Z39.63-90.7810.8-7.5290610.030.239174TRUETRUEVFRMETAR216.02018-12-17 21:05:44K›‹…) 5    3KPSN 172055Z AUTO 28003KT 10SM CLR 13/06 A3020 RMK AO2 T01370064KPSN2018-12-17T20:55:00Z31.78-95.713.76.4280310.030.200787TRUETRUEVFRMETAR129.02018-12-17 21:05:442›‹…(m5     3KRAW 172055Z AUTO 00000KT 10SM CLR A3023 RMK AO2KRAW2018-12-17T20:55:00Z38.35-93.350010.030.230314TRUETRUEVFRMETAR285.02018-12-17 21:05:44T›‹…)5     3KRFI 172055Z AUTO 00000KT 10SM CLR 13/06 A3018 RMK AO2 T01320062 PWINOKRFI2018-12-17T20:55:00Z32.15-94.8513.26.20010.030.180119TRUETRUETRUEVFRMETAR135.02018-12-17 21:05:44 Á7f“ÁL›‹…) 5    3KPEQ 172055Z AUTO 05006KT 10SM CLR 14/01 A3014 RMK AO2 T01420009KPEQ2018-12-17T20:55:00Z31.38-103.5214.20.950610.030.138779TRUETRUEVFRMETAR797.02018-12-17 21:05:44M›‹…)5    3KPEX 172055Z AUTO 09010KT 10SM CLR 02/M06 A3017 RMK AO2 T00191060KPEX2018-12-17T20:55:00Z45.37-94.731.9-6.0901010.030.171259TRUETRUEVFRMETAR360.02018-12-17 21:05:44K›‹…) 5    3KPMV 172055Z AUTO 16008KT 10SM CLR 09/03 A3016 RMK AO2 T00860027KPMV2018-12-17T20:55:00Z40.95-95.928.62.7160810.030.159449TRUETRUEVFRMETAR367.02018-12-17 21:05:44C›‹…({5    3KPOY 172055Z AUTO 15008KT 10SM CLR 05/M08 A2992 RMK AO2KPOY2018-12-17T20:55:00Z44.87-108.85.0-8.0150810.029.920275TRUETRUEVFRMETAR1552.02018-12-17 21:05:44 È1l§ÈY›‹…)'5    3KXBP 172055Z AUTO 24005KT 10SM SCT110 12/03 A3023 RMK AO2 6//// T01160031 PNOKXBP2018-12-17T20:55:00Z33.18-97.8311.63.1240510.030.230314TRUETRUEVFRSPECI260.02018-12-17 21:05:44?›‹…(y5    3KXIH 172055Z AUTO 00000KT 10SM CLR 17/12 A3018 RMK A01KXIH2018-12-17T20:55:00Z29.18-94.5217.012.00010.030.180119TRUETRUEVFRMETAR75.02018-12-17 21:05:44?›‹…(y5    3KXPY 172055Z AUTO 36005KT 10SM CLR 13/10 A3022 RMK A01KXPY2018-12-17T20:55:00Z29.12-90.213.010.0360510.030.221457TRUETRUEVFRMETAR2.02018-12-17 21:05:44I›‹…) 5    3KXSA 172055Z AUTO 23006KT 10SM CLR 11/03 A2985 RMK AO2 T01090031KXSA2018-12-17T20:55:00Z37.87-76.910.93.1230610.029.84941TRUETRUEVFRMETAR42.02018-12-17 21:05:44 Ö.g ÖD›‹… (5    3KVKY 172055Z AUTO 34008KT 10SM FEW024 16/11 A3022 RMK A01KVKY2018-12-17T20:55:00Z29.25-88.4316.011.0340810.030.221457TRUETRUEVFRMETAR32.02018-12-17 21:05:44A›‹…(y5    3KVOA 172055Z AUTO 34004KT 10SM CLR 16/10 A3018 RMK A01KVOA2018-12-17T20:55:00Z29.23-87.7816.010.0340410.030.180119TRUETRUEVFRMETAR53.02018-12-17 21:05:44A›‹…(}5    3KVQT 172055Z AUTO 07007KT 9SM FEW015 15/12 A3022 RMK A01KVQT2018-12-17T20:55:00Z28.27-92.2715.012.07079.030.221457TRUETRUEVFRMETAR25.02018-12-17 21:05:44L›‹…) 5    3KW81 172055Z AUTO 25003KT 10SM CLR 12/00 A2987 RMK AO1 T01171005KW812018-12-17T20:55:00Z37.18-78.111.7-0.5250310.029.870079TRUETRUEVFRMETAR129.02018-12-17 21:05:44 Ï;v¦ÏQ›‹…$)5   3KONP 172055Z AUTO 18015G27KT 10SM SCT031 OVC120 11/07 A2998 RMK AO2KONP2018-12-17T20:55:00Z44.57-124.0311.07.0180152710.029.97933TRUETRUEVFRMETAR48.02018-12-17 21:05:44J›‹…#) 5    3KORG 172055Z AUTO 20007KT 10SM CLR 18/14 A3021 RMK AO2 T01800137KORG2018-12-17T20:55:00Z30.07-93.818.013.7200710.030.209646TRUETRUEVFRMETAR4.02018-12-17 21:05:44?›‹…"(w5    3KVAF 172055Z AUTO 12008KT 7SM CLR 19/11 A3016 RMK A01KVAF2018-12-17T20:55:00Z27.35-94.6319.011.012087.030.159449TRUETRUEVFRMETAR46.02018-12-17 21:05:44?›‹…!(y5    3KVBS 172055Z AUTO VRB05KT 10SM CLR 16/12 A3019 RMK A01KVBS2018-12-17T20:55:00Z29.48-93.6316.012.00510.030.188976TRUETRUEVFRMETAR31.02018-12-17 21:05:44 Ê-d‘ʁA›‹…((y5    3KMZG 172055Z AUTO 14008KT 10SM CLR 19/15 A3018 RMK A01KMZG2018-12-17T20:55:00Z27.73-96.1819.015.0140810.030.180119TRUETRUEVFRMETAR29.02018-12-17 21:05:44M›‹…')5    3KOCQ 172055Z AUTO 32006KT 10SM CLR 01/M09 A3019 RMK AO1 T00101087KOCQ2018-12-17T20:55:00Z44.87-87.921.0-8.7320610.030.188976TRUETRUEVFRMETAR183.02018-12-17 21:05:44C›‹…&({5    3KOJA 172055Z AUTO 15003KT 10SM CLR 12/M04 A3019 RMK AO2KOJA2018-12-17T20:55:00Z35.55-98.6712.0-4.0150310.030.188976TRUETRUEVFRMETAR490.02018-12-17 21:05:44M›‹…%)5    3KOKM 172055Z AUTO 09005KT 10SM CLR 14/M01 A3020 RMK AO2 T01441015KOKM2018-12-17T20:55:00Z35.67-95.9514.4-1.590510.030.200787TRUETRUEVFRMETAR220.02018-12-17 21:05:44 Ù+dŸÙ@›‹…,(y5    3KMDJ 172055Z AUTO 36008KT 10SM CLR 14/11 A3022 RMK A01KMDJ2018-12-17T20:55:00Z28.65-89.814.011.0360810.030.221457TRUETRUEVFRMETAR31.02018-12-17 21:05:44?›‹…+(y5    3KMEZ 172055Z AUTO 07007KT 10SM CLR 16/06 A3018 RMK AO2KMEZ2018-12-17T20:55:00Z34.55-94.216.06.070710.030.180119TRUETRUEVFRMETAR329.02018-12-17 21:05:44A›‹…*(y5    3KMIS 172055Z AUTO 33010KT 10SM CLR 13/12 A3022 RMK A01KMIS2018-12-17T20:55:00Z29.3-88.8513.012.03301010.030.221457TRUETRUEVFRMETAR32.02018-12-17 21:05:44O›‹…))5    3KMMH 172055Z AUTO 14004KT 10SM CLR 06/M02 A3014 RMK AO2 T00601023KMMH2018-12-17T20:55:00Z37.62-118.826.0-2.3140410.030.138779TRUETRUEVFRMETAR2173.02018-12-17 21:05:44 (8zµñ(C›‹…1({5    3KM02 172055Z AUTO 34006KT 10SM CLR 14/M02 A3016 RMK A01KM022018-12-17T20:55:00Z36.13-87.4314.0-2.0340610.030.159449TRUETRUEVFRMETAR272.02018-12-17 21:05:44>›‹…0(y5    3KM04 172055Z AUTO 00000KT 10SM CLR 15/01 A3020 RMK A01KM042018-12-17T20:55:00Z35.58-89.5815.01.00010.030.200787TRUETRUEVFRMETAR85.02018-12-17 21:05:44?›‹…/(y5    3KM54 172055Z AUTO 00000KT 10SM CLR 14/00 A3014 RMK A01KM542018-12-17T20:55:00Z36.18-86.3214.00.00010.030.138779TRUETRUEVFRMETAR180.02018-12-17 21:05:448›‹….(o5    3KHQI 172055Z AUTO 10SM FEW028 18/11 A3019 RMK A01KHQI2018-12-17T20:55:00Z27.93-93.6718.011.010.030.188976TRUETRUEVFRMETAR26.02018-12-17 21:05:44B›‹…-({5    3KLXL 172055Z AUTO 14006KT 10SM CLR 01/M09 A3019 RMK AO2KLXL2018-12-17T20:55:00Z45.95-94.331.0-9.0140610.030.188976TRUETRUEVFRMETAR342.02018-12-17 21:05:44 œPmœK›‹…5) 5    3KTBR 172055Z AUTO 25006KT 10SM CLR 18/09 A3004 RMK AO2 T01750087KTBR2018-12-17T20:55:00Z32.48-81.7317.58.7250610.030.041338TRUETRUEVFRMETAR57.02018-12-17 21:05:44]›‹…4)-5    3KTEX 172055Z AUTO 25008KT 230V290 10SM SCT048 BKN055 OVC065 05/M08 A3022 RMK AO2KTEX2018-12-17T20:55:00Z37.95-107.95.0-8.0250810.030.221457TRUETRUEVFRMETAR2769.02018-12-17 21:05:44>›‹…3(y5    3KTHA 172055Z AUTO VRB04KT 10SM CLR 13/02 A3015 RMK A01KTHA2018-12-17T20:55:00Z35.38-86.2513.02.00410.030.15059TRUETRUEVFRMETAR331.02018-12-17 21:05:44f›‹…2)75     3PAAD 172055Z AUTO 26012KT 4SM BR BKN003 BKN008 OVC019 M22/M25 A2941 RMK AO2 T12221246PAAD2018-12-17T20:55:00Z70.13-146.28-22.2-24.6260124.029.409449TRUETRUEBRLIFRMETAR8.02018-12-17 21:05:44 Í/j•ÍB›‹…9({5    3KSRE 172055Z AUTO 02007KT 10SM CLR 14/M02 A3018 RMK AO2KSRE2018-12-17T20:55:00Z35.27-96.6814.0-2.020710.030.180119TRUETRUEVFRMETAR312.02018-12-17 21:05:44O›‹…8)5    3KSWW 172055Z AUTO 00000KT 10SM BKN120 11/00 A3021 RMK AO2 T01101004KSWW2018-12-17T20:55:00Z32.47-100.4711.0-0.40010.030.209646TRUETRUEVFRMETAR727.02018-12-17 21:05:44?›‹…7(y5    3KSYI 172055Z AUTO 00000KT 10SM CLR 13/05 A3016 RMK A01KSYI2018-12-17T20:55:00Z35.57-86.4513.05.00010.030.159449TRUETRUEVFRMETAR245.02018-12-17 21:05:44K›‹…6)5    3KSYN 172055Z AUTO 00000KT 10SM CLR 00/M05 A3022 RMK AO2 T00011054KSYN2018-12-17T20:55:00Z44.47-93.020.1-5.40010.030.221457TRUETRUEVFRMETAR280.02018-12-17 21:05:44 ×9oœ×?›‹…=(y5    3KSNH 172055Z AUTO 00000KT 10SM CLR 14/04 A3018 RMK A01KSNH2018-12-17T20:55:00Z35.17-88.2214.04.00010.030.180119TRUETRUEVFRMETAR144.02018-12-17 21:05:44M›‹…<)5    3KSNL 172055Z AUTO 04004KT 10SM CLR 12/M02 A3019 RMK AO2 T01241023KSNL2018-12-17T20:55:00Z35.35-96.9512.4-2.340410.030.188976TRUETRUEVFRMETAR327.02018-12-17 21:05:44D›‹…;({5    3KSOA 172055Z AUTO 18009KT 10SM CLR 20/M06 A3018 RMK AO2KSOA2018-12-17T20:55:00Z30.58-100.6520.0-6.0180910.030.180119TRUETRUEVFRMETAR652.02018-12-17 21:05:44A›‹…:(y5    3KSRB 172055Z AUTO 23003KT 10SM CLR 12/02 A3014 RMK A01KSRB2018-12-17T20:55:00Z36.05-85.5312.02.0230310.030.138779TRUETRUEVFRMETAR313.02018-12-17 21:05:44 ¼.[”¼R›‹…A)5    3KSBS 172055Z AUTO 00000KT 10SM OVC090 M03/M09 A3016 RMK AO1 T10271089KSBS2018-12-17T20:55:00Z40.52-106.87-2.7-8.90010.030.159449TRUETRUEVFRSPECI2096.02018-12-17 21:05:44A›‹…@(y5    3KSCX 172055Z AUTO 23004KT 10SM CLR 11/01 A3011 RMK A01KSCX2018-12-17T20:55:00Z36.45-84.5811.01.0230410.030.109253TRUETRUEVFRMETAR471.02018-12-17 21:05:44M›‹…?)5    3KSGS 172055Z AUTO 17003KT 10SM CLR 02/M07 A3023 RMK AO2 T00151075KSGS2018-12-17T20:55:00Z44.87-93.031.5-7.5170310.030.230314TRUETRUEVFRSPECI250.02018-12-17 21:05:44L›‹…>) 5    3KSJS 172055Z AUTO 26007KT 10SM CLR 11/02 A3008 RMK AO2 T01080016KSJS2018-12-17T20:55:00Z37.75-82.6310.81.6260710.030.079725TRUETRUEVFRMETAR372.02018-12-17 21:05:44 Â8oÂU›‹…E)5     3KRWV 172055Z AUTO 30005KT 10SM CLR 20/03 A3019 RMK AO2 PWINO T01990027KRWV2018-12-17T20:55:00Z30.52-96.719.92.7300510.030.188976TRUETRUETRUEVFRMETAR119.02018-12-17 21:05:44L›‹…D)5    3KRZN 172055Z AUTO 00000KT 10SM CLR 01/M11 A3023 RMK AO2 T00051112KRZN2018-12-17T20:55:00Z45.82-92.370.5-11.20010.030.230314TRUETRUEVFRSPECI301.02018-12-17 21:05:44C›‹…C(}5     3KRZR 172055Z AUTO 33007KT 6SM HZ CLR 14/01 A3012 RMK A01KRZR2018-12-17T20:55:00Z35.22-84.814.01.033076.030.121063TRUETRUEHZVFRMETAR263.02018-12-17 21:05:44B›‹…B({5    3KS39 172055Z AUTO 17010KT 10SM CLR 09/M01 A2998 RMK AO2KS392018-12-17T20:55:00Z44.28-120.99.0-1.01701010.029.97933TRUETRUEVFRMETAR991.02018-12-17 21:05:44 Û8e¢ÛA›‹…I({5    3KRKW 172055Z AUTO VRB04KT 10SM CLR 12/M02 A3012 RMK A01KRKW2018-12-17T20:55:00Z35.92-84.6812.0-2.00410.030.121063TRUETRUEVFRMETAR508.02018-12-17 21:05:44=›‹…H(y5    3KRNC 172055Z AUTO 00000KT 10SM CLR 13/03 A3015 RMK A01KRNC2018-12-17T20:55:00Z35.7-85.8513.03.00010.030.15059TRUETRUEVFRMETAR315.02018-12-17 21:05:44M›‹…G)5    3KRPJ 172055Z AUTO 31007KT 10SM CLR 04/M04 A3023 RMK AO2 T00411039KRPJ2018-12-17T20:55:00Z41.88-89.084.1-3.9310710.030.230314TRUETRUEVFRSPECI238.02018-12-17 21:05:44B›‹…F({5    3KRTS 172055Z AUTO VRB04KT 10SM CLR 07/M06 A3012 RMK AO2KRTS2018-12-17T20:55:00Z39.67-119.887.0-6.00410.030.121063TRUETRUEVFRMETAR1540.02018-12-17 21:05:44 Î/]’΁>›‹…M(y5    3KPVE 172055Z AUTO VRB06KT 10SM CLR 15/01 A3017 RMK A01KPVE2018-12-17T20:55:00Z35.65-88.215.01.00610.030.171259TRUETRUEVFRMETAR149.02018-12-17 21:05:44E›‹…L(5    3KPVF 172055Z AUTO 22004KT 10SM SCT022 10/05 A3021 RMK AO1KPVF2018-12-17T20:55:00Z38.72-120.7510.05.0220410.030.209646TRUETRUEVFRSPECI789.02018-12-17 21:05:44L›‹…K) 5    3KPXE 172055Z AUTO 30007KT 10SM CLR 19/03 A3008 RMK AO2 T01920025KPXE2018-12-17T20:55:00Z32.52-83.7719.22.5300710.030.079725TRUETRUEVFRMETAR127.02018-12-17 21:05:44K›‹…J) 5    3KRAS 172055Z AUTO 10004KT 10SM CLR 19/15 A3019 RMK AO2 T01870149KRAS2018-12-17T20:55:00Z27.82-97.0818.714.9100410.030.188976TRUETRUEVFRMETAR2.02018-12-17 21:05:44 ¹%T€¹A›‹…Q(}5     3KPMU 172055Z AUTO 00000KT 4SM HZ CLR 16/03 A3020 RMK AO2KPMU2018-12-17T20:55:00Z34.37-89.916.03.0004.030.200787TRUETRUEHZMVFRMETAR67.02018-12-17 21:05:44N›‹…P)5    3KPPA 172055Z AUTO 17014KT 10SM CLR 14/M06 A3015 RMK AO2 T01431063KPPA2018-12-17T20:55:00Z35.62-101.014.3-6.31701410.030.15059TRUETRUEVFRSPECI989.02018-12-17 21:05:44K›‹…O) 5    3KPRG 172055Z AUTO 33008KT 10SM CLR 06/00 A3020 RMK AO2 T00551002KPRG2018-12-17T20:55:00Z39.7-87.675.5-0.2330810.030.200787TRUETRUEVFRSPECI199.02018-12-17 21:05:44U›‹…N)5    3KPTD 172055Z AUTO 29008KT 10SM SCT013 BKN026 OVC055 00/M01 A2970 RMK AO2KPTD2018-12-17T20:55:00Z44.68-74.950.0-1.0290810.029.698818TRUETRUEMVFRSPECI144.02018-12-17 21:05:44 Ð+X”Ё>›‹…U(w5    3KLUG 172055Z AUTO 35005KT 9SM CLR 14/01 A3016 RMK A01KLUG2018-12-17T20:55:00Z35.52-86.814.01.035059.030.159449TRUETRUEVFRMETAR219.02018-12-17 21:05:44>›‹…T(}5    3KLVL 172055Z AUTO 10SM CLR 14/01 A2989 RMK AO1 T01380007KLVL2018-12-17T20:55:00Z36.78-77.813.80.710.029.890747TRUETRUEVFRMETAR100.02018-12-17 21:05:44M›‹…S) 5    3KLXN 172055Z AUTO 18011KT 10SM CLR 13/00 A3003 RMK AO2 T01310001KLXN2018-12-17T20:55:00Z40.78-99.7713.10.11801110.030.029528TRUETRUEVFRSPECI734.02018-12-17 21:05:44O›‹…R)5   3KPLU 172055Z AUTO 19007G16KT 150V210 10SM CLR 12/04 A2991 RMK AO2KPLU2018-12-17T20:55:00Z47.1-122.2812.04.019071610.029.911417TRUETRUEVFRSPECI164.02018-12-17 21:05:44 º"R‹ºK›‹…Y) 5    3KLCG 172055Z AUTO 19009KT 10SM CLR 06/00 A3005 RMK AO2 T00610002KLCG2018-12-17T20:55:00Z42.25-96.986.10.2190910.030.050198TRUETRUEVFRSPECI436.02018-12-17 21:05:44A›‹…X(y5    3KLNP 172055Z AUTO 29007KT 10SM CLR 10/00 A3009 RMK AO2KLNP2018-12-17T20:55:00Z36.97-82.5210.00.0290710.030.088583TRUETRUEVFRMETAR817.02018-12-17 21:05:44J›‹…W) 5    3KLNQ 172055Z AUTO 34003KT 10SM CLR 13/09 A3023 RMK AO2 T01310090KLNQ2018-12-17T20:55:00Z29.35-89.4313.19.0340310.030.230314TRUETRUEVFRMETAR1.02018-12-17 21:05:44X›‹…V)!5    3KLRU 172055Z AUTO 15005KT 10SM BKN050 OVC075 14/05 A3017 RMK AO2 T01350045KLRU2018-12-17T20:55:00Z32.27-106.9213.54.5150510.030.171259TRUETRUEVFRMETAR1358.02018-12-17 21:05:44 ­(H€­M›‹…])5    3KJTC 172055Z AUTO 00000KT 10SM BKN030 OVC034 07/M00 A3019 RMK AO2KJTC2018-12-17T20:55:00Z34.13-109.327.00.00010.030.188976TRUETRUEMVFRSPECI2150.02018-12-17 21:05:44B›‹…\({5    3KJWN 172055Z AUTO 28007KT 10SM CLR 15/M01 A3015 RMK A01KJWN2018-12-17T20:55:00Z36.18-86.8815.0-1.0280710.030.15059TRUETRUEVFRMETAR151.02018-12-17 21:05:44Z›‹…[)#5   3KL35 172055Z AUTO 24009G14KT 214V284 10SM SCT026 SCT033 06/00 A3017 RMK AO2KL352018-12-17T20:55:00Z34.27-116.856.00.024091410.030.171259TRUETRUEVFRSPECI2059.02018-12-17 21:05:44R›‹…Z)5    3KLAM 172055Z AUTO 14004KT 10SM OVC110 06/M05 A3020 RMK AO2 T00611049KLAM2018-12-17T20:55:00Z35.87-106.276.1-4.9140410.030.200787TRUETRUEVFRSPECI2179.02018-12-17 21:05:44 ¼0eƒ¼A›‹…a({5    3KJAU 172055Z AUTO 00000KT 10SM CLR 14/M01 A3014 RMK A01KJAU2018-12-17T20:55:00Z36.33-84.1714.0-1.00010.030.138779TRUETRUEVFRMETAR360.02018-12-17 21:05:44\›‹…`)5    3KJCA 172055Z AUTO 26013G17KT 10SM CLR 16/02 A3005 RMK AO2 PWINO T01640016KJCA2018-12-17T20:55:00Z34.18-83.5716.41.6260131710.030.050198TRUETRUETRUEVFRMETAR290.02018-12-17 21:05:44E›‹…_(5   3KJGG 172055Z AUTO 29009G16KT 10SM CLR 14/03 A2987 RMK AO1KJGG2018-12-17T20:55:00Z37.23-76.7214.03.029091610.029.870079TRUETRUEVFRMETAR15.02018-12-17 21:05:44J›‹…^) 5    3KJKA 172055Z AUTO 33005KT 10SM CLR 18/10 A3017 RMK AO2 T01760095KJKA2018-12-17T20:55:00Z30.28-87.6717.69.5330510.030.171259TRUETRUEVFRMETAR5.02018-12-17 21:05:44 Ü9u®ÜL›‹…e) 5    3KHWY 172055Z AUTO 22003KT 10SM CLR 13/01 A2983 RMK AO2 T01300010KHWY2018-12-17T20:55:00Z38.58-77.7213.01.0220310.029.828741TRUETRUEVFRMETAR103.02018-12-17 21:05:44A›‹…d(y5    3KHZD 172055Z AUTO 31004KT 10SM CLR 14/02 A3018 RMK A01KHZD2018-12-17T20:55:00Z36.08-88.4714.02.0310410.030.180119TRUETRUEVFRMETAR151.02018-12-17 21:05:44>›‹…c(y5    3KIMM 172055Z AUTO VRB05KT 10SM CLR 20/12 A3009 RMK A01KIMM2018-12-17T20:55:00Z26.43-81.420.012.00510.030.088583TRUETRUEVFRMETAR12.02018-12-17 21:05:44A›‹…b(y5    3KIOB 172055Z AUTO 31008KT 10SM CLR 10/00 A3013 RMK AO2KIOB2018-12-17T20:55:00Z38.05-83.9810.00.0310810.030.129921TRUETRUEVFRMETAR311.02018-12-17 21:05:44 ¶*T{¶?›‹…i(y5    3KGZS 172055Z AUTO VRB04KT 10SM CLR 15/01 A3016 RMK A01KGZS2018-12-17T20:55:00Z35.15-87.0515.01.00410.030.159449TRUETRUEVFRMETAR209.02018-12-17 21:05:44S›‹…h)5   3KHJH 172055Z AUTO 20011G15KT 10SM CLR 12/00 A3014 RMK AO2 T01181005KHJH2018-12-17T20:55:00Z40.15-97.5811.8-0.5200111510.030.138779TRUETRUEVFRSPECI447.02018-12-17 21:05:44P›‹…g)5   3KHLX 172055Z AUTO 29009G15KT 10SM CLR 09/00 A2998 RMK AO2 T00921004KHLX2018-12-17T20:55:00Z36.77-80.829.2-0.429091510.029.97933TRUETRUEVFRMETAR834.02018-12-17 21:05:44P›‹…f)5    3KHQG 172055Z AUTO 18016KT 10SM CLR 15/M06 A3007 RMK AO2 T01501061KHQG2018-12-17T20:55:00Z37.17-101.3715.0-6.11801610.030.070866TRUETRUEVFRMETAR956.02018-12-17 21:05:44 Ð-g™ÐC›‹…m({5    3KGKT 172055Z AUTO 26004KT 10SM CLR 13/M01 A3012 RMK A01KGKT2018-12-17T20:55:00Z35.85-83.5313.0-1.0260410.030.121063TRUETRUEVFRMETAR309.02018-12-17 21:05:44H›‹…l) 5    3KGLE 172055Z AUTO 00000KT 10SM CLR 10/04 A3021 RMK AO2 T00950037KGLE2018-12-17T20:55:00Z33.65-97.29.53.70010.030.209646TRUETRUEVFRMETAR256.02018-12-17 21:05:44@›‹…k(y5    3KGOP 172055Z AUTO 35004KT 10SM CLR 15/02 A3020 RMK AO2KGOP2018-12-17T20:55:00Z31.42-97.815.02.0350410.030.200787TRUETRUEVFRSPECI276.02018-12-17 21:05:44M›‹…j) 5    3KGRN 172055Z AUTO 23005KT 10SM CLR 11/01 A2992 RMK AO2 T01100008KGRN2018-12-17T20:55:00Z42.8-102.1711.00.8230510.029.920275TRUETRUEVFRSPECI1086.02018-12-17 21:05:44 Ð;cœÐF›‹…q)5    3KC65 172055Z AUTO 31010KT 10SM SCT024 03/M02 A3016 RMK A01KC652018-12-17T20:55:00Z41.37-86.33.0-2.03101010.030.159449TRUETRUEVFRSPECI244.02018-12-17 21:05:44A›‹…p(y5    3KC83 172055Z AUTO 06004KT 10SM CLR 15/11 A3021 RMK AO2KC832018-12-17T20:55:00Z37.83-121.6215.011.060410.030.209646TRUETRUEVFRMETAR24.02018-12-17 21:05:44R›‹…o)5   3KCCB 172055Z AUTO 24004G10KT 10SM BKN050 BKN055 16/08 A3014 RMK AO2KCCB2018-12-17T20:55:00Z34.12-117.6816.08.024041010.030.138779TRUETRUEVFRMETAR440.02018-12-17 21:05:44?›‹…n(5    3KGIC 172055Z AUTO 07004KT 10SM OVC039 05/05 A3000 RMK AO1KGIC2018-12-17T20:55:00Z45.95-116.125.05.070410.030.0TRUETRUEVFRMETAR1009.02018-12-17 21:05:44 ¶3cŽ¶R›‹…u)5   3KBIE 172055Z AUTO 19012G16KT 10SM CLR 12/00 A3015 RMK AO2 T01201001KBIE2018-12-17T20:55:00Z40.28-96.7512.0-0.1190121610.030.15059TRUETRUEVFRSPECI403.02018-12-17 21:05:44O›‹…t)5    3KBMT 172055Z AUTO 22005KT 10SM SCT028 20/11 A3019 RMK AO2 T01990107KBMT2018-12-17T20:55:00Z30.07-94.2219.910.7220510.030.188976TRUETRUEVFRSPECI10.02018-12-17 21:05:44J›‹…s) 5    3KBQP 172055Z AUTO 00000KT 10SM CLR 17/10 A3019 RMK AO2 T01650100KBQP2018-12-17T20:55:00Z32.75-91.8816.510.00010.030.188976TRUETRUEVFRMETAR51.02018-12-17 21:05:44G›‹…r(5   3KBVS 172055Z AUTO 14013G21KT 10SM CLR 12/05 A2986 RMK A01KBVS2018-12-17T20:55:00Z48.47-122.4212.05.0140132110.029.861221TRUETRUEVFRMETAR43.02018-12-17 21:05:44 :w²ãC›‹…z({5    3KACJ 172055Z AUTO 28008KT 10SM CLR 21/M01 A3010 RMK AO2KACJ2018-12-17T20:55:00Z32.12-84.1821.0-1.0280810.030.100393TRUETRUEVFRMETAR143.02018-12-17 21:05:44I›‹…y)5   3KBWP 172055Z AUTO 11013G16KT 10SM CLR 02/M07 A3010 RMK AO1KBWP2018-12-17T20:55:00Z46.25-96.622.0-7.0110131610.030.100393TRUETRUEVFRMETAR295.02018-12-17 21:05:44?›‹…x(y5    3KBYL 172055Z AUTO 30004KT 10SM CLR 11/00 A3013 RMK AO1KBYL2018-12-17T20:55:00Z36.8-84.211.00.0300410.030.129921TRUETRUEVFRMETAR359.02018-12-17 21:05:44=›‹…w)5    3KAVQ 172055Z AUTO 25003KT 10SM CLR 23/04 RMK AO2 T02250040KAVQ2018-12-17T20:55:00Z32.4-111.2222.54.0250310.0TRUETRUEVFRMETAR619.02018-12-17 21:05:44@›‹…v(y5    3KBGF 172055Z AUTO 36007KT 10SM CLR 13/01 A3015 RMK A01KBGF2018-12-17T20:55:00Z35.18-86.0713.01.0360710.030.15059TRUETRUEVFRMETAR299.02018-12-17 21:05:44 Ù;i©ÙJ›‹…~) 5    3KFYJ 172055Z AUTO 25006KT 10SM CLR 11/04 A2986 RMK AO1 T01130039KFYJ2018-12-17T20:55:00Z37.52-76.7711.33.9250610.029.861221TRUETRUEVFRMETAR7.02018-12-17 21:05:44:›‹…}({5    3EHFS 172055Z AUTO 20011KT 9000 NSC 06/06 Q1022 W///H///EHFS2018-12-17T20:55:00Z51.453.66.06.0200115.5930.177166TRUEVFRMETAR32.02018-12-17 21:05:44L›‹…|) 5    3K2J3 172055Z AUTO 28008KT 10SM CLR 19/05 A3004 RMK AO2 T01890052K2J32018-12-17T20:55:00Z32.98-82.3818.95.2280810.030.041338TRUETRUEVFRMETAR100.02018-12-17 21:05:44?›‹…{(y5    3K3J7 172055Z AUTO 27007KT 10SM CLR 19/01 A3002 RMK AO2K3J72018-12-17T20:55:00Z33.6-83.1319.01.0270710.030.02067TRUETRUEVFRMETAR206.02018-12-17 21:05:44 —%Ig—J›‹†) 5    3KGVE 172055Z AUTO 00000KT 10SM CLR 13/02 A2983 RMK AO1 T01310020KGVE2018-12-17T20:55:00Z38.15-78.1713.12.00010.029.828741TRUETRUEVFRMETAR138.02018-12-17 21:05:44\›‹†))5   3KDWX 172055Z AUTO 18009G14KT 10SM BKN080 OVC090 05/M07 A3015 RMK AO2 T00491072KDWX2018-12-17T20:55:00Z41.03-107.54.9-7.218091410.030.15059TRUETRUEVFRMETAR1996.02018-12-17 21:05:44V›‹†)5   3KEAN 172055Z AUTO 24010G19KT 10SM CLR 15/M11 A2998 RMK AO2 T01501107KEAN2018-12-17T20:55:00Z42.05-104.9315.0-10.7240101910.029.97933TRUETRUEVFRMETAR1456.02018-12-17 21:05:44U›‹…) 5    3KEHY 172055Z AUTO 29010G20KT 10SM CLR 04/M08 A3006 RMK AO2 PWINOKEHY2018-12-17T20:55:00Z41.73-106.474.0-8.0290102010.030.059055TRUETRUETRUEVFRMETAR2225.02018-12-17 21:05:44 ‡,Z‚‡u›‹†)c5     3EHEH 172055Z AUTO 20007KT 6000 BR OVC310 05/05 Q1023 WHT 22007KT 7000 BR FEW015 BECMG 4000 BR FEW014 SCT020EHEH2018-12-17T20:55:00Z51.455.385.05.020073.7330.206694TRUEBR BRMVFRMETAR22.02018-12-17 21:05:44R›‹†)5   3KTNB 172055Z AUTO 30011G20KT 10SM CLR 07/M02 A3004 RMK AO2 T00651017KTNB2018-12-17T20:55:00Z36.2-81.656.5-1.7300112010.030.041338TRUETRUEVFRMETAR911.02018-12-17 21:05:44L›‹†) 5    3KHQU 172055Z AUTO 35005KT 10SM CLR 19/04 A3008 RMK AO2 T01890037KHQU2018-12-17T20:55:00Z33.53-82.5218.93.7350510.030.079725TRUETRUEVFRMETAR152.02018-12-17 21:05:44N›‹†)5    3KHSB 172055Z AUTO 31005KT 10SM CLR 11/M01 A3022 RMK AO2 T01111008KHSB2018-12-17T20:55:00Z37.82-88.5511.1-0.8310510.030.221457TRUETRUEVFRMETAR121.02018-12-17 21:05:44 È;kšÈL›‹† )5    3KRQO 172055Z AUTO 08004KT 10SM CLR 11/M02 A3022 RMK AO2 T01141024KRQO2018-12-17T20:55:00Z35.47-98.011.4-2.480410.030.221457TRUETRUEVFRMETAR432.02018-12-17 21:05:44K›‹† ) 5    3KSEF 172055Z AUTO 36006KT 10SM CLR 20/09 A3008 RMK AO2 T01980085KSEF2018-12-17T20:55:00Z27.45-81.3519.88.5360610.030.079725TRUETRUEVFRMETAR19.02018-12-17 21:05:44J›‹†) 5    3KSFQ 172055Z AUTO 25007KT 10SM CLR 14/04 A2988 RMK AO2 T01420040KSFQ2018-12-17T20:55:00Z36.68-76.614.24.0250710.029.878937TRUETRUEVFRMETAR22.02018-12-17 21:05:44?›‹†({5    3KTVK 172055Z AUTO 00000KT 10SM CLR 09/M04 A3022 RMK AO2KTVK2018-12-17T20:55:00Z40.68-92.99.0-4.00010.030.221457TRUETRUEVFRMETAR314.02018-12-17 21:05:44Y8Þ8@HPX`hpx€ˆ˜ ¨°¸ÀÈÐØàèðø (08@HPX`hpx€ˆ˜ ¨°¸ÀÈÐØàèðø (08@HPX`hpx€ˆ˜ ¨°¸ÀÈÐØàèðø ¨°¸ÀÈÐØàèðø„›‹„w…›‹„|†›‹…‡›‹…ˆ›‹…‰›‹… Š›‹…‹›‹…Œ›‹…›‹…Ž›‹… ›‹…$„›‹„w…›‹„|†›‹…‡›‹…ˆ›‹…‰›‹… Š›‹…‹›‹…Œ›‹…›‹…Ž›‹… ›‹…$›‹…(‘›‹…,’›‹…1“›‹…5”›‹…9•›‹…=–›‹…A—›‹…E˜›‹…I™›‹…Mš›‹…Q››‹…Uœ›‹…Y›‹…]ž›‹…aŸ›‹…e ›‹…i¡›‹…m¢›‹…q£›‹…u¤›‹…z¥›‹…~¦›‹†§›‹†¨›‹† ª›‹†«›‹†¬›‹†­›‹†®›‹†¯›‹†"°›‹†&±›‹†+²›‹†/³›‹†3´›‹†7µ›‹†;¶›‹†?·›‹†C¸›‹†G¹›‹†Kº›‹†O»›‹†S¼›‹†X½›‹†\¾›‹†`¿›‹†dÀ›‹†hÁ›‹†l›‹†pۋ†t싆xś‹†|ƛ‹‡Ǜ‹‡ț‹‡ɛ‹‡ ʛ‹‡˛‹‡̛‹‡͛‹‡Λ‹‡ ϛ‹‡$Л‹‡(ћ‹‡,қ‹‡0ӛ‹‡4ԛ‹‡8՛‹‡<֛‹‡@כ‹‡D؛‹‡Hٛ‹‡Lڛ‹‡Pۛ‹‡Tܛ‹‡Xݛ‹‡\ Ê'_ŽÊ>›‹†(}5    3KIYA 172055Z AUTO 10SM CLR 16/11 A3021 RMK AO2 T01550114KIYA2018-12-17T20:55:00Z29.98-92.0815.511.410.030.209646TRUETRUEVFRMETAR5.02018-12-17 21:05:44K›‹† )5    3KLOT 172055Z AUTO 29007KT 10SM CLR 05/M03 A3020 RMK AO2 T00501033KLOT2018-12-17T20:55:00Z41.6-88.15.0-3.3290710.030.200787TRUETRUEVFRMETAR205.02018-12-17 21:05:44B›‹† ({5    3KMRJ 172055Z AUTO 34004KT 10SM CLR 04/M05 A3021 RMK AO2KMRJ2018-12-17T20:55:00Z42.88-90.234.0-5.0340410.030.209646TRUETRUEVFRMETAR359.02018-12-17 21:05:44S›‹† )5   3KPSK 172055Z AUTO 30012G20KT 10SM CLR 11/00 A3001 RMK AO2 T01061002KPSK2018-12-17T20:55:00Z37.12-80.6710.6-0.2300122010.030.008858TRUETRUEVFRMETAR642.02018-12-17 21:05:44 ÙBr ÙA›‹†(y5    3KCBF 172055Z AUTO 15010KT 10SM CLR 04/02 A3014 RMK AO2KCBF2018-12-17T20:55:00Z41.27-95.774.02.01501010.030.138779TRUETRUEVFRMETAR382.02018-12-17 21:05:44L›‹†)5    3KI19 172055Z AUTO 34005KT 10SM CLR 05/M01 A3011 RMK AO2 T00521008KI192018-12-17T20:55:00Z39.7-83.985.2-0.8340510.030.109253TRUETRUEVFRSPECI289.02018-12-17 21:05:44J›‹†) 5    3KIER 172055Z AUTO 16003KT 10SM CLR 18/08 A3018 RMK AO2 T01760084KIER2018-12-17T20:55:00Z31.73-93.117.68.4160310.030.180119TRUETRUEVFRMETAR37.02018-12-17 21:05:448›‹†(w5    3EHKD 172055Z AUTO 21007KT 9999 OVC320 04/04 Q1021 BLUEHKD2018-12-17T20:55:00Z52.924.774.04.021076.2130.147638TRUEVFRMETAR14.02018-12-17 21:05:44 É-Z’ɁC›‹†(5    3KBWD 172055Z AUTO 22004KT 10SM FEW120 13/02 A3021 RMK AO1KBWD2018-12-17T20:55:00Z31.8-98.9513.02.0220410.030.209646TRUETRUEVFRMETAR423.02018-12-17 21:05:44B›‹†({5    3KBWW 172055Z AUTO 22007KT 10SM CLR 09/M02 A2975 RMK AO2KBWW2018-12-17T20:55:00Z46.17-103.39.0-2.0220710.029.749016TRUETRUEVFRMETAR910.02018-12-17 21:05:44M›‹†)5    3KC35 172055Z AUTO 29007KT 10SM CLR 01/M07 A3022 RMK AO2 T00141069KC352018-12-17T20:55:00Z43.53-89.981.4-6.9290710.030.221457TRUETRUEVFRMETAR276.02018-12-17 21:05:44M›‹†)5     3KCAV 172055Z AUTO 16007KT 10SM CLR 06/M02 A3019 RMK AO2 PWINOKCAV2018-12-17T20:55:00Z42.75-93.776.0-2.0160710.030.188976TRUETRUETRUEVFRMETAR354.02018-12-17 21:05:44 Ê+Y‘ʁA›‹†({5    3KBKN 172055Z AUTO 00000KT 10SM CLR 13/M02 A3023 RMK AO2KBKN2018-12-17T20:55:00Z36.75-97.3513.0-2.00010.030.230314TRUETRUEVFRMETAR314.02018-12-17 21:05:44B›‹†({5    3KBNW 172055Z AUTO 22006KT 10SM CLR 07/M02 A3017 RMK AO2KBNW2018-12-17T20:55:00Z42.03-93.837.0-2.0220610.030.171259TRUETRUEVFRMETAR354.02018-12-17 21:05:44L›‹†)5    3KBUU 172055Z AUTO 30007KT 10SM CLR 03/M07 A3020 RMK AO2 T00341070KBUU2018-12-17T20:55:00Z42.68-88.33.4-7.0300710.030.200787TRUETRUEVFRMETAR237.02018-12-17 21:05:44O›‹†)5    3KBVU 172055Z AUTO 16008KT 10SM BKN095 BKN120 16/M08 A3009 RMK AO2KBVU2018-12-17T20:55:00Z35.95-114.8716.0-8.0160810.030.088583TRUETRUEVFRMETAR671.02018-12-17 21:05:44 Å/^‹Å@›‹†({5    3KAWG 172055Z AUTO 00000KT 10SM CLR 08/M05 A3023 RMK AO2KAWG2018-12-17T20:55:00Z41.27-91.678.0-5.00010.030.230314TRUETRUEVFRMETAR230.02018-12-17 21:05:44M›‹†)5     3KAXA 172055Z AUTO 15008KT 10SM CLR 05/M02 A3016 RMK AO2 PWINOKAXA2018-12-17T20:55:00Z43.07-94.275.0-2.0150810.030.159449TRUETRUETRUEVFRMETAR372.02018-12-17 21:05:44K›‹†)5     3KBAC 172055Z AUTO 12015KT 10SM -UP CLR M00/M07 A3005 RMK AO2KBAC2018-12-17T20:55:00Z46.93-98.020.0-7.01201510.030.050198TRUETRUEUPVFRMETAR427.02018-12-17 21:05:44K›‹†)5    3KBCK 172055Z AUTO 00000KT 10SM CLR 03/M10 A3023 RMK AO2 T00251097KBCK2018-12-17T20:55:00Z44.25-90.852.5-9.70010.030.230314TRUETRUEVFRMETAR255.02018-12-17 21:05:44 º.ZºM›‹†") 5    3KALM 172055Z AUTO 02005KT 10SM BKN055 OVC070 12/01 A3016 RMK AO2KALM2018-12-17T20:55:00Z32.82-105.9712.01.020510.030.159449TRUETRUEVFRMETAR1279.02018-12-17 21:05:44G›‹†!)5     3KAQX 172055Z AUTO VRB03KT 10SM CLR 18/07 A3002 RMK AO2 TSNOKAQX2018-12-17T20:55:00Z32.98-81.2718.07.00310.030.02067TRUETRUETRUEVFRMETAR49.02018-12-17 21:05:44N›‹† )5    3KARV 172055Z AUTO 32003KT 10SM CLR 00/M08 A3016 RMK AO2 T10011077KARV2018-12-17T20:55:00Z45.92-89.72-0.1-7.7320310.030.159449TRUETRUEVFRMETAR496.02018-12-17 21:05:44L›‹†) 5    3KATS 172055Z AUTO 00000KT 10SM FEW090 BKN120 11/00 A3014 RMK AO2KATS2018-12-17T20:55:00Z32.85-104.4711.00.00010.030.138779TRUETRUEVFRMETAR1081.02018-12-17 21:05:44 À(b–ÀP›‹†&)5    3KAEJ 172055Z AUTO 11005KT 10SM CLR 07/M13 A3011 RMK AO2 T00741130KAEJ2018-12-17T20:55:00Z38.82-106.127.4-13.0110510.030.109253TRUETRUEVFRMETAR2422.02018-12-17 21:05:44F›‹†%)5    3KAIB 172055Z AUTO 00000KT 10SM OVC120 05/M06 A3022 RMK AO2KAIB2018-12-17T20:55:00Z38.23-108.575.0-6.00010.030.221457TRUETRUEVFRMETAR1811.02018-12-17 21:05:44@›‹†$(y5    3KAIO 172055Z AUTO 19006KT 10SM CLR 06/01 A3017 RMK AO2KAIO2018-12-17T20:55:00Z41.38-95.036.01.0190610.030.171259TRUETRUEVFRMETAR360.02018-12-17 21:05:44R›‹†#)5    3KAJZ 172055Z AUTO 22003KT 10SM SCT110 06/M07 A3017 RMK AO2 T00551068KAJZ2018-12-17T20:55:00Z38.78-108.075.5-6.8220310.030.171259TRUETRUEVFRMETAR1583.02018-12-17 21:05:44 ;u¢à@›‹†+(y5    3K6S2 172055Z AUTO 15004KT 10SM CLR 11/06 A2998 RMK AO2K6S22018-12-17T20:55:00Z43.98-124.1211.06.0150410.029.97933TRUETRUEVFRMETAR16.02018-12-17 21:05:44<›‹†*(s5   3K7L2 172055Z AUTO 14007KT 10SM 04/M04 A2995 RMK AO2K7L22018-12-17T20:55:00Z46.22-100.254.0-4.0140710.029.949802TRUETRUEMETAR543.02018-12-17 21:05:44M›‹†))5    3K82C 172055Z AUTO 31004KT 10SM CLR 01/M07 A3022 RMK AO2 T00101072K82C2018-12-17T20:55:00Z43.83-90.131.0-7.2310410.030.221457TRUETRUEVFRMETAR276.02018-12-17 21:05:44@›‹†((}5    3K9D7 172055Z AUTO 13015KT 10SM CLR M04/M08 A3000 RMK AO2K9D72018-12-17T20:55:00Z48.48-99.23-4.0-8.01301510.030.0TRUETRUEVFRMETAR452.02018-12-17 21:05:44?›‹†'({5    3KADU 172055Z AUTO 00000KT 10SM CLR 07/M01 A3017 RMK AO2KADU2018-12-17T20:55:00Z41.7-94.927.0-1.00010.030.171259TRUETRUEVFRMETAR392.02018-12-17 21:05:44 ¤,?v¤L›‹†/)5    3K57C 172055Z AUTO 33007KT 10SM CLR 03/M07 A3020 RMK AO2 T00341072K57C2018-12-17T20:55:00Z42.8-88.373.4-7.2330710.030.200787TRUETRUEVFRMETAR262.02018-12-17 21:05:44C›‹†.({5    3K5H4 172055Z AUTO 14011KT 10SM CLR 02/M04 A2996 RMK AO2K5H42018-12-17T20:55:00Z47.78-99.932.0-4.01401110.029.958662TRUETRUEVFRMETAR490.02018-12-17 21:05:44g›‹†-)95    3K6B9 172055Z AUTO 28008G17KT 250V310 9SM -SN BKN020 BKN024 OVC038 01/M01 A2978 RMK AO2K6B92018-12-17T20:55:00Z42.92-76.431.0-1.02808179.029.778543TRUETRUE-SNMVFRMETAR316.02018-12-17 21:05:44N›‹†,)5   3K6L4 172055Z AUTO 24008G13KT 190V260 10SM CLR 09/01 A3004 RMK AO2K6L42018-12-17T20:55:00Z37.85-81.929.01.024081310.030.041338TRUETRUEVFRMETAR508.02018-12-17 21:05:44 Æ0ZŽÆB›‹†3(5   3K4A6 172055Z AUTO VRB05G10KT 10SM CLR 16/01 A3015 RMK AO2K4A62018-12-17T20:55:00Z34.68-86.016.01.0051010.030.15059TRUETRUEVFRMETAR198.02018-12-17 21:05:44F›‹†2)5     3K4M9 172055Z AUTO 00000KT 9SM CLR 14/04 A3022 RMK AO2 PWINOK4M92018-12-17T20:55:00Z36.4-90.6514.04.0009.030.221457TRUETRUETRUEVFRMETAR90.02018-12-17 21:05:44P›‹†1)5    3K4R5 172055Z AUTO 00000KT 10SM SCT120 M01/M09 A3023 RMK AO2 T10111090K4R52018-12-17T20:55:00Z46.78-90.77-1.1-9.00010.030.230314TRUETRUEVFRMETAR198.02018-12-17 21:05:44J›‹†0) 5    3K54J 172055Z AUTO 29003KT 10SM CLR 18/08 A3015 RMK AO2 T01750076K54J2018-12-17T20:55:00Z30.73-86.1517.57.6290310.030.15059TRUETRUEVFRMETAR88.02018-12-17 21:05:44 »<f»N›‹†7)5     3K2D5 172055Z AUTO 10015KT 10SM CLR 02/M03 A3001 RMK AO2 PWINOK2D52018-12-17T20:55:00Z46.17-98.082.0-3.01001510.030.008858TRUETRUETRUEVFRMETAR407.02018-12-17 21:05:44Q›‹†6)5    3K2P2 172055Z AUTO 35005KT 10SM SCT120 00/M08 A3016 RMK AO2 T10051078K2P22018-12-17T20:55:00Z45.38-86.92-0.5-7.8350510.030.159449TRUETRUEVFRMETAR199.02018-12-17 21:05:44P›‹†5) 5    3K42J 172055Z AUTO 28004G10KT 10SM CLR 17/10 A3008 RMK A01 TSNOK42J2018-12-17T20:55:00Z29.85-82.0517.010.028041010.030.079725TRUETRUETRUEVFRMETAR60.02018-12-17 21:05:44>›‹†4({5    3K46D 172055Z AUTO 13014KT 10SM CLR 01/M06 A3000 RMK AO2K46D2018-12-17T20:55:00Z47.45-99.151.0-6.01301410.030.0TRUETRUEVFRMETAR490.02018-12-17 21:05:44 ´:p…´K›‹†;)5   3K0S9 172055Z AUTO 16014G28KT 10SM FEW020 10/06 A2983 RMK AO2K0S92018-12-17T20:55:00Z48.05-122.8210.06.0160142810.029.828741TRUETRUEVFRMETAR33.02018-12-17 21:05:44e›‹†:)75     3K1P1 172055Z AUTO 28005KT 10SM -SN SCT023 BKN028 OVC033 02/00 A2951 RMK AO2 T00151005K1P12018-12-17T20:55:00Z43.78-71.751.5-0.5280510.029.509842TRUETRUE-SNMVFRMETAR154.02018-12-17 21:05:44D›‹†9({5    3K20U 172055Z AUTO 25008KT 10SM CLR 11/M05 A2986 RMK AO2K20U2018-12-17T20:55:00Z46.93-103.9811.0-5.0250810.029.861221TRUETRUEVFRMETAR840.02018-12-17 21:05:44@›‹†8(y5    3K24J 172055Z AUTO 27005KT 10SM CLR 17/10 A3009 RMK A01K24J2018-12-17T20:55:00Z30.3-83.0317.010.0270510.030.088583TRUETRUEVFRMETAR32.02018-12-17 21:05:44 Ó8l¤ÓK›‹†?)5    3KVTI 172055Z AUTO 00000KT 10SM CLR 06/M08 A3023 RMK AO2 T00591085KVTI2018-12-17T20:55:00Z42.22-92.025.9-8.50010.030.230314TRUETRUEVFRMETAR255.02018-12-17 21:05:44B›‹†>({5    3KY19 172055Z AUTO 14009KT 10SM CLR 03/M02 A2992 RMK AO2KY192018-12-17T20:55:00Z46.77-100.93.0-2.0140910.029.920275TRUETRUEVFRMETAR593.02018-12-17 21:05:44F›‹†=(}5    3K06D 172055Z AUTO 16012KT 10SM CLR M07/M10 A2995 RMK AO2K06D2018-12-17T20:55:00Z48.88-99.62-7.0-10.01601210.029.949802TRUETRUEVFRMETAR556.02018-12-17 21:05:44B›‹†<({5    3K08D 172055Z AUTO 19010KT 10SM CLR 04/M03 A2984 RMK AO2K08D2018-12-17T20:55:00Z48.3-102.44.0-3.01901010.029.840551TRUETRUEVFRMETAR684.02018-12-17 21:05:44 Ô;i¢ÔH›‹†C)5   3KTNU 172055Z AUTO 19005G10KT 10SM CLR 08/M04 A3020 RMK AO2KTNU2018-12-17T20:55:00Z41.67-93.028.0-4.019051010.030.200787TRUETRUEVFRMETAR290.02018-12-17 21:05:44A›‹†B(5    3KTPF 172055Z AUTO 00000KT 10SM BKN110 17/11 A3010 RMK AO2KTPF2018-12-17T20:55:00Z27.92-82.4517.011.00010.030.100393TRUETRUEVFRMETAR3.02018-12-17 21:05:44L›‹†A) 5    3KTSP 172055Z AUTO 32011KT 7SM BKN018 OVC023 07/07 A3015 RMK AO2KTSP2018-12-17T20:55:00Z35.13-118.437.07.0320117.030.15059TRUETRUEMVFRMETAR1220.02018-12-17 21:05:44?›‹†@(y5    3KUOX 172055Z AUTO 00000KT 10SM CLR 15/03 A3021 RMK AO2KUOX2018-12-17T20:55:00Z34.38-89.5315.03.00010.030.209646TRUETRUEVFRMETAR137.02018-12-17 21:05:44 Ó:s«ÓR›‹†G)5    3KSNC 172055Z AUTO 31007KT 10SM BKN033 BKN040 OVC060 05/M00 A2961 RMK AO2KSNC2018-12-17T20:55:00Z41.38-72.55.00.0310710.029.610237TRUETRUEVFRMETAR127.02018-12-17 21:05:44B›‹†F(y5    3KSOW 172055Z AUTO 22014KT 10SM CLR 09/02 A3018 RMK AO2KSOW2018-12-17T20:55:00Z34.27-110.09.02.02201410.030.180119TRUETRUEVFRMETAR1954.02018-12-17 21:05:44A›‹†E(}5     3KTKX 172055Z AUTO VRB05KT 6SM HZ CLR 14/01 A3020 RMK AO2KTKX2018-12-17T20:55:00Z36.22-90.0214.01.0056.030.200787TRUETRUEHZVFRMETAR80.02018-12-17 21:05:44@›‹†D(}5     3KTME 172055Z AUTO 00000KT 4SM HZ CLR 22/02 A3019 RMK AO2KTME2018-12-17T20:55:00Z29.8-95.922.02.0004.030.188976TRUETRUEHZMVFRMETAR51.02018-12-17 21:05:44 Ý6q¥ÝB›‹†K({5    3KS25 172055Z AUTO 24007KT 10SM CLR 09/M04 A2984 RMK AO2KS252018-12-17T20:55:00Z47.8-103.259.0-4.0240710.029.840551TRUETRUEVFRMETAR644.02018-12-17 21:05:44F›‹†J(5   3KSHL 172055Z AUTO 16016G21KT 10SM CLR 04/02 A3005 RMK AO2KSHL2018-12-17T20:55:00Z43.22-95.824.02.0160162110.030.050198TRUETRUEVFRMETAR432.02018-12-17 21:05:44?›‹†I(y5    3KSLB 172055Z AUTO 16009KT 10SM CLR 03/00 A3011 RMK AO2KSLB2018-12-17T20:55:00Z42.6-95.223.00.0160910.030.109253TRUETRUEVFRMETAR454.02018-12-17 21:05:44D›‹†H(5   3KSMS 172055Z AUTO 22004G10KT 10SM CLR 18/06 A3001 RMK AO2KSMS2018-12-17T20:55:00Z34.0-80.3718.06.022041010.030.008858TRUETRUEVFRMETAR56.02018-12-17 21:05:44 Ó-Z”Ӂ;›‹†O(s5   3KRCE 172055Z AUTO 04007KT 10SM 12/M02 A3019 RMK AO2KRCE2018-12-17T20:55:00Z35.48-97.8212.0-2.040710.030.188976TRUETRUEMETAR413.02018-12-17 21:05:44@›‹†N(y5    3KRDK 172055Z AUTO 17007KT 10SM CLR 06/01 A3018 RMK AO2KRDK2018-12-17T20:55:00Z41.02-95.276.01.0170710.030.180119TRUETRUEVFRMETAR318.02018-12-17 21:05:44M›‹†M)5    3KRNH 172055Z AUTO 11003KT 10SM CLR 01/M10 A3022 RMK AO2 T00071096KRNH2018-12-17T20:55:00Z45.15-92.530.7-9.6110310.030.221457TRUETRUEVFRMETAR304.02018-12-17 21:05:44M›‹†L)5    3KRYV 172055Z AUTO 31007KT 10SM CLR 03/M07 A3020 RMK AO2 T00261069KRYV2018-12-17T20:55:00Z43.17-88.722.6-6.9310710.030.200787TRUETRUEVFRMETAR254.02018-12-17 21:05:44 Ê*cÊ@›‹†S(y5    3KPCM 172055Z AUTO 32006KT 10SM CLR 20/10 A3011 RMK AO2KPCM2018-12-17T20:55:00Z28.0-82.1720.010.0320610.030.109253TRUETRUEVFRMETAR47.02018-12-17 21:05:44M›‹†R)5    3KPDC 172055Z AUTO 26003KT 10SM CLR 05/M08 A3023 RMK AO2 T00491076KPDC2018-12-17T20:55:00Z43.02-91.124.9-7.6260310.030.230314TRUETRUEVFRMETAR201.02018-12-17 21:05:44A›‹†Q(y5    3KPLR 172055Z AUTO 32005KT 10SM CLR 17/01 A3016 RMK A01KPLR2018-12-17T20:55:00Z33.57-86.2517.01.0320510.030.159449TRUETRUEVFRMETAR148.02018-12-17 21:05:44P›‹†P)5    3KPSO 172055Z AUTO 00000KT 10SM BKN120 06/M09 A3021 RMK AO2 T00631094KPSO2018-12-17T20:55:00Z37.28-107.056.3-9.40010.030.209646TRUETRUEVFRMETAR2334.02018-12-17 21:05:44 1ižØ@›‹†X({5    3KOLG 172055Z AUTO 00000KT 10SM CLR 00/M12 A3022 RMK AO1KOLG2018-12-17T20:55:00Z46.3-91.820.0-12.00010.030.221457TRUETRUEVFRMETAR336.02018-12-17 21:05:44@›‹†W(y5    3KORC 172055Z AUTO 16008KT 10SM CLR 06/02 A3006 RMK AO2KORC2018-12-17T20:55:00Z42.97-96.076.02.0160810.030.059055TRUETRUEVFRMETAR431.02018-12-17 21:05:44E›‹†V(5   3KORS 172055Z AUTO 16016G21KT 10SM CLR 11/06 A2979 RMK AO2KORS2018-12-17T20:55:00Z48.7-122.9211.06.0160162110.029.790354TRUETRUEVFRMETAR9.02018-12-17 21:05:44B›‹†U({5    3KOXV 172055Z AUTO 19005KT 10SM CLR 09/M05 A3020 RMK AO2KOXV2018-12-17T20:55:00Z41.28-93.129.0-5.0190510.030.200787TRUETRUEVFRMETAR283.02018-12-17 21:05:44I›‹†T)5    3KPAN 172055Z AUTO 22008KT 10SM OVC110 12/M03 A3017 RMK AO2KPAN2018-12-17T20:55:00Z34.25-111.3312.0-3.0220810.030.171259TRUETRUEVFRMETAR1572.02018-12-17 21:05:44 £:Ay£P›‹†\)5    3KLDM 172055Z AUTO 36007KT 10SM OVC021 00/M05 A3017 RMK AO2 T00011047KLDM2018-12-17T20:55:00Z43.97-86.40.1-4.7360710.030.171259TRUETRUEMVFRMETAR197.02018-12-17 21:05:44B›‹†[({5    3KJKJ 172055Z AUTO 11008KT 10SM CLR 01/M08 A3011 RMK AO2KJKJ2018-12-17T20:55:00Z46.83-96.671.0-8.0110810.030.109253TRUETRUEVFRMETAR280.02018-12-17 21:05:44s›‹†Z)G5    3KMTC 172055Z 33012KT 10SM SCT035 SCT140 BKN210 02/M03 A3006 RMK AO2A SLP190 T00221035 52017 $KMTC2018-12-17T20:55:00Z42.62-82.822.2-3.53301210.030.0590551019.0TRUETRUEVFR1.7METAR177.02018-12-17 21:05:44@›‹†Y({5    3KMXO 172055Z AUTO 00000KT 10SM CLR 06/M06 A3022 RMK AO2KMXO2018-12-17T20:55:00Z42.22-91.176.0-6.00010.030.221457TRUETRUEVFRMETAR259.02018-12-17 21:05:44 Ä8n—āM›‹†`)5    3KOEB 172055Z AUTO 31007KT 10SM CLR 05/M03 A3011 RMK AO2 T00501029KOEB2018-12-17T20:55:00Z41.92-85.035.0-2.9310710.030.109253TRUETRUEVFRMETAR292.02018-12-17 21:05:44Q›‹†_)5    3KTTF 172055Z AUTO 30010KT 10SM BKN034 04/M03 A3009 RMK AO2 T00351029KTTF2018-12-17T20:55:00Z41.93-83.423.5-2.93001010.030.088583TRUETRUEVFRMETAR188.02018-12-17 21:05:44D›‹†^(}5    3KTWM 172055Z AUTO 17008KT 10SM CLR M02/M09 A3019 RMK AO2KTWM2018-12-17T20:55:00Z47.03-91.75-2.0-9.0170810.030.188976TRUETRUEVFRMETAR328.02018-12-17 21:05:44B›‹†]({5    3KLYV 172055Z AUTO 16008KT 10SM CLR 06/M01 A3005 RMK AO2KLYV2018-12-17T20:55:00Z43.62-96.226.0-1.0160810.030.050198TRUETRUEVFRMETAR436.02018-12-17 21:05:44 Â*d›ÂS›‹†d)5    3KMGN 172055Z AUTO 32007KT 10SM OVC022 M01/M06 A3012 RMK AO2 T10161065KMGN2018-12-17T20:55:00Z45.43-84.92-1.6-6.5320710.030.121063TRUETRUEMVFRMETAR209.02018-12-17 21:05:44C›‹†c({5    3KMOX 172055Z AUTO 12017KT 10SM CLR 03/M07 A3009 RMK AO2KMOX2018-12-17T20:55:00Z45.57-95.973.0-7.01201710.030.088583TRUETRUEVFRMETAR344.02018-12-17 21:05:44@›‹†b({5    3KMWM 172055Z AUTO 12009KT 10SM CLR 01/M04 A3009 RMK AO2KMWM2018-12-17T20:55:00Z43.9-95.11.0-4.0120910.030.088583TRUETRUEVFRMETAR430.02018-12-17 21:05:44P›‹†a) 5   3KMYP 172055Z AUTO 25016G27KT 10SM BKN090 M03/M12 A3033 RMK AO2KMYP2018-12-17T20:55:00Z38.48-106.32-3.0-12.0250162710.030.33071TRUETRUEVFRMETAR3667.02018-12-17 21:05:44 •%0g•L›‹†h)5   3KEVM 172055Z AUTO 00000KT 10SM M03/M11 A3020 RMK AO2 6//// T10271113KEVM2018-12-17T20:55:00Z47.42-92.5-2.7-11.30010.030.200787TRUETRUEMETAR421.02018-12-17 21:05:44C›‹†g({5    3KFFM 172055Z AUTO 12010KT 10SM CLR 02/M08 A3014 RMK AO2KFFM2018-12-17T20:55:00Z46.28-96.152.0-8.01201010.030.138779TRUETRUEVFRMETAR361.02018-12-17 21:05:44o›‹†f)E5     3KDPG 172055Z 13001KT 30SM -RA BKN060 OVC080 06/M03 A3014 RMK VC VIRGA SLP216 P0000 T00551026KDPG2018-12-17T20:55:00Z40.2-112.925.5-2.6130130.030.1387791021.6-RAVFR0.005METAR1326.02018-12-17 21:05:44U›‹†e)5    3CYPQ 172055Z AUTO 32013G18KT 9SM -UP OVC041 00/M03 A2982 RMK SLP109CYPQ2018-12-17T20:55:00Z44.22-78.370.0-3.032013189.029.8198811010.9TRUEUPVFRSPECI191.02018-12-17 21:05:44 ­/R…­R›‹†l)5    3KCVX 172055Z AUTO 33008KT 10SM OVC023 M01/M06 A3017 RMK AO2 T10071059KCVX2018-12-17T20:55:00Z45.3-85.27-0.7-5.9330810.030.171259TRUETRUEMVFRMETAR204.02018-12-17 21:05:44G›‹†k)5    3KDLZ 172055Z AUTO 31009KT 10SM OVC029 03/M01 A3010 RMK AO2KDLZ2018-12-17T20:55:00Z40.28-83.123.0-1.0310910.030.100393TRUETRUEMVFRMETAR289.02018-12-17 21:05:44W›‹†j)5   3KDRM 172055Z AUTO 32008G17KT 10SM OVC019 M02/M06 A3005 RMK AO2 T10201056KDRM2018-12-17T20:55:00Z46.0-83.75-2.0-5.632081710.030.050198TRUETRUEMVFRMETAR204.02018-12-17 21:05:44K›‹†i) 5     3KELO 172055Z AUTO 00000KT CLR M06/M14 A3020 RMK AO2 TSNO PWINOKELO2018-12-17T20:55:00Z47.82-91.82-6.0-14.00030.200787TRUETRUETRUETRUEMETAR443.02018-12-17 21:05:44 ª<hxªH›‹†p)5   3KVVV 172055Z AUTO 12015G21KT 10SM CLR 03/M06 A3007 RMK AO2KVVV2018-12-17T20:55:00Z45.3-96.423.0-6.0120152110.030.070866TRUETRUEVFRMETAR335.02018-12-17 21:05:44j›‹†o)=5    3KWWD 172055Z AUTO 30007KT 280V340 10SM OVC050 09/03 A2979 RMK AO2 SLP090 T00890028 53004KWWD2018-12-17T20:55:00Z39.02-74.928.92.8300710.029.7903541009.0TRUETRUEVFR0.4METAR7.02018-12-17 21:05:44N›‹†n)5   3KWYS 172055Z AUTO 23012G20KT 10SM BKN110 02/M06 A3003 RMK AO2KWYS2018-12-17T20:55:00Z44.67-111.122.0-6.0230122010.030.029528TRUETRUEVFRMETAR2025.02018-12-17 21:05:44>›‹†m(y5    3KCVH 172055Z AUTO 00000KT 10SM CLR 15/09 A3021 RMK A01KCVH2018-12-17T20:55:00Z36.9-121.4215.09.00010.030.209646TRUETRUEVFRMETAR70.02018-12-17 21:05:44 º%^ŒºL›‹†t) 5    3KVJI 172055Z AUTO 28011KT 10SM CLR 09/02 A3007 RMK AO2 T00900022KVJI2018-12-17T20:55:00Z36.67-82.029.02.22801110.030.070866TRUETRUEVFRMETAR631.02018-12-17 21:05:44L›‹†s)5   3KUKT 172055Z AUTO 30010G16KT 10SM OVC048 06/M03 A2978 RMK A01KUKT2018-12-17T20:55:00Z40.43-75.386.0-3.0300101610.029.778543TRUETRUEVFRMETAR160.02018-12-17 21:05:44A›‹†r({5    3KULM 172055Z AUTO 12009KT 10SM CLR 01/M08 A3017 RMK AO2KULM2018-12-17T20:55:00Z44.32-94.51.0-8.0120910.030.171259TRUETRUEVFRMETAR308.02018-12-17 21:05:44U›‹†q)5   3KVLL 172055Z AUTO 28009G14KT 10SM BKN035 03/M05 A3010 RMK AO2 T00301055KVLL2018-12-17T20:55:00Z42.55-83.183.0-5.528091410.030.100393TRUETRUEVFRMETAR222.02018-12-17 21:05:44 Å(`˜ÅM›‹†x)5    3KFPK 172055Z AUTO 30007KT 10SM CLR 03/M03 A3010 RMK AO2 T00321028KFPK2018-12-17T20:55:00Z42.57-84.823.2-2.8300710.030.100393TRUETRUEVFRMETAR272.02018-12-17 21:05:44B›‹†w({5    3KFSE 172055Z AUTO 14006KT 10SM CLR 01/M09 A3013 RMK AO2KFSE2018-12-17T20:55:00Z47.58-95.771.0-9.0140610.030.129921TRUETRUEVFRMETAR389.02018-12-17 21:05:44B›‹†v(5    3KSZT 172055Z AUTO 23004KT 10SM OVC039 05/03 A2998 RMK AO2KSZT2018-12-17T20:55:00Z48.3-116.575.03.0230410.029.97933TRUETRUEVFRSPECI648.02018-12-17 21:05:44R›‹†u)5    3KFKS 172055Z AUTO 32007KT 10SM OVC022 M01/M06 A3017 RMK AO2 T10071057KFKS2018-12-17T20:55:00Z44.63-86.2-0.7-5.7320710.030.171259TRUETRUEMVFRMETAR193.02018-12-17 21:05:44 É'^˜ÉI›‹†|)5    3K5SM 172055Z AUTO 23006KT 10SM OVC026 00/M07 A3026 RMK AO2K5SM2018-12-17T20:55:00Z39.43-107.380.0-7.0230610.030.259842TRUETRUEMVFRMETAR3232.02018-12-17 21:05:44@›‹†{({5    3KAUM 172055Z AUTO 00000KT 10SM CLR 00/M05 A3020 RMK AO2KAUM2018-12-17T20:55:00Z43.67-92.920.0-5.00010.030.200787TRUETRUEVFRMETAR375.02018-12-17 21:05:44C›‹†z({5    3KBDH 172055Z AUTO 12012KT 10SM CLR 03/M06 A3016 RMK AO2KBDH2018-12-17T20:55:00Z45.12-95.133.0-6.01201210.030.159449TRUETRUEVFRMETAR247.02018-12-17 21:05:44S›‹†y)5    3KCAD 172055Z AUTO 33009KT 10SM OVC021 M02/M07 A3010 RMK AO2 T10191070KCAD2018-12-17T20:55:00Z44.27-85.42-1.9-7.0330910.030.100393TRUETRUEMVFRMETAR398.02018-12-17 21:05:44 Ø6e ØB›‹‡({5    3KCBG 172055Z AUTO 10004KT 10SM CLR 02/M08 A3022 RMK AO2KCBG2018-12-17T20:55:00Z45.57-93.272.0-8.0100410.030.221457TRUETRUEVFRMETAR287.02018-12-17 21:05:44?›‹†(y5    3KMAN 172055Z AUTO 00000KT 10SM CLR 09/09 A3008 RMK A01KMAN2018-12-17T20:55:00Z43.58-116.529.09.00010.030.079725TRUETRUEVFRMETAR774.02018-12-17 21:05:44K›‹†~) 5    3KGYL 172055Z AUTO 10008KT 7SM CLR 02/M05 A3019 RMK AO2 T00171047KGYL2018-12-17T20:55:00Z44.77-94.081.7-4.710087.030.188976TRUETRUEVFRMETAR302.02018-12-17 21:05:44D›‹†}({5    3K33V 172055Z AUTO 22004KT 10SM CLR 03/M10 A3015 RMK AO1K33V2018-12-17T20:55:00Z40.75-106.283.0-10.0220410.030.15059TRUETRUEVFRMETAR2484.02018-12-17 21:05:44 ‘Xn‘W›‹‡)5   3KIKW 172055Z AUTO 31010G17KT 10SM OVC028 02/M04 A3011 RMK AO2 T00171042KIKW2018-12-17T20:55:00Z43.67-84.271.7-4.2310101710.030.109253TRUETRUEMVFRMETAR194.02018-12-17 21:05:44d›‹‡)-5     3OAJL 172055Z 29001KT 8000 HZ FEW190 05/M01 A3023 RMK AO2A SLP234 T00471013 58002OAJL2018-12-17T20:55:00Z34.4270.474.7-1.329014.9730.2303141023.4TRUEHZMVFR-0.2METAR580.02018-12-17 21:05:44?›‹‡({5    3KONA 172055Z AUTO 00000KT 10SM CLR 02/M08 A3025 RMK AO2KONA2018-12-17T20:55:00Z44.07-91.72.0-8.00010.030.250984TRUETRUEVFRMETAR200.02018-12-17 21:05:44]›‹‡))5   3KCFS 172055Z AUTO 31011G14KT 10SM SCT025 SCT030 00/M03 A3009 RMK AO2 T00001035KCFS2018-12-17T20:55:00Z43.47-83.450.0-3.5310111410.030.088583TRUETRUEVFRMETAR214.02018-12-17 21:05:44 D;*D`›‹‡)/5    3KJAN 172054Z 00000KT 10SM BKN250 19/07 A3018 RMK AO2 SLP217 6//// T01890067 56024KJAN2018-12-17T20:54:00Z32.32-90.0818.96.70010.030.1801191021.7TRUEVFR-2.4METAR91.02018-12-17 21:05:44‚ ›‹‡)k5     3KORH 172054Z 27010KT 10SM FEW027 SCT036 OVC055 02/M01 A2952 RMK AO2 SNB25E35 SLP006 P0000 60000 T00171011 55000KORH2018-12-17T20:54:00Z42.27-71.871.7-1.12701010.029.5187021000.6TRUEVFR0.00.0050.005METAR304.02018-12-17 21:05:44X›‹‡)5    3KPHF 172054Z 27010KT 10SM CLR 14/03 A2985 RMK AO2 SLP108 T01390028 55006KPHF2018-12-17T20:54:00Z37.13-76.513.92.82701010.029.849411010.8TRUEVFR-0.6METAR12.02018-12-17 21:05:44a›‹‡)'5    3KCEU 172054Z AUTO VRB03KT 10SM CLR 19/01 A3001 RMK AO2 SLP160 T01890006 56014KCEU2018-12-17T20:54:00Z34.67-82.8818.90.60310.030.0088581016.0TRUETRUEVFR-1.4METAR268.02018-12-17 21:05:44 =7=t›‹‡ )O5   3KPNE 172054Z 30016G26KT 10SM OVC055 08/M03 A2979 RMK AO2 PK WND 31026/2048 SLP088 T00831033 53008KPNE2018-12-17T20:54:00Z40.08-75.028.3-3.3300162610.029.7903541008.8TRUEVFR0.8METAR28.02018-12-17 21:05:44Z›‹‡ )5    3KMRY 172054Z 29006KT 10SM CLR 15/07 A3021 RMK AO2 SLP243 T01500067 56006KMRY2018-12-17T20:54:00Z36.58-121.8515.06.7290610.030.2096461024.3TRUEVFR-0.6METAR66.02018-12-17 21:05:44‚›‹‡ )k5   3KPHL 172054Z 31014G24KT 10SM BKN060 BKN190 BKN260 08/M03 A2980 RMK AO2 PK WND 32028/2034 SLP091 T00831033 53010KPHL2018-12-17T20:54:00Z39.87-75.238.3-3.3310142410.029.7992131009.1TRUEVFR1.0METAR18.02018-12-17 21:05:44[›‹‡ )!5    3KRST 172054Z 18003KT 10SM CLR M01/M06 A3022 RMK AO2 SLP252 T10111056 55002KRST2018-12-17T20:54:00Z43.9-92.5-1.1-5.6180310.030.2214571025.2TRUEVFR-0.2METAR403.02018-12-17 21:05:44 l -Ol]›‹‡)%5    3KSBN 172054Z 33013KT 10SM SCT022 03/M03 A3017 RMK AO2 SLP226 T00281033 51009KSBN2018-12-17T20:54:00Z41.7-86.322.8-3.33301310.030.1712591022.6TRUEVFR0.9METAR237.02018-12-17 21:05:44X›‹‡)5    3KSBY 172054Z 25008KT 10SM CLR 10/04 A2980 RMK AO2 SLP094 T01000044 56001KSBY2018-12-17T20:54:00Z38.33-75.510.04.4250810.029.7992131009.4TRUEVFR-0.1METAR19.02018-12-17 21:05:44Y›‹‡)5    3KPIA 172054Z VRB04KT 10SM CLR 07/M03 A3023 RMK AO2 SLP242 T00671028 55003KPIA2018-12-17T20:54:00Z40.67-89.686.7-2.80410.030.2303141024.2TRUEVFR-0.3METAR205.02018-12-17 21:05:44n›‹‡ )75   3KPLN 172054Z AUTO 31015G22KT 10SM OVC021 M02/M07 A3012 RMK AO2 SLP209 T10221067 53013KPLN2018-12-17T20:54:00Z45.57-84.8-2.2-6.7310152210.030.1210631020.9TRUETRUEMVFR1.3METAR217.02018-12-17 21:05:44 kL‡k‚›‹‡)u5     3KSYR 172054Z 28011G20KT 9SM -SN SCT011 BKN018 OVC025 02/M01 A2977 RMK AO2 RAE23 SLP081 P0001 60004 T00171006 53015 $KSYR2018-12-17T20:54:00Z43.12-76.11.7-0.628011209.029.7696861008.1TRUETRUE-SNMVFR1.50.010.04METAR127.02018-12-17 21:05:44?›‹‡) 5    3MUSC 172054Z 06005KT 030V090 5000 VCSH BKN020 OVC080 22/19 Q10 1MUSC2018-12-17T20:54:00Z22.5-79.9522.019.06053.11VCSHMVFRMETAR103.02018-12-17 21:05:44?›‹‡(}5    3FABL 172054Z AUTO 09014KT 9999 -RA ///////// 25/11 Q1019FABL2018-12-17T20:54:00Z-29.126.325.011.090146.2130.088583TRUE-RAMETAR1348.02018-12-17 21:05:44i›‹‡)35   3KPTW 172054Z AUTO 29010G18KT 9SM OVC055 06/M03 A2980 RMK AO2 SLP091 T00561033 53008KPTW2018-12-17T20:54:00Z40.23-75.555.6-3.329010189.029.7992131009.1TRUETRUEVFR0.8METAR92.02018-12-17 21:05:44 9)>9›‹‡)Y5   3KJST 172054Z AUTO 30020G31KT 10SM OVC025 01/M04 A2988 RMK AO2 PK WND 28032/2013 SLP137 T00061039 53007KJST2018-12-17T20:54:00Z40.32-78.830.6-3.9300203110.029.8789371013.7TRUETRUEMVFR0.7METAR694.02018-12-17 21:05:44e›‹‡))5    3KSET 172054Z AUTO 27008KT 10SM CLR 11/M02 A3023 RMK AO2 SLP239 T01061017 55012KSET2018-12-17T20:54:00Z38.93-90.4310.6-1.7270810.030.2303141023.9TRUETRUEVFR-1.2METAR134.02018-12-17 21:05:44o›‹‡);5    3KSJN 172054Z AUTO 35005KT 10SM SCT040 BKN055 12/00 A3014 RMK AO2 SLP176 T01170000 58025KSJN2018-12-17T20:54:00Z34.52-109.3811.70.0350510.030.1387791017.6TRUETRUEVFR-2.5METAR1745.02018-12-17 21:05:44\›‹‡)5    3KSUS 172054Z 32003KT 10SM CLR 12/M06 A3024 RMK AO2 SLP245 T01221056 55012KSUS2018-12-17T20:54:00Z38.65-90.6512.2-5.6320310.030.2391741024.5TRUEVFR-1.2METAR141.02018-12-17 21:05:44 g>Tgg›‹‡)35    3KGCN 172054Z 22006KT 10SM BKN075 OVC090 08/M04 A3018 RMK AO2 SLP199 T00781044 58019KGCN2018-12-17T20:54:00Z35.95-112.157.8-4.4220610.030.1801191019.9TRUEVFR-1.9METAR2016.02018-12-17 21:05:44d›‹‡)+5   3KGSO 172054Z 29014G20KT 10SM SCT200 15/M02 A2996 RMK AO2 SLP143 T01501022 55009KGSO2018-12-17T20:54:00Z36.1-79.9515.0-2.2290142010.029.9586621014.3TRUEVFR-0.9METAR275.02018-12-17 21:05:44Z›‹‡)5    3KHWD 172054Z 25004KT 10SM CLR 16/09 A3020 RMK AO2 SLP237 T01610094 58006KHWD2018-12-17T20:54:00Z37.67-122.1216.19.4250410.030.2007871023.7TRUEVFR-0.6METAR21.02018-12-17 21:05:44\›‹‡)5    3KINT 172054Z 28010KT 10SM CLR 16/M02 A2998 RMK AO2 SLP150 T01561017 55009KINT2018-12-17T20:54:00Z36.13-80.2215.6-1.72801010.029.979331015.0TRUEVFR-0.9METAR291.02018-12-17 21:05:44 S*ASh›‹‡ )/5    3KFIG 172054Z AUTO 28010KT 10SM OVC030 02/M04 A2989 RMK AO2 SLP133 T00171044 53010KFIG2018-12-17T20:54:00Z41.05-78.421.7-4.42801010.029.8907471013.3TRUETRUEMVFR1.0METAR462.02018-12-17 21:05:44c›‹‡))5   3PHMK 172054Z 04014G22KT 10SM FEW044 25/17 A3017 RMK AO2 SLP218 T02500167 58004PHMK2018-12-17T20:54:00Z21.15-157.125.016.740142210.030.1712591021.8TRUEVFR-0.4METAR141.02018-12-17 21:05:44g›‹‡)-5   3PHOG 172054Z 06015G22KT 10SM SCT050 28/14 A3015 RMK AO2 SLP215 T02780144 58004 $PHOG2018-12-17T20:54:00Z20.9-156.4327.814.460152210.030.150591021.5TRUETRUEVFR-0.4METAR12.02018-12-17 21:05:44c›‹‡)'5    3PGSN 172054Z 09011KT 10SM BKN024 27/24 A2987 RMK AO2 SLP135 T02720239 51020 $PGSN2018-12-17T20:54:00Z15.12145.7227.223.9901110.029.8700791013.5TRUETRUEMVFR2.0METAR65.02018-12-17 21:05:44 7"67V›‹‡$)5   3CYOO 172054Z AUTO 31016G22KT 9SM BKN030 OVC038 01/M03 A2986 RMK SLP120CYOO2018-12-17T20:54:00Z43.92-78.91.0-3.031016229.029.8612211012.0TRUEMVFRSPECI139.02018-12-17 21:05:44‚›‹‡#)‚5    3KDSV 172054Z AUTO 29011G17KT 260V330 10SM BKN029 OVC041 02/M02 A2986 RMK AO2 SNB1955E30 SLP127 P0000 60000 T00171022 53015KDSV2018-12-17T20:54:00Z42.57-77.721.7-2.2290111710.029.8612211012.7TRUETRUEMVFR1.50.0050.005METAR198.02018-12-17 21:05:44f›‹‡")15    3KEUG 172054Z 19013KT 10SM FEW025 OVC120 11/06 A2999 RMK AO2 SLP158 T01110061 58020KEUG2018-12-17T20:54:00Z44.13-123.2211.16.11901310.029.9911421015.8TRUEVFR-2.0METAR114.02018-12-17 21:05:44X›‹‡!)5    3KEWN 172054Z 28007KT 10SM CLR 16/05 A2993 RMK AO2 SLP134 T01610050 56003KEWN2018-12-17T20:54:00Z35.07-77.0516.15.0280710.029.9291341013.4TRUEVFR-0.3METAR3.02018-12-17 21:05:44 w2EXw[›‹‡()5    3KLNK 172054Z 19013KT 10SM CLR 12/00 A3014 RMK AO2 SLP214 T01170000 56028KLNK2018-12-17T20:54:00Z40.85-96.7711.70.01901310.030.1387791021.4TRUEVFR-2.8METAR364.02018-12-17 21:05:44g›‹‡'))5   3KCRW 172054Z 27008G21KT 10SM CLR 10/M01 A3004 RMK AO2 SLP175 T01001011 55003 $KCRW2018-12-17T20:54:00Z38.38-81.5810.0-1.127082110.030.0413381017.5TRUETRUEVFR-0.3METAR309.02018-12-17 21:05:44g›‹‡&)/5   3KNAK 172054Z AUTO 31009G18KT 10SM CLR 13/M02 A2981 RMK AO2 SLP097 T01331022 53000KNAK2018-12-17T20:54:00Z38.98-76.4813.3-2.231091810.029.8110241009.7TRUETRUEVFR0.0METAR2.02018-12-17 21:05:44H›‹‡%)5    3YGEL 172054Z AUTO 14005KT 9999 // SCT011 16/14 Q1014 RF00.0/000.0YGEL2018-12-17T20:54:00Z-28.8114.716.014.014056.2129.940945TRUEVFRSPECI37.02018-12-17 21:05:44 L;<Lj›‹‡,)/5    3KLWT 172054Z AUTO 27006KT 10SM OVC080 10/M05 A2986 RMK AO2 SLP106 T01001050 56007KLWT2018-12-17T20:54:00Z47.03-109.4710.0-5.0270610.029.8612211010.6TRUETRUEVFR-0.7METAR1270.02018-12-17 21:05:44y›‹‡+)S5    3KRDG 172054Z AUTO 30013KT 10SM OVC050 07/M02 A2979 RMK AO2 PK WND 31026/2039 SLP096 T00671022 53009KRDG2018-12-17T20:54:00Z40.37-75.976.7-2.23001310.029.7903541009.6TRUETRUEVFR0.9METAR109.02018-12-17 21:05:44X›‹‡*)5    3KRFD 172054Z 30009KT 10SM CLR 05/M06 A3024 RMK AO2 SLP247 T00501061 53007KRFD2018-12-17T20:54:00Z42.2-89.15.0-6.1300910.030.2391741024.7TRUEVFR0.7METAR221.02018-12-17 21:05:44a›‹‡))'5    3KRIC 172054Z 25009KT 10SM BKN190 12/02 A2985 RMK AO2 SLP115 T01220017 56004 $KRIC2018-12-17T20:54:00Z37.52-77.3212.21.7250910.029.849411011.5TRUETRUEVFR-0.4METAR50.02018-12-17 21:05:44 q4<qE›‹‡0)5    3PAMD 172054Z AUTO 26004KT 10SM OVC031 03/M02 A2895 RMK AO2PAMD2018-12-17T20:54:00Z59.43-146.33.0-2.0260410.028.948818TRUETRUEVFRMETAR14.02018-12-17 21:05:44r›‹‡/)C5   3KPSF 172054Z AUTO 29018G25KT 10SM FEW020 OVC055 01/M03 A2958 RMK AO2 SLP022 T00111028 50007KPSF2018-12-17T20:54:00Z42.43-73.281.1-2.8290182510.029.580711002.2TRUETRUEVFR0.7METAR355.02018-12-17 21:05:44Y›‹‡.)'5   3MMCZ 172054Z 36006KT 8SM SCT015 BKN250 27/19 A3003 RMK SLP176 57023 963 8/108MMCZ2018-12-17T20:54:00Z20.52-86.9227.019.036068.030.0295281017.6VFR-2.3METAR5.02018-12-17 21:05:44g›‹‡-)=5   3MMTG 172054Z 31011KT 8SM FEW018 BKN070 OVC090 23/14 A3009 RMK SLP164 57038 967 8/57/ HZYMMTG2018-12-17T20:54:00Z16.57-93.0323.014.0310118.030.0885831016.4VFR-3.8METAR528.02018-12-17 21:05:44 a)NTam›‹‡4)35     3KISW 172054Z AUTO 29005KT 10SM CLR 01/M10 A3022 RMK AO2 SLP247 T00061100 53001 TSNOKISW2018-12-17T20:54:00Z44.37-89.830.6-10.0290510.030.2214571024.7TRUETRUETRUEVFR0.1METAR307.02018-12-17 21:05:44t›‹‡3)G5     3KIZG 172054Z AUTO 00000KT 10SM SCT035 OVC050 01/01 A2947 RMK AO2 SLP984 60000 T00110006 56010KIZG2018-12-17T20:54:00Z43.98-70.951.10.60010.029.471457998.4TRUETRUEVFR-1.00.005METAR135.02018-12-17 21:05:44U›‹‡2)5    3CYCD 172054Z 15008KT 15SM -RA FEW009 OVC045 09/06 A2978 RMK SF2SC6 SLP085CYCD2018-12-17T20:54:00Z49.05-123.879.06.0150815.029.7785431008.5-RAVFRSPECI30.02018-12-17 21:05:44Q›‹‡1)5    3K12N 172054Z AUTO VRB06KT 04/M04 A2974 RMK AO1 SLP077 T00441039 53011K12N2018-12-17T20:54:00Z41.02-74.734.4-3.90629.7401581007.7TRUETRUE1.1METAR177.02018-12-17 21:05:44 t›‹‡8)A5      3PAHN 172054Z AUTO 12008KT 8SM OVC014 03/02 A2919 RMK AO2 SLP886 60005 T00280022 51009 TSNOPAHN2018-12-17T20:54:00Z59.25-135.522.82.212088.029.190945988.6TRUETRUETRUEMVFR0.90.05METAR5.02018-12-17 21:05:44e›‹‡7)15    3KBFL 172054Z 34004KT 10SM BKN036 OVC047 17/09 A3016 RMK AO2 SLP210 T01670094 58015KBFL2018-12-17T20:54:00Z35.43-119.0516.79.4340410.030.1594491021.0TRUEVFR-1.5METAR151.02018-12-17 21:05:44‚›‹‡6){5      3KBUF 172054Z 26012KT 10SM -SN SCT015 SCT025 OVC035 01/M02 A2990 RMK AO2 SLP131 PCPN VRY LGT P0000 60000 T00111017 53014KBUF2018-12-17T20:54:00Z42.93-78.731.1-1.72601210.029.8996071013.1TRUE-SNVFR1.40.0050.005METAR211.02018-12-17 21:05:44^›‹‡5)%5    3KIPT 172054Z 30012KT 10SM OVC043 04/M04 A2983 RMK AO2 SLP104 T00441044 53016KIPT2018-12-17T20:54:00Z41.25-76.924.4-4.43001210.029.8287411010.4TRUEVFR1.6METAR164.02018-12-17 21:05:44 Iý.I_›‹‡<))5    3KAKH 172054Z AUTO 30006KT 10SM CLR 19/M06 A3000 RMK AO2 SLP158 T01891056 55004KAKH2018-12-17T20:54:00Z35.2-81.1518.9-5.6300610.030.01015.8TRUETRUEVFR-0.4METAR243.02018-12-17 21:05:44h›‹‡;)/5    3KAKR 172054Z AUTO 32010KT 10SM OVC027 03/M03 A3004 RMK AO2 SLP182 T00281033 53015KAKR2018-12-17T20:54:00Z41.03-81.472.8-3.33201010.030.0413381018.2TRUETRUEMVFR1.5METAR363.02018-12-17 21:05:44[›‹‡:)#5    3KAPC 172054Z 00000KT 10SM FEW010 14/10 A3021 RMK AO2 SLP222 T01390100 58003KAPC2018-12-17T20:54:00Z38.2-122.2813.910.00010.030.2096461022.2TRUEVFR-0.3METAR13.02018-12-17 21:05:44}›‹‡9)S5   3KAVL 172054Z AUTO 34015G22KT 10SM CLR 12/M02 A3007 RMK AO2 PK WND 35026/1959 SLP176 T01171022 55007KAVL2018-12-17T20:54:00Z35.43-82.5311.7-2.2340152210.030.0708661017.6TRUETRUEVFR-0.7METAR670.02018-12-17 21:05:44  g›‹‡@)+5    3KRKS 172054Z AUTO 24004KT 10SM CLR M03/M09 A3010 RMK AO2 SLP248 T10331089 56017KRKS2018-12-17T20:54:00Z41.6-109.07-3.3-8.9240410.030.1003931024.8TRUETRUEVFR-1.7METAR2060.02018-12-17 21:05:44‚ ›‹‡?)c5     3KROC 172054Z 28015G20KT 9SM -SN BKN015 BKN037 OVC055 02/00 A2985 RMK AO2 SLP116 P0000 60000 T00170000 53015KROC2018-12-17T20:54:00Z43.12-77.681.70.028015209.029.849411011.6TRUE-SNMVFR1.50.0050.005METAR178.02018-12-17 21:05:44{›‹‡>)[5    3KSLC 172054Z 32004KT 10SM BKN070 BKN080 OVC110 04/M01 A3013 RMK AO2 SLP209 VIRGA SH DSNT SE T00391011 $KSLC2018-12-17T20:54:00Z40.77-111.973.9-1.1320410.030.1299211020.9TRUETRUEVFRMETAR1286.02018-12-17 21:05:44^›‹‡=)'5    3KUZA 172054Z AUTO 27004KT 10SM CLR 17/03 A3000 RMK AO2 SLP159 T01720033 55005KUZA2018-12-17T20:54:00Z34.98-81.0517.23.3270410.030.01015.9TRUETRUEVFR-0.5METAR202.02018-12-17 21:05:44 L3La›‹‡D)'5    3KLBT 172054Z AUTO 27009KT 10SM CLR 17/05 A2996 RMK AO2 SLP146 T01720050 55010KLBT2018-12-17T20:54:00Z34.6-79.0717.25.0270910.029.9586621014.6TRUETRUEVFR-1.0METAR37.02018-12-17 21:05:44Z›‹‡C)5    3KLAF 172054Z 30007KT 10SM CLR 04/M02 A3018 RMK AO2 SLP225 T00441022 55000KLAF2018-12-17T20:54:00Z40.42-86.934.4-2.2300710.030.1801191022.5TRUEVFR0.0METAR182.02018-12-17 21:05:44k›‹‡B)?5    3KOLM 172054Z 18012KT 10SM FEW026 SCT055 BKN070 10/06 A2990 RMK AO2 SLP127 T01000056 58018KOLM2018-12-17T20:54:00Z46.97-122.910.05.61801210.029.8996071012.7TRUEVFR-1.8METAR58.02018-12-17 21:05:44v›‹‡A)I5    3KRBL 172054Z AUTO 17008KT 10SM FEW016 SCT023 BKN028 12/08 A3021 RMK AO2 SLP228 T01220083 58002KRBL2018-12-17T20:54:00Z40.15-122.2512.28.3170810.030.2096461022.8TRUETRUEMVFR-0.2METAR104.02018-12-17 21:05:44 h!3Qhc›‹‡H)/5    3KLYH 172054Z 28007KT 250V320 10SM CLR 14/M02 A2989 RMK AO2 SLP122 T01441017 56007KLYH2018-12-17T20:54:00Z37.32-79.214.4-1.7280710.029.8907471012.2TRUEVFR-0.7METAR295.02018-12-17 21:05:44\›‹‡G)#5    3KMEM 172054Z 30006KT 10SM SCT250 16/02 A3020 RMK AO2 SLP227 T01560022 56018KMEM2018-12-17T20:54:00Z35.07-89.9815.62.2300610.030.2007871022.7TRUEVFR-1.8METAR86.02018-12-17 21:05:44h›‹‡F)/5     3KMFI 172054Z AUTO 29006KT CLR M01/M08 A3020 RMK AO2 SLP244 T10111083 53003 TSNO $KMFI2018-12-17T20:54:00Z44.63-90.18-1.1-8.3290630.2007871024.4TRUETRUETRUETRUE0.3METAR389.02018-12-17 21:05:44Y›‹‡E)5    3KLEX 172054Z 27009KT 10SM CLR 11/00 A3012 RMK AO2 SLP203 T01060000 55006KLEX2018-12-17T20:54:00Z38.03-84.610.60.0270910.030.1210631020.3TRUEVFR-0.6METAR300.02018-12-17 21:05:44 W0>Wa›‹‡L)'5    3KOFP 172054Z AUTO 22007KT 10SM CLR 12/02 A2986 RMK AO2 SLP111 T01170017 58007KOFP2018-12-17T20:54:00Z37.7-77.4311.71.7220710.029.8612211011.1TRUETRUEVFR-0.7METAR62.02018-12-17 21:05:44l›‹‡K)/5   3KTAD 172054Z AUTO 23008G15KT 10SM CLR 16/M12 A3002 RMK AO2 SLP131 T01611117 56030KTAD2018-12-17T20:54:00Z37.27-104.3316.1-11.723081510.030.020671013.1TRUETRUEVFR-3.0METAR1756.02018-12-17 21:05:44b›‹‡J)'5    3KTQE 172054Z AUTO 14009KT 10SM CLR 05/01 A3012 RMK AO2 SLP204 T00500011 56034KTQE2018-12-17T20:54:00Z41.77-96.185.01.1140910.030.1210631020.4TRUETRUEVFR-3.4METAR312.02018-12-17 21:05:44b›‹‡I)+5   3KLWM 172054Z 29012G16KT 10SM OVC040 05/M01 A2953 RMK AO2 SLP998 T00501011 55009KLWM2018-12-17T20:54:00Z42.72-71.135.0-1.1290121610.029.530512999.8TRUEVFR-0.9METAR54.02018-12-17 21:05:44 3õû3c›‹‡P)-5    3KMIV 172054Z AUTO 31007KT 10SM FEW050 08/01 A2978 RMK AO2 SLP085 T00830006 53009KMIV2018-12-17T20:54:00Z39.37-75.088.30.6310710.029.7785431008.5TRUETRUEVFR0.9METAR23.02018-12-17 21:05:44Y›‹‡O)5    3KMKC 172054Z 00000KT 10SM CLR 14/M05 A3021 RMK AO2 SLP232 T01391050 56028KMKC2018-12-17T20:54:00Z39.12-94.613.9-5.00010.030.2096461023.2TRUEVFR-2.8METAR227.02018-12-17 21:05:44t›‹‡N)I5   3KMOT 172054Z 15010G20KT 10SM CLR 06/M04 A2987 RMK AO2 PK WND 17026/2017 SLP137 T00561044 56029KMOT2018-12-17T20:54:00Z48.25-101.275.6-4.4150102010.029.8700791013.7TRUEVFR-2.9METAR519.02018-12-17 21:05:44‚›‹‡M)S5     3KMVL 172054Z AUTO 33010G19KT 2SM -SN OVC023 00/M03 A2958 RMK AO2 SLP024 P0000 60001 T00001028 53006KMVL2018-12-17T20:54:00Z44.53-72.620.0-2.833010192.029.580711002.4TRUETRUE-SNIFR0.60.0050.01METAR234.02018-12-17 21:05:44 Tö !TG›‹‡T)5    3K1V4 172054Z AUTO 01/M03 A2953 RMK AO1 SLP008 T00061033 53001K1V42018-12-17T20:54:00Z44.42-72.020.6-3.329.5305121000.8TRUETRUE0.1METAR210.02018-12-17 21:05:44e›‹‡S)+5    3KIMT 172054Z AUTO 31011KT 10SM CLR M01/M08 A3015 RMK AO2 SLP225 T10111083 53002KIMT2018-12-17T20:54:00Z45.82-88.12-1.1-8.33101110.030.150591022.5TRUETRUEVFR0.2METAR349.02018-12-17 21:05:44d›‹‡R)35    3KIND 172054Z 30010KT 10SM FEW030 FEW250 06/M02 A3015 RMK AO2 SLP217 T00561022 55002KIND2018-12-17T20:54:00Z39.72-86.35.6-2.23001010.030.150591021.7TRUEVFR-0.2METAR241.02018-12-17 21:05:44‚›‹‡Q)]5    3KMGJ 172054Z AUTO 29008G25KT 10SM SCT041 BKN050 OVC060 04/M03 A2968 RMK AO2 SLP052 60000 T00441028 53005KMGJ2018-12-17T20:54:00Z41.52-74.274.4-2.829082510.029.6811031005.2TRUETRUEVFR0.50.005METAR108.02018-12-17 21:05:44 ž"Už[›‹‡X)5    3KFFZ 172054Z 19005KT 10SM CLR 20/02 A3010 RMK AO2 SLP178 T02000017 56027KFFZ2018-12-17T20:54:00Z33.47-111.7220.01.7190510.030.1003931017.8TRUEVFR-2.7METAR424.02018-12-17 21:05:44P›‹‡W)5    3KMTP 172054Z AUTO 29011KT 06/02 A2962 RMK AO1 SLP031 T00560022 53003KMTP2018-12-17T20:54:00Z41.07-71.925.62.22901129.6190951003.1TRUETRUE0.3METAR2.02018-12-17 21:05:44G›‹‡V)5    3KDMH 172054Z AUTO 11/M06 A2980 RMK AO1 SLP091 T01061056 55004KDMH2018-12-17T20:54:00Z39.28-76.6210.6-5.629.7992131009.1TRUETRUE-0.4METAR5.02018-12-17 21:05:44X›‹‡U)5    3KNKT 172054Z 27011KT 10SM CLR 17/04 A2993 RMK AO2 SLP132 T01670044 55002KNKT2018-12-17T20:54:00Z34.9-76.8816.74.42701110.029.9291341013.2TRUEVFR-0.2SPECI9.02018-12-17 21:05:44 WC[W~›‹‡\)Y5   3KDYL 172054Z AUTO 32011G21KT 10SM OVC048 06/M03 A2976 RMK AO2 PK WND 32026/2028 SLP083 T00611028 53007KDYL2018-12-17T20:54:00Z40.33-75.126.1-2.8320112110.029.7608261008.3TRUETRUEVFR0.7METAR117.02018-12-17 21:05:44b›‹‡[)'5    3KECG 172054Z AUTO 26008KT 10SM CLR 14/04 A2988 RMK AO2 SLP119 T01390044 55003KECG2018-12-17T20:54:00Z36.27-76.1813.94.4260810.029.8789371011.9TRUETRUEVFR-0.3METAR11.02018-12-17 21:05:44O›‹‡Z)5    3KEIK 172054Z AUTO 00000KT 10SM CLR 14/M16 A3005 RMK AO2 T01411156KEIK2018-12-17T20:54:00Z40.02-105.0514.1-15.60010.030.050198TRUETRUEVFRMETAR1564.02018-12-17 21:05:44b›‹‡Y)#5    3KEVV 172054Z 31007KT 10SM CLR 11/M01 A3020 RMK AO2 SLP226 T01061011 55008 $KEVV2018-12-17T20:54:00Z38.05-87.5210.6-1.1310710.030.2007871022.6TRUETRUEVFR-0.8METAR117.02018-12-17 21:05:44 C8#CZ›‹‡`)5    3KCOU 172054Z 00000KT 10SM CLR 12/M03 A3024 RMK AO2 SLP244 T01221028 56014KCOU2018-12-17T20:54:00Z38.82-92.2212.2-2.80010.030.2391741024.4TRUEVFR-1.4METAR271.02018-12-17 21:05:44‚›‹‡_)m5      3KDDH 172054Z AUTO 32006KT 7SM -SN BKN028 OVC036 02/M01 A2960 RMK AO2 SNE21B45 SLP030 P0005 60007 T00171011 53006KDDH2018-12-17T20:54:00Z42.9-73.251.7-1.132067.029.6013771003.0TRUETRUE-SNMVFR0.60.050.07METAR244.02018-12-17 21:05:44a›‹‡^)+5    3KDEC 172054Z 31009KT 10SM CLR 05/M02 A3021 RMK AO2 SLP234 6//// T00501022 55009KDEC2018-12-17T20:54:00Z39.83-88.855.0-2.2310910.030.2096461023.4TRUEVFR-0.9METAR207.02018-12-17 21:05:44[›‹‡])5    3KDSM 172054Z 19007KT 10SM CLR 09/M04 A3020 RMK AO2 SLP233 T00891044 56024KDSM2018-12-17T20:54:00Z41.53-93.678.9-4.4190710.030.2007871023.3TRUEVFR-2.4METAR295.02018-12-17 21:05:44 W3CWf›‹‡d)/5    3KVTA 172054Z AUTO 32007KT 10SM OVC033 06/M02 A3007 RMK AO2 SLP187 T00561017 53009KVTA2018-12-17T20:54:00Z40.02-82.475.6-1.7320710.030.0708661018.7TRUETRUEVFR0.9METAR268.02018-12-17 21:05:44j›‹‡c)?5    3KWAL 172054Z 26004KT 10SM FEW150 BKN200 BKN250 11/03 A2982 RMK AO2 SLP096 T01060028 56004KWAL2018-12-17T20:54:00Z37.93-75.4710.62.8260410.029.8198811009.6TRUEVFR-0.4METAR14.02018-12-17 21:05:44e›‹‡b))5    3KWLD 172054Z AUTO 17005KT 10SM CLR 14/M04 A3021 RMK AO2 SLP236 T01391039 56026KWLD2018-12-17T20:54:00Z37.17-97.0313.9-3.9170510.030.2096461023.6TRUETRUEVFR-2.6METAR350.02018-12-17 21:05:44\›‹‡a)!5    3PAKN 172054Z 06003KT 10SM CLR M27/M30 A2922 RMK AO2 SLP897 T12671300 51020PAKN2018-12-17T20:54:00Z58.68-156.65-26.7-30.060310.029.220472989.7TRUEVFR2.0METAR17.02018-12-17 21:05:44 êúc›‹‡g))5    3KUIN 172054Z AUTO 29007KT 10SM CLR 08/M07 A3023 RMK AO2 SLP242 T00831067 56010KUIN2018-12-17T20:54:00Z39.95-91.28.3-6.7290710.030.2303141024.2TRUETRUEVFR-1.0METAR234.02018-12-17 21:05:44j›‹‡f)55   3KVAY 172054Z AUTO 31008G17KT 10SM OVC055 08/M03 A2978 RMK AO2 SLP082 T00781028 53009KVAY2018-12-17T20:54:00Z39.93-74.837.8-2.831081710.029.7785431008.2TRUETRUEVFR0.9METAR15.02018-12-17 21:05:44‚›‹‡e)u5     3KVSF 172054Z AUTO 32004KT 10SM FEW030 FEW043 OVC070 02/M02 A2956 RMK AO2 SNB07E17 SLP016 P0001 60001 T00221022 53003KVSF2018-12-17T20:54:00Z43.35-72.522.2-2.2320410.029.560041001.6TRUETRUEVFR0.30.010.01METAR175.02018-12-17 21:05:44 íüe›‹‡j))5    3KBUY 172054Z AUTO 27009KT 10SM CLR 16/M03 A2994 RMK AO2 SLP139 T01611028 56011KBUY2018-12-17T20:54:00Z36.05-79.4716.1-2.8270910.029.9409451013.9TRUETRUEVFR-1.1METAR180.02018-12-17 21:05:44k›‹‡i)A5    3KBWI 172054Z 30007KT 10SM FEW055 SCT160 BKN250 10/M03 A2982 RMK AO2 SLP097 T01001028 53004KBWI2018-12-17T20:54:00Z39.17-76.6810.0-2.8300710.029.8198811009.7TRUEVFR0.4METAR59.02018-12-17 21:05:44‚ ›‹‡h)W5      3KCAR 172054Z AUTO 01006KT 3/4SM -SN BR VV013 M02/M03 A2945 RMK AO2 SLP985 P0003 60009 T10171033 56020KCAR2018-12-17T20:54:00Z46.87-68.02-1.7-3.31060.7529.450787998.5TRUETRUE-SN BRLIFR-2.00.030.091300METAR191.02018-12-17 21:05:44 õ e›‹‡n)+5    3KAUW 172054Z AUTO 27006KT 10SM CLR M01/M09 A3017 RMK AO2 SLP238 T10061094 53002KAUW2018-12-17T20:54:00Z44.93-89.62-0.6-9.4270610.030.1712591023.8TRUETRUEVFR0.2METAR362.02018-12-17 21:05:44u›‹‡m)O5   3KAVP 172054Z 29012G23KT 10SM OVC041 03/M05 A2977 RMK AO2 PK WND 30026/2006 SLP084 T00331050 53008KAVP2018-12-17T20:54:00Z41.33-75.723.3-5.0290122310.029.7696861008.4TRUEVFR0.8METAR291.02018-12-17 21:05:44j›‹‡l)A5    3KBOS 172054Z 29015KT 10SM FEW027 BKN055 BKN200 06/M01 A2952 RMK AO2 SLP995 T00561006 56008KBOS2018-12-17T20:54:00Z42.37-71.025.6-0.62901510.029.518702999.5TRUEVFR-0.8METAR6.02018-12-17 21:05:44‚›‹‡k)]5    3KBTV 172054Z 31009G22KT 10SM SCT030 OVC043 02/M03 A2961 RMK AO2 SNE16 SLP029 P0000 60000 T00221028 53006KBTV2018-12-17T20:54:00Z44.47-73.152.2-2.831092210.029.6102371002.9TRUEVFR0.60.0050.005METAR105.02018-12-17 21:05:44 T -FTl›‹‡r)G5    3KACY 172054Z 31009KT 10SM BKN055 08/01 A2977 RMK AO2 PK WND 30028/2001 SLP082 T00780006 53015KACY2018-12-17T20:54:00Z39.45-74.577.80.6310910.029.7696861008.2TRUEVFR1.5METAR23.02018-12-17 21:05:44a›‹‡q)'5    3KAKQ 172054Z AUTO 27006KT 10SM CLR 15/02 A2987 RMK AO2 SLP118 T01500022 55004KAKQ2018-12-17T20:54:00Z36.98-77.015.02.2270610.029.8700791011.8TRUETRUEVFR-0.4METAR34.02018-12-17 21:05:44Y›‹‡p)5    3KALO 172054Z 06003KT 10SM CLR 07/M07 A3022 RMK AO2 SLP241 T00721072 56010KALO2018-12-17T20:54:00Z42.55-92.47.2-7.260310.030.2214571024.1TRUEVFR-1.0METAR264.02018-12-17 21:05:44n›‹‡o)75   3KAPN 172054Z AUTO 29009G18KT 10SM OVC024 M01/M07 A3008 RMK AO2 SLP196 T10111067 53019KAPN2018-12-17T20:54:00Z45.07-83.57-1.1-6.729091810.030.0797251019.6TRUETRUEMVFR1.9METAR210.02018-12-17 21:05:44 «Dz«I›‹‡v)5    3K20V 172054Z AUTO 00000KT 10SM OVC095 M04/M11 A3022 RMK AO2K20V2018-12-17T20:54:00Z40.05-106.37-4.0-11.00010.030.221457TRUETRUEVFRMETAR2259.02018-12-17 21:05:44D›‹‡u({5    3K2V6 172054Z AUTO 16005KT 10SM CLR 15/M07 A2997 RMK AO2K2V62018-12-17T20:54:00Z40.1-102.7215.0-7.0160510.029.970472TRUETRUEVFRMETAR1261.02018-12-17 21:05:44E›‹‡t({5    3K4BM 172054Z AUTO 27005KT 10SM CLR 02/M16 A3021 RMK AO2K4BM2018-12-17T20:54:00Z39.05-105.522.0-16.0270510.030.209646TRUETRUEVFRMETAR3438.02018-12-17 21:05:44k›‹‡s)55    3KAAO 172054Z AUTO 16006KT 10SM CLR 13/M03 A3020 RMK AO2 SLP232 6//// T01331033 56024KAAO2018-12-17T20:54:00Z37.75-97.2213.3-3.3160610.030.2007871023.2TRUETRUEVFR-2.4METAR434.02018-12-17 21:05:44 …8Oj…_›‹‡z)'5    3KGED 172054Z AUTO VRB04KT 10SM CLR 11/02 A2980 RMK AO2 SLP090 T01110017 55000KGED2018-12-17T20:54:00Z38.68-75.3711.11.70410.029.7992131009.0TRUETRUEVFR0.0METAR19.02018-12-17 21:05:44_›‹‡y)'5    3KBKB 172054Z AUTO 00000KT 10SM CLR 17/11 A3015 RMK AO2 SLP240 T01670106 56026KBKB2018-12-17T20:54:00Z31.0-92.9216.710.60010.030.150591024.0TRUETRUEVFR-2.6METAR94.02018-12-17 21:05:44c›‹‡x)15    3PGUM 172054Z 07011KT 10SM SCT017 BKN026 28/27 A2986 RMK AO2 SLP102 T02780267 53014PGUM2018-12-17T20:54:00Z13.48144.827.826.7701110.029.8612211010.2TRUEMVFR1.4METAR91.02018-12-17 21:05:44B›‹‡w({5    3K04V 172054Z AUTO 00000KT 10SM CLR 03/M11 A3019 RMK AO2K04V2018-12-17T20:54:00Z38.1-106.173.0-11.00010.030.188976TRUETRUEVFRMETAR2385.02018-12-17 21:05:44  ïd›‹‡})35    3KFWA 172054Z 29008KT 10SM FEW029 FEW250 06/M01 A3012 RMK AO2 SLP207 T00611006 53004KFWA2018-12-17T20:54:00Z40.98-85.186.1-0.6290810.030.1210631020.7TRUEVFR0.4METAR248.02018-12-17 21:05:44‚›‹‡|)m5     3KFZY 172054Z AUTO 29016G22KT 10SM UP BKN024 OVC032 03/M02 A2977 RMK AO2 UPB32 SLP085 P0000 60000 T00281022 53017KFZY2018-12-17T20:54:00Z43.35-76.382.8-2.2290162210.029.7696861008.5TRUETRUEUPMVFR1.70.0050.005METAR138.02018-12-17 21:05:44p›‹‡{)C5    3KGCK 172054Z 16014KT 10SM CLR 13/M07 A3006 RMK AO2 PK WND 18028/2025 SLP182 T01331067 56036KGCK2018-12-17T20:54:00Z37.92-100.7213.3-6.71601410.030.0590551018.2TRUEVFR-3.6METAR877.02018-12-17 21:05:44 X/AXc›‹ˆ)'5    3KOLS 172054Z AUTO VRB05KT 10SM CLR 18/03 A3014 RMK AO2 SLP168 T01780033 56025KOLS2018-12-17T20:54:00Z31.42-110.8517.83.30510.030.1387791016.8TRUETRUEVFR-2.5METAR1184.02018-12-17 21:05:44h›‹ˆ)35    3KCOS 172054Z 15007KT 10SM SCT180 BKN250 14/M10 A3002 RMK AO2 SLP163 T01391100 56021KCOS2018-12-17T20:54:00Z38.82-104.6813.9-10.0150710.030.020671016.3TRUEVFR-2.1METAR1856.02018-12-17 21:05:44O›‹‡)5   3KCCU 172054Z AUTO 29014G20KT 10SM BKN041 01/M12 A3024 RMK AO2KCCU2018-12-17T20:54:00Z39.48-106.151.0-12.0290142010.030.239174TRUETRUEVFRMETAR3680.02018-12-17 21:05:44v›‹‡~)O5   3KROA 172054Z 30020G32KT 10SM FEW250 14/M02 A2995 RMK AO2 PK WND 31032/2045 SLP140 T01391022 53001KROA2018-12-17T20:54:00Z37.32-79.9713.9-2.2300203210.029.9498021014.0TRUEVFR0.1METAR362.02018-12-17 21:05:44 2û2Y›‹ˆ)5    3KENW 172053Z 29006KT 10SM CLR 04/M06 A3020 RMK AO2 SLP232 T00441061 53007KENW2018-12-17T20:53:00Z42.6-87.934.4-6.1290610.030.2007871023.2TRUEVFR0.7METAR219.02018-12-17 21:05:44d›‹ˆ))5    3KEMP 172053Z AUTO 15004KT 10SM CLR 13/M03 A3020 RMK AO2 SLP235 T01331033 56027KEMP2018-12-17T20:53:00Z38.33-96.213.3-3.3150410.030.2007871023.5TRUETRUEVFR-2.7METAR367.02018-12-17 21:05:44‚›‹ˆ)s5       3KELY 172053Z AUTO 00000KT 10SM -RA FEW023 BKN032 OVC060 03/00 A3015 RMK AO2 SLP195 P0000 60001 T00280000 56007 TSNOKELY2018-12-17T20:53:00Z39.3-114.852.80.00010.030.150591019.5TRUETRUETRUE-RAVFR-0.70.0050.01METAR1906.02018-12-17 21:05:44c›‹ˆ))5    3KILN 172054Z AUTO 31011KT 10SM CLR 06/M02 A3009 RMK AO2 SLP209 T00561022 53002KILN2018-12-17T20:54:00Z39.43-83.85.6-2.23101110.030.0885831020.9TRUETRUEVFR0.2METAR322.02018-12-17 21:05:44 Z+CZc›‹ˆ )!5    3KEVW 172053Z AUTO 24010KT 10SM CLR 03/M06 A3010 RMK AO2 SLP191 T00331056 $KEVW2018-12-17T20:53:00Z41.27-111.033.3-5.62401010.030.1003931019.1TRUETRUETRUEVFRMETAR2177.02018-12-17 21:05:44b›‹ˆ)'5    3KESF 172053Z AUTO 20003KT 10SM CLR 17/11 A3018 RMK AO2 SLP217 T01720106 56025KESF2018-12-17T20:53:00Z31.4-92.2817.210.6200310.030.1801191021.7TRUETRUEVFR-2.5METAR28.02018-12-17 21:05:44d›‹ˆ)-5    3KEPH 172053Z AUTO 00000KT 10SM OVC003 03/03 A2997 RMK AO2 SLP159 T00330028 58009KEPH2018-12-17T20:53:00Z47.3-119.523.32.80010.029.9704721015.9TRUETRUELIFR-0.9METAR383.02018-12-17 21:05:44e›‹ˆ))5    3KEQY 172053Z AUTO 27005KT 10SM CLR 17/M01 A2999 RMK AO2 SLP166 T01721006 55006KEQY2018-12-17T20:53:00Z35.02-80.6217.2-0.6270510.029.9911421016.6TRUETRUEVFR-0.6METAR212.02018-12-17 21:05:44 Q %;Qd›‹ˆ ))5    3KBRL 172053Z AUTO 33005KT 10SM CLR 08/M05 A3022 RMK AO2 SLP240 T00831050 56010KBRL2018-12-17T20:53:00Z40.77-91.138.3-5.0330510.030.2214571024.0TRUETRUEVFR-1.0METAR211.02018-12-17 21:05:44d›‹ˆ ))5    3KBRD 172053Z AUTO 14005KT 10SM CLR 00/M12 A3019 RMK AO2 SLP244 T00001117 56011KBRD2018-12-17T20:53:00Z46.4-94.130.0-11.7140510.030.1889761024.4TRUETRUEVFR-1.1METAR372.02018-12-17 21:05:44b›‹ˆ ))5    3KEYE 172053Z AUTO 31009KT 10SM CLR 05/M02 A3015 RMK AO2 SLP214 T00501022 55002KEYE2018-12-17T20:53:00Z39.83-86.35.0-2.2310910.030.150591021.4TRUETRUEVFR-0.2METAR248.02018-12-17 21:05:44m›‹ˆ )=5     3KEWB 172053Z 28010KT 10SM FEW031 SCT046 04/01 A2954 RMK AO2 SLP004 60000 T00390006 55001KEWB2018-12-17T20:53:00Z41.68-70.953.90.62801010.029.539371000.4TRUEVFR-0.10.005METAR23.02018-12-17 21:05:44 n#C\nh›‹ˆ)/5    3KBTM 172053Z AUTO 17004KT 10SM OVC065 02/M05 A2993 RMK AO2 SLP142 T00221050 56014KBTM2018-12-17T20:53:00Z45.97-112.52.2-5.0170410.029.9291341014.2TRUETRUEVFR-1.4METAR1688.02018-12-17 21:05:44a›‹ˆ)'5    3KBUR 172053Z 00000KT 10SM FEW038 18/08 A3014 RMK AO2 SLP198 T01780083 58027 $KBUR2018-12-17T20:53:00Z34.2-118.3717.88.30010.030.1387791019.8TRUETRUEVFR-2.7METAR217.02018-12-17 21:05:44Z›‹ˆ)5    3KBTL 172053Z 31009KT 10SM CLR 04/M04 A3012 RMK AO2 SLP207 T00391039 53006KBTL2018-12-17T20:53:00Z42.32-85.233.9-3.9310910.030.1210631020.7TRUEVFR0.6METAR290.02018-12-17 21:05:44W›‹ˆ)5    3KBRO 172053Z 05007KT 10SM CLR 23/14 A3015 RMK AO2 SLP209 T02330144 56028KBRO2018-12-17T20:53:00Z25.92-97.4223.314.450710.030.150591020.9TRUEVFR-2.8METAR7.02018-12-17 21:05:44 S'<Sc›‹ˆ)'5    3KBWG 172053Z AUTO 33005KT 10SM CLR 13/01 A3017 RMK AO2 SLP216 T01330006 55012KBWG2018-12-17T20:53:00Z36.97-86.4213.30.6330510.030.1712591021.6TRUETRUEVFR-1.2METAR168.02018-12-17 21:05:44e›‹ˆ))5    3KBYG 172053Z AUTO VRB03KT 10SM CLR 14/M09 A2990 RMK AO2 SLP102 T01391089 55021KBYG2018-12-17T20:53:00Z44.38-106.7213.9-8.90310.029.8996071010.2TRUETRUEVFR-2.1METAR1497.02018-12-17 21:05:44l›‹ˆ)=5    3KCAG 172053Z AUTO 00000KT 10SM FEW080 OVC090 02/M07 A3015 RMK AO2 SLP259 T00171067 56020KCAG2018-12-17T20:53:00Z40.5-107.521.7-6.70010.030.150591025.9TRUETRUEVFR-2.0METAR1887.02018-12-17 21:05:44a›‹ˆ))5    3KOTM 172053Z AUTO 00000KT 10SM CLR 09/M06 A3021 RMK AO2 SLP238 T00941056 56017KOTM2018-12-17T20:53:00Z41.1-92.459.4-5.60010.030.2096461023.8TRUETRUEVFR-1.7METAR256.02018-12-17 21:05:44 V!5OVs›‹ˆ)O5   3KCDW 172053Z 30009G17KT 10SM OVC048 06/M03 A2973 RMK AO2 PK WND 29028/2005 SLP074 T00561033 53009KCDW2018-12-17T20:53:00Z40.88-74.285.6-3.330091710.029.7312981007.4TRUEVFR0.9METAR64.02018-12-17 21:05:44`›‹ˆ)#5     3KCEW 172053Z AUTO 10SM CLR 18/08 A3016 RMK AO2 SLP212 T01830078 56018 PWINOKCEW2018-12-17T20:53:00Z30.78-86.5218.37.810.030.1594491021.2TRUETRUETRUEVFR-1.8METAR55.02018-12-17 21:05:44f›‹ˆ)/5    3KCEZ 172053Z AUTO 00000KT 10SM FEW120 07/M06 A3018 RMK AO2 SLP220 T00671061 56021KCEZ2018-12-17T20:53:00Z37.3-108.636.7-6.10010.030.1801191022.0TRUETRUEVFR-2.1METAR1797.02018-12-17 21:05:44Y›‹ˆ)5    3KCCR 172053Z 27005KT 10SM CLR 17/07 A3020 RMK AO2 SLP212 T01720072 58005KCCR2018-12-17T20:53:00Z38.0-122.0517.27.2270510.030.2007871021.2TRUEVFR-0.5METAR11.02018-12-17 21:05:44 K)*KY›‹ˆ)5    3KCHA 172053Z 35007KT 10SM CLR 16/01 A3014 RMK AO2 SLP206 T01560006 56018KCHA2018-12-17T20:53:00Z35.03-85.215.60.6350710.030.1387791020.6TRUEVFR-1.8METAR210.02018-12-17 21:05:44y›‹ˆ)G5   3KCDC 172053Z AUTO 23009G20KT 10SM SCT080 OVC095 08/M08 A3011 RMK AO2 SLP181 T00781078 56014 $KCDC2018-12-17T20:53:00Z37.7-113.17.8-7.823092010.030.1092531018.1TRUETRUETRUEVFR-1.4METAR1714.02018-12-17 21:05:44d›‹ˆ)'5    3KCDR 172053Z AUTO 23005KT 10SM CLR 13/01 A2991 RMK AO2 SLP141 T01330006 56023KCDR2018-12-17T20:53:00Z42.83-103.113.30.6230510.029.9114171014.1TRUETRUEVFR-2.3METAR1010.02018-12-17 21:05:44g›‹ˆ)/5    3KCDS 172053Z AUTO 09007KT 10SM BKN110 12/M02 A3015 RMK AO2 SLP211 T01171022 58040KCDS2018-12-17T20:53:00Z34.43-100.2811.7-2.290710.030.150591021.1TRUETRUEVFR-4.0METAR594.02018-12-17 21:05:44 Q%3Q\›‹ˆ!)5    3KCMI 172053Z 33011KT 10SM CLR 06/M01 A3020 RMK AO2 SLP233 T00561011 55003KCMI2018-12-17T20:53:00Z40.03-88.275.6-1.13301110.030.2007871023.3TRUEVFR-0.3METAR228.02018-12-17 21:05:44l›‹ˆ );5    3KCNM 172053Z AUTO 00000KT 10SM FEW080 OVC120 11/00 A3013 RMK AO2 SLP186 T01110000 56034KCNM2018-12-17T20:53:00Z32.33-104.2511.10.00010.030.1299211018.6TRUETRUEVFR-3.4METAR985.02018-12-17 21:05:44f›‹ˆ)15    3KCNO 172053Z 28005KT 10SM SCT024 SCT065 19/11 A3016 RMK AO2 SLP209 T01940111 58027KCNO2018-12-17T20:53:00Z33.98-117.6219.411.1280510.030.1594491020.9TRUEVFR-2.7METAR207.02018-12-17 21:05:44i›‹ˆ)55   3KCHO 172053Z 28008G16KT 260V340 10SM CLR 16/M05 A2983 RMK AO2 SLP098 T01611050 55004KCHO2018-12-17T20:53:00Z38.13-78.4516.1-5.028081610.029.8287411009.8TRUEVFR-0.4METAR192.02018-12-17 21:05:44 v!Bbvf›‹ˆ%)75   3KACK 172053Z 29014G23KT 10SM FEW025 OVC035 04/00 A2954 RMK AO2 SLP003 T00440000 51004KACK2018-12-17T20:53:00Z41.25-70.074.40.0290142310.029.539371000.3TRUEVFR0.4METAR16.02018-12-17 21:05:44Z›‹ˆ$)5    3KCKB 172053Z 28010KT 10SM CLR 09/M03 A2999 RMK AO2 SLP153 T00891033 53001KCKB2018-12-17T20:53:00Z39.3-80.228.9-3.32801010.029.9911421015.3TRUEVFR0.1METAR360.02018-12-17 21:05:44Y›‹ˆ#)5    3KCLL 172053Z 26007KT 10SM CLR 19/04 A3018 RMK AO2 SLP217 T01890039 56023KCLL2018-12-17T20:53:00Z30.58-96.3718.93.9260710.030.1801191021.7TRUEVFR-2.3METAR96.02018-12-17 21:05:44Y›‹ˆ"))5    3KCLM 172053Z AUTO 00000KT 8SM FEW060 09/07 A2979 RMK AO2 SLPNO T00940072 58023KCLM2018-12-17T20:53:00Z48.12-123.59.47.2008.029.790354TRUETRUEVFR-2.3METAR85.02018-12-17 21:05:44 H#2Hd›‹ˆ))15    3KAFW 172053Z 25004KT 10SM BKN130 OVC200 11/05 A3020 RMK AO2 SLP231 T01110050 55016KAFW2018-12-17T20:53:00Z32.97-97.3211.15.0250410.030.2007871023.1TRUEVFR-1.6METAR233.02018-12-17 21:05:44k›‹ˆ()55   3KAGC 172053Z AUTO 31010G17KT 10SM OVC041 03/M03 A2998 RMK AO2 SLP165 T00331033 53008KAGC2018-12-17T20:53:00Z40.35-79.923.3-3.3310101710.029.979331016.5TRUETRUEVFR0.8METAR389.02018-12-17 21:05:44l›‹ˆ')35     3KADG 172053Z AUTO 33007KT 10SM CLR 04/M04 A3010 RMK AO2 SLP201 T00391039 53007 TSNOKADG2018-12-17T20:53:00Z41.87-84.083.9-3.9330710.030.1003931020.1TRUETRUETRUEVFR0.7METAR241.02018-12-17 21:05:44e›‹ˆ&)-5    3KACV 172053Z AUTO 14007KT 10SM BKN110 13/08 A3013 RMK AO2 SLP208 T01280078 58009KACV2018-12-17T20:53:00Z40.98-124.112.87.8140710.030.1299211020.8TRUETRUEVFR-0.9METAR67.02018-12-17 21:05:44 h!:Nh`›‹ˆ-)'5    3KALI 172053Z AUTO 00000KT 10SM CLR 22/08 A3016 RMK AO2 SLP210 T02220083 56035KALI2018-12-17T20:53:00Z27.73-98.0222.28.30010.030.1594491021.0TRUETRUEVFR-3.5METAR53.02018-12-17 21:05:44f›‹ˆ,))5    3KAIA 172053Z AUTO 24007KT 10SM CLR 27/M05 A2994 RMK AO2 SLP119 T02671050 56024KAIA2018-12-17T20:53:00Z42.05-102.826.7-5.0240710.029.9409451011.9TRUETRUEVFR-2.4METAR1196.02018-12-17 21:05:44a›‹ˆ+)'5    3KAGS 172053Z AUTO 25006KT 10SM CLR 20/06 A3002 RMK AO2 SLP163 T02000056 56019KAGS2018-12-17T20:53:00Z33.37-81.9720.05.6250610.030.020671016.3TRUETRUEVFR-1.9METAR44.02018-12-17 21:05:44Y›‹ˆ*)5    3KAEX 172053Z 13004KT 10SM CLR 17/09 A3016 RMK AO2 SLP216 T01720089 57028KAEX2018-12-17T20:53:00Z31.33-92.5717.28.9130410.030.1594491021.6TRUEVFR-2.8METAR27.02018-12-17 21:05:44 o8Po[›‹ˆ1)5    3KSDL 172053Z 24005KT 10SM CLR 20/00 A3011 RMK AO2 SLP186 T02000000 56024KSDL2018-12-17T20:53:00Z33.62-111.9220.00.0240510.030.1092531018.6TRUEVFR-2.4METAR447.02018-12-17 21:05:44b›‹ˆ0)%5    3KAMA 172053Z 17014KT 10SM OVC110 13/M07 A3013 RMK AO2 SLP190 T01281067 56033KAMA2018-12-17T20:53:00Z35.22-101.7212.8-6.71701410.030.1299211019.0TRUEVFR-3.3METAR1093.02018-12-17 21:05:44X›‹ˆ/)#5    3KALW 172053Z 23003KT 10SM OVC065 12/05 A3000 RMK AO2 SLP160 T01220050 58009KALW2018-12-17T20:53:00Z46.1-118.2812.25.0230310.030.01016.0TRUEVFR-0.9METAR363.02018-12-17 21:05:44d›‹ˆ.))5    3KAKO 172053Z AUTO 00000KT 10SM CLR 12/M07 A2998 RMK AO2 SLP145 T01221072 56024KAKO2018-12-17T20:53:00Z40.17-103.2212.2-7.20010.029.979331014.5TRUETRUEVFR-2.4METAR1421.02018-12-17 21:05:44 'ãù '_›‹ˆ5)%5    3KASE 172053Z 00000KT 10SM OVC070 02/M12 A3016 RMK AO2 SLP219 T00171117 58017KASE2018-12-17T20:53:00Z39.23-106.871.7-11.70010.030.1594491021.9TRUEVFR-1.7METAR2354.02018-12-17 21:05:44g›‹ˆ4)+5    3KASX 172053Z AUTO 25005KT 10SM CLR M01/M11 A3024 RMK AO2 SLP254 T10061106 55003KASX2018-12-17T20:53:00Z46.55-90.92-0.6-10.6250510.030.2391741025.4TRUETRUEVFR-0.3METAR251.02018-12-17 21:05:44d›‹ˆ3)/5   3KATY 172053Z AUTO 11010G18KT 10SM CLR 03/M03 A3000 RMK AO2 SLP178 T00281033 56024KATY2018-12-17T20:53:00Z44.9-97.152.8-3.3110101810.030.01017.8TRUETRUEVFR-2.4METAR532.02018-12-17 21:05:44‚›‹ˆ2)‚5      3KAUG 172053Z AUTO 32005KT 4SM BR BKN004 BKN013 OVC019 01/00 A2946 RMK AO2 UPB04E17SNE04 SLP979 P0001 60002 T00060000 56009KAUG2018-12-17T20:53:00Z44.32-69.80.60.032054.029.459646997.9TRUETRUEBRLIFR-0.90.010.02METAR109.02018-12-17 21:05:44 r6Vr^›‹ˆ9)#5   3KAPF 172053Z 34007G20KT 10SM CLR 19/11 A3009 RMK AO2 SLP187 T01890111 55014KAPF2018-12-17T20:53:00Z26.15-81.7718.911.134072010.030.0885831018.7TRUEVFR-1.4METAR3.02018-12-17 21:05:44Z›‹ˆ8)5    3KARA 172053Z 15006KT 10SM CLR 16/10 A3021 RMK AO2 SLP228 T01610100 56029KARA2018-12-17T20:53:00Z30.03-91.8816.110.0150610.030.2096461022.8TRUEVFR-2.9METAR18.02018-12-17 21:05:44^›‹ˆ7)%5    3KARB 172053Z 30011KT 10SM BKN031 03/M04 A3009 RMK AO2 SLP196 T00281039 53012KARB2018-12-17T20:53:00Z42.22-83.732.8-3.93001110.030.0885831019.6TRUEVFR1.2METAR251.02018-12-17 21:05:44`›‹ˆ6)'5    3KASD 172053Z AUTO VRB03KT 10SM CLR 15/10 A3021 RMK AO2 SLP230 T01500100 56017KASD2018-12-17T20:53:00Z30.35-89.8215.010.00310.030.2096461023.0TRUETRUEVFR-1.7METAR9.02018-12-17 21:05:44 W%=W`›‹ˆ=)'5    3KANB 172053Z AUTO VRB04KT 10SM CLR 17/01 A3015 RMK AO2 SLP212 T01670006 56015KANB2018-12-17T20:53:00Z33.58-85.8516.70.60410.030.150591021.2TRUETRUEVFR-1.5METAR183.02018-12-17 21:05:44b›‹ˆ<))5    3KAOH 172053Z AUTO 30007KT 10SM CLR 04/M02 A3009 RMK AO2 SLP198 T00391017 53004KAOH2018-12-17T20:53:00Z40.7-84.023.9-1.7300710.030.0885831019.8TRUETRUEVFR0.4METAR296.02018-12-17 21:05:44k›‹ˆ;)55   3KAOO 172053Z AUTO 31010G21KT 10SM OVC031 03/M03 A2990 RMK AO2 SLP135 T00281033 53022KAOO2018-12-17T20:53:00Z40.3-78.322.8-3.3310102110.029.8996071013.5TRUETRUEVFR2.2METAR455.02018-12-17 21:05:44d›‹ˆ:)35    3KAPA 172053Z 36006KT 10SM SCT120 BKN250 14/M13 A3000 RMK AO2 SLP149 T01391133 56024KAPA2018-12-17T20:53:00Z39.57-104.8513.9-13.3360610.030.01014.9TRUEVFR-2.4METAR1775.02018-12-17 21:05:44 g/Qgd›‹ˆA))5    3KABR 172053Z AUTO 13010KT 10SM CLR 07/M03 A2998 RMK AO2 SLP167 T00721033 56026KABR2018-12-17T20:53:00Z45.45-98.427.2-3.31301010.029.979331016.7TRUETRUEVFR-2.6METAR397.02018-12-17 21:05:44X›‹ˆ@)5    3KABY 172053Z 26007KT 10SM CLR 20/04 A3011 RMK AO2 SLP197 T02000039 56019KABY2018-12-17T20:53:00Z31.53-84.220.03.9260710.030.1092531019.7TRUEVFR-1.9METAR58.02018-12-17 21:05:44a›‹ˆ?)'5    3KAMG 172053Z AUTO 27005KT 10SM CLR 17/09 A3006 RMK AO2 SLP179 T01670089 56020KAMG2018-12-17T20:53:00Z31.53-82.516.78.9270510.030.0590551017.9TRUETRUEVFR-2.0METAR59.02018-12-17 21:05:44d›‹ˆ>))5    3KAMW 172053Z AUTO 17007KT 10SM CLR 08/M03 A3019 RMK AO2 SLP228 T00781033 56021KAMW2018-12-17T20:53:00Z41.98-93.627.8-3.3170710.030.1889761022.8TRUETRUEVFR-2.1METAR279.02018-12-17 21:05:44 U-<Ua›‹ˆE)'5    3KAUS 172053Z VRB04KT 10SM BKN200 22/00 A3017 RMK AO2 SLP214 T02170000 56023 $KAUS2018-12-17T20:53:00Z30.18-97.6821.70.00410.030.1712591021.4TRUETRUEVFR-2.3METAR166.02018-12-17 21:05:44k›‹ˆD)55    3KHYR 172053Z AUTO 23003KT 10SM CLR 01/M11 A3022 RMK AO2 SLP250 6//// T00061111 55002KHYR2018-12-17T20:53:00Z46.02-91.450.6-11.1230310.030.2214571025.0TRUETRUEVFR-0.2METAR370.02018-12-17 21:05:44f›‹ˆC))5    3KCNY 172053Z AUTO 31008KT 10SM CLR 00/M04 A3019 RMK AO2 SLP252 T00001039 56018KCNY2018-12-17T20:53:00Z38.77-109.750.0-3.9310810.030.1889761025.2TRUETRUEVFR-1.8METAR1390.02018-12-17 21:05:44a›‹ˆB)'5    3KAAF 172053Z AUTO 35005KT 10SM CLR 19/02 A3012 RMK AO2 SLP198 T01890022 56020KAAF2018-12-17T20:53:00Z29.73-85.0318.92.2350510.030.1210631019.8TRUETRUEVFR-2.0METAR5.02018-12-17 21:05:44 a#Fa_›‹ˆI)%5    3KICT 172053Z 17008KT 10SM SCT250 13/M03 A3019 RMK AO2 SLP229 T01331033 56025KICT2018-12-17T20:53:00Z37.65-97.4313.3-3.3170810.030.1889761022.9TRUEVFR-2.5METAR407.02018-12-17 21:05:44W›‹ˆH)5    3KBTR 172053Z 00000KT 10SM CLR 16/09 A3021 RMK AO2 SLP229 T01560094 56026KBTR2018-12-17T20:53:00Z30.53-91.1515.69.40010.030.2096461022.9TRUEVFR-2.6METAR21.02018-12-17 21:05:44e›‹ˆG))5    3KICR 172053Z AUTO 21009KT 10SM CLR 14/M01 A2991 RMK AO2 SLP133 T01391006 56021KICR2018-12-17T20:53:00Z43.38-99.8513.9-0.6210910.029.9114171013.3TRUETRUEVFR-2.1METAR621.02018-12-17 21:05:44l›‹ˆF)55   3KHZY 172053Z AUTO 31011G19KT 10SM OVC022 02/M02 A3003 RMK AO2 SLP177 T00171022 53014KHZY2018-12-17T20:53:00Z41.78-80.71.7-2.2310111910.030.0295281017.7TRUETRUEMVFR1.4METAR276.02018-12-17 21:05:44 U=AUf›‹ˆM))5    3KIML 172053Z AUTO 15011KT 10SM CLR 14/M04 A2998 RMK AO2 SLP164 T01391044 56028KIML2018-12-17T20:53:00Z40.52-101.6213.9-4.41501110.029.979331016.4TRUETRUEVFR-2.8METAR998.02018-12-17 21:05:44v›‹ˆL)G5     3KINK 172053Z AUTO 00000KT 10SM FEW095 SCT120 14/M01 A3014 RMK AO2 SLP191 T01441006 56023 TSNOKINK2018-12-17T20:53:00Z31.78-103.214.4-0.60010.030.1387791019.1TRUETRUETRUEVFR-2.3METAR855.02018-12-17 21:05:44W›‹ˆK)5    3KILM 172053Z 25008KT 10SM CLR 17/06 A2995 RMK AO2 SLP141 T01720056 56010KILM2018-12-17T20:53:00Z34.27-77.917.25.6250810.029.9498021014.1TRUEVFR-1.0METAR9.02018-12-17 21:05:44`›‹ˆJ)'5    3KIDA 172053Z 00000KT 10SM OVC100 M01/M05 A3008 RMK AO2 SLP225 T10061050 58009KIDA2018-12-17T20:53:00Z43.52-112.07-0.6-5.00010.030.0797251022.5TRUEVFR-0.9METAR1453.02018-12-17 21:05:44 h!7Qhc›‹ˆQ))5    3KITR 172053Z AUTO 19013KT 10SM CLR 15/M08 A3000 RMK AO2 SLP147 T01501083 56027KITR2018-12-17T20:53:00Z39.23-102.2815.0-8.31901310.030.01014.7TRUETRUEVFR-2.7METAR1279.02018-12-17 21:05:44`›‹ˆP)'5    3KJBR 172053Z AUTO 00000KT 10SM CLR 14/04 A3021 RMK AO2 SLP231 T01390039 56017KJBR2018-12-17T20:53:00Z35.83-90.6513.93.90010.030.2096461023.1TRUETRUEVFR-1.7METAR79.02018-12-17 21:05:44d›‹ˆO)'5    3KIPL 172053Z AUTO 13003KT 10SM CLR 18/01 A3009 RMK AO2 SLP189 T01780006 58022KIPL2018-12-17T20:53:00Z32.83-115.5817.80.6130310.030.0885831018.9TRUETRUEVFR-2.2METAR-17.02018-12-17 21:05:44Y›‹ˆN)5    3KGNV 172053Z 30004KT 10SM CLR 17/10 A3011 RMK AO2 SLP196 T01720100 56017KGNV2018-12-17T20:53:00Z29.7-82.2817.210.0300410.030.1092531019.6TRUEVFR-1.7METAR45.02018-12-17 21:05:44 n:[ng›‹ˆU))5    3KLAR 172053Z AUTO 24015KT 10SM CLR 09/M09 A3005 RMK AO2 SLP160 T00941089 56023KLAR2018-12-17T20:53:00Z41.32-105.679.4-8.92401510.030.0501981016.0TRUETRUEVFR-2.3METAR2216.02018-12-17 21:05:44Y›‹ˆT)5    3KJEF 172053Z 00000KT 10SM CLR 11/M04 A3025 RMK AO2 SLP238 T01111044 56015KJEF2018-12-17T20:53:00Z38.6-92.1511.1-4.40010.030.2509841023.8TRUEVFR-1.5METAR168.02018-12-17 21:05:44Z›‹ˆS)5    3KJLN 172053Z 01005KT 10SM CLR 14/M01 A3022 RMK AO2 SLP235 T01441006 56023KJLN2018-12-17T20:53:00Z37.15-94.514.4-0.610510.030.2214571023.5TRUEVFR-2.3METAR299.02018-12-17 21:05:44`›‹ˆR)'5    3KJKL 172053Z AUTO VRB06KT 10SM CLR 11/01 A3009 RMK AO2 SLP191 T01060006 56006KJKL2018-12-17T20:53:00Z37.6-83.3210.60.60610.030.0885831019.1TRUETRUEVFR-0.6METAR416.02018-12-17 21:05:44 x B`xb›‹ˆY)'5    3KLBX 172053Z AUTO 19005KT 10SM CLR 21/10 A3018 RMK AO2 SLP218 T02060100 56024KLBX2018-12-17T20:53:00Z29.12-95.4720.610.0190510.030.1801191021.8TRUETRUEVFR-2.4METAR6.02018-12-17 21:05:44\›‹ˆX)#5    3KLCH 172053Z 18006KT 10SM FEW021 18/12 A3020 RMK AO2 SLP232 T01830122 56024KLCH2018-12-17T20:53:00Z30.13-93.2218.312.2180610.030.2007871023.2TRUEVFR-2.4METAR4.02018-12-17 21:05:44X›‹ˆW)5    3KLAW 172053Z 00000KT 10SM CLR 11/01 A3022 RMK AO2 SLP237 T01110006 55020KLAW2018-12-17T20:53:00Z34.55-98.4211.10.60010.030.2214571023.7TRUEVFR-2.0METAR337.02018-12-17 21:05:44Z›‹ˆV)5    3KLAN 172053Z 33007KT 10SM CLR 02/M04 A3011 RMK AO2 SLP206 T00171044 53012KLAN2018-12-17T20:53:00Z42.78-84.581.7-4.4330710.030.1092531020.6TRUEVFR1.2METAR264.02018-12-17 21:05:44 00d›‹ˆ]))5    3KGAG 172053Z AUTO 18011KT 10SM CLR 14/M05 A3015 RMK AO2 SLP216 T01441050 56034KGAG2018-12-17T20:53:00Z36.3-99.7714.4-5.01801110.030.150591021.6TRUETRUEVFR-3.4METAR668.02018-12-17 21:05:44s›‹ˆ\);5     3KJER 172053Z AUTO 06006KT 10SM OVC038 04/M02 A3008 RMK AO2 SLP198 60000 T00391022 58011KJER2018-12-17T20:53:00Z42.72-114.453.9-2.260610.030.0797251019.8TRUETRUEVFR-1.10.005METAR1222.02018-12-17 21:05:44z›‹ˆ[)M5    3KLAX 172053Z 24008KT 10SM FEW027 SCT033 SCT160 BKN180 18/12 A3015 RMK AO2 SLP209 T01780122 58026KLAX2018-12-17T20:53:00Z33.93-118.3817.812.2240810.030.150591020.9TRUEBKN18000VFR-2.6METAR46.02018-12-17 21:05:44g›‹ˆZ)35    3KLBB 172053Z 16009KT 10SM BKN190 BKN250 11/M04 A3017 RMK AO2 SLP210 T01111039 55027KLBB2018-12-17T20:53:00Z33.67-101.8211.1-3.9160910.030.1712591021.0TRUEVFR-2.7METAR993.02018-12-17 21:05:44 1#+1t›‹ˆa)M5   3KBLI 172053Z 14020G31KT 10SM SCT030 11/03 A2982 RMK AO2 PK WND 15036/2020 SLP106 T01110033 58018KBLI2018-12-17T20:53:00Z48.8-122.5311.13.3140203110.029.8198811010.6TRUEVFR-1.8METAR50.02018-12-17 21:05:44h›‹ˆ`))5    3KGCC 172053Z AUTO 24014KT 10SM CLR 12/M04 A2990 RMK AO2 SLP119 T01221044 58015KGCC2018-12-17T20:53:00Z44.33-105.5512.2-4.42401410.029.8996071011.9TRUETRUEVFR-1.5METAR1320.02018-12-17 21:05:44‚›‹ˆ_)e5     3KLEB 172053Z 33007KT 10SM FEW021 FEW038 OVC070 02/M01 A2954 RMK AO2 SNE02 SLP011 P0000 60001 T00171011 53002KLEB2018-12-17T20:53:00Z43.63-72.31.7-1.1330710.029.539371001.1TRUEVFR0.20.0050.01METAR171.02018-12-17 21:05:44W›‹ˆ^)5    3KLEE 172053Z VRB03KT 10SM CLR 18/09 A3009 RMK AO2 SLP187 T01780094 56017KLEE2018-12-17T20:53:00Z28.82-81.8217.89.40310.030.0885831018.7TRUEVFR-1.7METAR23.02018-12-17 21:05:44 d-Fd\›‹ˆe)5    3KIXD 172053Z 13003KT 10SM CLR 13/M03 A3022 RMK AO2 SLP236 T01281033 56026KIXD2018-12-17T20:53:00Z38.82-94.8812.8-3.3130310.030.2214571023.6TRUEVFR-2.6METAR342.02018-12-17 21:05:44a›‹ˆd)'5    3KGGG 172053Z AUTO VRB03KT 10SM CLR 13/08 A3017 RMK AO2 SLP217 T01330083 55020KGGG2018-12-17T20:53:00Z32.38-94.7213.38.30310.030.1712591021.7TRUETRUEVFR-2.0METAR107.02018-12-17 21:05:44d›‹ˆc))5    3KGEY 172053Z AUTO 00000KT 10SM CLR 05/M06 A2994 RMK AO2 SLP173 T00501056 58026KGEY2018-12-17T20:53:00Z44.52-108.085.0-5.60010.029.9409451017.3TRUETRUEVFR-2.6METAR1191.02018-12-17 21:05:44c›‹ˆb)15    3KGEG 172053Z 20007KT 10SM SCT013 SCT200 07/03 A2998 RMK AO2 SLP160 T00670028 58004KGEG2018-12-17T20:53:00Z47.62-117.536.72.8200710.029.979331016.0TRUEVFR-0.4METAR735.02018-12-17 21:05:44 *ìú*^›‹ˆi)%5    3KGJT 172053Z 00000KT 10SM OVC110 04/M06 A3017 RMK AO2 SLP231 T00391061 56020KGJT2018-12-17T20:53:00Z39.12-108.523.9-6.10010.030.1712591023.1TRUEVFR-2.0METAR1475.02018-12-17 21:05:44f›‹ˆh)/5    3KGGW 172053Z AUTO 00000KT 10SM FEW110 03/M03 A2982 RMK AO2 SLP124 T00331033 56018KGGW2018-12-17T20:53:00Z48.22-106.623.3-3.30010.029.8198811012.4TRUETRUEVFR-1.8METAR694.02018-12-17 21:05:44l›‹ˆg)15     3KGIF 172053Z AUTO 30004KT 10SM CLR 18/10 A3010 RMK AO2 SLP191 T01830100 55011 TSNOKGIF2018-12-17T20:53:00Z28.07-81.7518.310.0300410.030.1003931019.1TRUETRUETRUEVFR-1.1METAR43.02018-12-17 21:05:44‚›‹ˆf)q5      3KIWI 172053Z AUTO 00000KT 5SM BR FEW005 SCT011 OVC046 01/01 A2947 RMK AO2 SNE01 SLP980 P0000 60002 T00060006 56008KIWI2018-12-17T20:53:00Z43.97-69.720.60.6005.029.471457998.0TRUETRUEBRMVFR-0.80.0050.02METAR20.02018-12-17 21:05:44 Ký)KX›‹ˆm)5    3KGLH 172053Z 06005KT 10SM CLR 16/12 A3019 RMK AO2 SLP230 T01560117 56019KGLH2018-12-17T20:53:00Z33.5-90.9815.611.760510.030.1889761023.0TRUEVFR-1.9METAR45.02018-12-17 21:05:44i›‹ˆl)15    3KGLR 172053Z AUTO 29007KT 10SM OVC015 M03/M06 A3008 RMK AO2 SLP203 T10331056 53015KGLR2018-12-17T20:53:00Z45.02-84.68-3.3-5.6290710.030.0797251020.3TRUETRUEMVFR1.5METAR407.02018-12-17 21:05:44_›‹ˆk)!5    3KGKY 172053Z 25006KT 10SM CLR 12/04 A3020 RMK AO2 SLP225 T01170039 56013 $KGKY2018-12-17T20:53:00Z32.67-97.111.73.9250610.030.2007871022.5TRUETRUEVFR-1.3METAR192.02018-12-17 21:05:44}›‹ˆj)U5     3KGKJ 172053Z AUTO 28007KT 10SM BKN018 BKN025 OVC033 00/M03 A2998 RMK AO2 SLP163 T00001028 53013 TSNOKGKJ2018-12-17T20:53:00Z41.63-80.220.0-2.8280710.029.979331016.3TRUETRUETRUEMVFR1.3METAR428.02018-12-17 21:05:44 "ô "a›‹ˆq)'5    3KGFK 172053Z 13008KT 10SM BKN220 M06/M11 A3012 RMK AO2 SLP219 T10611106 58023KGFK2018-12-17T20:53:00Z47.95-97.18-6.1-10.6130810.030.1210631021.9TRUEVFR-2.3METAR258.02018-12-17 21:05:44›‹ˆp)W5     3KGFL 172053Z AUTO 29006KT 10SM SCT050 BKN060 OVC075 04/M03 A2963 RMK AO2 SLP039 60000 T00391028 53014KGFL2018-12-17T20:53:00Z43.33-73.623.9-2.8290610.029.6309051003.9TRUETRUEVFR1.40.005METAR103.02018-12-17 21:05:44`›‹ˆo)'5    3KGOK 172053Z AUTO 00000KT 10SM CLR 12/00 A3020 RMK AO2 SLP235 T01170000 56029KGOK2018-12-17T20:53:00Z35.85-97.411.70.00010.030.2007871023.5TRUETRUEVFR-2.9METAR324.02018-12-17 21:05:44‚›‹ˆn)]5    3KGLD 172053Z AUTO 18016G23KT 10SM CLR 17/M06 A2998 RMK AO2 PK WND 18028/2016 SLP144 T01671061 56030 TSNOKGLD2018-12-17T20:53:00Z39.37-101.716.7-6.1180162310.029.979331014.4TRUETRUETRUEVFR-3.0METAR1113.02018-12-17 21:05:44Y898@HPX`hpx€ˆ˜ ¨°¸ÀÈÐØàèðø (08@HPX`hpx€ˆ˜ ¨°¸ÀÈÐØàèðø (08@HPX`hpx€ˆ˜ ¨°¸ÀÈÐØàèðø ¨°¸ÀÈÐØàèðøߛ‹‡dà›‹‡gᛋ‡j⛋‡n㛋‡r䛋‡v囋‡z曋‡}盋ˆ蛋ˆ雋ˆ ꛋˆ ߛ‹‡dà›‹‡gᛋ‡j⛋‡n㛋‡r䛋‡v囋‡z曋‡}盋ˆ蛋ˆ雋ˆ ꛋˆ 뛋ˆ웋ˆ훋ˆˆˆ!𛋈%ñ›‹ˆ)ò›‹ˆ-󛋈1ô›‹ˆ5õ›‹ˆ9ö›‹ˆ=÷›‹ˆAø›‹ˆEù›‹ˆIú›‹ˆMû›‹ˆQü›‹ˆUý›‹ˆYþ›‹ˆ]ÿ›‹ˆa›‹ˆe›‹ˆi›‹ˆm›‹ˆq›‹ˆu›‹ˆy›‹ˆ}›‹‰ ›‹‰ ›‹‰  ›‹‰  ›‹‰ ›‹‰›‹‰›‹‰›‹‰!›‹‰%›‹‰)›‹‰-›‹‰1›‹‰4›‹‰8›‹‰<›‹‰@›‹‰D›‹‰H›‹‰L›‹‰P›‹‰T›‹‰X›‹‰\ ›‹‰`!›‹‰d"›‹‰h#›‹‰l$›‹‰o%›‹‰s&›‹‰w'›‹‰{(›‹‰)›‹Š*›‹Š+›‹Š ,›‹Š-›‹Š.›‹Š/›‹Š0›‹Š1›‹Š#2›‹Š'3›‹Š+4›‹Š.5›‹Š16›‹Š57›‹Š98›‹Š= ?_Z›‹ˆu)5    3KGSP 172053Z 35006KT 10SM CLR 17/M02 A3002 RMK AO2 SLP164 T01721022 55009KGSP2018-12-17T20:53:00Z34.9-82.2217.2-2.2350610.030.020671016.4TRUEVFR-0.9METAR287.02018-12-17 21:05:44Z›‹ˆt)5    3KGPT 172053Z 20006KT 10SM CLR 16/11 A3019 RMK AO2 SLP223 T01610111 56018KGPT2018-12-17T20:53:00Z30.42-89.0816.111.1200610.030.1889761022.3TRUEVFR-1.8METAR14.02018-12-17 21:05:44Z›‹ˆs)5    3KGRB 172053Z 30005KT 10SM CLR 02/M06 A3019 RMK AO2 SLP233 T00221061 53002KGRB2018-12-17T20:53:00Z44.48-88.132.2-6.1300510.030.1889761023.3TRUEVFR0.2METAR208.02018-12-17 21:05:44[›‹ˆr)5    3KGMU 172053Z 34004KT 10SM CLR 19/M02 A3002 RMK AO2 SLP164 T01941017 56011KGMU2018-12-17T20:53:00Z34.85-82.3519.4-1.7340410.030.020671016.4TRUEVFR-1.1METAR315.02018-12-17 21:05:44 Q3KQt›‹ˆy)I5    3KGUP 172053Z AUTO 24008KT 10SM SCT060 BKN080 OVC100 08/01 A3018 RMK AO2 SLP206 T00830006 56020KGUP2018-12-17T20:53:00Z35.52-108.88.30.6240810.030.1801191020.6TRUETRUEVFR-2.0METAR1971.02018-12-17 21:05:44b›‹ˆx)%5   3KGRI 172053Z 19016G23KT 10SM CLR 12/M02 A3008 RMK AO2 SLP198 T01221022 56026KGRI2018-12-17T20:53:00Z40.97-98.3212.2-2.2190162310.030.0797251019.8TRUEVFR-2.6METAR561.02018-12-17 21:05:44]›‹ˆw)%5    3KGRR 172053Z 32008KT 10SM SCT150 04/M04 A3013 RMK AO2 SLP210 T00441044 53010KGRR2018-12-17T20:53:00Z42.88-85.524.4-4.4320810.030.1299211021.0TRUEVFR1.0METAR237.02018-12-17 21:05:44d›‹ˆv))5    3KGSH 172053Z AUTO 31012KT 10SM CLR 04/M02 A3013 RMK AO2 SLP213 T00391022 53005KGSH2018-12-17T20:53:00Z41.53-85.783.9-2.23101210.030.1299211021.3TRUETRUEVFR0.5METAR252.02018-12-17 21:05:44 R#<Rd›‹ˆ})'5    3KGVL 172053Z AUTO 28012KT 10SM CLR 16/03 A3007 RMK AO2 SLP179 T01560033 55011KGVL2018-12-17T20:53:00Z34.27-83.8315.63.32801210.030.0708661017.9TRUETRUEVFR-1.1METAR386.02018-12-17 21:05:44a›‹ˆ|)'5    3KGWO 172053Z AUTO 33003KT 10SM CLR 16/09 A3019 RMK AO2 SLP224 T01610094 56018KGWO2018-12-17T20:53:00Z33.5-90.0816.19.4330310.030.1889761022.4TRUETRUEVFR-1.8METAR44.02018-12-17 21:05:44k›‹ˆ{)/5   3KGUY 172053Z AUTO 20017G21KT 10SM CLR 15/M07 A3008 RMK AO2 SLP183 T01501072 56030KGUY2018-12-17T20:53:00Z36.68-101.515.0-7.2200172110.030.0797251018.3TRUETRUEVFR-3.0METAR948.02018-12-17 21:05:44f›‹ˆz)+5   3KGTF 172053Z 22012G20KT 10SM SCT100 11/M01 A2985 RMK AO2 SLP113 T01061011 58007KGTF2018-12-17T20:53:00Z47.47-111.3810.6-1.1220122010.029.849411011.3TRUEVFR-0.7METAR1119.02018-12-17 21:05:44 q6Yqb›‹‰)'5    3KGZH 172053Z AUTO 34007KT 10SM CLR 18/07 A3017 RMK AO2 SLP216 T01780067 56017KGZH2018-12-17T20:53:00Z31.42-87.0517.86.7340710.030.1712591021.6TRUETRUEVFR-1.7METAR78.02018-12-17 21:05:44W›‹‰)5   3KMAI 172053Z AUTO 29007KT 10SM 19/03 A3012 RMK AO2 SLP197 T01890033 $KMAI2018-12-17T20:53:00Z30.83-85.1818.93.3290710.030.1210631019.7TRUETRUETRUEMETAR32.02018-12-17 21:05:44[›‹ˆ)5    3KMBS 172053Z 32012KT 10SM CLR 01/M04 A3010 RMK AO2 SLP202 T00111044 53016KMBS2018-12-17T20:53:00Z43.53-84.081.1-4.43201210.030.1003931020.2TRUEVFR1.6METAR202.02018-12-17 21:05:44c›‹ˆ~)'5    3KMCB 172053Z AUTO 26006KT 10SM CLR 18/08 A3020 RMK AO2 SLP225 T01780083 56017KMCB2018-12-17T20:53:00Z31.18-90.4717.88.3260610.030.2007871022.5TRUETRUEVFR-1.7METAR124.02018-12-17 21:05:44 g1GgZ›‹‰)5    3KMCN 172053Z 28009KT 10SM CLR 20/01 A3007 RMK AO2 SLP179 T02000011 56017KMCN2018-12-17T20:53:00Z32.68-83.6520.01.1280910.030.0708661017.9TRUEVFR-1.7METAR109.02018-12-17 21:05:44d›‹‰)'5    3KMCK 172053Z AUTO 16012KT 10SM CLR 12/00 A3001 RMK AO2 SLP176 T01170000 56034KMCK2018-12-17T20:53:00Z40.2-100.5811.70.01601210.030.0088581017.6TRUETRUEVFR-3.4METAR782.02018-12-17 21:05:44^›‹‰)%5    3KMCI 172053Z 17003KT 10SM FEW250 12/M05 A3021 RMK AO2 SLP234 T01221050 56025KMCI2018-12-17T20:53:00Z39.3-94.7312.2-5.0170310.030.2096461023.4TRUEVFR-2.5METAR320.02018-12-17 21:05:44e›‹‰)-5    3KMCE 172053Z AUTO 29006KT 10SM FEW025 14/09 A3020 RMK AO2 SLP227 T01440089 57009KMCE2018-12-17T20:53:00Z37.28-120.514.48.9290610.030.2007871022.7TRUETRUEVFR-0.9METAR47.02018-12-17 21:05:44 |$<_|]›‹‰ )%5    3KMDW 172053Z 30005KT 10SM FEW040 04/M07 A3019 RMK AO2 SLP234 T00391067 53005KMDW2018-12-17T20:53:00Z41.78-87.753.9-6.7300510.030.1889761023.4TRUEVFR0.5METAR188.02018-12-17 21:05:44W›‹‰)5    3KMFE 172053Z 00000KT 10SM CLR 23/12 A3015 RMK AO2 SLP209 T02280117 56030KMFE2018-12-17T20:53:00Z26.18-98.2522.811.70010.030.150591020.9TRUEVFR-3.0METAR38.02018-12-17 21:05:44b›‹‰)15    3KMFR 172053Z 00000KT 10SM FEW030 BKN110 09/06 A3006 RMK AO2 SLP182 T00890056 58018KMFR2018-12-17T20:53:00Z42.38-122.878.95.60010.030.0590551018.2TRUEVFR-1.8METAR396.02018-12-17 21:05:44V›‹‰)5    3KMGM 172053Z 28005KT 10SM CLR 18/07 A3015 RMK AO2 SLP210 T01780072 56019KMGM2018-12-17T20:53:00Z32.3-86.417.87.2280510.030.150591021.0TRUEVFR-1.9METAR63.02018-12-17 21:05:44 m-MmZ›‹‰ )5    3KMIC 172053Z 09003KT 10SM CLR 02/M09 A3021 RMK AO2 SLP242 T00221089 55009KMIC2018-12-17T20:53:00Z45.07-93.352.2-8.990310.030.2096461024.2TRUEVFR-0.9METAR265.02018-12-17 21:05:44Z›‹‰ )5    3KMGW 172053Z 28006KT 10SM CLR 07/M04 A2999 RMK AO2 SLP160 T00721044 53004KMGW2018-12-17T20:53:00Z39.65-79.927.2-4.4280610.029.9911421016.0TRUEVFR0.4METAR378.02018-12-17 21:05:44c›‹‰ )15    3KMCO 172053Z 31007KT 10SM SCT250 SCT300 17/09 A3009 RMK AO2 SLP187 T01720089 55011KMCO2018-12-17T20:53:00Z28.42-81.3317.28.9310710.030.0885831018.7TRUEVFR-1.1METAR29.02018-12-17 21:05:44d›‹‰ ))5    3KMCW 172053Z AUTO 14006KT 10SM CLR 03/M03 A3020 RMK AO2 SLP236 T00281033 56009KMCW2018-12-17T20:53:00Z43.15-93.332.8-3.3140610.030.2007871023.6TRUETRUEVFR-0.9METAR369.02018-12-17 21:05:44 ;(>;}›‹‰)S5   3KCUT 172053Z AUTO 26009G22KT 10SM CLR 09/M07 A2993 RMK AO2 PK WND 28028/2013 SLP122 T00941067 56018KCUT2018-12-17T20:53:00Z43.73-103.629.4-6.726092210.029.9291341012.2TRUETRUEVFR-1.8METAR1725.02018-12-17 21:05:44d›‹‰))5     3KCXO 172053Z 23005KT 10SM CLR 21/02 A3017 RMK AO2 SLP216 60000 T02110022 56025KCXO2018-12-17T20:53:00Z30.35-95.4221.12.2230510.030.1712591021.6TRUEVFR-2.50.005METAR75.02018-12-17 21:05:44p›‹‰)C5    3KCYS 172053Z 28019KT 10SM CLR 13/M09 A3001 RMK AO2 PK WND 26027/2008 SLP140 T01331089 56019KCYS2018-12-17T20:53:00Z41.15-104.813.3-8.92801910.030.0088581014.0TRUEVFR-1.9METAR1868.02018-12-17 21:05:44\›‹‰)#5    3KDAB 172053Z 25006KT 10SM BKN200 18/12 A3007 RMK AO2 SLP181 T01830117 56014KDAB2018-12-17T20:53:00Z29.18-81.0718.311.7250610.030.0708661018.1TRUEVFR-1.4METAR9.02018-12-17 21:05:44 g0Ogb›‹‰)'5    3KCRS 172053Z AUTO 30006KT 10SM CLR 13/04 A3020 RMK AO2 SLP228 T01280044 56014KCRS2018-12-17T20:53:00Z32.03-96.412.84.4300610.030.2007871022.8TRUETRUEVFR-1.4METAR133.02018-12-17 21:05:44[›‹‰)5    3KCSM 172053Z 14006KT 10SM CLR 10/M05 A3019 RMK AO2 SLP229 T01001050 56029KCSM2018-12-17T20:53:00Z35.35-99.210.0-5.0140610.030.1889761022.9TRUEVFR-2.9METAR588.02018-12-17 21:05:44c›‹‰)'5    3KCSV 172053Z AUTO 26005KT 10SM CLR 11/01 A3014 RMK AO2 SLP207 T01060011 56016KCSV2018-12-17T20:53:00Z35.95-85.0810.61.1260510.030.1387791020.7TRUETRUEVFR-1.6METAR570.02018-12-17 21:05:44a›‹‰)'5    3KCUB 172053Z AUTO 30005KT 10SM CLR 19/03 A3001 RMK AO2 SLP162 T01940033 55013KCUB2018-12-17T20:53:00Z33.97-81.019.43.3300510.030.0088581016.2TRUETRUEVFR-1.3METAR56.02018-12-17 21:05:44 ~?`~\›‹‰)5    3KCPS 172053Z 30007KT 10SM CLR 11/M03 A3024 RMK AO2 SLP241 T01061028 55010KCPS2018-12-17T20:53:00Z38.57-90.1510.6-2.8300710.030.2391741024.1TRUEVFR-1.0METAR126.02018-12-17 21:05:44Y›‹‰)5    3KCRE 172053Z 26006KT 10SM CLR 17/07 A2997 RMK AO1 SLP150 T01720067 56015KCRE2018-12-17T20:53:00Z33.82-78.7217.26.7260610.029.9704721015.0TRUEVFR-1.5METAR10.02018-12-17 21:05:44Y›‹‰)5    3KCRG 172053Z 26005KT 10SM CLR 16/09 A3007 RMK AO2 SLP182 T01560094 56018KCRG2018-12-17T20:53:00Z30.33-81.5215.69.4260510.030.0708661018.2TRUEVFR-1.8METAR13.02018-12-17 21:05:44\›‹‰)#5    3KCRQ 172053Z VRB04KT 10SM SCT032 17/12 A3016 RMK AO2 SLP210 T01670117 58021KCRQ2018-12-17T20:53:00Z33.13-117.2816.711.70410.030.1594491021.0TRUEVFR-2.1METAR99.02018-12-17 21:05:44 F2Ff›‹‰)-5    3KMMV 172053Z AUTO 18014KT 10SM FEW055 11/06 A2996 RMK AO2 SLP146 T01060061 56019KMMV2018-12-17T20:53:00Z45.2-123.1310.66.11801410.029.9586621014.6TRUETRUEVFR-1.9METAR48.02018-12-17 21:05:44g›‹‰)/5    3KMNN 172053Z AUTO 32006KT 10SM OVC028 03/M02 A3009 RMK AO2 SLP201 T00281022 53012KMNN2018-12-17T20:53:00Z40.62-83.072.8-2.2320610.030.0885831020.1TRUETRUEMVFR1.2METAR301.02018-12-17 21:05:44`›‹‰)'5    3KCOT 172053Z AUTO VRB03KT 10SM CLR 22/01 A3015 RMK AO2 SLP204 T02220006 56039KCOT2018-12-17T20:53:00Z28.45-99.2222.20.60310.030.150591020.4TRUETRUEVFR-3.9METAR140.02018-12-17 21:05:44u›‹‰)I5   3KCPR 172053Z 22022G30KT 10SM CLR 10/M07 A2999 RMK AO2 PK WND 22030/2050 SLP144 T01001072 56021KCPR2018-12-17T20:53:00Z42.9-106.4710.0-7.2220223010.029.9911421014.4TRUEVFR-2.1METAR1621.02018-12-17 21:05:44 +'+e›‹‰!))5    3KMLS 172053Z AUTO 15005KT 10SM CLR 06/M01 A2986 RMK AO2 SLP131 T00611011 56020KMLS2018-12-17T20:53:00Z46.43-105.886.1-1.1150510.029.8612211013.1TRUETRUEVFR-2.0METAR801.02018-12-17 21:05:44‚ ›‹‰ )Y5      3KMLT 172053Z AUTO 34008KT 3/4SM -SN BR OVC020 M01/M03 A2945 RMK AO2 SLP983 P0000 60003 T10111028 56007KMLT2018-12-17T20:53:00Z45.65-68.7-1.1-2.834080.7529.450787998.3TRUETRUE-SN BRLIFR-0.70.0050.03METAR123.02018-12-17 21:05:44X›‹‰)5    3KMLU 172053Z 00000KT 10SM CLR 18/11 A3018 RMK AO2 SLP220 T01780106 56026KMLU2018-12-17T20:53:00Z32.52-92.0317.810.60010.030.1801191022.0TRUEVFR-2.6METAR29.02018-12-17 21:05:44u›‹‰)K5    3KMMK 172053Z AUTO 31012KT 10SM BKN037 BKN049 OVC060 06/M01 A2963 RMK AO2 SLP034 T00561011 55001KMMK2018-12-17T20:53:00Z41.52-72.835.6-1.13101210.029.6309051003.4TRUETRUEVFR-0.1METAR31.02018-12-17 21:05:44 >è>Y›‹‰%)5    3KMKL 172053Z 31004KT 10SM CLR 14/02 A3019 RMK AO2 SLP225 T01440017 56018KMKL2018-12-17T20:53:00Z35.6-88.9214.41.7310410.030.1889761022.5TRUEVFR-1.8METAR128.02018-12-17 21:05:44a›‹‰$)'5    3KMKO 172053Z AUTO VRB04KT 10SM CLR 14/02 A3021 RMK AO2 SLP231 T01390022 56024KMKO2018-12-17T20:53:00Z35.65-95.3713.92.20410.030.2096461023.1TRUETRUEVFR-2.4METAR185.02018-12-17 21:05:44^›‹‰#)!5    3KMLB 172053Z 01005KT 10SM CLR 18/10 A3008 RMK AO2 SLP184 T01830100 55008 $KMLB2018-12-17T20:53:00Z28.1-80.6518.310.010510.030.0797251018.4TRUETRUEVFR-0.8METAR11.02018-12-17 21:05:44‚›‹‰")[5      3KMLP 172053Z AUTO VRB03KT 1/4SM -SN FZFG VV002 M01/M02 A2993 RMK AO2 SLP109 P0001 60001 T10111022 56007KMLP2018-12-17T20:53:00Z47.45-115.67-1.1-2.2030.2529.9291341010.9TRUETRUE-SN FZFGLIFR-0.70.010.01200METAR1837.02018-12-17 21:05:44 ?6/?j›‹‰))/5   3KDAN 172053Z AUTO 27008G15KT 10SM CLR 16/M01 A2994 RMK AO2 SLP131 T01561006 55008KDAN2018-12-17T20:53:00Z36.57-79.3315.6-0.627081510.029.9409451013.1TRUETRUEVFR-0.8METAR175.02018-12-17 21:05:44‚›‹‰()c5    3KDAL 172053Z 29003KT 10SM FEW130 BKN180 OVC250 12/04 A3020 RMK AO2 SLP224 VIRGA NE-E S-SW T01170044 55017 $KDAL2018-12-17T20:53:00Z32.85-96.8511.74.4290310.030.2007871022.4TRUETRUEVFR-1.7METAR158.02018-12-17 21:05:44b›‹‰')'5    3KHBG 172053Z AUTO 29004KT 10SM CLR 19/07 A3019 RMK AO2 SLP222 T01890067 56023KHBG2018-12-17T20:53:00Z31.27-89.2518.96.7290410.030.1889761022.2TRUETRUEVFR-2.3METAR44.02018-12-17 21:05:44\›‹‰&)%5    3KMIE 172053Z 31009KT 10SM FEW025 05/M01 A3013 RMK AO2 SLP206 T00501006 53001KMIE2018-12-17T20:53:00Z40.23-85.45.0-0.6310910.030.1299211020.6TRUEVFR0.1METAR285.02018-12-17 21:05:44 n"9Qn]›‹‰-)%5    3KMHT 172053Z 29007KT 10SM BKN033 04/M01 A2951 RMK AO2 SLP008 T00391006 55008KMHT2018-12-17T20:53:00Z42.93-71.433.9-0.6290710.029.5098421000.8TRUEVFR-0.8METAR81.02018-12-17 21:05:44b›‹‰,)15    3KMIA 172053Z 30007KT 10SM FEW033 SCT250 22/13 A3007 RMK AO2 SLP181 T02170133 56010KMIA2018-12-17T20:53:00Z25.8-80.2821.713.3300710.030.0708661018.1TRUEVFR-1.0METAR3.02018-12-17 21:05:44c›‹‰+)'5    3KDCU 172053Z AUTO 25005KT 10SM CLR 13/06 A3017 RMK AO2 SLP217 T01280061 56019KDCU2018-12-17T20:53:00Z34.65-86.9512.86.1250510.030.1712591021.7TRUETRUEVFR-1.9METAR176.02018-12-17 21:05:44X›‹‰*)5    3KDBQ 172053Z 26005KT 10SM CLR 05/M06 A3022 RMK AO2 SLP243 T00501061 55000KDBQ2018-12-17T20:53:00Z42.4-90.75.0-6.1260510.030.2214571024.3TRUEVFR0.0METAR326.02018-12-17 21:05:44 U-EUj›‹‰1)?5    3KDFW 172053Z 26004KT 10SM BKN150 BKN160 OVC190 11/04 A3019 RMK AO2 SLP220 T01110039 55016KDFW2018-12-17T20:53:00Z32.9-97.0211.13.9260410.030.1889761022.0TRUEVFR-1.6METAR174.02018-12-17 21:05:44b›‹‰0)'5    3KDEQ 172053Z AUTO 08004KT 10SM CLR 16/11 A3016 RMK AO2 SLP212 T01560106 56025KDEQ2018-12-17T20:53:00Z34.05-94.415.610.680410.030.1594491021.2TRUETRUEVFR-2.5METAR106.02018-12-17 21:05:44b›‹‰/))5    3KMGY 172053Z AUTO 33009KT 10SM CLR 06/M02 A3010 RMK AO2 SLP198 T00611022 53001KMGY2018-12-17T20:53:00Z39.6-84.236.1-2.2330910.030.1003931019.8TRUETRUEVFR0.1METAR289.02018-12-17 21:05:44e›‹‰.))5    3KMHE 172053Z AUTO 16010KT 10SM CLR 06/M01 A2997 RMK AO2 SLP161 T00611006 56024KMHE2018-12-17T20:53:00Z43.77-98.026.1-0.61601010.029.9704721016.1TRUETRUEVFR-2.4METAR397.02018-12-17 21:05:44 Ú ڂ-›‹‰4)‚#5    3KDKK 172053Z AUTO 30015G24KT 10SM BKN027 OVC034 02/M03 A2996 RMK AO2 PK WND 28030/2004 UPE1959SNB1959E04 SLP152 P0000 60000 T00171028 53018KDKK2018-12-17T20:53:00Z42.5-79.281.7-2.8300152410.029.9586621015.2TRUETRUEMVFR1.80.0050.005METAR202.02018-12-17 21:05:44›‹‰3)S5   3KDHT 172053Z AUTO 21018G25KT 10SM CLR 15/M07 A3011 RMK AO2 PK WND 20026/2000 SLP188 T01501072 56033KDHT2018-12-17T20:53:00Z36.02-102.5515.0-7.2210182510.030.1092531018.8TRUETRUEVFR-3.3METAR1217.02018-12-17 21:05:44h›‹‰2)35    3KDEN 172053Z 01006KT 10SM FEW120 BKN220 15/M14 A2999 RMK AO2 SLP131 T01501144 56024KDEN2018-12-17T20:53:00Z39.85-104.6515.0-14.410610.029.9911421013.1TRUEVFR-2.4METAR1640.02018-12-17 21:05:44 b%BbZ›‹‰8)5    3KOSH 172053Z 31007KT 10SM CLR 02/M07 A3020 RMK AO2 SLP239 T00171072 53005KOSH2018-12-17T20:53:00Z43.97-88.551.7-7.2310710.030.2007871023.9TRUEVFR0.5METAR248.02018-12-17 21:05:44]›‹‰7)%5    3KDET 172053Z 31010KT 10SM OVC037 03/M05 A3008 RMK AO2 SLP192 T00331050 53014KDET2018-12-17T20:53:00Z42.4-83.023.3-5.03101010.030.0797251019.2TRUEVFR1.4METAR190.02018-12-17 21:05:44l›‹‰6);5    3KDEW 172053Z AUTO 00000KT 10SM BKN013 OVC018 03/03 A2999 RMK AO2 SLP170 T00330028 58002KDEW2018-12-17T20:53:00Z47.97-117.433.32.80010.029.9911421017.0TRUETRUEMVFR-0.2METAR674.02018-12-17 21:05:44c›‹‰5))5    3KDFI 172053Z AUTO 31007KT 10SM CLR 04/M03 A3011 RMK AO2 SLP202 T00441033 53005KDFI2018-12-17T20:53:00Z41.33-84.434.4-3.3310710.030.1092531020.2TRUETRUEVFR0.5METAR219.02018-12-17 21:05:44 H "5Hg›‹‰<)/5     3KOWD 172053Z 28010KT 10SM BKN055 06/00 A2953 RMK AO2 SLP002 60000 T00560000 55006KOWD2018-12-17T20:53:00Z42.18-71.175.60.02801010.029.5305121000.2TRUEVFR-0.60.005METAR19.02018-12-17 21:05:44g›‹‰;))5    3KDGW 172053Z AUTO 27015KT 10SM CLR 13/M06 A2997 RMK AO2 SLP156 T01331056 56018KDGW2018-12-17T20:53:00Z42.8-105.3813.3-5.62701510.029.9704721015.6TRUETRUEVFR-1.8METAR1499.02018-12-17 21:05:44b›‹‰:)'5    3KDHN 172053Z AUTO 29006KT 10SM CLR 19/04 A3015 RMK AO2 SLP209 T01890044 56019KDHN2018-12-17T20:53:00Z31.32-85.4518.94.4290610.030.150591020.9TRUETRUEVFR-1.9METAR113.02018-12-17 21:05:44p›‹‰9)=5    3KDLN 172053Z AUTO 19007KT 10SM BKN065 OVC085 07/M05 A2993 RMK AO2 SLP131 T00671050 56012KDLN2018-12-17T20:53:00Z45.25-112.556.7-5.0190710.029.9291341013.1TRUETRUEVFR-1.2METAR1591.02018-12-17 21:05:44 m1KmX›‹‰@)5    3KPDT 172053Z VRB03KT 10SM CLR 12/03 A2997 RMK AO2 SLP146 T01170028 58015KPDT2018-12-17T20:53:00Z45.7-118.8311.72.80310.029.9704721014.6TRUEVFR-1.5METAR462.02018-12-17 21:05:44`›‹‰?)'5    3KOXB 172053Z AUTO 28007KT 10SM CLR 11/02 A2980 RMK AO2 SLP091 T01060017 53002KOXB2018-12-17T20:53:00Z38.32-75.1210.61.7280710.029.7992131009.1TRUETRUEVFR0.2METAR3.02018-12-17 21:05:44c›‹‰>)+5   3KIAG 172053Z 29018G25KT 10SM OVC034 02/M04 A2990 RMK AO2 SLP138 T00171039 53017KIAG2018-12-17T20:53:00Z43.12-78.931.7-3.9290182510.029.8996071013.8TRUEVFR1.7METAR182.02018-12-17 21:05:44`›‹‰=)15    3KIAH 172053Z 00000KT 10SM FEW180 FEW250 21/06 A3017 RMK AO2 SLP217 T02110061 56025KIAH2018-12-17T20:53:00Z30.0-95.3721.16.10010.030.1712591021.7TRUEVFR-2.5METAR36.02018-12-17 21:05:44 i 1GiX›‹‰D)5    3KPAH 172053Z VRB03KT 10SM CLR 13/00 A3020 RMK AO2 SLP227 T01330000 56008KPAH2018-12-17T20:53:00Z37.07-88.7713.30.00310.030.2007871022.7TRUEVFR-0.8METAR119.02018-12-17 21:05:44d›‹‰C)+5     3KPBF 172053Z AUTO 02004KT 2SM HZ CLR 14/07 A3021 RMK AO2 SLP229 T01440072 56018KPBF2018-12-17T20:53:00Z34.18-91.9314.47.22042.030.2096461022.9TRUETRUEHZIFR-1.8METAR62.02018-12-17 21:05:44i›‹‰B)55    3KPBI 172053Z 30012KT 10SM FEW030 SCT250 18/12 A3008 RMK AO2 SLP185 T01830117 55003 $KPBI2018-12-17T20:53:00Z26.68-80.118.311.73001210.030.0797251018.5TRUETRUEVFR-0.3METAR6.02018-12-17 21:05:44Z›‹‰A)5    3KPDK 172053Z 31010KT 10SM CLR 15/01 A3010 RMK AO2 SLP193 T01500006 56011KPDK2018-12-17T20:53:00Z33.88-84.315.00.63101010.030.1003931019.3TRUEVFR-1.1METAR302.02018-12-17 21:05:44 ,# ,W›‹‰H)5    3KPGD 172053Z 36008KT 10SM CLR 19/09 A3010 RMK AO2 SLP193 T01940094 56016KPGD2018-12-17T20:53:00Z26.92-82.019.49.4360810.030.1003931019.3TRUEVFR-1.6METAR7.02018-12-17 21:05:44‚›‹‰G)q5    3KPEO 172053Z AUTO 28011G21KT 10SM FEW020 OVC060 02/M02 A2981 RMK AO2 SNB1956E24 SLP103 P0000 60000 T00171022 53016KPEO2018-12-17T20:53:00Z42.65-77.051.7-2.2280112110.029.8110241010.3TRUETRUEVFR1.60.0050.005METAR256.02018-12-17 21:05:44p›‹‰F)95     3KPGA 172053Z AUTO 00000KT 10SM OVC110 07/M04 A3017 RMK AO2 SLP211 T00671044 56023 TSNOKPGA2018-12-17T20:53:00Z36.92-111.456.7-4.40010.030.1712591021.1TRUETRUETRUEVFR-2.3METAR1307.02018-12-17 21:05:44a›‹‰E)15    3KPDX 172053Z 12009KT 10SM SCT060 OVC110 10/07 A2998 RMK AO2 SLP151 T01000067 58017KPDX2018-12-17T20:53:00Z45.6-122.6210.06.7120910.029.979331015.1TRUEVFR-1.7METAR7.02018-12-17 21:05:44 B$*Bb›‹‰L)'5    3KPIE 172053Z AUTO 32009KT 10SM CLR 16/12 A3010 RMK AO2 SLP193 T01610122 56014KPIE2018-12-17T20:53:00Z27.92-82.6816.112.2320910.030.1003931019.3TRUETRUEVFR-1.4METAR4.02018-12-17 21:05:44t›‹‰K)E5    3KPIH 172053Z 16004KT 10SM FEW045 SCT075 BKN110 04/M02 A3008 RMK AO2 SLP211 T00391022 58008 $KPIH2018-12-17T20:53:00Z42.92-112.573.9-2.2160410.030.0797251021.1TRUETRUEVFR-0.8METAR1359.02018-12-17 21:05:44j›‹‰J)-5    3KSPW 172053Z AUTO 13009KT 10SM CLR 03/M01 A3011 RMK AO2 SLP214 T00331011 56029 $KSPW2018-12-17T20:53:00Z43.17-95.223.3-1.1130910.030.1092531021.4TRUETRUETRUEVFR-2.9METAR403.02018-12-17 21:05:44f›‹‰I)/5    3KPHD 172053Z AUTO 32009KT 10SM OVC035 04/M03 A3006 RMK AO2 SLP187 T00391033 53013KPHD2018-12-17T20:53:00Z40.47-81.423.9-3.3320910.030.0590551018.7TRUETRUEVFR1.3METAR272.02018-12-17 21:05:44 d6Pdf›‹‰P)+5    3KPKD 172053Z AUTO 14009KT 10SM CLR M01/M11 A3014 RMK AO2 SLP234 T10111111 56017KPKD2018-12-17T20:53:00Z46.9-95.07-1.1-11.1140910.030.1387791023.4TRUETRUEVFR-1.7METAR442.02018-12-17 21:05:44`›‹‰O)'5    3KPIL 172053Z AUTO 02005KT 10SM CLR 21/13 A3015 RMK AO2 SLP210 T02060133 56024KPIL2018-12-17T20:53:00Z26.17-97.3320.613.320510.030.150591021.0TRUETRUEVFR-2.4METAR5.02018-12-17 21:05:44c›‹‰N))5    3KPIR 172053Z AUTO 00000KT 10SM CLR 08/M02 A2990 RMK AO2 SLP138 T00781017 56019KPIR2018-12-17T20:53:00Z44.38-100.287.8-1.70010.029.8996071013.8TRUETRUEVFR-1.9METAR526.02018-12-17 21:05:44[›‹‰M)5    3KPKB 172053Z 28006KT 10SM CLR 09/M03 A3007 RMK AO2 SLP184 T00891033 55001KPKB2018-12-17T20:53:00Z39.35-81.428.9-3.3280610.030.0708661018.4TRUEVFR-0.1METAR262.02018-12-17 21:05:44 [,G[f›‹‰T))5    3KSNY 172053Z AUTO 10006KT 10SM CLR 16/M09 A2997 RMK AO2 SLP141 T01561089 56025KSNY2018-12-17T20:53:00Z41.1-102.9815.6-8.9100610.029.9704721014.1TRUETRUEVFR-2.5METAR1307.02018-12-17 21:05:44_›‹‰S)%5    3KSAF 172053Z 24003KT 10SM SCT075 09/M06 A3017 RMK AO2 SLP198 T00891061 56027KSAF2018-12-17T20:53:00Z35.62-106.18.9-6.1240310.030.1712591019.8TRUEVFR-2.7METAR1930.02018-12-17 21:05:44k›‹‰R)75   3KPMD 172053Z 26013G17KT 10SM BKN036 BKN060 15/07 A3014 RMK AO2 SLP196 T01500067 57019KPMD2018-12-17T20:53:00Z34.63-118.0815.06.7260131710.030.1387791019.6TRUEVFR-1.9METAR780.02018-12-17 21:05:44]›‹‰Q)#5    3KPMP 172053Z 31011KT 10SM FEW032 21/13 A3006 RMK AO2 SLP180 T02110128 56008KPMP2018-12-17T20:53:00Z26.25-80.1221.112.83101110.030.0590551018.0TRUEVFR-0.8METAR6.02018-12-17 21:05:44 q6Rq[›‹‰X)#5    3KSSF 172053Z 00000KT 10SM CLR 21/M03 A3015 RMK AO2 SLP207 6//// T02111028 $KSSF2018-12-17T20:53:00Z29.33-98.4721.1-2.80010.030.150591020.7TRUETRUEVFRMETAR176.02018-12-17 21:05:44^›‹‰W)#5    3KPAE 172053Z 13011KT 10SM BKN050 09/04 A2990 RMK AO2 SLP128 T00940044 58012KPAE2018-12-17T20:53:00Z47.92-122.289.44.41301110.029.8996071012.8TRUEVFR-1.2METAR180.02018-12-17 21:05:44X›‹‰V)5    3KSAC 172053Z 24004KT 10SM CLR 14/09 A3020 RMK AO2 SLP227 T01440089 58005KSAC2018-12-17T20:53:00Z38.5-121.514.48.9240410.030.2007871022.7TRUEVFR-0.5METAR11.02018-12-17 21:05:44f›‹‰U)-5    3KSPB 172053Z AUTO 16004KT 10SM SCT070 12/07 A2996 RMK AO2 SLP144 T01170067 58017KSPB2018-12-17T20:53:00Z45.77-122.8711.76.7160410.029.9586621014.4TRUETRUEVFR-1.7METAR14.02018-12-17 21:05:44 |!B[|Y›‹‰\)5    3KSNS 172053Z 34007KT 10SM CLR 17/07 A3020 RMK AO2 SLP235 T01670067 58012KSNS2018-12-17T20:53:00Z36.67-121.616.76.7340710.030.2007871023.5TRUEVFR-1.2METAR30.02018-12-17 21:05:44a›‹‰[)'5    3KSSI 172053Z AUTO 28007KT 10SM CLR 16/09 A3006 RMK AO2 SLP180 T01560094 56016KSSI2018-12-17T20:53:00Z31.15-81.3815.69.4280710.030.0590551018.0TRUETRUEVFR-1.6METAR6.02018-12-17 21:05:44Y›‹‰Z)5    3KSPG 172053Z 32009KT 10SM CLR 17/11 A3008 RMK AO2 SLP186 T01670111 56013KSPG2018-12-17T20:53:00Z27.77-82.6316.711.1320910.030.0797251018.6TRUEVFR-1.3METAR2.02018-12-17 21:05:44Y›‹‰Y)5    3KSRQ 172053Z 35009KT 10SM CLR 18/11 A3008 RMK AO2 SLP187 T01830111 56014KSRQ2018-12-17T20:53:00Z27.4-82.5718.311.1350910.030.0797251018.7TRUEVFR-1.4METAR18.02018-12-17 21:05:44 k,Nk]›‹‰`)5    3KSLN 172053Z 17010KT 10SM CLR 13/M01 A3018 RMK AO2 SLP225 T01331011 56028KSLN2018-12-17T20:53:00Z38.78-97.6513.3-1.11701010.030.1801191022.5TRUEVFR-2.8METAR385.02018-12-17 21:05:44X›‹‰_)#5    3KSMF 172053Z VRB04KT 10SM BKN250 14/09 A3020 RMK AO2 SLP225 T01390089 58003KSMF2018-12-17T20:53:00Z38.7-121.613.98.90410.030.2007871022.5TRUEVFR-0.3METAR6.02018-12-17 21:05:44k›‹‰^)55   3KSMQ 172053Z AUTO 32013G22KT 10SM OVC055 07/M03 A2974 RMK AO2 SLP072 T00671033 53010KSMQ2018-12-17T20:53:00Z40.62-74.676.7-3.3320132210.029.7401581007.2TRUETRUEVFR1.0METAR30.02018-12-17 21:05:44]›‹‰])#5    3KSNA 172053Z 21006KT 10SM BKN031 18/12 A3015 RMK AO2 SLP209 T01780117 58027KSNA2018-12-17T20:53:00Z33.67-117.8717.811.7210610.030.150591020.9TRUEVFR-2.7METAR16.02018-12-17 21:05:44 A+@Ay›‹‰d)S5   3KHFD 172053Z 31013G24KT 10SM OVC060 06/M03 A2963 RMK AO2 PK WND 32031/2016 SLP032 T00561028 55000 $KHFD2018-12-17T20:53:00Z41.73-72.655.6-2.8310132410.029.6309051003.2TRUETRUEVFR0.0METAR4.02018-12-17 21:05:44e›‹‰c))5    3KHBR 172053Z AUTO 11006KT 10SM CLR 10/M01 A3021 RMK AO2 SLP234 T01001006 56026KHBR2018-12-17T20:53:00Z34.98-99.0510.0-0.6110610.030.2096461023.4TRUETRUEVFR-2.6METAR473.02018-12-17 21:05:44e›‹‰b))5    3KHEI 172053Z AUTO 21004KT 10SM CLR 08/M03 A2988 RMK AO2 SLP138 T00831033 56022KHEI2018-12-17T20:53:00Z46.02-102.658.3-3.3210410.029.8789371013.8TRUETRUEVFR-2.2METAR828.02018-12-17 21:05:44d›‹‰a))5    3KHAO 172053Z AUTO 28009KT 10SM CLR 07/M02 A3013 RMK AO2 SLP207 T00721017 55002KHAO2018-12-17T20:53:00Z39.37-84.527.2-1.7280910.030.1299211020.7TRUETRUEVFR-0.2METAR188.02018-12-17 21:05:44 e4Ie^›‹‰h)#5    3KHIO 172053Z 18011KT 10SM SCT060 10/07 A2996 RMK AO2 SLP145 T01000067 56017KHIO2018-12-17T20:53:00Z45.55-122.9510.06.71801110.029.9586621014.5TRUEVFR-1.7METAR68.02018-12-17 21:05:44e›‹‰g)+5    3KHIB 172053Z AUTO 00000KT 10SM CLR M03/M12 A3019 RMK AO2 SLP251 T10281122 58005KHIB2018-12-17T20:53:00Z47.38-92.83-2.8-12.20010.030.1889761025.1TRUETRUEVFR-0.5METAR412.02018-12-17 21:05:44d›‹‰f)'5    3KHHR 172053Z 25006KT 10SM BKN027 18/12 A3015 RMK AO2 SLP209 T01830117 56021 $KHHR2018-12-17T20:53:00Z33.92-118.3318.311.7250610.030.150591020.9TRUETRUEMVFR-2.1METAR18.02018-12-17 21:05:44\›‹‰e)%5    3KHGR 172053Z 32014KT 10SM FEW040 08/M03 A2985 RMK AO2 SLP122 T00781033 53013KHGR2018-12-17T20:53:00Z39.7-77.737.8-3.33201410.029.849411012.2TRUEVFR1.3METAR224.02018-12-17 21:05:44 N4N`›‹‰l))5    3KHKY 172053Z AUTO 30007KT 10SM CLR 15/M03 A3000 RMK AO2 SLP148 T01501033 55007KHKY2018-12-17T20:53:00Z35.75-81.3815.0-3.3300710.030.01014.8TRUETRUEVFR-0.7METAR354.02018-12-17 21:05:44b›‹‰k)'5    3KHKA 172053Z AUTO 34003KT 10SM CLR 15/03 A3022 RMK AO2 SLP232 T01500033 56017KHKA2018-12-17T20:53:00Z35.93-89.8315.03.3340310.030.2214571023.2TRUETRUEVFR-1.7METAR78.02018-12-17 21:05:44^›‹‰j)!5    3KHKS 172053Z 00000KT 10SM CLR 18/08 A3018 RMK AO2 SLP215 T01830083 56022 $KHKS2018-12-17T20:53:00Z32.33-90.2218.38.30010.030.1801191021.5TRUETRUEVFR-2.2METAR108.02018-12-17 21:05:44z›‹‰i)G5     3KHJO 172053Z AUTO 33009KT 10SM SCT016 OVC025 14/11 A3021 RMK AO2 SLP232 60000 T01440111 56011KHJO2018-12-17T20:53:00Z36.32-119.6214.411.1330910.030.2096461023.2TRUETRUEMVFR-1.10.005METAR74.02018-12-17 21:05:44 +4+‚›‹‰o)a5    3KHVN 172053Z 32009G15KT 10SM SCT038 OVC065 06/01 A2963 RMK AO2 RAB34E48 SLP034 P0001 60001 T00610006 55001KHVN2018-12-17T20:53:00Z41.27-72.876.10.632091510.029.6309051003.4TRUEVFR-0.10.010.01METAR4.02018-12-17 21:05:44]›‹‰n)%5    3KHLN 172053Z 00000KT 10SM OVC060 04/M03 A2990 RMK AO2 SLP163 T00441033 58009KHLN2018-12-17T20:53:00Z46.6-111.984.4-3.30010.029.8996071016.3TRUEVFR-0.9METAR1182.02018-12-17 21:05:44c›‹‰m)+5   3KHLG 172053Z 30014G20KT 10SM OVC037 04/M03 A3001 RMK AO2 SLP173 T00441033 53007KHLG2018-12-17T20:53:00Z40.17-80.654.4-3.3300142010.030.0088581017.3TRUEVFR0.7METAR372.02018-12-17 21:05:44 'äý'P›‹‰s)5    3KHSV 172053Z 32005KT 10SM CLR 15/06 A3016 RMK AO2 SLP213 T01500061KHSV2018-12-17T20:53:00Z34.65-86.7815.06.1320510.030.1594491021.3TRUEVFRMETAR191.02018-12-17 21:05:44‚›‹‰r)[5   3KHTL 172053Z AUTO 32012G22KT 10SM OVC022 M02/M06 A3010 RMK AO2 PK WND 32027/2031 SLP208 T10171061 53015KHTL2018-12-17T20:53:00Z44.35-84.67-1.7-6.1320122210.030.1003931020.8TRUETRUEMVFR1.5METAR351.02018-12-17 21:05:44Z›‹‰q)5    3KHUF 172053Z 29008KT 10SM CLR 07/M01 A3018 RMK AO2 SLP223 T00721006 55003KHUF2018-12-17T20:53:00Z39.45-87.37.2-0.6290810.030.1801191022.3TRUEVFR-0.3METAR179.02018-12-17 21:05:44‚›‹‰p)g5       3KHUL 172053Z AUTO 36006KT 1/2SM -SN FZFG OVC005 M02/M02 A2942 RMK AO2 SLP971 P0001 60003 T10171022 56015 TSNOKHUL2018-12-17T20:53:00Z46.12-67.8-1.7-2.236060.529.421259997.1TRUETRUETRUE-SN FZFGLIFR-1.50.010.03METAR150.02018-12-17 21:05:44 O$:Oe›‹‰w)+5    3KHQM 172053Z AUTO 10012KT 9SM OVC030 10/07 A2986 RMK AO2 SLP113 T01000072 58016KHQM2018-12-17T20:53:00Z46.97-123.9310.07.2100129.029.8612211011.3TRUETRUEMVFR-1.6METAR7.02018-12-17 21:05:44d›‹‰v)'5    3KHRI 172053Z AUTO 36004KT 10SM CLR 11/05 A2999 RMK AO2 SLP157 T01110050 58013KHRI2018-12-17T20:53:00Z45.83-119.2711.15.0360410.029.9911421015.7TRUETRUEVFR-1.3METAR195.02018-12-17 21:05:44l›‹‰u)35     3KHRO 172053Z AUTO 00000KT 10SM CLR 14/M02 A3020 RMK AO2 SLP226 T01391022 56024 TSNOKHRO2018-12-17T20:53:00Z36.27-93.1513.9-2.20010.030.2007871022.6TRUETRUETRUEVFR-2.4METAR417.02018-12-17 21:05:44d›‹‰t))5    3KHSI 172053Z AUTO 19009KT 10SM CLR 12/M01 A3008 RMK AO2 SLP197 T01221011 56028KHSI2018-12-17T20:53:00Z40.6-98.4312.2-1.1190910.030.0797251019.7TRUETRUEVFR-2.8METAR591.02018-12-17 21:05:44 ˜3T˜6›‹‰{(u5   3KFTG 172053Z 34008KT 10SM FEW150 BKN220 15/M13 A3000KFTG2018-12-17T20:53:00Z39.78-104.5515.0-13.0340810.030.0VFRMETAR1675.02018-12-17 21:05:44Y›‹‰z)5    3KFMY 172053Z 32005KT 10SM CLR 18/11 A3008 RMK AO2 SLP187 T01830106 56015KFMY2018-12-17T20:53:00Z26.58-81.8718.310.6320510.030.0797251018.7TRUEVFR-1.5METAR4.02018-12-17 21:05:44e›‹‰y))5    3KHVR 172053Z AUTO 24006KT 10SM CLR 07/M03 A2981 RMK AO2 SLP117 T00721033 56008KHVR2018-12-17T20:53:00Z48.55-109.777.2-3.3240610.029.8110241011.7TRUETRUEVFR-0.8METAR787.02018-12-17 21:05:44\›‹‰x)#5    3KHOU 172053Z 16004KT 10SM FEW200 21/07 A3017 RMK AO2 SLP222 T02060072 56025KHOU2018-12-17T20:53:00Z29.63-95.2820.67.2160410.030.1712591022.2TRUEVFR-2.5METAR36.02018-12-17 21:05:44 Ðë`›‹‰)'5    3KVUO 172053Z AUTO 09008KT 10SM CLR 09/07 A2997 RMK AO2 SLP149 T00940067 56016KVUO2018-12-17T20:53:00Z45.62-122.659.46.790810.029.9704721014.9TRUETRUEVFR-1.6METAR8.02018-12-17 21:05:44e›‹‰~))5    3KWRL 172053Z AUTO 07005KT 10SM CLR 01/M05 A2994 RMK AO2 SLP184 T00061050 56023KWRL2018-12-17T20:53:00Z43.97-107.950.6-5.070510.029.9409451018.4TRUETRUEVFR-2.3METAR1271.02018-12-17 21:05:44_›‹‰})!5    3KHWO 172053Z 30010KT 10SM CLR 22/12 A3007 RMK AO2 SLP183 T02170117 56011 $KHWO2018-12-17T20:53:00Z26.0-80.2321.711.73001010.030.0708661018.3TRUETRUEVFR-1.1METAR2.02018-12-17 21:05:44‚*›‹‰|)‚5    3KUIL 172053Z AUTO 16012G21KT 130V210 10SM BKN017 OVC023 09/08 A2976 RMK AO2 PK WND 14026/2001 RAB06E51 SLP076 P0001 60004 T00890078 58022KUIL2018-12-17T20:53:00Z47.93-124.558.97.8160122110.029.7608261007.6TRUETRUEMVFR-2.20.010.04METAR54.02018-12-17 21:05:44 i!:Tie›‹Š))5    3KVIH 172053Z AUTO 35003KT 10SM CLR 11/M03 A3024 RMK AO2 SLP244 T01111028 56011KVIH2018-12-17T20:53:00Z38.13-91.7711.1-2.8350310.030.2391741024.4TRUETRUEVFR-1.1METAR333.02018-12-17 21:05:44`›‹Š)'5    3KVLD 172053Z AUTO 00000KT 10SM CLR 17/09 A3009 RMK AO2 SLP197 T01720089 56019KVLD2018-12-17T20:53:00Z30.78-83.2717.28.90010.030.0885831019.7TRUETRUEVFR-1.9METAR62.02018-12-17 21:05:44a›‹Š)'5    3KVPC 172053Z AUTO VRB05KT 10SM CLR 16/01 A3013 RMK AO2 SLP197 T01560011 56015KVPC2018-12-17T20:53:00Z34.13-84.8515.61.10510.030.1299211019.7TRUETRUEVFR-1.5METAR222.02018-12-17 21:05:44Y›‹Š)5    3KVRB 172053Z 02005KT 10SM CLR 19/11 A3008 RMK AO2 SLP186 T01890106 55005KVRB2018-12-17T20:53:00Z27.65-80.4218.910.620510.030.0797251018.6TRUEVFR-0.5METAR10.02018-12-17 21:05:44 w-ewh›‹Š)35   3KUUU 172053Z AUTO 29010G16KT 10SM OVC050 05/00 A2956 RMK AO2 SLP009 T00500000 55000KUUU2018-12-17T20:53:00Z41.53-71.285.00.0290101610.029.560041000.9TRUETRUEVFR0.0METAR51.02018-12-17 21:05:44B›‹Š) 5     3KVCB 172053Z AUTO 00000KT CLR A3021 RMK AO2 SLPNO 6//// 50000 $KVCB2018-12-17T20:53:00Z38.38-121.950030.209646TRUETRUETRUE0.0METAR33.02018-12-17 21:05:44i›‹Š)15    3KVEL 172053Z AUTO 00000KT 10SM FEW110 M01/M07 A3018 RMK AO2 SLP256 T10111067 56023KVEL2018-12-17T20:53:00Z40.45-109.52-1.1-6.70010.030.1801191025.6TRUETRUEVFR-2.3METAR1604.02018-12-17 21:05:44^›‹Š)%5    3KVGT 172053Z 09005KT 10SM SCT100 13/M04 A3008 RMK AO2 SLP204 T01331044 58021KVGT2018-12-17T20:53:00Z36.22-115.213.3-4.490510.030.0797251020.4TRUEVFR-2.1METAR671.02018-12-17 21:05:44 d1Qdg›‹Š )+5    3KBDE 172053Z AUTO 10003KT 10SM CLR M06/M12 A3017 RMK AO2 SLP242 T10561117 56018KBDE2018-12-17T20:53:00Z48.73-94.62-5.6-11.7100310.030.1712591024.2TRUETRUEVFR-1.8METAR329.02018-12-17 21:05:44Z›‹Š )'5   3MMMM 172053Z 00000KT 6SM SCT230 23/07 A3021 RMK SLP121 57039 967 8/002 HZY ACMMMM2018-12-17T20:53:00Z19.85-101.0223.07.0006.030.2096461012.1VFR-3.9METAR1833.02018-12-17 21:05:44b›‹Š ))5    3KUNO 172053Z AUTO VRB03KT 10SM CLR 14/M01 A3020 RMK AO2 SLP228 T01441011 56019KUNO2018-12-17T20:53:00Z36.88-91.914.4-1.10310.030.2007871022.8TRUETRUEVFR-1.9METAR372.02018-12-17 21:05:44a›‹Š)%5    3KUTS 172053Z AUTO 25005KT 9SM CLR 18/03 A3017 RMK AO2 SLP214 T01830033 56022KUTS2018-12-17T20:53:00Z30.75-95.5818.33.325059.030.1712591021.4TRUETRUEVFR-2.2METAR104.02018-12-17 21:05:44 E-%EZ›‹Š)!5     3KDTS 172053Z 34005KT 3SM FU CLR 18/09 A3015 RMK AO2 SLP208 T01780089 56017KDTS2018-12-17T20:53:00Z30.4-86.4717.88.934053.030.150591020.8TRUEFUMVFR-1.7METAR5.02018-12-17 21:05:44‚›‹Š)m5   3KBAF 172053Z 32008G21KT 290V350 10SM BKN038 OVC050 04/M03 A2959 RMK AO2 PK WND 30028/2020 SLP025 T00391028 53007KBAF2018-12-17T20:53:00Z42.17-72.723.9-2.832082110.029.5895671002.5TRUEVFR0.7METAR83.02018-12-17 21:05:44c›‹Š ))5    3KBBW 172053Z AUTO 19009KT 10SM CLR 09/M01 A3002 RMK AO2 SLP179 T00941006 56025KBBW2018-12-17T20:53:00Z41.43-99.639.4-0.6190910.030.020671017.9TRUETRUEVFR-2.5METAR776.02018-12-17 21:05:44d›‹Š )'5    3KBCE 172053Z AUTO 14003KT 10SM OVC055 02/M06 A3018 RMK AO2 SLP219 T00221061 $KBCE2018-12-17T20:53:00Z37.7-112.152.2-6.1140310.030.1801191021.9TRUETRUETRUEVFRMETAR2312.02018-12-17 21:05:44 p$G\pf›‹Š))5    3KDRO 172053Z AUTO 14004KT 10SM CLR 06/M07 A3019 RMK AO2 SLP236 T00611072 56023KDRO2018-12-17T20:53:00Z37.15-107.776.1-7.2140410.030.1889761023.6TRUETRUEVFR-2.3METAR2035.02018-12-17 21:05:44e›‹Š)'5    3KDRT 172053Z AUTO 14010KT 10SM CLR 22/00 A3012 RMK AO2 SLP191 T02170000 56039KDRT2018-12-17T20:53:00Z29.37-100.9221.70.01401010.030.1210631019.1TRUETRUEVFR-3.9METAR313.02018-12-17 21:05:44W›‹Š)5    3KDTN 172053Z 00000KT 10SM CLR 16/08 A3017 RMK AO2 SLP214 T01560083 56023KDTN2018-12-17T20:53:00Z32.55-93.7515.68.30010.030.1712591021.4TRUEVFR-2.3METAR53.02018-12-17 21:05:44V›‹Š)5    3KDTO 172053Z 00000KT 10SM CLR 11/04 A3020 RMK AO2 SLP227 T01110044 55014KDTO2018-12-17T20:53:00Z33.2-97.211.14.40010.030.2007871022.7TRUEVFR-1.4METAR196.02018-12-17 21:05:44 C/5Cl›‹Š)35     3KDLS 172053Z AUTO 00000KT 1/4SM FG VV002 04/03 A3001 RMK AO2 SLP164 T00390033 58021KDLS2018-12-17T20:53:00Z45.62-121.173.93.3000.2530.0088581016.4TRUETRUEFGLIFR-2.1200METAR71.02018-12-17 21:05:44t›‹Š)I5    3KDMN 172053Z AUTO 00000KT 10SM FEW021 BKN036 OVC055 11/06 A3017 RMK AO2 SLP187 T01110061 56027KDMN2018-12-17T20:53:00Z32.27-107.7211.16.10010.030.1712591018.7TRUETRUEVFR-2.7METAR1311.02018-12-17 21:05:44e›‹Š))5    3KDMO 172053Z AUTO 11003KT 10SM CLR 11/M04 A3024 RMK AO2 SLP247 T01061039 56019KDMO2018-12-17T20:53:00Z38.72-93.1710.6-3.9110310.030.2391741024.7TRUETRUEVFR-1.9METAR274.02018-12-17 21:05:44`›‹Š)'5    3KDNL 172053Z AUTO VRB05KT 10SM CLR 20/03 A3002 RMK AO2 SLP165 T02000028 56018KDNL2018-12-17T20:53:00Z33.47-82.0320.02.80510.030.020671016.5TRUETRUEVFR-1.8METAR130.02018-12-17 21:05:44 ‘Tl‘U›‹Š)5    3KP68 172053Z AUTO 15011KT 06/M01 A3010 RMK AO1 SLP169 T00611006 56012KP682018-12-17T20:53:00Z39.6-116.06.1-0.61501130.1003931016.9TRUETRUE-1.2METAR1809.02018-12-17 21:05:44b›‹Š)15    3KNQX 172053Z 02004KT 10SM SCT018 SCT250 22/16 A3009 RMK AO2 SLP188 T02220161 56008KNQX2018-12-17T20:53:00Z24.57-81.6722.216.120410.030.0885831018.8TRUEVFR-0.8METAR2.02018-12-17 21:05:44=›‹Š(y5     3KP92 172053Z AUTO 00000KT A3021 RMK AO1 SLP231 56027 $KP922018-12-17T20:53:00Z29.57-91.530030.2096461023.1TRUETRUETRUE-2.7METAR1.02018-12-17 21:05:44c›‹Š)'5    3KOQT 172053Z AUTO 18004KT 10SM CLR 14/03 A3013 RMK AO2 SLP204 T01390033 56019KOQT2018-12-17T20:53:00Z36.02-84.2313.93.3180410.030.1299211020.4TRUETRUEVFR-1.9METAR277.02018-12-17 21:05:44 - %-r›‹Š)Q5   3CYAZ 172053Z 15022G32KT 8SM -RA SCT011 BKN018 OVC053 10/08 A2966 RMK CF4CU2SC2 VRY LGT PCPN SLP044CYAZ2018-12-17T20:53:00Z49.08-125.7710.08.015022328.029.6604331004.4-RAMVFRSPECI24.02018-12-17 21:05:44a›‹Š)'5    3KNUI 172053Z AUTO 26003KT 10SM CLR 10/04 A2983 RMK AO2 SLP099 T01000039 55001KNUI2018-12-17T20:53:00Z38.15-76.4310.03.9260310.029.8287411009.9TRUETRUEVFR-0.1METAR7.02018-12-17 21:05:44‚›‹Š)U5     3KSDB 172053Z AUTO 21005KT 10SM OVC013 10/06 A3017 RMK AO2 RAE1956 SLP191 P0000 60000 T01000061 58019KSDB2018-12-17T20:53:00Z34.75-118.7210.06.1210510.030.1712591019.1TRUETRUEMVFR-1.90.0050.005METAR1377.02018-12-17 21:05:44a›‹Š)'5    3KMWT 172053Z AUTO 00000KT 10SM CLR 14/06 A3017 RMK AO2 SLP219 T01390056 56024KMWT2018-12-17T20:53:00Z34.55-93.5813.95.60010.030.1712591021.9TRUETRUEVFR-2.4METAR214.02018-12-17 21:05:44 ).)›‹Š#)a5    3KBIL 172053Z 23012KT 10SM FEW080 BKN120 BKN200 12/M07 A2987 RMK AO2 SLP114 ACSL DSNT SW-NE T01171067 56016KBIL2018-12-17T20:53:00Z45.8-108.5511.7-6.72301210.029.8700791011.4TRUEVFR-1.6METAR1091.02018-12-17 21:05:44i›‹Š")/5    3KBYI 172053Z AUTO 35003KT 10SM OVC070 05/M03 A3006 RMK AO2 SLP187 T00501033 58010KBYI2018-12-17T20:53:00Z42.55-113.775.0-3.3350310.030.0590551018.7TRUETRUEVFR-1.0METAR1264.02018-12-17 21:05:44|›‹Š!)U5   3KCMX 172053Z AUTO 31018G28KT 10SM CLR M03/M09 A3015 RMK AO2 PK WND 32028/2047 SLP229 T10331094 53002KCMX2018-12-17T20:53:00Z47.17-88.48-3.3-9.4310182810.030.150591022.9TRUETRUEVFR0.2METAR326.02018-12-17 21:05:44[›‹Š )5    3KLSE 172053Z 29003KT 10SM CLR 03/M07 A3024 RMK AO2 SLP249 T00331072 57004KLSE2018-12-17T20:53:00Z43.88-91.253.3-7.2290310.030.2391741024.9TRUEVFR-0.4METAR199.02018-12-17 21:05:44 S3=Sd›‹Š')'5    3KWVI 172053Z AUTO 25003KT 10SM CLR 16/10 A3021 RMK AO2 SLP230 T01560100 56008KWVI2018-12-17T20:53:00Z36.93-121.7815.610.0250310.030.2096461023.0TRUETRUEVFR-0.8METAR43.02018-12-17 21:05:44p›‹Š&)I5    3KWST 172053Z AUTO 26006KT 10SM SCT039 BKN047 OVC060 07/01 A2960 RMK AO2 SLP023 T00720006 53001KWST2018-12-17T20:53:00Z41.35-71.87.20.6260610.029.6013771002.3TRUETRUEVFR0.1METAR21.02018-12-17 21:05:44d›‹Š%))5    3KRHI 172053Z AUTO 31005KT 10SM CLR 00/M11 A3017 RMK AO2 SLP237 T00001106 53001KRHI2018-12-17T20:53:00Z45.63-89.480.0-10.6310510.030.1712591023.7TRUETRUEVFR0.1METAR485.02018-12-17 21:05:44]›‹Š$)#5    3KTWF 172053Z 09003KT 10SM OVC050 05/00 A3007 RMK AO2 SLP181 T00500000 58011KTWF2018-12-17T20:53:00Z42.48-114.485.00.090310.030.0708661018.1TRUEVFR-1.1METAR1266.02018-12-17 21:05:44 J;0J`›‹Š+)'5    3PABE 172053Z 31009KT 10SM BKN090 M21/M23 A2936 RMK AO2 SLP945 T12061228 53024PABE2018-12-17T20:53:00Z60.78-161.83-20.6-22.8310910.029.359253994.5TRUEVFR2.4METAR41.02018-12-17 21:05:44‚›‹Š*)m5     3KYKM 172053Z 00000KT 1/4SM R27/1200V2000FT FG VV002 01/01 A2998 RMK AO2 TWR VIS 1/4 SLP163 I3000 T00110006 56019KYKM2018-12-17T20:53:00Z46.57-120.531.10.6000.2529.979331016.3TRUEFGLIFR-1.9200METAR324.02018-12-17 21:05:44^›‹Š))%5    3KYIP 172053Z 30012KT 10SM OVC032 04/M03 A3009 RMK AO2 SLP192 T00441033 53012KYIP2018-12-17T20:53:00Z42.23-83.534.4-3.33001210.030.0885831019.2TRUEVFR1.2METAR215.02018-12-17 21:05:44[›‹Š()5    3KXNA 172053Z 36003KT 10SM CLR 16/M02 A3020 RMK AO2 SLP227 T01561022 56023KXNA2018-12-17T20:53:00Z36.28-94.315.6-2.2360310.030.2007871022.7TRUEVFR-2.3METAR392.02018-12-17 21:05:44   ‚ ›‹Š.)e5     3PABI 172053Z 30010KT 7SM SCT015 BKN140 BKN200 M12/M13 A2900 RMK AO2 SNE06 SLP858 P0000 60000 T11171133 53036PABI2018-12-17T20:53:00Z64.0-145.72-11.7-13.3300107.028.999016985.8TRUEVFR3.60.0050.005METAR386.02018-12-17 21:05:44f›‹Š-)/5    3KZZV 172053Z AUTO 32010KT 10SM OVC037 06/M02 A3006 RMK AO2 SLP184 T00561022 53007KZZV2018-12-17T20:53:00Z39.95-81.95.6-2.23201010.030.0590551018.4TRUETRUEVFR0.7METAR268.02018-12-17 21:05:44n›‹Š,)A5     3PAAQ 172053Z 01004KT 10SM SCT016 OVC035 M07/M09 A2898 RMK AO2 SLP818 60000 T10671089 51025PAAQ2018-12-17T20:53:00Z61.6-149.08-6.7-8.910410.028.981298981.8TRUEVFR2.50.005METAR73.02018-12-17 21:05:44 Ìø ̂8›‹Š1)‚/5       3PAPB 172053Z AUTO 34023G35KT -SN SCT036 SCT070 M06/M09 A2962 RMK AO2 PK WND 33036/2043 UPB13E18SNE13B18 SLP019 P0000 60000 T10561089 51029 TSNO $PAPB2018-12-17T20:53:00Z56.58-169.67-5.6-8.9340233529.6190951001.9TRUETRUETRUETRUE-SN2.90.0050.005METAR35.02018-12-17 21:05:44h›‹Š0)75   3PHNL 172053Z 08009G15KT 10SM FEW030 SCT045 27/14 A3017 RMK AO2 SLP214 T02670144 58001PHNL2018-12-17T20:53:00Z21.33-157.9226.714.48091510.030.1712591021.4TRUEVFR-0.1METAR4.02018-12-17 21:05:44‚›‹Š/)S5      3PADQ 172053Z 30012KT 4SM -SN BKN035 OVC044 M05/M10 A2898 RMK AO2 SLP814 P0000 60000 T10501100 51016PADQ2018-12-17T20:53:00Z57.75-152.5-5.0-10.0300124.028.981298981.4TRUE-SNMVFR1.60.0050.005METAR34.02018-12-17 21:05:44 b5Kbc›‹Š5))5    3KBIV 172053Z AUTO 32010KT 10SM CLR 03/M04 A3017 RMK AO2 SLP223 T00281039 53012KBIV2018-12-17T20:53:00Z42.75-86.12.8-3.93201010.030.1712591022.3TRUETRUEVFR1.2METAR208.02018-12-17 21:05:44d›‹Š4)+5     3KAWM 172053Z AUTO VRB03KT 3SM HZ CLR 16/05 A3020 RMK AO2 SLP226 T01560050 56017KAWM2018-12-17T20:53:00Z35.13-90.2315.65.0033.030.2007871022.6TRUETRUEHZMVFR-1.7METAR65.02018-12-17 21:05:44d›‹Š3))5    3KAXN 172053Z AUTO 11013KT 10SM CLR 02/M09 A3014 RMK AO2 SLP226 T00221094 56016KAXN2018-12-17T20:53:00Z45.87-95.42.2-9.41101310.030.1387791022.6TRUETRUEVFR-1.6METAR433.02018-12-17 21:05:44[›‹Š2)5    3KAZO 172053Z 32011KT 10SM CLR 03/M03 A3013 RMK AO2 SLP212 T00331033 53005KAZO2018-12-17T20:53:00Z42.23-85.553.3-3.33201110.030.1299211021.2TRUEVFR0.5METAR272.02018-12-17 21:05:44 R#CRk›‹Š9)?5    3KSJC 172053Z 34005KT 10SM FEW018 SCT080 BKN110 16/06 A3021 RMK AO2 SLP229 T01610061 58005KSJC2018-12-17T20:53:00Z37.37-121.9216.16.1340510.030.2096461022.9TRUEVFR-0.5METAR24.02018-12-17 21:05:44Z›‹Š8)5    3KBKV 172053Z 30005KT 10SM CLR 17/10 A3011 RMK AO2 SLP193 T01720100 56015KBKV2018-12-17T20:53:00Z28.47-82.4517.210.0300510.030.1092531019.3TRUEVFR-1.5METAR20.02018-12-17 21:05:44]›‹Š7)#5    3KBHM 172053Z 34006KT 10SM FEW250 16/02 A3019 RMK AO2 SLP222 T01610022 56013KBHM2018-12-17T20:53:00Z33.57-86.7516.12.2340610.030.1889761022.2TRUEVFR-1.3METAR197.02018-12-17 21:05:44t›‹Š6)E5    3KBKE 172053Z AUTO 12006KT 10SM OVC010 05/03 A3003 RMK AO2 CIG 007V013 SLP183 T00500028 58007KBKE2018-12-17T20:53:00Z44.85-117.825.02.8120610.030.0295281018.3TRUETRUEMVFR-0.7METAR1024.02018-12-17 21:05:44 N,LNx›‹Š=)S5    3KBNO 172053Z AUTO 01003KT 10SM BKN007 BKN037 04/01 A3005 RMK AO2 CIG 006V012 SLP188 T00440011 58005KBNO2018-12-17T20:53:00Z43.6-118.954.41.110310.030.0501981018.8TRUETRUEIFR-0.5METAR1264.02018-12-17 21:05:44Z›‹Š<)5    3KBMG 172053Z 34004KT 10SM CLR 09/M04 A3015 RMK AO2 SLP211 T00891039 55002KBMG2018-12-17T20:53:00Z39.15-86.628.9-3.9340410.030.150591021.1TRUEVFR-0.2METAR257.02018-12-17 21:05:44c›‹Š;)'5    3KBMQ 172053Z AUTO 28004KT 10SM CLR 16/02 A3021 RMK AO2 SLP224 T01610017 56020KBMQ2018-12-17T20:53:00Z30.73-98.2316.11.7280410.030.2096461022.4TRUETRUEVFR-2.0METAR389.02018-12-17 21:05:44e›‹Š:))5    3KLAA 172053Z AUTO 07003KT 10SM CLR 13/M06 A2998 RMK AO2 SLP157 T01281061 56039KLAA2018-12-17T20:53:00Z38.07-102.6812.8-6.170310.029.979331015.7TRUETRUEVFR-3.9METAR1119.02018-12-17 21:05:44 \ 2E\c›‹ŠA))5    3KBPK 172053Z AUTO 00000KT 10SM CLR 13/M02 A3020 RMK AO2 SLP227 T01331022 56022KBPK2018-12-17T20:53:00Z36.37-92.4713.3-2.20010.030.2007871022.7TRUETRUEVFR-2.2METAR280.02018-12-17 21:05:44g›‹Š@)+5    3KBPI 172053Z AUTO 09003KT 10SM CLR M04/M11 A3010 RMK AO2 SLP246 T10391111 56020KBPI2018-12-17T20:53:00Z42.58-110.1-3.9-11.190310.030.1003931024.6TRUETRUEVFR-2.0METAR2117.02018-12-17 21:05:44h›‹Š?)/5     3KBOI 172053Z 16007KT 10SM OVC043 08/05 A3007 RMK AO2 SLP187 60000 T00830050 56008KBOI2018-12-17T20:53:00Z43.57-116.238.35.0160710.030.0708661018.7TRUEVFR-0.80.005METAR875.02018-12-17 21:05:44Z›‹Š>)5    3KBNA 172053Z VRB03KT 10SM CLR 16/M02 A3016 RMK AO2 SLP212 T01561022 56022KBNA2018-12-17T20:53:00Z36.12-86.6815.6-2.20310.030.1594491021.2TRUEVFR-2.2METAR210.02018-12-17 21:05:44 l!E]lk›‹ŠE)55    3KLGB 172053Z 17004KT 10SM FEW019 OVC023 17/13 A3015 RMK AO2 SLP209 T01720128 58029 $KLGB2018-12-17T20:53:00Z33.82-118.1517.212.8170410.030.150591020.9TRUETRUEMVFR-2.9METAR10.02018-12-17 21:05:44b›‹ŠD)'5    3KMTO 172053Z AUTO 32009KT 10SM CLR 07/01 A3018 RMK AO2 SLP227 T00720006 55004KMTO2018-12-17T20:53:00Z39.47-88.277.20.6320910.030.1801191022.7TRUETRUEVFR-0.4METAR214.02018-12-17 21:05:44V›‹ŠC)5    3KLFT 172053Z 00000KT 10SM CLR 17/11 A3020 RMK AO2 SLP225 T01670106 56031KLFT2018-12-17T20:53:00Z30.2-92.016.710.60010.030.2007871022.5TRUEVFR-3.1METAR11.02018-12-17 21:05:44Y›‹ŠB)5    3KBPT 172053Z 21007KT 10SM CLR 19/12 A3019 RMK AO2 SLP222 T01890117 56027KBPT2018-12-17T20:53:00Z29.95-94.0318.911.7210710.030.1889761022.2TRUEVFR-2.7METAR5.02018-12-17 21:05:44 Y0EYf›‹ŠI)/5    3KLHQ 172053Z AUTO 29008KT 10SM BKN035 05/M01 A3008 RMK AO2 SLP193 T00501006 53006KLHQ2018-12-17T20:53:00Z39.75-82.675.0-0.6290810.030.0797251019.3TRUETRUEVFR0.6METAR260.02018-12-17 21:05:44e›‹ŠH))5    3KLHX 172053Z AUTO 07006KT 10SM CLR 15/M06 A2998 RMK AO2 SLP141 T01501056 56039KLHX2018-12-17T20:53:00Z38.05-103.5215.0-5.670610.029.979331014.1TRUETRUEVFR-3.9METAR1277.02018-12-17 21:05:44b›‹ŠG)'5    3KLLQ 172053Z AUTO 06004KT 10SM CLR 16/11 A3020 RMK AO2 SLP225 T01610106 55016KLLQ2018-12-17T20:53:00Z33.63-91.7516.110.660410.030.2007871022.5TRUETRUEVFR-1.6METAR83.02018-12-17 21:05:44b›‹ŠF)15    3KLIT 172053Z 05003KT 10SM SCT150 BKN250 15/01 A3021 RMK AO2 SLP232 T01500006 56020KLIT2018-12-17T20:53:00Z34.73-92.2315.00.650310.030.2096461023.2TRUEVFR-2.0METAR79.02018-12-17 21:05:44 H*H\›‹ŠM)5    3KLOU 172053Z 29009KT 10SM CLR 12/M05 A3014 RMK AO2 SLP208 T01221050 55007KLOU2018-12-17T20:53:00Z38.22-85.6712.2-5.0290910.030.1387791020.8TRUEVFR-0.7METAR164.02018-12-17 21:05:44l›‹ŠL)55   3KLPR 172053Z AUTO 34012G21KT 10SM BKN035 02/M06 A3009 RMK AO2 SLP196 T00171056 53014KLPR2018-12-17T20:53:00Z41.35-82.181.7-5.6340122110.030.0885831019.6TRUETRUEVFR1.4METAR241.02018-12-17 21:05:44t›‹ŠK)O5   3KLNS 172053Z 30018G28KT 10SM BKN055 07/M03 A2981 RMK AO2 PK WND 32032/2007 SLP097 T00721028 53011KLNS2018-12-17T20:53:00Z40.12-76.37.2-2.8300182810.029.8110241009.7TRUEVFR1.1METAR125.02018-12-17 21:05:44d›‹ŠJ))5    3KLND 172053Z AUTO 00000KT 10SM CLR 04/M06 A2999 RMK AO2 SLP178 T00391061 56022KLND2018-12-17T20:53:00Z42.82-108.733.9-6.10010.029.9911421017.8TRUETRUEVFR-2.2METAR1694.02018-12-17 21:05:44 H0Hb›‹ŠQ)'5    3KLVJ 172053Z AUTO 15003KT 10SM CLR 21/08 A3019 RMK AO2 SLP222 T02060083 56024KLVJ2018-12-17T20:53:00Z29.52-95.2520.68.3150310.030.1889761022.2TRUETRUEVFR-2.4METAR12.02018-12-17 21:05:44Z›‹ŠP)5    3KLVK 172053Z 23004KT 10SM CLR 15/09 A3020 RMK AO2 SLP226 T01500094 58006KLVK2018-12-17T20:53:00Z37.7-121.8215.09.4230410.030.2007871022.6TRUEVFR-0.6METAR117.02018-12-17 21:05:44‚›‹ŠO)Y5   3KLVM 172053Z AUTO 23022G28KT 10SM FEW100 12/M05 A2987 RMK AO2 PK WND 22032/2035 SLP101 T01221050 56016KLVM2018-12-17T20:53:00Z45.7-110.4312.2-5.0230222810.029.8700791010.1TRUETRUEVFR-1.6METAR1418.02018-12-17 21:05:44c›‹ŠN)35      3KLOL 172053Z AUTO 21009KT FEW045 A3010 RMK AO2 SLPNO 6//// 56007 PWINO FZRANO PNO $KLOL2018-12-17T20:53:00Z40.07-118.57210930.100393TRUETRUETRUETRUETRUE-0.7METAR1189.02018-12-17 21:05:44 P(<Pf›‹ŠU)/5    3KFDY 172053Z AUTO 31009KT 10SM FEW029 05/M02 A3008 RMK AO2 SLP189 T00501022 53004KFDY2018-12-17T20:53:00Z41.02-83.675.0-2.2310910.030.0797251018.9TRUETRUEVFR0.4METAR247.02018-12-17 21:05:44f›‹ŠT))5    3KFFC 172053Z AUTO 30010KT 10SM CLR 18/M03 A3011 RMK AO2 SLP197 T01781028 56016KFFC2018-12-17T20:53:00Z33.35-84.5717.8-2.83001010.030.1092531019.7TRUETRUEVFR-1.6METAR262.02018-12-17 21:05:44d›‹ŠS))5    3KFFT 172053Z AUTO 30006KT 10SM CLR 11/M03 A3012 RMK AO2 SLP203 T01111033 55004KFFT2018-12-17T20:53:00Z38.18-84.911.1-3.3300610.030.1210631020.3TRUETRUEVFR-0.4METAR236.02018-12-17 21:05:44h›‹ŠR)-5   3KFHR 172053Z AUTO 14014G21KT 10SM CLR 09/06 A2981 RMK AO2 SLP094 T00940056 58022KFHR2018-12-17T20:53:00Z48.52-123.039.45.6140142110.029.8110241009.4TRUETRUEVFR-2.2METAR32.02018-12-17 21:05:44 L7XL‚›‹ŠY)]5      3KFAT 172053Z 30007KT 7SM -RA BKN008 BKN012 OVC019 13/11 A3020 RMK AO2 SLP227 P0001 60004 T01280111 58008KFAT2018-12-17T20:53:00Z36.78-119.7212.811.130077.030.2007871022.7TRUE-RAIFR-0.80.010.04METAR104.02018-12-17 21:05:44Y›‹ŠX)5    3KFAY 172053Z 26009KT 10SM CLR 18/01 A2995 RMK AO2 SLP138 T01780006 55007KFAY2018-12-17T20:53:00Z34.98-78.8817.80.6260910.029.9498021013.8TRUEVFR-0.7METAR55.02018-12-17 21:05:44[›‹ŠW)5    3KFCM 172053Z 11005KT 10SM CLR 02/M08 A3021 RMK AO2 SLP241 T00221078 55008KFCM2018-12-17T20:53:00Z44.83-93.472.2-7.8110510.030.2096461024.1TRUEVFR-0.8METAR280.02018-12-17 21:05:44b›‹ŠV)'5    3KFDR 172053Z AUTO 07003KT 10SM CLR 11/03 A3017 RMK AO2 SLP218 T01110028 58024KFDR2018-12-17T20:53:00Z34.35-98.9811.12.870310.030.1712591021.8TRUETRUEVFR-2.4METAR386.02018-12-17 21:05:44 m<Zmg›‹Š])-5    3KMAE 172053Z AUTO 33008KT 10SM BKN021 16/09 A3021 RMK AO2 SLP227 T01560089 56010KMAE2018-12-17T20:53:00Z36.98-120.1215.68.9330810.030.2096461022.7TRUETRUEMVFR-1.0METAR77.02018-12-17 21:05:44\›‹Š\)#5    3KMAF 172053Z 06006KT 10SM OVC100 13/03 A3016 RMK AO2 SLP195 T01280028 56032KMAF2018-12-17T20:53:00Z31.95-102.212.82.860610.030.1594491019.5TRUEVFR-3.2METAR874.02018-12-17 21:05:44\›‹Š[)#5    3KEYW 172053Z 33006KT 10SM SCT025 22/17 A3010 RMK AO2 SLP191 T02220167 55006KEYW2018-12-17T20:53:00Z24.55-81.7522.216.7330610.030.1003931019.1TRUEVFR-0.6METAR5.02018-12-17 21:05:44\›‹ŠZ)5    3KFAR 172053Z 11011KT 10SM CLR 01/M07 A3010 RMK AO2 SLP208 T00061072 56029KFAR2018-12-17T20:53:00Z46.93-96.820.6-7.21101110.030.1003931020.8TRUEVFR-2.9METAR277.02018-12-17 21:05:44 N "8Nd›‹Ša))5    3KLWD 172053Z AUTO 20007KT 10SM CLR 10/M04 A3020 RMK AO2 SLP235 T01001039 56021KLWD2018-12-17T20:53:00Z40.63-93.910.0-3.9200710.030.2007871023.5TRUETRUEVFR-2.1METAR346.02018-12-17 21:05:44d›‹Š`))5    3KLWV 172053Z AUTO 29009KT 10SM CLR 10/M03 A3019 RMK AO2 SLP225 T01001033 56005KLWV2018-12-17T20:53:00Z38.77-87.610.0-3.3290910.030.1889761022.5TRUETRUEVFR-0.5METAR131.02018-12-17 21:05:44e›‹Š_))5    3KLXT 172053Z AUTO 16004KT 10SM CLR 12/M06 A3022 RMK AO2 SLP237 T01221056 56028KLXT2018-12-17T20:53:00Z38.97-94.3712.2-5.6160410.030.2214571023.7TRUETRUEVFR-2.8METAR306.02018-12-17 21:05:44m›‹Š^)/5   3KLXV 172053Z AUTO 31012G20KT 10SM CLR 02/M11 A3017 RMK AO2 SLP202 T00221106 56016KLXV2018-12-17T20:53:00Z39.23-106.322.2-10.6310122010.030.1712591020.2TRUETRUEVFR-1.6METAR3028.02018-12-17 21:05:44 52I5‚›‹Še)c5      3KFLD 172053Z AUTO 29006KT 10SM CLR 02/M07 A3020 RMK AO2 UPE11B31E33 SLP236 P0000 60000 T00171072 53004 TSNOKFLD2018-12-17T20:53:00Z43.77-88.481.7-7.2290610.030.2007871023.6TRUETRUETRUEVFR0.40.0050.005METAR240.02018-12-17 21:05:44c›‹Šd)15    3KFLL 172053Z 30008KT 10SM FEW040 BKN250 21/14 A3005 RMK AO2 SLP176 T02110139 56009KFLL2018-12-17T20:53:00Z26.07-80.1521.113.9300810.030.0501981017.6TRUEVFR-0.9METAR3.02018-12-17 21:05:44Z›‹Šc)5    3KLUK 172053Z 35005KT 10SM CLR 09/M03 A3012 RMK AO2 SLP203 T00891028 55002KLUK2018-12-17T20:53:00Z39.1-84.428.9-2.8350510.030.1210631020.3TRUEVFR-0.2METAR155.02018-12-17 21:05:44h›‹Šb))5    3KLVS 172053Z AUTO 21015KT 10SM CLR 11/M04 A3014 RMK AO2 SLP172 T01061044 56026KLVS2018-12-17T20:53:00Z35.65-105.1310.6-4.42101510.030.1387791017.2TRUETRUEVFR-2.6METAR2091.02018-12-17 21:05:44 c3Jca›‹Ši)'5    3KFXE 172053Z 31008KT 10SM SCT045 21/13 A3006 RMK AO2 SLP182 T02060128 56008 $KFXE2018-12-17T20:53:00Z26.2-80.1820.612.8310810.030.0590551018.2TRUETRUEVFR-0.8METAR6.02018-12-17 21:05:44c›‹Šh)'5    3KFLO 172053Z AUTO 28012KT 10SM CLR 18/05 A2999 RMK AO2 SLP153 T01780050 55011KFLO2018-12-17T20:53:00Z34.18-79.7317.85.02801210.029.9911421015.3TRUETRUEVFR-1.1METAR44.02018-12-17 21:05:44[›‹Šg)5    3KFMN 172053Z VRB03KT 10SM CLR 09/M07 A3016 RMK AO2 SLP217 T00941072 56024KFMN2018-12-17T20:53:00Z36.75-108.239.4-7.20310.030.1594491021.7TRUEVFR-2.4METAR1685.02018-12-17 21:05:44f›‹Šf)15    3KLMT 172053Z 17010KT 10SM SCT007 BKN055 05/02 A3007 RMK AO2 SLP183 T00500022 58014KLMT2018-12-17T20:53:00Z42.15-121.725.02.21701010.030.0708661018.3TRUEVFR-1.4METAR1246.02018-12-17 21:05:44 ) ÷)_›‹Šm)#5   3KFTY 172053Z 33008G16KT 10SM CLR 16/00 A3010 RMK AO2 SLP192 T01610000 56013KFTY2018-12-17T20:53:00Z33.78-84.5216.10.033081610.030.1003931019.2TRUEVFR-1.3METAR263.02018-12-17 21:05:44c›‹Šl)15    3KFUL 172053Z 00000KT 10SM SCT027 BKN034 18/11 A3014 RMK AO2 SLP203 T01830111 58029KFUL2018-12-17T20:53:00Z33.87-117.9818.311.10010.030.1387791020.3TRUEVFR-2.9METAR35.02018-12-17 21:05:44‚ ›‹Šk)a5       3KFVE 172053Z AUTO 02006KT 1 1/2SM -SN OVC019 M02/M04 A2945 RMK AO2 SLP983 P0001 60002 T10171044 58012 TSNOKFVE2018-12-17T20:53:00Z47.28-68.3-1.7-4.42061.529.450787998.3TRUETRUETRUE-SNIFR-1.20.010.02METAR301.02018-12-17 21:05:44q›‹Šj)E5   3KFWN 172053Z AUTO 31007G18KT 250V010 10SM OVC043 05/M03 A2971 RMK AO2 SLP063 T00501033 53005KFWN2018-12-17T20:53:00Z41.2-74.635.0-3.331071810.029.710631006.3TRUETRUEVFR0.5METAR133.02018-12-17 21:05:44 a*Jac›‹Šq)'5    3KFST 172053Z AUTO 07007KT 10SM CLR 17/00 A3013 RMK AO2 SLP179 T01670000 56031KFST2018-12-17T20:53:00Z30.92-102.9216.70.070710.030.1299211017.9TRUETRUEVFR-3.1METAR918.02018-12-17 21:05:44Z›‹Šp)5    3KFTW 172053Z 23003KT 10SM CLR 11/04 A3020 RMK AO2 SLP226 T01060039 55011KFTW2018-12-17T20:53:00Z32.83-97.3710.63.9230310.030.2007871022.6TRUEVFR-1.1METAR214.02018-12-17 21:05:44l›‹Šo)35     3KMSL 172053Z AUTO 26004KT 10SM CLR 15/05 A3018 RMK AO2 SLP220 T01500050 56018 PWINOKMSL2018-12-17T20:53:00Z34.75-87.615.05.0260410.030.1801191022.0TRUETRUETRUEVFR-1.8METAR164.02018-12-17 21:05:44^›‹Šn)%5   3KMRB 172053Z 31015G20KT 10SM CLR 09/M04 A2985 RMK AO2 SLP110 T00941039 53015KMRB2018-12-17T20:53:00Z39.4-77.989.4-3.9310152010.029.849411011.0TRUEVFR1.5METAR164.02018-12-17 21:05:44  &HC›‹Šu(}5    3KFOZ 172053Z AUTO 00000KT 10SM CLR M02/M12 A3018 RMK AO2KFOZ2018-12-17T20:53:00Z47.77-93.65-2.0-12.00010.030.180119TRUETRUEVFRMETAR411.02018-12-17 21:05:44X›‹Št)5    3KFPR 172053Z 33004KT 10SM CLR 19/09 A3008 RMK AO2 SLP186 T01890094 55005KFPR2018-12-17T20:53:00Z27.5-80.3818.99.4330410.030.0797251018.6TRUEVFR-0.5METAR13.02018-12-17 21:05:44t›‹Šs)O5   3KFRG 172053Z 31017G26KT 10SM OVC055 06/M03 A2968 RMK AO2 PK WND 31034/2036 SLP051 T00611033 53007KFRG2018-12-17T20:53:00Z40.73-73.426.1-3.3310172610.029.6811031005.1TRUEVFR0.7METAR21.02018-12-17 21:05:44Z›‹Šr)5    3KFSM 172053Z 12004KT 10SM CLR 14/03 A3020 RMK AO2 SLP225 T01440028 56025KFSM2018-12-17T20:53:00Z35.33-94.3714.42.8120410.030.2007871022.5TRUEVFR-2.5METAR140.02018-12-17 21:05:44 Q )<Qe›‹Šy))5    3KFNB 172053Z AUTO 16009KT 10SM CLR 12/M02 A3018 RMK AO2 SLP227 T01171017 56028KFNB2018-12-17T20:53:00Z40.07-95.5811.7-1.7160910.030.1801191022.7TRUETRUEVFR-2.8METAR300.02018-12-17 21:05:44g›‹Šx)/5    3KFNT 172053Z AUTO 31007KT 10SM BKN028 01/M04 A3010 RMK AO2 SLP201 T00111039 53016KFNT2018-12-17T20:53:00Z42.97-83.751.1-3.9310710.030.1003931020.1TRUETRUEMVFR1.6METAR233.02018-12-17 21:05:44\›‹Šw)5    3KFOE 172053Z 19007KT 10SM CLR 13/M03 A3020 RMK AO2 SLP232 T01331033 56026KFOE2018-12-17T20:53:00Z38.93-95.6513.3-3.3190710.030.2007871023.2TRUEVFR-2.6METAR320.02018-12-17 21:05:44o›‹Šv)?5     3KFOK 172053Z 28014KT 10SM FEW044 BKN060 07/M01 A2965 RMK AO2 SLP041 60000 T00671006 53001KFOK2018-12-17T20:53:00Z40.85-72.626.7-0.62801410.029.6486231004.1TRUEVFR0.10.005METAR33.02018-12-17 21:05:44 âÞóZ›‹Š})5    3KFYV 172053Z 00000KT 10SM CLR 15/M02 A3019 RMK AO2 SLP225 T01501022 56027KFYV2018-12-17T20:53:00Z36.02-94.1715.0-2.20010.030.1889761022.5TRUEVFR-2.7METAR379.02018-12-17 21:05:44e›‹Š|)+5    3KMOD 172053Z COR 32008KT 10SM FEW017 15/09 A3021 RMK AO2 SLP229 T01500094 56008KMOD2018-12-17T20:53:00Z37.62-120.9515.09.4320810.030.2096461022.9TRUETRUEVFR-0.8METAR29.02018-12-17 21:05:44~›‹Š{)Y5   3KMPO 172053Z AUTO 29018G30KT 10SM OVC029 00/M03 A2969 RMK AO2 PK WND 30030/2048 SLP073 T00001033 51010KMPO2018-12-17T20:53:00Z41.13-75.380.0-3.3290183010.029.689961007.3TRUETRUEMVFR1.0METAR577.02018-12-17 21:05:44‚›‹Šz){5      3KMSS 172053Z AUTO 28010KT 8SM -SN SCT019 BKN027 OVC044 01/M01 A2971 RMK AO2 SNE31B51 SLP064 P0000 60000 T00111006 53016KMSS2018-12-17T20:53:00Z44.93-74.851.1-0.6280108.029.710631006.4TRUETRUE-SNMVFR1.60.0050.005METAR66.02018-12-17 21:05:44 ïùï‚›‹‹)i5         3PAKW 172053Z AUTO 00000KT 10SM -RA BKN035 OVC043 A2914 RMK RAB1954 SLPNO P0001 60001 58024 TSNO $ VIA AUTODIALPAKW2018-12-17T20:53:00Z55.58-133.070010.029.140747TRUETRUETRUE-RAVFR-2.40.010.01METAR15.02018-12-17 21:05:44‚›‹Š)‚ 5       3PAGY 172053Z AUTO 00000KT 7SM UP OVC023 01/00 A2922 RMK UPB02E12B53RAB12E19 SLP895 P0000 60009 T00060000 51009 TSNO VIA AUTODIALPAGY2018-12-17T20:53:00Z59.47-135.30.60.0007.029.220472989.5TRUETRUEUPMVFR0.90.0050.09METAR5.02018-12-17 21:05:44a›‹Š~)35   3PAOM 172053Z 27005KT 10SM CLR M19/M23 A2936 RMK SLP944 T11941233 53014 VIA AUTODIALPAOM2018-12-17T20:53:00Z64.5-165.43-19.4-23.3270510.029.359253994.4VFR1.4METAR11.02018-12-17 21:05:44 m=Zmg›‹‹)?5    3KMSY 172053Z VRB03KT 10SM FEW030 SCT150 BKN250 16/10 A3022 RMK AO2 SLP235 T01610100 56023KMSY2018-12-17T20:53:00Z30.0-90.2516.110.00310.030.2214571023.5TRUEVFR-2.3METAR5.02018-12-17 21:05:44]›‹‹)%5    3KMSN 172053Z 32007KT 10SM FEW250 04/M08 A3022 RMK AO2 SLP242 T00391083 53004KMSN2018-12-17T20:53:00Z43.13-89.353.9-8.3320710.030.2214571024.2TRUEVFR0.4METAR261.02018-12-17 21:05:44\›‹‹)#5    3KMSO 172053Z 17003KT 9SM OVC110 01/M02 A2997 RMK AO2 SLP177 T00111022 56012KMSO2018-12-17T20:53:00Z46.92-114.11.1-2.217039.029.9704721017.7TRUEVFR-1.2METAR975.02018-12-17 21:05:44[›‹‹)5    3KMSP 172053Z 12005KT 10SM CLR 02/M07 A3023 RMK AO2 SLP246 T00221072 55009KMSP2018-12-17T20:53:00Z44.88-93.232.2-7.2120510.030.2303141024.6TRUEVFR-0.9METAR265.02018-12-17 21:05:44 D+-Dc›‹‹)75   3PABR 172053Z 33007KT 8SM OVC011 M20/M22 A2942 RMK SLP966 T12001222 50002 VIA AUTODIALPABR2018-12-17T20:53:00Z71.28-156.77-20.0-22.233078.029.421259996.6MVFR0.2METAR7.02018-12-17 21:05:44x›‹‹)M5     3KMVY 172053Z 29008KT 10SM OVC044 04/01 A2955 RMK AO2 RAB05E15 SLP007 P0000 60000 T00440006 53003KMVY2018-12-17T20:53:00Z41.4-70.624.40.6290810.029.5511821000.7TRUEVFR0.30.0050.005METAR16.02018-12-17 21:05:44g›‹‹)/5    3KMTJ 172053Z AUTO 33006KT 10SM BKN100 04/M07 A3019 RMK AO2 SLP226 T00391067 56021KMTJ2018-12-17T20:53:00Z38.5-107.93.9-6.7330610.030.1889761022.6TRUETRUEVFR-2.1METAR1750.02018-12-17 21:05:44b›‹‹)'5    3KMTH 172053Z AUTO 32007KT 10SM CLR 22/15 A3008 RMK AO2 SLP187 T02220150 56008KMTH2018-12-17T20:53:00Z24.73-81.0522.215.0320710.030.0797251018.7TRUETRUEVFR-0.8METAR2.02018-12-17 21:05:44 `4G`a›‹‹ )'5    3KPOF 172053Z AUTO 07004KT 10SM CLR 13/01 A3021 RMK AO2 SLP233 T01330006 56016KPOF2018-12-17T20:53:00Z36.77-90.3213.30.670410.030.2096461023.3TRUETRUEVFR-1.6METAR99.02018-12-17 21:05:44g›‹‹ )-5   3KRWI 172053Z AUTO 29010G15KT 10SM CLR 16/01 A2993 RMK AO2 SLP135 T01560006 55003KRWI2018-12-17T20:53:00Z35.85-77.915.60.6290101510.029.9291341013.5TRUETRUEVFR-0.3METAR47.02018-12-17 21:05:44Y›‹‹ )5    3KRWL 172053Z AUTO 10SM CLR 05/M05 A3010 RMK AO2 SLP180 T00501050 56018KRWL2018-12-17T20:53:00Z41.78-107.25.0-5.010.030.1003931018.0TRUETRUEVFR-1.8METAR2077.02018-12-17 21:05:44g›‹‹ )/5    3KRXE 172053Z AUTO 08003KT 10SM OVC070 02/M05 A3006 RMK AO2 SLP214 T00171050 58010KRXE2018-12-17T20:53:00Z43.83-111.81.7-5.080310.030.0590551021.4TRUETRUEVFR-1.0METAR1480.02018-12-17 21:05:44 ]1H]e›‹‹))5    3KSHR 172053Z AUTO 00000KT 10SM CLR 14/M09 A2988 RMK AO2 SLP127 T01441089 56021KSHR2018-12-17T20:53:00Z44.77-106.9714.4-8.90010.029.8789371012.7TRUETRUEVFR-2.1METAR1202.02018-12-17 21:05:44c›‹‹)'5    3KSIY 172053Z AUTO 27003KT 10SM CLR 07/04 A3010 RMK AO2 SLP211 T00720039 58013KSIY2018-12-17T20:53:00Z41.77-122.477.23.9270310.030.1003931021.1TRUETRUEVFR-1.3METAR807.02018-12-17 21:05:44d›‹‹))5    3KPNC 172053Z AUTO 18004KT 10SM CLR 13/M01 A3020 RMK AO2 SLP230 T01331011 56026KPNC2018-12-17T20:53:00Z36.73-97.113.3-1.1180410.030.2007871023.0TRUETRUEVFR-2.6METAR308.02018-12-17 21:05:44_›‹‹ )!5    3KPNS 172053Z 33007KT 10SM CLR 18/08 A3016 RMK AO2 SLP216 T01830078 56015 $KPNS2018-12-17T20:53:00Z30.48-87.1818.37.8330710.030.1594491021.6TRUETRUEVFR-1.5METAR38.02018-12-17 21:05:44 f(FfZ›‹‹)5    3KSFB 172053Z 31006KT 10SM CLR 19/11 A3008 RMK AO2 SLP184 T01890106 56013KSFB2018-12-17T20:53:00Z28.77-81.2218.910.6310610.030.0797251018.4TRUEVFR-1.3METAR17.02018-12-17 21:05:44\›‹‹)#5    3KSFF 172053Z 24007KT 10SM SCT021 09/03 A2998 RMK AO2 SLP160 T00890033 58006KSFF2018-12-17T20:53:00Z47.68-117.328.93.3240710.029.979331016.0TRUEVFR-0.6METAR609.02018-12-17 21:05:44X›‹‹)5    3KSGR 172053Z 18005KT 10SM CLR 22/06 A3018 RMK AO2 SLP220 T02170061 56024KSGR2018-12-17T20:53:00Z29.62-95.6521.76.1180510.030.1801191022.0TRUEVFR-2.4METAR2.02018-12-17 21:05:44t›‹‹)I5    3KSHN 172053Z AUTO 15007KT 10SM FEW034 BKN043 BKN055 10/06 A2988 RMK AO2 SLP121 T01000056 58016KSHN2018-12-17T20:53:00Z47.23-123.1310.05.6150710.029.8789371012.1TRUETRUEVFR-1.6METAR82.02018-12-17 21:05:44 9ý "9c›‹‹))5    3KSBM 172053Z AUTO 30008KT 10SM CLR 01/M07 A3019 RMK AO2 SLP231 T00111072 53006KSBM2018-12-17T20:53:00Z43.78-87.851.1-7.2300810.030.1889761023.1TRUETRUEVFR0.6METAR232.02018-12-17 21:05:44c›‹‹)15    3KSDM 172053Z VRB04KT 10SM FEW025 SCT030 18/12 A3017 RMK AO2 SLP214 T01780117 58016KSDM2018-12-17T20:53:00Z32.58-117.017.811.70410.030.1712591021.4TRUEVFR-1.6METAR159.02018-12-17 21:05:44l›‹‹)?5    3KSEA 172053Z 19007KT 10SM SCT041 SCT055 OVC240 12/05 A2990 RMK AO2 SLP133 T01170050 58015KSEA2018-12-17T20:53:00Z47.45-122.3211.75.0190710.029.8996071013.3TRUEVFR-1.5METAR136.02018-12-17 21:05:44}›‹‹)Y5   3KSEG 172053Z AUTO 31017G29KT 10SM OVC049 05/M04 A2985 RMK AO2 PK WND 33029/2052 SLP112 T00501044 53013KSEG2018-12-17T20:53:00Z40.82-76.875.0-4.4310172910.029.849411011.2TRUETRUEVFR1.3METAR134.02018-12-17 21:05:44 W *;W^›‹‹)#5    3KMYF 172053Z 00000KT 10SM BKN028 18/11 A3017 RMK AO2 SLP213 T01780106 58018KMYF2018-12-17T20:53:00Z32.82-117.1317.810.60010.030.1712591021.3TRUEMVFR-1.8METAR136.02018-12-17 21:05:44i›‹‹)+5    3KMWL 172053Z AUTO 30004KT 10SM CLR 11/03 A3019 RMK AO2 SLP223 T01110028 56012 $KMWL2018-12-17T20:53:00Z32.78-98.0711.12.8300410.030.1889761022.3TRUETRUETRUEVFR-1.2METAR284.02018-12-17 21:05:44[›‹‹)#5    3KSAV 172053Z 25008KT 10SM FEW240 17/08 A3004 RMK AO2 SLP173 T01670083 56018KSAV2018-12-17T20:53:00Z32.12-81.216.78.3250810.030.0413381017.3TRUEVFR-1.8METAR14.02018-12-17 21:05:44o›‹‹)=5     3KSBA 172053Z 15007KT 10SM SCT015 BKN025 16/13 A3015 RMK AO2 SLP209 60000 T01610133 57020KSBA2018-12-17T20:53:00Z34.43-119.8516.113.3150710.030.150591020.9TRUEMVFR-2.00.005METAR3.02018-12-17 21:05:44 h9GhY›‹‹ )#5    3KODO 172053Z AUTO 08006KT OVC100 12/02 A3016 RMK AO2 SLP196 T01220017 56035KODO2018-12-17T20:53:00Z31.92-102.412.21.780630.1594491019.6TRUETRUE-3.5METAR902.02018-12-17 21:05:44l›‹‹)?5    3KOAK 172053Z 20005KT 10SM FEW006 FEW020 BKN200 14/11 A3021 RMK AO2 SLP231 T01440106 58005KOAK2018-12-17T20:53:00Z37.72-122.2314.410.6200510.030.2096461023.1TRUEVFR-0.5METAR26.02018-12-17 21:05:44Y›‹‹)5    3KNEW 172053Z 32004KT 10SM CLR 13/10 A3022 RMK AO2 SLP226 T01330100 56023KNEW2018-12-17T20:53:00Z30.05-90.0313.310.0320410.030.2214571022.6TRUEVFR-2.3METAR3.02018-12-17 21:05:44b›‹‹)'5    3KMYV 172053Z AUTO 19007KT 10SM CLR 15/09 A3021 RMK AO2 SLP234 T01500089 58001KMYV2018-12-17T20:53:00Z39.1-121.5715.08.9190710.030.2096461023.4TRUETRUEVFR-0.1METAR21.02018-12-17 21:05:44 j4Rjb›‹‹$))5    3KOLF 172053Z AUTO 00000KT 10SM CLR 03/M02 A2984 RMK AO2 SLP129 T00331022 56018KOLF2018-12-17T20:53:00Z48.1-105.583.3-2.20010.029.8405511012.9TRUETRUEVFR-1.8METAR604.02018-12-17 21:05:44\›‹‹#)5    3KOJC 172053Z 16005KT 10SM CLR 12/M05 A3021 RMK AO2 SLP234 T01221050 56025KOJC2018-12-17T20:53:00Z38.85-94.7312.2-5.0160510.030.2096461023.4TRUEVFR-2.5METAR326.02018-12-17 21:05:44\›‹‹")!5    3KOGB 172053Z AUTO 23009KT CLR 18/06 A3001 RMK AO2 SLP161 T01780056 55017 $KOGB2018-12-17T20:53:00Z33.47-80.8517.85.6230930.0088581016.1TRUETRUETRUE-1.7METAR59.02018-12-17 21:05:44d›‹‹!)'5    3KODX 172053Z AUTO 20011KT 10SM CLR 12/01 A3001 RMK AO2 SLP178 T01220006 56025KODX2018-12-17T20:53:00Z41.62-98.9512.20.62001110.030.0088581017.8TRUETRUEVFR-2.5METAR631.02018-12-17 21:05:44 M-MZ›‹‹()#5    3TISX 172053Z 12006KT 10SM SCT045 27/22 A3004 RMK AO2 SLP169 T02720217 53000TISX2018-12-17T20:53:00Z17.7-64.827.221.7120610.030.0413381016.9TRUEVFR0.0METAR19.02018-12-17 21:05:44l›‹‹')?5    3KONT 172053Z 18005KT 10SM FEW030 FEW060 BKN090 17/09 A3014 RMK AO2 SLP204 T01720094 58026KONT2018-12-17T20:53:00Z34.05-117.5817.29.4180510.030.1387791020.4TRUEVFR-2.6METAR274.02018-12-17 21:05:44m›‹‹&);5    3KONO 172053Z AUTO 21003KT 10SM SCT009 OVC070 06/03 A3011 RMK AO2 SLP209 T00610033 58003KONO2018-12-17T20:53:00Z44.02-117.026.13.3210310.030.1092531020.9TRUETRUEVFR-0.3METAR667.02018-12-17 21:05:44h›‹‹%)-5    3KOMK 172053Z AUTO 21010KT 10SM OVC015 04/03 A2996 RMK AO2 SLP155 T00440033 58010KOMK2018-12-17T20:53:00Z48.47-119.524.43.32101010.029.9586621015.5TRUETRUEMVFR-1.0METAR395.02018-12-17 21:05:44 17‚›‹‹,)‚ 5      3PANC 172053Z 00000KT 5SM BR BKN007 OVC012 M02/M04 A2897 RMK AO2 FZDZE47SNB1958E12 SLP811 P0000 60001 I1000 I3002 T10171039 51023PANC2018-12-17T20:53:00Z61.17-150.0-1.7-3.9005.028.969488981.1TRUEBRIFR2.30.0050.01METAR38.02018-12-17 21:05:44t›‹‹+);5     3PANN 172053Z AUTO 10004KT 10SM OVC025 M23/M26 A2909 RMK AO2 SLP868 T12281256 51033 TSNOPANN2018-12-17T20:53:00Z64.55-149.08-22.8-25.6100410.029.090551986.8TRUETRUETRUEMVFR3.3METAR110.02018-12-17 21:05:44f›‹‹*)55    3PAOR 172053Z 00000KT 10SM SCT160 BKN210 M22/M24 A2899 RMK AO2 SLP886 T12171244 51013PAOR2018-12-17T20:53:00Z62.97-141.93-21.7-24.40010.028.990158988.6TRUEVFR1.3METAR523.02018-12-17 21:05:44]›‹‹))!5    3PAOT 172053Z 34013KT 10SM CLR M21/M24 A2922 RMK AO2 SLP896 T12061244 53001PAOT2018-12-17T20:53:00Z66.87-162.58-20.6-24.43401310.029.220472989.6TRUEVFR0.1METAR3.02018-12-17 21:05:44 áéôႠ›‹‹/)y5     3PALH 172053Z 00000KT 2SM BKN012 OVC020 M02/M04 A2898 RMK AO2 SFC VIS 10 SNE06 SLP815 P0000 60001 I3000 T10221039 51022PALH2018-12-17T20:53:00Z61.18-149.97-2.2-3.9002.028.981298981.5TRUEIFR2.20.0050.01METAR22.02018-12-17 21:05:44o›‹‹.)35     3PAMC 172053Z AUTO 10SM CLR M29/M32 A2917 RMK AO2 SLP893 T12941322 51027 FZRANO TSNOPAMC2018-12-17T20:53:00Z62.97-155.62-29.4-32.210.029.170275989.3TRUETRUETRUETRUEVFR2.7METAR103.02018-12-17 21:05:44‚›‹‹-)k5      3PAMR 172053Z 29003KT 1 3/4SM FZDZ BKN005 M02/M04 A2897 RMK AO2 SLP812 P0000 60002 I1000 I3000 T10221039 51022 $PAMR2018-12-17T20:53:00Z61.22-149.85-2.2-3.929031.7528.969488981.2TRUETRUEFZDZIFR2.20.0050.02METAR41.02018-12-17 21:05:44 õèÛõ`›‹‹2)'5    3PAHO 172053Z 25011KT 10SM OVC019 M05/M08 A2900 RMK AO2 SLP820 T10501078 51022PAHO2018-12-17T20:53:00Z59.63-151.47-5.0-7.82501110.028.999016982.0TRUEMVFR2.2METAR28.02018-12-17 21:05:44‚›‹‹1)s5     3PAJN 172053Z 11011KT 10SM FEW009 SCT031 BKN090 05/04 A2921 RMK AO2 SLP891 PRESENT WX VCSH E-S 60000 T00500039 51009PAJN2018-12-17T20:53:00Z58.35-134.585.03.91101110.029.208662989.1TRUEVFR0.90.005METAR5.02018-12-17 21:05:44‚›‹‹0)_5       3PAKV 172053Z AUTO 00000KT 3SM -SN BR OVC035 M19/M21 A2919 RMK AO2 SLP891 P0000 60000 T11891211 53012 TSNOPAKV2018-12-17T20:53:00Z64.33-158.75-18.9-21.1003.029.190945989.1TRUETRUETRUE-SN BRMVFR1.20.0050.005METAR61.02018-12-17 21:05:44 &ÿ &s›‹‹6)A5     3PAEG 172053Z AUTO 00000KT 10SM CLR M09/M12 A2895 RMK AO2 SLP820 I3000 T10941117 52010 TSNOPAEG2018-12-17T20:53:00Z64.78-141.15-9.4-11.70010.028.948818982.0TRUETRUETRUEVFR1.0METAR268.02018-12-17 21:05:44f›‹‹5)55    3PAEN 172053Z 22007KT 10SM SCT014 OVC023 M04/M06 A2899 RMK AO2 SLP818 T10391056 51025PAEN2018-12-17T20:53:00Z60.57-151.25-3.9-5.6220710.028.990158981.8TRUEMVFR2.5METAR27.02018-12-17 21:05:44n›‹‹4)I5    3PAFA 172053Z 00000KT 7SM SCT012 BKN034 BKN120 M23/M26 A2912 RMK AO2 SLP877 T12281261 53032 PNOPAFA2018-12-17T20:53:00Z64.8-147.85-22.8-26.1007.029.120079987.7TRUEVFR3.2METAR132.02018-12-17 21:05:44{›‹‹3)G5      3PAGK 172053Z AUTO 00000KT 10SM OVC009 M12/M14 A2894 RMK AO2 SLP848 60000 T11221139 51009 TSNOPAGK2018-12-17T20:53:00Z62.15-145.45-12.2-13.90010.028.93996984.8TRUETRUETRUEIFR0.90.005METAR481.02018-12-17 21:05:44 ß ߂+›‹‹9)‚-5     3PACD 172053Z 35019KT 10SM FEW038 OVC050 M06/M11 A2940 RMK AO2 PK WND 35028/2032 UPB1959E03B23E30SNE1959B12E23 SLP958 P0000 60000 T10561111 51015PACD2018-12-17T20:53:00Z55.2-162.72-5.6-11.13501910.029.40059995.8TRUEVFR1.50.0050.005METAR30.02018-12-17 21:05:44u›‹‹8)E5      3PACV 172053Z 09004KT 4SM RA BR OVC016 03/02 A2898 RMK AO2 SLP812 P0008 60010 T00330017 51012PACV2018-12-17T20:53:00Z60.5-145.473.31.79044.028.981298981.2TRUERA BRMVFR1.20.080.1METAR12.02018-12-17 21:05:44o›‹‹7)?5     3PADE 172053Z AUTO 28016KT 9SM CLR M19/M21 A2925 RMK AO2 SLP905 I3001 T11941211 52005 TSNOPADE2018-12-17T20:53:00Z66.07-162.77-19.4-21.1280169.029.25990.5TRUETRUETRUEVFR0.5METAR5.02018-12-17 21:05:44 Nô0N\›‹‹=)#5    3PHTO 172053Z 00000KT 10SM OVC055 25/17 A3016 RMK AO2 SLP212 T02500172 58006PHTO2018-12-17T20:53:00Z19.72-155.0525.017.20010.030.1594491021.2TRUEVFR-0.6METAR12.02018-12-17 21:05:44\›‹‹<)#5    3PHKO 172053Z VRB05KT 10SM SCT070 27/16 A3010 RMK AO2 SLP195 T02670156 58005PHKO2018-12-17T20:53:00Z19.73-156.0526.715.60510.030.1003931019.5TRUEVFR-0.5METAR27.02018-12-17 21:05:44\›‹‹;)#5    3PHLI 172053Z 04010KT 10SM BKN040 26/08 A3020 RMK AO2 SLP224 T02560078 50001PHLI2018-12-17T20:53:00Z21.97-159.3325.67.8401010.030.2007871022.4TRUEVFR0.1METAR45.02018-12-17 21:05:44‚›‹‹:)W5      3PABT 172053Z VRB03KT 3/4SM -SN BR VV012 M13/M16 A2900 RMK AO2 SLP841 60004 931015 T11331156 53014 PNOPABT2018-12-17T20:53:00Z66.92-151.52-13.3-15.6030.7528.999016984.1TRUE-SN BRLIFR1.40.041200METAR195.02018-12-17 21:05:44 Ùîق›‹‹@)]5      3PAWI 172053Z AUTO 32009KT 10SM OVC015 M19/M23 A2945 RMK AO2 SNB08E26 SLP974 P0000 60000 T11941228 TSNO $PAWI2018-12-17T20:53:00Z70.62-159.85-19.4-22.8320910.029.450787997.4TRUETRUETRUETRUEMVFR0.0050.005METAR27.02018-12-17 21:05:44‚#›‹‹?)‚ 5       3PAYA 172053Z AUTO 10007KT 5SM -RA BR FEW009 SCT015 OVC025 05/04 A2906 RMK AO2 RAE03B22 SLP842 P0006 60018 T00500039 52006 TSNOPAYA2018-12-17T20:53:00Z59.52-139.675.03.910075.029.061024984.2TRUETRUETRUE-RA BRMVFR0.60.060.18METAR11.02018-12-17 21:05:44c›‹‹>))5   3PHJR 172053Z 11007G16KT 10SM OVC044 27/16 A3017 RMK AO2 SLP224 T02670156 58003PHJR2018-12-17T20:53:00Z21.32-158.0726.715.611071610.030.1712591022.4TRUEVFR-0.3METAR15.02018-12-17 21:05:44 ± DZ‚›‹‹C)]5       3PATO 172053Z AUTO 00000KT 1 1/4SM -SN BR M04/M05 A2898 RMK AO2 SLP814 P0000 60000 T10391050 51023 TSNO $PATO2018-12-17T20:53:00Z60.78-148.85-3.9-5.0001.2528.981298981.4TRUETRUETRUETRUE-SN BR2.30.0050.005METAR31.02018-12-17 21:05:44‚@›‹‹B)‚+5       3PAVL 172053Z AUTO 01039KT 1/4SM -SN FZFG VV002 M21/M23 A2930 RMK AO2 PK WND 01047/2033 UPB48E49SNE48B49 SLP922 P0000 60000 T12111233 58004 TSNOPAVL2018-12-17T20:53:00Z67.73-164.55-21.1-23.310390.2529.300198992.2TRUETRUETRUE-SN FZFGLIFR-0.40.0050.005200METAR3.02018-12-17 21:05:44m›‹‹A)55     3PAWD 172053Z AUTO 35007KT 10SM CLR M03/M05 A2895 RMK AO2 SLP805 T10281050 51022 TSNOPAWD2018-12-17T20:53:00Z60.12-149.42-2.8-5.0350710.028.948818980.5TRUETRUETRUEVFR2.2METAR23.02018-12-17 21:05:44 ³ïü³‚C›‹‹F)‚75      3PASN 172053Z AUTO 35019G29KT 5SM UP FEW032 SCT048 BKN060 M06/M10 A2963 RMK AO2 PK WND 35034/2003 UPB19SNE19 SLP036 P0000 60000 T10561100 51023 TSNO $PASN2018-12-17T20:53:00Z57.15-170.22-5.6-10.035019295.029.6309051003.6TRUETRUETRUETRUEUPMVFR2.30.0050.005METAR29.02018-12-17 21:05:44m›‹‹E);5     3PASO 172053Z AUTO VRB04KT 10SM OVC019 M06/M09 A2901 RMK AO2 SLP824 T10611094 53021 TSNOPASO2018-12-17T20:53:00Z59.45-151.7-6.1-9.40410.029.010826982.4TRUETRUETRUEMVFR2.1METAR9.02018-12-17 21:05:44‚ ›‹‹D)o5      3PATK 172053Z 03003KT 3SM BR SCT009 BKN019 OVC050 M04/M06 A2898 RMK AO2 SLP820 60000 I1000 I3001 T10391056 51017 $PATK2018-12-17T20:53:00Z62.3-150.1-3.9-5.63033.028.981298982.0TRUETRUEBRMVFR1.70.005METAR109.02018-12-17 21:05:44 >_Z›‹‹J)!5    3KTXK 172053Z 00000KT 9SM BKN009 12/10 A3018 RMK AO2 SLP220 T01170100 56013KTXK2018-12-17T20:53:00Z33.45-93.9811.710.0009.030.1801191022.0TRUEIFR-1.3METAR111.02018-12-17 21:05:44Y›‹‹I)5    3KTYR 172053Z 22006KT 10SM CLR 13/07 A3018 RMK AO2 SLP219 T01280067 55012KTYR2018-12-17T20:53:00Z32.37-95.412.86.7220610.030.1801191021.9TRUEVFR-1.2METAR165.02018-12-17 21:05:44Z›‹‹H)5    3KTYS 172053Z 23005KT 10SM CLR 12/02 A3012 RMK AO2 SLP200 T01220022 56015KTYS2018-12-17T20:53:00Z35.82-83.9812.22.2230510.030.1210631020.0TRUEVFR-1.5METAR302.02018-12-17 21:05:44\›‹‹G)#5    3KUAO 172053Z 21005KT 10SM SCT055 12/07 A2998 RMK AO2 SLP152 T01170072 56017KUAO2018-12-17T20:53:00Z45.25-122.7711.77.2210510.029.979331015.2TRUEVFR-1.7METAR59.02018-12-17 21:05:44 f0Gf[›‹‹N)5    3KTUS 172053Z 29005KT 10SM CLR 19/03 A3013 RMK AO2 SLP176 T01940033 56029KTUS2018-12-17T20:53:00Z32.13-110.9519.43.3290510.030.1299211017.6TRUEVFR-2.9METAR776.02018-12-17 21:05:44c›‹‹M)+5   3KTVC 172053Z 32008G17KT 10SM OVC023 00/M06 A3014 RMK AO2 SLP214 T00001056 53013KTVC2018-12-17T20:53:00Z44.73-85.570.0-5.632081710.030.1387791021.4TRUEMVFR1.3METAR190.02018-12-17 21:05:44c›‹‹L)'5    3KTVL 172053Z AUTO 19012KT 9SM CLR 04/M04 A3014 RMK AO2 SLP193 T00441044 56002KTVL2018-12-17T20:53:00Z38.9-120.04.4-4.4190129.030.1387791019.3TRUETRUEVFR-0.2METAR1924.02018-12-17 21:05:44a›‹‹K)'5    3KTVR 172053Z AUTO 00000KT 10SM CLR 17/10 A3020 RMK AO2 SLP232 T01720100 56020KTVR2018-12-17T20:53:00Z32.35-91.0317.210.00010.030.2007871023.2TRUETRUEVFR-2.0METAR26.02018-12-17 21:05:44Y8”8@HPX`hpx€ˆ˜ ¨°¸ÀÈÐØàèðø (08@HPX`hpx€ˆ˜ ¨°¸ÀÈÐØàèðø (08@HPX`hpx€ˆ˜ ¨°¸ÀÈÐØàèðø ¨°¸ÀÈÐØàèðø:›‹ŠE;›‹ŠI<›‹ŠM=›‹ŠQ>›‹ŠU?›‹ŠY@›‹Š]A›‹ŠaB›‹ŠeC›‹ŠiD›‹ŠmE›‹Šq:›‹ŠE;›‹ŠI<›‹ŠM=›‹ŠQ>›‹ŠU?›‹ŠY@›‹Š]A›‹ŠaB›‹ŠeC›‹ŠiD›‹ŠmE›‹ŠqF›‹ŠuG›‹ŠyH›‹Š}I›‹‹J›‹‹K›‹‹L›‹‹ M›‹‹N›‹‹O›‹‹P›‹‹Q›‹‹ R›‹‹$S›‹‹(T›‹‹,U›‹‹/V›‹‹2W›‹‹6X›‹‹9Y›‹‹=Z›‹‹@[›‹‹C\›‹‹F]›‹‹J^›‹‹N`›‹‹Ra›‹‹Vb›‹‹Zc›‹‹^d›‹‹be›‹‹ff›‹‹jg›‹‹nh›‹‹ri›‹‹vj›‹‹zk›‹‹~l›‹Œm›‹Œn›‹Œ o›‹Œ p›‹Œq›‹Œr›‹Œs›‹Œt›‹Œ!u›‹Œ%v›‹Œ)w›‹Œ-x›‹Œ1y›‹Œ5z›‹Œ9{›‹Œ=|›‹ŒA}›‹ŒE~›‹ŒI›‹ŒM€›‹ŒR›‹ŒW‚›‹Œ\ƒ›‹Œa„›‹Œe…›‹Œj†›‹Œo‡›‹Œsˆ›‹Œw‰›‹Œ{Š›‹‹›‹Œ›‹›‹ Ž›‹›‹›‹‘›‹ ’›‹%“›‹* q @QqZ›‹‹R)#5    3KTTD 172053Z 09007KT 10SM BKN060 09/06 A2998 RMK AO2 SLP152 T00940061 58017KTTD2018-12-17T20:53:00Z45.55-122.429.46.190710.029.979331015.2TRUEVFR-1.7METAR14.02018-12-17 21:05:44i›‹‹Q)95   3KTTN 172053Z 29010G16KT 10SM SCT049 OVC055 07/M02 A2975 RMK AO2 SLP071 T00721022 53006KTTN2018-12-17T20:53:00Z40.28-74.827.2-2.2290101610.029.7490161007.1TRUEVFR0.6METAR59.02018-12-17 21:05:44Z›‹‹P)#5    3KTUL 172053Z 00000KT 10SM OVC250 15/00 A3020 RMK AO2 SLP226 T01500000 56027KTUL2018-12-17T20:53:00Z36.2-95.8815.00.00010.030.2007871022.6TRUEVFR-2.7METAR207.02018-12-17 21:05:44Z›‹‹O)5    3KTUP 172053Z 14005KT 10SM CLR 14/08 A3020 RMK AO2 SLP225 T01390078 56017KTUP2018-12-17T20:53:00Z34.27-88.7713.97.8140510.030.2007871022.5TRUEVFR-1.7METAR105.02018-12-17 21:05:44 h7Jh\›‹‹V)5    3KTOP 172053Z 17004KT 10SM CLR 14/M03 A3020 RMK AO2 SLP232 T01391033 56028KTOP2018-12-17T20:53:00Z39.07-95.6313.9-3.3170410.030.2007871023.2TRUEVFR-2.8METAR268.02018-12-17 21:05:44g›‹‹U))5    3KTOR 172053Z AUTO 29003KT 10SM CLR 14/M06 A2996 RMK AO2 SLP148 T01441056 56024KTOR2018-12-17T20:53:00Z42.07-104.1514.4-5.6290310.029.9586621014.8TRUETRUEVFR-2.4METAR1277.02018-12-17 21:05:44Z›‹‹T)5    3KTRI 172053Z 22012KT 10SM CLR 11/03 A3009 RMK AO2 SLP182 T01060028 56010KTRI2018-12-17T20:53:00Z36.48-82.410.62.82201210.030.0885831018.2TRUEVFR-1.0METAR474.02018-12-17 21:05:44c›‹‹S)'5    3KTRL 172053Z AUTO 26004KT 10SM CLR 12/04 A3020 RMK AO2 SLP225 T01170044 56011KTRL2018-12-17T20:53:00Z32.72-96.2711.74.4260410.030.2007871022.5TRUETRUEVFR-1.1METAR145.02018-12-17 21:05:44 z9XzX›‹‹Z)5    3KTKI 172053Z 00000KT 10SM CLR 12/07 A3018 RMK AO2 SLP229 T01220067 56017KTKI2018-12-17T20:53:00Z33.18-96.5812.26.70010.030.1801191022.9TRUEVFR-1.7METAR179.02018-12-17 21:05:44[›‹‹Y)/5    3KTLH 172053Z 30007KT 10SM FEW160 BKN250 19/07 A3011 RMK AO2 SLPNO T01940072 56016KTLH2018-12-17T20:53:00Z30.4-84.3519.47.2300710.030.109253TRUEVFR-1.6METAR19.02018-12-17 21:05:44Y›‹‹X)5    3KTMB 172053Z 30009KT 10SM CLR 23/13 A3006 RMK AO2 SLP177 T02280128 56013KTMB2018-12-17T20:53:00Z25.65-80.4322.812.8300910.030.0590551017.7TRUEVFR-1.3METAR2.02018-12-17 21:05:44b›‹‹W)'5    3KTOI 172053Z AUTO 31009KT 10SM CLR 18/04 A3015 RMK AO2 SLP206 T01780044 56017KTOI2018-12-17T20:53:00Z31.85-86.0217.84.4310910.030.150591020.6TRUETRUEVFR-1.7METAR118.02018-12-17 21:05:44 /1G/‚›‹‹^)s5     3KTCS 172053Z AUTO 00000KT 10SM SCT007 BKN011 OVC100 09/07 A3016 RMK AO2 RAB10E19 SLP186 P0000 60001 T00890067 56018KTCS2018-12-17T20:53:00Z33.23-107.278.96.70010.030.1594491018.6TRUETRUEMVFR-1.80.0050.01METAR1469.02018-12-17 21:05:44d›‹‹]))5    3KTDZ 172053Z AUTO 30010KT 10SM CLR 04/M04 A3010 RMK AO2 SLP198 T00441039 53007KTDZ2018-12-17T20:53:00Z41.57-83.484.4-3.93001010.030.1003931019.8TRUETRUEVFR0.7METAR189.02018-12-17 21:05:44f›‹‹\)/5    3KTHV 172053Z AUTO 32014KT 10SM SCT050 06/M03 A2985 RMK AO2 SLP113 T00611028 53020KTHV2018-12-17T20:53:00Z39.92-76.886.1-2.83201410.029.849411011.3TRUETRUEVFR2.0METAR144.02018-12-17 21:05:44]›‹‹[)#5    3KTIW 172053Z 18009KT 10SM FEW038 10/05 A2990 RMK AO2 SLP127 T01000050 58018KTIW2018-12-17T20:53:00Z47.27-122.5810.05.0180910.029.8996071012.7TRUEVFR-1.8METAR89.02018-12-17 21:05:44 t!4Ut[›‹‹b)5    3KSTP 172053Z 17005KT 10SM CLR 02/M08 A3024 RMK AO2 SLP248 T00221078 55008KSTP2018-12-17T20:53:00Z44.93-93.052.2-7.8170510.030.2391741024.8TRUEVFR-0.8METAR219.02018-12-17 21:05:44Y›‹‹a)!5    3KSTS 172053Z 00000KT 8SM BKN004 11/09 A3021 RMK AO2 SLP222 T01060094 58003KSTS2018-12-17T20:53:00Z38.5-122.8210.69.4008.030.2096461022.2TRUELIFR-0.3METAR39.02018-12-17 21:05:44g›‹‹`))5    3KTCC 172053Z AUTO 22010KT 10SM CLR 16/M06 A3009 RMK AO2 SLP178 T01611056 56034KTCC2018-12-17T20:53:00Z35.18-103.616.1-5.62201010.030.0885831017.8TRUETRUEVFR-3.4METAR1235.02018-12-17 21:05:44Y›‹‹_)5    3KTCL 172053Z 33004KT 10SM CLR 17/06 A3020 RMK AO2 SLP224 T01670056 55018KTCL2018-12-17T20:53:00Z33.22-87.6216.75.6330410.030.2007871022.4TRUEVFR-1.8METAR49.02018-12-17 21:05:44 m=MmZ›‹‹f)5    3KRVS 172053Z 00000KT 10SM CLR 14/M01 A3021 RMK AO2 SLP235 T01391011 56026KRVS2018-12-17T20:53:00Z36.05-95.9813.9-1.10010.030.2096461023.5TRUEVFR-2.6METAR200.02018-12-17 21:05:44j›‹‹e)/5   3KRWF 172053Z AUTO 11012G21KT 10SM CLR 01/M05 A3013 RMK AO2 SLP217 T00111050 58024KRWF2018-12-17T20:53:00Z44.55-95.081.1-5.0110122110.030.1299211021.7TRUETRUEVFR-2.4METAR311.02018-12-17 21:05:44[›‹‹d)5    3KSTC 172053Z 11004KT 10SM CLR 02/M09 A3019 RMK AO2 SLP246 T00171089 56010KSTC2018-12-17T20:53:00Z45.55-94.051.7-8.9110410.030.1889761024.6TRUEVFR-1.0METAR314.02018-12-17 21:05:44\›‹‹c)5    3KSTJ 172053Z 18006KT 10SM CLR 12/M04 A3021 RMK AO2 SLP236 T01171039 56026KSTJ2018-12-17T20:53:00Z39.77-94.9211.7-3.9180610.030.2096461023.6TRUEVFR-2.6METAR247.02018-12-17 21:05:44 Q*@Qi›‹‹j)/5    3KRQE 172053Z AUTO 16005KT 10SM OVC095 09/M03 A3018 RMK AO2 SLP190 T00891028 56023KRQE2018-12-17T20:53:00Z35.65-109.078.9-2.8160510.030.1801191019.0TRUETRUEVFR-2.3METAR2055.02018-12-17 21:05:44d›‹‹i)'5    3KRSL 172053Z AUTO 18017KT 10SM CLR 13/01 A3011 RMK AO2 SLP205 T01280011 56032KRSL2018-12-17T20:53:00Z38.87-98.8212.81.11801710.030.1092531020.5TRUETRUEVFR-3.2METAR567.02018-12-17 21:05:44h›‹‹h)/5    3KRTN 172053Z AUTO 19005KT 10SM SCT120 09/M09 A3009 RMK AO2 SLP177 T00941094 56032KRTN2018-12-17T20:53:00Z36.73-104.59.4-9.4190510.030.0885831017.7TRUETRUEVFR-3.2METAR1936.02018-12-17 21:05:44b›‹‹g)'5    3KRUE 172053Z AUTO 21004KT 10SM CLR 13/04 A3020 RMK AO2 SLP225 T01330039 56025KRUE2018-12-17T20:53:00Z35.25-93.113.33.9210410.030.2007871022.5TRUETRUEVFR-2.5METAR115.02018-12-17 21:05:44 ,:K,‚›‹‹n)‚ 5      3KRME 172053Z 28012KT 9SM -SN FEW022 BKN041 OVC070 02/01 A2973 RMK AO2 UPB1958E08SNB10E20B28 SLP072 P0000 60001 T00170006 53014KRME2018-12-17T20:53:00Z43.22-75.41.70.6280129.029.7312981007.2TRUE-SNVFR1.40.0050.01METAR154.02018-12-17 21:05:44i›‹‹m)+5    3KRMG 172053Z AUTO 31003KT 10SM CLR 17/02 A3012 RMK AO2 SLP195 T01720017 56017 $KRMG2018-12-17T20:53:00Z34.35-85.1717.21.7310310.030.1210631019.5TRUETRUETRUEVFR-1.7METAR193.02018-12-17 21:05:44^›‹‹l)#5    3KRNM 172053Z 27008KT 10SM FEW027 16/09 A3016 RMK AO2 SLP210 T01610089 58019KRNM2018-12-17T20:53:00Z33.03-116.9216.18.9270810.030.1594491021.0TRUEVFR-1.9METAR427.02018-12-17 21:05:44\›‹‹k)#5    3KRNT 172053Z 17006KT 10SM BKN049 13/06 A2991 RMK AO2 SLP132 T01280056 58018KRNT2018-12-17T20:53:00Z47.5-122.2212.85.6170610.029.9114171013.2TRUEVFR-1.8METAR21.02018-12-17 21:05:44 F0AFu›‹‹r)K5     3KRDD 172053Z 00000KT 10SM SCT011 BKN026 OVC047 12/09 A3020 RMK AO2 SLP225 60000 T01170094 58003KRDD2018-12-17T20:53:00Z40.52-122.311.79.40010.030.2007871022.5TRUEMVFR-0.30.005METAR155.02018-12-17 21:05:44i›‹‹q)/5    3KRIL 172053Z AUTO 13005KT 10SM BKN100 03/M07 A3017 RMK AO2 SLP238 T00281072 56025KRIL2018-12-17T20:53:00Z39.53-107.732.8-7.2130510.030.1712591023.8TRUETRUEVFR-2.5METAR1678.02018-12-17 21:05:44d›‹‹p))5    3KRIW 172053Z AUTO 00000KT 10SM CLR 01/M07 A3001 RMK AO2 SLP200 T00111067 56021KRIW2018-12-17T20:53:00Z43.07-108.471.1-6.70010.030.0088581020.0TRUETRUEVFR-2.1METAR1697.02018-12-17 21:05:44`›‹‹o)%5    3KRKP 172053Z AUTO 13006KT 9SM CLR 18/14 A3017 RMK AO2 SLP219 T01830144 56028KRKP2018-12-17T20:53:00Z28.08-97.0518.314.413069.030.1712591021.9TRUETRUEVFR-2.8METAR6.02018-12-17 21:05:44 i8Wih›‹‹v)55    3KRAC 172053Z AUTO 06005KT 10SM CLR 04/M06 A3021 RMK AO2 SLP236 6//// T00391061 53007KRAC2018-12-17T20:53:00Z42.77-87.823.9-6.160510.030.2096461023.6TRUETRUEVFR0.7METAR203.02018-12-17 21:05:44[›‹‹u)#5    3KRAL 172053Z 00000KT 10SM BKN031 17/09 A3015 RMK AO2 SLP200 T01670089 58025KRAL2018-12-17T20:53:00Z33.95-117.4516.78.90010.030.150591020.0TRUEVFR-2.5METAR252.02018-12-17 21:05:44Y›‹‹t)5    3KRBD 172053Z 31005KT 10SM 11/04 A3018 RMK AO2 SLP221 T01110039 56015 $KRBD2018-12-17T20:53:00Z32.68-96.8711.13.9310510.030.1801191022.1TRUETRUE-1.5METAR203.02018-12-17 21:05:44c›‹‹s)'5    3KRBG 172053Z AUTO 19005KT 10SM CLR 12/05 A3002 RMK AO2 SLP167 T01170050 56018KRBG2018-12-17T20:53:00Z43.23-123.3511.75.0190510.030.020671016.7TRUETRUEVFR-1.8METAR154.02018-12-17 21:05:44 f3Hf\›‹‹z)5    3KPUB 172053Z 09007KT 10SM CLR 14/M06 A2997 RMK AO2 SLP149 T01441061 56034KPUB2018-12-17T20:53:00Z38.28-104.514.4-6.190710.029.9704721014.9TRUEVFR-3.4METAR1420.02018-12-17 21:05:44e›‹‹y)'5    3KPUC 172053Z AUTO 13005KT 10SM BKN095 03/M04 A3016 RMK AO2 SLP252 T00281044 $KPUC2018-12-17T20:53:00Z39.62-110.752.8-4.4130510.030.1594491025.2TRUETRUETRUEVFRMETAR2091.02018-12-17 21:05:44f›‹‹x)-5    3KPUW 172053Z AUTO 22007KT 10SM FEW050 08/04 A3001 RMK AO2 SLP171 T00830039 58005KPUW2018-12-17T20:53:00Z46.75-117.128.33.9220710.030.0088581017.1TRUETRUEVFR-0.5METAR773.02018-12-17 21:05:44[›‹‹w)5    3KPWA 172053Z 04005KT 10SM CLR 12/M02 A3020 RMK AO2 SLP230 T01171022 56033KPWA2018-12-17T20:53:00Z35.53-97.6511.7-2.240510.030.2007871023.0TRUEVFR-3.3METAR397.02018-12-17 21:05:44 p4LpV›‹‹~)5    3KPSC 172053Z 18009KT 10SM CLR 12/04 A3000 RMK AO2 SLP159 T01220044 58013KPSC2018-12-17T20:53:00Z46.27-119.1212.24.4180910.030.01015.9TRUEVFR-1.3METAR121.02018-12-17 21:05:44b›‹‹})#5    3KPSP 172053Z 10005KT 10SM CLR 20/M03 A3009 RMK AO2 SLP189 T02001028 58033 $KPSP2018-12-17T20:53:00Z33.82-116.520.0-2.8100510.030.0885831018.9TRUETRUEVFR-3.3METAR135.02018-12-17 21:05:44b›‹‹|)'5    3KPSX 172053Z AUTO 20007KT 10SM CLR 19/13 A3018 RMK AO2 SLP219 T01940133 56023KPSX2018-12-17T20:53:00Z28.72-96.2519.413.3200710.030.1801191021.9TRUETRUEVFR-2.3METAR5.02018-12-17 21:05:44^›‹‹{)%5    3KPTK 172053Z 30012KT 10SM BKN031 01/M05 A3006 RMK AO2 SLP189 T00111050 53016KPTK2018-12-17T20:53:00Z42.67-83.421.1-5.03001210.030.0590551018.9TRUEVFR1.6METAR299.02018-12-17 21:05:44 d(Kda›‹Œ)+5   3KPOU 172053Z 27011G18KT 10SM OVC048 05/M03 A2967 RMK AO2 SLP044 T00501028 53006KPOU2018-12-17T20:53:00Z41.63-73.885.0-2.8270111810.029.669291004.4TRUEVFR0.6METAR46.02018-12-17 21:05:44W›‹Œ)5    3KPQL 172053Z 02004KT 10SM CLR 19/08 A3018 RMK AO2 SLP221 T01940083 56019KPQL2018-12-17T20:53:00Z30.47-88.5319.48.320410.030.1801191022.1TRUEVFR-1.9METAR6.02018-12-17 21:05:44j›‹Œ)+5    3KPRB 172053Z AUTO 30007KT 10SM CLR 15/09 A3017 RMK AO2 SLP214 T01500089 58016 $KPRB2018-12-17T20:53:00Z35.67-120.6315.08.9300710.030.1712591021.4TRUETRUETRUEVFR-1.6METAR245.02018-12-17 21:05:44b›‹‹)%5    3KPRC 172053Z 25011KT 10SM OVC090 11/M02 A3018 RMK AO2 SLP192 T01111017 56016KPRC2018-12-17T20:53:00Z34.65-112.4211.1-1.72501110.030.1801191019.2TRUEVFR-1.6METAR1524.02018-12-17 21:05:44 !AkX›‹Œ)5    3TIST 172053Z 13008KT 10SM CLR 28/21 A3002 RMK AO2 SLP166 T02780211 55003TIST2018-12-17T20:53:00Z18.33-64.9827.821.1130810.030.020671016.6TRUEVFR-0.3METAR7.02018-12-17 21:05:44P›‹Œ)5 !  3KMWN 172053Z 30042G50KT 0SM -SHSN FZFG VV000 M11/M11 RMK VRY LGT ICGKMWN2018-12-17T20:53:00Z44.27-71.3-11.0-11.030042500.0-SHSN FZFGLIFR0METAR1910.02018-12-17 21:05:44Z›‹Œ)5    3KOPF 172053Z 32007KT 10SM CLR 22/13 A3007 RMK AO2 SLP183 T02170128 56010KOPF2018-12-17T20:53:00Z25.92-80.2821.712.8320710.030.0708661018.3TRUEVFR-1.0METAR16.02018-12-17 21:05:44Y›‹Œ)5    3KORL 172053Z 32005KT 10SM CLR 18/09 A3008 RMK AO2 SLP191 T01830094 56013KORL2018-12-17T20:53:00Z28.55-81.3318.39.4320510.030.0797251019.1TRUEVFR-1.3METAR37.02018-12-17 21:05:44 D}›‹Œ )_5    3PASI 172053Z 12010KT 10SM BKN050 08/03 A2911 RMK RAB17E47 SLP857 P0001 60001 T00780033 58004 VIA AUTODIALPASI2018-12-17T20:53:00Z57.07-135.357.83.31201010.029.111221985.7VFR-0.40.010.01METAR5.02018-12-17 21:05:44‚+›‹Œ)‚+5      3PANT 172053Z AUTO 12014G21KT 9SM -RA FEW017 BKN025 OVC032 07/06 A2923 RMK PK WND 13029/2017 SLPNO P0003 60008 T00670056 58019 TSNO VIA AUTODIALPANT2018-12-17T20:53:00Z55.03-131.576.75.612014219.029.22933TRUETRUE-RAMVFR-1.90.030.08METAR36.02018-12-17 21:05:446›‹Œ(m5  3KUNV 172053Z 31012G22KT 10SM OVC038 02/M05 A2987KUNV2018-12-17T20:53:00Z40.85-77.832.0-5.0310122210.029.870079VFRMETAR378.02018-12-17 21:05:44 <ò <^›‹Œ )%5    3KOSU 172053Z 33011KT 10SM SCT033 04/M03 A3009 RMK AO2 SLP196 T00391033 53008KOSU2018-12-17T20:53:00Z40.08-83.083.9-3.33301110.030.0885831019.6TRUEVFR0.8METAR280.02018-12-17 21:05:44b›‹Œ )'5    3KOVE 172053Z AUTO 20004KT 10SM CLR 13/10 A3022 RMK AO2 SLP235 T01330100 58000KOVE2018-12-17T20:53:00Z39.5-121.6213.310.0200410.030.2214571023.5TRUETRUEVFR0.0METAR58.02018-12-17 21:05:44d›‹Œ ))5    3KOVS 172053Z AUTO 32003KT 10SM CLR 07/M08 A3023 RMK AO2 SLP243 T00671078 56002KOVS2018-12-17T20:53:00Z43.15-90.686.7-7.8320310.030.2303141024.3TRUETRUEVFR-0.2METAR202.02018-12-17 21:05:44‚›‹Œ )g5     3PASC 172053Z 27010KT 5SM BR OVC017 M22/M24 A2941 RMK SNB04E48 SLP962 P0000 60000 T12171239 51005 VIA AUTODIALPASC2018-12-17T20:53:00Z70.2-148.47-21.7-23.9270105.029.409449996.2BRMVFR0.50.0050.005METAR15.02018-12-17 21:05:44 åûc›‹Œ)'5    3KRSW 172053Z AUTO 35005KT 10SM CLR 18/11 A3008 RMK AO2 SLP184 T01780111 56013KRSW2018-12-17T20:53:00Z26.53-81.7517.811.1350510.030.0797251018.4TRUETRUEVFR-1.3METAR10.02018-12-17 21:05:44d›‹Œ)15    3KTPA 172053Z 31009KT 10SM SCT240 BKN350 17/11 A3010 RMK AO2 SLP194 T01720106 56014KTPA2018-12-17T20:53:00Z27.97-82.5317.210.6310910.030.1003931019.4TRUEVFR-1.4METAR11.02018-12-17 21:05:44‚*›‹Œ)‚!5     3PAKT 172053Z 13022G30KT 7SM -RA FEW015 OVC028 07/04 A2924 RMK AO2 PK WND 12030/2047 SLP901 HARBOR WIND 10024KT P0003 60008 T00670044 58016PAKT2018-12-17T20:53:00Z55.35-131.76.74.413022307.029.241142990.1TRUE-RAMVFR-1.62.40.030.08METAR28.02018-12-17 21:05:44e›‹Œ)35    3KDTW 172053Z 31012KT 10SM BKN035 BKN220 03/M05 A3009 RMK AO2 SLP195 T00331050 53012KDTW2018-12-17T20:53:00Z42.23-83.333.3-5.03101210.030.0885831019.5TRUEVFR1.2METAR195.02018-12-17 21:05:44 C,Cc›‹Œ))5    3KBVO 172053Z AUTO 00000KT 10SM CLR 14/M03 A3022 RMK AO2 SLP234 T01441028 56025KBVO2018-12-17T20:53:00Z36.77-96.0214.4-2.80010.030.2214571023.4TRUETRUEVFR-2.5METAR210.02018-12-17 21:05:44d›‹Œ)35    3KBVY 172053Z 29010KT 10SM BKN039 OVC055 04/M01 A2950 RMK AO2 SLP986 T00441011 56010KBVY2018-12-17T20:53:00Z42.58-70.924.4-1.12901010.029.500984998.6TRUEVFR-1.0METAR28.02018-12-17 21:05:44w›‹Œ)G5     3KECP 172053Z 29005KT 10SM CLR 19/07 A3013 RMK AO2 RAB18E26 SLP213 P0000 60000 T01890072 56016KECP2018-12-17T20:53:00Z30.35-85.818.97.2290510.030.1299211021.3TRUEVFR-1.60.0050.005METAR21.02018-12-17 21:05:44g›‹Œ)/5    3KEEO 172053Z AUTO 00000KT 10SM SCT095 03/M07 A3014 RMK AO2 SLP231 T00331067 56020KEEO2018-12-17T20:53:00Z40.05-107.883.3-6.70010.030.1387791023.1TRUETRUEVFR-2.0METAR1930.02018-12-17 21:05:44 a:Yar›‹Œ)95   3KDUJ 172053Z AUTO 29011G19KT 10SM OVC029 00/M05 A2989 RMK AO2 SLP136 T00001050 53008 $KDUJ2018-12-17T20:53:00Z41.17-78.90.0-5.0290111910.029.8907471013.6TRUETRUETRUEMVFR0.8METAR554.02018-12-17 21:05:44[›‹Œ)5    3KDVT 172053Z 25006KT 10SM CLR 19/00 A3011 RMK AO2 SLP186 T01890000 56024KDVT2018-12-17T20:53:00Z33.68-112.0718.90.0250610.030.1092531018.6TRUEVFR-2.4METAR443.02018-12-17 21:05:44W›‹Œ)5    3KDWH 172053Z VRB03KT 10SM CLR 21/03 A3018 RMK AO2 SLP217 T02060028 56025KDWH2018-12-17T20:53:00Z30.07-95.5520.62.80310.030.1801191021.7TRUEVFR-2.5METAR46.02018-12-17 21:05:44c›‹Œ)+5   3KDXR 172053Z 28011G20KT 10SM OVC050 05/M04 A2965 RMK AO2 SLP044 T00501039 53004KDXR2018-12-17T20:53:00Z41.37-73.485.0-3.9280112010.029.6486231004.4TRUEVFR0.4METAR139.02018-12-17 21:05:44 7 7c›‹Œ)'5    3KEET 172053Z AUTO 32007KT 10SM CLR 16/03 A3017 RMK AO2 SLP214 T01610028 56015KEET2018-12-17T20:53:00Z33.18-86.7816.12.8320710.030.1712591021.4TRUETRUEVFR-1.5METAR173.02018-12-17 21:05:44h›‹Œ)+5    3KELD 172053Z AUTO 04006KT 10SM CLR 15/12 A3018 RMK AO2 SLP218 T01500122 58023 $KELD2018-12-17T20:53:00Z33.22-92.8215.012.240610.030.1801191021.8TRUETRUETRUEVFR-2.3METAR81.02018-12-17 21:05:44{›‹Œ)S5    3KELM 172053Z 32010G19KT 10SM BKN034 BKN043 OVC050 03/M03 A2981 RMK AO2 SLP102 60000 T00281033 53015KELM2018-12-17T20:53:00Z42.15-76.92.8-3.3320101910.029.8110241010.2TRUEVFR1.50.005METAR302.02018-12-17 21:05:44k›‹Œ)55     3KELN 172053Z AUTO 00000KT 1/4SM FG OVC002 01/00 A2996 RMK AO2 SLP158 T00110000 56013KELN2018-12-17T20:53:00Z47.03-120.531.10.0000.2529.9586621015.8TRUETRUEFGLIFR-1.3METAR519.02018-12-17 21:05:44 X0GXi›‹Œ!)15     3KHOT 172053Z AUTO 00000KT 10SM CLR 14/06 A3021 RMK AO2 SLP228 T01440056 56020 TSNOKHOT2018-12-17T20:53:00Z34.48-93.114.45.60010.030.2096461022.8TRUETRUETRUEVFR-2.0METAR162.02018-12-17 21:05:44c›‹Œ )'5    3KLOZ 172053Z AUTO 24006KT 10SM CLR 10/03 A3013 RMK AO2 SLP203 T01000033 55009KLOZ2018-12-17T20:53:00Z37.08-84.0710.03.3240610.030.1299211020.3TRUETRUEVFR-0.9METAR362.02018-12-17 21:05:44b›‹Œ)'5    3KLFK 172053Z AUTO 23008KT 10SM CLR 17/08 A3016 RMK AO2 SLP213 T01720083 56020KLFK2018-12-17T20:53:00Z31.23-94.7517.28.3230810.030.1594491021.3TRUETRUEVFR-2.0METAR88.02018-12-17 21:05:44b›‹Œ)15    3KNIP 172053Z 28004KT 10SM FEW150 BKN210 17/09 A3008 RMK AO2 SLP180 T01670094 56018KNIP2018-12-17T20:53:00Z30.22-81.6716.79.4280410.030.0797251018.0TRUEVFR-1.8METAR7.02018-12-17 21:05:44 9P#‚›‹Œ%)i5    3KBGM 172053Z 31012G20KT 10SM SCT023 OVC044 00/M03 A2972 RMK AO2 PK WND 31029/2031 SLP079 60000 T00001033 53010KBGM2018-12-17T20:53:00Z42.22-75.980.0-3.3310122010.029.7194881007.9TRUEVFR1.00.005METAR490.02018-12-17 21:05:44‚'›‹Œ$)‚#5      3KBGR 172053Z 33008KT 1SM R15/6000VP6000FT -SN BR BKN005 BKN009 OVC016 00/M01 A2944 RMK AO2 TWR VIS 1 1/2 SLP972 P0002 60008 T00001006 56012KBGR2018-12-17T20:53:00Z44.8-68.820.0-0.633081.029.438976997.2TRUE-SN BRIFR-1.20.020.08METAR57.02018-12-17 21:05:44c›‹Œ#))5    3KGEZ 172053Z AUTO 30007KT 10SM CLR 07/M02 A3013 RMK AO2 SLP209 T00671022 55002KGEZ2018-12-17T20:53:00Z39.58-85.86.7-2.2300710.030.1299211020.9TRUETRUEVFR-0.2METAR245.02018-12-17 21:05:44A›‹Œ"({5    3KBDU 172053Z AUTO 10003KT 10SM CLR 13/M12 A3000 RMK AO2KBDU2018-12-17T20:53:00Z40.03-105.2313.0-12.0100310.030.0TRUETRUEVFRMETAR1612.02018-12-17 21:05:44 #:O‚*›‹Œ))‚5     3KBFD 172053Z AUTO 30015G24KT 10SM UP BKN016 OVC022 M01/M04 A2985 RMK AO2 PK WND 30026/2023 UPE00B25 SLP126 P0000 60000 T10111039 53010KBFD2018-12-17T20:53:00Z41.8-78.63-1.1-3.9300152410.029.849411012.6TRUETRUEUPMVFR1.00.0050.005METAR647.02018-12-17 21:05:44e›‹Œ())5    3KBFF 172053Z AUTO 00000KT 10SM CLR 13/M04 A2996 RMK AO2 SLP157 T01331044 56027KBFF2018-12-17T20:53:00Z41.87-103.5813.3-4.40010.029.9586621015.7TRUETRUEVFR-2.7METAR1203.02018-12-17 21:05:44c›‹Œ')15    3KBFI 172053Z 17009KT 10SM SCT050 BKN150 12/05 A2991 RMK AO2 SLP128 T01170050 58015KBFI2018-12-17T20:53:00Z47.55-122.3211.75.0170910.029.9114171012.8TRUEVFR-1.5METAR4.02018-12-17 21:05:44W›‹Œ&)5    3KBFM 172053Z 14004KT 8SM CLR 17/09 A3019 RMK AO2 SLP223 T01720094 56019KBFM2018-12-17T20:53:00Z30.62-88.0717.29.414048.030.1889761022.3TRUEVFR-1.9METAR20.02018-12-17 21:05:44 lJ.l<›‹Œ-(5   3MTPP 172052Z 29007KT 9000 SCT026 BKN050 29/21 Q1014 A2994MTPP2018-12-17T20:52:00Z18.57-72.2829.021.029075.5929.940945VFRMETAR37.02018-12-17 21:05:44‚›‹Œ,)m5      3KHIE 172052Z AUTO 27008KT 5SM -SN BR BKN018 OVC023 01/M02 A2950 RMK AO2 SNB32 SLP002 P0000 60000 T00061017 55005KHIE2018-12-17T20:52:00Z44.37-71.550.6-1.727085.029.5009841000.2TRUETRUE-SN BRMVFR-0.50.0050.005METAR318.02018-12-17 21:05:44C›‹Œ+(}5    3KORB 172053Z AUTO 00000KT 10SM CLR M04/M13 A3018 RMK AO2KORB2018-12-17T20:53:00Z48.02-92.87-4.0-13.00010.030.180119TRUETRUEVFRMETAR397.02018-12-17 21:05:44g›‹Œ*)/5    3KBEH 172053Z AUTO 32008KT 10SM BKN022 03/M03 A3018 RMK AO2 SLP226 T00281033 53009KBEH2018-12-17T20:53:00Z42.13-86.422.8-3.3320810.030.1801191022.6TRUETRUEMVFR0.9METAR191.02018-12-17 21:05:44 ^!>V^r›‹Œ1)O5     3KMWH 172052Z 00000KT 1/4SM R32R/2800VP6000FT FG OVC002 03/03 A2998 RMK AO2 SLP160 T00330028 58009KMWH2018-12-17T20:52:00Z47.2-119.323.32.8000.2529.979331016.0TRUEFGLIFR-0.9METAR362.02018-12-17 21:05:44b›‹Œ0)'5    3KOKB 172052Z AUTO 26007KT 10SM CLR 18/13 A3015 RMK AO2 SLP210 T01830128 58025KOKB2018-12-17T20:52:00Z33.22-117.3518.312.8260710.030.150591021.0TRUETRUEVFR-2.5METAR8.02018-12-17 21:05:44]›‹Œ/)%5    3KOKC 172052Z 03007KT 10SM BKN230 11/M02 A3019 RMK AO2 SLP226 T01111022 56033KOKC2018-12-17T20:52:00Z35.38-97.611.1-2.230710.030.1889761022.6TRUEVFR-3.3METAR390.02018-12-17 21:05:44Y›‹Œ.)5    3KOMA 172052Z 16014KT 10SM CLR 07/00 A3014 RMK AO2 SLP215 T00720000 56035KOMA2018-12-17T20:52:00Z41.32-95.97.20.01601410.030.1387791021.5TRUEVFR-3.5METAR312.02018-12-17 21:05:44 Y/DYe›‹Œ5))5    3KISN 172052Z AUTO 20008KT 10SM CLR 06/M03 A2984 RMK AO2 SLP122 T00561033 56018KISN2018-12-17T20:52:00Z48.17-103.635.6-3.3200810.029.8405511012.2TRUETRUEVFR-1.8METAR579.02018-12-17 21:05:44e›‹Œ4))5    3KMBG 172052Z AUTO 16005KT 10SM CLR 07/M03 A2990 RMK AO2 SLP139 T00721028 56024KMBG2018-12-17T20:52:00Z45.55-100.427.2-2.8160510.029.8996071013.9TRUETRUEVFR-2.4METAR510.02018-12-17 21:05:44_›‹Œ3)%5    3KMFD 172052Z 31010KT 10SM OVC028 02/M03 A3006 RMK AO2 SLP191 T00171028 53011KMFD2018-12-17T20:52:00Z40.82-82.521.7-2.83101010.030.0590551019.1TRUEMVFR1.1METAR395.02018-12-17 21:05:44f›‹Œ2)'5    3KMLF 172052Z AUTO 21009KT 10SM OVC085 18/M06 A3011 RMK AO2 SLP173 T01781061 $KMLF2018-12-17T20:52:00Z38.42-113.0217.8-6.1210910.030.1092531017.3TRUETRUETRUEVFRMETAR1534.02018-12-17 21:05:44 ]1H]e›‹Œ9)/5    3KBLU 172052Z AUTO VRB05KT 10SM FEW017 03/M01 A3018 RMK AO2 SLP213 T00331006 50000KBLU2018-12-17T20:52:00Z39.28-120.73.3-0.60510.030.1801191021.3TRUETRUEVFR0.0METAR1609.02018-12-17 21:05:44c›‹Œ8)'5    3KCKV 172052Z AUTO 33005KT 10SM CLR 13/00 A3018 RMK AO2 SLP220 T01330000 55013KCKV2018-12-17T20:52:00Z36.62-87.4213.30.0330510.030.1801191022.0TRUETRUEVFR-1.3METAR165.02018-12-17 21:05:44_›‹Œ7)%5    3KCLT 172052Z 32006KT 10SM FEW250 18/M03 A3001 RMK AO2 SLP159 T01781028 55005KCLT2018-12-17T20:52:00Z35.22-80.9517.8-2.8320610.030.0088581015.9TRUEVFR-0.5METAR220.02018-12-17 21:05:44d›‹Œ6))5    3KEST 172052Z AUTO 13010KT 10SM CLR 01/M02 A3014 RMK AO2 SLP223 T00061022 56020KEST2018-12-17T20:52:00Z43.4-94.750.6-2.21301010.030.1387791022.3TRUETRUEVFR-2.0METAR401.02018-12-17 21:05:44 L/L]›‹Œ=)#5    3KABI 172052Z 30004KT 10SM SCT120 11/01 A3021 RMK AO2 SLP226 T01060006 56026KABI2018-12-17T20:52:00Z32.42-99.6810.60.6300410.030.2096461022.6TRUEVFR-2.6METAR548.02018-12-17 21:05:44`›‹Œ<)%5    3KATL 172052Z 33014KT 10SM FEW250 16/M01 A3010 RMK AO2 SLP194 T01561011 56012KATL2018-12-17T20:52:00Z33.63-84.4515.6-1.13301410.030.1003931019.4TRUEVFR-1.2METAR296.02018-12-17 21:05:44z›‹Œ;)]5   3KBDR 172052Z 29013G24KT 10SM FEW048 OVC060 07/M02 A2964 RMK AO2 PK WND 29029/2034 SLP036 T00721022 53001KBDR2018-12-17T20:52:00Z41.17-73.137.2-2.2290132410.029.6397631003.6TRUEVFR0.1METAR7.02018-12-17 21:05:44e›‹Œ:))5    3KBIS 172052Z AUTO 15008KT 10SM CLR 04/M03 A2993 RMK AO2 SLP157 T00391028 56029KBIS2018-12-17T20:52:00Z46.77-100.753.9-2.8150810.029.9291341015.7TRUETRUEVFR-2.9METAR505.02018-12-17 21:05:44 m.Om\›‹ŒA)#5    3KSPS 172052Z 36006KT 10SM BKN140 10/03 A3019 RMK AO2 SLP224 T01000033 58024KSPS2018-12-17T20:52:00Z33.98-98.510.03.3360610.030.1889761022.4TRUEVFR-2.4METAR308.02018-12-17 21:05:44Y›‹Œ@)5    3KSUX 172052Z 14009KT 10SM CLR 06/01 A3008 RMK AO2 SLP197 T00560011 56033KSUX2018-12-17T20:52:00Z42.38-96.385.61.1140910.030.0797251019.7TRUEVFR-3.3METAR338.02018-12-17 21:05:44b›‹Œ?))5    3KTOL 172052Z 31006KT 10SM FEW033 05/M04 A3009 RMK AO2 SLP196 T00501039 53005 $KTOL2018-12-17T20:52:00Z41.58-83.85.0-3.9310610.030.0885831019.6TRUETRUEVFR0.5METAR210.02018-12-17 21:05:44d›‹Œ>)'5    3KTRM 172052Z AUTO 11005KT 10SM CLR 21/02 A3008 RMK AO2 SLP184 T02060017 58033KTRM2018-12-17T20:52:00Z33.63-116.1720.61.7110510.030.0797251018.4TRUETRUEVFR-3.3METAR-35.02018-12-17 21:05:44 N/>Nj›‹ŒE)/5     3KN60 172052Z AUTO 17012KT 03/M04 A2986 RMK AO1 SLP137 P0001 60001 T00331039 56035KN602018-12-17T20:52:00Z47.65-101.433.3-3.91701229.8612211013.7TRUETRUE-3.50.010.01METAR582.02018-12-17 21:05:44k›‹ŒD)=5    3KNZY 172052Z VRB03KT 10SM FEW024 BKN032 19/12 A3017 RMK AO2 SLP214 T01890117 58018 PNO $KNZY2018-12-17T20:52:00Z32.7-117.2218.911.70310.030.1712591021.4TRUETRUEVFR-1.8METAR8.02018-12-17 21:05:44b›‹ŒC)'5    3KNRB 172052Z 25005KT 10SM BKN210 16/10 A3007 RMK AO2 SLP181 T01560100 56020 $KNRB2018-12-17T20:52:00Z30.38-81.4215.610.0250510.030.0708661018.1TRUETRUEVFR-2.0METAR5.02018-12-17 21:05:44c›‹ŒB)/5    3PATA 172052Z 25004KT 10SM OVC039 M17/M19 A2911 RMK AO2 SLP866 T11721194 52036 PNOPATA2018-12-17T20:52:00Z65.17-152.1-17.2-19.4250410.029.111221986.6TRUEVFR3.6METAR67.02018-12-17 21:05:44 Ÿ%=tŸO›‹ŒI)5   3KGDP 172051Z AUTO VRB04KT CLR 13/M03 A3017 RMK AO2 SLP164 T01331028KGDP2018-12-17T20:51:00Z31.83-104.8213.3-2.80430.1712591016.4TRUETRUEMETAR1692.02018-12-17 21:05:44C›‹ŒH({5    3KCUL 172052Z AUTO 30008KT 10SM CLR 10/M01 A3020 RMK AO2KCUL2018-12-17T20:52:00Z38.08-88.1210.0-1.0300810.030.200787TRUETRUEVFRMETAR118.02018-12-17 21:05:44b›‹ŒG)15    3KNHK 172052Z 26009KT 10SM SCT180 BKN260 12/03 A2982 RMK AO2 SLP098 T01220033 56002KNHK2018-12-17T20:52:00Z38.27-76.412.23.3260910.029.8198811009.8TRUEVFR-0.2METAR12.02018-12-17 21:05:44U›‹ŒF)5    3KCZZ 172052Z AUTO 21014KT 16/05 A3012 RMK AO1 SLP185 T01560050 58018KCZZ2018-12-17T20:52:00Z32.63-116.4715.65.02101430.1210631018.5TRUETRUE-1.8METAR807.02018-12-17 21:05:44 ±"h¨±q›‹ŒM)=5    3KIGM 172051Z AUTO 15005KT 10SM SCT080 OVC095 14/M08 A3014 RMK AO2 SLP174 T01391078 58015KIGM2018-12-17T20:51:00Z35.25-113.9313.9-7.8150510.030.1387791017.4TRUETRUEVFR-1.5METAR1032.02018-12-17 21:05:44:›‹ŒL)5   3MUCU 172051Z 21005KT 180V250 9000 FEW020 SCT200 28/19 Q1016MUCU2018-12-17T20:51:00Z19.97-75.8328.019.021055.5930.0VFRMETAR76.02018-12-17 21:05:444›‹ŒK(s5   3MUCL 172051Z 04008KT 9000 FEW020 OVC070 24/21 Q1017MUCL2018-12-17T20:51:00Z21.63-81.5524.021.04085.5930.029528VFRMETAR5.02018-12-17 21:05:44X›‹ŒJ))5   3MMRX 172051Z 00000KT 10SM FEW100 SCT200 21/09 A3015 RMK SLP205 57033 976 8/039MMRX2018-12-17T20:51:00Z26.02-98.2221.09.00010.030.150591020.5VFR-3.3METAR39.02018-12-17 21:05:44 QBŽÉQ.›‹ŒR(i5   3ENHK 172050Z VRB02KT 9999 FEW024 M02/M04 Q1023ENHK2018-12-17T20:50:00Z70.4722.13-2.0-4.0026.2130.206694VFRMETAR10.02018-12-17 21:05:44>›‹ŒQ)5    3ENNM 172050Z 09006KT 9999 VCSH FEW035 BKN080 M03/M05 Q1020ENNM2018-12-17T20:50:00Z64.4711.57-3.0-5.09066.2130.11811VCSHVFRMETAR2.02018-12-17 21:05:44?›‹ŒP(5    3ENHV 172050Z 28007KT 9999 -SHRA SCT012 BKN025 02/01 Q1021ENHV2018-12-17T20:50:00Z71.0225.972.01.028076.2130.147638-SHRAMVFRMETAR14.02018-12-17 21:05:44.›‹ŒO(i5   3ENLK 172050Z VRB02KT 9999 FEW040 M04/M06 Q1021ENLK2018-12-17T20:50:00Z68.1513.62-4.0-6.0026.2130.147638VFRMETAR26.02018-12-17 21:05:448›‹ŒN(w5   3ENBS 172050Z 19012KT 9999 SCT023 BKN060 M02/M06 Q1019ENBS2018-12-17T20:50:00Z70.6229.72-2.0-6.0190126.2130.088583VFRMETAR10.02018-12-17 21:05:44 E1ƒÕE8›‹ŒW(5    3LTFH 172050Z 31009KT 9999 FEW036 BKN100 11/09 Q1016 NOSIGLTFH2018-12-17T20:50:00Z41.2736.5511.09.031096.2130.0TRUEVFRMETAR5.02018-12-17 21:05:44L›‹ŒV)#5    3LCEN 172050Z 25006KT 9999 FEW025 SCT080 11/10 Q1016 NOSIG RMK RWY11 26005KTLCEN2018-12-17T20:50:00Z35.1333.511.010.025066.2130.0TRUEVFRMETAR91.02018-12-17 21:05:44(›‹ŒU(]5   3ENSK 172050Z 04006KT CAVOK M02/M06 Q1021ENSK2018-12-17T20:50:00Z68.5715.02-2.0-6.04066.2130.147638VFRMETAR3.02018-12-17 21:05:44(›‹ŒT(]5   3KHSA 172050Z 27005KT 7SM CLR 18/09 A3020KHSA2018-12-17T20:50:00Z30.37-89.4518.09.027057.030.200787VFRMETAR7.02018-12-17 21:05:44I›‹ŒS)5   3EGQS 172050Z 15015KT 9999 FEW024 BKN120 07/04 Q1004 BLU TEMPO SCT024 WHTEGQS2018-12-17T20:50:00Z57.72-3.327.04.0150156.2129.64567VFRMETAR13.02018-12-17 21:05:44 ,0iªç,5›‹Œ\(q5    3LTCA 172050Z 00000KT 9999 OVC013 04/03 Q1021 NOSIGLTCA2018-12-17T20:50:00Z38.639.274.03.0006.2130.147638TRUEMVFRMETAR882.02018-12-17 21:05:44=›‹Œ[(5    3LTCD 172050Z 00000KT 7000 SCT040 BKN100 02/01 Q1019 NOSIGLTCD2018-12-17T20:50:00Z39.7239.52.01.0004.3530.088583TRUEMVFRMETAR1215.02018-12-17 21:05:449›‹ŒZ(w5   3LTCF 172050Z 32004KT 9999 SCT035 BKN070 M05/M05 Q1019LTCF2018-12-17T20:50:00Z40.5743.12-5.0-5.032046.2130.088583VFRMETAR1795.02018-12-17 21:05:44A›‹ŒY)5    3LTCI 172050Z 00000KT 8000 SCT030 BKN070 02/M01 Q1018 NOSIGLTCI2018-12-17T20:50:00Z38.4543.322.0-1.0004.9730.059055TRUEMVFRMETAR1661.02018-12-17 21:05:44J›‹ŒX) 5     3LTDA 172050Z 00000KT 8000 -SHRA BKN025 BKN080 10/10 Q1021 NOSIGLTDA2018-12-17T20:50:00Z36.3736.2810.010.0004.9730.147638TRUE-SHRAMVFRMETAR82.02018-12-17 21:05:44 ,DˆÅ,V›‹Œa)/5    3LTCJ 172050Z 21002KT 1800 PRFG SCT005 BKN035 OVC090 07/07 Q1020 RMK RWY20 22004KTLTCJ2018-12-17T20:50:00Z37.9341.127.07.021021.1230.11811PRFGIFRMETAR540.02018-12-17 21:05:447›‹Œ`(w5   3LTAR 172050Z 13007KT 9999 SCT035 BKN100 M01/M02 Q1018LTAR2018-12-17T20:50:00Z39.836.9-1.0-2.013076.2130.059055VFRMETAR1271.02018-12-17 21:05:44=›‹Œ_)5   3LTAY 172050Z 22002KT 8000 SCT035 BKN100 06/06 Q1017 RESHRALTAY2018-12-17T20:50:00Z37.7729.686.06.022024.9730.029528MVFRMETAR849.02018-12-17 21:05:446›‹Œ^)5   3LTBY 172050Z 00000KT 6000 FEW010 SCT033 BKN100 06/06 Q1016LTBY2018-12-17T20:50:00Z39.8230.526.06.0003.7330.0MVFRMETAR789.02018-12-17 21:05:446›‹Œ])5   3LTBZ 172050Z 06003KT 020V080 9999 SCT040 BKN100 04/04 Q1016LTBZ2018-12-17T20:50:00Z38.6327.354.04.06036.2130.0VFRMETAR73.02018-12-17 21:05:44 £*`‚£Y›‹Œe)+5     3LTAU 172050Z 31006KT 9999 -RA BKN033 BKN090 06/04 Q1017 NOSIG RMK RWY07 28008KTLTAU2018-12-17T20:50:00Z38.7735.476.04.031066.2130.029528TRUE-RAVFRMETAR1054.02018-12-17 21:05:44X›‹Œd)5     3LTBF 172050Z 01004KT 4000 -SHRA BR SCT010 SCT035 BKN100 10/10 Q1017 NOSIGLTBF2018-12-17T20:50:00Z39.6227.9210.010.01042.4930.029528TRUE-SHRA BRIFRMETAR102.02018-12-17 21:05:44D›‹Œc)5    3LTBQ 172050Z 00000KT 2800 BR SCT010 BKN016 10/10 Q1017 BECMG 4000LTBQ2018-12-17T20:50:00Z40.7230.0710.010.0001.7430.029528BRIFRMETAR50.02018-12-17 21:05:44P›‹Œb)#5    3LTCC 172050Z 27004KT 6000 BKN040 BKN100 06/06 Q1020 NOSIG RMK RWY16 30002KTLTCC2018-12-17T20:50:00Z37.8740.26.06.027043.7330.11811TRUEMVFRMETAR677.02018-12-17 21:05:44 A)i¤öA/›‹Œj(s5   3LTFD 172050Z 08006KT 9999 SCT030 BKN090 11/10 Q1016LTFD2018-12-17T20:50:00Z39.5527.0211.010.08066.2130.0VFRMETAR16.02018-12-17 21:05:44(›‹Œi(e5   3LTFG 172050Z 14003KT 9999 BKN030 12/12 Q1016LTFG2018-12-17T20:50:00Z36.332.312.012.014036.2130.0MVFRMETAR95.02018-12-17 21:05:44?›‹Œh) 5   3LTAG 172050Z 01006KT 9999 SCT035 BKN080 12/08 Q1018 TEMPO -TSRALTAG2018-12-17T20:50:00Z37.035.4212.08.01066.2130.059055VFRMETAR66.02018-12-17 21:05:44:›‹Œg(5    3LTAN 172050Z 32004KT 9000 SCT040 BKN100 06/05 Q1016 NOSIGLTAN2018-12-17T20:50:00Z37.9732.536.05.032045.5930.0TRUEVFRMETAR1006.02018-12-17 21:05:44Q›‹Œf)#5    3LTAT 172050Z 19003KT 9999 SCT018 BKN033 04/03 Q1022 NOSIG RMK RWY03 00000KTLTAT2018-12-17T20:50:00Z38.4238.074.03.019036.2130.177166TRUEVFRMETAR849.02018-12-17 21:05:44 ?„ÅëF›‹Œo)5    3LTFE 172050Z VRB02KT 9999 FEW035 08/07 Q1017 NOSIG RMK RWY10 06004KTLTFE2018-12-17T20:50:00Z37.2527.678.07.0026.2130.029528TRUEVFRMETAR6.02018-12-17 21:05:44T›‹Œn))5     3LTFJ 172050Z 12003KT 2500 BR SCT007 BKN023 10/09 Q1017 NOSIG RMK RWY24 17002KTLTFJ2018-12-17T20:50:00Z40.929.310.09.012031.5530.029528TRUEBRIFRMETAR98.02018-12-17 21:05:449›‹Œm(5    3LTBH 172050Z 04011KT 7000 -SHRA SCT005 BKN030 09/08 Q1016LTBH2018-12-17T20:50:00Z40.1326.429.08.040114.3530.0-SHRAMVFRMETAR3.02018-12-17 21:05:445›‹Œl(s5   3LTCB 172050Z 24003KT 9999 FEW035 BKN100 09/04 Q1015LTCB2018-12-17T20:50:00Z39.7243.039.04.024036.2129.970472VFRMETAR1632.02018-12-17 21:05:44;›‹Œk(5    3LTCN 172050Z 00000KT 9999 SCT035 BKN100 08/06 Q1020 NOSIGLTCN2018-12-17T20:50:00Z37.5336.958.06.0006.2130.11811TRUEVFRMETAR526.02018-12-17 21:05:44 §)\ˆ§[›‹Œs)75     3LTBR 172050Z VRB01KT 4000 BR FEW006 SCT025 BKN090 09/09 Q1017 NOSIG RMK RWY07 22004KTLTBR2018-12-17T20:50:00Z40.2529.579.09.0012.4930.029528TRUEBRIFRMETAR232.02018-12-17 21:05:44N›‹Œr)#5    3LTBS 172050Z 07004KT 9999 FEW025 SCT100 10/09 Q1017 NOSIG RMK RWY19 02005KTLTBS2018-12-17T20:50:00Z36.728.7710.09.07046.2130.029528TRUEVFRMETAR2.02018-12-17 21:05:44G›‹Œq)5    3LTCG 172050Z VRB02KT 8000 BKN100 12/07 Q1015 NOSIG RMK RWY29 00000KTLTCG2018-12-17T20:50:00Z41.039.812.07.0024.9729.970472TRUEMVFRMETAR30.02018-12-17 21:05:44Q›‹Œp)#5    3LTFC 172050Z 00000KT 9999 -SHRA BKN030 BKN080 07/06 Q1017 RMK RWY23 VRB01KTLTFC2018-12-17T20:50:00Z37.8730.387.06.0006.2130.029528-SHRAMVFRMETAR864.02018-12-17 21:05:44 o$/Zoe›‹Œw)I5     3LTAJ 172050Z 02003KT 340V040 4900 BR SCT007 BKN020 06/05 Q1020 NOSIG RMK RWY10 03005KT 010V140LTAJ2018-12-17T20:50:00Z36.9537.486.05.02033.0430.11811TRUEBRMVFRMETAR855.02018-12-17 21:05:44O›‹Œv)5    3LTAZ 172050Z 15003KT 9999 -RA BKN030 BKN090 06/06 Q1017 RMK RWY29 19004KTLTAZ2018-12-17T20:50:00Z38.7734.556.06.015036.2130.029528-RAMVFRMETAR945.02018-12-17 21:05:44o›‹Œu)]5    3LTBA 172050Z 34013KT 6000 SCT005 BKN022 09/07 Q1017 NOSIG RMK RWY17L 34010KT RWY05 32012KT RWY23 34010KTLTBA2018-12-17T20:50:00Z40.9728.829.07.0340133.7330.029528TRUEMVFRMETAR37.02018-12-17 21:05:44V›‹Œt)35     3LTBJ 172050Z VRB02KT 3900 0800S R34/P1500N R16/P1500U BCFG SCT002 07/07 Q1016 NOSIGLTBJ2018-12-17T20:50:00Z38.2827.157.07.0022.4230.0TRUEBCFGIFRMETAR120.02018-12-17 21:05:44 x2axc›‹Œ{)=5   3MMPA 172050Z 00000KT 6SM FEW025 BKN100 BKN200 24/12 A3012 RMK SLP179 57046 987 8/478 HZYMMPA2018-12-17T20:50:00Z20.5-97.4724.012.0006.030.1210631017.9VFR-4.6METAR142.02018-12-17 21:05:44K›‹Œz)%5    3LTAC 172050Z VRB03KT 6000 -RA BKN030 BKN080 05/04 Q1016 BECMG FM2200 3500 BRLTAC2018-12-17T20:50:00Z40.1232.975.04.0033.7330.0-RAMVFRMETAR949.02018-12-17 21:05:44\›‹Œy)/5     3LTAF 172050Z 35004KT 9999 -SHRA SCT035 BKN100 13/09 Q1018 NOSIG RMK RWY23 03006KTLTAF2018-12-17T20:50:00Z36.9735.2813.09.035046.2130.059055TRUE-SHRAVFRMETAR20.02018-12-17 21:05:44f›‹Œx)S5    3LTAI 172050Z VRB02KT 9999 BKN030 10/09 Q1017 NOSIG RMK RWY18C 00000KT RWY36R 34004KT RWY18L 00000KTLTAI2018-12-17T20:50:00Z36.930.810.09.0026.2130.029528TRUEMVFRMETAR54.02018-12-17 21:05:44 UEÃU6›‹(u5   3MUCC 172050Z 01010KT 330V030 9000 BKN060 25/19 Q1017MUCC2018-12-17T20:50:00Z22.47-78.3325.019.010105.5930.029528VFRMETAR4.02018-12-17 21:05:44,›‹Œ(e5   3MUCM 172050Z 36010KT 9000 SCT020 27/22 Q1016MUCM2018-12-17T20:50:00Z21.42-77.8527.022.0360105.5930.0VFRMETAR122.02018-12-17 21:05:448›‹Œ~(u5   3MUHG 172050Z 34004KT 280V350 9000 SCT025 31/18 Q1015MUHG2018-12-17T20:50:00Z20.77-76.3231.018.034045.5929.970472VFRMETAR106.02018-12-17 21:05:44>›‹Œ})5   3MUCF 172050Z 06006KT 030V090 8000 FEW018 BKN040 24/20 Q1018MUCF2018-12-17T20:50:00Z22.13-80.424.020.06064.9730.059055MVFRMETAR39.02018-12-17 21:05:445›‹Œ|(s5   3MUVR 172050Z 03007KT 9000 SCT020 OVC080 23/18 Q1018MUVR2018-12-17T20:50:00Z23.03-81.4323.018.03075.5930.059055VFRMETAR65.02018-12-17 21:05:44 âO|¶âN›‹)5    3ENSB 172050Z 11009KT 9999 FEW025 M15/M18 Q1024 RMK WIND 1400FT 20003KTENSB2018-12-17T20:50:00Z78.2515.47-15.0-18.011096.2130.236221VFR0.3METAR29.02018-12-17 21:05:44@›‹) 5   3LGAD 172050Z 00000KT 9999 FEW020 SCT030 BKN080 13/10 Q1011 RETSLGAD2018-12-17T20:50:00Z37.9221.2713.010.0006.2129.852362VFRMETAR12.02018-12-17 21:05:44M›‹)!5   3PGRO 172050Z 09010KT 7SM FEW012 SCT100 26/22 A2985 RMK WIND DATA ESTIMATEDPGRO2018-12-17T20:50:00Z14.18145.2526.022.090107.029.84941VFRMETAR185.02018-12-17 21:05:44+›‹(_5   3KGPM 172050Z 28006KT 10SM SKC 12/02 A3022KGPM2018-12-17T20:50:00Z32.7-97.0512.02.0280610.030.221457VFRMETAR180.02018-12-17 21:05:44 ¶Hr¶6›‹(u5   3EGPH 172050Z 16006KT 120V200 9999 BKN021 10/06 Q1006EGPH2018-12-17T20:50:00Z55.95-3.3510.06.016066.2129.704725MVFRMETAR41.02018-12-17 21:05:44P›‹)'5    3ENOL 172050Z 12006KT 9999 -SN SCT008 BKN040 M01/M02 Q1019 TEMPO 1200 SN VV007ENOL2018-12-17T20:50:00Z63.79.58-1.0-2.012066.2130.088583-SNVFRMETAR7.02018-12-17 21:05:44M›‹)5   3EGNS 172050Z 18023G33KT 9999 FEW009 BKN014 BKN022 11/09 Q1006 NOSIGEGNS2018-12-17T20:50:00Z54.08-4.6311.09.018023336.2129.704725TRUEMVFRMETAR17.02018-12-17 21:05:44_›‹)95     3ENRY 172050Z AUTO VRB02KT 0200NDV R12/0800VP2000D R30/0450V0800 FZFG NCD M04/M05 Q1022ENRY2018-12-17T20:50:00Z59.3710.77-4.0-5.0020.530.177166TRUEFZFGLIFRMETAR53.02018-12-17 21:05:44 ÁKˆÁA›‹ )5    3ESNV 172050Z AUTO VRB01KT 9999 OVC008/// M06/M07 Q1019 RESNESNV2018-12-17T20:50:00Z64.5816.83-6.0-7.0016.2130.088583TRUEIFRMETAR348.02018-12-17 21:05:44=›‹ (y5    3ESST 172050Z AUTO 19003KT 9999 OVC008/// M03/M04 Q1022ESST2018-12-17T20:50:00Z60.1512.98-3.0-4.019036.2130.177166TRUEIFRMETAR120.02018-12-17 21:05:44J›‹ ) 5    3ESUP 172050Z AUTO 12003KT 9999 BKN013/// OVC021/// M09/M11 Q1023ESUP2018-12-17T20:50:00Z67.2523.07-9.0-11.012036.2130.206694TRUEMVFRMETAR165.02018-12-17 21:05:44_›‹ )75   3EGYP 172050Z 25029G43KT 9999 -SHRA BKN045CB SCT200 08/01 Q1000 BLU TEMPO SCT020CB WHTEGYP2018-12-17T20:50:00Z-51.82-58.458.01.025029436.2129.52756-SHRAVFRMETAR74.02018-12-17 21:05:44 9=i´ø99›‹(}5   3ESNU 172050Z 12009KT 9999 OVC007 00/M01 Q1021 R14/75//40ESNU2018-12-17T20:50:00Z63.7820.270.0-1.012096.2130.147638IFRMETAR14.02018-12-17 21:05:446›‹(q5    3ESNZ 172050Z VRB02KT 5000 -SN OVC002 M07/M08 Q1018ESNZ2018-12-17T20:50:00Z63.1714.5-7.0-8.0023.1130.059055-SNLIFRMETAR370.02018-12-17 21:05:44/›‹(e5    3EGSH 172050Z 18008KT CAVOK 07/05 Q1019 NOSIGEGSH2018-12-17T20:50:00Z52.681.287.05.018086.2130.088583TRUEVFRMETAR36.02018-12-17 21:05:44N›‹)5     3ESGR 172050Z AUTO 19002KT 9000 BR FEW009/// OVC025/// M02/M02 Q1023ESGR2018-12-17T20:50:00Z58.4513.97-2.0-2.019025.5930.206694TRUEBRMVFRMETAR105.02018-12-17 21:05:44=›‹ ({5    3ESKM 172050Z AUTO 15003KT 4400 -SN ///033 M05/M06 Q1020ESKM2018-12-17T20:50:00Z60.9714.52-5.0-6.015032.7330.11811TRUE-SNMETAR193.02018-12-17 21:05:44 ODŒØO;›‹(y5    3ESNK 172050Z AUTO 00000KT 9999 OVC021/// M04/M04 Q1021ESNK2018-12-17T20:50:00Z63.0317.77-4.0-4.0006.2130.147638TRUEMVFRMETAR19.02018-12-17 21:05:44B›‹) 5   3ESNN 172050Z 00000KT 9999 FEW013 OVC019 M03/M03 Q1021 R16/79//38ESNN2018-12-17T20:50:00Z62.5217.43-3.0-3.0006.2130.147638MVFRMETAR10.02018-12-17 21:05:44.›‹(i5   3ESNO 172050Z 00000KT 9999 BKN006 M03/M03 Q1020ESNO2018-12-17T20:50:00Z63.3818.97-3.0-3.0006.2130.11811IFRMETAR103.02018-12-17 21:05:442›‹(i5   3ESNQ 172050Z 05003KT 9999 OVC004 M11/M13 Q1020ESNQ2018-12-17T20:50:00Z67.8220.32-11.0-13.05036.2130.11811LIFRMETAR452.02018-12-17 21:05:446›‹(q5    3ESNS 172050Z 00000KT 9999 -SN BKN015 M05/M06 Q1023ESNS2018-12-17T20:50:00Z64.6221.07-5.0-6.0006.2130.206694-SNMVFRMETAR49.02018-12-17 21:05:44 CB—É CD›‹) 5    3EGJJ 172050Z AUTO 18012KT 9999 SCT006/// BKN008/// 10/09 Q1019EGJJ2018-12-17T20:50:00Z49.22-2.210.09.0180126.2130.088583TRUEIFRMETAR84.02018-12-17 21:05:446›‹(s5   3EGTE 172050Z 17015KT 9999 FEW015 SCT023 12/10 Q1015EGTE2018-12-17T20:50:00Z50.72-3.4212.010.0170156.2129.970472VFRMETAR30.02018-12-17 21:05:44H›‹)5   3EGCK 172050Z AUTO 17024G36KT 9999 BKN020/// OVC035/// 11/09 Q1008EGCK2018-12-17T20:50:00Z53.14.3311.09.017024366.2129.763779TRUEMVFRMETAR0.02018-12-17 21:05:44%›‹(Y5   3EGCN 172050Z 15007KT CAVOK 06/06 Q1015EGCN2018-12-17T20:50:00Z53.48-1.06.06.015076.2129.970472VFRMETAR17.02018-12-17 21:05:448›‹(m5    3ESNG 172050Z 07002KT 5000 SG VV008 M06/M07 Q1021ESNG2018-12-17T20:50:00Z67.1320.82-6.0-7.07023.1130.147638SGLIFR800METAR310.02018-12-17 21:05:44 TK’ÁT9›‹ (u5    3EGMD 172050Z AUTO 22013KT 7000 SCT014/// 10/09 Q1021EGMD2018-12-17T20:50:00Z50.950.9210.09.0220134.3530.147638TRUEMVFRMETAR3.02018-12-17 21:05:44(›‹(e5   3EGTK 172050Z 19010KT 9999 FEW015 09/08 Q1016EGTK2018-12-17T20:50:00Z51.83-1.329.08.0190106.2130.0VFRMETAR82.02018-12-17 21:05:44K›‹)5    3EGPD 172050Z AUTO 16022KT 9999 SCT012 OVC025 07/06 Q1008 TEMPO BKN012EGPD2018-12-17T20:50:00Z57.2-2.227.06.0160226.2129.763779TRUEMVFRMETAR65.02018-12-17 21:05:443›‹(k5  3EGHQ 172050Z 19020G35KT 9000 BKN012 12/09 Q1012EGHQ2018-12-17T20:50:00Z50.43-5.012.09.019020355.5929.88189MVFRMETAR119.02018-12-17 21:05:44/›‹(e5   3EGJB 172050Z 19017KT 9999 FEW023 11/10 Q1018EGJB2018-12-17T20:50:00Z49.42-2.611.010.0190176.2130.059055VFRMETAR102.02018-12-17 21:05:44 4VœÇð46›‹%(q5    3ENRA 172050Z VRB02KT 9999 -SN SCT040 M10/M11 Q1022ENRA2018-12-17T20:50:00Z66.3714.3-10.0-11.0026.2130.177166-SNVFRMETAR70.02018-12-17 21:05:44Q›‹$)+5   3EGWU 172050Z 18006KT 9999 FEW012 BKN016 BKN240 09/08 Q1018 WHT BECMG FEW016 BLUEGWU2018-12-17T20:50:00Z51.55-0.429.08.018066.2130.059055MVFRMETAR40.02018-12-17 21:05:44O›‹#) 5     3KE16 172050Z AUTO 32005KT 10SM CLR 15/08 A3022 RMK AO2 PWINO PNOKE162018-12-17T20:50:00Z37.08-121.615.08.0320510.030.221457TRUETRUETRUEVFRSPECI86.02018-12-17 21:05:444›‹"(u5   3EGLF 172050Z 17009KT 150V210 9999 SCT012 09/08 Q1018EGLF2018-12-17T20:50:00Z51.28-0.779.08.017096.2130.059055VFRMETAR65.02018-12-17 21:05:44$›‹!(Y5   3EGMC 172050Z 17005KT CAVOK 07/05 Q1019EGMC2018-12-17T20:50:00Z51.570.77.05.017056.2130.088583VFRMETAR15.02018-12-17 21:05:44 >9q¬î>*›‹*(_5   3LIPX 172050Z 27004KT 6000 NSC 01/00 Q1027LIPX2018-12-17T20:50:00Z45.3810.871.00.027043.7330.324802MVFRMETAR68.02018-12-17 21:05:448›‹)(w5    3LIPZ 172050Z 31005KT 280V340 CAVOK 03/M02 Q1026 NOSIGLIPZ2018-12-17T20:50:00Z45.512.353.0-2.031056.2130.295275TRUEVFRMETAR6.02018-12-17 21:05:44?›‹()5   3ENBN 172050Z AUTO 07007KT 030V100 9999NDV OVC100/// M02/M04 Q1021ENBN2018-12-17T20:50:00Z65.4712.22-2.0-4.070730.147638TRUEMETAR9.02018-12-17 21:05:44B›‹')5    3ENBV 172050Z 25012KT 5000 -SHSN FEW010 BKN020 00/M03 Q1020ENBV2018-12-17T20:50:00Z70.8729.020.0-3.0250123.1130.11811-SHSNMVFRMETAR13.02018-12-17 21:05:44A›‹&) 5   3ENHF 172050Z 21008KT CAVOK 00/M03 Q1021 RMK WIND 1254FT 23013KTENHF2018-12-17T20:50:00Z70.6723.670.0-3.021086.2130.147638VFRMETAR81.02018-12-17 21:05:44 •MžðD•)›‹/(]5   3LIPB 172050Z VRB02KT CAVOK M03/M05 Q1026LIPB2018-12-17T20:50:00Z46.4711.32-3.0-5.0026.2130.295275VFRMETAR241.02018-12-17 21:05:44&›‹.([5   3LIPE 172050Z 24003KT CAVOK 00/M00 Q1027LIPE2018-12-17T20:50:00Z44.5211.30.00.024036.2130.324802VFRMETAR42.02018-12-17 21:05:44(›‹-([5   3LIPH 172050Z 24001KT CAVOK 01/M01 Q1026LIPH2018-12-17T20:50:00Z45.6312.171.0-1.024016.2130.295275VFRMETAR23.02018-12-17 21:05:44)›‹,(]5   3LIPQ 172050Z 34003KT CAVOK M00/M03 Q1026LIPQ2018-12-17T20:50:00Z45.8213.470.0-3.034036.2130.295275VFRMETAR12.02018-12-17 21:05:44-›‹+(e5   3LIPR 172050Z 28012KT 9999 FEW030 03/00 Q1026LIPR2018-12-17T20:50:00Z44.0212.623.00.0280126.2130.295275VFRMETAR13.02018-12-17 21:05:44 X=zÆX&›‹4(Y5   3LIRQ 172050Z 36008KT CAVOK 06/01 Q1025LIRQ2018-12-17T20:50:00Z43.7811.186.01.036086.2130.265747VFRMETAR38.02018-12-17 21:05:44<›‹3({5    3LIBD 172050Z 36016KT 8000 -DZ SCT010 BKN025 09/07 Q1014LIBD2018-12-17T20:50:00Z41.1216.779.07.0360164.9729.940945-DZMVFRMETAR44.02018-12-17 21:05:44.›‹2(e5   3LIBR 172050Z 04016KT 8000 BKN010 11/09 Q1011LIBR2018-12-17T20:50:00Z40.6517.9511.09.040164.9729.852362MVFRMETAR10.02018-12-17 21:05:44=›‹1) 5   3LICC 172050Z 26007KT 9999 SCT050 10/07 Q1016 RMK WS FINAL RWY 26LICC2018-12-17T20:50:00Z37.4715.0510.07.026076.2130.0VFRMETAR17.02018-12-17 21:05:44=›‹0)5   3LICJ 172050Z 32022KT 9999 SCT030 SCT070 14/09 Q1018 RESHRALICJ2018-12-17T20:50:00Z38.1713.0814.09.0320226.2130.059055VFRMETAR34.02018-12-17 21:05:44 ~K‘å'~#›‹9(Y5   3LIMJ 172050Z 03009KT CAVOK 08/00 Q1025LIMJ2018-12-17T20:50:00Z44.428.838.00.03096.2130.265747VFRMETAR3.02018-12-17 21:05:448›‹8(q5     3LIML 172050Z 29005KT 4000 BR NSC 02/01 Q1027 NOSIGLIML2018-12-17T20:50:00Z45.479.272.01.029052.4930.324802TRUEBRIFRMETAR103.02018-12-17 21:05:44&›‹7(Y5   3LIRA 172050Z 01015KT CAVOK 07/01 Q1018LIRA2018-12-17T20:50:00Z41.812.587.01.010156.2130.059055VFRMETAR101.02018-12-17 21:05:444›‹6(k5   3LIRF 172050Z 01020G33KT CAVOK 08/00 Q1018 NOSIGLIRF2018-12-17T20:50:00Z41.7812.228.00.01020336.2130.059055TRUEVFRMETAR3.02018-12-17 21:05:44/›‹5(q5    3LIRN 172050Z 06006KT 9999 FEW070 09/02 Q1016 NOSIGLIRN2018-12-17T20:50:00Z40.8814.39.02.06066.2130.0TRUEVFRMETAR72.02018-12-17 21:05:44 >J‰£ê>&›‹>(Y5   3LIEE 172050Z 34014KT CAVOK 11/08 Q1023LIEE2018-12-17T20:50:00Z39.259.0711.08.0340146.2130.206694VFRMETAR4.02018-12-17 21:05:443›‹=(u5   3LIEO 172050Z 24004KT 210V270 9999 FEW020 08/05 Q1024LIEO2018-12-17T20:50:00Z40.889.528.05.024046.2130.236221VFRMETAR13.02018-12-17 21:05:44`›‹<);5     3LIMC 172050Z 25009KT 3000 R35R/P1500N R17L/1400D R35L/P1500N BCFG NSC 01/00 Q1026 NOSIGLIMC2018-12-17T20:50:00Z45.628.721.00.025091.8630.295275TRUEBCFGIFRMETAR211.02018-12-17 21:05:44;›‹;(u5     3LIME 172050Z 34002KT 4500 BR NSC M01/M02 Q1026 NOSIGLIME2018-12-17T20:50:00Z45.679.68-1.0-2.034022.830.295275TRUEBRIFRMETAR237.02018-12-17 21:05:440›‹:(i5    3LIMF 172050Z 29004KT 2000 BR NSC M00/M00 Q1026LIMF2018-12-17T20:50:00Z45.227.650.00.029041.2430.295275BRIFRMETAR287.02018-12-17 21:05:44 ÀF~¬Àf›‹B)M5    3LOWG 172050Z VRB01KT 0900 R17/P1500U R35/0650U FZBCFG FEW250 M06/M07 Q1027 R17/19//95 TEMPO 0400LOWG2018-12-17T20:50:00Z47.015.42-6.0-7.0010.5630.324802BCFGLIFRMETAR347.02018-12-17 21:05:44L›‹A) 5     3LOWK 172050Z AUTO 30005KT 9999 FEW190 OVC210 M05/M06 Q1027 NOSIGLOWK2018-12-17T20:50:00Z46.6514.32-5.0-6.030056.2130.324802TRUETRUEVFRMETAR441.02018-12-17 21:05:44B›‹@) 5   3LOXZ 172050Z VRB03KT 9000 FEW055SC BKN230CI M09/M11 Q1025 NOSIGLOXZ2018-12-17T20:50:00Z47.214.75-9.0-11.0035.5930.265747TRUEMETAR682.02018-12-17 21:05:444›‹?(u5   3LIEA 172050Z 36004KT 320V110 9999 SCT030 11/07 Q1025LIEA2018-12-17T20:50:00Z40.628.2711.07.036046.2130.265747VFRMETAR23.02018-12-17 21:05:44 ©:N{©L›‹F)5    3LOWW 172050Z 01004KT 7000 FEW044 BKN048 00/M01 Q1027 R88/11//95 NOSIGLOWW2018-12-17T20:50:00Z48.1216.570.0-1.01044.3530.324802TRUEMVFRMETAR190.02018-12-17 21:05:44M›‹E)5     3LOWL 172050Z AUTO VRB01KT 6000 BKN024 M00/M01 Q1028 R08/450195 NOSIGLOWL2018-12-17T20:50:00Z48.2214.180.0-1.0013.7330.35433TRUETRUEMVFRMETAR313.02018-12-17 21:05:44f›‹D)A5     3LOWS 172050Z 16003KT 140V200 7000 -SHRA FEW016 SCT022 BKN034 01/M01 Q1028 R15/19//95 NOSIGLOWS2018-12-17T20:50:00Z47.7813.021.0-1.016034.3530.35433TRUE-SHRAMVFRMETAR430.02018-12-17 21:05:44@›‹C)5    3LOWI 172050Z VRB02KT 9999 SCT070 BKN080 M01/M03 Q1028 NOSIGLOWI2018-12-17T20:50:00Z47.2711.33-1.0-3.0026.2130.35433TRUEVFRMETAR581.02018-12-17 21:05:44 FK˜ÝFP›‹K)5     3ESSD 172050Z AUTO 24007KT 1000 R32/P1500N -SN OVC007/// M04/M04 Q1021ESSD2018-12-17T20:50:00Z60.4215.5-4.0-4.024070.6230.147638TRUE-SNLIFRMETAR161.02018-12-17 21:05:44;›‹J(5   3ESSP 172050Z 24004KT 9999 BKN016 M02/M02 Q1024 R27/790141ESSP2018-12-17T20:50:00Z58.5716.25-2.0-2.024046.2130.236221MVFRMETAR8.02018-12-17 21:05:445›‹I(s5   3ESSV 172050Z 17003KT CAVOK M01/M02 Q1024 R21/71//65ESSV2018-12-17T20:50:00Z57.6718.35-1.0-2.017036.2130.236221VFRMETAR47.02018-12-17 21:05:44-›‹H(e5   3KESN 172050Z 23008KT 10SM SCT250 11/02 A2984KESN2018-12-17T20:50:00Z38.8-76.0711.02.0230810.029.840551VFRMETAR22.02018-12-17 21:05:44/›‹G(g5   3KOLV 172050Z 00000KT 10SM FEW250 15/M01 A3020KOLV2018-12-17T20:50:00Z34.98-89.7815.0-1.00010.030.200787VFRMETAR122.02018-12-17 21:05:44 I^‘ف7›‹P(w5   3ESOE 172050Z 20004KT 9999 SCT013 BKN020 M00/M01 Q1022ESOE2018-12-17T20:50:00Z59.2215.050.0-1.020046.2130.177166MVFRMETAR57.02018-12-17 21:05:442›‹O(i5   3ESOK 172050Z 20002KT 9999 BKN012 M03/M03 Q1022ESOK2018-12-17T20:50:00Z59.4513.33-3.0-3.020026.2130.177166MVFRMETAR107.02018-12-17 21:05:44G›‹N) 5    3ESOW 172050Z AUTO 22004KT 9999 FEW017/// OVC029/// M00/M02 Q1023ESOW2018-12-17T20:50:00Z59.5716.620.0-2.022046.2130.206694TRUEMVFRMETAR31.02018-12-17 21:05:44e›‹M)I5    3ESSA 172050Z 18005KT 9999 FEW014 BKN031 M01/M02 Q1022 R01L/510166 R08/510174 R01R/510178 NOSIGESSA2018-12-17T20:50:00Z59.6317.93-1.0-2.018056.2130.177166TRUEVFRMETAR61.02018-12-17 21:05:441›‹L(i5   3ESSB 172050Z 21002KT 9999 BKN029 M01/M01 Q1023ESSB2018-12-17T20:50:00Z59.3517.93-1.0-1.021026.2130.206694MVFRMETAR11.02018-12-17 21:05:44 ë?r²ëA›‹T) 5   3ESSL 172050Z VRB01KT 9999 SCT016 OVC035 M02/M02 Q1023 R29/19//95ESSL2018-12-17T20:50:00Z58.3815.67-2.0-2.0016.2130.206694VFRMETAR52.02018-12-17 21:05:44:›‹S(y5    3ESIA 172050Z AUTO VRB01KT 9999 OVC011/// M01/M03 Q1023ESIA2018-12-17T20:50:00Z58.5214.5-1.0-3.0016.2130.206694TRUEMVFRMETAR94.02018-12-17 21:05:44G›‹R) 5    3ESCM 172050Z AUTO 23005KT 9999 SCT009/// OVC027/// M01/M01 Q1022ESCM2018-12-17T20:50:00Z59.8717.6-1.0-1.023056.2130.177166TRUEMVFRMETAR41.02018-12-17 21:05:44;›‹Q(5   3ESKN 172050Z 24003KT 9999 OVC029 M03/M03 Q1023 R26/650158ESKN2018-12-17T20:50:00Z58.7816.9-3.0-3.024036.2130.206694MVFRMETAR43.02018-12-17 21:05:44 ÉX~Ɂ/›‹X(i5   3ESDF 172050Z 04003KT 9999 OVC044 M01/M01 Q1024ESDF2018-12-17T20:50:00Z56.2715.27-1.0-1.04036.2130.236221VFRMETAR74.02018-12-17 21:05:44T›‹W)5     3ESIB 172050Z AUTO 19003KT 4300 -SG BR FEW012/// OVC064/// M01/M01 Q1023ESIB2018-12-17T20:50:00Z58.4212.68-1.0-1.019032.6730.206694TRUE-SG BRIFRMETAR74.02018-12-17 21:05:447›‹V(w5   3ESPA 172050Z 34003KT 9999 BKN007 OVC014 M06/M07 Q1024ESPA2018-12-17T20:50:00Z65.5322.12-6.0-7.034036.2130.236221IFRMETAR34.02018-12-17 21:05:44e›‹U);5     3ESPE 172050Z AUTO 00000KT 0250 0200// R11/0650N R29/0650V1000D FZFG VV004 M06/M06 Q1022ESPE2018-12-17T20:50:00Z65.8820.15-6.0-6.0000.1630.177166TRUEFZFGLIFR400METAR182.02018-12-17 21:05:44 R2g´ÿR'›‹](Y5   3EGNX 172050Z 18015KT CAVOK 08/07 Q1014EGNX2018-12-17T20:50:00Z52.82-1.328.07.0180156.2129.940945VFRMETAR94.02018-12-17 21:05:44/›‹\(e5   3EGHH 172050Z 18012KT 9999 BKN013 11/09 Q1017EGHH2018-12-17T20:50:00Z50.78-1.8311.09.0180126.2130.029528MVFRMETAR11.02018-12-17 21:05:44-›‹[(e5   3EGKB 172050Z 18013KT 9999 BKN006 09/08 Q1019EGKB2018-12-17T20:50:00Z51.320.029.08.0180136.2130.088583IFRMETAR183.02018-12-17 21:05:44E›‹Z(y5     3ESND 172050Z AUTO VRB02KT 3300 -SN VV029 M11/M12 Q1018ESND2018-12-17T20:50:00Z62.0514.42-11.0-12.0022.0530.059055TRUE-SNLIFR2900METAR359.02018-12-17 21:05:44H›‹Y) 5    3ESCF 172050Z AUTO 20004KT 9999 FEW017/// OVC034/// M02/M03 Q1023ESCF2018-12-17T20:50:00Z58.3815.52-2.0-3.020046.2130.206694TRUEVFRMETAR117.02018-12-17 21:05:44 (N‡Âí(?›‹b({5   3EGAC 172050Z AUTO 17025G35KT 9999 SCT018/// 12/10 Q1001EGAC2018-12-17T20:50:00Z54.62-5.8712.010.017025356.2129.557087TRUEVFRMETAR5.02018-12-17 21:05:44O›‹a)5     3EGFF 172050Z AUTO 17011KT 9000 -RA BKN020 BKN026 BKN031 11/10 Q1014EGFF2018-12-17T20:50:00Z51.38-3.3511.010.0170115.5929.940945TRUE-RAMVFRMETAR67.02018-12-17 21:05:44?›‹`(5    3EGGW 172050Z AUTO 18008KT 150V220 9000 OVC004 08/07 Q1017EGGW2018-12-17T20:50:00Z51.87-0.378.07.018085.5930.029528TRUELIFRMETAR160.02018-12-17 21:05:44A›‹_)5   3EGLC 172050Z AUTO 17006G18KT 110V250 9999 SCT014 10/08 Q1018EGLC2018-12-17T20:50:00Z51.50.0510.08.01706186.2130.059055TRUEVFRMETAR5.02018-12-17 21:05:44,›‹^(e5   3EGNM 172050Z 15007KT 9999 FEW020 05/05 Q1012EGNM2018-12-17T20:50:00Z53.87-1.635.05.015076.2129.88189VFRMETAR208.02018-12-17 21:05:44 .H€¨ì.8›‹g(q5    3EGPK 172050Z 15014KT 9000 -SHRA BKN022 10/08 Q1004EGPK2018-12-17T20:50:00Z55.5-4.5710.08.0150145.5929.64567-SHRAMVFRMETAR20.02018-12-17 21:05:446›‹f(o5    3EGSS 172050Z AUTO 16009KT 8000 FEW020 07/06 Q1018EGSS2018-12-17T20:50:00Z51.880.227.06.016094.9730.059055TRUEMVFRMETAR106.02018-12-17 21:05:44R›‹e)'5    3EGCC 172050Z AUTO 17006KT 120V230 9999 SCT028 BKN035 09/06 Q1013 TEMPO BKN014EGCC2018-12-17T20:50:00Z53.35-2.279.06.017066.2129.911417TRUEVFRMETAR78.02018-12-17 21:05:44B›‹d({5     3EGLL 172050Z AUTO 18011KT 9999 BKN017 10/08 Q1018 NOSIGEGLL2018-12-17T20:50:00Z51.48-0.4510.08.0180116.2130.059055TRUETRUEMVFRMETAR24.02018-12-17 21:05:442›‹c(k5  3EGAA 172050Z 17017G29KT 9999 FEW027 12/09 Q1000EGAA2018-12-17T20:50:00Z54.63-6.2212.09.017017296.2129.52756VFRMETAR81.02018-12-17 21:05:44 eE‹Øe.›‹l(e5   3EGNR 172050Z 14010KT 9999 BKN020 09/07 Q1011EGNR2018-12-17T20:50:00Z53.17-2.979.07.0140106.2129.852362MVFRMETAR10.02018-12-17 21:05:449›‹k({5  3EGPE 172050Z 19015G29KT 140V220 9999 FEW025 09/05 Q1003EGPE2018-12-17T20:50:00Z57.52-4.039.05.019015296.2129.616142VFRMETAR9.02018-12-17 21:05:44-›‹j(e5   3EGBB 172050Z 17007KT 9999 BKN020 08/07 Q1015EGBB2018-12-17T20:50:00Z52.47-1.758.07.017076.2129.970472MVFRMETAR99.02018-12-17 21:05:444›‹i(s5   3EGKK 172050Z 20007KT 9999 FEW011 BKN020 09/08 Q1019EGKK2018-12-17T20:50:00Z51.13-0.179.08.020076.2130.088583MVFRMETAR62.02018-12-17 21:05:445›‹h(o5    3EGPF 172050Z AUTO 13014KT 9999 BKN034 10/07 Q1004EGPF2018-12-17T20:50:00Z55.87-4.4210.07.0130146.2129.64567TRUEVFRMETAR8.02018-12-17 21:05:44 IS™ÍI2›‹q(i5    3EGPM 172050Z AUTO 15020KT 9999 NCD 07/04 Q1008EGPM2018-12-17T20:50:00Z60.42-1.37.04.0150206.2129.763779TRUEVFRMETAR22.02018-12-17 21:05:44F›‹p) 5    3EGPO 172050Z AUTO 15025KT 9999 FEW016/// OVC022/// 11/06 Q0996EGPO2018-12-17T20:50:00Z58.22-6.3211.06.0150256.2129.409449TRUEMVFRMETAR13.02018-12-17 21:05:44F›‹o)5   3EGAE 172050Z 17021G36KT 9999 -SHRA SCT025 BKN031 12/10 Q0996EGAE2018-12-17T20:50:00Z55.03-7.1512.010.017021366.2129.409449-SHRAVFRMETAR9.02018-12-17 21:05:444›‹n(s5   3EGNH 172050Z 14020KT 9999 FEW025 SCT031 09/07 Q1010EGNH2018-12-17T20:50:00Z53.77-3.029.07.0140206.2129.822834VFRMETAR10.02018-12-17 21:05:44'›‹m(Y5   3EGNJ 172050Z 17015KT CAVOK 07/06 Q1015EGNJ2018-12-17T20:50:00Z53.57-0.357.06.0170156.2129.970472VFRMETAR31.02018-12-17 21:05:44 )KŒÛ),›‹v(e5   3EGNV 172050Z 17012KT 9999 FEW048 06/04 Q1012EGNV2018-12-17T20:50:00Z54.52-1.426.04.0170126.2129.88189VFRMETAR37.02018-12-17 21:05:44+›‹u(e5   3EGPB 172050Z 16023KT 9999 SCT019 08/04 Q1008EGPB2018-12-17T20:50:00Z59.87-1.38.04.0160236.2129.763779VFRMETAR5.02018-12-17 21:05:449›‹t(u5    3EGPA 172050Z AUTO 16024KT 9999 FEW016/// 08/05 Q1005EGPA2018-12-17T20:50:00Z58.95-2.888.05.0160246.2129.675198TRUEVFRMETAR21.02018-12-17 21:05:44N›‹s)5    3EGPC 172050Z AUTO 17023G35KT 140V200 9999 -RA SCT011/// 07/05 Q1005EGPC2018-12-17T20:50:00Z58.45-3.077.05.017023356.2129.675198TRUE-RAVFRMETAR39.02018-12-17 21:05:44[›‹r)+5    3EGPL 172050Z AUTO 15032G46KT 9000 -RA SCT011/// BKN015/// OVC042/// 10/09 Q0992EGPL2018-12-17T20:50:00Z57.47-7.3710.09.015032465.5929.291338TRUE-RAMVFRMETAR6.02018-12-17 21:05:44 :G‹Ñ :J›‹{)5     3VNKT 172050Z 00000KT 3000 BR FEW010 SCT030 BKN100 09/04 Q1022 NOSIGVNKT2018-12-17T20:50:00Z27.6885.379.04.0001.8630.177166TRUEBRIFRMETAR1337.02018-12-17 21:05:44A›‹z(}5    3EGGD 172050Z AUTO 18013KT 9999 BKN010 OVC026 10/10 Q1015EGGD2018-12-17T20:50:00Z51.37-2.7210.010.0180136.2129.970472TRUEMVFRMETAR189.02018-12-17 21:05:444›‹y(s5   3EGGP 172050Z 15013KT 9999 SCT020 BKN038 09/06 Q1011EGGP2018-12-17T20:50:00Z53.32-2.859.06.0150136.2129.852362VFRMETAR26.02018-12-17 21:05:446›‹x(u5   3EGHI 172050Z 17010KT 130V210 9999 FEW022 10/08 Q1018EGHI2018-12-17T20:50:00Z50.95-1.3510.08.0170106.2130.059055VFRMETAR14.02018-12-17 21:05:443›‹w(u5   3EGNT 172050Z 16006KT 100V200 9999 FEW045 06/04 Q1011EGNT2018-12-17T20:50:00Z55.02-1.76.04.016066.2129.852362VFRMETAR81.02018-12-17 21:05:44 f2zÆf&›‹Ž(e5   3MSSM 172050Z 36008KT CAVOK 34/15 Q//// A////MSSM2018-12-17T20:50:00Z13.43-88.1234.015.036086.21VFRMETAR80.02018-12-17 21:05:44.›‹(e5   3MSLU 172050Z 34005KT CAVOK 34/17 Q1010 A2984MSLU2018-12-17T20:50:00Z13.33-87.8834.017.034056.2129.822834VFRMETAR5.02018-12-17 21:05:44.›‹~(e5    3OOMS 172050Z 00000KT CAVOK 19/10 Q1020 NOSIGOOMS2018-12-17T20:50:00Z23.5758.2719.010.0006.2130.11811TRUEVFRMETAR8.02018-12-17 21:05:442›‹}(e5    3OOSA 172050Z 36007KT CAVOK 24/11 Q1017 NOSIGOOSA2018-12-17T20:50:00Z17.0254.0724.011.036076.2130.029528TRUEVFRMETAR20.02018-12-17 21:05:44H›‹|) 5     3OODQ 172050Z AUTO 07014KT 9999 SCT036 BKN044 23/16 Q1018 NOSIGOODQ2018-12-17T20:50:00Z19.5257.6523.016.070146.2130.059055TRUETRUEVFRMETAR0.02018-12-17 21:05:44 HO™ä HR›‹Ž)5    3KO86 172050Z AUTO 15003KT 10SM SCT036 BKN041 BKN047 09/04 A3017 RMK AO1KO862018-12-17T20:50:00Z40.98-122.79.04.0150310.030.171259TRUETRUEVFRMETAR729.02018-12-17 21:05:44>›‹Ž(y5    3KMCC 172050Z AUTO 00000KT 10SM CLR 14/08 A3022 RMK AO2KMCC2018-12-17T20:50:00Z38.67-121.414.08.00010.030.221457TRUETRUEVFRSPECI23.02018-12-17 21:05:44/›‹Ž(e5   3MSAC 172050Z 20007KT CAVOK 31/18 Q1008 A2978MSAC2018-12-17T20:50:00Z13.57-89.8331.018.020076.2129.763779VFRMETAR15.02018-12-17 21:05:440›‹Ž(e5   3MSSA 172050Z 35004KT CAVOK 26/15 Q1019 A3010MSSA2018-12-17T20:50:00Z13.97-89.5726.015.035046.2130.088583VFRMETAR725.02018-12-17 21:05:44+›‹Ž(e5   3MSSS 172050Z 35010KT CAVOK 26/15 Q1016 A3000MSSS2018-12-17T20:50:00Z13.7-89.1226.015.0350106.2130.0VFRMETAR616.02018-12-17 21:05:44 !6}Ãü!U›‹Ž )!5   3MMCE 172050Z 33003KT 6SM BKN060 22/18 A3011 RMK SLP139 57026 964 8/020 HZYMMCE2018-12-17T20:50:00Z18.65-91.822.018.033036.030.1092531013.9VFR-2.6METAR2.02018-12-17 21:05:44A›‹Ž (y5    3K6I2 172050Z AUTO 24007KT 10SM CLR 11/05 A3014 RMK AO2K6I22018-12-17T20:50:00Z37.63-85.2511.05.0240710.030.138779TRUETRUEVFRMETAR264.02018-12-17 21:05:444›‹Ž({5   3EGDY 172050Z 18013KT 9999 BKN016 SCT024 12/09 Q1016 WHTEGDY2018-12-17T20:50:00Z51.0-2.6212.09.0180136.2130.0MVFRMETAR23.02018-12-17 21:05:443›‹Ž(m5   3EGOV 172050Z 17030KT 9999 BKN030 11/09 Q1007 BLUEGOV2018-12-17T20:50:00Z53.25-4.5311.09.0170306.2129.734253MVFRMETAR11.02018-12-17 21:05:44D›‹Ž(5   3K54A 172050Z AUTO VRB03G10KT 10SM CLR 18/11 A3009 RMK AO2K54A2018-12-17T20:50:00Z26.85-82.2518.011.0031010.030.088583TRUETRUEVFRMETAR14.02018-12-17 21:05:44 HB‡¼ÿH1›‹Ž(5   3LGPA 172050Z AUTO 13005KT //// // ////// 11/09 Q1016 RE//LGPA2018-12-17T20:50:00Z37.025.1311.09.0130530.0TRUEMETAR36.02018-12-17 21:05:447›‹Ž(5   3LGSO 172050Z AUTO 14008KT //// // ////// 12/09 Q1015 RE//LGSO2018-12-17T20:50:00Z37.4224.9512.09.0140829.970472TRUEMETAR72.02018-12-17 21:05:44E›‹Ž )5   3MSLP 172050Z 02010G20KT 9999 FEW077 32/16 Q1011 A2986 NOSIGMSLP2018-12-17T20:50:00Z13.43-89.0532.016.02010206.2129.852362TRUEVFRMETAR25.02018-12-17 21:05:445›‹Ž (k5  3PHJH 172050Z 03013G18KT 15SM SCT040 26/15 A3016PHJH2018-12-17T20:50:00Z20.97-156.6726.015.030131815.030.159449VFRMETAR78.02018-12-17 21:05:448›‹Ž (q5    3LCRA 172050Z 29002KT 9999 SCT080 13/11 Q1017 NOSIGLCRA2018-12-17T20:50:00Z34.5732.9713.011.029026.2130.029528TRUEVFRMETAR23.02018-12-17 21:05:44 3C½3K›‹Ž)5   3ENKR 172050Z 18005KT 130V260 CAVOK M07/M10 Q1022 RMK WIND 731FT 23017KTENKR2018-12-17T20:50:00Z69.7229.88-7.0-10.018056.2130.177166VFRMETAR91.02018-12-17 21:05:443›‹Ž(w5   3ENML 172050Z 04006KT 9999 FEW065 BKN100 M01/M05 Q1020ENML2018-12-17T20:50:00Z62.757.27-1.0-5.04066.2130.11811VFRMETAR3.02018-12-17 21:05:44J›‹Ž)5   3ENNA 172050Z 17011KT 9999 BKN036 M09/M13 Q1023 RMK WIND 1800FT 27011KTENNA2018-12-17T20:50:00Z70.0724.97-9.0-13.0170116.2130.206694VFRMETAR8.02018-12-17 21:05:440›‹Ž(s5   3LGBL 172050Z 00000KT 9999 FEW030 BKN080 07/04 Q1015LGBL2018-12-17T20:50:00Z39.2222.87.04.0006.2129.970472VFRMETAR26.02018-12-17 21:05:447›‹Ž(5   3LGKP 172050Z AUTO 27005KT //// // ////// 14/09 Q1017 RE//LGKP2018-12-17T20:50:00Z35.4227.1514.09.0270530.029528TRUEMETAR20.02018-12-17 21:05:44 )t«öX›‹Ž)55   3ENAT 172050Z 21003KT 160V250 9999 SCT041 BKN057 M11/M15 Q1024 RMK WIND 700FT 17009KTENAT2018-12-17T20:50:00Z69.9723.37-11.0-15.021036.2130.236221VFRMETAR3.02018-12-17 21:05:44/›‹Ž(i5   3ENBL 172050Z 34003KT 9999 BKN050 M01/M06 Q1019ENBL2018-12-17T20:50:00Z61.45.77-1.0-6.034036.2130.088583VFRMETAR150.02018-12-17 21:05:44C›‹Ž) 5   3ENEV 172050Z VRB02KT CAVOK M10/M11 Q1022 RMK WIND 1400FT 15007KTENEV2018-12-17T20:50:00Z68.5216.67-10.0-11.0026.2130.177166VFRMETAR26.02018-12-17 21:05:44/›‹Ž(q5   3ENFL 172050Z AUTO 10012KT 9999NDV NCD 04/M03 Q1019ENFL2018-12-17T20:50:00Z61.575.024.0-3.01001230.088583TRUEMETAR9.02018-12-17 21:05:44Q›‹Ž)15   3ENKB 172050Z VRB02KT 9999 FEW029 SCT045 BKN064 01/M04 Q1019 RMK WIND 745FT 23006KTENKB2018-12-17T20:50:00Z63.127.821.0-4.0026.2130.088583VFRMETAR62.02018-12-17 21:05:44 OGŒÖ O8›‹Ž(w5   3ENVD 172050Z 28012KT 9999 FEW025 SCT070 M04/M09 Q1021ENVD2018-12-17T20:50:00Z70.0729.85-4.0-9.0280126.2130.147638VFRMETAR39.02018-12-17 21:05:44C›‹Ž)5    3LGKL 172050Z AUTO 08004KT 320V110 //// -RA ////// 12/10 Q1013 RE//LGKL2018-12-17T20:50:00Z37.0722.0212.010.080429.911417TRUE-RAMETAR8.02018-12-17 21:05:440›‹Ž(5   3LGLM 172050Z AUTO 03004KT //// // ////// 10/08 Q1016 RE//LGLM2018-12-17T20:50:00Z39.9225.2310.08.030430.0TRUEMETAR5.02018-12-17 21:05:445›‹Ž(s5   3LGSA 172050Z 00000KT 9999 FEW020 BKN030 14/11 Q1015LGSA2018-12-17T20:50:00Z35.5324.1314.011.0006.2129.970472MVFRMETAR135.02018-12-17 21:05:443›‹Ž(q5    3LGTS 172050Z VRB03KT 9999 SCT025 07/03 Q1017 NOSIGLGTS2018-12-17T20:50:00Z40.5222.977.03.0036.2130.029528TRUEVFRMETAR7.02018-12-17 21:05:44 ;<e¦î;-›‹Ž#(e5    3EBOS 172050Z 19009KT CAVOK 06/04 Q1022 NOSIGEBOS2018-12-17T20:50:00Z51.22.876.04.019096.2130.177166TRUEVFRMETAR5.02018-12-17 21:05:442›‹Ž"(w5   3EEKE 172050Z AUTO 20008KT 9999NDV OVC011 00/M01 Q1025EEKE2018-12-17T20:50:00Z58.2322.520.0-1.0200830.265747TRUEMETAR4.02018-12-17 21:05:449›‹Ž!(m5    3EETU 172050Z 16003KT 3000 SN VV020 M04/M04 Q1027EETU2018-12-17T20:50:00Z58.3226.68-4.0-4.016031.8630.324802SNLIFR2000METAR67.02018-12-17 21:05:44Q›‹Ž )'5   3ENMS 172050Z 16003KT 120V210 9999 SCT054 M09/M10 Q1021 RMK WIND 412FT VRB02KTENMS2018-12-17T20:50:00Z65.7813.22-9.0-10.016036.2130.147638VFRMETAR70.02018-12-17 21:05:44>›‹Ž)5    3ENRM 172050Z 08005KT 030V110 9999 -SN FEW020 M02/M03 Q1020ENRM2018-12-17T20:50:00Z64.8311.13-2.0-3.08056.2130.11811-SNVFRMETAR14.02018-12-17 21:05:44 BD~½üB4›‹Ž()5    3LGSR 172050Z AUTO VRB03KT //// -RA ////// 10/06 Q1016 RE//LGSR2018-12-17T20:50:00Z36.425.4810.06.00330.0TRUE-RAMETAR40.02018-12-17 21:05:44;›‹Ž'(5    3EBAW 172050Z 21007KT 9999 FEW012 SCT044 06/05 Q1023 NOSIGEBAW2018-12-17T20:50:00Z51.24.476.05.021076.2130.206694TRUEVFRMETAR14.02018-12-17 21:05:44;›‹Ž&(5    3EBBR 172050Z 21010KT 9999 FEW009 SCT048 06/05 Q1024 NOSIGEBBR2018-12-17T20:50:00Z50.94.56.05.0210106.2130.236221TRUEVFRMETAR58.02018-12-17 21:05:44@›‹Ž%)5    3EBCI 172050Z 20012KT 180V240 8000 OVC007 06/05 Q1024 NOSIGEBCI2018-12-17T20:50:00Z50.474.456.05.0200124.9730.236221TRUEIFRMETAR192.02018-12-17 21:05:446›‹Ž$(q5    3EBLG 172050Z 20009KT 9000 SCT016 05/04 Q1024 NOSIGEBLG2018-12-17T20:50:00Z50.635.455.04.020095.5930.236221TRUEVFRMETAR178.02018-12-17 21:05:44 µ6rµ7›‹Ž,)5   3ENLA 172050Z AUTO 14031KT //// BKN007/// 06/05 Q1015 W///S4ENLA2018-12-17T20:50:00Z57.12.836.05.01403129.970472TRUEMETAR4.02018-12-17 21:05:44>›‹Ž+)5    3LGEL 172050Z VRB03KT 9000 RA FEW025 BKN040 OVC070 09/08 Q1015LGEL2018-12-17T20:50:00Z38.0723.559.08.0035.5929.970472RAVFRMETAR31.02018-12-17 21:05:44c›‹Ž*)E5   3LGPZ 172050Z 03012G27KT 5000 TSRA FEW018CB BKN020 OVC070 09/08 Q1011 RMK CB OVER STATION WHTLGPZ2018-12-17T20:50:00Z38.9220.779.08.03012273.1129.852362TSRAMVFRMETAR4.02018-12-17 21:05:44[›‹Ž))35    3LGRX 172050Z 35004KT 9000 -TSRA FEW018CB BKN025 OVC080 12/12 Q1012 RMK CB E 5KM BLULGRX2018-12-17T20:50:00Z38.1721.4212.012.035045.5929.88189-TSRAMVFRMETAR15.02018-12-17 21:05:44 Ð*h¦ÐP›‹Ž0)15   3ENSE 172050Z AUTO 16035KT 9999NDV FEW016/// SCT023/// BKN030/// 08/05 Q1014 W///S5ENSE2018-12-17T20:50:00Z61.452.158.05.01603529.940945TRUEMETAR10.02018-12-17 21:05:44<›‹Ž/) 5   3ENQC 172050Z AUTO 15030KT 9999NDV BKN019/// 06/02 Q1017 W///S5ENQC2018-12-17T20:50:00Z60.883.626.02.01503030.029528TRUEMETAR20.02018-12-17 21:05:44<›‹Ž.) 5   3ENQA 172050Z AUTO 16031KT 9999NDV OVC019/// 05/01 Q1017 W05/S5ENQA2018-12-17T20:50:00Z60.653.725.01.01603130.029528TRUEMETAR20.02018-12-17 21:05:44P›‹Ž-)15   3ENHM 172050Z AUTO 14036KT 9999NDV FEW010/// BKN012/// BKN015/// 06/05 Q1014 W08/S5ENHM2018-12-17T20:50:00Z59.572.236.05.01403629.940945TRUEMETAR10.02018-12-17 21:05:44 >p›Õ9›‹Ž5)5   3ENSF 172050Z AUTO 16039KT //// BKN016/// 08/04 Q1014 W///S5ENSF2018-12-17T20:50:00Z61.251.858.04.01603929.940945TRUEMETAR10.02018-12-17 21:05:44@›‹Ž4) 5   3ENOV 172050Z VRB01KT CAVOK M03/M05 Q1019 RMK WIND 2175FT 14014KTENOV2018-12-17T20:50:00Z62.176.07-3.0-5.0016.2130.088583VFRMETAR74.02018-12-17 21:05:44O›‹Ž3)%5   3ENSS 172050Z 24013KT 9999 SCT040 BKN055 M02/M05 Q1020 RMK WIND 500FT 24021KTENSS2018-12-17T20:50:00Z70.3331.05-2.0-5.0240136.2130.11811VFRMETAR12.02018-12-17 21:05:44H›‹Ž2)5   3ENNE 172050Z AUTO 13015KT 9999NDV BKN042/// BKN053/// 03/M02 Q1019 W///S4ENNE2018-12-17T20:50:00Z66.038.083.0-2.01301530.088583TRUEMETAR10.02018-12-17 21:05:44<›‹Ž1) 5   3ENQR 172050Z AUTO 15033KT 9000NDV OVC019/// 07/04 Q1014 W///S6ENQR2018-12-17T20:50:00Z61.352.227.04.01503329.940945TRUEMETAR10.02018-12-17 21:05:44 I?t¼I4›‹Ž:(s5   3ENGC 172050Z 18036KT 9999 BKN015 07/04 Q1015 W08/S5ENGC2018-12-17T20:50:00Z61.022.027.04.0180366.2129.970472MVFRMETAR10.02018-12-17 21:05:443›‹Ž9(s5   3ENHE 172050Z 13021KT 9999 OVC010 04/02 Q1018 W///S5ENHE2018-12-17T20:50:00Z65.332.334.02.0130216.2130.059055MVFRMETAR1.02018-12-17 21:05:442›‹Ž8(s5   3ENOA 172050Z 15036KT 9999 OVC015 06/03 Q1015 W///S5ENOA2018-12-17T20:50:00Z60.52.836.03.0150366.2129.970472MVFRMETAR5.02018-12-17 21:05:44E›‹Ž7)5   3ENSL 172050Z AUTO 16033KT 9999NDV SCT014/// BKN034/// 08/05 Q1013 W06/S4ENSL2018-12-17T20:50:00Z58.371.98.05.01603329.911417TRUEMETAR50.02018-12-17 21:05:44;›‹Ž6) 5   3ENFB 172050Z AUTO 16039KT 9999NDV BKN016/// 08/04 Q1014 W///S5ENFB2018-12-17T20:50:00Z61.21.838.04.01603929.940945TRUEMETAR10.02018-12-17 21:05:44 ¾DN”¾P›‹Ž>)5    3KCPU 172050Z AUTO 28006KT 10SM SCT026 14/08 A3019 RMK AO2 T01400078KCPU2018-12-17T20:50:00Z38.15-120.6514.07.8280610.030.188976TRUETRUEVFRMETAR404.02018-12-17 21:05:444›‹Ž=(s5   3KSQL 172050Z VRB03KT 10SM SCT030 BKN200 15/10 A3021KSQL2018-12-17T20:50:00Z37.52-122.2515.010.00310.030.209646VFRMETAR1.02018-12-17 21:05:44p›‹Ž<)U5   3NSTU 172050Z VRB05KT 12SM FEW016TCU SCT110 BKN240 32/25 A2991 RMK TCU N SLP129 8/271 T03160252 52002NSTU2018-12-17T20:50:00Z-14.33-170.7231.625.20512.029.9114171012.9VFR0.2METAR3.02018-12-17 21:05:446›‹Ž;)5   3ENLE 172050Z 12026KT 9999 FEW008 BKN015 06/05 Q1016 W08/S4ENLE2018-12-17T20:50:00Z56.533.226.05.0120266.2130.0MVFRMETAR3.02018-12-17 21:05:44 °2L{°E›‹ŽB(5    3KAUN 172050Z AUTO 24005KT 10SM SCT029 13/06 A3020 RMK A01KAUN2018-12-17T20:50:00Z38.95-121.0813.06.0240510.030.200787TRUETRUEVFRMETAR467.02018-12-17 21:05:44K›‹ŽA) 5    3KAZE 172050Z AUTO 24004KT 10SM CLR 18/08 A3006 RMK AO2 T01810081KAZE2018-12-17T20:50:00Z31.88-82.6518.18.1240410.030.059055TRUETRUEVFRMETAR78.02018-12-17 21:05:44`›‹Ž@)15    3KBMC 172050Z AUTO 13004KT 10SM SCT024 BKN032 OVC039 03/M01 A3017 RMK AO1 T00291010KBMC2018-12-17T20:50:00Z41.55-112.072.9-1.0130410.030.171259TRUETRUEVFRMETAR1288.02018-12-17 21:05:44H›‹Ž?) 5    3KCJR 172050Z AUTO 00000KT 10SM CLR 13/03 A2985 RMK AO2 T01310025KCJR2018-12-17T20:50:00Z38.53-77.8713.12.50010.029.84941TRUETRUEVFRMETAR97.02018-12-17 21:05:44 "7a™Û"3›‹ŽG(s5   3EDFH 172050Z 27007KT 9999 SCT007 BKN035 03/03 Q1025EDFH2018-12-17T20:50:00Z49.957.273.03.027076.2130.265747VFRMETAR498.02018-12-17 21:05:448›‹ŽF(q5   3KDKR 172050Z AUTO 33003KT 10SM 16/07 A3021 RMK AO2KDKR2018-12-17T20:50:00Z31.3-95.416.07.0330310.030.209646TRUETRUEMETAR106.02018-12-17 21:05:44B›‹ŽE({5    3KEMM 172050Z AUTO 00000KT 10SM CLR 01/M07 A3010 RMK AO2KEMM2018-12-17T20:50:00Z41.82-110.551.0-7.00010.030.100393TRUETRUEVFRMETAR2220.02018-12-17 21:05:44P›‹ŽD)5   3KEZF 172050Z AUTO 24007G14KT 10SM CLR 13/03 A2983 RMK AO2 T01320030KEZF2018-12-17T20:50:00Z38.27-77.4513.23.024071410.029.828741TRUETRUEVFRMETAR26.02018-12-17 21:05:44C›‹ŽC({5    3KFRR 172050Z AUTO 31005KT 10SM CLR 11/M04 A2984 RMK AO1KFRR2018-12-17T20:50:00Z38.92-78.2511.0-4.0310510.029.840551TRUETRUEVFRMETAR216.02018-12-17 21:05:44 å0c²åG›‹ŽK)5   3LTCS 172050Z 33004KT 9999 SCT020 BKN030 05/04 Q1021 RMK RWY22 02003KTLTCS2018-12-17T20:50:00Z37.4538.95.04.033046.2130.147638MVFRMETAR825.02018-12-17 21:05:44+›‹ŽJ(e5   3EDLV 172050Z 21007KT 8000 SCT020 06/05 Q1023EDLV2018-12-17T20:50:00Z51.66.156.05.021074.9730.206694MVFRMETAR32.02018-12-17 21:05:44G›‹ŽI)5    3EDAC 172050Z AUTO 20007KT 9999 // BKN027/// OVC049/// 04/01 Q1025EDAC2018-12-17T20:50:00Z50.9812.54.01.020076.2130.265747TRUEMVFRMETAR195.02018-12-17 21:05:44J›‹ŽH) 5    3KHBV 172050Z AUTO 00000KT 10SM CLR 21/02 A3016 RMK AO2 T02100024KHBV2018-12-17T20:50:00Z27.35-98.7321.02.40010.030.159449TRUETRUEVFRMETAR202.02018-12-17 21:05:44 À*Y‰ÀC›‹ŽO(5    3KVES 172050Z AUTO 32008KT 10SM BKN025 03/00 A3011 RMK AO2KVES2018-12-17T20:50:00Z40.2-84.533.00.0320810.030.109253TRUETRUEMVFRMETAR307.02018-12-17 21:05:44J›‹ŽN) 5    3KWDR 172050Z AUTO 28008KT 265V325 10SM CLR 17/00 A3009 RMK AO1KWDR2018-12-17T20:50:00Z33.98-83.6717.00.0280810.030.088583TRUETRUEVFRMETAR287.02018-12-17 21:05:44K›‹ŽM)#5    3LTAP 172050Z 00000KT 6000 SCT040 BKN100 05/04 Q1016 NOSIG RMK RWY23 VRB01KTLTAP2018-12-17T20:50:00Z40.8335.525.04.0003.7330.0TRUEMVFRMETAR535.02018-12-17 21:05:44P›‹ŽL)%5   3LTBU 172050Z 35010KT 9999 SCT009 BKN030 BKN090 07/07 Q1017 RMK RWY22 01007KTLTBU2018-12-17T20:50:00Z41.1227.927.07.0350106.2130.029528MVFRMETAR173.02018-12-17 21:05:44 6i’ρ4›‹ŽT(s5   3EDLP 172050Z 23010KT 9999 FEW027 BKN042 04/03 Q1023EDLP2018-12-17T20:50:00Z51.628.624.03.0230106.2130.206694VFRMETAR213.02018-12-17 21:05:44=›‹ŽS(}5    3KI16 172050Z AUTO 10SM CLR 10/01 A3009 RMK AO2 T00950006KI162018-12-17T20:50:00Z37.6-81.579.50.610.030.088583TRUETRUEVFRMETAR544.02018-12-17 21:05:44Q›‹ŽR)5    3KIBM 172050Z AUTO 36005KT 10SM CLR 17/M13 A2999 RMK AO2 T01651129KIBM2018-12-17T20:50:00Z41.18-103.6816.5-12.9360510.029.991142TRUETRUEVFRMETAR1501.02018-12-17 21:05:44G›‹ŽQ) 5    3KNOW 172050Z AUTO 00000KT 10SM CLR 08/07 A2979 RMK AO2 T00820070KNOW2018-12-17T20:50:00Z48.13-123.48.27.00010.029.790354TRUETRUEVFRMETAR4.02018-12-17 21:05:44D›‹ŽP(}5    3KPNA 172050Z AUTO 12004KT 10SM CLR M03/M09 A3011 RMK AO2KPNA2018-12-17T20:50:00Z42.8-109.8-3.0-9.0120410.030.109253TRUETRUEVFRMETAR2160.02018-12-17 21:05:44 G ]­ðG#›‹ŽY(a5   3EGXC 172050Z 17008KT CAVOK 05/05 Q1016 BLUEGXC2018-12-17T20:50:00Z53.1-0.175.05.017086.2130.0VFRMETAR7.02018-12-17 21:05:447›‹ŽX(u5    3EGXV 172050Z AUTO 17004KT 9999 SCT070/// 06/05 Q1014EGXV2018-12-17T20:50:00Z53.87-0.456.05.017046.2129.940945TRUEVFRMETAR6.02018-12-17 21:05:44*›‹ŽW(a5   3EGXW 172050Z 16009KT CAVOK 04/04 Q1015 BLUEGXW2018-12-17T20:50:00Z53.18-0.524.04.016096.2129.970472VFRMETAR70.02018-12-17 21:05:44)›‹ŽV(a5   3EGYM 172050Z 15009KT CAVOK 06/05 Q1017 BLUEGYM2018-12-17T20:50:00Z52.630.576.05.015096.2130.029528VFRMETAR23.02018-12-17 21:05:44n›‹ŽU)O5    3PTTP 172050Z 00000KT 15SM FEW019 SCT130 BKN300 28/26 A2984 RMK SLP103 60004 8/171 T02780263 52015PTTP2018-12-17T20:50:00Z6.97158.2227.826.30015.029.8405511010.3VFR1.50.04METAR2.02018-12-17 21:05:44 &(f–Ù&-›‹Ž^(e5   3EDVE 172050Z 22006KT 9999 OVC013 05/03 Q1022EDVE2018-12-17T20:50:00Z52.3210.555.03.022066.2130.177166MVFRMETAR88.02018-12-17 21:05:447›‹Ž]({5   3EGQL 172050Z 15008KT 9999 FEW030 BKN160 07/05 Q1008 BLUEGQL2018-12-17T20:50:00Z56.38-2.877.05.015086.2129.763779VFRMETAR12.02018-12-17 21:05:44J›‹Ž\)5   3EGUB 172050Z 18011KT 9999 SCT013 BKN180 09/08 Q1017 GRN TEMPO FEW013 BLUEGUB2018-12-17T20:50:00Z51.62-1.079.08.0180116.2130.029528VFRMETAR63.02018-12-17 21:05:44<›‹Ž[) 5   3EGVN 172050Z 19009KT 9999 FEW014 BKN250 09/08 Q1016 TEMPO SCT014EGVN2018-12-17T20:50:00Z51.77-1.589.08.019096.2130.0VFRMETAR88.02018-12-17 21:05:44R›‹ŽZ)+5   3EGVO 172050Z 19014KT 9999 FEW011 SCT020 BKN180 09/08 Q1017 WHT TEMPO SCT012 GRNEGVO2018-12-17T20:50:00Z51.23-0.959.08.0190146.2130.029528VFRMETAR123.02018-12-17 21:05:44Y8ï8@HPX`hpx€ˆ˜ ¨°¸ÀÈÐØàèðø (08@HPX`hpx€ˆ˜ ¨°¸ÀÈÐØàèðø (08@HPX`hpx€ˆ˜ ¨°¸ÀÈÐØàèðø ¨°¸ÀÈÐØàèðø•›‹4–›‹9—›‹>˜›‹B™›‹Fš›‹K››‹Pœ›‹T›‹Xž›‹]Ÿ›‹b ›‹g•›‹4–›‹9—›‹>˜›‹B™›‹Fš›‹K››‹Pœ›‹T›‹Xž›‹]Ÿ›‹b ›‹g¡›‹l¢›‹q£›‹v¤›‹{¥›‹Ž¦›‹Ž§›‹Ž ¨›‹Ž©›‹Žª›‹Ž«›‹Ž¬›‹Ž#­›‹Ž(®›‹Ž,¯›‹Ž0°›‹Ž5±›‹Ž:²›‹Ž>³›‹ŽB´›‹ŽGµ›‹ŽK¶›‹ŽO·›‹ŽT¸›‹ŽY¹›‹Ž^»›‹Žc¼›‹Žh½›‹Žl¾›‹Žq¿›‹ŽuÀ›‹ŽyÁ›‹Ž}›‹ۋ싏 ś‹ ƛ‹Ǜ‹ț‹ɛ‹ʛ‹!˛‹%̛‹)͛‹-Λ‹1ϛ‹5Л‹:ћ‹>қ‹Bӛ‹Fԛ‹J՛‹N֛‹Rכ‹V؛‹Zٛ‹^ڛ‹bۛ‹fܛ‹jݛ‹mޛ‹qߛ‹uà›‹yᛋ}⛋㛋䛋 囋 曋盋蛋雋ꛋ!뛋%웋)훋-1 SE‡ÇS<›‹Žc({5    3EDMA 172050Z AUTO 20007KT 9999 // OVC034/// 03/01 Q1027EDMA2018-12-17T20:50:00Z48.4210.923.01.020076.2130.324802TRUEVFRMETAR463.02018-12-17 21:05:44,›‹Žb(e5   3EDNY 172050Z 04002KT 8000 OVC055 02/01 Q1029EDNY2018-12-17T20:50:00Z47.679.522.01.04024.9730.383858MVFRMETAR424.02018-12-17 21:05:44:›‹Ža({5    3EDSB 172050Z 23005KT 9999 -RA BKN028 OVC037 06/04 Q1028EDSB2018-12-17T20:50:00Z48.788.086.04.023056.2130.35433-RAMVFRMETAR124.02018-12-17 21:05:448›‹Ž`({5    3EDHI 172050Z AUTO VRB02KT 5000 // OVC005/// 04/03 Q1021EDHI2018-12-17T20:50:00Z53.539.834.03.0023.1130.147638TRUEIFRMETAR13.02018-12-17 21:05:445›‹Ž_(s5   3EDJA 172050Z 22008KT 8000 FEW006 BKN047 02/01 Q1027EDJA2018-12-17T20:50:00Z47.9810.232.01.022084.9730.324802MVFRMETAR633.02018-12-17 21:05:44 "0YªÙ"1›‹Žh(q5    3LGRP 172050Z 23003KT 9999 SCT020 14/10 Q1016 NOSIGLGRP2018-12-17T20:50:00Z36.428.0814.010.023036.2130.0TRUEVFRMETAR5.02018-12-17 21:05:44K›‹Žg)5   3K1V6 172050Z AUTO 25014G19KT 10SM CLR 18/M09 A2997 RMK AO2K1V62018-12-17T20:50:00Z38.43-105.118.0-9.0250141910.029.970472TRUETRUEVFRMETAR1658.02018-12-17 21:05:44)›‹Žf(]5   3KFIN 172050Z 29006KT 7SM CLR 17/11 A3007KFIN2018-12-17T20:50:00Z29.47-81.217.011.029067.030.070866VFRMETAR10.02018-12-17 21:05:44Q›‹Že)#5    3EDLW 172050Z AUTO 21010KT 9999 // FEW025/// BKN035/// BKN041/// 05/04 Q1023EDLW2018-12-17T20:50:00Z51.527.625.04.0210106.2130.206694TRUEVFRMETAR127.02018-12-17 21:05:44J›‹Žd)5     3ELLX 172050Z 20005KT 170V250 2000 BR SCT002 BKN005 04/04 Q1026 NOSIGELLX2018-12-17T20:50:00Z49.636.24.04.020051.2430.295275TRUEBRIFRMETAR379.02018-12-17 21:05:44 ÍV—́D›‹Žl({5    3KHEQ 172050Z AUTO 16006KT 10SM CLR 16/M04 A2998 RMK AO2KHEQ2018-12-17T20:50:00Z40.57-102.2816.0-4.0160610.029.97933TRUETRUEVFRMETAR1137.02018-12-17 21:05:449›‹Žk(y5     3LGAV 172050Z 26002KT 9999 -RA BKN030 08/06 Q1016 NOSIGLGAV2018-12-17T20:50:00Z37.9323.958.06.026026.2130.0TRUE-RAMVFRMETAR94.02018-12-17 21:05:44A›‹Žj) 5    3LGIR 172050Z 18008KT 9999 FEW020 SCT030 BKN080 14/09 Q1016 NOSIGLGIR2018-12-17T20:50:00Z35.3225.1714.09.018086.2130.0TRUEVFRMETAR39.02018-12-17 21:05:44]›‹Ži)+5    3LGKR 172050Z 15007KT 9999 FEW011 FEW018TCU BKN030 OVC080 12/10 Q1009 RETS NOSIGLGKR2018-12-17T20:50:00Z39.6219.9212.010.015076.2129.793306TRUEOVC8000MVFRMETAR2.02018-12-17 21:05:44 **|Ìì*<›‹Žq(y5   3MMZC 172049Z 23010KT 10SM BKN100 19/11 A3024 RMK 8/030MMZC2018-12-17T20:49:00Z22.9-102.6819.011.02301010.030.239174VFRMETAR2177.02018-12-17 21:05:44Z›‹Žp)!5   3MMGL 172049Z 29004KT 5SM BKN300 24/04 A3019 RMK SLP129 57031 962 8/008 HZYMMGL2018-12-17T20:49:00Z20.52-103.3224.04.029045.030.1889761012.9MVFR-3.1METAR1528.02018-12-17 21:05:44*›‹Žo(_5   3KOMN 172050Z 30005KT 10SM CLR 17/10 A3007KOMN2018-12-17T20:50:00Z29.3-81.1217.010.0300510.030.070866VFRMETAR9.02018-12-17 21:05:44(›‹Žn(e5   3LGKO 172050Z 25003KT 9999 FEW018 11/08 Q1016LGKO2018-12-17T20:50:00Z36.827.0811.08.025036.2130.0VFRMETAR125.02018-12-17 21:05:44P›‹Žm)5    3KGNB 172050Z AUTO 00000KT 10SM CLR M05/M12 A3020 RMK AO2 T10551122KGNB2018-12-17T20:50:00Z40.08-105.92-5.5-12.20010.030.200787TRUETRUEVFRMETAR2500.02018-12-17 21:05:44 ˜%H|˜^›‹Žu)%5   3KCPW 172048Z AUTO 21010G16KT 10SM SCT023 BKN031 OVC038 M05/M12 A3032 RMK AO2KCPW2018-12-17T20:48:00Z37.45-106.8-5.0-12.0210101610.030.318897TRUETRUEVFRMETAR3584.02018-12-17 21:05:44F›‹Žt({5    3KMNH 172048Z AUTO 32005KT 10SM CLR 11/M15 A3006 RMK AO2KMNH2018-12-17T20:48:00Z39.22-104.6511.0-15.0320510.030.059055TRUETRUEVFRMETAR2152.02018-12-17 21:05:44W›‹Žs)5   3MMDO 172048Z 11005KT 10SM BKN090 18/01 A3020 RMK SLP151 57035 975 8/03/MMDO2018-12-17T20:48:00Z24.12-104.5218.01.0110510.030.2007871015.1VFR-3.5METAR1857.02018-12-17 21:05:44U›‹Žr)5   3MMLO 172048Z 25007KT 10SM BKN220 23/04 A3029 RMK SLP149 57028 954 8/008MMLO2018-12-17T20:48:00Z21.0-101.4723.04.0250710.030.289371014.9VFR-2.8METAR1819.02018-12-17 21:05:44 ´,[s´9›‹Žy(w5   3MMQT 172047Z 31003KT 7SM SCT220 22/01 A3027 RMK 8/008MMQT2018-12-17T20:47:00Z20.62-100.1822.01.031037.030.268702VFRMETAR1919.02018-12-17 21:05:44b›‹Žx)'5    3MMTO 172047Z 31005KT 3SM HZ FU OVC200 19/M01 A3034 RMK SLP146 57035 956 8/007MMTO2018-12-17T20:47:00Z19.35-99.5719.0-1.031053.030.3395671014.6HZ FUMVFR-3.5METAR2576.02018-12-17 21:05:44K›‹Žw)5   3K7BM 172048Z AUTO 32005G25KT 10SM CLR 05/M13 A3016 RMK AO2K7BM2018-12-17T20:48:00Z38.78-106.225.0-13.032052510.030.159449TRUETRUEVFRMETAR2995.02018-12-17 21:05:44N›‹Žv)5    3KC07 172048Z AUTO 27006KT 10SM BKN055 BKN110 00/M07 A3021 RMK AO2KC072018-12-17T20:48:00Z40.35-106.70.0-7.0270610.030.209646TRUETRUEVFRMETAR3224.02018-12-17 21:05:44 ›N}›\›‹Ž}))5   3MMML 172047Z 16002KT 10SM FEW040 SCT200 18/02 A3011 RMK SLP196 57020 953 8/502MMML2018-12-17T20:47:00Z32.62-115.2318.02.0160210.030.1092531019.6VFR-2.0METAR22.02018-12-17 21:05:44K›‹Ž|)5   3MMZO 172047Z 21007KT 15SM BKN250 29/21 A2994 RMK SLP/// 5//// 9// 8/002MMZO2018-12-17T20:47:00Z19.13-104.5729.021.0210715.029.940945VFRMETAR8.02018-12-17 21:05:44G›‹Ž{)5   3MMLT 172047Z 04006KT 10SM BKN240 23/22 A3005 RMK SLP176 8/008MMLT2018-12-17T20:47:00Z26.02-111.3323.022.040610.030.0501981017.6VFRMETAR15.02018-12-17 21:05:44_›‹Žz)+5   3MMSP 172047Z 05005KT 15SM FEW080 SCT210 23/M05 A3021 RMK SLP140 57031 968 8/035MMSP2018-12-17T20:47:00Z22.25-100.9323.0-5.050515.030.2096461014.0VFR-3.1METAR1903.02018-12-17 21:05:44 °Ok‹°U›‹)5     3LHKE 172045Z 31004KT 0200 FZFG BKN002 OVC006 M06/M07 Q1026 NOSIG RMK REDLHKE2018-12-17T20:45:00Z46.9219.75-6.0-7.031040.1230.295275TRUEFZFGLIFRMETAR115.02018-12-17 21:05:44Z›‹)'5   3MMUN 172046Z 36005KT 7SM SCT015 BKN080 26/19 A3006 RMK SLP170 57024 963 8/170MMUN2018-12-17T20:46:00Z21.02-86.8526.019.036057.030.0590551017.0VFR-2.4METAR10.02018-12-17 21:05:44^›‹Ž)15   3MMVR 172046Z 06004KT 7SM FEW015 24/13 A3011 RMK SLP180 57036 966 8/100 HZY ISOL CIMMVR2018-12-17T20:46:00Z19.15-96.1824.013.06047.030.1092531018.0VFR-3.6METAR16.02018-12-17 21:05:44+›‹Ž~(_5   3KBCT 172047Z 34011KT 10SM CLR 20/13 A3007KBCT2018-12-17T20:47:00Z26.38-80.120.013.03401110.030.070866VFRMETAR4.02018-12-17 21:05:44 ÝD^ Ý=›‹(5   3MMPB 172045Z 19013KT 7SM BKN220 18/06 A3030 RMK 8/008 HZYMMPB2018-12-17T20:45:00Z19.17-98.3718.06.0190137.030.301182VFRMETAR2244.02018-12-17 21:05:448›‹(m5    3KMER 172045Z COR 30008KT 10SM SCT020 16/12 A3021KMER2018-12-17T20:45:00Z37.38-120.5716.012.0300810.030.209646TRUEVFRMETAR57.02018-12-17 21:05:44`›‹)75   3MMMA 172045Z 08005KT 8SM FEW015 BKN070 22/21 A3014 RMK SLP208 57033 975 8/130 ISOL CIMMMA2018-12-17T20:45:00Z25.77-97.5222.021.08058.030.1387791020.8VFR-3.3METAR8.02018-12-17 21:05:446›‹(w5   3MMBT 172045Z 00000KT 7SM SCT030 29/20 A2995 RMK 8/400MMBT2018-12-17T20:45:00Z15.77-96.2729.020.0007.029.949802VFRMETAR143.02018-12-17 21:05:44 ¨.Sw¨I›‹ )5   3MMIA 172045Z 00000KT 8SM BKN200 25/16 A3008 RMK SLP/// 5//// 9// 8/002MMIA2018-12-17T20:45:00Z19.27-103.5725.016.0008.030.079725VFRMETAR723.02018-12-17 21:05:44V›‹)-5   3MMPN 172045Z 18007KT 7SM OVC280 23/13 A3020 RMK SLP/// 5//// 9// 8/002 HZY SC CUMMPN2018-12-17T20:45:00Z19.38-102.0223.013.018077.030.200787VFRMETAR1593.02018-12-17 21:05:44U›‹)5   3MMPR 172045Z 26007KT 15SM SCT230 28/16 A2997 RMK SLP148 57031 951 8/002MMPR2018-12-17T20:45:00Z20.67-105.2528.016.0260715.029.9704721014.8VFR-3.1METAR6.02018-12-17 21:05:44L›‹) 5    3KFCH 172045Z AUTO 31005KT 9SM BKN017 OVC027 14/11 A3020 RMK A01KFCH2018-12-17T20:45:00Z36.72-119.8214.011.031059.030.200787TRUETRUEMVFRSPECI85.02018-12-17 21:05:44 ›K\{›Z›‹ )'5   3MMMD 172045Z 34006KT 7SM SCT020 BKN050 25/16 A3010 RMK SLP207 57019 907 8/500MMMD2018-12-17T20:45:00Z20.95-89.6525.016.034067.030.1003931020.7VFR-1.9METAR10.02018-12-17 21:05:44[›‹ )/5   3MMVA 172045Z 00000KT 7SM SCT010 OVC060 23/16 A3013 RMK SLP200 57034 971 8/12/ HZYMMVA2018-12-17T20:45:00Z18.0-92.8223.016.0007.030.1299211020.0VFR-3.4METAR13.02018-12-17 21:05:44i›‹ )O5    3LHSN 172045Z 26002KT 0300 R02/0800V1200U FZFG BKN002 OVC006 M07/M08 Q1026 TEMPO 0150 FZFG RMK REDLHSN2018-12-17T20:45:00Z47.1220.23-7.0-8.026020.1930.295275FZFGLIFRMETAR98.02018-12-17 21:05:44/›‹ (e5    3LIRP 172045Z 14004KT CAVOK 02/02 Q1025 NOSIGLIRP2018-12-17T20:45:00Z43.6710.372.02.014046.2130.265747TRUEVFRMETAR2.02018-12-17 21:05:44 Æ,rŸÆS›‹)#5    3LHPA 172045Z 07002KT 3000 MIBCFG FEW200 M04/M04 Q1027 TEMPO 1500 BR RMK YLOLHPA2018-12-17T20:45:00Z47.3517.5-4.0-4.07021.8630.324802MIBCFGIFRMETAR148.02018-12-17 21:05:44M›‹)5     3LHPR 172045Z AUTO 29003KT 260V360 3200 BR NCD M06/M06 Q1027 RMK YLOLHPR2018-12-17T20:45:00Z47.6317.82-6.0-6.029031.9930.324802TRUEBRIFRMETAR129.02018-12-17 21:05:444›‹(o5    3LHUD 172045Z 30005KT 3000 BR OVC007 M05/M05 Q1027LHUD2018-12-17T20:45:00Z46.2520.1-5.0-5.030051.8630.324802BRIFRMETAR84.02018-12-17 21:05:44N›‹)5   3MMCM 172045Z 34007KT 7SM OVC100 25/17 A3007 RMK SLP184 5//// 964 8/02/MMCM2018-12-17T20:45:00Z18.5-88.3325.017.034077.030.0708661018.4VFRMETAR12.02018-12-17 21:05:44 º<r•ºU›‹)/5   3MMAS 172044Z 20007KT 9SM SCT100 BKN200 21/00 A3026 RMK SLP/// 5//// 9// 8/038 HZYMMAS2018-12-17T20:44:00Z21.7-102.3221.00.020079.030.259842VFRMETAR1863.02018-12-17 21:05:44W›‹)5   3MMEP 172044Z 36006KT 12SM SCT200 25/13 A3010 RMK SLP202 57020 957 8/009MMEP2018-12-17T20:44:00Z21.42-104.8525.013.0360612.030.1003931020.2VFR-2.0METAR922.02018-12-17 21:05:44D›‹) 5   3MMSL 172044Z 00000KT 10SM SCT140 SCT260 24/17 A3007 RMK 8/038 CUMMSL2018-12-17T20:44:00Z22.95-109.9324.017.00010.030.070866VFRMETAR140.02018-12-17 21:05:44>›‹(5    3LHDC 172045Z 27004KT 3500 BR NSC M04/M06 Q1026 TEMPO 2000LHDC2018-12-17T20:45:00Z47.4721.62-4.0-6.027042.1730.295275BRIFRMETAR112.02018-12-17 21:05:44 ƒ?\ƒS›‹)5   3MMMT 172044Z 36010KT 7SM BKN130 24/14 A3005 RMK SLP252 57023 973 8/030MMMT2018-12-17T20:44:00Z18.1-94.5724.014.0360107.030.0501981025.2VFR-2.3METAR40.02018-12-17 21:05:44]›‹))5   3MMMZ 172044Z 29009KT 15SM BKN120 BKN240 28/12 A2999 RMK SLP159 57030 900 8/072MMMZ2018-12-17T20:44:00Z23.17-106.2728.012.0290915.029.9911421015.9VFR-3.0METAR10.02018-12-17 21:05:44P›‹)5   3MMCL 172044Z 27005KT 10SM SCT230 28/09 A3000 RMK SLP155 57032 957 8/004MMCL2018-12-17T20:44:00Z24.77-107.4728.09.0270510.030.01015.5VFR-3.2METAR39.02018-12-17 21:05:44e›‹)75   3MMLP 172044Z 34011KT 10SM FEW025 FEW100 BKN220 23/15 A3007 RMK SLP185 57033 906 8/438MMLP2018-12-17T20:44:00Z24.07-110.3723.015.03401110.030.0708661018.5VFR-3.3METAR21.02018-12-17 21:05:44 Œ-ZƒŒq›‹)K5    3MMMX 172043Z 00000KT 5SM FEW020 SCT080 BKN200 20/M03 A3030 NOSIG RMK SLP119 57029 959 8/538 HZYMMMX2018-12-17T20:43:00Z19.42-99.0820.0-3.0005.030.3011821011.9TRUEMVFR-2.9METAR2238.02018-12-17 21:05:44Q›‹)5   3MMTM 172043Z 00000KT 8SM BKN200 23/10 A3012 RMK SLP201 57038 979 8/008MMTM2018-12-17T20:43:00Z22.27-97.8723.010.0008.030.1210631020.1VFR-3.8METAR24.02018-12-17 21:05:44M›‹) 5   3MMCU 172043Z 10008KT 10SM SKC 18/00 A3013 RMK SLP166 57041 988MMCU2018-12-17T20:43:00Z28.7-105.9718.00.0100810.030.1299211016.6VFR-4.1METAR1372.02018-12-17 21:05:44M›‹)5   3MMMY 172043Z 14007KT 15SM BKN100 21/19 A3013 RMK SLP/// 5//// 9// 8/070MMMY2018-12-17T20:43:00Z25.77-100.0821.019.0140715.030.129921VFRMETAR387.02018-12-17 21:05:44 À:[¨Àb›‹!)95   3MMAA 172041Z 24008KT 8SM BKN300 30/23 A2990 RMK SLP121 57031 900 8/002 HZY DSNT TCU NEMMAA2018-12-17T20:41:00Z16.75-99.7530.023.024088.029.8996071012.1VFR-3.1METAR5.02018-12-17 21:05:44-›‹ (_5   3MMGM 172042Z 25010KT 10SM SKC 24/14 A3002MMGM2018-12-17T20:42:00Z27.95-110.9224.014.02501010.030.02067VFRMETAR20.02018-12-17 21:05:44Y›‹)!5   3MMTJ 172042Z 33003KT 8SM BKN035 17/11 A3020 RMK SLP240 57011 933 8/500 HZYMMTJ2018-12-17T20:42:00Z32.53-116.9717.011.033038.030.2007871024.0VFR-1.1METAR152.02018-12-17 21:05:44@›‹)5   3MMCT 172043Z 36012KT 8SM SCT020 OVC200 27/14 A3004 RMK 8/401MMCT2018-12-17T20:43:00Z20.63-88.4527.014.0360128.030.041338VFRMETAR28.02018-12-17 21:05:44 œ#GeœC›‹%) 5   3MMPQ 172041Z 25005KT 5SM BKN030 OVC070 21/18 A3002 RMK 8/52/ HZYMMPQ2018-12-17T20:41:00Z17.53-91.9821.018.025055.030.02067MVFRMETAR61.02018-12-17 21:05:44\›‹$))5   3MMOX 172041Z 30003KT 12SM SCT120 SCT210 26/00 A3018 RMK SLP125 57044 969 8/036MMOX2018-12-17T20:41:00Z17.0-96.7226.00.0300312.030.1801191012.5VFR-4.4METAR1528.02018-12-17 21:05:44V›‹#)!5   3MMZH 172041Z 26006KT 7SM BKN250 32/24 A2992 RMK SLP127 57030 904 8/002 HZYMMZH2018-12-17T20:41:00Z17.6-101.4732.024.026067.029.9202751012.7VFR-3.0METAR6.02018-12-17 21:05:44W›‹")5   3MMCS 172041Z 34005KT 10SM BKN050 14/02 A3016 RMK SLP172 57033 990 8/500MMCS2018-12-17T20:41:00Z31.62-106.4214.02.0340510.030.1594491017.2VFR-3.3METAR1171.02018-12-17 21:05:44 ­(Ch­5›‹)(q5   3MMMV 172040Z 02005KT 10SM SKC 24/05 A3012 RMK8/002MMMV2018-12-17T20:40:00Z26.95-101.4724.05.020510.030.121063VFRMETAR615.02018-12-17 21:05:44U›‹()5   3MMNL 172040Z 12008KT 10SM SCT200 22/01 A3014 RMK SLP197 57039 979 8/002MMNL2018-12-17T20:40:00Z27.42-99.5722.01.0120810.030.1387791019.7VFR-3.9METAR148.02018-12-17 21:05:44_›‹')-5   3MMTC 172040Z 07003KT 10SM SCT200 21/M03 A3011 RMK SLP151 57044 990 8/002 ISOL ASMMTC2018-12-17T20:40:00Z25.57-103.421.0-3.070310.030.1092531015.1VFR-4.4METAR1124.02018-12-17 21:05:44R›‹&)5   3MMCP 172041Z 34010KT 7SM BKN080 23/16 A3010 RMK SLP181 57024 964 8/030MMCP2018-12-17T20:41:00Z19.82-90.523.016.0340107.030.1003931018.1VFR-2.4METAR5.02018-12-17 21:05:44 °%b°Y›‹-)!5   3MMHO 172040Z 19006KT 10SM SKC 26/08 A3009 RMK SLP192 57031 955 ISOL CI HZYMMHO2018-12-17T20:40:00Z29.08-111.0526.08.0190610.030.0885831019.2VFR-3.1METAR184.02018-12-17 21:05:44M›‹,)5   3MMLM 172040Z 31015KT 10SM BKN220 24/11 A3006 RMK SLP1710 8/008 HZYMMLM2018-12-17T20:40:00Z25.67-109.0724.011.03101510.030.0590551017.1VFRMETAR4.02018-12-17 21:05:44=›‹+)5   3MMPS 172040Z 17007KT 10SM SCT010 27/22 A3002 RMK 8/100 HZYMMPS2018-12-17T20:40:00Z15.87-97.0727.022.0170710.030.02067VFRMETAR88.02018-12-17 21:05:44U›‹*)+5   3MMAN 172040Z 12008KT 15SM SCT100 SCT200 21/M02 A3017 RMK SLP/// 5//// 9// 8/031MMAN2018-12-17T20:40:00Z25.87-100.2321.0-2.0120815.030.171259VFRMETAR448.02018-12-17 21:05:44 ¦5R¦U›‹1)5   3MMTP 172040Z 25008KT 10SM SCT200 32/21 A2988 RMK SLP141 57030 951 8/005MMTP2018-12-17T20:40:00Z14.77-92.3732.021.0250810.029.8789371014.1VFR-3.0METAR29.02018-12-17 21:05:44K›‹0)5   3KMHV 172040Z AUTO 30009G16KT 10SM OVC047 15/06 A3012 RMK A01KMHV2018-12-17T20:40:00Z35.07-118.1515.06.030091610.030.121063TRUETRUEVFRMETAR849.02018-12-17 21:05:44]›‹/))5   3MMSD 172040Z 13009KT 12SM SCT120 SCT250 25/12 A3003 RMK SLP160 57035 902 8/038MMSD2018-12-17T20:40:00Z23.13-109.725.012.0130912.030.0295281016.0VFR-3.5METAR109.02018-12-17 21:05:44E›‹.)5   3MMCN 172040Z 34004KT 12SM SCT200 26/07 A3002 RMK SLP166 8/008MMCN2018-12-17T20:40:00Z27.4-109.8326.07.0340412.030.020671016.6VFRMETAR43.02018-12-17 21:05:44 ¿+d‚¿=›‹5)5   3WAMM 172030Z 00000KT 8000 SCT012 24/24 Q1010 RERA TEMPO -RAWAMM2018-12-17T20:30:00Z1.55124.9224.024.0004.9729.822834MVFRMETAR80.02018-12-17 21:05:44\›‹4)5     3KSMP 172038Z AUTO 00000KT 1SM BR VV001 01/M01 A2988 RMK AO2 T00111006 $KSMP2018-12-17T20:38:00Z47.28-121.331.1-0.6001.029.878937TRUETRUETRUEBRLIFR100SPECI1208.02018-12-17 21:05:44A›‹3(y5    3KGZN 172040Z AUTO 35005KT 10SM CLR 11/00 A3020 RMK AO2KGZN2018-12-17T20:40:00Z32.37-99.0211.00.0350510.030.200787TRUETRUEVFRMETAR522.02018-12-17 21:05:44O›‹2)5   3KJSL 172040Z AUTO VRB05G10KT 10SM FEW034 SCT048 23/13 A3016 RMK A01KJSL2018-12-17T20:40:00Z26.23-95.2523.013.0051010.030.159449TRUETRUEVFRMETAR10.02018-12-17 21:05:44 OG“ÓOB›‹:)5     3VIGR 172030Z VRB01KT 0800 FG SCT100 SCT250 09/07 Q1019 NOSIGVIGR2018-12-17T20:30:00Z26.2878.229.07.0010.530.088583TRUEFGLIFRMETAR189.02018-12-17 21:05:446›‹9(q5     3VICG 172030Z VRB02KT 4000 BR SKC 07/07 Q1020 NOSIGVICG2018-12-17T20:30:00Z30.6776.787.07.0022.4930.11811TRUEBRIFRMETAR308.02018-12-17 21:05:44:›‹8(q5     3VIJU 172030Z 36003KT 5000 BR SKC 09/06 Q1019 NOSIGVIJU2018-12-17T20:30:00Z32.6874.839.06.036033.1130.088583TRUEBRMVFRMETAR314.02018-12-17 21:05:44.›‹7(k5     3VILH 172030Z 00000KT 6000 SKC -1/-2 Q1035 NOSIGVILH2018-12-17T20:30:00Z34.1377.55003.7330.561024TRUEMVFRMETAR3256.02018-12-17 21:05:443›‹6(q5      3VISR 172030Z VRB02KT 5000 FU SKC 00/-4 Q1030 NOSIGVISR2018-12-17T20:30:00Z33.9774.77023.1130.413385TRUEFUMVFRMETAR1666.02018-12-17 21:05:44 ²\y²A›‹>(}5     3CYCX 172113Z AUTO 02008KT 3/4SM -SN OVC005 M01/M01 A2940CYCX2018-12-17T21:13:00Z45.82-66.42-1.0-1.02080.7529.40059TRUE-SNLIFRSPECI51.02018-12-17 21:16:49]›‹=)5    3CYPQ 172113Z AUTO 30011G17KT 9SM -SN -UP OVC043 00/M02 A2983 RMK SLP112CYPQ2018-12-17T21:13:00Z44.22-78.370.0-2.030011179.029.8287411011.2TRUE-SN UPVFRSPECI191.02018-12-17 21:16:49:›‹<(}5    3CWEE 172000Z AUTO M08/M11 RMK AO1 SLP043 T10841112 53024CWEE2018-12-17T20:00:00Z49.27-73.33-8.4-11.21004.3TRUETRUE2.4METAR305.02018-12-17 21:05:44^›‹;)55     3CWKD 172000Z AUTO 27006KT M04/M06 RMK AO1 2PAST HR 5001 SLP005 P0001 T10401055 50002CWKD2018-12-17T20:00:00Z50.73-71.02-4.0-5.527061000.5TRUETRUE0.20.01METAR497.02018-12-17 21:05:44 \;N1\O›‹B)5   3KPVC 172112Z AUTO 29018G25KT 10SM FEW026 OVC044 04/01 A2951 RMK AO2KPVC2018-12-17T21:12:00Z42.07-70.224.01.0290182510.029.509842TRUETRUEVFRSPECI2.02018-12-17 21:16:49‚›‹A)w5      3PAHP 172112Z AUTO 34019G26KT 1/2SM -SN FZFG BKN026 BKN034 OVC044 M11/M13 A2944 RMK AO2 PK WND 34026/2107 P0000 FZRANOPAHP2018-12-17T21:12:00Z61.52-166.15-11.0-13.034019260.529.438976TRUETRUETRUE-SN FZFGLIFR0.005SPECI5.02018-12-17 21:16:49g›‹@)35     3PAMM 172112Z AUTO 12017G25KT 9SM -RA FEW024 BKN030 OVC038 08/04 A2923 RMK AO2 P0000PAMM2018-12-17T21:12:00Z55.13-131.588.04.012017259.029.22933TRUETRUE-RAMVFR0.005SPECI1.02018-12-17 21:16:49?›‹?(u5    3PALP 172113Z 27006KT 5SM -SN BR OVC025 M22/M25 A2944PALP2018-12-17T21:13:00Z70.33-150.93-22.0-25.027065.029.438976-SN BRMVFRMETAR5.02018-12-17 21:16:49 •!Vw•\›‹F)'5   3CYGR 172112Z 10019G26KT 10SM -SN SCT010 OVC022 00/M02 A2954 RMK SC4SC4 SLP005CYGR2018-12-17T21:12:00Z47.42-61.770.0-2.0100192610.029.539371000.5-SNMVFRSPECI10.02018-12-17 21:16:49Y›‹E)5     3CYNA 172112Z AUTO 12006KT 4SM -SN BKN016 OVC024 M01/M02 A2968 RMK SLP054CYNA2018-12-17T21:12:00Z50.17-61.82-1.0-2.012064.029.6811031005.4TRUE-SNMVFRSPECI11.02018-12-17 21:16:49E›‹D)5    3YKRY 172112Z AUTO 12007KT 5000 // OVC008 OVC012 21/20 Q1013YKRY2018-12-17T21:12:00Z-26.57151.8321.020.012073.1129.911417TRUEIFRSPECI434.02018-12-17 21:16:49Y›‹C)5    3CYAH 172112Z AUTO 23012G17KT 6SM -SN OVC032 M08/M10 A2949 RMK SLP010CYAH2018-12-17T21:12:00Z53.75-73.67-8.0-10.023012176.029.4891741001.0TRUE-SNVFRSPECI306.02018-12-17 21:16:49 i&Sqi‚›‹J)Q5     3PATE 172111Z AUTO 34023KT 1/2SM FZFG OVC012 M19/M21 A2944 RMK AO2 PK WND 35028/2108 PWINO FZRANO $PATE2018-12-17T21:11:00Z65.23-166.33-19.0-21.0340230.529.438976TRUETRUETRUETRUETRUEFZFGLIFRSPECI90.02018-12-17 21:16:49\›‹I)-5   3KBGM 172111Z 31014G24KT 10SM SCT021 BKN027 OVC044 00/M04 A2972 RMK AO2 T00001039KBGM2018-12-17T21:11:00Z42.22-75.980.0-3.9310142410.029.719488TRUEMVFRSPECI490.02018-12-17 21:16:49M›‹H)5    3KBNO 172111Z AUTO 00000KT 10SM SCT007 04/01 A3005 RMK AO2 T00390011KBNO2018-12-17T21:11:00Z43.6-118.953.91.10010.030.050198TRUETRUEVFRSPECI1264.02018-12-17 21:16:49T›‹G)5     3KRKD 172112Z AUTO VRB04KT 10SM SCT010 OVC023 01/00 A2943 RMK AO2 FZRANOKRKD2018-12-17T21:12:00Z44.07-69.081.00.00410.029.430119TRUETRUETRUEMVFRSPECI17.02018-12-17 21:16:49 y78IyJ›‹N)5    3KSTS 172111Z 00000KT 10SM SCT006 OVC100 11/09 A3020 RMK AO2 T01110094KSTS2018-12-17T21:11:00Z38.5-122.8211.19.40010.030.200787TRUEVFRSPECI39.02018-12-17 21:16:49i›‹M)?5     3CYBC 172111Z AUTO 08010KT 1 3/4SM -SN OVC005 M02/M02 A2955 RMK VIS VRB 1 1/2-2 1/2 SLP010CYBC2018-12-17T21:11:00Z49.12-68.2-2.0-2.080101.7529.5511821001.0TRUE-SNIFRSPECI22.02018-12-17 21:16:49y›‹L)M5       3KBHB 172111Z AUTO 33008KT 3SM -SN BR BKN006 OVC027 00/M01 A2941 RMK AO2 CIG 005V010 P0000 FZRANOKBHB2018-12-17T21:11:00Z44.45-68.370.0-1.033083.029.409449TRUETRUETRUE-SN BRIFR0.005SPECI26.02018-12-17 21:16:49C›‹K({5    3KETH 172111Z AUTO 11015KT 10SM CLR 03/M06 A3010 RMK AO2KETH2018-12-17T21:11:00Z45.78-96.553.0-6.01101510.030.100393TRUETRUEVFRSPECI313.02018-12-17 21:16:49 ²<v”²\›‹R)A5   3RJOM 172110Z 29008KT 9999 FEW025 SCT050 BKN070 08/M01 Q1019 RMK 2CU025 4SC050 5AC070 A3010RJOM2018-12-17T21:10:00Z33.82132.688.0-1.029086.2130.088583VFRSPECI7.02018-12-17 21:16:49\›‹Q)A5   3RJSN 172110Z 30017KT 9999 FEW020 SCT030 BKN040 06/M03 Q1012 RMK 1CU020 3CU030 5CU040 A2990RJSN2018-12-17T21:10:00Z37.95139.126.0-3.0300176.2129.88189VFRSPECI4.02018-12-17 21:16:49@›‹P(y5    3KJNX 172110Z AUTO 28005KT 10SM CLR 17/00 A2994 RMK AO2KJNX2018-12-17T21:10:00Z35.53-78.3817.00.0280510.029.940945TRUETRUEVFRMETAR50.02018-12-17 21:16:49>›‹O(y5    3KPGV 172110Z AUTO 28007KT 10SM CLR 16/01 A2994 RMK AO2KPGV2018-12-17T21:10:00Z35.62-77.416.01.0280710.029.940945TRUETRUEVFRMETAR8.02018-12-17 21:16:49 ¤,fx¤N›‹V)%5   3RJFU 172110Z 31010KT 9999 FEW045 BKN060 10/M00 Q1020 RMK 1SC045 5SC060 A3014RJFU2018-12-17T21:10:00Z32.92129.9210.00.0310106.2130.11811VFRSPECI5.02018-12-17 21:16:49h›‹U)M5    3RJNT 172110Z 21004KT 9999 -SHRA FEW015 SCT025 BKN040 03/M02 Q1015 RMK 1SC015 3CU025 6SC040 A2998RJNT2018-12-17T21:10:00Z36.63137.173.0-2.021046.2129.970472-SHRAVFRSPECI27.02018-12-17 21:16:49@›‹T) 5   3RJOA 172110Z 27003KT 9999 FEW015 02/M02 Q1017 RMK 1CU015 A3005RJOA2018-12-17T21:10:00Z34.42132.922.0-2.027036.2130.029528VFRSPECI6.02018-12-17 21:16:49N›‹S)%5   3RJOC 172110Z 26009KT 9999 FEW040 BKN060 08/M02 Q1017 RMK 2CU040 5SC060 A3003RJOC2018-12-17T21:10:00Z35.42132.878.0-2.026096.2130.029528VFRSPECI5.02018-12-17 21:16:49 ”9c‰”o›‹Z)15    3PACZ 172110Z AUTO 35026G36KT 1SM -SN BR FEW013 BKN016 M12/M14 A2937 RMK AO2 SLP961PACZ2018-12-17T21:10:00Z61.78-166.03-12.0-14.035026361.029.371063996.1TRUETRUE-SN BRIFRSPECI146.02018-12-17 21:16:49T›‹Y)5    3PALU 172110Z AUTO 03006KT 10SM OVC009 M22/M24 A2955 RMK AO2 SLP008PALU2018-12-17T21:10:00Z68.88-166.1-22.0-24.030610.029.5511821000.8TRUETRUEIFRSPECI3.02018-12-17 21:16:49P›‹X)%5   3RJCH 172110Z 29011KT 9999 FEW025 BKN050 00/M06 Q1006 RMK 1CU025 7CU050 A2971RJCH2018-12-17T21:10:00Z41.77140.820.0-6.0290116.2129.704725VFRSPECI36.02018-12-17 21:16:49A›‹W) 5   3RJFT 172110Z 19003KT 9999 FEW060 04/M01 Q1020 RMK 2SC060 A3014RJFT2018-12-17T21:10:00Z32.82130.834.0-1.019036.2130.11811VFRSPECI196.02018-12-17 21:16:49 š.=jšJ›‹^)5   3KMKY 172110Z AUTO 31010G16KT 10SM BKN023 18/13 A3010 RMK AO2KMKY2018-12-17T21:10:00Z26.0-81.6718.013.0310101610.030.100393TRUETRUEMVFRSPECI2.02018-12-17 21:16:49M›‹])5    3KDEW 172110Z AUTO 00000KT 10SM OVC016 04/03 A2998 RMK AO2 T00390033KDEW2018-12-17T21:10:00Z47.97-117.433.93.30010.029.97933TRUETRUEMVFRSPECI674.02018-12-17 21:16:49k›‹\)75      3KMLT 172110Z AUTO 33006KT 1 1/4SM -SN BR OVC022 M01/M03 A2945 RMK AO2 P0001 T10111028KMLT2018-12-17T21:10:00Z45.65-68.7-1.1-2.833061.2529.450787TRUETRUE-SN BRIFR0.01SPECI123.02018-12-17 21:16:49L›‹[) 5    3PGSN 172110Z 09012KT 10SM FEW019 27/24 A2987 RMK AO2 T02720239 $PGSN2018-12-17T21:10:00Z15.12145.7227.223.9901210.029.870079TRUETRUEVFRSPECI65.02018-12-17 21:16:49 i Gmi~›‹b)M5       3PACM 172110Z AUTO 30013KT 1 3/4SM -SN BR FEW010 BKN041 OVC048 M12/M13 A2945 RMK AO2 P0000 FZRANOPACM2018-12-17T21:10:00Z61.85-165.57-12.0-13.0300131.7529.450787TRUETRUETRUE-SN BRIFR0.005SPECI4.02018-12-17 21:16:49T›‹a) 5      3PAMO 172110Z AUTO 1 1/4SM BR CLR M22/M24 A2937 RMK AO2 FZRANO $PAMO2018-12-17T21:10:00Z62.1-163.68-22.0-24.01.2529.371063TRUETRUETRUETRUEBRIFRSPECI103.02018-12-17 21:16:49S›‹`)5     3KARG 172110Z AUTO 11003KT 1 3/4SM HZ CLR 13/02 A3022 RMK AO2 VIS 3/4V4KARG2018-12-17T21:10:00Z36.12-90.9213.02.011031.7530.221457TRUETRUEHZIFRSPECI83.02018-12-17 21:16:49Z›‹_)5    3KJHW 172110Z AUTO 30013G20KT 10SM OVC015 M01/M03 A2991 RMK AO2 FZRANOKJHW2018-12-17T21:10:00Z42.13-79.27-1.0-3.0300132010.029.911417TRUETRUETRUEMVFRSPECI525.02018-12-17 21:16:49 Kib›‹f);5     3KAUG 172109Z AUTO 31005KT 2 1/2SM BR SCT005 BKN017 OVC028 00/00 A2945 RMK AO2 T00000000KAUG2018-12-17T21:09:00Z44.32-69.80.00.031052.529.450787TRUETRUEBRIFRSPECI109.02018-12-17 21:16:49\›‹e)/5    3KTCS 172109Z AUTO 00000KT 10SM SCT009 BKN055 OVC100 09/07 A3016 RMK AO2 T00940067KTCS2018-12-17T21:09:00Z33.23-107.279.46.70010.030.159449TRUETRUEVFRSPECI1469.02018-12-17 21:16:49B›‹d({5    3KUSE 172110Z AUTO 30009KT 10SM CLR 04/M02 A3009 RMK AO2KUSE2018-12-17T21:10:00Z41.62-84.134.0-2.0300910.030.088583TRUETRUEVFRMETAR238.02018-12-17 21:16:49g›‹c)35    3CYSC 172110Z AUTO 27011G16KT 2 1/2SM -SN BKN008 OVC013 M01/M01 A2950 RMK ICG SLP003CYSC2018-12-17T21:10:00Z45.43-71.68-1.0-1.027011162.529.5009841000.3TRUE-SNIFRSPECI241.02018-12-17 21:16:49 /òÚø/C›‹j)5   3YAMB 172109Z AUTO 12009KT //// // SCT015 BKN019 OVC025 24/21 Q1012YAMB2018-12-17T21:09:00Z-27.63152.7224.021.0120929.88189TRUESPECI28.02018-12-17 21:16:49\›‹i)5    3CWSA 172109Z AUTO 11019G31KT 1 1/4SM -RA BR OVC004 06/05 A2919 RMK SLP886CWSA2018-12-17T21:09:00Z43.93-60.06.05.011019311.2529.190945988.6TRUE-RA BRLIFRSPECI4.02018-12-17 21:16:49‚›‹h)}5      3PAAK 172109Z AUTO 30019G26KT 1 1/2SM -SN FEW016 BKN042 OVC055 M02/M06 A2988 RMK AO2 PK WND 31026/2105 SNB01 P0000 FZRANOPAAK2018-12-17T21:09:00Z52.22-174.2-2.0-6.030019261.529.878937TRUETRUETRUE-SNIFR0.005SPECI17.02018-12-17 21:16:49‚›‹g)i5      3PAOU 172109Z AUTO 33023G28KT 5SM -SN FEW010 SCT020 BKN039 M06/M09 A2937 RMK AO2 PK WND 33033/2100 P0000 FZRANOPAOU2018-12-17T21:09:00Z56.0-161.17-6.0-9.033023285.029.371063TRUETRUETRUE-SNMVFR0.005SPECI4.02018-12-17 21:16:49 ß Ö߁q›‹m)E5  !  3CYUY 172108Z 32011KT 280V350 2SM -SHSN DRSN BKN014 OVC025 M09/M11 A2989 RMK SN2CU3SC3 SLP144CYUY2018-12-17T21:08:00Z48.2-78.82-9.0-11.0320112.029.8907471014.4-SHSN DRSNIFRSPECI301.02018-12-17 21:16:49‚1›‹l)‚/5      3PASN 172108Z AUTO 33026G32KT 1 1/4SM -SN BKN035 BKN042 BKN060 M05/M09 A2964 RMK AO2 PK WND 33032/2105 VIS 1/2V5 UPE04SNB04 P0000 T10501089 TSNO $PASN2018-12-17T21:08:00Z57.15-170.22-5.0-8.933026321.2529.639763TRUETRUETRUETRUE-SNIFR0.005SPECI29.02018-12-17 21:16:49m›‹k)A5    3CYPD 172109Z AUTO 07016G24KT 2SM -SN -UP OVC007 00/M00 A2933 RMK ICG PAST HR PRESFR SLP938CYPD2018-12-17T21:09:00Z45.67-61.370.00.07016242.029.329725993.8TRUE-SN UPIFRSPECI114.02018-12-17 21:16:49 v'ave›‹q)95     3KPBG 172107Z AUTO 33004KT 9SM SCT026 OVC032 01/M02 A2962 RMK AO2 SNE04 P0000 T00111017KPBG2018-12-17T21:07:00Z44.65-73.471.1-1.733049.029.619095TRUETRUEVFR0.005METAR72.02018-12-17 21:16:49@›‹p)5    3EHWO 172107Z AUTO 20006KT 9999 FEW008 OVC230 07/06 Q1023 BLUEHWO2018-12-17T21:07:00Z51.454.327.06.020066.2130.206694TRUEVFRSPECI17.02018-12-17 21:16:49r›‹o)75       3PAGH 172107Z AUTO 30003KT 1SM -SN BR BKN012 OVC022 M23/M26 A2915 RMK AO2 P0000 FZRANOPAGH2018-12-17T21:07:00Z66.88-157.17-23.0-26.030031.029.149607TRUETRUETRUE-SN BRIFR0.005METAR60.02018-12-17 21:16:49[›‹n)5     3CYMT 172107Z AUTO 31008KT 2SM -SN BKN022 OVC085 M11/M13 A2968 RMK SLP078CYMT2018-12-17T21:07:00Z49.77-74.52-11.0-13.031082.029.6811031007.8TRUE-SNIFRSPECI387.02018-12-17 21:16:49 \B\`›‹u)5      3PAVA 172106Z AUTO 32006KT 3SM -SN BR M13/M14 A2943 RMK AO2 P0000 FZRANOPAVA2018-12-17T21:06:00Z61.53-165.6-13.0-14.032063.029.430119TRUETRUETRUE-SN BR0.005SPECI23.02018-12-17 21:16:49V›‹t)5    3CYEK 172107Z 33011KT 7SM IC DRSN SCT006 M22/M25 A3011 RMK SC4 SLP198CYEK2018-12-17T21:07:00Z61.1-94.07-22.0-25.0330117.030.1092531019.8IC DRSNVFRSPECI10.02018-12-17 21:16:49p›‹s)95       3KHUL 172107Z AUTO 36007KT 1SM -SN BR OVC005 M02/M02 A2942 RMK AO2 P0000 T10171022 TSNOKHUL2018-12-17T21:07:00Z46.12-67.8-1.7-2.236071.029.421259TRUETRUETRUE-SN BRIFR0.005METAR150.02018-12-17 21:16:49f›‹r)-5     3KMVL 172107Z AUTO 29010G17KT 4SM -SN OVC023 00/M03 A2958 RMK AO2 P0000 T00001028KMVL2018-12-17T21:07:00Z44.53-72.620.0-2.829010174.029.58071TRUETRUE-SNMVFR0.005METAR234.02018-12-17 21:16:49 h&CThf›‹y)#5     3KBIF 172106Z AUTO 31005KT 5SM -RA OVC060 14/02 A3013 RMK AO2 RAB06 SLP172 $KBIF2018-12-17T21:06:00Z31.85-106.3814.02.031055.030.1299211017.2TRUETRUETRUE-RAMVFRSPECI1203.02018-12-17 21:16:49i›‹x)/5     3PAEI 172106Z 16004KT 10SM -SN FEW012 BKN020 M22/M25 A2911 RMK AO2A SNB05 SLP877 $PAEI2018-12-17T21:06:00Z64.67-147.1-22.0-25.0160410.029.111221987.7TRUETRUE-SNMVFRSPECI167.02018-12-17 21:16:49]›‹w)-5   3CYQY 172106Z 09018G25KT 1 1/4SM -SN BKN003 OVC006 00/M00 A2950 RMK SC5SC3 SLP994CYQY2018-12-17T21:06:00Z46.17-60.030.00.09018251.2529.500984999.4-SNLIFRSPECI62.02018-12-17 21:16:49T›‹v)5     3PAGM 172106Z AUTO 01019KT 10SM SCT018 M18/M21 A2966 RMK AO2 FZRANOPAGM2018-12-17T21:06:00Z63.77-171.73-18.0-21.0101910.029.660433TRUETRUETRUEVFRMETAR8.02018-12-17 21:16:49 ~6S‡~‚›‹})m5    3CYZP 172106Z AUTO 13037G50KT 2 1/2SM -RA BR FEW022 SCT029 OVC039 08/06 A2905 RMK PRESFR SLP837 DENSITY ALT 100FTCYZP2018-12-17T21:06:00Z53.25-131.828.06.013037502.529.049213983.7TRUE-RA BRIFRSPECI6.02018-12-17 21:16:49F›‹|) 5    3KFUL 172106Z 00000KT 10SM BKN029 19/11 A3013 RMK AO2 T01890111KFUL2018-12-17T21:06:00Z33.87-117.9818.911.10010.030.129921TRUEMVFRMETAR35.02018-12-17 21:16:49]›‹{)35     3KIWI 172106Z AUTO VRB03KT 3SM BR SCT008 BKN020 OVC036 01/01 A2947 RMK AO2 T00060006KIWI2018-12-17T21:06:00Z43.97-69.720.60.6033.029.471457TRUETRUEBRMVFRMETAR20.02018-12-17 21:16:49D›‹z) 5    3KSPS 172106Z 03009KT 10SM BKN140 10/04 A3018 RMK AO2 T01000039KSPS2018-12-17T21:06:00Z33.98-98.510.03.930910.030.180119TRUEVFRMETAR308.02018-12-17 21:16:49 šClšL›‹)5    3KTTA 172105Z AUTO 29008KT 10SM CLR 16/M01 A2996 RMK AO2 T01601010KTTA2018-12-17T21:05:00Z35.58-79.116.0-1.0290810.029.958662TRUETRUEVFRMETAR75.02018-12-17 21:16:49Q›‹)5     3KM19 172105Z AUTO 00000KT 1 1/4SM HZ CLR 13/02 A3022 RMK AO2 VIS 1/4V5KM192018-12-17T21:05:00Z35.65-91.1713.02.0001.2530.221457TRUETRUEHZIFRSPECI73.02018-12-17 21:16:49U›‹)5   3K0CO 172106Z AUTO 33012G27KT 291V001 10SM CLR M06/M13 A3022 RMK AO2K0CO2018-12-17T21:06:00Z39.8-105.77-6.0-13.0330122710.030.221457TRUETRUEVFRMETAR3807.02018-12-17 21:16:49\›‹~)5     3CYMM 172106Z AUTO 14005KT 8SM -SN BKN030 OVC065 M10/M13 A2956 RMK SLP043CYMM2018-12-17T21:06:00Z56.65-111.22-10.0-13.014058.029.560041004.3TRUE-SNMVFRSPECI369.02018-12-17 21:16:49 Ž,X‰Žu›‹)o5     3LTBJ 172105Z 12004KT 080V170 0550 0300S R34/0450D R16/0900U FG BKN002 07/07 Q1016 NOSIG RMK RWY16 12004KT 080V140LTBJ2018-12-17T21:05:00Z38.2827.157.07.012040.3430.0TRUEFGLIFRSPECI120.02018-12-17 21:16:49I›‹)5   3K2G4 172105Z AUTO 28011G21KT 10SM CLR 01/M05 A2986 RMK AO1K2G42018-12-17T21:05:00Z39.58-79.331.0-5.0280112110.029.861221TRUETRUEVFRSPECI894.02018-12-17 21:16:49N›‹)5    3KHNZ 172105Z AUTO 25005KT 10SM CLR 13/M01 A2992 RMK AO2 T01281009KHNZ2018-12-17T21:05:00Z36.37-78.5312.8-0.9250510.029.920275TRUETRUEVFRMETAR161.02018-12-17 21:16:49N›‹)5    3KIPJ 172105Z AUTO 28005KT 10SM CLR 16/M04 A3001 RMK AO2 T01641042KIPJ2018-12-17T21:05:00Z35.48-81.1716.4-4.2280510.030.008858TRUETRUEVFRMETAR267.02018-12-17 21:16:49 ¶Do”¶X›‹ )#5    3KDSV 172104Z AUTO 30009KT 10SM BKN030 OVC041 02/M02 A2986 RMK AO2 T00171022KDSV2018-12-17T21:04:00Z42.57-77.721.7-2.2300910.029.861221TRUETRUEMVFRSPECI198.02018-12-17 21:16:49U›‹)%5    3KRDD 172104Z 25005KT 10SM BKN013 BKN019 OVC047 12/09 A3019 RMK AO2 T01170089KRDD2018-12-17T21:04:00Z40.52-122.311.78.9250510.030.188976TRUEMVFRSPECI155.02018-12-17 21:16:49O›‹)5   3MHTG 172105Z 36010G20KT 9999 BKN028 SCT080 19/13 Q1020 A3012 NOSIGMHTG2018-12-17T21:05:00Z14.07-87.2219.013.036010206.2130.11811TRUEMVFRMETAR1004.02018-12-17 21:16:496›‹(s5    3ETHS 172105Z 22007KT 3000 BR OVC003 04/04 Q1022 YLOETHS2018-12-17T21:05:00Z52.9210.184.04.022071.8630.177166BRLIFRSPECI88.02018-12-17 21:16:49 2 2T›‹ )#5    3ETSN 172104Z 21002KT 6000 -RASN FEW006 BKN026 02/01 Q1028 WHT BLU BECMG GRNETSN2018-12-17T21:04:00Z48.7211.222.01.021023.7330.35433-RA -SNMVFRSPECI387.02018-12-17 21:16:49v›‹ )E5       3PAHL 172104Z AUTO 00000KT 6SM -SN BR SCT020 BKN036 OVC045 M19/M22 A2913 RMK AO2 P0000 FZRANOPAHL2018-12-17T21:04:00Z65.7-156.35-19.0-22.0006.029.128937TRUETRUETRUE-SN BRVFR0.005METAR65.02018-12-17 21:16:49r›‹ )O5    3ETIC 172104Z AUTO 00000KT 9999 BKN010 OVC046 01/01 A3029 RMK AO2 RAE03DZB03E04 BKN V OVC SLP283 $ETIC2018-12-17T21:04:00Z49.711.931.01.0006.2130.289371028.3TRUETRUETRUEMVFRSPECI415.02018-12-17 21:16:49z›‹ )O5     3PATC 172104Z AUTO 01026KT 1SM -SN BR SCT014 SCT250 M18/M20 A2946 RMK AO2 PK WND 02029/2055 SLP989PATC2018-12-17T21:04:00Z65.57-167.92-18.0-20.010261.029.459646998.9TRUETRUE-SN BRIFRSPECI83.02018-12-17 21:16:49 n'aMnY›‹)5    3KRND 172103Z AUTO 22003KT 10SM CLR 21/M02 A3016 RMK AO2 DZB2056 SLP211KRND2018-12-17T21:03:00Z29.52-98.2721.0-2.0220310.030.1594491021.1TRUETRUEVFRSPECI232.02018-12-17 21:16:49‚›‹)o5      3PAIW 172103Z AUTO 35023G28KT 1SM -SN BR OVC018 M18/M19 A2954 RMK AO2 PK WND 35028/2103 VIS 1/2V1 3/4 P0000 FZRANOPAIW2018-12-17T21:03:00Z65.62-168.1-18.0-19.035023281.029.53937TRUETRUETRUE-SN BRIFR0.005METAR7.02018-12-17 21:16:49@›‹(y5    3K2W6 172103Z AUTO 25006KT 10SM CLR 10/03 A2984 RMK AO1K2W62018-12-17T21:03:00Z38.32-76.5510.03.0250610.029.840551TRUETRUEVFRSPECI44.02018-12-17 21:16:49S›‹)5   3KCGS 172103Z AUTO 32010G19KT 10SM CLR 12/M04 A2983 RMK AO1 T01151043KCGS2018-12-17T21:03:00Z38.98-76.9211.5-4.3320101910.029.828741TRUETRUEVFRSPECI15.02018-12-17 21:16:49 ^<d^‚›‹)U5      3PAVC 172103Z AUTO 24011G19KT 220V280 10SM UP FEW025 BKN034 OVC050 M06/M11 A2942 RMK AO2 P0000 FZRANOPAVC2018-12-17T21:03:00Z55.12-162.27-6.0-11.0240111910.029.421259TRUETRUETRUEUPVFR0.005SPECI47.02018-12-17 21:16:49R›‹)5   3KBED 172103Z 28010G17KT 10SM FEW040 OVC055 04/M01 A2952 RMK AO2 T00441011KBED2018-12-17T21:03:00Z42.47-71.34.4-1.1280101710.029.518702TRUEVFRSPECI50.02018-12-17 21:16:49N›‹)5    3KCMA 172103Z 24005KT 10SM BKN013 OVC021 18/13 A3014 RMK AO2 T01780128KCMA2018-12-17T21:03:00Z34.22-119.117.812.8240510.030.138779TRUEMVFRSPECI23.02018-12-17 21:16:49j›‹)A5   3KMPO 172103Z AUTO 29018G28KT 10SM OVC031 M01/M03 A2968 RMK AO2 PK WND 29028/2103 T10061033KMPO2018-12-17T21:03:00Z41.13-75.38-0.6-3.3290182810.029.681103TRUETRUEVFRSPECI577.02018-12-17 21:16:49 G8Gk›‹)-5      3KCAR 172102Z AUTO 02006KT 1SM -SN BR VV013 M02/M03 A2945 RMK AO2 P0000 T10171033KCAR2018-12-17T21:02:00Z46.87-68.02-1.7-3.32061.029.450787TRUETRUE-SN BRLIFR0.0051300SPECI191.02018-12-17 21:16:49[›‹)!5    3CYHU 172102Z AUTO 28009G15KT 9SM -SN BKN031 OVC080 01/M01 A2960 RMK SLP028CYHU2018-12-17T21:02:00Z45.52-73.421.0-1.02809159.029.6013771002.8TRUE-SNVFRSPECI27.02018-12-17 21:16:49g›‹)15    3CYNM 172102Z AUTO 31014G21KT 6SM -SN SCT024 BKN110 OVC130 M12/M14 A2985 RMK SLP129CYNM2018-12-17T21:02:00Z49.77-77.82-12.0-14.031014216.029.849411012.9TRUE-SNVFRSPECI281.02018-12-17 21:16:49t›‹)?5       3PAPH 172103Z AUTO 31016KT 5SM -SN FEW013 BKN024 OVC033 M08/M11 A2924 RMK AO2 P0000 FZRANOPAPH2018-12-17T21:03:00Z56.95-158.62-8.0-11.0310165.029.241142TRUETRUETRUE-SNMVFR0.005METAR29.02018-12-17 21:16:49 ‡(U‹‡~›‹)W5     3KSYR 172101Z 28014G19KT 9SM -RASN SCT025 BKN032 OVC050 02/M01 A2977 RMK AO2 RAB2059 P0000 T00171006 $KSYR2018-12-17T21:01:00Z43.12-76.11.7-0.628014199.029.769686TRUETRUE-RA -SNVFR0.005SPECI127.02018-12-17 21:16:49D›‹)5    3KTXK 172101Z 00000KT 9SM BKN010 12/11 A3018 RMK AO2 T01220106KTXK2018-12-17T21:01:00Z33.45-93.9812.210.6009.030.180119TRUEMVFRMETAR111.02018-12-17 21:16:49M›‹)5    3KHQM 172102Z AUTO 11010KT 9SM OVC029 10/07 A2985 RMK AO2 T01000072KHQM2018-12-17T21:02:00Z46.97-123.9310.07.2110109.029.84941TRUETRUEMVFRSPECI7.02018-12-17 21:16:49R›‹)5     3KPBF 172102Z AUTO 01007KT 1 1/4SM HZ CLR 14/07 A3021 RMK AO2 T01440072KPBF2018-12-17T21:02:00Z34.18-91.9314.47.21071.2530.209646TRUETRUEHZIFRSPECI62.02018-12-17 21:16:49 c 8Dc[›‹!)5    3CYPX 172101Z AUTO 35025G31KT 1 1/4SM -SN BKN016 M06/M07 A2928 RMK SLP919CYPX2018-12-17T21:01:00Z60.03-77.27-6.0-7.035025311.2529.279528991.9TRUE-SNIFRSPECI23.02018-12-17 21:16:49n›‹ );5       3KFVE 172101Z AUTO 02005KT 1 3/4SM -SN OVC019 M02/M04 A2945 RMK AO2 P0000 T10171044 TSNOKFVE2018-12-17T21:01:00Z47.28-68.3-1.7-4.42051.7529.450787TRUETRUETRUE-SNIFR0.005METAR301.02018-12-17 21:16:49O›‹)5    3KMAE 172101Z AUTO 33005KT 10SM SCT021 16/09 A3020 RMK AO2 T01560089KMAE2018-12-17T21:01:00Z36.98-120.1215.68.9330510.030.200787TRUETRUEVFRMETAR77.02018-12-17 21:16:49m›‹)C5      3KMSS 172101Z AUTO 28010KT 8SM -SN FEW019 SCT026 OVC034 01/M01 A2971 RMK AO2 P0000 T00111006KMSS2018-12-17T21:01:00Z44.93-74.851.1-0.6280108.029.71063TRUETRUE-SNVFR0.005METAR66.02018-12-17 21:16:49 Ò)YÀҁh›‹%)C5     3CWDC 172100Z AUTO 10006KT M13/M15 RMK AO1 7PAST HR SOG 19 6034 SLP055 P0003 T11281152 50017CWDC2018-12-17T21:00:00Z59.57-108.47-12.8-15.210061005.5TRUETRUE1.70.03METAR318.02018-12-17 21:16:49›‹$(O5   3CWIG 172100Z AUTO 02004KT RMK AO1CWIG2018-12-17T21:00:00Z47.07-70.53204TRUETRUEMETAR18.02018-12-17 21:16:49J›‹#)5    3CYEN 172100Z AUTO 13005KT 9SM FEW220 02/M03 A2980 RMK SLP124CYEN2018-12-17T21:00:00Z49.22-102.972.0-3.013059.029.7992131012.4TRUEVFRMETAR581.02018-12-17 21:16:49Q›‹")5     3CZBF 172101Z AUTO 05006KT 1SM -SN OVC003 M02/M02 A2955 RMK SLP011CZBF2018-12-17T21:01:00Z47.62-65.75-2.0-2.05061.029.5511821001.1TRUE-SNLIFRSPECI59.02018-12-17 21:16:49 ›1K}›\›‹))55    3CWCO 172100Z AUTO 33025G32KT 01/M03 RMK AO1 PK WND 33033/2044 SLP137 T00131030 53019CWCO2018-12-17T21:00:00Z44.45-80.171.3-3.033025321013.7TRUETRUE1.9METAR221.02018-12-17 21:16:49H›‹() 5    3CWDJ 172100Z AUTO 14010KT M03/M06 RMK AO1 SLP105 T10291060 57018CWDJ2018-12-17T21:00:00Z50.4-104.58-2.9-6.0140101010.5TRUETRUE-1.8METAR573.02018-12-17 21:16:49`›‹')55    3CWDK 172100Z AUTO 26016G24KT 10/M06 RMK AO1 PK WND 26025/2049 SLP093 T01001055 56002CWDK2018-12-17T21:00:00Z50.02-113.6210.0-5.526016241009.3TRUETRUE-0.2METAR1012.02018-12-17 21:16:49I›‹&)5   3CWCT 172100Z AUTO 25011KT 04/M02 RMK AO1 SOG 04 3008 SLP066 T00361022CWCT2018-12-17T21:00:00Z52.07-111.473.6-2.2250111006.6TRUETRUEMETAR791.02018-12-17 21:16:49 º2ižº^›‹-)55    3CWBO 172100Z AUTO 26010G15KT 09/M01 RMK AO1 PK WND 26020/2035 SLP067 T00901009 56006CWBO2018-12-17T21:00:00Z50.53-111.839.0-0.926010151006.7TRUETRUE-0.6METAR747.02018-12-17 21:16:49E›‹,) 5    3CWBT 172100Z AUTO 07005KT M01/M02 RMK AO1 SLP043 T10071020 56017CWBT2018-12-17T21:00:00Z50.27-64.23-0.7-2.07051004.3TRUETRUE-1.7METAR11.02018-12-17 21:16:49C›‹+) 5    3CWBZ 172100Z AUTO 28008KT 01/M01 RMK AO1 SLP044 T00081009 53016CWBZ2018-12-17T21:00:00Z45.12-74.270.8-0.928081004.4TRUETRUE1.6METAR49.02018-12-17 21:16:49H›‹*)5   3CWCJ 172100Z AUTO 01003KT M06/M12 RMK AO1 SOG 01 3017 SLP218 T10551122CWCJ2018-12-17T21:00:00Z48.6-86.28-5.5-12.21031021.8TRUETRUEMETAR206.02018-12-17 21:16:49 ÕD\ŽÕ3›‹1(s5   3WMKJ 172100Z 00000KT 9999 FEW022 BKN130 25/24 Q1010WMKJ2018-12-17T21:00:00Z1.62103.6725.024.0006.2129.822834VFRMETAR40.02018-12-17 21:16:49H›‹0)5   3CWAQ 172100Z AUTO 29006KT 04/M03 RMK AO1 SOG 01 8012 SLP110 T00381026CWAQ2018-12-17T21:00:00Z49.05-105.483.8-2.629061011.0TRUETRUEMETAR756.02018-12-17 21:16:49b›‹/)A5   3CWAV 172100Z AUTO 26012G21KT 09/M10 RMK AO1 SOG 03 1011 PK WND 22027/2019 SLP061 T00851100CWAV2018-12-17T21:00:00Z51.77-114.678.5-10.026012211006.1TRUETRUEMETAR1114.02018-12-17 21:16:496›‹.)5  3CWBA 172100Z AUTO 33007KT M06/M09 RMK AO1 SOG 20 T10561087CWBA2018-12-17T21:00:00Z46.72-79.1-5.6-8.73307TRUETRUEMETAR181.02018-12-17 21:16:49 I4|ÃID›‹6)5   3WBGS 172100Z 11004KT 080V150 9999 FEW006 SCT018 BKN150 23/23 Q1011WBGS2018-12-17T21:00:00Z2.27111.9823.023.011046.2129.852362VFRMETAR8.02018-12-17 21:16:49*›‹5(g5   3WBGY 172100Z AUTO 00000KT //// // 23/23 Q1011WBGY2018-12-17T21:00:00Z1.22111.4323.023.00029.852362TRUEMETAR34.02018-12-17 21:16:493›‹4(s5   3WBKL 172100Z VRB01KT 9999 FEW014 BKN290 26/25 Q1011WBKL2018-12-17T21:00:00Z5.28115.2526.025.0016.2129.852362VFRMETAR30.02018-12-17 21:16:492›‹3(s5   3WBKS 172100Z VRB02KT 9999 FEW016 BKN290 25/25 Q1010WBKS2018-12-17T21:00:00Z5.9118.0725.025.0026.2129.822834VFRMETAR13.02018-12-17 21:16:49F›‹2) 5    3WBKT 172100Z 00000KT 8000 -SHRA SCT013 SCT140 BKN270 24/24 Q1011WBKT2018-12-17T21:00:00Z6.92116.8224.024.0004.9729.852362-SHRAMVFRMETAR5.02018-12-17 21:16:49 Ô9N·Ô]›‹:)55     3CWSF 172100Z AUTO 10009KT M02/M02 RMK AO1 7PAST HR 6025 SLP018 P0003 T10191015 50021CWSF2018-12-17T21:00:00Z49.25-65.32-1.9-1.510091001.8TRUETRUE2.10.03METAR29.02018-12-17 21:16:49›‹9(O5   3CWER 172100Z AUTO 06005KT RMK AO1CWER2018-12-17T21:00:00Z47.0-70.82605TRUETRUEMETAR5.02018-12-17 21:16:49e›‹8)C5     3CWNH 172100Z AUTO 36005KT M03/M03 RMK AO1 2PAST HR SOG 15 5009 SLP000 P0001 T10251032 50002CWNH2018-12-17T21:00:00Z47.78-69.53-2.5-3.236051000.0TRUETRUE0.20.01METAR148.02018-12-17 21:16:49A›‹7) 5    3WBGB 172100Z VRB03KT 8000 -RA FEW002 SCT016 OVC140 23/23 Q1012WBGB2018-12-17T21:00:00Z3.12113.0223.023.0034.9729.88189-RAMVFRMETAR5.02018-12-17 21:16:49 ‹+Fy‹h›‹>)U5     3CWWE 172100Z AUTO 03007KT 03/03 RMK AO1 5PAST HR 6030 PK WND 06019/2005 SLP888 P0002 T00320028 50043CWWE2018-12-17T21:00:00Z43.97-64.673.22.8307988.8TRUETRUE4.30.02METAR9.02018-12-17 21:16:49G›‹=)5   3CWBY 172100Z AUTO 08006KT M01/M02 RMK AO1 SOG 23 8020 SLP030 T10111024CWBY2018-12-17T21:00:00Z49.82-64.28-1.1-2.48061003.0TRUETRUEMETAR53.02018-12-17 21:16:49_›‹<)A5    3CWBV 172100Z AUTO 06034G40KT 03/03 RMK AO1 PRESFR PK WND 06042/2022 SLP885 T00310026 56071CWBV2018-12-17T21:00:00Z44.82-62.323.12.6603440988.5TRUETRUE-7.1METAR10.02018-12-17 21:16:49O›‹;)%5    3CWSS 172100Z AUTO 36003KT M00/M01 RMK AO1 SOG 05 6017 SLP954 T10021014 50012CWSS2018-12-17T21:00:00Z45.2-67.25-0.2-1.43603995.4TRUETRUE1.2METAR26.02018-12-17 21:16:49 ´0d›´a›‹B)C5     3CWPE 172100Z AUTO 01007KT M00/M00 RMK AO1 3PAST HR SOG 03 6021 SLP938 P0001 T10031003 50008CWPE2018-12-17T21:00:00Z45.07-66.47-0.3-0.3107993.8TRUETRUE0.80.01METAR1.02018-12-17 21:16:49C›‹A) 5    3CWPF 172100Z AUTO 36002KT 08/07 RMK AO1 SLP084 T00830074 58022CWPF2018-12-17T21:00:00Z48.43-123.438.37.436021008.4TRUETRUE-2.2METAR12.02018-12-17 21:16:49F›‹@) 5    3CWPR 172100Z AUTO 24002KT 01/M00 RMK AO1 SLP120 T00131003 58017CWPR2018-12-17T21:00:00Z49.47-120.521.3-0.324021012.0TRUETRUE-1.7METAR700.02018-12-17 21:16:49J›‹?)5   3CWPZ 172100Z AUTO 33001KT M02/M03 RMK AO1 SOG 24 8013 SLP005 T10231027CWPZ2018-12-17T21:00:00Z54.38-125.97-2.3-2.733011000.5TRUETRUEMETAR713.02018-12-17 21:16:49 ¡Sl¡E›‹F) 5    3CWNQ 172100Z AUTO 27004KT M01/M02 RMK AO1 SLP009 T10061019 53003CWNQ2018-12-17T21:00:00Z46.22-72.65-0.6-1.927041000.9TRUETRUE0.3METAR10.02018-12-17 21:16:49a›‹E)C5   3CWOD 172100Z AUTO 32017G32KT M06/M09 RMK AO1 SOG 29 3028 PK WND 32032/2057 SLP027 T10571094CWOD2018-12-17T21:00:00Z48.85-72.55-5.7-9.432017321002.7TRUETRUEMETAR137.02018-12-17 21:16:49D›‹D) 5    3CWOE 172100Z AUTO 24004KT 09/00 RMK AO1 SLP105 T00870000 56015CWOE2018-12-17T21:00:00Z49.12-110.478.70.024041010.5TRUETRUE-1.5METAR935.02018-12-17 21:16:49]›‹C)55     3CWPD 172100Z AUTO 36005KT M04/M06 RMK AO1 0PAST HR 5003 SLP980 P0008 T10401056 50020CWPD2018-12-17T21:00:00Z47.57-71.22-4.0-5.63605998.0TRUETRUE2.00.08METAR803.02018-12-17 21:16:49 »4k‰»H›‹J)5   3CWWF 172100Z AUTO 17009KT M01/M04 RMK AO1 SOG 02 6017 SLP116 T10131043CWWF2018-12-17T21:00:00Z49.7-103.8-1.3-4.317091011.6TRUETRUEMETAR589.02018-12-17 21:16:49\›‹I)35    3CWWK 172100Z AUTO 16010G16KT 11/05 RMK AO1 PK WND 13019/2048 SLP104 T01060053 58020CWWK2018-12-17T21:00:00Z49.02-122.7810.65.316010161010.4TRUETRUE-2.0METAR15.02018-12-17 21:16:49C›‹H) 5    3CWNM 172100Z AUTO 22007KT 05/04 RMK AO1 SLP155 T00450036 56005CWNM2018-12-17T21:00:00Z49.5-117.284.53.622071015.5TRUETRUE-0.5METAR535.02018-12-17 21:16:49F›‹G)5   3CWNP 172100Z AUTO 15001KT 07/03 RMK AO1 SOG 05 7010 SLP137 T00720026CWNP2018-12-17T21:00:00Z50.27-117.827.22.615011013.7TRUETRUEMETAR524.02018-12-17 21:16:49 £3Q…£\›‹N);5   3CWVP 172100Z AUTO 24011KT 05/M02 RMK AO1 SOG 08 6018 PK WND 24017/2046 SLP084 T00471023CWVP2018-12-17T21:00:00Z49.63-109.524.7-2.3240111008.4TRUETRUEMETAR1271.02018-12-17 21:16:49F›‹M)5   3CWVQ 172100Z AUTO 29009KT 01/M02 RMK AO1 SOG 03 3013 SLP037 T00081015CWVQ2018-12-17T21:00:00Z45.42-73.920.8-1.529091003.7TRUETRUEMETAR39.02018-12-17 21:16:49\›‹L)A5    3CWVU 172100Z AUTO 35015KT 03/03 RMK AO1 5PAST HR M PK WND 34020/2053 P0002 T00310031 50005CWVU2018-12-17T21:00:00Z44.28-66.333.13.135015TRUETRUE0.50.02METAR16.02018-12-17 21:16:49G›‹K)5    3CWWA 172100Z AUTO 09004KT 08/06 RMK AO1 8018 SLP101 T00840055 50001CWWA2018-12-17T21:00:00Z49.35-123.178.45.59041010.1TRUETRUE0.1METAR178.02018-12-17 21:16:49 2c™Ï/›‹S(s5  3CWTT 172100Z AUTO 29009KT M01/M01 RMK AO1 T10081013CWTT2018-12-17T21:00:00Z45.27-72.17-0.8-1.32909TRUETRUEMETAR209.02018-12-17 21:16:49D›‹R) 5    3CWTY 172100Z AUTO 27003KT M00/M01 RMK AO1 SLP009 T10031013 53002CWTY2018-12-17T21:00:00Z46.35-72.52-0.3-1.327031000.9TRUETRUE0.2METAR6.02018-12-17 21:16:49D›‹Q) 5    3CWUS 172100Z AUTO 14008KT 05/02 RMK AO1 SLP128 T00450016 58012CWUS2018-12-17T21:00:00Z49.57-119.654.51.614081012.8TRUETRUE-1.2METAR454.02018-12-17 21:16:49I›‹P)5   3CWVI 172100Z AUTO 21002KT M05/M10 RMK AO1 SOG 34 0003 SLP062 T10461097CWVI2018-12-17T21:00:00Z53.52-112.1-4.6-9.721021006.2TRUETRUEMETAR639.02018-12-17 21:16:49H›‹O)5   3CWVN 172100Z AUTO 22004KT 01/M03 RMK AO1 SOG 04 8017 SLP125 T00121026CWVN2018-12-17T21:00:00Z49.07-107.571.2-2.622041012.5TRUETRUEMETAR785.02018-12-17 21:16:49 6l¡Ñ6›‹X)5  3CWJB 172100Z AUTO 22003KT M01/M03 RMK AO1 SOG 35 T10061029CWJB2018-12-17T21:00:00Z46.78-71.27-0.6-2.92203TRUETRUEMETAR91.02018-12-17 21:16:49J›‹W) 5    3CWJC 172100Z AUTO 15012KT M20/M22 RMK AO1 SLP172 T11981224 57034CWJC2018-12-17T21:00:00Z61.13-100.9-19.8-22.4150121017.2TRUETRUE-3.4METAR357.02018-12-17 21:16:49E›‹V)5   3CWTA 172100Z AUTO 16002KT 01/M02 RMK AO1 SOG 07 3011 SLP028 T00091015CWTA2018-12-17T21:00:00Z45.5-73.580.9-1.516021002.8TRUETRUEMETAR63.02018-12-17 21:16:49D›‹U) 5    3CWTG 172100Z AUTO 06005KT M02/M02 RMK AO1 SLP014 T10161020 57016CWTG2018-12-17T21:00:00Z49.32-67.37-1.6-2.06051001.4TRUETRUE-1.6METAR5.02018-12-17 21:16:49D›‹T) 5    3CWTN 172100Z AUTO 27001KT M01/M03 RMK AO1 SLP995 T10081028 55006CWTN2018-12-17T21:00:00Z47.07-70.78-0.8-2.82701999.5TRUETRUE-0.6METAR6.02018-12-17 21:16:49 ýNl£ý ›‹\(c5   3CWIP 172100Z AUTO 08006KT 00/ RMK AO1 T0000CWIP2018-12-17T21:00:00Z50.17-66.430.0806TRUETRUEMETAR25.02018-12-17 21:16:49C›‹[) 5    3CWIT 172100Z AUTO 29006KT 01/M01 RMK AO1 SLP026 T00061010 53009CWIT2018-12-17T21:00:00Z45.17-73.670.6-1.029061002.6TRUETRUE0.9METAR52.02018-12-17 21:16:49\›‹Z)=5   3CWIW 172100Z AUTO 18013KT M04/M06 RMK AO1 SOG 01 6024 PK WND 19020/2022 SLP081 T10361059CWIW2018-12-17T21:00:00Z51.67-105.4-3.6-5.9180131008.1TRUETRUEMETAR526.02018-12-17 21:16:49,›‹Y(q5  3CWIZ 172100Z AUTO 29007KT 01/M01 RMK AO1 T00071014CWIZ2018-12-17T21:00:00Z45.28-73.330.7-1.42907TRUETRUEMETAR45.02018-12-17 21:16:49 ­ÿ2a­.›‹`(s5  3CWHQ 172100Z AUTO 28003KT M01/M02 RMK AO1 T10071017CWHQ2018-12-17T21:00:00Z46.68-71.97-0.7-1.72803TRUETRUEMETAR55.02018-12-17 21:16:49K›‹_)5   3CWHT 172100Z AUTO 13002KT M12/M14 RMK AO1 SOG 01 1008 SLP882 T11191135CWHT2018-12-17T21:00:00Z60.77-137.58-11.9-13.51302988.2TRUETRUEMETAR599.02018-12-17 21:16:49G›‹^) 5    3CWII 172100Z AUTO 12009KT M06/M13 RMK AO1 SLP218 T10611129 56033CWII2018-12-17T21:00:00Z50.7-96.57-6.1-12.912091021.8TRUETRUE-3.3METAR220.02018-12-17 21:16:49{›‹])g5     3CWIJ 172100Z AUTO 13018KT M18/M20 RMK AO1 2PAST HR SOG 47 7019 PK WND 13024/2007 SLP049 P0001 T11751195 50002CWIJ2018-12-17T21:00:00Z65.77-111.23-17.5-19.5130181004.9TRUETRUE0.20.01METAR500.02018-12-17 21:16:49 @$n²ð@*›‹e(e5   3TDPD 172100Z 13004KT 9999 BKN024 27/19 Q1016TDPD2018-12-17T21:00:00Z15.55-61.327.019.013046.2130.0MVFRMETAR14.02018-12-17 21:16:49<›‹d(y5    3MNPC 172100Z 36014KT 8000 SCT016 SCT100 28/25 Q1012 HZMNPC2018-12-17T21:00:00Z14.05-83.3828.025.0360144.9729.88189HZMVFRMETAR16.02018-12-17 21:16:496›‹c(s5   3MNRS 172100Z 12008KT 9999 SCT015 SCT200 30/20 Q1010MNRS2018-12-17T21:00:00Z11.42-85.8230.020.012086.2129.822834VFRMETAR53.02018-12-17 21:16:490›‹b(e5   3MNJG 172100Z 36004KT 9999 SCT018 22/15 Q1013MNJG2018-12-17T21:00:00Z13.08-86.0222.015.036046.2129.911417VFRMETAR985.02018-12-17 21:16:49V›‹a)/5    3CWGY 172100Z AUTO 24009KT 05/M02 RMK AO1 PK WND 23020/2015 SLP064 T00461018 53003CWGY2018-12-17T21:00:00Z51.67-110.24.6-1.824091006.4TRUETRUE0.3METAR707.02018-12-17 21:16:49 3K“Ê3Y›‹j)15    3GCGM 172100Z AUTO 06004KT 030V090 9999 NCD 19/06 Q1024 RMK R09/05006KT ARP/05005KTGCGM2018-12-17T21:00:00Z28.03-17.2219.06.06046.2130.236221TRUEVFRMETAR219.02018-12-17 21:16:492›‹i(i5   3VTUK 172100Z 03004KT 9000 NSC18/15 Q1017 NOSIGVTUK2018-12-17T21:00:00Z16.47102.7818.015.03045.5930.029528TRUEMETAR204.02018-12-17 21:16:49C›‹h)5   3VTUQ 172100Z AUTO 03004KT 350V050 ////NDV ////// 18/15 Q1017 A3004VTUQ2018-12-17T21:00:00Z14.95102.3218.015.030430.029528TRUEMETAR234.02018-12-17 21:16:492›‹g(k5    3VTUU 172100Z 01005KT 8000 NSC 19/16 Q1016 NOSIGVTUU2018-12-17T21:00:00Z15.25104.8719.016.01054.9730.0TRUEMVFRMETAR127.02018-12-17 21:16:49/›‹f(k5   3SBSP 172100Z 19008KT 9999 FEW047TCU 30/20 Q1016SBSP2018-12-17T21:00:00Z-23.62-46.6330.020.019086.2130.0VFRMETAR803.02018-12-17 21:16:49 I/s¾I6›‹o(u5     3LFPT 172100Z AUTO 00000KT 4300 BR FEW027 05/04 Q1025LFPT2018-12-17T21:00:00Z49.12.035.04.0002.6730.265747TRUEBRIFRMETAR99.02018-12-17 21:16:493›‹n(k5    3LESA 172100Z AUTO 00000KT 8000 NSC 00/M01 Q1026LESA2018-12-17T21:00:00Z40.95-5.50.0-1.0004.9730.295275TRUEMVFRMETAR795.02018-12-17 21:16:49/›‹m(i5    3LECH 172100Z AUTO 00000KT 9000 NCD 06/01 Q1029LECH2018-12-17T21:00:00Z40.20.076.01.0005.5930.383858TRUEVFRMETAR337.02018-12-17 21:16:496›‹l(m5    3LETL 172100Z AUTO VRB02KT 9999 NCD M01/M02 Q1029LETL2018-12-17T21:00:00Z40.42-1.22-1.0-2.0026.2130.383858TRUEVFRMETAR1013.02018-12-17 21:16:49K›‹k)5    3LELN 172100Z AUTO 06003KT 360V100 9000 FEW013/// SCT020/// 01/01 Q1025LELN2018-12-17T21:00:00Z42.57-5.651.01.06035.5930.265747TRUEVFRMETAR914.02018-12-17 21:16:49 6m¶ýb›‹t)E5    3LFBU 172100Z AUTO 14004KT 100V170 7000 BKN026 BKN200 OVC220 07/06 Q1026 TEMPO 4000 BR BKN010LFBU2018-12-17T21:00:00Z45.720.227.06.014044.3530.295275TRUEMVFRMETAR133.02018-12-17 21:16:493›‹s(o5    3LFGA 172100Z AUTO 23004KT 9999 SCT046 02/01 Q1028LFGA2018-12-17T21:00:00Z48.17.352.01.023046.2130.35433TRUEVFRMETAR191.02018-12-17 21:16:491›‹r(i5    3LFJR 172100Z AUTO 15007KT 9000 NSC 07/07 Q1024LFJR2018-12-17T21:00:00Z47.57-0.37.07.015075.5930.236221TRUEVFRMETAR60.02018-12-17 21:16:49C›‹q) 5    3LFLN 172100Z AUTO 11003KT 6000 NSC 02/01 Q1028 TEMPO 0500 BCFGLFLN2018-12-17T21:00:00Z46.424.022.01.011033.7330.35433TRUEMVFRMETAR244.02018-12-17 21:16:49D›‹p) 5    3LFPM 172100Z AUTO 16007KT 6000 FEW009 BKN210 OVC230 04/04 Q1026LFPM2018-12-17T21:00:00Z48.622.674.04.016073.7330.295275TRUEMVFRMETAR92.02018-12-17 21:16:49 I@^°I2›‹y(e5    3GMFM 172100Z 12006KT CAVOK 11/09 Q1026 NOSIGGMFM2018-12-17T21:00:00Z33.87-5.5211.09.012066.2130.295275TRUEVFRMETAR549.02018-12-17 21:16:49)›‹x([5   3DAAP 172100Z 10005KT CAVOK 12/M01 Q1026DAAP2018-12-17T21:00:00Z26.728.6212.0-1.010056.2130.295275VFRMETAR558.02018-12-17 21:16:49(›‹w([5   3DAOF 172100Z 04005KT CAVOK 14/M04 Q1025DAOF2018-12-17T21:00:00Z27.7-8.1714.0-4.04056.2130.265747VFRMETAR431.02018-12-17 21:16:49\›‹v)/5    3RJAW 172100Z 31010KT 9999 -SHRA SCT020 SCT050 23/20 Q1014 RMK 4CU020 4SC050 A2997RJAW2018-12-17T21:00:00Z24.77141.3223.020.0310106.2129.940945-SHRAVFRMETAR116.02018-12-17 21:16:49:›‹u(u5     3LFAQ 172100Z AUTO 19007KT 3300 BR OVC002 05/05 Q1024LFAQ2018-12-17T21:00:00Z49.972.75.05.019072.0530.236221TRUEBRLIFRMETAR111.02018-12-17 21:16:49 ¯'T…¯P›‹})5   3CZFM 172100Z 33003KT 290V360 15SM FEW070 M20/M23 A2941 RMK AC2 SLP964CZFM2018-12-17T21:00:00Z67.4-134.87-20.0-23.0330315.029.409449996.4VFRMETAR43.02018-12-17 21:16:49I›‹|)5   3CZFN 172100Z 36006KT 20SM SCT090 M17/M19 A2932 RMK AC3 SLP942CZFN2018-12-17T21:00:00Z64.92-125.57-17.0-19.0360620.029.320866994.2VFRMETAR98.02018-12-17 21:16:49M›‹{)5   3CZPC 172100Z AUTO 26019G27KT 9SM CLR 06/M03 A2978 RMK SLP105CZPC2018-12-17T21:00:00Z49.52-114.06.0-3.026019279.029.7785431010.5TRUEVFRMETAR1190.02018-12-17 21:16:49S›‹z)5    3CZUM 172100Z AUTO 20008KT 170V260 9SM OVC090 M03/M07 A2949 RMK SLP018CZUM2018-12-17T21:00:00Z53.53-64.08-3.0-7.020089.029.4891741001.8TRUEVFRMETAR440.02018-12-17 21:16:49 ‚ý*R‚J›‹‘)5    3CZMD 172100Z AUTO 22002KT 9SM CLR M13/M16 A3018 RMK SLP250CZMD2018-12-17T21:00:00Z53.43-91.77-13.0-16.022029.030.1801191025.0TRUEVFRMETAR278.02018-12-17 21:16:49R›‹‘)5    3CZSJ 172100Z AUTO 16003KT 140V200 9SM CLR M14/M17 A3017 RMK SLP250CZSJ2018-12-17T21:00:00Z53.07-93.35-14.0-17.016039.030.1712591025.0TRUEVFRMETAR290.02018-12-17 21:16:49M›‹) 5    3CWEU 172100Z 22004KT 190V280 5SM IC SKC M35/M38 A3017 RMK SLP220CWEU2018-12-17T21:00:00Z80.0-85.92-35.0-38.022045.030.1712591022.0ICMVFRMETAR10.02018-12-17 21:16:49}›‹~)_5   3CZEM 172100Z 28016G25KT 2SM -SN BLSN OVC012 M08/M10 A2981 RMK SN4SC4 LAST STFD OBS/NEXT 181400 UTC SLP096CZEM2018-12-17T21:00:00Z52.22-78.52-8.0-10.028016252.029.8110241009.6-SN BLSNIFRMETAR7.02018-12-17 21:16:49 ‘2Mn‘W›‹‘)5   3CYYB 172100Z 33016G23KT 20SM -SN BKN028 M07/M11 A2989 RMK SC7 SLP143CYYB2018-12-17T21:00:00Z46.35-79.42-7.0-11.0330162320.029.8907471014.3-SNMVFRMETAR371.02018-12-17 21:16:49Y›‹‘)%5    3CYYH 172100Z 16009KT 15SM IC FEW040 M33/M37 A3002 RMK SC1 SC TR FROIN SLP171CYYH2018-12-17T21:00:00Z69.53-93.57-33.0-37.0160915.030.020671017.1ICVFRMETAR28.02018-12-17 21:16:49_›‹‘)5   3CYYU 172100Z 31018G25KT 3SM -SN DRSN OVC025 M09/M13 A3005 RMK SC8 SLP194CYYU2018-12-17T21:00:00Z49.42-82.47-9.0-13.031018253.030.0501981019.4-SN DRSNMVFRMETAR227.02018-12-17 21:16:49H›‹‘)5    3CYYW 172100Z AUTO 31007KT 9SM CLR M11/M14 A3019 RMK SLP261CYYW2018-12-17T21:00:00Z50.3-88.9-11.0-14.031079.030.1889761026.1TRUEVFRMETAR351.02018-12-17 21:16:49 `2OW`q›‹‘ )S5  3CYSP 172100Z 36006G16KT 15SM FEW024 FEW220 SCT260 M07/M13 A3012 RMK SC1CI2CI1 TR SC NNW HRZN SLP226CYSP2018-12-17T21:00:00Z48.75-86.35-7.0-13.036061615.030.1210631022.6VFRMETAR315.02018-12-17 21:16:49r›‹‘)I5   3CYVO 172100Z 31013G25KT 10SM -SN BKN023 BKN080 BKN250 M10/M13 A2984 RMK SC5AC2CC1 CC TR SLP129CYVO2018-12-17T21:00:00Z48.07-77.77-10.0-13.0310132510.029.8405511012.9-SNMVFRMETAR337.02018-12-17 21:16:49]›‹‘)/5   3CYVQ 172100Z 28002KT 30SM FEW025 SCT160 SCT220 M21/M24 A2934 RMK SC2AC1CI1 SLP946CYVQ2018-12-17T21:00:00Z65.27-126.78-21.0-24.0280230.029.338583994.6VFRMETAR74.02018-12-17 21:16:49H›‹‘)5   3CYXL 172100Z 21003KT 15SM FEW250 M09/M15 A3020 RMK CI2 SLP265CYXL2018-12-17T21:00:00Z50.12-91.9-9.0-15.0210315.030.2007871026.5VFRMETAR390.02018-12-17 21:16:49 £&Rt£K›‹‘ )5    3CYKL 172100Z AUTO 21008KT 9SM OVC017 M04/M06 A2938 RMK SLP984CYKL2018-12-17T21:00:00Z54.78-66.82-4.0-6.021089.029.379921998.4TRUEMVFRMETAR521.02018-12-17 21:16:49X›‹‘ )5     3CYRQ 172100Z AUTO 26003KT 3SM -SN BKN027 OVC033 M01/M01 A2956 RMK SLP014CYRQ2018-12-17T21:00:00Z46.35-72.68-1.0-1.026033.029.560041001.4TRUE-SNMVFRMETAR61.02018-12-17 21:16:49N›‹‘ ) 5  3CYSB 172100Z 32009G16KT 20SM OVC023 M06/M11 A2993 RMK SC8 SLP158CYSB2018-12-17T21:00:00Z46.63-80.8-6.0-11.032091620.029.9291341015.8MVFRMETAR348.02018-12-17 21:16:49T›‹‘ )5  3CYSN 172100Z 31016G23KT 15SM SCT030 OVC045 03/M03 A2991 RMK SC3SC5 SLP134CYSN2018-12-17T21:00:00Z43.2-79.173.0-3.0310162315.029.9114171013.4VFRMETAR98.02018-12-17 21:16:49 –#Qy–]›‹‘)'5   3CYGK 172100Z 30011G17KT 15SM -SN BKN030 OVC045 02/M01 A2976 RMK SC5SC3 SLP082CYGK2018-12-17T21:00:00Z44.22-76.582.0-1.0300111715.029.7608261008.2-SNMVFRMETAR93.02018-12-17 21:16:49R›‹‘)5    3CYGQ 172100Z 34009KT 15SM -SN OVC022 M10/M14 A3016 RMK SC8 SLP244CYGQ2018-12-17T21:00:00Z49.77-86.92-10.0-14.0340915.030.1594491024.4-SNMVFRMETAR351.02018-12-17 21:16:49L›‹‘) 5  3CYHM 172100Z 29010G15KT 15SM OVC032 01/M04 A2994 RMK SC8 SLP150CYHM2018-12-17T21:00:00Z43.17-79.931.0-4.0290101515.029.9409451015.0VFRMETAR238.02018-12-17 21:16:49W›‹‘)5   3CYKF 172100Z AUTO 30019G30KT 9SM BKN027 OVC032 00/M05 A2993 RMK SLP148CYKF2018-12-17T21:00:00Z43.47-80.380.0-5.030019309.029.9291341014.8TRUEMVFRMETAR317.02018-12-17 21:16:49 –%U†–j›‹‘)?5   3CYBN 172100Z AUTO 33011G22KT 9SM OVC028 OVC039 01/M05 A2990 RMK PCPN 0.5MM PAST HR SLP136CYBN2018-12-17T21:00:00Z44.27-79.921.0-5.033011229.029.8996071013.6TRUEMVFRMETAR223.02018-12-17 21:16:49I›‹‘)5    3CYCK 172100Z AUTO 33013KT 9SM OVC035 02/M04 A3007 RMK SLP191CYCK2018-12-17T21:00:00Z42.3-82.082.0-4.0330139.030.0708661019.1TRUEVFRMETAR198.02018-12-17 21:16:49J›‹‘)5    3CYER 172100Z AUTO 28010KT 9SM CLR M16/M18 A3011 RMK SLP200CYER2018-12-17T21:00:00Z56.02-87.68-16.0-18.0280109.030.1092531020.0TRUEVFRMETAR16.02018-12-17 21:16:49U›‹‘)5   3CYFR 172100Z 13008KT 15SM FEW180 BKN270 M13/M15 A2951 RMK AC1CS5 SLP012CYFR2018-12-17T21:00:00Z61.17-113.67-13.0-15.0130815.029.5098421001.2VFRMETAR164.02018-12-17 21:16:49 a<ƒ× a9›‹‘(y5    3LEBA 172100Z AUTO 09004KT 060V140 9999 NCD 07/05 Q1027LEBA2018-12-17T21:00:00Z37.85-4.827.05.09046.2130.324802TRUEVFRMETAR92.02018-12-17 21:16:491›‹‘(i5    3LEBR 172100Z AUTO 12006KT 9999 NCD 03/02 Q1028LEBR2018-12-17T21:00:00Z42.2-1.433.02.012066.2130.35433TRUEVFRMETAR295.02018-12-17 21:16:49&›‹‘(Y5   3LEAO 172100Z 10005KT CAVOK 02/02 Q1028LEAO2018-12-17T21:00:00Z38.95-3.732.02.010056.2130.35433VFRMETAR629.02018-12-17 21:16:493›‹‘(s5   3SYEC 172100Z 04010KT 9999 SCT018 BKN100 28/22 Q1013SYEC2018-12-17T21:00:00Z6.8-58.128.022.040106.2129.911417VFRMETAR10.02018-12-17 21:16:49>›‹‘(u5     3TNCC 172100Z AUTO 12012KT 9999 NCD 28/22 Q1013 NOSIGTNCC2018-12-17T21:00:00Z12.2-68.9728.022.0120126.2129.911417TRUETRUEVFRMETAR9.02018-12-17 21:16:49 AJ—ã!AZ›‹‘)55    3CWZQ 172100Z AUTO 05013G25KT 02/M01 RMK AO1 PK WND 09038/2007 SLP973 T00161008 56037CWZQ2018-12-17T21:00:00Z46.53-61.051.6-0.8501325997.3TRUETRUE-3.7METAR17.02018-12-17 21:16:49<›‹‘(u5    3MROC 172100Z 10011KT 060V140 CAVOK 27/14 A2997 NOSIGMROC2018-12-17T21:00:00Z10.0-84.2227.014.0100116.2129.970472TRUEVFRMETAR920.02018-12-17 21:16:49.›‹‘(e5   3MNJU 172100Z 08010KT 9999 SCT020 29/19 Q1012MNJU2018-12-17T21:00:00Z12.08-85.3729.019.080106.2129.88189VFRMETAR90.02018-12-17 21:16:49-›‹‘(e5   3MNBL 172100Z 36004KT 9999 OVC017 27/22 Q1012MNBL2018-12-17T21:00:00Z12.0-83.7727.022.036046.2129.88189MVFRMETAR5.02018-12-17 21:16:490›‹‘(e5    3LEAB 172100Z 16004KT CAVOK 02/01 Q1028 NOSIGLEAB2018-12-17T21:00:00Z38.95-1.852.01.016046.2130.35433TRUEVFRMETAR704.02018-12-17 21:16:49 XS‰ÄX0›‹‘$(s5  3CXHD 172100Z AUTO 25009KT M03/M06 RMK AO1 T10271057CXHD2018-12-17T21:00:00Z53.18-112.25-2.7-5.72509TRUETRUEMETAR688.02018-12-17 21:16:490›‹‘#(s5  3CXMG 172100Z AUTO 15006KT M05/M07 RMK AO1 T10511069CXMG2018-12-17T21:00:00Z56.97-117.45-5.1-6.91506TRUETRUEMETAR457.02018-12-17 21:16:49?›‹‘")5  3CXPL 172100Z AUTO 26011KT 04/01 RMK AO1 PK WND 26018/2006 T00390007CXPL2018-12-17T21:00:00Z51.13-111.73.90.726011TRUETRUEMETAR750.02018-12-17 21:16:49D›‹‘!) 5    3CWYY 172100Z AUTO 15006KT 06/02 RMK AO1 SLP147 T00620024 58013CWYY2018-12-17T21:00:00Z49.03-119.436.22.415061014.7TRUETRUE-1.3METAR283.02018-12-17 21:16:49'›‹‘ (s5   3CWZO 172100Z AUTO 17018KT RMK AO1 PK WND 16021/2059CWZO2018-12-17T21:00:00Z48.55-123.2317018TRUETRUEMETAR1.02018-12-17 21:16:49 A8ƒ¾ AB›‹‘))5  3CPRY 172100Z AUTO 25014KT 10/M04 RMK AO1 PK WND 25018/2055 T00951041CPRY2018-12-17T21:00:00Z49.48-112.689.5-4.125014TRUETRUEMETAR937.02018-12-17 21:16:49/›‹‘((q5  3CPST 172100Z AUTO 23011KT 05/M01 RMK AO1 T00491013CPST2018-12-17T21:00:00Z51.03-113.284.9-1.323011TRUETRUEMETAR967.02018-12-17 21:16:49?›‹‘')5  3CPSV 172100Z AUTO 20008KT 09/01 RMK AO1 PK WND 20021/2015 T00850009CPSV2018-12-17T21:00:00Z49.92-110.928.50.92008TRUETRUEMETAR766.02018-12-17 21:16:49/›‹‘&(q5  3CPXL 172100Z AUTO 23010KT 10/M01 RMK AO1 T00961011CPXL2018-12-17T21:00:00Z49.87-111.389.6-1.123010TRUETRUEMETAR799.02018-12-17 21:16:49B›‹‘%)5  3CXFM 172100Z AUTO 23015KT 09/M00 RMK AO1 PK WND 22020/2059 T00881003CXFM2018-12-17T21:00:00Z49.48-111.488.8-0.323015TRUETRUEMETAR881.02018-12-17 21:16:49 *Kƒ»ò*B›‹‘.)5  3CPBT 172100Z AUTO 28023KT 09/M04 RMK AO1 PK WND 28028/2058 T00911043CPBT2018-12-17T21:00:00Z49.57-113.059.1-4.328023TRUETRUEMETAR980.02018-12-17 21:16:49C›‹‘-)5  3CPEH 172100Z AUTO 24023KT 11/M03 RMK AO1 PK WND 25033/2003 T01131031CPEH2018-12-17T21:00:00Z50.18-112.4311.3-3.124023TRUETRUEMETAR801.02018-12-17 21:16:49B›‹‘,)5  3CPFI 172100Z AUTO 25010KT 10/M02 RMK AO1 PK WND 29019/2042 T01011016CPFI2018-12-17T21:00:00Z49.8-112.0310.1-1.625010TRUETRUEMETAR833.02018-12-17 21:16:49B›‹‘+)5  3CPIR 172100Z AUTO 24024KT 10/M04 RMK AO1 PK WND 24032/2015 T01041039CPIR2018-12-17T21:00:00Z49.9-112.7310.4-3.924024TRUETRUEMETAR858.02018-12-17 21:16:49/›‹‘*(q5  3CPRO 172100Z AUTO 24010KT 08/M00 RMK AO1 T00831002CPRO2018-12-17T21:00:00Z50.83-112.058.3-0.224010TRUETRUEMETAR714.02018-12-17 21:16:49 11d›‹‘2)C5     3CZCR 172100Z AUTO 06010KT M02/M02 RMK AO1 6PAST HR SOG 19 6030 SLP005 P0002 T10191021 50018CZCR2018-12-17T21:00:00Z47.97-66.32-1.9-2.160101000.5TRUETRUE1.80.02METAR38.02018-12-17 21:16:49z›‹‘1)m5     3CZSP 172100Z AUTO 05010G17KT M00/M00 RMK AO1 3PAST HR SOG 06 6043 PK WND 05020/2036 SLP977 P0005 T10011003 50053CZSP2018-12-17T21:00:00Z46.45-62.58-0.1-0.3501017997.7TRUETRUE5.30.05METAR30.02018-12-17 21:16:49b›‹‘0)C5     3CERM 172100Z AUTO 00000KT M02/M03 RMK AO1 6PAST HR SOG 33 6022 SLP990 P0002 T10241032 50021CERM2018-12-17T21:00:00Z47.42-68.32-2.4-3.200999.0TRUETRUE2.10.02METAR154.02018-12-17 21:16:49w›‹‘/)q5     3CWBK 172100Z AUTO 06023KT 00/01 RMK AO1 5PAST HR PRESFR SOG 08 8053 PK WND 06027/2035 SLP938 P0002 T00000005 50038CWBK2018-12-17T21:00:00Z45.77-62.670.00.56023993.8TRUETRUE3.80.02METAR2.02018-12-17 21:16:49 Ï1b‘ρ<›‹‘6(}5    3KONX 172100Z AUTO 10SM CLR 14/05 A2988 RMK AO2 T01370050KONX2018-12-17T21:00:00Z36.4-76.0213.75.010.029.878937TRUETRUEVFRMETAR5.02018-12-17 21:16:49K›‹‘5) 5    3KRCZ 172100Z AUTO 29004KT 10SM CLR 17/03 A2998 RMK AO2 T01670032KRCZ2018-12-17T21:00:00Z34.88-79.7716.73.2290410.029.97933TRUETRUEVFRMETAR109.02018-12-17 21:16:49I›‹‘4) 5    3KSUT 172100Z AUTO 23009KT 10SM CLR 14/08 A2998 RMK AO2 T01380081KSUT2018-12-17T21:00:00Z33.93-78.0813.88.1230910.029.97933TRUETRUEVFRMETAR8.02018-12-17 21:16:49I›‹‘3)5   3KW29 172100Z AUTO 31016G22KT 10SM CLR 11/M01 A2981 RMK AO2KW292018-12-17T21:00:00Z38.98-76.3311.0-1.0310162210.029.811024TRUETRUEVFRSPECI15.02018-12-17 21:16:49 Æ,]—ƁK›‹‘:) 5    3KHRJ 172100Z AUTO 26004KT 10SM CLR 17/02 A2996 RMK AO2 T01700018KHRJ2018-12-17T21:00:00Z35.38-78.7317.01.8260410.029.958662TRUETRUEVFRMETAR60.02018-12-17 21:16:49@›‹‘9(y5    3KIXA 172100Z AUTO 26008KT 10SM CLR 13/03 A2992 RMK AO2KIXA2018-12-17T21:00:00Z36.33-77.6313.03.0260810.029.920275TRUETRUEVFRMETAR44.02018-12-17 21:16:49I›‹‘8) 5    3KMQI 172100Z AUTO 30007KT 10SM CLR 13/04 A2990 RMK AO2 T01270040KMQI2018-12-17T21:00:00Z35.92-75.712.74.0300710.029.899607TRUETRUEVFRMETAR4.02018-12-17 21:16:49N›‹‘7)5    3KMRN 172100Z AUTO 33004KT 10SM CLR 16/M04 A3004 RMK AO2 T01611041KMRN2018-12-17T21:00:00Z35.82-81.6216.1-4.1330410.030.041338TRUETRUEVFRMETAR387.02018-12-17 21:16:49 ¿0V„¿?›‹‘>(y5    3KDPL 172100Z AUTO 28005KT 10SM CLR 17/03 A2995 RMK AO2KDPL2018-12-17T21:00:00Z35.0-77.9717.03.0280510.029.949802TRUETRUEVFRMETAR42.02018-12-17 21:16:49L›‹‘=)5    3KEXX 172100Z AUTO 30004KT 10SM CLR 16/M02 A2998 RMK AO2 T01581020KEXX2018-12-17T21:00:00Z35.78-80.315.8-2.0300410.029.97933TRUETRUEVFRMETAR223.02018-12-17 21:16:49T›‹‘<)5     3KEYF 172100Z AUTO 27008KT 10SM CLR 17/05 A2997 RMK AO2 PWINO T01730046KEYF2018-12-17T21:00:00Z34.6-78.5817.34.6270810.029.970472TRUETRUETRUEVFRMETAR41.02018-12-17 21:16:49J›‹‘;) 5    3KFFA 172100Z AUTO 26006KT 10SM CLR 12/04 A2988 RMK AO2 T01180043KFFA2018-12-17T21:00:00Z36.02-75.6711.84.3260610.029.878937TRUETRUEVFRMETAR4.02018-12-17 21:16:49 º8h™ºY›‹‘B);5   3CWWZ 172100Z AUTO 29023KT 03/M02 RMK AO1 SOG 03 3018 PK WND 30031/2021 SLP135 T00301018CWWZ2018-12-17T21:00:00Z43.25-79.223.0-1.8290231013.5TRUETRUEMETAR79.02018-12-17 21:16:49I›‹‘A)5   3CWDQ 172100Z AUTO 33003KT M02/M02 RMK AO1 SOG 31 3006 SLP020 T10191024CWDQ2018-12-17T21:00:00Z47.42-72.78-1.9-2.433031002.0TRUETRUEMETAR169.02018-12-17 21:16:49J›‹‘@)5   3CWDV 172100Z AUTO 31002KT M07/M15 RMK AO1 SOG 12 0003 SLP251 T10651154CWDV2018-12-17T21:00:00Z49.02-90.47-6.5-15.431021025.1TRUETRUEMETAR489.02018-12-17 21:16:49B›‹‘?) 5    3CWWB 172100Z AUTO 27007KT 03/M04 RMK AO1 SLP142 T00261037 53019CWWB2018-12-17T21:00:00Z43.3-79.782.6-3.727071014.2TRUETRUE1.9METAR76.02018-12-17 21:16:49 ©!?r©C›‹‘F) 5    3CTCK 172100Z AUTO 29006KT 01/M02 RMK AO1 SLP056 T00051018 53019CTCK2018-12-17T21:00:00Z45.25-74.970.5-1.829061005.6TRUETRUE1.9METAR85.02018-12-17 21:16:49G›‹‘E) 5    3CWBE 172100Z AUTO 32008KT M02/M10 RMK AO1 SLP173 T10211101 53022CWBE2018-12-17T21:00:00Z45.98-81.48-2.1-10.132081017.3TRUETRUE2.2METAR196.02018-12-17 21:16:49\›‹‘D)55    3CWPC 172100Z AUTO 30020G27KT 02/M04 RMK AO1 PK WND 29027/2053 SLP144 T00161039 53017CWPC2018-12-17T21:00:00Z42.87-79.251.6-3.930020271014.4TRUETRUE1.7METAR184.02018-12-17 21:16:49Y›‹‘C)15    3CWPO 172100Z AUTO 13014KT M09/M12 RMK AO1 PK WND 13021/2012 SLP205 T10881122 57031CWPO2018-12-17T21:00:00Z49.2-98.9-8.8-12.2130141020.5TRUETRUE-3.1METAR470.02018-12-17 21:16:49 5g…ǁ/›‹‘K(k5   3LJPZ 172100Z 13005KT 060V150 CAVOK 00/M02 Q1026LJPZ2018-12-17T21:00:00Z45.4713.620.0-2.013056.2130.295275VFRMETAR2.02018-12-17 21:16:498›‹‘J(o5     3LFBD 172100Z AUTO 14005KT CAVOK 07/07 Q1026 NOSIGLFBD2018-12-17T21:00:00Z44.82-0.77.07.014056.2130.295275TRUETRUEVFRMETAR61.02018-12-17 21:16:49\›‹‘I)+5   3CYTH 172100Z 12003KT 070V150 15SM SCT150 BKN210 M20/M23 A3007 RMK AC4CI3 SLP213CYTH2018-12-17T21:00:00Z55.78-97.87-20.0-23.0120315.030.0708661021.3VFRMETAR218.02018-12-17 21:16:49H›‹‘H)5   3CMFM 172100Z AUTO 32004KT M03/M04 RMK AO1 SOG 46 6006 SLP982 T10251035CMFM2018-12-17T21:00:00Z47.32-71.15-2.5-3.53204998.2TRUETRUEMETAR672.02018-12-17 21:16:49E›‹‘G) 5    3CMGB 172100Z AUTO 28006KT M00/M01 RMK AO1 SLP019 T10021007 53006CMGB2018-12-17T21:00:00Z45.37-72.77-0.2-0.728061001.9TRUETRUE0.6METAR86.02018-12-17 21:16:49 LEŒÙLK›‹‘P)5    3LFST 172100Z AUTO 18006KT 9999 FEW037 04/02 Q1028 TEMPO 0400 BCFG VV///LFST2018-12-17T21:00:00Z48.537.624.02.018066.2130.35433TRUEVFRSPECI154.02018-12-17 21:16:496›‹‘O(o5     3LFTH 172100Z AUTO 32004KT CAVOK 06/01 Q1025 NOSIGLFTH2018-12-17T21:00:00Z43.16.156.01.032046.2130.265747TRUETRUEVFRMETAR4.02018-12-17 21:16:49-›‹‘N(c5    3LFTW 172100Z AUTO 01006KT CAVOK 04/03 Q1027LFTW2018-12-17T21:00:00Z43.754.424.03.01066.2130.324802TRUEVFRMETAR96.02018-12-17 21:16:493›‹‘M(i5    3LJLJ 172100Z VRB02KT CAVOK M05/M06 Q1026 NOSIGLJLJ2018-12-17T21:00:00Z46.2214.47-5.0-6.0026.2130.295275TRUEVFRMETAR385.02018-12-17 21:16:495›‹‘L(o5    3LJMB 172100Z 00000KT 5000 BR BKN013 M05/M06 Q1027LJMB2018-12-17T21:00:00Z46.4715.67-5.0-6.0003.1130.324802BRMVFRMETAR265.02018-12-17 21:16:49 &=]™è&<›‹‘U(y5     3LFGJ 172100Z AUTO 10002KT 5000 1800 BR NSC 02/02 Q1028LFGJ2018-12-17T21:00:00Z47.055.432.02.010023.1130.35433TRUEBRMVFRSPECI196.02018-12-17 21:16:49+›‹‘T(c5    3LFMD 172100Z AUTO VRB04KT CAVOK 06/05 Q1025LFMD2018-12-17T21:00:00Z43.536.956.05.0046.2130.265747TRUEVFRMETAR9.02018-12-17 21:16:49>›‹‘S)5    3LFMH 172100Z AUTO VRB01KT 7000 NSC 01/00 Q1028 BECMG BKN010LFMH2018-12-17T21:00:00Z45.524.281.00.0014.3530.35433TRUEMVFRSPECI402.02018-12-17 21:16:49Z›‹‘R)55    3LFOT 172100Z AUTO 16007KT 9999 SCT007 BKN014 BKN022 07/07 Q1025 TEMPO 2500 BR BKN003LFOT2018-12-17T21:00:00Z47.430.727.07.016076.2130.265747TRUEMVFRSPECI108.02018-12-17 21:16:49=›‹‘Q(}5    3LFRG 172100Z AUTO 17010KT 9999 FEW013 BKN240 07/06 Q1022LFRG2018-12-17T21:00:00Z49.370.157.06.0170106.2130.177166TRUEVFRMETAR146.02018-12-17 21:16:49 ,r¥ÞB›‹‘Z(}5     3ZGHA 172100Z 00000MPS 4000 BR PRFG NSC 02/01 Q1024 NOSIGZGHA2018-12-17T21:00:00Z28.18113.222.01.0002.4930.236221TRUEBR PRFGIFRMETAR66.02018-12-17 21:16:49A›‹‘Y(5    3LFRV 172100Z AUTO 18009KT 160V220 9000 OVC004 10/10 Q1021LFRV2018-12-17T21:00:00Z47.72-2.7210.010.018095.5930.147638TRUELIFRMETAR133.02018-12-17 21:16:49G›‹‘X) 5     3LFRZ 172100Z AUTO 16009KT 9999 BKN003 OVC210 09/09 Q1022 NOSIGLFRZ2018-12-17T21:00:00Z47.32-2.179.09.016096.2130.177166TRUETRUELIFRMETAR4.02018-12-17 21:16:494›‹‘W(o5    3LFSG 172100Z AUTO 22008KT 9999 SCT019 04/03 Q1028LFSG2018-12-17T21:00:00Z48.336.074.03.022086.2130.35433TRUEVFRMETAR330.02018-12-17 21:16:49N›‹‘V)5     3LFBE 172100Z AUTO 07004KT 0500 R27/0800U FG BKN007 03/03 Q1027 BECMG NSCLFBE2018-12-17T21:00:00Z44.820.523.03.07040.3130.324802TRUEFGLIFRSPECI52.02018-12-17 21:16:49Y8J8@HPX`hpx€ˆ˜ ¨°¸ÀÈÐØàèðø (08@HPX`hpx€ˆ˜ ¨°¸ÀÈÐØàèðø (08@HPX`hpx€ˆ˜ ¨°¸ÀÈÐØàèðø ¨°¸ÀÈÐØàèðø𛋐:ñ›‹>ò›‹B󛋐Fô›‹Jõ›‹Nö›‹S÷›‹Xø›‹\ù›‹`ú›‹eû›‹j𛋐:ñ›‹>ò›‹B󛋐Fô›‹Jõ›‹Nö›‹S÷›‹Xø›‹\ù›‹`ú›‹eû›‹jü›‹oý›‹tþ›‹yÿ›‹}›‹‘›‹‘›‹‘ ›‹‘ ›‹‘›‹‘›‹‘›‹‘›‹‘$ ›‹‘) ›‹‘. ›‹‘2 ›‹‘6 ›‹‘:›‹‘>›‹‘B›‹‘F›‹‘K›‹‘P›‹‘U›‹‘Z›‹‘^›‹‘b›‹‘f›‹‘j›‹‘n›‹‘r›‹‘w›‹‘{›‹’›‹’ ›‹’!›‹’ "›‹’#›‹’$›‹’%›‹’&›‹’#'›‹’((›‹’-)›‹’2*›‹’7+›‹’<,›‹’@-›‹’D.›‹’I/›‹’N0›‹’S1›‹’X2›‹’]3›‹’b4›‹’g5›‹’l6›‹’q7›‹’v8›‹’{9›‹’:›‹“;›‹“<›‹“ =›‹“>›‹“?›‹“@›‹“A›‹“"B›‹“'C›‹“,D›‹“1E›‹“6F›‹“;G›‹“@H›‹“EI›‹“I d7Rdh›‹‘^)75   3CYAZ 172100Z 14022G33KT 5SM -RA BR SCT010 OVC018 10/08 A2965 RMK SF4SC4 PRESFR SLP041CYAZ2018-12-17T21:00:00Z49.08-125.7710.08.014022335.029.6486231004.1-RA BRMVFRMETAR24.02018-12-17 21:16:49_›‹‘])-5   3CYBL 172100Z 13016G23KT 6SM -RA OVC008 08/07 A2964 RMK SF8 CIG RAG PRESFR SLP042CYBL2018-12-17T21:00:00Z49.95-125.278.07.013016236.029.6397631004.2-RAIFRMETAR106.02018-12-17 21:16:49]›‹‘\)/5   3CYBV 172100Z 14008KT 15SM BKN080 BKN120 BKN220 M08/M14 A3011 RMK AC5AC1CS1 SLP219CYBV2018-12-17T21:00:00Z52.35-97.03-8.0-14.0140815.030.1092531021.9VFRMETAR222.02018-12-17 21:16:49`›‹‘[)55    3CYCP 172100Z 00000KT 15SM VCSH FEW002 SCT058 BKN250 02/01 A2977 RMK ST1CU3CI2 SLP110CYCP2018-12-17T21:00:00Z52.13-119.282.01.00015.029.7696861011.0VCSHVFRMETAR683.02018-12-17 21:16:49 ‰8V‰G›‹‘b)5   3CYYZ 172100Z 29015KT 15SM BKN040 02/M06 A2991 RMK SC7 SLP135CYYZ2018-12-17T21:00:00Z43.67-79.622.0-6.02901515.029.9114171013.5VFRMETAR173.02018-12-17 21:16:49\›‹‘a)'5   3CYZF 172100Z 14010KT 15SM FEW045 FEW240 M14/M16 A2949 RMK SC1CI2 SC TR SLP010CYZF2018-12-17T21:00:00Z62.47-114.45-14.0-16.01401015.029.4891741001.0VFRMETAR206.02018-12-17 21:16:49_›‹‘`)55  3CYZV 172100Z 09009G15KT 15SM FEW010 BKN050 OVC090 M01/M03 A2959 RMK SF1SC4AC3 SLP025CYZV2018-12-17T21:00:00Z50.22-66.27-1.0-3.09091515.029.5895671002.5VFRMETAR55.02018-12-17 21:16:49]›‹‘_))5   3CYZX 172100Z 06013G19KT 4SM -RA BR SCT007 OVC014 01/00 A2929 RMK SF3SC5 SLP920CYZX2018-12-17T21:00:00Z44.98-64.921.00.06013194.029.291338992.0-RA BRMVFRMETAR28.02018-12-17 21:16:49 —0O{—^›‹‘f)75   3CYYJ 172100Z 15004KT 20SM FEW012 FEW080 OVC150 09/08 A2979 RMK SC1AC1AC7 SC TR SLP089CYYJ2018-12-17T21:00:00Z48.63-123.429.08.0150420.029.7903541008.9VFRMETAR19.02018-12-17 21:16:49N›‹‘e) 5    3CYYQ 172100Z 29005KT 15SM IC BKN240 M22/M26 A3014 RMK CI5 SLP212CYYQ2018-12-17T21:00:00Z58.75-94.07-22.0-26.0290515.030.1387791021.2ICVFRMETAR29.02018-12-17 21:16:49[›‹‘d)/5   3CYYR 172100Z 19009KT 15SM FEW080 BKN140 OVC250 M02/M07 A2964 RMK AC2AC2CI3 SLP040CYYR2018-12-17T21:00:00Z53.32-60.42-2.0-7.0190915.029.6397631004.0VFRMETAR49.02018-12-17 21:16:49J›‹‘c)5   3CYYT 172100Z 16013KT 15SM OVC016 M02/M04 A2987 RMK SC8 SLP123CYYT2018-12-17T21:00:00Z47.62-52.72-2.0-4.01601315.029.8700791012.3MVFRMETAR140.02018-12-17 21:16:49 w&VwY›‹‘j)+5   3CYVR 172100Z 12015KT 15SM FEW023 BKN027 OVC170 09/07 A2981 RMK SC1SC5AC2 SLP096CYVR2018-12-17T21:00:00Z49.17-123.179.07.01201515.029.8110241009.6MVFRMETAR2.02018-12-17 21:16:49J›‹‘i)5   3CYWG 172100Z 16010KT 15SM SCT240 M07/M13 A3012 RMK CI4 SLP223CYWG2018-12-17T21:00:00Z49.88-97.22-7.0-13.01601015.030.1210631022.3VFRMETAR239.02018-12-17 21:16:49U›‹‘h)5  3CYXX 172100Z 15016G23KT 20SM SCT035 OVC180 11/05 A2984 RMK SC3AC5 SLP109CYXX2018-12-17T21:00:00Z49.03-122.3811.05.0150162320.029.8405511010.9VFRMETAR58.02018-12-17 21:16:49y›‹‘g)g5   3CYYC 172100Z 25007KT 230V290 40SM FEW071 FEW230 09/M05 A2968 RMK AC1CI1 AC TR CI TR SLP085 DENSITY ALT 4000FTCYYC2018-12-17T21:00:00Z51.12-114.029.0-5.0250740.029.6811031008.5VFRMETAR1084.02018-12-17 21:16:49 S%<Sc›‹‘n)95   3CYQQ 172100Z 13024G30KT 15SM -RA FEW010 SCT042 OVC096 09/09 A2967 RMK SF1SC4AC4 SLP047CYQQ2018-12-17T21:00:00Z49.72-124.99.09.0130243015.029.669291004.7-RAVFRMETAR24.02018-12-17 21:16:49c›‹‘m)=5   3CYQX 172100Z 15006KT 20SM FEW015 SCT230 BKN240 M05/M08 A2981 RMK SC2CC2CI3 PRESFR SLP107CYQX2018-12-17T21:00:00Z48.95-54.58-5.0-8.0150620.029.8110241010.7VFRMETAR151.02018-12-17 21:16:49n›‹‘l)E5   3CYTR 172100Z 29011G16KT 15SM -SHSN BKN025 OVC055 02/M03 A2981 RMK SC6SC2 PCPN VRY LGT SLP098CYTR2018-12-17T21:00:00Z44.12-77.522.0-3.0290111615.029.8110241009.8-SHSNMVFRMETAR86.02018-12-17 21:16:49a›‹‘k)55    3CYUL 172100Z 28010KT 12SM -SN BKN034 BKN050 OVC075 01/M01 A2962 RMK SC6SC1AC1 SLP033CYUL2018-12-17T21:00:00Z45.47-73.731.0-1.02801012.029.6190951003.3-SNVFRMETAR36.02018-12-17 21:16:49 ´/]Œ´R›‹‘r)5   3K24A 172100Z AUTO 32008G15KT 10SM CLR 12/M03 A3008 RMK AO2 T01231034K24A2018-12-17T21:00:00Z35.32-83.212.3-3.432081510.030.079725TRUETRUEVFRMETAR871.02018-12-17 21:16:49K›‹‘q) 5    3KASJ 172100Z AUTO 27005KT 10SM CLR 14/02 A2991 RMK AO2 T01400021KASJ2018-12-17T21:00:00Z36.28-77.1714.02.1270510.029.911417TRUETRUEVFRMETAR21.02018-12-17 21:16:49L›‹‘p)5    3KEHO 172100Z AUTO 29003KT 10SM CLR 17/M01 A3002 RMK AO2 T01651008KEHO2018-12-17T21:00:00Z35.25-81.616.5-0.8290310.030.02067TRUETRUEVFRMETAR258.02018-12-17 21:16:49K›‹‘o) 5    3KETC 172100Z AUTO 28006KT 10SM CLR 16/01 A2992 RMK AO2 T01560009KETC2018-12-17T21:00:00Z35.93-77.5515.60.9280610.029.920275TRUETRUEVFRMETAR17.02018-12-17 21:16:49 d;‡Ñd0›‹‘w(s5  3CXSL 172100Z AUTO 28004KT M09/M12 RMK AO1 T10881118CXSL2018-12-17T21:00:00Z54.28-112.5-8.8-11.82804TRUETRUEMETAR680.02018-12-17 21:16:491›‹‘v(s5  3CXSP 172100Z AUTO 24005KT M07/M10 RMK AO1 T10721101CXSP2018-12-17T21:00:00Z54.02-111.27-7.2-10.12405TRUETRUEMETAR649.02018-12-17 21:16:490›‹‘u(s5  3CXTH 172100Z AUTO 25006KT M07/M09 RMK AO1 T10721088CXTH2018-12-17T21:00:00Z53.63-111.68-7.2-8.82506TRUETRUEMETAR678.02018-12-17 21:16:49.›‹‘t(s5  3CXVW 172100Z AUTO 16009KT M05/M09 RMK AO1 T10501088CXVW2018-12-17T21:00:00Z55.1-117.2-5.0-8.81609TRUETRUEMETAR698.02018-12-17 21:16:49?›‹‘s)5  3CXSC 172100Z AUTO 24017KT 08/01 RMK AO1 PK WND 24024/2019 T00770014CXSC2018-12-17T21:00:00Z50.3-110.087.71.424017TRUETRUEMETAR800.02018-12-17 21:16:49 ±Gf‹±T›‹‘{)%5    3CZFS 172100Z AUTO 12006KT M15/M17 RMK AO1 SOG 22 8009 SLP967 T11501173 50002CZFS2018-12-17T21:00:00Z61.77-121.23-15.0-17.31206996.7TRUETRUE0.2METAR168.02018-12-17 21:16:49U›‹‘z)%5    3CZSM 172100Z AUTO 11003KT M11/M13 RMK AO1 SOG 30 8017 SLP015 T11091129 50005CZSM2018-12-17T21:00:00Z60.03-111.93-10.9-12.911031001.5TRUETRUE0.5METAR203.02018-12-17 21:16:49[›‹‘y)%5   3KCBE 172100Z AUTO 30018G25KT 280V340 10SM CLR 07/M05 A2995 RMK AO2 T00751046KCBE2018-12-17T21:00:00Z39.62-78.777.5-4.6300182510.029.949802TRUETRUEVFRSPECI236.02018-12-17 21:16:493›‹‘x(k5   3SASJ 172100Z 09004KT 9999 SCT035TCU 29/21 Q1008SASJ2018-12-17T21:00:00Z-24.37-65.129.021.09046.2129.763779VFRMETAR1167.02018-12-17 21:16:49 0h¤çG›‹’)5   3CWJX 172100Z AUTO 26007KT 04/M01 RMK AO1 SOG 06 0000 SLP067 T00411011CWJX2018-12-17T21:00:00Z50.88-109.54.1-1.126071006.7TRUETRUEMETAR672.02018-12-17 21:16:497›‹‘(y5    3CWKH 172100Z AUTO 07/06 RMK AO1 SLP075 T00690057 58022CWKH2018-12-17T21:00:00Z48.57-123.556.95.71007.5TRUETRUE-2.2METAR366.02018-12-17 21:16:49>›‹‘~)5  3CWLC 172100Z AUTO 12022KT 07/04 RMK AO1 PK WND 11046/2034 T00700041CWLC2018-12-17T21:00:00Z54.3-130.627.04.112022TRUETRUEMETAR27.02018-12-17 21:16:49B›‹‘}) 5    3CWLM 172100Z AUTO 03001KT 08/07 RMK AO1 SLP088 T00820072 58020CWLM2018-12-17T21:00:00Z48.42-123.328.27.23011008.8TRUETRUE-2.0METAR70.02018-12-17 21:16:49J›‹‘|)5   3CWMT 172100Z AUTO 09005KT M16/M18 RMK AO1 SOG 20 8007 SLP979 T11601183CWMT2018-12-17T21:00:00Z63.13-117.25-16.0-18.3905997.9TRUETRUEMETAR271.02018-12-17 21:16:49 È/a•ÈG›‹’)5    3WMKK 172100Z 00000KT 9999 FEW017CB SCT140 BKN280 24/24 Q1010 NOSIGWMKK2018-12-17T21:00:00Z2.75101.7224.024.0006.2129.822834TRUEVFRMETAR22.02018-12-17 21:16:49F›‹’) 5    3CWJT 172100Z AUTO 29003KT M03/M07 RMK AO1 SLP057 T10301067 53026CWJT2018-12-17T21:00:00Z46.07-74.57-3.0-6.729031005.7TRUETRUE2.6METAR239.02018-12-17 21:16:49H›‹’)5    3CWJV 172100Z AUTO 16002KT 06/02 RMK AO1 8010 SLP121 T00590024 50002CWJV2018-12-17T21:00:00Z50.22-119.185.92.416021012.1TRUETRUE0.2METAR556.02018-12-17 21:16:49K›‹’)5    3CWJW 172100Z AUTO 24003KT 05/M01 RMK AO1 8006 SLP068 T00451008 50002CWJW2018-12-17T21:00:00Z52.93-118.034.5-0.824031006.8TRUETRUE0.2METAR1020.02018-12-17 21:16:49 Æ;o“ƁG›‹’) 5  3SLET 172100Z 32014G25KT 9999 SCT017 FEW030CB SCT200 28/20 Q1010SLET2018-12-17T21:00:00Z-17.8-63.1728.020.032014256.2129.822834VFRSPECI414.02018-12-17 21:16:49V›‹’)%5     3WBGG 172100Z 19003KT 160V230 9000 -RA FEW001 SCT020 OVC140 24/23 Q1011 NOSIGWBGG2018-12-17T21:00:00Z1.47110.3524.023.019035.5929.852362TRUE-RAVFRMETAR27.02018-12-17 21:16:49F›‹’) 5    3WBKK 172100Z 11005KT 9999 FEW014 SCT140 BKN270 24/22 Q1011 NOSIGWBKK2018-12-17T21:00:00Z5.92116.0324.022.011056.2129.852362TRUEVFRMETAR3.02018-12-17 21:16:49?›‹’(5    3WBSB 172100Z 21002KT 9999 FEW015 BKN300 24/24 Q1011 NOSIGWBSB2018-12-17T21:00:00Z4.92114.9224.024.021026.2129.852362TRUEVFRMETAR15.02018-12-17 21:16:49 YDŠÏY5›‹’ (s5   3OIAW 172100Z 13004KT 9999 SCT040 BKN090 16/12 Q1019OIAW2018-12-17T21:00:00Z31.3248.7716.012.013046.2130.088583VFRMETAR22.02018-12-17 21:16:495›‹’ (k5    3OJAI 172100Z 20006KT 8000 NSC 11/05 Q1022 NOSIGOJAI2018-12-17T21:00:00Z31.7236.011.05.020064.9730.177166TRUEMVFRMETAR730.02018-12-17 21:16:495›‹’ (k5    3GQPP 172100Z 36006KT 7000 NSC 21/04 Q1018 NOSIGGQPP2018-12-17T21:00:00Z20.92-17.0221.04.036064.3530.059055TRUEMVFRMETAR3.02018-12-17 21:16:494›‹’ (u5   3FAJB 172100Z AUTO 05001KT //// // ////// 20/10 Q1024FAJB2018-12-17T21:00:00Z-26.1528.020.010.050130.236221TRUESPECI1626.02018-12-17 21:16:496›‹’ (u5   3FAVV 172100Z AUTO 04011KT //// // ////// 21/11 Q1021FAVV2018-12-17T21:00:00Z-26.5727.9721.011.0401130.147638TRUESPECI1483.02018-12-17 21:16:49 b9{Î#b;›‹’({5    3OITM 172100Z 08008KT 9999 -RA SCT040 OVC070 03/02 Q1018OITM2018-12-17T21:00:00Z37.3546.153.02.08086.2130.059055-RAVFRMETAR1340.02018-12-17 21:16:49%›‹’(Y5   3OIAH 172100Z 00000KT CAVOK 08/01 Q1022OIAH2018-12-17T21:00:00Z30.3350.838.01.0006.2130.177166VFRMETAR738.02018-12-17 21:16:49'›‹’([5   3OISF 172100Z 00000KT CAVOK 02/M06 Q1023OISF2018-12-17T21:00:00Z28.953.722.0-6.0006.2130.206694VFRMETAR1383.02018-12-17 21:16:498›‹’(y5    3OITP 172100Z 10004KT 5000 RA BKN035 OVC070 04/04 Q1025OITP2018-12-17T21:00:00Z39.647.884.04.010043.1130.265747RAMVFRMETAR77.02018-12-17 21:16:49A›‹’)5   3SBLO 172100Z 20005KT 9999 FEW040 FEW045TCU 28/21 Q1014 RETSSBLO2018-12-17T21:00:00Z-23.32-51.1228.021.020056.2129.940945VFRMETAR570.02018-12-17 21:16:49 HGŒÖ*H\›‹’)C5   3YSRI 172100Z AUTO 23006KT //// // OVC026 23/19 Q1014 RF00.0/000.0 PRESENT WEATHER SENSOR USYSRI2018-12-17T21:00:00Z-33.6150.7723.019.0230629.940945TRUEMETAR21.02018-12-17 21:16:49&›‹’(Y5   3OIBL 172100Z 36008KT CAVOK 19/04 Q1020OIBL2018-12-17T21:00:00Z26.5354.8219.04.036086.2130.11811VFRMETAR14.02018-12-17 21:16:490›‹’(u5   3OIMC 172100Z AUTO 07002KT //// // ////// 05/04 Q1027OIMC2018-12-17T21:00:00Z36.561.075.04.070230.324802TRUEMETAR288.02018-12-17 21:16:495›‹’(w5   3OIMQ 172100Z AUTO 05004KT //// // ////// 10/M06 Q1022OIMQ2018-12-17T21:00:00Z35.2358.4710.0-6.050430.177166TRUEMETAR1140.02018-12-17 21:16:493›‹’(s5   3OINE 172100Z 00000KT 9999 SCT030 OVC090 10/08 Q1021OINE2018-12-17T21:00:00Z37.3855.4510.08.0006.2130.147638VFRMETAR130.02018-12-17 21:16:49 Û.a™Û8›‹’(o5    3YPPD 172100Z AUTO 17001KT 9999 // NCD 21/19 Q1006YPPD2018-12-17T21:00:00Z-20.37118.6221.019.017016.2129.704725TRUEVFRMETAR6.02018-12-17 21:16:49B›‹’) 5    3YSCB 172100Z AUTO 06007KT 9999 // NCD 19/14 Q1016 RF00.0/000.0YSCB2018-12-17T21:00:00Z-35.28149.1719.014.06076.2130.0TRUEVFRMETAR577.02018-12-17 21:16:49G›‹’) 5    3YSDU 172100Z AUTO 13008KT 9999 // NCD 25/15 Q1012 RF00.0/000.0YSDU2018-12-17T21:00:00Z-32.22148.5725.015.013086.2129.88189TRUEVFRMETAR275.02018-12-17 21:16:49L›‹’)5    3YSNF 172100Z AUTO 09012KT 9999 // BKN019 21/17 Q1017 RF00.0/000.0YSNF2018-12-17T21:00:00Z-29.02167.9221.017.090126.2130.029528TRUEMVFRMETAR109.02018-12-17 21:16:49 Ø,_¥ØG›‹’)5    3YMLT 172100Z AUTO 15012KT 9999 // OVC050 14/10 Q1016 RF00.0/000.0YMLT2018-12-17T21:00:00Z-41.52147.1814.010.0150126.2130.0TRUEVFRSPECI178.02018-12-17 21:16:494›‹’(o5    3YPEA 172100Z AUTO 15005KT 9999 // NCD 16/10 Q1016YPEA2018-12-17T21:00:00Z-31.67116.0216.010.015056.2130.0TRUEVFRMETAR49.02018-12-17 21:16:49G›‹’) 5    3YPGV 172100Z AUTO 34004KT 9999 // NCD 27/26 Q1007 RF00.0/000.0YPGV2018-12-17T21:00:00Z-12.27136.8227.026.034046.2129.734253TRUEVFRSPECI55.02018-12-17 21:16:49N›‹’)5    3YPKG 172100Z AUTO 19011KT 9999 // SCT011 BKN016 OVC022 15/13 Q1013YPKG2018-12-17T21:00:00Z-30.77121.4515.013.0190116.2129.911417TRUEMVFRSPECI360.02018-12-17 21:16:49 Ä4a”āJ›‹’#)5    3YBRM 172100Z AUTO 27009KT 9999 // BKN030 26/18 Q1008 RF00.0/000.0YBRM2018-12-17T21:00:00Z-17.93122.2226.018.027096.2129.763779TRUEMVFRMETAR9.02018-12-17 21:16:49G›‹’") 5    3YCIN 172100Z AUTO 30004KT 9999 // NCD 22/20 Q1008 RF00.0/000.0YCIN2018-12-17T21:00:00Z-17.58123.8322.020.030046.2129.763779TRUEVFRSPECI91.02018-12-17 21:16:49M›‹’!)5    3YFRT 172100Z AUTO 26014KT 9999 // OVC016 19/16 Q1005 RF00.0/000.0YFRT2018-12-17T21:00:00Z-30.83128.1219.016.0260146.2129.675198TRUEMVFRSPECI156.02018-12-17 21:16:49F›‹’ ) 5    3YMHB 172100Z 19006KT 9999 -DZ FEW009 SCT022 BKN035 14/10 Q1018YMHB2018-12-17T21:00:00Z-42.82147.5214.010.019066.2130.059055-DZVFRMETAR27.02018-12-17 21:16:49 )/b’ß)0›‹’((e5   3SAZM 172100Z 16018KT 9999 SCT020 15/08 Q1018SAZM2018-12-17T21:00:00Z-37.92-57.5715.08.0160186.2130.059055VFRMETAR21.02018-12-17 21:16:49-›‹’'([5   3SAZS 172100Z 30017KT CAVOK 23/M05 Q1018SAZS2018-12-17T21:00:00Z-41.13-71.1723.0-5.0300176.2130.059055VFRMETAR840.02018-12-17 21:16:49J›‹’&)5    3YBHM 172100Z AUTO 14020KT 9999 // BKN034 26/22 Q1007 RF00.0/000.2YBHM2018-12-17T21:00:00Z-20.35148.9526.022.0140206.2129.734253TRUEVFRSPECI5.02018-12-17 21:16:49G›‹’%) 5    3YBMA 172100Z AUTO 17006KT 9999 // NCD 27/06 Q1008 RF00.0/000.0YBMA2018-12-17T21:00:00Z-20.67139.4727.06.017066.2129.763779TRUEVFRMETAR344.02018-12-17 21:16:49K›‹’$)5    3YBRK 172100Z AUTO 15009KT 9999 // OVC028 26/20 Q1008 RF00.0/000.2YBRK2018-12-17T21:00:00Z-23.37150.4726.020.015096.2129.763779TRUEMVFRMETAR14.02018-12-17 21:16:49 RB‡Ø R1›‹’-(e5   3SARP 172100Z 29008KT 9999 FEW020 35/21 Q1009SARP2018-12-17T21:00:00Z-27.38-55.9735.021.029086.2129.793306VFRMETAR125.02018-12-17 21:16:49I›‹’,) 5    3SASA 172100Z 05017KT 6000 TS FEW020 FEW025CB SCT100 28/21 Q1010SASA2018-12-17T21:00:00Z-24.85-65.4728.021.050173.7329.822834TSMVFRMETAR1216.02018-12-17 21:16:49)›‹’+(Y5   3SAVC 172100Z 07015KT CAVOK 21/00 Q1015SAVC2018-12-17T21:00:00Z-45.77-67.4721.00.070156.2129.970472VFRMETAR46.02018-12-17 21:16:495›‹’*(k5  3SAWE 172100Z 25034G45KT 9999 FEW018 12/02 Q1002SAWE2018-12-17T21:00:00Z-53.78-67.7512.02.025034456.2129.586615VFRMETAR22.02018-12-17 21:16:498›‹’)(m5  3SAWG 172100Z 25032G45KT 9999 BKN030 16/M01 Q1009SAWG2018-12-17T21:00:00Z-51.62-69.3216.0-1.025032456.2129.793306MVFRMETAR19.02018-12-17 21:16:49 JDˆÌJC›‹’2)5   3SANT 172100Z 18005KT 8000 FEW030 FEW050CB BKN200 31/23 Q1006SANT2018-12-17T21:00:00Z-26.85-65.0831.023.018054.9729.704725MVFRMETAR450.02018-12-17 21:16:493›‹’1(e5   3SAOC 172100Z 18018KT 9999 OVC025 20/14 Q1015SAOC2018-12-17T21:00:00Z-33.12-64.2720.014.0180186.2129.970472MVFRMETAR421.02018-12-17 21:16:496›‹’0(s5   3SARC 172100Z 05008KT 9999 FEW030 SCT200 34/24 Q1005SARC2018-12-17T21:00:00Z-27.43-58.7734.024.05086.2129.675198VFRMETAR62.02018-12-17 21:16:496›‹’/(s5   3SARE 172100Z 02008KT 9999 FEW035 BKN200 34/25 Q1005SARE2018-12-17T21:00:00Z-27.43-59.0334.025.02086.2129.675198VFRMETAR52.02018-12-17 21:16:496›‹’.(s5   3SARI 172100Z 00000KT 9999 FEW030 BKN200 31/21 Q1010SARI2018-12-17T21:00:00Z-25.72-54.4731.021.0006.2129.822834VFRMETAR270.02018-12-17 21:16:49 0N†½õ0?›‹’7)5   3SAAR 172100Z 07012KT 9999 FEW018 BKN100 OVC200 24/19 Q1010SAAR2018-12-17T21:00:00Z-32.92-60.7724.019.070126.2129.822834VFRMETAR25.02018-12-17 21:16:49B›‹’6(y5     3SABE 172100Z 13013KT 5000 -DZ OVC020 19/16 Q1013 NOSIGSABE2018-12-17T21:00:00Z-34.57-58.4219.016.0130133.1129.911417TRUE-DZMVFRMETAR6.02018-12-17 21:16:49C›‹’5(5    3SACO 172100Z 17019KT 7000 SCT030 SCT100 25/15 Q1012 NOSIGSACO2018-12-17T21:00:00Z-31.32-64.2225.015.0170194.3529.88189TRUEMVFRMETAR474.02018-12-17 21:16:49B›‹’4(5    3SAEZ 172100Z 13010KT 9000 FEW027 OVC035 20/15 Q1013 NOSIGSAEZ2018-12-17T21:00:00Z-34.82-58.5220.015.0130105.5929.911417TRUEVFRMETAR20.02018-12-17 21:16:49,›‹’3(e5   3SAME 172100Z 14011KT 9999 SCT045 24/08 Q1016SAME2018-12-17T21:00:00Z-32.82-68.7724.08.0140116.2130.0VFRMETAR704.02018-12-17 21:16:49 <v¿îM›‹’<)5     3LYUZ 172100Z AUTO 31007KT 0300 FZFG -SN VV001 M06/M07 Q1021LYUZ2018-12-17T21:00:00Z43.919.7-6.0-7.031070.1930.147638TRUEFZFG -SNLIFR100METAR904.02018-12-17 21:16:49K›‹’;)5     3LYVR 172100Z 19005KT 5000 BR OVC006 M03/M04 Q1026 R01/////// NOSIGLYVR2018-12-17T21:00:00Z45.1321.32-3.0-4.019053.1130.295275TRUEBRIFRMETAR85.02018-12-17 21:16:491›‹’:(e5    3LCLK 172100Z 34002KT CAVOK 13/11 Q1017 NOSIGLCLK2018-12-17T21:00:00Z34.8733.6213.011.034026.2130.029528TRUEVFRMETAR2.02018-12-17 21:16:49@›‹’9) 5   3LCPH 172100Z 35003KT 230V040 9999 FEW027TCU BKN034 18/12 Q1017LCPH2018-12-17T21:00:00Z34.7232.4718.012.035036.2130.029528VFRMETAR8.02018-12-17 21:16:49>›‹’8(w5     3ORBI 172100Z 11005KT 6000 BR OVC030 14/11 Q1018 NOSIGORBI2018-12-17T21:00:00Z33.2744.2314.011.011053.7330.059055TRUEBRMVFRMETAR35.02018-12-17 21:16:49 çNˆ³çF›‹’@) 5     3LYKV 172100Z VRB01KT 4000 BR SCT010 OVC027 M02/M02 Q1025 NOSIGLYKV2018-12-17T21:00:00Z43.8220.58-2.0-2.0012.4930.265747TRUEBRIFRMETAR209.02018-12-17 21:16:49O›‹’?)5    3LYNI 172100Z 33011KT 7000 BKN007 OVC023 M02/M02 Q1024 R11/1///95 NOSIGLYNI2018-12-17T21:00:00Z43.3221.88-2.0-2.0330114.3530.236221TRUEIFRSPECI202.02018-12-17 21:16:49@›‹’>)5   3LYPG 172100Z 03013G23KT 9999 SCT050 OVC070 07/M04 Q1016 NOSIGLYPG2018-12-17T21:00:00Z42.3719.257.0-4.03013236.2130.0TRUEVFRMETAR43.02018-12-17 21:16:49,›‹’=(a5  3LYTV 172100Z 02013G23KT CAVOK 09/M05 Q1014LYTV2018-12-17T21:00:00Z42.3818.729.0-5.02013236.2129.940945VFRMETAR5.02018-12-17 21:16:49 #mX›‹’D))5   3CWAE 172100Z 18005KT 15SM FEW010 OVC038 03/03 A2974 RMK CU1SC7 WND ESTD SLP086CWAE2018-12-17T21:00:00Z50.13-122.953.03.0180515.029.7401581008.6VFRSPECI658.02018-12-17 21:16:490›‹’C(e5   3SADF 172100Z 14008KT 9999 OVC018 20/15 Q1013SADF2018-12-17T21:00:00Z-34.45-58.5820.015.014086.2129.911417MVFRMETAR4.02018-12-17 21:16:49m›‹’B)Q5    3LYBE 172100Z 28006KT 0500 R12/0650D R30/0700D FZFG VV003 M04/M04 Q1027 R12/1///95 TEMPO 0300 VV002LYBE2018-12-17T21:00:00Z44.8220.28-4.0-4.028060.3130.324802FZFGLIFR300SPECI99.02018-12-17 21:16:49d›‹’A)95     3LYBT 172100Z 32003KT 0600 R12/1200D R30/1000D FZFG VV002 M04/M04 Q1028 12/////// NOSIGLYBT2018-12-17T21:00:00Z44.9320.25-4.0-4.032030.3730.35433TRUEFZFGLIFR200METAR80.02018-12-17 21:16:49 (6s¤ò(D›‹’I) 5     3LQBK 172100Z VRB02KT 2000 BR SCT017 OVC035 M03/M04 Q1028 NOSIGLQBK2018-12-17T21:00:00Z44.9317.3-3.0-4.0021.2430.35433TRUEBRIFRMETAR122.02018-12-17 21:16:49,›‹’H(g5   3LQMO 172100Z VRB06KT 9999 FEW040 09/M06 Q1015LQMO2018-12-17T21:00:00Z43.2817.839.0-6.0066.2129.970472VFRMETAR48.02018-12-17 21:16:49I›‹’G) 5     3LQSA 172100Z 31003KT 280V020 3000 BR OVC025 M03/M03 Q1024 NOSIGLQSA2018-12-17T21:00:00Z43.8218.32-3.0-3.031031.8630.236221TRUEBRIFRMETAR511.02018-12-17 21:16:49=›‹’F(}5    3LQTZ 172100Z 32004KT 2000 BR SCT010 BKN025 M05/M05 Q1026LQTZ2018-12-17T21:00:00Z44.4718.73-5.0-5.032041.2430.295275BRIFRMETAR306.02018-12-17 21:16:49D›‹’E) 5   3SPTN 172100Z 21010KT 180V240 9999 SCT130 24/13 Q1012 RMK PP000SPTN2018-12-17T21:00:00Z-18.07-70.2824.013.0210106.2129.88189VFRSPECI458.02018-12-17 21:16:49 :C„½ú::›‹’N(o5     3LFBP 172100Z AUTO 11004KT CAVOK 05/04 Q1025 NOSIGLFBP2018-12-17T21:00:00Z43.37-0.425.04.011046.2130.265747TRUETRUEVFRMETAR185.02018-12-17 21:16:49=›‹’M)5    3LFBT 172100Z AUTO 00000KT CAVOK 02/01 Q1025 TEMPO 4000 MIFGLFBT2018-12-17T21:00:00Z43.170.02.01.0006.2130.265747TRUEVFRSPECI363.02018-12-17 21:16:49A›‹’L(5     3LFBZ 172100Z AUTO 14004KT 110V180 CAVOK 07/04 Q1025 NOSIGLFBZ2018-12-17T21:00:00Z43.47-1.527.04.014046.2130.265747TRUETRUEVFRMETAR71.02018-12-17 21:16:499›‹’K(q5     3VOCB 172100Z VRB02KT 2500 BR NSC 20/18 Q1014 NOSIGVOCB2018-12-17T21:00:00Z11.0277.0320.018.0021.5529.940945TRUEBRIFRMETAR399.02018-12-17 21:16:497›‹’J(y5   3WAMM 172100Z VRB02KT 8000 SCT018 24/24 Q1010 TEMPO -RAWAMM2018-12-17T21:00:00Z1.55124.9224.024.0024.9729.822834MVFRSPECI80.02018-12-17 21:16:49 2A{¢ç2/›‹’S(c5    3LFQB 172100Z AUTO 15005KT CAVOK 04/04 Q1027LFQB2018-12-17T21:00:00Z48.324.024.04.015056.2130.324802TRUEVFRMETAR118.02018-12-17 21:16:495›‹’R(o5    3LFSN 172100Z AUTO 23004KT 9999 FEW029 05/03 Q1027LFSN2018-12-17T21:00:00Z48.676.225.03.023046.2130.324802TRUEVFRMETAR217.02018-12-17 21:16:49S›‹’Q)'5    3LFBI 172100Z AUTO 16006KT 9999 BKN010 BKN240 07/07 Q1026 TEMPO 3000 BR SCT025LFBI2018-12-17T21:00:00Z46.570.327.07.016066.2130.295275TRUEMVFRSPECI120.02018-12-17 21:16:49@›‹’P({5     3LFBL 172100Z AUTO 13004KT 9999 OVC019 06/05 Q1026 NOSIGLFBL2018-12-17T21:00:00Z45.871.176.05.013046.2130.295275TRUETRUEMVFRMETAR402.02018-12-17 21:16:499›‹’O(o5     3LFBO 172100Z AUTO 11006KT CAVOK 07/06 Q1027 NOSIGLFBO2018-12-17T21:00:00Z43.621.377.06.011066.2130.324802TRUETRUEVFRMETAR153.02018-12-17 21:16:49 4I{Àï45›‹’X(q5    3LFLP 172100Z AUTO 06006KT 8000 FEW009 00/M00 Q1028LFLP2018-12-17T21:00:00Z45.926.080.00.06064.9730.35433TRUEMVFRMETAR463.02018-12-17 21:16:49K›‹’W)5    3LFLX 172100Z AUTO 17005KT 9999 SCT029 SCT230 05/04 Q1027 TEMPO 2500 BRLFLX2018-12-17T21:00:00Z46.851.725.04.017056.2130.324802TRUEVFRSPECI157.02018-12-17 21:16:495›‹’V(o5    3LFOH 172100Z AUTO 17009KT 9999 FEW047 09/07 Q1022LFOH2018-12-17T21:00:00Z49.520.079.07.017096.2130.177166TRUEVFRMETAR103.02018-12-17 21:16:49H›‹’U) 5     3LFOP 172100Z AUTO 17010KT 8000 BKN007 BKN013 06/05 Q1023 NOSIGLFOP2018-12-17T21:00:00Z49.371.176.05.0170104.9730.206694TRUETRUEIFRMETAR157.02018-12-17 21:16:491›‹’T(o5    3LFQA 172100Z AUTO VRB01KT 9999 FEW021 05/03 Q1026LFQA2018-12-17T21:00:00Z49.24.155.03.0016.2130.295275TRUEVFRMETAR95.02018-12-17 21:16:49 B“å/*›‹’]([5   3OIYY 172100Z 18004KT CAVOK 08/M15 Q1022OIYY2018-12-17T21:00:00Z31.954.288.0-15.018046.2130.177166VFRMETAR1236.02018-12-17 21:16:490›‹’\(s5   3OING 172100Z 00000KT 9999 FEW035 OVC090 09/08 Q1024OING2018-12-17T21:00:00Z36.954.49.08.0006.2130.236221VFRMETAR155.02018-12-17 21:16:49(›‹’[([5   3OIZB 172100Z 25004KT CAVOK 03/M09 Q1025OIZB2018-12-17T21:00:00Z31.161.553.0-9.025046.2130.265747VFRMETAR489.02018-12-17 21:16:49)›‹’Z([5   3OIZI 172100Z 02004KT CAVOK 12/M08 Q1022OIZI2018-12-17T21:00:00Z27.2360.7212.0-8.02046.2130.177166VFRMETAR591.02018-12-17 21:16:498›‹’Y(o5     3LFCK 172100Z AUTO 11008KT CAVOK 06/05 Q1028 NOSIGLFCK2018-12-17T21:00:00Z43.552.286.05.011086.2130.35433TRUETRUEVFRMETAR240.02018-12-17 21:16:49 )1_›î)?›‹’b)5   3OIAA 172100Z 13008KT 9999 FEW035CB SCT040 BKN100 19/15 Q1019OIAA2018-12-17T21:00:00Z30.3748.2519.015.013086.2130.088583VFRMETAR11.02018-12-17 21:16:49'›‹’a(Y5   3OIBK 172100Z 34006KT CAVOK 19/11 Q1020OIBK2018-12-17T21:00:00Z26.5353.9819.011.034066.2130.11811VFRMETAR30.02018-12-17 21:16:49>›‹’`)5   3OIGG 172100Z 22006KT 8000 FEW012CB BKN015 OVC070 09/09 Q1024OIGG2018-12-17T21:00:00Z37.3349.69.09.022064.9730.236221MVFRMETAR-13.02018-12-17 21:16:49L›‹’_)5    3OIIE 172100Z 32012KT 8000 -SHRA FEW035CB SCT040 OVC100 08/03 Q1022OIIE2018-12-17T21:00:00Z35.4251.158.03.0320124.9730.177166-SHRAMVFRMETAR1008.02018-12-17 21:16:49I›‹’^) 5    3OITR 172100Z 00000KT 6000 -SNRA SCT020 SCT040 OVC090 02/01 Q1018OITR2018-12-17T21:00:00Z37.6745.072.01.0003.7330.059055-SN -RAMVFRMETAR1312.02018-12-17 21:16:49 bOŸô'b?›‹’g)5   3OINN 172100Z 19002KT 9000 SCT019 BKN026 OVC080 12/11 Q1022OINN2018-12-17T21:00:00Z36.6751.4712.011.019025.5930.177166MVFRMETAR-19.02018-12-17 21:16:49G›‹’f) 5    3OINR 172100Z 31002KT 4000 -RA BKN012 FEW020CB OVC070 10/10 Q1022OINR2018-12-17T21:00:00Z36.8850.6710.010.031022.4930.177166-RAIFRMETAR-20.02018-12-17 21:16:49%›‹’e(Y5   3OISL 172100Z 00000KT CAVOK 06/01 Q1021OISL2018-12-17T21:00:00Z27.6754.376.01.0006.2130.147638VFRMETAR805.02018-12-17 21:16:49*›‹’d([5   3OISY 172100Z 15004KT CAVOK 02/M13 Q1027OISY2018-12-17T21:00:00Z30.751.552.0-13.015046.2130.324802VFRMETAR1811.02018-12-17 21:16:49+›‹’c(e5   3OIBB 172100Z 09008KT CAVOK 17/07 Q1020 A3014OIBB2018-12-17T21:00:00Z28.9750.8217.07.09086.2130.11811VFRMETAR19.02018-12-17 21:16:49 pT€Ð p*›‹’l(_5   3OIMN 172100Z 08002KT 8000 NSC 05/00 Q1022OIMN2018-12-17T21:00:00Z37.4857.35.00.08024.9730.177166MVFRMETAR1074.02018-12-17 21:16:49*›‹’k(_5   3OIZJ 172100Z 11004KT 8000 NSC 20/15 Q1019OIZJ2018-12-17T21:00:00Z25.6557.820.015.011044.9730.088583MVFRMETAR4.02018-12-17 21:16:49*›‹’j(_5   3OIAM 172100Z 12004KT 6000 NSC 14/12 Q1020OIAM2018-12-17T21:00:00Z30.5549.1514.012.012043.7330.11811MVFRMETAR4.02018-12-17 21:16:49N›‹’i)5    3OICI 172100Z 14012KT 9999 VCTS FEW030CB SCT035 OVC070 09/06 Q1022 A3018OICI2018-12-17T21:00:00Z33.5846.49.06.0140126.2130.177166VCTSVFRMETAR1343.02018-12-17 21:16:49&›‹’h(Y5   3OIKQ 172100Z 02006KT CAVOK 17/11 Q1019OIKQ2018-12-17T21:00:00Z26.7555.917.011.02066.2130.088583VFRMETAR12.02018-12-17 21:16:49 JP’ÚþJ.›‹’q(g5   3OISS 172100Z 00000KT CAVOK 02/M04 Q1025 A3030OISS2018-12-17T21:00:00Z29.5252.572.0-4.0006.2130.265747VFRMETAR1491.02018-12-17 21:16:49V›‹’p)%5     3OITT 172100Z 06004KT 2800 RA BR FEW010 SCT030 OVC080 02/02 Q1020 A3012 NOSIGOITT2018-12-17T21:00:00Z38.1346.232.02.06041.7430.11811TRUERA BRIFRMETAR1361.02018-12-17 21:16:492›‹’o(i5   3OIZH 172100Z 18006KT CAVOK M00/M16 Q1025 A3029OIZH2018-12-17T21:00:00Z29.4760.920.0-16.018066.2130.265747VFRMETAR1370.02018-12-17 21:16:498›‹’n(m5  3OIFS 172100Z 21010G26KT 9999 FEW040 10/M20 Q1024OIFS2018-12-17T21:00:00Z32.3250.8510.0-20.021010266.2130.236221VFRMETAR2078.02018-12-17 21:16:49*›‹’m([5   3OIMB 172100Z 08012KT CAVOK 05/M12 Q1024OIMB2018-12-17T21:00:00Z32.959.285.0-12.080126.2130.236221VFRMETAR1491.02018-12-17 21:16:49 \O˜æ\1›‹’v(g5   3OIFM 172100Z 22004KT CAVOK 01/M11 Q1021 A3017OIFM2018-12-17T21:00:00Z32.7551.871.0-11.022046.2130.147638VFRMETAR1542.02018-12-17 21:16:49M›‹’u)!5   3OIII 172100Z 30006KT 8000 FEW035 BKN100 09/M00 Q1022 A3019 TEMPO 5000 SHRAOIII2018-12-17T21:00:00Z35.6851.39.00.030064.9730.177166MVFRMETAR1191.02018-12-17 21:16:49,›‹’t(e5   3OIKB 172100Z 33004KT CAVOK 13/06 Q1020 A3012OIKB2018-12-17T21:00:00Z27.2256.3713.06.033046.2130.11811VFRMETAR10.02018-12-17 21:16:491›‹’s(i5   3OIKK 172100Z 00000KT CAVOK M01/M23 Q1025 A3028OIKK2018-12-17T21:00:00Z30.2556.97-1.0-23.0006.2130.265747VFRMETAR1754.02018-12-17 21:16:49+›‹’r(e5   3OIMM 172100Z 00000KT CAVOK 04/01 Q1024 A3025OIMM2018-12-17T21:00:00Z36.2359.624.01.0006.2130.236221VFRMETAR980.02018-12-17 21:16:49 kQ¥øLk[›‹’{)/5    3UUWW 172100Z 00000MPS 2700 -SN BR BKN002 M14/M16 Q1035 R06/450242 TEMPO 0400 FZFGUUWW2018-12-17T21:00:00Z55.637.27-14.0-16.0001.6830.561024-SN BRLIFRMETAR203.02018-12-17 21:16:49&›‹’z(Y5   3LPOV 172100Z 18004KT CAVOK 09/06 Q1025LPOV2018-12-17T21:00:00Z40.92-8.659.06.018046.2130.265747VFRMETAR17.02018-12-17 21:16:49'›‹’y(Y5   3LPMR 172100Z 15009KT CAVOK 10/06 Q1025LPMR2018-12-17T21:00:00Z39.82-8.8710.06.015096.2130.265747VFRMETAR54.02018-12-17 21:16:49&›‹’x(Y5   3LPMT 172100Z 11004KT CAVOK 10/09 Q1026LPMT2018-12-17T21:00:00Z38.7-9.0510.09.011046.2130.295275VFRMETAR11.02018-12-17 21:16:49)›‹’w([5   3DAOR 172100Z 13001KT CAVOK 11/M00 Q1029DAOR2018-12-17T21:00:00Z31.65-2.2711.00.013016.2130.383858VFRMETAR773.02018-12-17 21:16:49 4&4\›‹’);5    3ULLI 172100Z 16002MPS 120V200 9999 OVC006 M08/M09 Q1029 R10R/190055 NOSIG RMK OBST OBSCULLI2018-12-17T21:00:00Z59.830.27-8.0-9.016046.2130.383858TRUEIFRMETAR4.02018-12-17 21:16:49z›‹’~)i5    3UUBW 172100Z 13001MPS 2000 R30/P2000U -SN BR SCT002 OVC008 M13/M15 Q1036 R30/810250 TEMPO 0300 FZFG RMK QBB060UUBW2018-12-17T21:00:00Z55.5538.15-13.0-15.013021.2430.590551-SN BRIFRMETAR115.02018-12-17 21:16:49‚ ›‹’})‚ 5    3UUDD 172100Z 14003MPS 100V160 3200 R14R/P2000U R14L/P2000D -SN BR BKN002 M15/M17 Q1035 R14R/450293 R14L/420195 TEMPO 1000 SN BRUUDD2018-12-17T21:00:00Z55.437.9-15.0-17.014061.9930.561024-SN BRLIFRMETAR168.02018-12-17 21:16:49T›‹’|)#5    3UUDL 172100Z 08001MPS 9999 OVC010 M14/M16 Q1038 R23/720253 NOSIG RMK QFE770UUDL2018-12-17T21:00:00Z57.5740.17-14.0-16.08026.2130.649607TRUEMVFRMETAR88.02018-12-17 21:16:49 _!>b_}›‹“)g5     3UWUU 172100Z 00000MPS 0200 0150S R14R/1300U FZFG VV002 M16/M18 Q1036 R14R/15//46 NOSIG RMK QBB060 QFE766/1022UWUU2018-12-17T21:00:00Z54.5755.87-16.0-18.0000.1230.590551TRUEFZFGLIFR200METAR137.02018-12-17 21:16:49V›‹“)15   3USNN 172100Z 26003MPS 9999 OVC004 M03/M04 Q1018 R21/690337 TEMPO OVC003 RMK QFE758USNN2018-12-17T21:00:00Z60.9576.48-3.0-4.026066.2130.059055LIFRMETAR54.02018-12-17 21:16:49]›‹“)75    3USRR 172100Z 24003MPS 9999 BKN004 M05/M05 Q1018 R25/390035 NOSIG RMK OBST OBSC QFE758USRR2018-12-17T21:00:00Z61.3373.42-5.0-5.024066.2130.059055TRUELIFRMETAR44.02018-12-17 21:16:49Y›‹“)/5    3USSS 172100Z 27002MPS 9999 OVC038 M06/M08 Q1030 R26R/420139 NOSIG RMK QFE751/1002USSS2018-12-17T21:00:00Z56.7560.82-6.0-8.027046.2130.413385TRUEVFRMETAR233.02018-12-17 21:16:49 ÚA{¬ÚL›‹“)5   3CWVT 172100Z AUTO 17004KT M11/M14 RMK AO1 SOG 17 6018 SLP069 T11051144CWVT2018-12-17T21:00:00Z55.82-108.42-10.5-14.417041006.9TRUETRUEMETAR434.02018-12-17 21:16:49I›‹“)5   3CWZW 172100Z AUTO 08005KT M09/M11 RMK AO1 SOG 17 3002 SLP937 T10911111CWZW2018-12-17T21:00:00Z60.17-132.73-9.1-11.1805993.7TRUETRUEMETAR705.02018-12-17 21:16:49@›‹“)5    3WMSA 172100Z 00000KT 3000 BR FEW026 SCT140 BKN280 25/25 Q1010WMSA2018-12-17T21:00:00Z3.13101.5525.025.0001.8629.822834BRIFRMETAR27.02018-12-17 21:16:499›‹“(s5    3TVSA 172100Z 07009KT 9999 SCT020 27/21 Q1015 NOSIG TVSA2018-12-17T21:00:00Z13.15-61.1527.021.07096.2129.970472TRUEVFRMETAR17.02018-12-17 21:16:49 ³Q³H›‹“ ) 5    3CWEH 172100Z AUTO 22011KT 01/M03 RMK AO1 SLP103 T00071032 57011CWEH2018-12-17T21:00:00Z49.42-108.970.7-3.2220111010.3TRUETRUE-1.1METAR1078.02018-12-17 21:16:49J›‹“ )5   3CWEQ 172100Z AUTO 06002KT M07/M11 RMK AO1 SOG 09 6038 SLP137 T10691111CWEQ2018-12-17T21:00:00Z52.12-101.22-6.9-11.16021013.7TRUETRUEMETAR335.02018-12-17 21:16:49H›‹“ )5   3CWZG 172100Z AUTO 25005KT 04/M06 RMK AO1 SOG 09 8008 SLP094 T00431060CWZG2018-12-17T21:00:00Z51.2-115.534.3-6.025051009.4TRUETRUEMETAR1397.02018-12-17 21:16:49[›‹“);5   3CWRM 172100Z AUTO 27011KT 08/M09 RMK AO1 SOG 13 0001 PK WND 26018/2039 SLP062 T00821090CWRM2018-12-17T21:00:00Z52.42-114.928.2-9.0270111006.2TRUETRUEMETAR988.02018-12-17 21:16:49 ¡=v¡O›‹“)5     3EINN 172100Z 16027KT 9999 -RA FEW010 BKN018 BKN026 12/10 Q0995 NOSIGEINN2018-12-17T21:00:00Z52.7-8.9212.010.0160276.2129.379921TRUE-RAMVFRMETAR20.02018-12-17 21:16:49A›‹“)5  3EICK 172100Z 18024G37KT 7000 OVC005 11/10 Q0999 TEMPO 4000EICK2018-12-17T21:00:00Z51.85-8.4711.010.018024374.3529.498032IFRSPECI162.02018-12-17 21:16:49X›‹“ )15    3RJTT 172100Z 34018KT 9999 FEW030 SCT090 09/M00 Q1009 NOSIG RMK 1CU030 3AC090 A2980RJTT2018-12-17T21:00:00Z35.53139.779.00.0340186.2129.793306TRUEVFRMETAR8.02018-12-17 21:16:49_›‹“ )15     3UNAA 172100Z 23006MPS 9999 DRSN SCT042CB M04/M10 Q1025 R20/490034 NOSIG RMK QFE746UNAA2018-12-17T21:00:00Z53.7591.4-4.0-10.0230126.2130.265747TRUEDRSNVFRMETAR245.02018-12-17 21:16:49 "+l¯â":›‹“(s5    3LKMT 172100Z 21008KT 7000 OVC043 00/M02 Q1026 NOSIGLKMT2018-12-17T21:00:00Z49.6718.120.0-2.021084.3530.295275TRUEMVFRMETAR256.02018-12-17 21:16:49G›‹“)5     3LKPR 172100Z 23012KT 9999 -RA FEW015 OVC019 02/00 Q1025 NOSIGLKPR2018-12-17T21:00:00Z50.114.272.00.0230126.2130.265747TRUE-RAMVFRMETAR365.02018-12-17 21:16:497›‹“(o5    3LKTB 172100Z 00000KT 7000 NSC M01/M02 Q1027 NOSIGLKTB2018-12-17T21:00:00Z49.1316.68-1.0-2.0004.3530.324802TRUEMVFRMETAR246.02018-12-17 21:16:499›‹“(q5    3MPMG 172100Z 33012KT 9999 FEW018 30/21 Q1010 NOSIGMPMG2018-12-17T21:00:00Z8.98-79.5730.021.0330126.2129.822834TRUEVFRMETAR13.02018-12-17 21:16:49O›‹“)5     3EIDW 172100Z 17018KT 9999 -DZ FEW016 BKN022 BKN045 11/09 Q1002 NOSIGEIDW2018-12-17T21:00:00Z53.42-6.2511.09.0170186.2129.586615TRUE-DZMVFRMETAR85.02018-12-17 21:16:49 7:ƒÈ7I›‹“)5   3BIRK 172100Z 08030G45KT 9999 -RA FEW035 BKN044 OVC063 07/M00 Q0976BIRK2018-12-17T21:00:00Z64.13-21.937.00.08030456.2128.818897-RAVFRMETAR61.02018-12-17 21:16:49<›‹“(y5    3LZPP 172100Z AUTO 02005KT 9999 OVC040/// M01/M03 Q1027LZPP2018-12-17T21:00:00Z48.6217.83-1.0-3.02056.2130.324802TRUEVFRMETAR161.02018-12-17 21:16:495›‹“(o5    3LZSL 172100Z 00000KT 2000 BR FEW003 M09/M10 Q1026LZSL2018-12-17T21:00:00Z48.6319.13-9.0-10.0001.2430.295275BRIFRMETAR313.02018-12-17 21:16:491›‹“(i5   3LZZI 172100Z 12001KT 9999 OVC032 M01/M04 Q1027LZZI2018-12-17T21:00:00Z49.2318.62-1.0-4.012016.2130.324802VFRMETAR311.02018-12-17 21:16:49@›‹“) 5   3LKKV 172100Z 27004KT 9999 FEW004 BKN032 00/M00 Q1024 R29///////LKKV2018-12-17T21:00:00Z50.212.920.00.027046.2130.236221VFRSPECI604.02018-12-17 21:16:49 $:b­ë$A›‹“(5     3FMCZ 172100Z AUTO 32005KT 290V010 CAVOK 26/24 Q1012 NOSIGFMCZ2018-12-17T21:00:00Z-12.845.2726.024.032056.2129.88189TRUETRUEVFRMETAR7.02018-12-17 21:16:49<›‹“)5    3VOBL 172100Z VRB02KT 3000 BR NSC 13/13 Q1017 TEMPO 1500 BRVOBL2018-12-17T21:00:00Z13.277.713.013.0021.8630.029528BRIFRMETAR915.02018-12-17 21:16:49/›‹“(k5    3BIAR 172100Z VRB07KT 9999 DZ FEW047 06/01 Q0991BIAR2018-12-17T21:00:00Z65.67-18.076.01.0076.2129.26181DZVFRMETAR27.02018-12-17 21:16:49R›‹“)%5   3BIEG 172100Z 11009G22KT 9999 -RA FEW030 SCT040 BKN067 07/02 Q0993 R04/290195BIEG2018-12-17T21:00:00Z65.27-14.47.02.01109226.2129.320866-RAVFRSPECI38.02018-12-17 21:16:49@›‹“)5  3BIKF 172100Z 06024G34KT 9999 FEW035 BKN041 BKN052 07/02 Q0978BIKF2018-12-17T21:00:00Z63.98-22.67.02.06024346.2128.877953VFRMETAR54.02018-12-17 21:16:49 ÙQœÙ=›‹“"(5    3LFSI 172100Z AUTO 15004KT 120V180 9999 BKN024 06/03 Q1027LFSI2018-12-17T21:00:00Z48.624.96.03.015046.2130.324802TRUEMVFRMETAR140.02018-12-17 21:16:49/›‹“!(c5    3LFSO 172100Z AUTO 19007KT CAVOK 04/03 Q1027LFSO2018-12-17T21:00:00Z48.575.974.03.019076.2130.324802TRUEVFRMETAR350.02018-12-17 21:16:49@›‹“ (5     3LFML 172100Z AUTO 36004KT 310V040 CAVOK 08/03 Q1026 NOSIGLFML2018-12-17T21:00:00Z43.455.228.03.036046.2130.295275TRUETRUEVFRMETAR36.02018-12-17 21:16:49c›‹“)A5     3LFLB 172100Z AUTO 00000KT 0600 0550 R18/0650N R36/0700D FZFG VV/// M00/M01 Q1029 BECMG NSCLFLB2018-12-17T21:00:00Z45.635.870.0-1.0000.3730.383858TRUEFZFGLIFRSPECI239.02018-12-17 21:16:49 e¤Ï6›‹“'(o5     3LFMT 172100Z AUTO 31004KT CAVOK 05/02 Q1028 NOSIGLFMT2018-12-17T21:00:00Z43.573.975.02.031046.2130.35433TRUETRUEVFRMETAR6.02018-12-17 21:16:49O›‹“&)!5     3LFSX 172100Z AUTO VRB03KT 1100 R11/1200U BR NSC 02/02 Q1028 BECMG 9999 NSWLFSX2018-12-17T21:00:00Z47.776.332.02.0030.6830.35433TRUEBRLIFRSPECI273.02018-12-17 21:16:49;›‹“%(}5    3LFYR 172100Z AUTO 20003KT 9999 SCT026 SCT035 06/05 Q1026LFYR2018-12-17T21:00:00Z47.321.676.05.020036.2130.295275TRUEVFRMETAR86.02018-12-17 21:16:49/›‹“$(c5    3LFOA 172100Z AUTO 16006KT CAVOK 05/04 Q1027LFOA2018-12-17T21:00:00Z47.032.635.04.016066.2130.324802TRUEVFRMETAR179.02018-12-17 21:16:49`›‹“#)E5    3LFPV 172100Z AUTO 20005KT 170V230 9999 FEW006 BKN080 BKN170 06/06 Q1025 BECMG 2000 BR OVC002LFPV2018-12-17T21:00:00Z48.772.26.06.020056.2130.265747TRUEVFRSPECI179.02018-12-17 21:16:49 2D‡¸ý2E›‹“,) 5    3LFOK 172100Z AUTO 18009KT 9999 BKN019 05/04 Q1026 BECMG 4000 BRLFOK2018-12-17T21:00:00Z48.784.185.04.018096.2130.295275TRUEMVFRSPECI162.02018-12-17 21:16:495›‹“+(s5    3LFMU 172100Z AUTO 34006KT 310V020 CAVOK 06/03 Q1028LFMU2018-12-17T21:00:00Z43.323.356.03.034066.2130.35433TRUEVFRMETAR17.02018-12-17 21:16:49I›‹“*)5    3LFOB 172100Z AUTO 16004KT 7000 NSC 05/05 Q1024 BECMG 2000 BR OVC003LFOB2018-12-17T21:00:00Z49.472.125.05.016044.3530.236221TRUEMVFRSPECI111.02018-12-17 21:16:497›‹“)(y5    3LFLY 172100Z AUTO VRB02KT 4200 1800 // NSC 03/01 Q1028LFLY2018-12-17T21:00:00Z45.724.953.01.0022.6130.35433TRUEIFRSPECI201.02018-12-17 21:16:496›‹“((s5    3LFMK 172100Z AUTO 16004KT 120V190 CAVOK 06/04 Q1028LFMK2018-12-17T21:00:00Z43.222.326.04.016046.2130.35433TRUEVFRMETAR130.02018-12-17 21:16:49 Q4y»Q-›‹“1(c5    3LFKS 172100Z AUTO 28007KT CAVOK 07/03 Q1025LFKS2018-12-17T21:00:00Z41.929.47.03.028076.2130.265747TRUEVFRMETAR22.02018-12-17 21:16:491›‹“0(o5   3LFMC 172100Z AUTO 24005KT 9999 ////// 07/01 Q1026LFMC2018-12-17T21:00:00Z43.376.377.01.024056.2130.295275TRUEMETAR78.02018-12-17 21:16:498›‹“/(o5     3LFMO 172100Z AUTO 33003KT CAVOK 06/02 Q1027 NOSIGLFMO2018-12-17T21:00:00Z44.124.876.02.033036.2130.324802TRUETRUEVFRMETAR55.02018-12-17 21:16:495›‹“.(s5    3LFMY 172100Z AUTO 31005KT 250V360 CAVOK 08/03 Q1026LFMY2018-12-17T21:00:00Z43.65.088.03.031056.2130.295275TRUEVFRMETAR60.02018-12-17 21:16:49F›‹“-)5    3LFPB 172100Z AUTO 15005KT CAVOK 06/05 Q1025 TEMPO 0800 BCFG BKN003LFPB2018-12-17T21:00:00Z48.972.456.05.015056.2130.265747TRUEVFRSPECI65.02018-12-17 21:16:49 TEÌ T3›‹“6(q5    3LFSB 172100Z 00000KT 9999 BKN053 04/03 Q1029 NOSIGLFSB2018-12-17T21:00:00Z47.67.524.03.0006.2130.383858TRUEVFRMETAR271.02018-12-17 21:16:499›‹“5(o5     3LFBC 172100Z AUTO 10003KT CAVOK 07/06 Q1025 NOSIGLFBC2018-12-17T21:00:00Z44.52-1.127.06.010036.2130.265747TRUETRUEVFRMETAR33.02018-12-17 21:16:49/›‹“4(c5    3LFBG 172100Z AUTO 14007KT CAVOK 07/06 Q1026LFBG2018-12-17T21:00:00Z45.67-0.327.06.014076.2130.295275TRUEVFRMETAR31.02018-12-17 21:16:49>›‹“3)5    3LFBM 172100Z AUTO 09003KT CAVOK 05/05 Q1026 TEMPO 3000 MIFGLFBM2018-12-17T21:00:00Z43.92-0.55.05.09036.2130.295275TRUEVFRSPECI63.02018-12-17 21:16:495›‹“2(u5   3LFBY 172100Z AUTO 10004KT 8000 // ////// 07/06 Q1025LFBY2018-12-17T21:00:00Z43.67-1.077.06.010044.9730.265747TRUEMETAR32.02018-12-17 21:16:49 9h£ðL›‹“;)5    3LFJL 172100Z AUTO 18007KT 9999 OVC019 04/04 Q1027 TEMPO 3000 BR OVC005LFJL2018-12-17T21:00:00Z48.976.254.04.018076.2130.324802TRUEMVFRSPECI264.02018-12-17 21:16:49-›‹“:(c5    3LFKC 172100Z AUTO 20006KT CAVOK 05/03 Q1025LFKC2018-12-17T21:00:00Z42.528.85.03.020066.2130.265747TRUEVFRMETAR58.02018-12-17 21:16:49?›‹“9(5     3LFKF 172100Z AUTO 11003KT 030V160 CAVOK 02/02 Q1025 NOSIGLFKF2018-12-17T21:00:00Z41.59.082.02.011036.2130.265747TRUETRUEVFRMETAR23.02018-12-17 21:16:49K›‹“8)5    3LFRD 172100Z AUTO 17010KT 9999 FEW009 OVC029 09/09 Q1020 BECMG BKN007LFRD2018-12-17T21:00:00Z48.58-2.079.09.0170106.2130.11811TRUEMVFRSPECI59.02018-12-17 21:16:49A›‹“7({5     3LFRN 172100Z AUTO 17009KT 9999 OVC007 10/10 Q1021 NOSIGLFRN2018-12-17T21:00:00Z48.07-1.7210.010.017096.2130.147638TRUETRUEIFRMETAR37.02018-12-17 21:16:49 72Èú7=›‹“@(}5    3LFOV 172100Z AUTO 17008KT 8000 BKN006 OVC011 08/08 Q1023LFOV2018-12-17T21:00:00Z48.03-0.758.08.017084.9730.206694TRUEIFRMETAR101.02018-12-17 21:16:49H›‹“?)5     3LFRI 172100Z AUTO 15008KT 3100 BR VV/// 08/08 Q1024 TEMPO 1000 BRLFRI2018-12-17T21:00:00Z46.7-1.378.08.015081.9330.236221TRUEBRLIFRMETAR91.02018-12-17 21:16:491›‹“>(o5    3LFRM 172100Z AUTO VRB03KT 9000 FEW008 07/06 Q1024LFRM2018-12-17T21:00:00Z47.950.27.06.0035.5930.236221TRUEVFRMETAR52.02018-12-17 21:16:49-›‹“=(e5   3FQPB 172100Z 09003KT 9999 FEW020 27/24 Q1014FQPB2018-12-17T21:00:00Z-12.9740.527.024.09036.2129.940945VFRMETAR50.02018-12-17 21:16:49H›‹“<)5    3LFCR 172100Z AUTO 11008KT 8000 NSC 03/03 Q1027 TEMPO 0400 FG VV///LFCR2018-12-17T21:00:00Z44.382.473.03.011084.9730.324802TRUEMVFRMETAR580.02018-12-17 21:16:49 'AhªÜ'/›‹“E(c5    3LFOJ 172100Z AUTO 17007KT CAVOK 06/05 Q1025LFOJ2018-12-17T21:00:00Z47.971.756.05.017076.2130.265747TRUEVFRMETAR125.02018-12-17 21:16:49H›‹“D) 5    3LFRJ 172100Z AUTO 20019KT 9999 BKN016 BKN021 OVC200 11/09 Q1017LFRJ2018-12-17T21:00:00Z48.52-4.1511.09.0200196.2130.029528TRUEMVFRMETAR115.02018-12-17 21:16:498›‹“C(o5    3LFRL 172100Z AUTO 18017KT 9999 BKN014 11/09 Q1017LFRL2018-12-17T21:00:00Z48.27-4.4211.09.0180176.2130.029528TRUEMVFRMETAR82.02018-12-17 21:16:49S›‹“B))5     3LFBA 172100Z AUTO 11005KT 1700 1200 R29/P2000 BR NSC 04/04 Q1027 TEMPO 4000 BRLFBA2018-12-17T21:00:00Z44.170.64.04.011051.0630.324802TRUEBRIFRSPECI60.02018-12-17 21:16:499›‹“A(o5     3LFMI 172100Z AUTO 33010KT CAVOK 08/03 Q1026 NOSIGLFMI2018-12-17T21:00:00Z43.524.928.03.0330106.2130.295275TRUETRUEVFRMETAR24.02018-12-17 21:16:49 Ò'\„ҁ,›‹“I(c5    3LFMV 172100Z AUTO 35007KT CAVOK 07/03 Q1027LFMV2018-12-17T21:00:00Z43.94.97.03.035076.2130.324802TRUEVFRMETAR38.02018-12-17 21:16:49R›‹“H)!5     3LFSL 172100Z AUTO 12005KT 5000 BR OVC018 05/05 Q1027 TEMPO 1500 BCFG VV///LFSL2018-12-17T21:00:00Z45.031.485.05.012053.1130.324802TRUEBRMVFRMETAR310.02018-12-17 21:16:49E›‹“G) 5    3LFOC 172100Z AUTO 18005KT 7000 FEW016 SCT021 BKN043 05/04 Q1025LFOC2018-12-17T21:00:00Z48.031.375.04.018054.3530.265747TRUEMVFRMETAR127.02018-12-17 21:16:49S›‹“F)'5    3LFOE 172100Z AUTO 17008KT 7000 FEW004 SCT150 06/05 Q1024 TEMPO 3000 BR BKN007LFOE2018-12-17T21:00:00Z49.021.226.05.017084.3530.236221TRUEMVFRSPECI146.02018-12-17 21:16:49 B;†ÉBF›‹“N) 5    3LFRO 172100Z AUTO 17008KT 9999 BKN021 BKN038 OVC200 11/09 Q1018LFRO2018-12-17T21:00:00Z48.75-3.4711.09.017086.2130.059055TRUEMVFRMETAR89.02018-12-17 21:16:495›‹“M(o5     3LFKJ 172100Z AUTO 05006KT CAVOK 06/04 Q1025 NOSIGLFKJ2018-12-17T21:00:00Z41.928.86.04.05066.2130.265747TRUETRUEVFRMETAR9.02018-12-17 21:16:497›‹“L(o5     3LFLC 172100Z AUTO VRB02KT CAVOK 04/01 Q1027 NOSIGLFLC2018-12-17T21:00:00Z45.773.174.01.0026.2130.324802TRUETRUEVFRMETAR330.02018-12-17 21:16:49/›‹“K(e5    3LFLS 172100Z AUTO 09006KT CAVOK 00/M01 Q1028LFLS2018-12-17T21:00:00Z45.375.320.0-1.09066.2130.35433TRUEVFRMETAR386.02018-12-17 21:16:49?›‹“J(5     3LFMP 172100Z AUTO 26005KT 210V280 CAVOK 06/04 Q1028 NOSIGLFMP2018-12-17T21:00:00Z42.722.876.04.026056.2130.35433TRUETRUEVFRMETAR48.02018-12-17 21:16:49 ,Ht¹ß,-›‹“S(e5    3LFLL 172100Z VRB03KT CAVOK 04/03 Q1028 NOSIGLFLL2018-12-17T21:00:00Z45.725.074.03.0036.2130.35433TRUEVFRMETAR240.02018-12-17 21:16:49T›‹“R)'5    3LFBH 172100Z AUTO 19010KT 9999 FEW006 BKN027 BKN056 10/09 Q1024 TEMPO 4000 BRLFBH2018-12-17T21:00:00Z46.18-1.210.09.0190106.2130.236221TRUEMVFRSPECI10.02018-12-17 21:16:495›‹“Q(k5    3ZHCC 172100Z 31002MPS CAVOK M00/M07 Q1020 NOSIGZHCC2018-12-17T21:00:00Z34.52113.830.0-7.031046.2130.11811TRUEVFRMETAR151.02018-12-17 21:16:49N›‹“P)5    3UTSA 172100Z 32004KT 290V350 9999 OVC010 00/M02 Q1027 R25/CLRD70 NOSIGUTSA2018-12-17T21:00:00Z40.1265.170.0-2.032046.2130.324802TRUEMVFRMETAR346.02018-12-17 21:16:492›‹“O(k5    3DNPO 172100Z 00000KT 8000 NSC 27/24 Q1014 NOSIGDNPO2018-12-17T21:00:00Z4.837.0227.024.0004.9729.940945TRUEMVFRMETAR18.02018-12-17 21:16:49 ¦=ˆ‚¦V›‹“W)%5   3CYQF 172100Z 25006KT 15SM FEW030 FEW230 05/M05 A2963 RMK SC1CI2 SC TR SLP074CYQF2018-12-17T21:00:00Z52.17-113.95.0-5.0250615.029.6309051007.4VFRMETAR905.02018-12-17 21:16:49‚›‹“V)q5  3CYQL 172100Z 26018G26KT 60SM FEW060 FEW140 SCT260 11/M04 A2976 RMK SC1AC1CI3 SC TR AC TR SLP102 DENSITY ALT 3500FTCYQL2018-12-17T21:00:00Z49.63-112.811.0-4.0260182660.029.7608261010.2VFRMETAR929.02018-12-17 21:16:49/›‹“U(e5    3LFMN 172100Z 33011KT CAVOK 09/06 Q1025 NOSIGLFMN2018-12-17T21:00:00Z43.637.29.06.0330116.2130.265747TRUEVFRMETAR10.02018-12-17 21:16:49=›‹“T(5    3LFPG 172100Z 17007KT 7000 BKN006 BKN220 06/05 Q1025 NOSIGLFPG2018-12-17T21:00:00Z49.022.526.05.017074.3530.265747TRUEIFRMETAR109.02018-12-17 21:16:49 •3e•J›‹“[)5   3CXCA 172100Z AUTO 34006KT M08/M13 RMK AO1 SOG 05 3014 SLP256 T10751126CXCA2018-12-17T21:00:00Z49.15-88.35-7.5-12.634061025.6TRUETRUEMETAR228.02018-12-17 21:16:49H›‹“Z)5   3CXCK 172100Z AUTO 00000KT M11/M13 RMK AO1 SOG 06 2003 SLP879 T11141127CXCK2018-12-17T21:00:00Z62.12-136.2-11.4-12.700987.9TRUETRUEMETAR540.02018-12-17 21:16:49]›‹“Y)=5   3CWNZ 172100Z AUTO 33008KT M11/M14 RMK AO1 SOG 18 3028 PK WND 31021/2006 SLP220 T11071142CWNZ2018-12-17T21:00:00Z49.75-84.17-10.7-14.233081022.0TRUETRUEMETAR256.02018-12-17 21:16:49d›‹“X)!5     3CYPY 172100Z AUTO 17004KT 090V210 3/4SM -SN VV018 M10/M12 A2953 RMK SLP022CYPY2018-12-17T21:00:00Z58.77-111.12-10.0-12.017040.7529.5305121002.2TRUE-SNLIFR1800METAR232.02018-12-17 21:16:49 f‰½ëJ›‹“`)5   3CTRA 172100Z AUTO 18002KT M07/M14 RMK AO1 SOG 15 6010 SLP260 T10691135CTRA2018-12-17T21:00:00Z49.67-93.73-6.9-13.518021026.0TRUETRUEMETAR435.02018-12-17 21:16:49L›‹“_)5   3CXZC 172100Z AUTO 28008G15KT M10/M12 RMK AO1 SOG 27 3024 SLP157 T10991124CXZC2018-12-17T21:00:00Z51.3-80.62-9.9-12.42808151015.7TRUETRUEMETAR9.02018-12-17 21:16:49F›‹“^) 5    3CXBK 172100Z AUTO 14009KT M01/M04 RMK AO1 SLP091 T10091037 56014CXBK2018-12-17T21:00:00Z50.2-104.7-0.9-3.714091009.1TRUETRUE-1.4METAR580.02018-12-17 21:16:49W›‹“])15     3CXKT 172100Z AUTO 05006KT 01/01 RMK AO1 0PAST HR 6041 SLP918 P0004 T00100009 50022CXKT2018-12-17T21:00:00Z45.07-64.481.00.9506991.8TRUETRUE2.20.04METAR49.02018-12-17 21:16:49›‹“\(O5   3CXBO 172100Z AUTO 19001KT RMK AO1CXBO2018-12-17T21:00:00Z46.83-71.21901TRUETRUEMETAR100.02018-12-17 21:16:49 ¬(ZŠ¬X›‹“d)/5    3CZMJ 172100Z AUTO 20006KT 05/M02 RMK AO1 PK WND 21018/2007 SLP099 T00461023 56014CZMJ2018-12-17T21:00:00Z50.33-105.574.6-2.320061009.9TRUETRUE-1.4METAR577.02018-12-17 21:16:49J›‹“c)5   3CZTB 172100Z AUTO 31009KT M05/M14 RMK AO1 SOG 01 3008 SLP248 T10501140CZTB2018-12-17T21:00:00Z48.37-89.32-5.0-14.031091024.8TRUETRUEMETAR199.02018-12-17 21:16:49H›‹“b)5   3CZZJ 172100Z AUTO 28001KT 01/M08 RMK AO1 SOG 11 8002 SLP066 T00071075CZZJ2018-12-17T21:00:00Z53.58-116.470.7-7.528011006.6TRUETRUEMETAR927.02018-12-17 21:16:49R›‹“a)%5    3CTNK 172100Z AUTO 36004KT M06/M09 RMK AO1 SOG 22 3029 SLP116 T10581087 50002CTNK2018-12-17T21:00:00Z45.53-78.27-5.8-8.736041011.6TRUETRUE0.2METAR410.02018-12-17 21:16:49 /OS0›‹“h(s5  3CXRL 172100Z AUTO 29003KT M11/M12 RMK AO1 T11071123CXRL2018-12-17T21:00:00Z54.5-111.7-10.7-12.32903TRUETRUEMETAR585.02018-12-17 21:16:49v›‹“g)i5     3CXTD 172100Z AUTO 07011G18KT 01/00 RMK AO1 3PAST HR PRESFR 8060 PK WND 06018/2059 SLP940 P0005 T00080000 50026CXTD2018-12-17T21:00:00Z45.62-61.680.80.0701118994.0TRUETRUE2.60.05METAR68.02018-12-17 21:16:49Z›‹“f)55    3CXVN 172100Z AUTO 29013G20KT 03/M02 RMK AO1 PK WND 29020/2030 SLP133 T00261015 53018CXVN2018-12-17T21:00:00Z43.18-79.42.6-1.529013201013.3TRUETRUE1.8METAR79.02018-12-17 21:16:49K›‹“e)5   3CZKD 172100Z AUTO 23002KT M20/M23 RMK AO1 SOG 29 6023 SLP213 T12001234CZKD2018-12-17T21:00:00Z56.03-96.52-20.0-23.423021021.3TRUETRUEMETAR183.02018-12-17 21:16:49 90|´ï90›‹“m(s5  3CXKM 172100Z AUTO 25005KT M03/M07 RMK AO1 T10331073CXKM2018-12-17T21:00:00Z52.82-111.85-3.3-7.32505TRUETRUEMETAR675.02018-12-17 21:16:49?›‹“l) 5    3CXLB 172100Z AUTO 33007KT 03/02 RMK AO1 SLP892 T00250020 56041CXLB2018-12-17T21:00:00Z44.37-64.32.52.03307989.2TRUETRUE-4.1METAR4.02018-12-17 21:16:49B›‹“k)5  3CXOY 172100Z AUTO 26012KT 03/M01 RMK AO1 PK WND 26021/2004 T00311006CXOY2018-12-17T21:00:00Z51.38-110.353.1-0.626012TRUETRUEMETAR767.02018-12-17 21:16:49.›‹“j(s5  3CXPA 172100Z AUTO 07005KT M06/M07 RMK AO1 T10561074CXPA2018-12-17T21:00:00Z55.62-118.3-5.6-7.4705TRUETRUEMETAR621.02018-12-17 21:16:49J›‹“i)5   3CXRB 172100Z AUTO 29005KT M34/M38 RMK AO1 SOG 02 1003 SLP169 T13441378CXRB2018-12-17T21:00:00Z74.72-94.98-34.4-37.829051016.9TRUETRUEMETAR68.02018-12-17 21:16:49 <9„¼ò<0›‹“r(s5  3CXCD 172100Z AUTO 10002KT M07/M07 RMK AO1 T10731073CXCD2018-12-17T21:00:00Z56.32-119.75-7.3-7.31002TRUETRUEMETAR630.02018-12-17 21:16:49D›‹“q)5  3CXCP 172100Z AUTO 22011KT 11/M06 RMK AO1 PK WND 22020/2000 T01121057CXCP2018-12-17T21:00:00Z50.28-113.3511.2-5.722011TRUETRUEMETAR1006.02018-12-17 21:16:49B›‹“p)5  3CXCS 172100Z AUTO 27017KT 04/M02 RMK AO1 PK WND 27019/2039 T00381022CXCS2018-12-17T21:00:00Z51.93-110.723.8-2.227017TRUETRUEMETAR772.02018-12-17 21:16:49/›‹“o(s5  3CXFR 172100Z AUTO 04004KT M08/M09 RMK AO1 T10831093CXFR2018-12-17T21:00:00Z56.08-118.43-8.3-9.3404TRUETRUEMETAR655.02018-12-17 21:16:49A›‹“n)5  3CXHR 172100Z AUTO 23014KT 06/M01 RMK AO1 PK WND 23020/2036 T00611014CXHR2018-12-17T21:00:00Z51.18-112.56.1-1.423014TRUETRUEMETAR971.02018-12-17 21:16:49 7„³èJ›‹“w)5   3CWSR 172100Z AUTO 04002KT M07/M10 RMK AO1 SOG 10 6015 SLP041 T10691104CWSR2018-12-17T21:00:00Z53.37-107.53-6.9-10.44021004.1TRUETRUEMETAR584.02018-12-17 21:16:49E›‹“v)5   3CWST 172100Z AUTO 00000KT M02/M02 RMK AO1 SOG 15 6007 SLP992 T10161016CWST2018-12-17T21:00:00Z47.35-70.02-1.6-1.600999.2TRUETRUEMETAR31.02018-12-17 21:16:49K›‹“u)5   3CWBU 172100Z AUTO 14008KT M08/M12 RMK AO1 SOG 09 6036 SLP089 T10801118CWBU2018-12-17T21:00:00Z53.33-104.02-8.0-11.814081008.9TRUETRUEMETAR373.02018-12-17 21:16:49-›‹“t(q5  3CXBA 172100Z AUTO 25007KT 04/M01 RMK AO1 T00431009CXBA2018-12-17T21:00:00Z52.12-110.14.3-0.92507TRUETRUEMETAR687.02018-12-17 21:16:49C›‹“s)5  3CXBR 172100Z AUTO 25027KT 08/M05 RMK AO1 PK WND 24035/2015 T00831047CXBR2018-12-17T21:00:00Z49.62-113.828.3-4.725027TRUETRUEMETAR1073.02018-12-17 21:16:49 «9p¦«u›‹“{)g5     3CWSD 172100Z AUTO 06017KT M01/M01 RMK AO1 9PAST HR SOG 16 8034 PK WND 06022/2023 SLP966 P0004 T10081013 50027CWSD2018-12-17T21:00:00Z46.42-63.85-0.8-1.36017996.6TRUETRUE2.70.04METAR24.02018-12-17 21:16:49D›‹“z) 5    3CWSG 172100Z AUTO 07007KT M02/M02 RMK AO1 SLP011 T10161016 58022CWSG2018-12-17T21:00:00Z49.12-66.65-1.6-1.67071001.1TRUETRUE-2.2METAR5.02018-12-17 21:16:49C›‹“y) 5    3CWSL 172100Z AUTO 16004KT 08/05 RMK AO1 SLP116 T00810046 58013CWSL2018-12-17T21:00:00Z50.7-119.278.14.616041011.6TRUETRUE-1.3METAR351.02018-12-17 21:16:49A›‹“x) 5    3CWSP 172100Z AUTO 00000KT 09/07 RMK AO1 SLP088 T00920068 58021CWSP2018-12-17T21:00:00Z48.38-123.929.26.8001008.8TRUETRUE-2.1METAR21.02018-12-17 21:16:49 É8k|Ɂ-›‹“(s5  3CWQV 172100Z AUTO 31002KT M02/M03 RMK AO1 T10171026CWQV2018-12-17T21:00:00Z48.27-70.12-1.7-2.63102TRUETRUEMETAR1.02018-12-17 21:16:49i›‹“~)O5    3CWRK 172100Z AUTO 34009G16KT M04/M08 RMK AO1 SOG 15 3028 PK WND 29019/2031 SLP103 T10361077 50005CWRK2018-12-17T21:00:00Z45.07-77.87-3.6-7.73409161010.3TRUETRUE0.5METAR331.02018-12-17 21:16:49G›‹“})5  3CWRT 172100Z AUTO 30009G15KT 05/M03 RMK AO1 PK WND 26019/2036 T00481027CWRT2018-12-17T21:00:00Z49.62-114.474.8-2.7300915TRUETRUEMETAR1303.02018-12-17 21:16:49B›‹“|) 5    3CWRZ 172100Z AUTO 06012KT 02/02 RMK AO1 SLP019 T00170016 56027CWRZ2018-12-17T21:00:00Z48.42-64.321.71.660121001.9TRUETRUE-2.7METAR16.02018-12-17 21:16:49 :‰ÌþZ›‹”)35    3CWGB 172100Z AUTO 11026G31KT 09/08 RMK AO1 PK WND 11032/2049 SLP068 T00910076 58023CWGB2018-12-17T21:00:00Z49.35-124.179.17.611026311006.8TRUETRUE-2.3METAR5.02018-12-17 21:16:49H›‹”)5  3CWGM 172100Z AUTO 24015G23KT 07/M05 RMK AO1 PK WND 27028/2006 T00691049CWGM2018-12-17T21:00:00Z49.13-113.786.9-4.92401523TRUETRUEMETAR1296.02018-12-17 21:16:497›‹”)5  3CWQH 172100Z AUTO 28009KT M00/M02 RMK AO1 SOG 10 T10011019CWQH2018-12-17T21:00:00Z45.37-71.82-0.1-1.92809TRUETRUEMETAR181.02018-12-17 21:16:49+›‹”(s5  3CWQO 172100Z AUTO 07003KT M01/M02 RMK AO1 T10141021CWQO2018-12-17T21:00:00Z48.42-68.9-1.4-2.1703TRUETRUEMETAR1.02018-12-17 21:16:49@›‹”)5  3CWQR 172100Z AUTO 08014KT M00/M02 RMK AO1 PK WND 07018/2038 T10041022CWQR2018-12-17T21:00:00Z50.22-64.22-0.4-2.28014TRUETRUEMETAR9.02018-12-17 21:16:49 ˜H˜a›‹”)A5    3CWEB 172100Z AUTO 14024G37KT 10/08 RMK AO1 PRESFR PK WND 13037/2056 SLP003 T00970084 58046CWEB2018-12-17T21:00:00Z49.38-126.559.78.414024371000.3TRUETRUE-4.6METAR7.02018-12-17 21:16:49C›‹”) 5    3CWEW 172100Z AUTO 29005KT 01/M02 RMK AO1 SLP031 T00051023 53008CWEW2018-12-17T21:00:00Z45.82-73.430.5-2.329051003.1TRUETRUE0.8METAR21.02018-12-17 21:16:49G›‹”)5  3CWFJ 172100Z AUTO 27012G19KT 09/M05 RMK AO1 PK WND 27019/2050 T00941051CWFJ2018-12-17T21:00:00Z49.2-113.279.4-5.12701219TRUETRUEMETAR1136.02018-12-17 21:16:49e›‹”)C5     3CWFQ 172100Z AUTO 31005KT M01/M02 RMK AO1 2PAST HR SOG 09 3004 SLP017 P0001 T10121019 50004CWFQ2018-12-17T21:00:00Z45.03-72.82-1.2-1.931051001.7TRUETRUE0.40.01METAR152.02018-12-17 21:16:49 AD–ÆAA›‹” (5    3HRYR 172100Z 21003KT 9999 SCT025 BKN100 19/17 Q1021 NOSIGHRYR2018-12-17T21:00:00Z-1.9730.1219.017.021036.2130.147638TRUEVFRMETAR1497.02018-12-17 21:16:498›‹” (w5   3HUEN 172100Z 27003KT 9999 FEW021 FEW023CB 21/20 Q1017HUEN2018-12-17T21:00:00Z0.0332.4521.020.027036.2130.029528VFRMETAR1155.02018-12-17 21:16:49J›‹” )5   3FQTT 172100Z VRB03KT 9999 SCT020 FEW025 SCT100 25/24 Q1014 RMK CB TO N/EFQTT2018-12-17T21:00:00Z-16.133.6225.024.0036.2129.940945VFRMETAR160.02018-12-17 21:16:49(›‹” (Y5   3GOGS 172100Z 34004KT CAVOK 24/19 Q1014GOGS2018-12-17T21:00:00Z12.4-16.7524.019.034046.2129.940945VFRMETAR13.02018-12-17 21:16:496›‹” (q5    3OTHH 172100Z 32002KT 9999 FEW035 19/12 Q1021 NOSIGOTHH2018-12-17T21:00:00Z25.2551.619.012.032026.2130.147638TRUEVFRMETAR0.02018-12-17 21:16:49 vKžß2v6›‹”(}5    3FGBT 172100Z 00000KT 9999 TS SCT010 FEW020CB 27/27 Q1013FGBT2018-12-17T21:00:00Z1.889.827.027.0006.2129.911417TSVFRMETAR8.02018-12-17 21:16:49'›‹”(Y5   3HKEL 172100Z 13008KT CAVOK 14/09 Q1025HKEL2018-12-17T21:00:00Z0.435.2314.09.013086.2130.265747VFRMETAR2133.02018-12-17 21:16:499›‹”(q5    3HKJK 172100Z 04006KT 9999 SCT019 18/16 Q1023 NOSIGHKJK2018-12-17T21:00:00Z-1.3236.9218.016.04066.2130.206694TRUEVFRMETAR1624.02018-12-17 21:16:49'›‹”(Y5   3HKKI 172100Z 00000KT CAVOK 20/19 Q1018HKKI2018-12-17T21:00:00Z-0.134.7520.019.0006.2130.059055VFRMETAR1146.02018-12-17 21:16:49/›‹”(e5   3HKNW 172100Z 02004KT 9999 SCT021 19/16 Q1021HKNW2018-12-17T21:00:00Z-1.3236.8219.016.02046.2130.147638VFRMETAR1679.02018-12-17 21:16:49 [Azº [*›‹”(_5   3GOOD 172100Z 00000KT 8000 NSC 25/11 Q1013GOOD2018-12-17T21:00:00Z14.65-16.2225.011.0004.9729.911417MVFRMETAR9.02018-12-17 21:16:49)›‹”(_5   3GOGK 172100Z 00000KT 8000 NSC 21/17 Q1012GOGK2018-12-17T21:00:00Z12.9-14.9721.017.0004.9729.88189MVFRMETAR10.02018-12-17 21:16:49:›‹”(q5    3WATT 172100Z VRB02KT 8000 FEW017 25/23 Q1010 NOSIGWATT2018-12-17T21:00:00Z-10.17123.6725.023.0024.9729.822834TRUEMVFRMETAR102.02018-12-17 21:16:49A›‹”)5    3WAPP 172100Z 33005KT 310V010 9999 SCT017 28/24 Q1009 NOSIGWAPP2018-12-17T21:00:00Z-3.7128.0728.024.033056.2129.793306TRUEVFRMETAR12.02018-12-17 21:16:499›‹”(q5    3WAHS 172100Z 12003KT 6000 FEW014 25/23 Q1010 NOSIGWAHS2018-12-17T21:00:00Z-6.98110.3825.023.012033.7329.822834TRUEMVFRMETAR5.02018-12-17 21:16:49 ˜S¬ÿE˜'›‹”([5   3DRRT 172100Z 04008KT CAVOK 22/M06 Q1019DRRT2018-12-17T21:00:00Z14.95.2522.0-6.04086.2130.088583VFRMETAR391.02018-12-17 21:16:494›‹”(k5    3WIPP 172100Z 30002KT 5000 HZ FEW010 26/25 Q1010WIPP2018-12-17T21:00:00Z-2.88104.726.025.030023.1129.822834HZMVFRMETAR10.02018-12-17 21:16:49'›‹”(Y5   3GOSP 172100Z 36002KT CAVOK 25/04 Q1015GOSP2018-12-17T21:00:00Z16.68-14.9725.04.036026.2129.970472VFRMETAR7.02018-12-17 21:16:49!›‹”(_5   3GOOG 172100Z 02004KT 7000 NSC 28/05 Q////GOOG2018-12-17T21:00:00Z15.4-15.0828.05.02044.35MVFRMETAR21.02018-12-17 21:16:49'›‹”(Y5   3GOSM 172100Z 10002KT CAVOK 25/07 Q1015GOSM2018-12-17T21:00:00Z15.6-13.3325.07.010026.2129.970472VFRMETAR17.02018-12-17 21:16:49 µ#K}µB›‹” )5    3UTSK 172100Z 33006KT 3100 BR FU NSC 02/01 Q1026 R16/CLRD70UTSK2018-12-17T21:00:00Z38.8365.772.01.033061.9330.295275BR FUIFRSPECI1365.02018-12-17 21:16:49H›‹”) 5     3UTSS 172100Z 29002KT 5000 BR FEW009 03/02 Q1025 R09/CLRD70 NOSIGUTSS2018-12-17T21:00:00Z39.766.983.02.029023.1130.265747TRUEBRMVFRSPECI724.02018-12-17 21:16:49R›‹”)+5    3UTST 172100Z 00000KT 1100 R25/P2000 BR NSC 02/00 Q1026 R88/CLRD70 TEMPO 0800 FGUTST2018-12-17T21:00:00Z37.2867.322.00.0000.6830.295275BRLIFRSPECI302.02018-12-17 21:16:49W›‹”)5     3UTTT 172100Z 22004KT 4000 -SHRA BR SCT022CB 06/03 Q1026 R26R/CLRD70 NOSIGUTTT2018-12-17T21:00:00Z41.2769.276.03.022042.4930.295275TRUE-SHRA BRIFRSPECI489.02018-12-17 21:16:49 ¸;n¡¸c›‹”$)95     3UTFN 172100Z 12004KT 080V150 1100 R28/P2000 -RA BR OVC033 03/01 Q1024 R28/CLRD70 NOSIGUTFN2018-12-17T21:00:00Z40.9871.573.01.012040.6830.236221TRUE-RA BRLIFRMETAR490.02018-12-17 21:16:49G›‹”#) 5    3UTNN 172100Z 32008KT 9999 OVC011 M02/M04 Q1030 R33/CLRD60 NOSIGUTNN2018-12-17T21:00:00Z42.4859.63-2.0-4.032086.2130.413385TRUEMVFRSPECI67.02018-12-17 21:16:49G›‹”") 5    3UTNU 172100Z 31004KT 9999 OVC014 M03/M06 Q1030 R31/CLRD70 NOSIGUTNU2018-12-17T21:00:00Z41.5860.63-3.0-6.031046.2130.413385TRUEMVFRSPECI98.02018-12-17 21:16:49?›‹”!(5    3UTSB 172100Z 36008KT CAVOK M00/M04 Q1027 R01/CLRD70 NOSIGUTSB2018-12-17T21:00:00Z39.7764.480.0-4.036086.2130.324802TRUEVFRSPECI226.02018-12-17 21:16:49 XL•ÐX2›‹”)(k5    3DNMM 172100Z VRB02KT 8000 NSC 28/26 Q1015 NOSIGDNMM2018-12-17T21:00:00Z6.573.3228.026.0024.9729.970472TRUEMVFRMETAR38.02018-12-17 21:16:49:›‹”((s5     3DRRN 172100Z 06004KT 3000 DU NSC 23/M03 Q1017 NOSIGDRRN2018-12-17T21:00:00Z13.472.1723.0-3.06041.8630.029528TRUEDUIFRMETAR227.02018-12-17 21:16:49?›‹”')5    3DRZR 172100Z 04008KT 5000 DU NSC 21/M01 Q1020 BCMG 6000 NSWDRZR2018-12-17T21:00:00Z13.778.9721.0-1.04083.1130.11811DUMVFRSPECI453.02018-12-17 21:16:491›‹”&(e5    3DGAA 172100Z 22008KT CAVOK 29/25 Q1014 NOSIGDGAA2018-12-17T21:00:00Z5.58-0.1729.025.022086.2129.940945TRUEVFRMETAR69.02018-12-17 21:16:49.›‹”%(e5   3HDAM 172100Z 14004KT 9999 FEW023 25/20 Q1017HDAM2018-12-17T21:00:00Z11.5543.1725.020.014046.2130.029528VFRMETAR49.02018-12-17 21:16:49 xQ›îBxD›‹”.)5     3FTTJ 172100Z 36010KT 0600 R05/0750N DU NSC 25/M01 Q1016 NOSIGFTTJ2018-12-17T21:00:00Z12.1215.0225.0-1.0360100.3730.0TRUEDULIFRMETAR295.02018-12-17 21:16:49&›‹”-(Y5   3FTTA 172100Z 00000KT CAVOK 23/14 Q1013FTTA2018-12-17T21:00:00Z9.1518.3723.014.0006.2129.911417VFRMETAR365.02018-12-17 21:16:49'›‹”,(_5   3DFOO 172100Z 01005KT 6000 NSC 23/10 Q1016DFOO2018-12-17T21:00:00Z11.17-4.3223.010.01053.7330.0MVFRMETAR460.02018-12-17 21:16:490›‹”+(k5    3DFFD 172100Z 04004KT 8000 NSC 25/09 Q1016 NOSIGDFFD2018-12-17T21:00:00Z12.33-1.5225.09.04044.9730.0TRUEMVFRMETAR306.02018-12-17 21:16:49)›‹”*(e5    3DNAA 172100Z 03006KT CAVOK 25/06 Q1016 NOSIGDNAA2018-12-17T21:00:00Z9.07.2725.06.03066.2130.0TRUEVFRMETAR344.02018-12-17 21:16:49 {E¤ù={<›‹”3(w5     3WARR 172100Z 00000KT 5000 HZ FEW020 26/22 Q1010 NOSIGWARR2018-12-17T21:00:00Z-7.37112.7826.022.0003.1129.822834TRUEHZMVFRMETAR2.02018-12-17 21:16:496›‹”2(q5    3DXXX 172100Z 22007KT 9999 FEW013 29/25 Q1014 NOSIGDXXX2018-12-17T21:00:00Z6.171.2529.025.022076.2129.940945TRUEVFRMETAR25.02018-12-17 21:16:49%›‹”1(Y5   3DXNG 172100Z 06004KT CAVOK 24/10 Q1017DXNG2018-12-17T21:00:00Z9.771.124.010.06046.2130.029528VFRMETAR343.02018-12-17 21:16:49›‹”0(Y5   3DXSK 172100Z 00000KT CAVOK 25/11 Q////DXSK2018-12-17T21:00:00Z9.01.1525.011.0006.21VFRMETAR387.02018-12-17 21:16:495›‹”/(q5    3DBBB 172100Z 20007KT 9999 FEW012 29/26 Q1013 NOSIGDBBB2018-12-17T21:00:00Z6.332.3729.026.020076.2129.911417TRUEVFRMETAR9.02018-12-17 21:16:49 @o¡åF›‹”8) 5    3YPJT 172100Z AUTO 18007KT 9999 // NCD 14/12 Q1017 RF00.0/000.0YPJT2018-12-17T21:00:00Z-32.1115.8814.012.018076.2130.029528TRUEVFRMETAR30.02018-12-17 21:16:496›‹”7(o5    3YHID 172100Z AUTO 00000KT 9999 // NCD 28/26 Q1008YHID2018-12-17T21:00:00Z-10.58142.328.026.0006.2129.763779TRUEVFRMETAR13.02018-12-17 21:16:49H›‹”6)5    3YGEL 172100Z AUTO 14005KT 9999 // SCT011 16/14 Q1014 RF00.0/000.0YGEL2018-12-17T21:00:00Z-28.8114.716.014.014056.2129.940945TRUEVFRMETAR37.02018-12-17 21:16:49K›‹”5)5    3YGLA 172100Z AUTO 16010KT 9999 // SCT020 26/20 Q1008 RF00.0/000.0YGLA2018-12-17T21:00:00Z-23.87151.2226.020.0160106.2129.763779TRUEVFRMETAR52.02018-12-17 21:16:49:›‹”4(q5    3WADD 172100Z 26006KT 9999 SCT018 28/23 Q1010 NOSIGWADD2018-12-17T21:00:00Z-8.73115.1728.023.026066.2129.822834TRUEVFRMETAR216.02018-12-17 21:16:49 G1w¼G5›‹”=(u5   3FYOA 172100Z AUTO 16005KT //// // ////// 33/08 Q1013FYOA2018-12-17T21:00:00Z-17.8815.9733.08.0160529.911417TRUESPECI1095.02018-12-17 21:16:494›‹”<(u5   3FYWB 172100Z AUTO 25003KT //// // ////// 17/14 Q1017FYWB2018-12-17T21:00:00Z-22.9814.6517.014.0250330.029528TRUESPECI46.02018-12-17 21:16:495›‹”;(u5   3FYWH 172100Z AUTO 25008KT //// // ////// 24/05 Q1023FYWH2018-12-17T21:00:00Z-22.4717.4724.05.0250830.206694TRUESPECI1700.02018-12-17 21:16:494›‹”:(u5   3FYWW 172100Z AUTO 28003KT //// // ////// 25/09 Q1022FYWW2018-12-17T21:00:00Z-22.5717.125.09.0280330.177166TRUESPECI1725.02018-12-17 21:16:49I›‹”9) 5    3YPWR 172100Z AUTO 11011KT 9999 // NCD 27/11 Q1009 RF00.0/000.0YPWR2018-12-17T21:00:00Z-31.12136.8227.011.0110116.2129.793306TRUEVFRMETAR167.02018-12-17 21:16:49 „PƒK„A›‹”B)5    3RCNN 172100Z 04001KT 9999 FEW014 11/07 Q1019 NOSIG RMK A3012RCNN2018-12-17T21:00:00Z22.93120.211.07.04016.2130.088583TRUEVFRMETAR19.02018-12-17 21:16:492›‹”A(e5    3VMMC 172100Z 36010KT CAVOK 16/09 Q1022 NOSIGVMMC2018-12-17T21:00:00Z22.15113.5816.09.0360106.2130.177166TRUEVFRMETAR6.02018-12-17 21:16:49{›‹”@(35  3AGGH 172100Z SPECI AGGH2018-12-17T21:00:00Z-9.42160.05PESPECI9.02018-12-17 21:16:49G›‹”?)5   3YCFS 172100Z AUTO 36010KT 9999 // ////// 24/20 Q1013 RF00.0/000.0YCFS2018-12-17T21:00:00Z-30.32153.1224.020.0360106.2129.911417TRUEMETAR5.02018-12-17 21:16:49*›‹”>(e5   3YLHI 172100Z 05009KT 8000 FEW022 23/20 Q1016YLHI2018-12-17T21:00:00Z-31.53159.0723.020.05094.9730.0MVFRMETAR2.02018-12-17 21:16:49 0:r¦Ý0'›‹”G(k5    3MHCH 172100Z 0218KT 9999 SCT034 SCT070 32/18 HZMHCH2018-12-17T21:00:00Z13.32-87.1532.018.06.21HZVFRMETAR48.02018-12-17 21:16:49C›‹”F)5    3RCTP 172100Z 07011KT 9999 FEW020 13/08 Q1023 NOSIG RMK A3023RCTP2018-12-17T21:00:00Z25.07121.2213.08.070116.2130.206694TRUEVFRMETAR33.02018-12-17 21:16:49F›‹”E)5   3RCKH 172100Z 08005KT 6000 FEW016 18/14 Q1020 TEMPO 5000 BR RMK A3012RCKH2018-12-17T21:00:00Z22.57120.3318.014.08053.7330.11811MVFRMETAR9.02018-12-17 21:16:49B›‹”D)5    3RCSS 172100Z 10004KT 9999 FEW025 11/08 Q1024 NOSIG RMK A3025RCSS2018-12-17T21:00:00Z25.07121.5311.08.010046.2130.236221TRUEVFRMETAR6.02018-12-17 21:16:49@›‹”C)5    3RCMQ 172100Z 02008KT 9999 FEW012 13/03 Q1020 NOSIG RMK A3014RCMQ2018-12-17T21:00:00Z24.27120.6213.03.02086.2130.11811TRUEVFRMETAR5.02018-12-17 21:16:49 GF‘× G=›‹”L({5    3MHTR 172100Z 27009KT 5000 -DZ SCT020 OVC070 21/19 Q1017MHTR2018-12-17T21:00:00Z15.93-85.9321.019.027093.1130.029528-DZMVFRMETAR3.02018-12-17 21:16:49G›‹”K)5    3MHTE 172100Z 31004KT 9999 BKN028TCU BKN080 22/21 Q1019 TCU TDS HZMHTE2018-12-17T21:00:00Z15.78-87.4822.021.031046.2130.088583HZMVFRMETAR3.02018-12-17 21:16:494›‹”J(k5    3MHPL 172100Z 36006KT 9999 FEW025 29/22 Q1014 HZMHPL2018-12-17T21:00:00Z15.27-83.7829.022.036066.2129.940945HZVFRMETAR13.02018-12-17 21:16:49/›‹”I(m5    3MHSR 172100Z 36004KT 9999 BKN020 OVC080 15/14 HZMHSR2018-12-17T21:00:00Z14.78-88.7815.014.036046.21HZMVFRMETAR1079.02018-12-17 21:16:494›‹”H(5   3MHLE 172100Z 05008KT 3000 FEW004 BKN010 13/12 3 KM TDS CLMHLE2018-12-17T21:00:00Z14.32-88.1513.012.05081.86IFRMETAR1100.02018-12-17 21:16:49 O[—Û*OU›‹”Q)-5    3UMKK 172100Z VRB01MPS 9000 OVC022 M01/M03 Q1025 R24/29//44 NOSIG RMK QFE768/1024UMKK2018-12-17T21:00:00Z54.8820.6-1.0-3.0025.5930.265747TRUEMVFRMETAR21.02018-12-17 21:16:49+›‹”P(e5   3FOOG 172100Z 23004KT 9999 FEW008 27/25 Q1013FOOG2018-12-17T21:00:00Z-0.78.7527.025.023046.2129.911417VFRMETAR4.02018-12-17 21:16:496›‹”O(q5    3FGSL 172100Z 22003KT 9999 FEW013 24/22 Q1014 NOSIGFGSL2018-12-17T21:00:00Z3.758.7224.022.022036.2129.940945TRUEVFRMETAR56.02018-12-17 21:16:49>›‹”N) 5   3ETNT 172100Z 23008KT 9000 FEW008 BKN015 BKN026 06/05 Q1020 WHTETNT2018-12-17T21:00:00Z53.537.676.05.023085.5930.11811MVFRSPECI12.02018-12-17 21:16:49›‹”M(Y5   3MHAM 172100Z 23006KT 9999 FEW030 34/21MHAM2018-12-17T21:00:00Z13.27-87.6534.021.023066.21VFRMETAR5.02018-12-17 21:16:49 T2zÀ T/›‹”V(e5    3OEWD 172100Z 10008KT CAVOK 16/09 Q1020 NOSIGOEWD2018-12-17T21:00:00Z20.545.216.09.010086.2130.11811TRUEVFRMETAR617.02018-12-17 21:16:491›‹”U(e5    3OEYN 172100Z 28006KT CAVOK 21/14 Q1015 NOSIGOEYN2018-12-17T21:00:00Z24.1338.0721.014.028066.2129.970472TRUEVFRMETAR8.02018-12-17 21:16:494›‹”T(g5    3OETB 172100Z 32004KT CAVOK 14/M03 Q1022 NOSIGOETB2018-12-17T21:00:00Z28.3736.6214.0-3.032046.2130.177166TRUEVFRMETAR770.02018-12-17 21:16:492›‹”S(e5    3OEWJ 172100Z 36006KT CAVOK 19/10 Q1019 NOSIGOEWJ2018-12-17T21:00:00Z26.1836.4719.010.036066.2130.088583TRUEVFRMETAR16.02018-12-17 21:16:49H›‹”R)5   3ULOO 172100Z AUTO 15003MPS 5000 // ///031/// M05/M06 Q1029 RMK QFE767ULOO2018-12-17T21:00:00Z57.7828.4-5.0-6.015063.1130.383858TRUEMETAR47.02018-12-17 21:16:49 xT’å.x0›‹”[(e5    3OERR 172100Z 00000KT CAVOK 10/10 Q1020 NOSIGOERR2018-12-17T21:00:00Z30.8841.1210.010.0006.2130.11811TRUEVFRMETAR552.02018-12-17 21:16:491›‹”Z(e5    3OESH 172100Z 04005KT CAVOK 18/05 Q1022 NOSIGOESH2018-12-17T21:00:00Z17.4747.1218.05.04056.2130.177166TRUEVFRMETAR722.02018-12-17 21:16:49'›‹”Y(Y5   3OESK 172100Z 32004KT CAVOK 12/02 Q1023OESK2018-12-17T21:00:00Z29.7740.112.02.032046.2130.206694VFRMETAR684.02018-12-17 21:16:49<›‹”X(q5     3OETF 172100Z 25008KT 4000 BR NSC 16/14 Q1024 NOSIGOETF2018-12-17T21:00:00Z21.4740.5316.014.025082.4930.236221TRUEBRIFRMETAR1449.02018-12-17 21:16:49&›‹”W(Y5   3OETR 172100Z 28008KT CAVOK 08/06 Q1021OETR2018-12-17T21:00:00Z31.738.738.06.028086.2130.147638VFRMETAR855.02018-12-17 21:16:49 4Q’Û"4h›‹”`)K5    3UUYY 172100Z 23002MPS 170V260 9999 OVC005 M16/M17 Q1032 R18/450251 NOSIG RMK QBB150 QFE766/1021UUYY2018-12-17T21:00:00Z61.6550.82-16.0-17.023046.2130.47244TRUEIFRMETAR119.02018-12-17 21:16:493›‹”_(e5    3OEKM 172100Z 18005KT CAVOK 15/13 Q1026 NOSIGOEKM2018-12-17T21:00:00Z18.342.7815.013.018056.2130.295275TRUEVFRMETAR2054.02018-12-17 21:16:491›‹”^(e5    3OENG 172100Z 00000KT CAVOK 14/04 Q1023 NOSIGOENG2018-12-17T21:00:00Z17.6244.4214.04.0006.2130.206694TRUEVFRMETAR1203.02018-12-17 21:16:499›‹”](q5    3OEPA 172100Z 17013KT 9999 FEW035 17/09 Q1018 NOSIGOEPA2018-12-17T21:00:00Z28.3246.1217.09.0170136.2130.059055TRUEVFRMETAR355.02018-12-17 21:16:49)›‹”\(Y5   3OERF 172100Z 33005KT CAVOK 19/13 Q1019OERF2018-12-17T21:00:00Z29.6243.4719.013.033056.2130.088583VFRMETAR447.02018-12-17 21:16:49 ¦Cb¦6›‹”d(k5    3GGOV 172100Z 16003KT 9000 NSC 25/17 Q1013 NOSIGGGOV2018-12-17T21:00:00Z11.87-15.6525.017.016035.5929.911417TRUEVFRMETAR36.02018-12-17 21:16:49[›‹”c)35    3ULMM 172100Z 24003MPS 180V280 9999 BKN013 M04/M08 Q1023 R31/690050 NOSIG RMK QFE760ULMM2018-12-17T21:00:00Z68.7832.75-4.0-8.024066.2130.206694TRUEMVFRMETAR51.02018-12-17 21:16:49V›‹”b)-5    3ULAA 172100Z 19001MPS 9999 SCT010 M08/M08 Q1030 R08/690344 NOSIG RMK QFE772/1029ULAA2018-12-17T21:00:00Z64.640.72-8.0-8.019026.2130.413385TRUEVFRMETAR19.02018-12-17 21:16:49[›‹”a)+5     3UUOO 172100Z 08002MPS 6000 -SN OVC008 M11/M12 Q1035 R12/490542 NOSIG RMK QFE762UUOO2018-12-17T21:00:00Z51.8239.23-11.0-12.08043.7330.561024TRUE-SNIFRMETAR157.02018-12-17 21:16:49 9+j»÷98›‹”i(q5    3OEHL 172100Z 03008KT 9999 FEW040 14/06 Q1022 NOSIGOEHL2018-12-17T21:00:00Z27.4241.6714.06.03086.2130.177166TRUEVFRMETAR1013.02018-12-17 21:16:49>›‹”h(u5     3OEJB 172100Z AUTO 18006KT 6000 NCD 15/13 Q1021 NOSIGOEJB2018-12-17T21:00:00Z27.0549.3815.013.018063.7330.147638TRUETRUEMVFRMETAR8.02018-12-17 21:16:49)›‹”g(Y5   3OEKJ 172100Z 16010KT CAVOK 15/06 Q1024OEKJ2018-12-17T21:00:00Z24.0747.5815.06.0160106.2130.236221VFRMETAR503.02018-12-17 21:16:49;›‹”f)5   3WBGR 172100Z VRB02KT 9999 FEW001 SCT150 BKN300 24/23 Q1010WBGR2018-12-17T21:00:00Z4.32113.9724.023.0026.2129.822834VFRMETAR18.02018-12-17 21:16:49O›‹”e)!5    3WMKP 172100Z 01003KT 320V030 9000 FEW017CB SCT140 BKN270 25/23 Q1010 NOSIGWMKP2018-12-17T21:00:00Z5.28100.2725.023.01035.5929.822834TRUEVFRMETAR4.02018-12-17 21:16:49 xH”ß1x3›‹”n(e5    3OEBH 172100Z 10002KT CAVOK 17/08 Q1021 NOSIGOEBH2018-12-17T21:00:00Z19.9742.6217.08.010026.2130.147638TRUEVFRMETAR1157.02018-12-17 21:16:49(›‹”m(Y5   3OEDM 172100Z 12014KT CAVOK 16/07 Q1020OEDM2018-12-17T21:00:00Z24.4544.1216.07.0120146.2130.11811VFRMETAR922.02018-12-17 21:16:49/›‹”l(e5    3OEGN 172100Z 00000KT CAVOK 26/23 Q1015 NOSIGOEGN2018-12-17T21:00:00Z16.8842.5726.023.0006.2129.970472TRUEVFRMETAR3.02018-12-17 21:16:49.›‹”k(e5   3OEGS 172100Z 27010KT 9999 SCT040 19/16 Q1020OEGS2018-12-17T21:00:00Z26.343.7719.016.0270106.2130.11811VFRMETAR650.02018-12-17 21:16:492›‹”j(e5    3OEGT 172100Z 21008KT CAVOK 10/02 Q1021 NOSIGOEGT2018-12-17T21:00:00Z31.4237.2710.02.021086.2130.147638TRUEVFRMETAR499.02018-12-17 21:16:49 XB•Ý%XG›‹”s) 5     3FEFF 172100Z 11004KT 7000 TS FEW013 FEW033CB 25/23 Q1014 NOSIGFEFF2018-12-17T21:00:00Z4.418.5225.023.011044.3529.940945TRUETSMVFRMETAR366.02018-12-17 21:16:492›‹”r(e5    3OEAB 172100Z 00000KT CAVOK 14/13 Q1027 NOSIGOEAB2018-12-17T21:00:00Z18.2242.6314.013.0006.2130.324802TRUEVFRMETAR2084.02018-12-17 21:16:492›‹”q(e5    3OEAH 172100Z 23003KT CAVOK 13/08 Q1021 NOSIGOEAH2018-12-17T21:00:00Z25.2749.4713.08.023036.2130.147638TRUEVFRMETAR172.02018-12-17 21:16:49'›‹”p(Y5   3OEAO 172100Z 06002KT CAVOK 16/02 Q1021OEAO2018-12-17T21:00:00Z26.4838.1216.02.06026.2130.147638VFRMETAR624.02018-12-17 21:16:498›‹”o(q5    3OEBA 172100Z 11004KT 9999 FEW030 16/09 Q1024 NOSIGOEBA2018-12-17T21:00:00Z20.341.6216.09.011046.2130.236221TRUEVFRMETAR1656.02018-12-17 21:16:49 =FŽÌ=C›‹”x)5    3FCBB 172100Z 27003KT 240V310 8000 FEW006 22/21 Q1015 NOSIGFCBB2018-12-17T21:00:00Z-4.2515.2522.021.027034.9729.970472TRUEMVFRMETAR316.02018-12-17 21:16:49@›‹”w)5    3FCPP 172100Z 24005KT 210V270 8000 FEW010 26/25 Q1012 NOSIGFCPP2018-12-17T21:00:00Z-4.8211.926.025.024054.9729.88189TRUEMVFRMETAR17.02018-12-17 21:16:49<›‹”v)5    3FKKD 172100Z 00000KT 9999 FEW016 FEW020CB 25/25 Q1013 NOSIGFKKD2018-12-17T21:00:00Z4.09.7225.025.0006.2129.911417TRUEVFRMETAR9.02018-12-17 21:16:492›‹”u(k5    3FKYS 172100Z /////KT 8000 NSC 19/18 Q1018 NOSIGFKYS2018-12-17T21:00:00Z3.8211.5219.018.04.9730.059055TRUEMVFRMETAR760.02018-12-17 21:16:494›‹”t(k5    3FKKR 172100Z 02005KT 8000 NSC 23/04 Q1015 NOSIGFKKR2018-12-17T21:00:00Z9.3213.3723.04.02054.9729.970472TRUEMVFRMETAR244.02018-12-17 21:16:49 :ZŸñ:1›‹”}(e5    3GABS 172100Z 06005KT CAVOK 23/03 Q1017 NOSIGGABS2018-12-17T21:00:00Z12.52-7.9523.03.06056.2130.029528TRUEVFRMETAR381.02018-12-17 21:16:49(›‹”|(Y5   3GAMB 172100Z 04006KT CAVOK 23/11 Q1015GAMB2018-12-17T21:00:00Z14.52-4.0823.011.04066.2129.970472VFRMETAR272.02018-12-17 21:16:495›‹”{(m5    3GQNO 172100Z 05008KT 8000 NSC 21/M04 Q1017 NOSIGGQNO2018-12-17T21:00:00Z18.3-15.9721.0-4.05084.9730.029528TRUEMVFRMETAR4.02018-12-17 21:16:49/›‹”z(c5    3LFLW 172100Z AUTO 10006KT CAVOK 02/01 Q1027LFLW2018-12-17T21:00:00Z44.882.422.01.010066.2130.324802TRUEVFRMETAR639.02018-12-17 21:16:49k›‹”y)I5     3UEEE 172100Z 33002MPS 0300 0200NE R23L/0650N FG NSC M40/M44 Q1004 R23L/450155 NOSIG RMK QFE744UEEE2018-12-17T21:00:00Z62.08129.77-40.0-44.033040.1929.64567TRUEFGLIFRMETAR103.02018-12-17 21:16:49Y8¥8@HPX`hpx€ˆ˜ ¨°¸ÀÈÐØàèðø (08@HPX`hpx€ˆ˜ ¨°¸ÀÈÐØàèðø (08@HPX`hpx€ˆ˜ ¨°¸ÀÈÐØàèðø ¨°¸ÀÈÐØàèðøK›‹“SL›‹“WM›‹“[N›‹“`O›‹“dP›‹“hQ›‹“mR›‹“rS›‹“wT›‹“{U›‹“V›‹”K›‹“SL›‹“WM›‹“[N›‹“`O›‹“dP›‹“hQ›‹“mR›‹“rS›‹“wT›‹“{U›‹“V›‹”W›‹”X›‹” Y›‹”Z›‹”[›‹”\›‹” ]›‹”$^›‹”)_›‹”.`›‹”3a›‹”8b›‹”=c›‹”Bd›‹”Ge›‹”Lf›‹”Qg›‹”Vh›‹”[i›‹”`j›‹”dk›‹”il›‹”nm›‹”sn›‹”xo›‹”}q›‹•r›‹•s›‹• t›‹•u›‹•v›‹•w›‹• x›‹•%y›‹•)z›‹•-{›‹•1|›‹•5}›‹•9~›‹•=›‹•A€›‹•E›‹•I‚›‹•Mƒ›‹•Q„›‹•U…›‹•Y†›‹•]‡›‹•aˆ›‹•f‰›‹•kŠ›‹•o‹›‹•sŒ›‹•w›‹•|Ž›‹–›‹–›‹– ‘›‹–’›‹–“›‹–”›‹–•›‹–$–›‹–)—›‹–.˜›‹–2™›‹–7š›‹–<››‹–Aœ›‹–F›‹–Kž›‹–PŸ›‹–T ›‹–X¡›‹–\¢›‹–`£›‹–d¤›‹–h Q—é;&›‹•(Y5   3GOOK 172100Z 00000KT CAVOK 28/15 Q1014GOOK2018-12-17T21:00:00Z14.15-16.0728.015.0006.2129.940945VFRMETAR7.02018-12-17 21:16:49(›‹•(Y5   3GOSS 172100Z 36006KT CAVOK 22/17 Q1015GOSS2018-12-17T21:00:00Z16.05-16.4322.017.036066.2129.970472VFRMETAR4.02018-12-17 21:16:49(›‹•(Y5   3GOTT 172100Z 36004KT CAVOK 26/05 Q1013GOTT2018-12-17T21:00:00Z13.73-13.6526.05.036046.2129.911417VFRMETAR50.02018-12-17 21:16:494›‹”(e5    3GOBD 172100Z 35011KT CAVOK 22/16 Q1015 NOSIGGOBD2018-12-17T21:00:00Z14.67-17.0722.016.0350116.2129.970472TRUEVFRMETAR88.02018-12-17 21:16:49)›‹”~(Y5   3GOGG 172100Z 26004KT CAVOK 25/19 Q1014GOGG2018-12-17T21:00:00Z12.55-16.2725.019.026046.2129.940945VFRMETAR23.02018-12-17 21:16:49 KN–ÍK=›‹•)5   3WMKI 172100Z 04004KT 360V070 9999 FEW030 BKN280 24/22 Q1010WMKI2018-12-17T21:00:00Z4.57101.0824.022.04046.2129.822834VFRMETAR39.02018-12-17 21:16:499›‹•)5   3WMKL 172100Z VRB02KT 9999 FEW026 SCT140 BKN270 27/23 Q1010WMKL2018-12-17T21:00:00Z6.3299.7227.023.0026.2129.822834VFRMETAR7.02018-12-17 21:16:49C›‹•)5   3WMKM 172100Z 04006KT 350V100 9999 FEW010 SCT140 BKN280 25/24 Q1010WMKM2018-12-17T21:00:00Z2.27102.2525.024.04066.2129.822834VFRMETAR9.02018-12-17 21:16:492›‹•(s5   3WMKN 172100Z VRB01KT 9999 SCT022 BKN150 23/23 Q1011WMKN2018-12-17T21:00:00Z5.37103.0823.023.0016.2129.852362VFRMETAR6.02018-12-17 21:16:49,›‹•(_5   3GOOY 172100Z 32008KT 8000 NSC 22/20 Q1015GOOY2018-12-17T21:00:00Z14.72-17.522.020.032084.9729.970472MVFRMETAR24.02018-12-17 21:16:49 9QŽÇû9<›‹• )5   3WMBA 172100Z 00000KT 8000 FEW017CB SCT150 BKN280 24/23 Q1010WMBA2018-12-17T21:00:00Z4.22100.724.023.0004.9729.822834MVFRMETAR8.02018-12-17 21:16:49F›‹• ) 5    3WMKB 172100Z 09003KT 7000 FEW024 SCT140 BKN270 24/23 Q1010 NOSIGWMKB2018-12-17T21:00:00Z5.47100.3724.023.09034.3529.822834TRUEMVFRMETAR4.02018-12-17 21:16:49A›‹• )5   3WMKC 172100Z VRB02KT 9999 FEW017CB SCT020 BKN220 23/23 Q1011 RETSWMKC2018-12-17T21:00:00Z6.17102.2723.023.0026.2129.852362VFRMETAR5.02018-12-17 21:16:49=›‹• (5    3WMKD 172100Z 00000KT 9999 FEW025 BKN280 24/23 Q1011 NOSIGWMKD2018-12-17T21:00:00Z3.77103.2224.023.0006.2129.852362TRUEVFRMETAR16.02018-12-17 21:16:49)›‹•(g5   3WMKE 172100Z AUTO VRB02KT //// // 23/22 Q1010WMKE2018-12-17T21:00:00Z4.53103.4323.022.00229.822834TRUEMETAR5.02018-12-17 21:16:49 ^BŒÝ^0›‹•(s5   3FMMT 172100Z 26004KT 9999 FEW017 SCT033 23/21 Q1016FMMT2018-12-17T21:00:00Z-18.1249.3823.021.026046.2130.0VFRMETAR6.02018-12-17 21:16:49C›‹•)5    3FMNM 172100Z 12004KT 6000 TSRA SCT020CB BKN040 25/24 Q1013FMNM2018-12-17T21:00:00Z-15.6746.3525.024.012043.7329.911417TSRAMVFRMETAR18.02018-12-17 21:16:49)›‹•(e5   3FMSD 172100Z 04010KT 9999 FEW016 26/23 Q1016FMSD2018-12-17T21:00:00Z-25.0246.9526.023.040106.2130.0VFRMETAR9.02018-12-17 21:16:490›‹•(e5   3TRPG 172100Z 12011KT 9999 FEW026 25/21 Q1017TRPG2018-12-17T21:00:00Z16.78-62.225.021.0120116.2130.029528VFRMETAR168.02018-12-17 21:16:498›‹• )5   3WMAU 172100Z AUTO 29006KT 250V330 //// // 25/24 Q//// QFF1010WMAU2018-12-17T21:00:00Z2.38103.8825.024.029060.63TRUEMETAR45.02018-12-17 21:16:49 .?{®â..›‹•(i5   3RJSM 172100Z 27006KT 9999 FEW008 M00/M00 Q1006RJSM2018-12-17T21:00:00Z40.7141.370.00.027066.2129.704725VFRMETAR36.02018-12-17 21:16:49F›‹•) 5    3RORY 172100Z AUTO 35015KT 9999 SCT047 BKN050 OVC060 17/08 Q1021RORY2018-12-17T21:00:00Z27.05128.417.08.0350156.2130.147638TRUEVFRMETAR16.02018-12-17 21:16:49G›‹•)5     3VEPT 172100Z 27003KT 1600 -RA SCT018 OVC080 15/13 Q1017 NOSIGVEPT2018-12-17T21:00:00Z25.685.0815.013.027030.9930.029528TRUE-RALIFRMETAR60.02018-12-17 21:16:49>›‹•(}5    3ROYN 172100Z AUTO 03014KT 9999 FEW044 BKN048 18/09 Q1023ROYN2018-12-17T21:00:00Z24.47122.9718.09.030146.2130.206694TRUEVFRMETAR17.02018-12-17 21:16:49;›‹•(u5    3FMCH 172100Z 11004KT 9999 FEW020CB 25/23 Q1014 NOSIGFMCH2018-12-17T21:00:00Z-11.5243.2725.023.011046.2129.940945TRUEVFRMETAR29.02018-12-17 21:16:49 9JË9H›‹•) 5    3VVPB 172100Z 24004KT 6000 FEW010 SCT015 BKN040 19/19 Q1019 NOSIGVVPB2018-12-17T21:00:00Z16.38107.719.019.024043.7330.088583TRUEMVFRMETAR17.02018-12-17 21:16:49>›‹•(5    3VVTS 172100Z VRB02KT 9999 SCT015 SCT050 25/23 Q1011 NOSIGVVTS2018-12-17T21:00:00Z10.82106.6725.023.0026.2129.852362TRUEVFRMETAR19.02018-12-17 21:16:49<›‹•(5    3VVDN 172100Z VRB02KT 9999 SCT012 BKN050 20/19 Q1018 NOSIGVVDN2018-12-17T21:00:00Z16.02108.220.019.0026.2130.059055TRUEVFRMETAR7.02018-12-17 21:16:497›‹•(w5   3RJCO 172100Z 27006KT 9999 FEW010 BKN060 M00/M03 Q1005RJCO2018-12-17T21:00:00Z43.12141.370.0-3.027066.2129.675198VFRMETAR11.02018-12-17 21:16:490›‹•(g5   3RJOS 172100Z 33010KT 9999 FEW030 07/M03 Q1017RJOS2018-12-17T21:00:00Z34.12134.627.0-3.0330106.2130.029528VFRMETAR11.02018-12-17 21:16:49 PD~¹ÿP)›‹• (_5   3VYYY 172100Z 09002KT 7000 NSC 25/23 Q1012VYYY2018-12-17T21:00:00Z16.996.1325.023.09024.3529.88189MVFRMETAR33.02018-12-17 21:16:494›‹•(k5    3VVCI 172100Z 36002KT 9000 NSC 15/13 Q1020 NOSIGVVCI2018-12-17T21:00:00Z20.82106.7315.013.036025.5930.11811TRUEVFRMETAR3.02018-12-17 21:16:49?›‹•(5    3VVCR 172100Z 05014KT 9999 SCT013 SCT050 27/22 Q1015 NOSIGVVCR2018-12-17T21:00:00Z12.0109.2227.022.050146.2129.970472TRUEVFRMETAR12.02018-12-17 21:16:49@›‹•(5    3VVCT 172100Z 12002KT 8000 FEW013 BKN040 26/24 Q1011 NOSIGVVCT2018-12-17T21:00:00Z10.08105.7226.024.012024.9729.852362TRUEMVFRMETAR3.02018-12-17 21:16:496›‹•(k5    3VVNB 172100Z 29001KT 8000 NSC 14/12 Q1021 NOSIGVVNB2018-12-17T21:00:00Z21.22105.814.012.029014.9730.147638TRUEMVFRMETAR12.02018-12-17 21:16:49 ^M˜Ü#^?›‹•%(}5    3FABL 172100Z AUTO 09014KT 9999 -RA ///////// 25/11 Q1019FABL2018-12-17T21:00:00Z-29.126.325.011.090146.2130.088583TRUE-RASPECI1348.02018-12-17 21:16:493›‹•$(u5   3FAOB 172100Z AUTO 15008KT //// // ////// 24/21 Q1009FAOB2018-12-17T21:00:00Z-34.620.2724.021.0150829.793306TRUEMETAR75.02018-12-17 21:16:496›‹•#(u5   3VDPP 172100Z 04005KT 350V050 9999 FEW017 26/20 Q1011VDPP2018-12-17T21:00:00Z11.55104.8326.020.04056.2129.852362VFRMETAR10.02018-12-17 21:16:49/›‹•"(e5   3VDSR 172100Z 35002KT 9000 SCT015 23/19 Q1013VDSR2018-12-17T21:00:00Z13.42103.8323.019.035025.5929.911417VFRMETAR15.02018-12-17 21:16:49-›‹•!(e5   3VDSV 172100Z VRB01KT 9000 FEW015 25/23 Q1011VDSV2018-12-17T21:00:00Z10.58103.6325.023.0015.5929.852362VFRMETAR10.02018-12-17 21:16:49 ¾Ulœ¾X›‹•))-5    3URWA 172100Z 07003MPS 9999 OVC012 M07/M09 Q1033 R09/810055 NOSIG RMK QFE777/1036URWA2018-12-17T21:00:00Z46.2848.02-7.0-9.07066.2130.501968TRUEMVFRMETAR-20.02018-12-17 21:16:49J›‹•()5   3URWI 172100Z AUTO 07006MPS 4300 // ///002/// M06/M07 Q1030 RMK QBB070URWI2018-12-17T21:00:00Z46.3744.33-6.0-7.070122.6730.413385TRUEMETAR150.02018-12-17 21:16:49c›‹•')K5   3URWW 172100Z 09006MPS 9999 OVC006 M08/M09 Q1033 R06/820350 TEMPO 0300 FZFG OVC002 RMK OBST OBSCURWW2018-12-17T21:00:00Z48.7844.33-8.0-9.090126.2130.501968IFRMETAR147.02018-12-17 21:16:49%›‹•&(Y5   3DAOV 172100Z 09002KT CAVOK 10/07 Q1029DAOV2018-12-17T21:00:00Z35.20.1510.07.09026.2130.383858VFRMETAR514.02018-12-17 21:16:49 S)OSv›‹•-)Y5     3URMN 172100Z 08001MPS 2000 -FZDZ BR OVC003 M04/M04 Q1023 R24/////// NOSIG RMK MT OBSC OBST OBSC QFE731URMN2018-12-17T21:00:00Z43.5243.63-4.0-4.08021.2430.206694TRUE-FZDZ BRLIFRMETAR445.02018-12-17 21:16:49T›‹•,)#5    3URMT 172100Z 12008MPS 9999 OVC009 M05/M06 Q1023 R07/190160 NOSIG RMK QFE727URMT2018-12-17T21:00:00Z45.1242.12-5.0-6.0120166.2130.206694TRUEIFRMETAR453.02018-12-17 21:16:49i›‹•+)S5    3URRP 172100Z 10010MPS 9999 BKN009 M04/M06 Q1029 R05/410060 TEMPO 10011G18MPS BKN006 RMK QFE767/1023URRP2018-12-17T21:00:00Z47.539.92-4.0-6.0100196.2130.383858IFR1.1METAR65.02018-12-17 21:16:49b›‹•*)I5    3URSS 172100Z 05004MPS 9999 NSC 08/04 Q1017 R02/090070 R06/090070 NOSIG RMK R06/00000MPS QFE761URSS2018-12-17T21:00:00Z43.4539.958.04.05086.2130.029528TRUEVFRMETAR16.02018-12-17 21:16:49 c 6cM›‹•1)5    3URKK 172100Z 06006MPS CAVOK M03/M05 Q1022 R05R/19//65 NOSIG RMK QFE764URKK2018-12-17T21:00:00Z45.0339.15-3.0-5.060126.2130.177166TRUEVFRMETAR34.02018-12-17 21:16:49d›‹•0);5     3URMG 172100Z 27002MPS 3000 -SN BR OVC013 M02/M03 Q1026 R26/390240 NOSIG RMK QFE755/1006URMG2018-12-17T21:00:00Z43.3745.7-2.0-3.027041.8630.295275TRUE-SN BRIFRMETAR263.02018-12-17 21:16:49i›‹•/)c5   3URML 172100Z VRB01MPS 9999 FEW010 OVC033 03/02 Q1027 R14/290160 TEMPO 1200 BR BKN003 OVC007 RMK QFE770/1027URML2018-12-17T21:00:00Z42.8247.653.02.0026.2130.324802VFRMETAR4.02018-12-17 21:16:49k›‹•.)I5     3URMM 172100Z 11008MPS 9999 -FZDZ OVC007 M04/M05 Q1025 R12/710160 NOSIG RMK MT OBSC QFE740/0987URMM2018-12-17T21:00:00Z44.2243.1-4.0-5.0110166.2130.265747TRUE-FZDZIFRMETAR314.02018-12-17 21:16:49 t+>Yt_›‹•5)75  3UIBB 172100Z AUTO 27006G12MPS 220V310 9000 // ///019/// M10/M13 Q1009 RMK QFE714/0952UIBB2018-12-17T21:00:00Z56.37101.7-10.0-13.027012235.5929.793306TRUEMETAR490.02018-12-17 21:16:49_›‹•4);5    3UIII 172100Z VRB01MPS 9999 FEW001 M13/M14 Q1015 R12/820345 NOSIG RMK QBB050 QFE719/0958UIII2018-12-17T21:00:00Z52.27104.4-13.0-14.0026.2129.970472TRUEVFRMETAR513.02018-12-17 21:16:49g›‹•3)=5     3UIUU 172100Z 28005MPS 9000 -SHSN OVC035CB M08/M11 Q1013 R26/490545 NOSIG RMK QFE716/0954UIUU2018-12-17T21:00:00Z51.8107.45-8.0-11.0280105.5929.911417TRUE-SHSNVFRMETAR515.02018-12-17 21:16:49O›‹•2)5   3URKA 172100Z AUTO 07014G19MPS 9999 // NCD M02/M03 Q1018 RMK QFE760/1013URKA2018-12-17T21:00:00Z45.037.35-2.0-3.07027376.2130.059055TRUEVFRMETAR53.02018-12-17 21:16:49 † <T†H›‹•9) 5    3UUOB 172100Z 07003MPS 9999 OVC020 M09/M10 Q1032 R11/810352 NOSIGUUOB2018-12-17T21:00:00Z50.6536.58-9.0-10.07066.2130.47244TRUEMVFRMETAR224.02018-12-17 21:16:49b›‹•8);5    3UUOK 172100Z 10002MPS 8000 OVC003 M10/M10 Q1033 R12/CLRD65 NOSIG RMK QBB110 QFE757/1009UUOK2018-12-17T21:00:00Z51.7536.28-10.0-10.010044.9730.501968TRUELIFRMETAR209.02018-12-17 21:16:49I›‹•7)5    3UWGG 172100Z 02001MPS 9999 OVC027 M09/M11 Q1039 R36R/420150 NOSIGUWGG2018-12-17T21:00:00Z56.2343.78-9.0-11.02026.2130.679134TRUEMVFRMETAR73.02018-12-17 21:16:49o›‹•6)Y5    3USCM 172100Z 24001MPS 3200 0350N FZFG BKN020 M16/M18 Q1031 R36/490450 TEMPO 0100 FZFG VV001 RMK QFE734USCM2018-12-17T21:00:00Z53.458.75-16.0-18.024021.9930.442913FZFGIFRMETAR435.02018-12-17 21:16:49 …H†…{›‹•=)g5     3UHMA 172100Z 36004MPS 9999 VCFG FEW020 SCT200 M33/M37 Q1009 R88/750542 NOSIG RMK END R01/01006MPS QFE753/1004UHMA2018-12-17T21:00:00Z64.73177.73-33.0-37.036086.2129.793306TRUEVCFGVFRMETAR62.02018-12-17 21:16:49<›‹•<(5   3UHMD 172100Z 01002MPS CAVOK M20/M24 Q1004 RMK QFE753/1003UHMD2018-12-17T21:00:00Z64.38-173.22-20.0-24.01046.2129.64567VFRMETAR3.02018-12-17 21:16:49J›‹•;)5   3UHMM 172100Z 00000MPS 9999 SCT030 M14/M16 Q1002 R10/85//40 RMK QFE737UHMM2018-12-17T21:00:00Z59.92150.72-14.0-16.0006.2129.586615VFRMETAR175.02018-12-17 21:16:49b›‹•:)A5    3UHSS 172100Z 00000MPS 9000 BKN033CB M12/M14 Q0999 R01/420260 NOSIG RMK MT OBSC QFE748/0998UHSS2018-12-17T21:00:00Z46.88142.72-12.0-14.0005.5929.498032TRUEVFRMETAR31.02018-12-17 21:16:49 f)AfU›‹•A)!5    3UHBB 172100Z 23001MPS CAVOK M25/M28 Q1007 R36/420060 NOSIG RMK QFE738/0984UHBB2018-12-17T21:00:00Z50.43127.42-25.0-28.023026.2129.734253TRUEVFRMETAR195.02018-12-17 21:16:49V›‹•@)#5    3UHHH 172100Z 25005MPS CAVOK M16/M19 Q1003 R23L/090060 NOSIG RMK QFE746/0995UHHH2018-12-17T21:00:00Z48.52135.18-16.0-19.0250106.2129.616142TRUEVFRMETAR72.02018-12-17 21:16:49‚›‹•?)}5     3UHPP 172100Z 12006MPS 0650 0600E R16/0900D +SHSN BKN008 OVC020CB M02/M02 Q1003 WS R16R R16R/490530 NOSIG RMK QFE749/0999UHPP2018-12-17T21:00:00Z53.17158.45-2.0-2.0120120.429.616142TRUE+SHSNLIFRMETAR40.02018-12-17 21:16:49Q›‹•>)5    3UHWW 172100Z 36001MPS 9999 NSC M14/M17 Q1012 R25L/0///70 NOSIG RMK QFE758UHWW2018-12-17T21:00:00Z43.4132.15-14.0-17.036026.2129.88189TRUEVFRMETAR14.02018-12-17 21:16:49 o >Xoc›‹•E);5     3UWOR 172100Z 03003MPS 5000 -SN BR OVC013 M07/M09 Q1032 R25/490240 NOSIG RMK QFE750/1000UWOR2018-12-17T21:00:00Z51.0758.6-7.0-9.03063.1130.47244TRUE-SN BRMVFRMETAR277.02018-12-17 21:16:49`›‹•D)=5    3UWOO 172100Z 03002MPS 340V130 9000 OVC016 M09/M11 Q1034 R08/850440 NOSIG RMK QFE765/1020UWOO2018-12-17T21:00:00Z51.855.47-9.0-11.03045.5930.531496TRUEMVFRMETAR109.02018-12-17 21:16:49\›‹•C)75    3UWSS 172100Z 00000MPS 6000 OVC007 M09/M10 Q1035 R12/820350 NOSIG RMK OBST OBSC QFE764UWSS2018-12-17T21:00:00Z51.5746.07-9.0-10.0003.7330.561024TRUEIFRMETAR166.02018-12-17 21:16:49Z›‹•B)35     3UWWW 172100Z VRB01MPS 5000 BR OVC006 M06/M07 Q1035 R33/350140 NOSIG RMK QFE766/1021UWWW2018-12-17T21:00:00Z53.550.17-6.0-7.0023.1130.561024TRUEBRIFRMETAR146.02018-12-17 21:16:49 ™+Vx™Y›‹•I)-5    3UWKD 172100Z 30003MPS 9999 BKN026 M06/M07 Q1036 R29/710045 NOSIG RMK QFE765/1021UWKD2018-12-17T21:00:00Z55.6249.28-6.0-7.030066.2130.590551TRUEMVFRMETAR126.02018-12-17 21:16:49X›‹•H)-5    3UWKE 172100Z 24002MPS 9999 OVC038 M06/M07 Q1035 R03/610146 NOSIG RMK QFE758/1011UWKE2018-12-17T21:00:00Z55.5752.08-6.0-7.024046.2130.561024TRUEVFRMETAR196.02018-12-17 21:16:49O›‹•G)5    3UWKS 172100Z 31002MPS CAVOK M10/M11 Q1036 R06/820340 NOSIG RMK QFE762UWKS2018-12-17T21:00:00Z56.0847.35-10.0-11.031046.2130.590551TRUEVFRMETAR170.02018-12-17 21:16:49O›‹•F)#5    3UWLW 172100Z 00000MPS 8000 OVC040 M05/M06 Q1036 R20/820545 NOSIG RMK QFE772UWLW2018-12-17T21:00:00Z54.448.8-5.0-6.0004.9730.590551TRUEMVFRMETAR66.02018-12-17 21:16:49  .Qz T›‹•M)#5    3UNOO 172100Z 23001MPS 6000 BKN007 M10/M11 Q1029 R25/390140 NOSIG RMK QFE764UNOO2018-12-17T21:00:00Z54.9773.32-10.0-11.023023.7330.383858TRUEIFRMETAR95.02018-12-17 21:16:49Q›‹•L)5     3UNTT 172100Z 23004MPS 2500 -SN OVC007 M11/M13 Q1023 NOSIG RMK QFE752UNTT2018-12-17T21:00:00Z56.3885.22-11.0-13.023081.5530.206694TRUE-SNIFRMETAR182.02018-12-17 21:16:49W›‹•K)-5    3USTR 172100Z 24002MPS 9999 OVC044 M08/M09 Q1028 R21/450250 NOSIG RMK QFE761/1015USTR2018-12-17T21:00:00Z57.1765.32-8.0-9.024046.2130.35433TRUEVFRMETAR115.02018-12-17 21:16:49L›‹•J)5    3USHH 172100Z 26005MPS CAVOK M08/M09 Q1020 R24/390045 NOSIG RMK QFE761USHH2018-12-17T21:00:00Z61.0369.08-8.0-9.0260106.2130.11811TRUEVFRMETAR23.02018-12-17 21:16:49 r$<rD›‹•Q)5     3LRTM 172100Z AUTO 24004KT 2900 -SN FEW008/// M01/M02 Q1023LRTM2018-12-17T21:00:00Z46.4724.42-1.0-2.024041.830.206694TRUE-SNIFRMETAR309.02018-12-17 21:16:49b›‹•P)35     3UNEE 172100Z 22007MPS 3700 -SHSN OVC007CB M12/M13 Q1026 R23/851035 NOSIG RMK QFE746UNEE2018-12-17T21:00:00Z55.2786.08-12.0-13.0220142.330.295275TRUE-SHSNIFRMETAR260.02018-12-17 21:16:49d›‹•O)35     3UNKL 172100Z 26006MPS 9000 -SHSN BKN020CB M10/M12 Q1019 R29/810255 NOSIG RMK QFE739UNKL2018-12-17T21:00:00Z56.1792.48-10.0-12.0260125.5930.088583TRUE-SHSNMVFRMETAR276.02018-12-17 21:16:49l›‹•N)K5     3UNNT 172100Z 22003MPS 9999 -SN OVC006 M13/M15 Q1029 R25/490150 R16/491035 NOSIG RMK QFE761/1015UNNT2018-12-17T21:00:00Z55.0282.63-13.0-15.022066.2130.383858TRUE-SNIFRMETAR111.02018-12-17 21:16:49 Ï6h’ρ=›‹•U(q5    3LRBM 172100Z AUTO 27006KT 2600 VV009 M02/M03 Q1024LRBM2018-12-17T21:00:00Z47.6723.47-2.0-3.027061.6230.236221TRUELIFR900METAR185.02018-12-17 21:16:49P›‹•T)5    3LRCL 172100Z 28006KT 1500 SN BR SCT011 OVC018 M01/M02 Q1023 R07/690393LRCL2018-12-17T21:00:00Z46.7823.68-1.0-2.028060.9330.206694SN BRLIFRMETAR413.02018-12-17 21:16:49H›‹•S) 5    3LROD 172100Z AUTO 34005KT 6000 SCT006/// OVC008/// M01/M02 Q1025LROD2018-12-17T21:00:00Z47.0321.92-1.0-2.034053.7330.265747TRUEIFRMETAR140.02018-12-17 21:16:49D›‹•R)5     3LRSM 172100Z AUTO 26005KT 4600 -SN OVC007/// M02/M02 Q1024LRSM2018-12-17T21:00:00Z47.722.88-2.0-2.026052.8630.236221TRUE-SNIFRMETAR124.02018-12-17 21:16:49 °8p›°e›‹•Y)A5     3LROP 172100Z 06008KT 4000 -SN BR SCT004 OVC017 M01/M01 Q1023 R08R/590393 R08L/590294 NOSIGLROP2018-12-17T21:00:00Z44.5726.1-1.0-1.06082.4930.206694TRUE-SN BRIFRSPECI95.02018-12-17 21:16:49O›‹•X)5    3LRSB 172100Z 00000KT 2000 -SN BR BKN008 OVC023 M02/M02 Q1022 R27/590193LRSB2018-12-17T21:00:00Z45.7824.08-2.0-2.0001.2430.177166-SN BRIFRMETAR444.02018-12-17 21:16:49B›‹•W)5    3LRTR 172100Z 31007KT 5000 BR OVC010 M03/M03 Q1026 R11/190095LRTR2018-12-17T21:00:00Z45.8221.33-3.0-3.031073.1130.295275BRMVFRSPECI88.02018-12-17 21:16:49B›‹•V(5     3LRAR 172100Z AUTO 33004KT 4400 BR OVC011/// M03/M03 Q1026LRAR2018-12-17T21:00:00Z46.1821.27-3.0-3.033042.7330.295275TRUEBRIFRMETAR118.02018-12-17 21:16:49 ¼)Cƒ¼A›‹•])5    3LRTC 172100Z AUTO 36012KT 5000 OVC006/// M00/M01 Q1023 REUPLRTC2018-12-17T21:00:00Z45.0728.720.0-1.0360123.1130.206694TRUEIFRMETAR6.02018-12-17 21:16:49:›‹•\(s5     3LJCE 172100Z AUTO 06001KT 5000 BR NSC M03/M04 Q1028LJCE2018-12-17T21:00:00Z45.915.52-3.0-4.06013.1130.35433TRUEBRMVFRMETAR155.02018-12-17 21:16:49`›‹•[)55     3LRBS 172100Z 05005KT 5000 -SN BR SCT006 BKN019 BKN038 M01/M01 Q1023 R07/590393 NOSIGLRBS2018-12-17T21:00:00Z44.526.08-1.0-1.05053.1130.206694TRUE-SN BRMVFRSPECI91.02018-12-17 21:16:49Q›‹•Z)5     3LRCK 172100Z 01015KT 1500 -RA BR OVC003 01/01 Q1021 R36/29//95 NOSIGLRCK2018-12-17T21:00:00Z44.3728.481.01.010150.9330.147638TRUE-RA BRLIFRSPECI108.02018-12-17 21:16:49 ±)_ˆ±Q›‹•a)5    3LRBC 172100Z 33005KT 4000 -SN BR BKN005 OVC008 M01/M03 Q1025 R16/920394LRBC2018-12-17T21:00:00Z46.5226.92-1.0-3.033052.4930.265747-SN BRIFRMETAR185.02018-12-17 21:16:49Q›‹•`)5    3LRCV 172100Z 07005KT 0800 R09/1100U FZFG VV002 M01/M01 Q1023 R09/29//95LRCV2018-12-17T21:00:00Z44.3223.88-1.0-1.07050.530.206694FZFGLIFR200METAR191.02018-12-17 21:16:49D›‹•_)5    3LRIA 172100Z 07005KT 9999 -SN OVC010 M03/M05 Q1026 R14/29//95LRIA2018-12-17T21:00:00Z47.1727.62-3.0-5.07056.2130.295275-SNMVFRMETAR104.02018-12-17 21:16:49Q›‹•^)5    3LRSV 172100Z 06005KT 1700 -SN BR BKN002 OVC028 M05/M05 Q1023 R16/590393LRSV2018-12-17T21:00:00Z47.6826.35-5.0-5.06051.0630.206694-SN BRLIFRMETAR351.02018-12-17 21:16:49 ‚CŽá-‚%›‹•f(Y5   3LPFR 172100Z 02007KT CAVOK 10/06 Q1027LPFR2018-12-17T21:00:00Z37.02-7.9710.06.02076.2130.324802VFRMETAR4.02018-12-17 21:16:49.›‹•e(e5   3LPMA 172100Z 25006KT 9999 SCT015 17/14 Q1024LPMA2018-12-17T21:00:00Z32.7-16.7717.014.025066.2130.236221VFRMETAR55.02018-12-17 21:16:49'›‹•d(Y5   3LPPR 172100Z 14009KT CAVOK 11/06 Q1024LPPR2018-12-17T21:00:00Z41.22-8.6711.06.014096.2130.236221VFRMETAR73.02018-12-17 21:16:49/›‹•c(e5   3LPPS 172100Z 18009KT 9999 SCT015 18/15 Q1024LPPS2018-12-17T21:00:00Z33.07-16.3518.015.018096.2130.236221VFRMETAR82.02018-12-17 21:16:497›‹•b(u5   3LPPT 172100Z 12004KT 090V190 9999 FEW015 11/10 Q1026LPPT2018-12-17T21:00:00Z38.77-9.1211.010.012046.2130.295275VFRMETAR123.02018-12-17 21:16:49 6<o±ð64›‹•k(s5   3MYGF 172100Z 34008KT 9999 SCT020 SCT250 22/17 A3004MYGF2018-12-17T21:00:00Z26.55-78.722.017.034086.2130.041338VFRMETAR2.02018-12-17 21:16:49;›‹•j(w5     3VIJP 172100Z 00000KT 2000 HZ FEW035 10/04 Q1019 NOSIGVIJP2018-12-17T21:00:00Z26.8275.7810.04.0001.2430.088583TRUEHZIFRMETAR390.02018-12-17 21:16:498›‹•i(q5     3VAAH 172100Z 03004KT 4000 FU NSC 13/03 Q1018 NOSIGVAAH2018-12-17T21:00:00Z23.0772.6213.03.03042.4930.059055TRUEFUIFRMETAR55.02018-12-17 21:16:49G›‹•h)5    3LPAZ 172100Z 31021KT 5000 -DZ BR SCT004 BKN012 15/14 Q1015LPAZ2018-12-17T21:00:00Z36.97-25.1715.014.0310213.1129.970472-DZ BRMVFRMETAR100.02018-12-17 21:16:49>›‹•g(}5    3LPPD 172100Z 29009KT 270V340 9999 -DZ FEW012 14/11 Q1014LPPD2018-12-17T21:00:00Z37.72-25.6814.011.029096.2129.940945-DZVFRMETAR72.02018-12-17 21:16:49 Õ?|­ÕR›‹•o)5    3LFRB 172100Z AUTO 19018KT 9999 BKN013 OVC052 11/09 Q1017 BECMG 22015G25KTLFRB2018-12-17T21:00:00Z48.45-4.4211.09.0190186.2130.029528TRUEMVFRSPECI103.02018-12-17 21:16:49I›‹•n)5    3LFRS 172100Z AUTO 16006KT 9999 FEW018 OVC210 08/08 Q1023 TEMPO BKN004LFRS2018-12-17T21:00:00Z47.17-1.68.08.016066.2130.206694TRUEVFRSPECI27.02018-12-17 21:16:49=›‹•m(w5     3VOCL 172100Z 06003KT 4000 BR FEW015 23/20 Q1011 NOSIGVOCL2018-12-17T21:00:00Z11.1375.9523.020.06032.4929.852362TRUEBRIFRMETAR104.02018-12-17 21:16:49;›‹•l(w5     3VOTR 172100Z 00000KT 2500 BR FEW015 24/22 Q1011 NOSIGVOTR2018-12-17T21:00:00Z10.7778.7224.022.0001.5529.852362TRUEBRIFRMETAR88.02018-12-17 21:16:49 º7‚ƒºC›‹•s) 5    3CXHA 172100Z AUTO 29008KT 03/M04 RMK AO1 SLP191 T00331044 53014CXHA2018-12-17T21:00:00Z42.03-82.93.3-4.429081019.1TRUETRUE1.4METAR191.02018-12-17 21:16:49y›‹•r)k5     3CXIB 172100Z AUTO 10012G20KT 01/M00 RMK AO1 4PAST HR SOG 02 8038 PK WND 09020/2058 SLP011 P0005 T00071001 50020CXIB2018-12-17T21:00:00Z46.67-60.380.7-0.110012201001.1TRUETRUE2.00.05METAR8.02018-12-17 21:16:49/›‹•q(e5    3LFPO 172100Z 20005KT CAVOK 06/05 Q1025 NOSIGLFPO2018-12-17T21:00:00Z48.722.386.05.020056.2130.265747TRUEVFRMETAR96.02018-12-17 21:16:49C›‹•p) 5    3LFQQ 172100Z AUTO 18011KT 7000 BKN005 05/05 Q1024 TEMPO 2000 BRLFQQ2018-12-17T21:00:00Z50.573.15.05.0180114.3530.236221TRUEIFRSPECI52.02018-12-17 21:16:49 ™3N~™_›‹•w)A5   3CXDI 172100Z AUTO 31011G17KT 01/M04 RMK AO1 SOG 01 3020 PK WND 32020/2008 SLP156 T00081035CXDI2018-12-17T21:00:00Z42.87-80.550.8-3.531011171015.6TRUETRUEMETAR232.02018-12-17 21:16:49J›‹•v)5   3CXEC 172100Z AUTO 20006KT M03/M08 RMK AO1 SOG 14 3003 SLP063 T10311079CXEC2018-12-17T21:00:00Z53.57-113.52-3.1-7.920061006.3TRUETRUEMETAR671.02018-12-17 21:16:49_›‹•u)A5   3CXET 172100Z AUTO 32011G22KT 01/M06 RMK AO1 SOG 04 3019 PK WND 33022/2058 SLP126 T00051062CXET2018-12-17T21:00:00Z44.23-79.780.5-6.232011221012.6TRUETRUEMETAR251.02018-12-17 21:16:49G›‹•t) 5    3CXGH 172100Z AUTO 16007KT M09/M12 RMK AO1 SLP210 T10861123 56032CXGH2018-12-17T21:00:00Z50.63-97.0-8.6-12.316071021.0TRUETRUE-3.2METAR217.02018-12-17 21:16:49 /ƒ­Ó9›‹•|(u5    3RKSI 172100Z 11002KT 9999 FEW040 M02/M08 Q1020 NOSIGRKSI2018-12-17T21:00:00Z37.47126.45-2.0-8.011026.2130.11811TRUEVFRMETAR7.02018-12-17 21:16:49T›‹•{)5   3UMGG 172100Z 13006G09MPS 8000 OVC006 M06/M08 Q1030 R10/D NOSIG RMK QBB180UMGG2018-12-17T21:00:00Z52.5331.02-6.0-8.013012174.9730.413385TRUEIFRMETAR144.02018-12-17 21:16:49P›‹•z)5    3UMMS 172100Z 16003MPS 130V190 9999 BKN011 M05/M07 Q1028 R13/810247 NOSIGUMMS2018-12-17T21:00:00Z53.8828.03-5.0-7.016066.2130.35433TRUEMVFRMETAR205.02018-12-17 21:16:49&›‹•y(Y5   3MRLM 172100Z 09004KT CAVOK 29/22 A2990MRLM2018-12-17T21:00:00Z9.97-83.0329.022.09046.2129.899607VFRSPECI2.02018-12-17 21:16:49K›‹•x)5   3CXDE 172100Z AUTO 11006KT M15/M17 RMK AO1 SOG 20 3001 SLP942 T11531173CXDE2018-12-17T21:00:00Z65.22-123.43-15.3-17.31106994.2TRUETRUEMETAR213.02018-12-17 21:16:49 Q3l¾Q0›‹–(i5   3RKTN 172100Z 32004KT 9999 FEW040 M03/M06 Q1020RKTN2018-12-17T21:00:00Z35.88128.65-3.0-6.032046.2130.11811VFRMETAR35.02018-12-17 21:16:491›‹–(i5    3RKTU 172100Z 12001KT 4800 BR NSC M05/M06 Q1021RKTU2018-12-17T21:00:00Z36.7127.5-5.0-6.012012.9830.147638BRIFRMETAR66.02018-12-17 21:16:49(›‹•([5   3RKPK 172100Z 30003KT CAVOK 00/M05 Q1020RKPK2018-12-17T21:00:00Z35.17128.920.0-5.030036.2130.11811VFRMETAR15.02018-12-17 21:16:49A›‹•~)5    3RKPC 172100Z 31009KT 280V350 9999 BKN040 09/M02 Q1022 NOSIGRKPC2018-12-17T21:00:00Z33.5126.489.0-2.031096.2130.177166TRUEVFRMETAR27.02018-12-17 21:16:49G›‹•}) 5     3RKSS 172100Z 34002KT 4000 1800NW BR FEW040 M06/M09 Q1020 NOSIGRKSS2018-12-17T21:00:00Z37.53126.78-6.0-9.034022.4930.11811TRUEBRIFRMETAR19.02018-12-17 21:16:49 (D‡·ð(B›‹–)5    3RPLB 172100Z 06007KT 9999 FEW020 24/20 Q1014 NOSIG RMK A2994RPLB2018-12-17T21:00:00Z14.8120.2724.020.06076.2129.940945TRUEVFRMETAR17.02018-12-17 21:16:49A›‹–)5    3RPLL 172100Z 00000KT 9999 FEW027 25/24 Q1014 NOSIG RMK A2994RPLL2018-12-17T21:00:00Z14.52121.025.024.0006.2129.940945TRUEVFRMETAR21.02018-12-17 21:16:49J›‹–)5    3GMMB 172100Z AUTO 06005KT //// R32/P2000N ////// 12/12 Q1026 NOSIGGMMB2018-12-17T21:00:00Z33.65-7.2212.012.06051.2430.295275TRUETRUEMETAR191.02018-12-17 21:16:497›‹–(k5    3RKNY 172100Z AUTO 25012KT 9999 NCD 01/M12 Q1017RKNY2018-12-17T21:00:00Z38.07128.671.0-12.0250126.2130.029528TRUEVFRMETAR74.02018-12-17 21:16:496›‹–(q5    3RKJB 172100Z 19003KT 9999 SCT040 01/01 Q1022 NOSIGRKJB2018-12-17T21:00:00Z34.98126.381.01.019036.2130.177166TRUEVFRMETAR2.02018-12-17 21:16:49 -9t°ö-C›‹– )5    3RPLI 172100Z 11002KT 9999 FEW018 21/18 Q1014 NOSIG RMK A2994RPLI2018-12-17T21:00:00Z18.17120.5221.018.011026.2129.940945TRUEVFRMETAR5.02018-12-17 21:16:494›‹– (s5   3SBBE 172100Z 08005KT 9999 SCT025 BKN100 26/23 Q1012SBBE2018-12-17T21:00:00Z-1.37-48.4726.023.08056.2129.88189VFRSPECI16.02018-12-17 21:16:49>›‹– )5   3RPMD 172100Z VRB02KT 9999 FEW016 SCT290 24/24 Q1011 RMK A2985RPMD2018-12-17T21:00:00Z7.12125.6524.024.0026.2129.852362VFRMETAR18.02018-12-17 21:16:49?›‹–)5   3RPMZ 172100Z 33002KT 9999 FEW017 BKN300 23/22 Q1010 RMK A2983RPMZ2018-12-17T21:00:00Z6.92122.0723.022.033026.2129.822834VFRMETAR6.02018-12-17 21:16:49A›‹–) 5   3RPVM 172100Z 01009KT 9999 FEW018CB OVC090 26/22 Q1012 RMK A2988RPVM2018-12-17T21:00:00Z10.32123.9826.022.01096.2129.88189VFRMETAR10.02018-12-17 21:16:49 \(m¹\-›‹–(e5    3LEIB 172100Z 00000KT CAVOK 07/04 Q1030 NOSIGLEIB2018-12-17T21:00:00Z38.871.377.04.0006.2130.413385TRUEVFRMETAR12.02018-12-17 21:16:49$›‹–(Y5   3LEJR 172100Z VRB02KT CAVOK 08/08 Q1026LEJR2018-12-17T21:00:00Z36.75-6.078.08.0026.2130.295275VFRMETAR30.02018-12-17 21:16:49.›‹–(e5    3LELC 172100Z 31004KT CAVOK 08/06 Q1030 NOSIGLELC2018-12-17T21:00:00Z37.77-0.88.06.031046.2130.413385TRUEVFRMETAR3.02018-12-17 21:16:495›‹– (s5   3LKKB 172100Z 20005KT 9999 FEW021 OVC026 02/00 Q1025LKKB2018-12-17T21:00:00Z50.1214.532.00.020056.2130.265747MVFRMETAR286.02018-12-17 21:16:49R›‹– )5     3LKCV 172100Z 14005KT 9999 -RA BKN035 OVC047 01/00 Q1026 NOSIG RMK BLU BLULKCV2018-12-17T21:00:00Z49.9315.381.00.014056.2130.295275TRUE-RAVFRSPECI242.02018-12-17 21:16:49 cV¦ç&c=›‹–)5    3LEBL 172100Z 32008KT 290V350 9999 FEW040 09/04 Q1029 NOSIGLEBL2018-12-17T21:00:00Z41.272.079.04.032086.2130.383858TRUEVFRMETAR6.02018-12-17 21:16:49;›‹–(u5    3LECO 172100Z 15013KT 120V200 CAVOK 11/05 Q1019 NOSIGLECO2018-12-17T21:00:00Z43.28-8.3711.05.0150136.2130.088583TRUEVFRMETAR103.02018-12-17 21:16:499›‹–(y5    3LEDA 172100Z AUTO 03003KT 010V080 9999 NCD 03/03 Q1029LEDA2018-12-17T21:00:00Z41.730.533.03.03036.2130.383858TRUEVFRMETAR350.02018-12-17 21:16:49*›‹–(e5   3LEGE 172100Z VRB02KT 9999 FEW028 06/06 Q1029LEGE2018-12-17T21:00:00Z41.882.776.06.0026.2130.383858VFRMETAR129.02018-12-17 21:16:49$›‹–(Y5   3LEGR 172100Z VRB01KT CAVOK 06/04 Q1028LEGR2018-12-17T21:00:00Z37.17-3.776.04.0016.2130.35433VFRMETAR559.02018-12-17 21:16:49 nAŒÑn'›‹–(Y5   3DAOI 172100Z 07004KT CAVOK 11/10 Q1029DAOI2018-12-17T21:00:00Z36.221.3211.010.07046.2130.383858VFRMETAR143.02018-12-17 21:16:490›‹–(e5    3LEAL 172100Z 29003KT CAVOK 08/04 Q1030 NOSIGLEAL2018-12-17T21:00:00Z38.27-0.558.04.029036.2130.413385TRUEVFRMETAR31.02018-12-17 21:16:495›‹–(u5   3LEAM 172100Z 34004KT 310V010 9999 FEW040 12/08 Q1029LEAM2018-12-17T21:00:00Z36.85-2.3712.08.034046.2130.383858VFRMETAR21.02018-12-17 21:16:49/›‹–(e5    3LEAS 172100Z VRB02KT CAVOK 07/03 Q1021 NOSIGLEAS2018-12-17T21:00:00Z43.53-6.027.03.0026.2130.147638TRUEVFRMETAR134.02018-12-17 21:16:499›‹–(u5    3LEBB 172100Z 10005KT 060V140 CAVOK 11/03 Q1023 NOSIGLEBB2018-12-17T21:00:00Z43.28-2.9211.03.010056.2130.206694TRUEVFRMETAR34.02018-12-17 21:16:49 U«ûB,›‹–(e5   3DABS 172100Z 22004KT 9999 FEW040 05/02 Q1029DABS2018-12-17T21:00:00Z35.438.125.02.022046.2130.383858VFRMETAR813.02018-12-17 21:16:493›‹–(s5   3DAOB 172100Z 18004KT 9999 FEW026 SCT216 06/04 Q1030DAOB2018-12-17T21:00:00Z35.331.476.04.018046.2130.413385VFRMETAR989.02018-12-17 21:16:49*›‹–([5   3DAUA 172100Z 01011KT CAVOK 14/M01 Q1025DAUA2018-12-17T21:00:00Z27.83-0.1814.0-1.010116.2130.265747VFRMETAR263.02018-12-17 21:16:49$›‹–(Y5   3DAUB 172100Z 09007KT CAVOK 15/04 Q1028DAUB2018-12-17T21:00:00Z34.785.7215.04.09076.2130.35433VFRMETAR87.02018-12-17 21:16:49%›‹–(Y5   3DAUG 172100Z 00000KT CAVOK 15/05 Q1029DAUG2018-12-17T21:00:00Z32.373.8215.05.0006.2130.383858VFRMETAR450.02018-12-17 21:16:49 2S¿ø2@›‹–$)5   3SLLP 172100Z VRB02KT 9999 FEW015 FEW020CB BKN200 12/06 Q1034SLLP2018-12-17T21:00:00Z-16.52-68.1712.06.0026.2130.531496VFRSPECI4014.02018-12-17 21:16:49A›‹–#)5   3SLTJ 172100Z 15004KT 9999 SCT030 SCT070 BKN200 25/17 Q1015SLTJ2018-12-17T21:00:00Z-21.55-64.7225.017.015046.2129.970472VFRSPECI1858.02018-12-17 21:16:49H›‹–") 5    3SLTR 172100Z 00000KT 7000 -RA FEW006 FEW020CB OVC070 23/22 Q1011SLTR2018-12-17T21:00:00Z-14.83-64.9223.022.0004.3529.852362-RAMVFRSPECI157.02018-12-17 21:16:49@›‹–!(}5  3SLVR 172100Z 35013G23KT 9999 SCT020 FEW030CB 27/21 Q1011SLVR2018-12-17T21:00:00Z-17.63-63.1227.021.035013236.2129.852362VFRSPECI373.02018-12-17 21:16:49'›‹– (Y5   3DAAS 172100Z 34004KT CAVOK 03/01 Q1030DAAS2018-12-17T21:00:00Z36.185.333.01.034046.2130.413385VFRMETAR1038.02018-12-17 21:16:49 07x¼ø0B›‹–))5     3LFSD 172100Z AUTO 28003KT 3300 R35/1400U BR NSC 00/M00 Q1028LFSD2018-12-17T21:00:00Z47.275.070.00.028032.0530.35433TRUEBRIFRMETAR227.02018-12-17 21:16:49>›‹–((5    3SYCJ 172100Z 05012KT 9999 FEW017 BKN100 27/23 Q1013 NOSIGSYCJ2018-12-17T21:00:00Z6.5-58.2527.023.050126.2129.911417TRUEVFRSPECI30.02018-12-17 21:16:496›‹–'(s5   3LPHR 172100Z 30014KT 9999 SCT014 SCT030 13/08 Q1015LPHR2018-12-17T21:00:00Z38.52-28.7213.08.0300146.2129.970472VFRSPECI41.02018-12-17 21:16:499›‹–&(u5   3SGAS 172100Z 01010KT 330V030 9999 FEW040 36/21 Q1007SGAS2018-12-17T21:00:00Z-25.25-57.5236.021.010106.2129.734253VFRSPECI101.02018-12-17 21:16:49C›‹–%)5   3SLCB 172100Z 11010KT 050V180 9999 BKN033 FEW036CB 23/08 Q1020SLCB2018-12-17T21:00:00Z-17.42-66.1823.08.0110106.2130.11811VFRSPECI2548.02018-12-17 21:16:49 e,|Ïe0›‹–.(e5   3SLYA 172100Z 06008KT 9999 SCT023 34/22 Q1006SLYA2018-12-17T21:00:00Z-21.97-63.6534.022.06086.2129.704725VFRSPECI645.02018-12-17 21:16:49.›‹–-(e5   3SBTF 172100Z 08003KT 9999 FEW020 28/24 Q1009SBTF2018-12-17T21:00:00Z-3.37-64.7228.024.08036.2129.793306VFRSPECI47.02018-12-17 21:16:49'›‹–,(Y5   3LPBJ 172100Z 15003KT CAVOK 08/05 Q1027LPBJ2018-12-17T21:00:00Z38.08-7.938.05.015036.2130.324802VFRSPECI194.02018-12-17 21:16:49*›‹–+(e5   3LPLA 172100Z /////KT 9999 SCT020 12/10 Q1014LPLA2018-12-17T21:00:00Z38.77-27.112.010.06.2129.940945VFRMETAR55.02018-12-17 21:16:49N›‹–*)5    3LFRT 172100Z AUTO 20008KT 170V250 9999 FEW018 SCT026 BKN036 11/08 Q1019LFRT2018-12-17T21:00:00Z48.52-2.8511.08.020086.2130.088583TRUEVFRSPECI136.02018-12-17 21:16:49 Â/V‡Â?›‹–2)5   3SLRQ 172100Z 00000KT 9999 SCT013 FEW017CB BKN200 25/25 Q1009SLRQ2018-12-17T21:00:00Z-14.42-67.525.025.0006.2129.793306VFRSPECI203.02018-12-17 21:16:49I›‹–1)5    3SLRY 172100Z 00000KT 7000 VCSH SCT020 FEW023CB BKN200 24/24 Q1008SLRY2018-12-17T21:00:00Z-14.3-67.3724.024.0004.3529.763779VCSHMVFRSPECI280.02018-12-17 21:16:49S›‹–0)5   3SLSA 172100Z 32005KT 7000 VCSH SCT017 FEW023CB SCT070 OVC200 25/23 Q10106SLSA2018-12-17T21:00:00Z-13.77-65.4325.023.032054.35VCSHOVC20000MVFRSPECI144.02018-12-17 21:16:49K›‹–/)5   3SLSI 172100Z 36015G25KT 5000 VCSH BKN017 FEW030CB 29/23 Q1011SLSI2018-12-17T21:00:00Z-16.37-60.9529.023.036015253.1129.852362VCSHMVFRSPECI413.02018-12-17 21:16:49 $9Ì$Z›‹–7)5   3SLJO 172100Z 03004KT 8000 VCSH FEW020 FEW023CB SCT070 BKN200 24/23 Q1009SLJO2018-12-17T21:00:00Z-13.07-64.6724.023.03044.9729.793306VCSHBKN20000MVFRSPECI140.02018-12-17 21:16:49B›‹–6)5   3SLMG 172100Z 32004KT 9999 FEW017 FEW023CB SCT200 28/24 Q1009SLMG2018-12-17T21:00:00Z-13.27-64.0728.024.032046.2129.793306VFRSPECI141.02018-12-17 21:16:49/›‹–5(e5   3SLPS 172100Z 00000KT 9999 FEW020 34/25 Q1008SLPS2018-12-17T21:00:00Z-18.98-57.8234.025.0006.2129.763779VFRSPECI135.02018-12-17 21:16:492›‹–4(e5   3SLRB 172100Z 36010KT 9999 FEW020 34/23 Q1011SLRB2018-12-17T21:00:00Z-18.32-59.7534.023.0360106.2129.852362VFRSPECI284.02018-12-17 21:16:49A›‹–3)5   3SLRI 172100Z 03004KT 9999 SCT017 FEW020CB BKN200 28/22 Q1011SLRI2018-12-17T21:00:00Z-11.02-66.0828.022.03046.2129.852362VFRSPECI135.02018-12-17 21:16:49 R2t¾R7›‹–<(s5   3SBSG 172100Z 16010KT 9999 SCT020 SCT100 27/23 Q1014SBSG2018-12-17T21:00:00Z-5.77-35.3727.023.0160106.2129.940945VFRSPECI83.02018-12-17 21:16:49)›‹–;(Y5   3SBTT 172100Z 21005KT CAVOK 30/23 Q1009SBTT2018-12-17T21:00:00Z-4.25-69.9330.023.021056.2129.793306VFRSPECI85.02018-12-17 21:16:490›‹–:(e5   3SLCA 172100Z 36005KT 9999 SCT033 31/18 Q1010SLCA2018-12-17T21:00:00Z-20.0-63.5331.018.036056.2129.822834VFRSPECI798.02018-12-17 21:16:498›‹–9(s5   3SLCO 172100Z 32003KT 9999 FEW012 BKN080 25/24 Q1011SLCO2018-12-17T21:00:00Z-11.03-68.7825.024.032036.2129.852362VFRSPECI272.02018-12-17 21:16:49H›‹–8) 5    3SLCP 172100Z 30010KT 9999 TS SCT015 FEW030CB OVC070 23/20 Q1015SLCP2018-12-17T21:00:00Z-16.15-62.0223.020.0300106.2129.970472TSVFRSPECI497.02018-12-17 21:16:49 KIwÀK0›‹–A(i5   3GCRR 172100Z 02005KT 350V050 CAVOK 17/12 Q1024GCRR2018-12-17T21:00:00Z28.93-13.5817.012.02056.2130.236221VFRSPECI40.02018-12-17 21:16:499›‹–@(u5    3GCTS 172100Z 04003KT 360V070 CAVOK 18/03 Q1023 NOSIGGCTS2018-12-17T21:00:00Z28.05-16.5718.03.04036.2130.206694TRUEVFRSPECI72.02018-12-17 21:16:491›‹–?(e5    3GCXO 172100Z VRB02KT CAVOK 15/07 Q1025 NOSIGGCXO2018-12-17T21:00:00Z28.48-16.3515.07.0026.2130.265747TRUEVFRSPECI632.02018-12-17 21:16:49L›‹–>)5    3GEML 172100Z AUTO 10004KT 070V140 9999 SCT014/// SCT019/// 16/13 Q1028GEML2018-12-17T21:00:00Z35.27-2.9516.013.010046.2130.35433TRUEVFRSPECI55.02018-12-17 21:16:491›‹–=(e5   3SBPP 172100Z 18004KT 9999 BKN025 29/21 Q1014SBPP2018-12-17T21:00:00Z-22.55-55.729.021.018046.2129.940945MVFRSPECI660.02018-12-17 21:16:49 Y?‘Ù*YK›‹–F)5     3EHLW 172100Z AUTO 21007KT 9000 BR FEW016 BKN028 BKN031 04/04 Q1020 BLUEHLW2018-12-17T21:00:00Z53.225.754.04.021075.5930.11811TRUEBRMVFRSPECI2.02018-12-17 21:16:49)›‹–E(Y5   3GCFV 172100Z 33006KT CAVOK 18/12 Q1024GCFV2018-12-17T21:00:00Z28.43-13.8718.012.033066.2130.236221VFRSPECI23.02018-12-17 21:16:492›‹–D(c5    3GCHI 172100Z AUTO 21007KT CAVOK 20/14 Q1023GCHI2018-12-17T21:00:00Z27.82-17.8720.014.021076.2130.206694TRUEVFRSPECI30.02018-12-17 21:16:49(›‹–C(Y5   3GCLA 172100Z 30004KT CAVOK 19/09 Q1023GCLA2018-12-17T21:00:00Z28.62-17.7519.09.030046.2130.206694VFRSPECI31.02018-12-17 21:16:49;›‹–B(w5    3GCLP 172100Z 32004KT 280V340 CAVOK 19/M00 Q1023 NOSIGGCLP2018-12-17T21:00:00Z27.92-15.3719.00.032046.2130.206694TRUEVFRSPECI25.02018-12-17 21:16:49 +;l—Û+*›‹–K(Y5   3SAZN 172100Z 23005KT CAVOK 25/01 Q1018SAZN2018-12-17T21:00:00Z-38.95-68.1525.01.023056.2130.059055VFRMETAR271.02018-12-17 21:16:496›‹–J(q5    3DIAP 172100Z 22006KT 9999 FEW015 29/25 Q1013 NOSIGDIAP2018-12-17T21:00:00Z5.25-3.9229.025.022066.2129.911417TRUEVFRMETAR8.02018-12-17 21:16:49O›‹–I)5   3KFME 172100Z AUTO 30009G16KT 280V340 10SM CLR 10/M02 A2985 RMK AO1KFME2018-12-17T21:00:00Z39.08-76.7710.0-2.030091610.029.84941TRUETRUEVFRMETAR46.02018-12-17 21:16:49I›‹–H)5    3KMWK 172100Z AUTO 28008KT 10SM CLR 15/M02 A3000 RMK AO2 T01471017KMWK2018-12-17T21:00:00Z36.47-80.5514.7-1.7280810.030.0TRUETRUEVFRMETAR380.02018-12-17 21:16:49?›‹–G)5    3FOOL 172100Z 25004KT 230V300 9999 FEW012 27/25 Q1013 NOSIGFOOL2018-12-17T21:00:00Z0.459.4227.025.025046.2129.911417TRUEVFRMETAR15.02018-12-17 21:16:49 !,wªó!L›‹–P)5    3UTAK 172100Z 10010KT 9999 BKN041 OVC100 02/M01 Q1026 R34L/19//60 NOSIGUTAK2018-12-17T21:00:00Z40.0553.02.0-1.0100106.2130.295275TRUEVFRMETAR85.02018-12-17 21:16:491›‹–O(e5    3UTAV 172100Z 36008KT CAVOK 02/00 Q1027 NOSIGUTAV2018-12-17T21:00:00Z39.0863.622.00.036086.2130.324802TRUEVFRMETAR192.02018-12-17 21:16:49G›‹–N) 5    3UTAT 172100Z 35004KT 9999 OVC015 M02/M05 Q1030 R26/CLRD70 NOSIGUTAT2018-12-17T21:00:00Z41.7759.83-2.0-5.035046.2130.413385TRUEMVFRMETAR83.02018-12-17 21:16:49/›‹–M(e5   3SARF 172100Z 02009KT 9999 FEW020 36/23 Q1006SARF2018-12-17T21:00:00Z-26.22-58.2236.023.02096.2129.704725VFRMETAR60.02018-12-17 21:16:49N›‹–L)5    3SARL 172100Z 14021KT 8000 -TSRA SCT015 OVC035 FEW045CB 21/20 Q1010SARL2018-12-17T21:00:00Z-29.67-57.1321.020.0140214.9729.822834-TSRAMVFRMETAR70.02018-12-17 21:16:49 «6Yu«D›‹–T)5   3UTDK 172100Z 00000MPS 9999 NSC 05/02 Q1026 R01/09//70 RMK QFE712/0949UTDK2018-12-17T21:00:00Z37.9869.85.02.0006.2130.295275VFRMETAR699.02018-12-17 21:16:49^›‹–S)C5    3UTDT 172100Z 00000MPS 0400 R35/0900 FG SCT015 BKN150 02/02 Q1026 R35/////// RMK QFE729/0973UTDT2018-12-17T21:00:00Z37.8768.872.02.0000.2530.295275FGLIFRMETAR449.02018-12-17 21:16:49W›‹–R)/5     3UTDL 172100Z 16002MPS 3700 BR OVC086 04/02 Q1025 R08/CLRD70 NOSIG RMK QFE729/0972UTDL2018-12-17T21:00:00Z40.2269.74.02.016042.330.265747TRUEBRIFRMETAR442.02018-12-17 21:16:49D›‹–Q)5    3UTAA 172100Z 11004KT 9999 OVC011 04/02 Q1027 R88/290055 NOSIGUTAA2018-12-17T21:00:00Z37.9858.374.02.011046.2130.324802TRUEMVFRMETAR210.02018-12-17 21:16:49 Æ.[’ƁF›‹–X)5   3UCFL 172100Z 35002MPS 9999 SCT030CB BKN100 M01/M05 Q1020 R07/CLRD70UCFL2018-12-17T21:00:00Z42.5876.7-1.0-5.035046.2130.11811VFRMETAR1648.02018-12-17 21:16:49C›‹–W) 5    3UDYZ 172100Z 28001KT 2300 BR SCT033 02/00 Q1021 R09/010070 NOCIGUDYZ2018-12-17T21:00:00Z40.1544.42.00.028011.4330.147638BRIFRMETAR865.02018-12-17 21:16:49M›‹–V)5     3UDSG 172100Z 12003KT 2800 BR BKN040 M03/M05 Q1019 R02/CLRD70 NOSIGUDSG2018-12-17T21:00:00Z40.7543.87-3.0-5.012031.7430.088583TRUEBRIFRMETAR1524.02018-12-17 21:16:49L›‹–U)5    3UTDD 172100Z VRB01MPS 7000 NSC 04/M00 Q1026 R09/D NOSIG RMK QFE700/0934UTDD2018-12-17T21:00:00Z38.5368.824.00.0024.3530.295275TRUEMVFRMETAR803.02018-12-17 21:16:49 ½ Q½M›‹–\) 5     3ORER 172100Z 30003KT 0600 DZ FG SCT007 BKN020 10/10 Q1021 NOSIGORER2018-12-17T21:00:00Z36.2343.9710.010.030030.3730.147638TRUEDZ FGLIFRMETAR409.02018-12-17 21:16:49;›‹–[({5    3ORSU 172100Z 10014 6000 RA FEW035TCU BKN040 08/08 Q1020ORSU2018-12-17T21:00:00Z35.5745.328.08.0100143.7330.11811RAMVFRMETAR761.02018-12-17 21:16:49I›‹–Z) 5     3UCFM 172100Z 22004MPS 3300 BR NSC M00/M02 Q1017 R26/19//60 NOSIGUCFM2018-12-17T21:00:00Z43.0774.480.0-2.022082.0530.029528TRUEBRIFRMETAR633.02018-12-17 21:16:49Z›‹–Y)75     3UCFO 172100Z VRB01MPS 1100 R12/P1500N BR FEW050CB OVC133 02/01 Q1023 R12/CLRD70 NOSIGUCFO2018-12-17T21:00:00Z40.672.82.01.0020.6830.206694TRUEBRLIFRMETAR884.02018-12-17 21:16:49 ‹=xt‹c›‹–`)=5     3UATT 172100Z 06002MPS 9999 -SHSN OVC021CB M05/M07 Q1032 R13/490538 NOSIG RMK QFE754/1005UATT2018-12-17T21:00:00Z50.2557.2-5.0-7.06046.2130.47244TRUE-SHSNMVFRMETAR227.02018-12-17 21:16:49~›‹–_)w5    3UAUU 172100Z 30002MPS 0600 R15/1200 FZFG OVC003 M12/M14 Q1032 R15/850149 TEMPO 0400 FZFG VV002 RMK QBB090 QFE757/1010UAUU2018-12-17T21:00:00Z53.263.55-12.0-14.030040.3730.47244FZFGLIFRMETAR182.02018-12-17 21:16:49?›‹–^(5    3ORMM 172100Z 13012KT 9999 FEW035 BKN100 19/14 Q1019 NOSIGORMM2018-12-17T21:00:00Z30.5747.6719.014.0130126.2130.088583TRUEVFRMETAR2.02018-12-17 21:16:49=›‹–](w5     3ORNI 172100Z 29012KT 4000 BR FEW030 13/12 Q1018 NOSIGORNI2018-12-17T21:00:00Z31.9844.413.012.0290122.4930.059055TRUEBRIFRMETAR53.02018-12-17 21:16:49 z8`z`›‹–d)55     3UASP 172100Z 24002MPS 9999 -SN OVC018 M09/M10 Q1030 R21/490250 NOSIG RMK QFE761/1015UASP2018-12-17T21:00:00Z52.277.07-9.0-10.024046.2130.413385TRUE-SNMVFRMETAR125.02018-12-17 21:16:49R›‹–c)!5    3UARR 172100Z 01004MPS CAVOK M17/M18 Q1035 R04/720250 NOSIG RMK QFE773/1031UARR2018-12-17T21:00:00Z51.1551.53-17.0-18.01086.2130.561024TRUEVFRMETAR38.02018-12-17 21:16:49_›‹–b)=5    3UATE 172100Z 10004MPS 080V140 9999 OVC014 M01/M04 Q1031 R12/0///70 NOSIG RMK QFE771/1028UATE2018-12-17T21:00:00Z43.8751.1-1.0-4.010086.2130.442913TRUEMVFRMETAR22.02018-12-17 21:16:49]›‹–a)35     3UATG 172100Z 03003MPS 5000 BR OVC016 M05/M05 Q1033 R32/82//65 NOSIG RMK QFE776/1035UATG2018-12-17T21:00:00Z47.1251.83-5.0-5.03063.1130.501968TRUEBRMVFRMETAR-22.02018-12-17 21:16:49 v#Ryv}›‹–h)i5     3UAII 172100Z 26007MPS 1000 R28/1000 SHRASN BKN002 OVC021CB 00/00 Q1024 R28/2///50 NOSIG RMK QBB080 QFE731/0974UAII2018-12-17T21:00:00Z42.3769.480.00.0260140.6230.236221TRUESHRA SNLIFRMETAR422.02018-12-17 21:16:49S›‹–g)!5    3UAKK 172100Z 08003MPS CAVOK M18/M20 Q1025 R05/920552 NOSIG RMK QFE721/0962UAKK2018-12-17T21:00:00Z49.6773.33-18.0-20.08066.2130.265747TRUEVFRMETAR538.02018-12-17 21:16:49K›‹–f)5    3UAOO 172100Z 29001MPS 9999 OVC008 M03/M03 Q1023 NOSIG RMK QFE755/1007UAOO2018-12-17T21:00:00Z44.765.6-3.0-3.029026.2130.206694TRUEIFRMETAR129.02018-12-17 21:16:49W›‹–e)-5    3UASK 172100Z VRB01MPS 9999 BKN053 M10/M11 Q1031 R12/490242 NOSIG RMK QFE748/0997UASK2018-12-17T21:00:00Z50.0382.5-10.0-11.0026.2130.442913TRUEVFRMETAR286.02018-12-17 21:16:49 2ô2V›‹–l)'5    3RJCC 172100Z VRB01KT 0200 R01L/0350N R01R/0450V0600N FZFG VV003 M04/M04 Q1004RJCC2018-12-17T21:00:00Z42.77141.67-4.0-4.0010.1229.64567FZFGLIFR300METAR30.02018-12-17 21:16:49‚ ›‹–k)‚ 5    3UAAA 172100Z 26002MPS 0900 R23R/P2000 R23L/P2000 FZFG SCT050 BKN100 M01/M02 Q1018 R23R/31//50 R23L/3///50 TEMPO 0300 FZFG BKN003UAAA2018-12-17T21:00:00Z43.3577.03-1.0-2.026040.5630.059055FZFGLIFRMETAR681.02018-12-17 21:16:49Q›‹–j)5     3UADD 172100Z 26009MPS 9999 -RA OVC025 03/02 Q1019 NOSIG RMK QFE707/0943UADD2018-12-17T21:00:00Z42.8571.33.02.0260176.2130.088583TRUE-RAMVFRMETAR665.02018-12-17 21:16:49‚›‹–i)‚5    3UACC 172100Z 33001MPS 0300 R22/0800 PRFG SCT004 BKN033 M11/M12 Q1028 R22/450355 TEMPO 0300 FZFG VV002 RMK QBB120 QFE739/0986UACC2018-12-17T21:00:00Z51.0271.47-11.0-12.033020.1930.35433PRFGLIFRMETAR355.02018-12-17 21:16:49 MK…ÈMB›‹–q) 5  3DTTA 172100Z 29014G24KT 270V330 9999 SCT026 SCT033 14/06 Q1025DTTA2018-12-17T21:00:00Z36.8510.2214.06.029014246.2130.265747VFRMETAR4.02018-12-17 21:16:49-›‹–p(e5    3DTTG 172100Z VRB02KT CAVOK 11/00 Q1027 NOSIGDTTG2018-12-17T21:00:00Z33.739.9211.00.0026.2130.324802TRUEVFRMETAR5.02018-12-17 21:16:497›‹–o(q5    3DTTJ 172100Z 33016KT 9999 FEW030 16/05 Q1027 NOSIGDTTJ2018-12-17T21:00:00Z33.8710.7716.05.0330166.2130.324802TRUEVFRMETAR4.02018-12-17 21:16:49@›‹–n)5    3DTTX 172100Z 25005KT 220V280 9999 FEW030 14/03 Q1026 NOSIGDTTX2018-12-17T21:00:00Z34.7210.6714.03.025056.2130.295275TRUEVFRMETAR23.02018-12-17 21:16:49/›‹–m(e5    3DTTZ 172100Z 02006KT CAVOK 12/03 Q1027 NOSIGDTTZ2018-12-17T21:00:00Z33.928.0812.03.02066.2130.324802TRUEVFRMETAR93.02018-12-17 21:16:49 xI’å2x4›‹–v(q5    3TLPL 172100Z 10015KT 9999 FEW026 27/21 Q1016 NOSIGTLPL2018-12-17T21:00:00Z13.75-60.9527.021.0100156.2130.0TRUEVFRMETAR3.02018-12-17 21:16:49-›‹–u(e5   3TDCF 172100Z 16006KT 9999 FEW026 27/17 Q1014TDCF2018-12-17T21:00:00Z15.33-61.427.017.016066.2129.940945VFRMETAR5.02018-12-17 21:16:49'›‹–t(_5   3DTKA 172100Z AUTO 29020KT /// 15/06 Q1027DTKA2018-12-17T21:00:00Z36.988.8815.06.02902030.324802TRUEMETAR21.02018-12-17 21:16:491›‹–s(e5    3DTMB 172100Z 27012KT CAVOK 14/06 Q1026 NOSIGDTMB2018-12-17T21:00:00Z35.7710.7514.06.0270126.2130.295275TRUEVFRMETAR2.02018-12-17 21:16:491›‹–r(e5    3DTNH 172100Z 28013KT CAVOK 13/06 Q1025 NOSIGDTNH2018-12-17T21:00:00Z36.0710.4313.06.0280136.2130.265747TRUEVFRMETAR2.02018-12-17 21:16:49 F>¿ÿF3›‹–{(m5    3ZSFZ 172100Z VRB01MPS 9000 NSC 08/06 Q1025 NOSIGZSFZ2018-12-17T21:00:00Z25.93119.678.06.0025.5930.265747TRUEVFRMETAR85.02018-12-17 21:16:49:›‹–z(s5     3ZSNB 172100Z 15001MPS 5000 BR NSC 02/01 Q1025 NOSIGZSNB2018-12-17T21:00:00Z29.83121.472.01.015023.1130.265747TRUEBRMVFRMETAR4.02018-12-17 21:16:49:›‹–y(q5    3ZSQD 172100Z 21001MPS 6000 NSC M03/M05 Q1021 NOSIGZSQD2018-12-17T21:00:00Z36.27120.38-3.0-5.021023.7330.147638TRUEMVFRMETAR77.02018-12-17 21:16:499›‹–x(s5    3ZUGY 172100Z 24002MPS 9999 OVC040 09/03 Q1022 NOSIGZUGY2018-12-17T21:00:00Z26.53106.89.03.024046.2130.177166TRUEVFRMETAR1074.02018-12-17 21:16:49<›‹–w(y5     3ZUUU 172100Z 00000MPS 2700 BR SCT050 07/06 Q1024 NOSIGZUUU2018-12-17T21:00:00Z30.58103.957.06.0001.6830.236221TRUEBRIFRMETAR508.02018-12-17 21:16:49 ^HƒÌ^2›‹—(g5    3ZGNN 172100Z 25001MPS CAVOK 09/07 Q1022 NOSIGZGNN2018-12-17T21:00:00Z22.62108.179.07.025026.2130.177166TRUEVFRMETAR73.02018-12-17 21:16:490›‹–(g5    3ZGOW 172100Z 03002MPS CAVOK 10/08 Q1023 NOSIGZGOW2018-12-17T21:00:00Z23.55116.510.08.03046.2130.206694TRUEVFRMETAR3.02018-12-17 21:16:491›‹–~(g5    3ZGSZ 172100Z 03003MPS CAVOK 13/05 Q1022 NOSIGZGSZ2018-12-17T21:00:00Z22.63113.813.05.03066.2130.177166TRUEVFRMETAR18.02018-12-17 21:16:49?›‹–}(w5     3ZLXY 172100Z 00000MPS 5000 BR NSC M08/M10 Q1022 NOSIGZLXY2018-12-17T21:00:00Z34.43108.75-8.0-10.0003.1130.177166TRUEBRMVFRMETAR479.02018-12-17 21:16:492›‹–|(g5    3ZSAM 172100Z 02003MPS CAVOK 13/05 Q1024 NOSIGZSAM2018-12-17T21:00:00Z24.53118.1313.05.02066.2130.236221TRUEVFRMETAR18.02018-12-17 21:16:49 TEŠÏT<›‹—(u5    3FBSK 172100Z 12005KT 080V140 CAVOK 27/08 Q1017 NOSIGFBSK2018-12-17T21:00:00Z-24.5525.9227.08.012056.2130.029528TRUEVFRMETAR1005.02018-12-17 21:16:493›‹—(u5   3FAMM 172100Z AUTO 07003KT //// // ////// 25/08 Q1019FAMM2018-12-17T21:00:00Z-25.825.5225.08.070330.088583TRUEMETAR1277.02018-12-17 21:16:495›‹—(u5   3FAPP 172100Z AUTO 17006KT //// // ////// 23/13 Q1020FAPP2018-12-17T21:00:00Z-23.8329.4523.013.0170630.11811TRUEMETAR1242.02018-12-17 21:16:495›‹—(u5   3FAUT 172100Z AUTO 27006KT //// // ////// 26/12 Q1015FAUT2018-12-17T21:00:00Z-31.5228.6726.012.0270629.970472TRUEMETAR732.02018-12-17 21:16:495›‹—(m5    3ZGKL 172100Z 00000MPS 7000 NSC 07/06 Q1023 NOSIGZGKL2018-12-17T21:00:00Z25.22110.037.06.0004.3530.206694TRUEMVFRMETAR166.02018-12-17 21:16:49 `PÐ`4›‹— (i5    3ZYTL 172100Z 24004MPS CAVOK 04/M04 Q1018 NOSIGZYTL2018-12-17T21:00:00Z38.97121.534.0-4.024086.2130.059055TRUEVFRMETAR97.02018-12-17 21:16:490›‹— (k5    3ZYTX 172100Z VRB01MPS CAVOK M06/M11 Q1016 NOSIGZYTX2018-12-17T21:00:00Z41.63123.48-6.0-11.0026.2130.0TRUEVFRMETAR35.02018-12-17 21:16:49G›‹—)5     3FAPE 172100Z 14006KT 090V200 5000 BR BKN002 23/22 Q1009 NOSIGFAPE2018-12-17T21:00:00Z-33.9725.623.022.014063.1129.793306TRUEBRLIFRMETAR60.02018-12-17 21:16:49-›‹—(u5    3FAWK 172100Z AUTO 08009KT //// // ////// ///// Q1024FAWK2018-12-17T21:00:00Z-25.8228.2280930.236221TRUESPECI1500.02018-12-17 21:16:49*›‹—(Y5   3FBMN 172100Z 12007KT CAVOK 29/11 Q1015FBMN2018-12-17T21:00:00Z-19.9723.4229.011.012076.2129.970472VFRMETAR900.02018-12-17 21:16:49 C;v¼C;›‹—(s5     3ZSHC 172100Z 24002MPS 5000 BR NSC 03/02 Q1025 NOSIGZSHC2018-12-17T21:00:00Z30.22120.433.02.024043.1130.265747TRUEBRMVFRMETAR43.02018-12-17 21:16:492›‹—(m5    3ZSPD 172100Z VRB01MPS 6000 NSC 02/01 Q1024 NOSIGZSPD2018-12-17T21:00:00Z31.15121.82.01.0023.7330.236221TRUEMVFRMETAR4.02018-12-17 21:16:494›‹— (m5    3ZSSS 172100Z 22002MPS 6000 NSC 02/02 Q1024 NOSIGZSSS2018-12-17T21:00:00Z31.2121.332.02.022043.7330.236221TRUEMVFRMETAR7.02018-12-17 21:16:49?›‹— (w5     3ZWSH 172100Z VRB02MPS 5000 FU NSC M05/M12 Q1023 NOSIGZWSH2018-12-17T21:00:00Z39.5576.02-5.0-12.0043.1130.206694TRUEFUMVFRMETAR1380.02018-12-17 21:16:49?›‹— (}5     3ZWWW 172100Z 00000MPS 1600 BR BKN030 M05/M08 Q1028 NOSIGZWWW2018-12-17T21:00:00Z43.8887.47-5.0-8.0000.9930.35433TRUEBRLIFRMETAR654.02018-12-17 21:16:49 9BƒÀþ9?›‹—({5    3ZBAA 172100Z 29002MPS 250V320 CAVOK M07/M13 Q1019 NOSIGZBAA2018-12-17T21:00:00Z40.07116.58-7.0-13.029046.2130.088583TRUEVFRMETAR30.02018-12-17 21:16:49<›‹—(w5     3ZBSJ 172100Z 00000MPS 4000 HZ NSC M07/M11 Q1019 NOSIGZBSJ2018-12-17T21:00:00Z38.28114.7-7.0-11.0002.4930.088583TRUEHZIFRMETAR71.02018-12-17 21:16:49=›‹—(w5     3ZBTJ 172100Z VRB01MPS 5000 HZ NSC M01/M10 Q1019 NOSIGZBTJ2018-12-17T21:00:00Z39.12117.35-1.0-10.0023.1130.088583TRUEHZMVFRMETAR3.02018-12-17 21:16:499›‹—(q5    3ZBYN 172100Z VRB01MPS 8000 NSC M08/M14 Q1020 NOSIGZBYN2018-12-17T21:00:00Z37.77112.63-8.0-14.0024.9730.11811TRUEMVFRMETAR779.02018-12-17 21:16:498›‹—(w5    3ZGGG 172100Z 06002MPS 350V080 CAVOK 10/04 Q1023 NOSIGZGGG2018-12-17T21:00:00Z23.4113.310.04.06046.2130.206694TRUEVFRMETAR15.02018-12-17 21:16:49 X’؁4›‹—(u5   3FAKM 172100Z AUTO 22001KT //// // ////// 24/07 Q1018FAKM2018-12-17T21:00:00Z-28.824.7724.07.0220130.059055TRUEMETAR1192.02018-12-17 21:16:494›‹—(u5   3FAKN 172100Z AUTO 08010KT //// // ////// 23/20 Q1019FAKN2018-12-17T21:00:00Z-25.3831.123.020.0801030.088583TRUEMETAR862.02018-12-17 21:16:49@›‹—({5    3FALE 172100Z 19004KT 150V210 8000 NSC 23/21 Q1010 NOSIGFALE2018-12-17T21:00:00Z-29.6231.1223.021.019044.9729.822834TRUEMVFRMETAR109.02018-12-17 21:16:495›‹—(e5    3FAOR 172100Z 04010KT CAVOK 18/11 Q1025 NOSIGFAOR2018-12-17T21:00:00Z-26.1228.2218.011.040106.2130.265747TRUEVFRMETAR1700.02018-12-17 21:16:49g›‹—)K5    3FQLC 172100Z 12004KT 9999 TS SCT014 FEW020CB BKN070 18/18 Q1021 RMK DIST LIT TO N/E/SE/S RETSRAFQLC2018-12-17T21:00:00Z-13.2735.2518.018.012046.2130.147638TSVFRMETAR1365.02018-12-17 21:16:49 ¾Et¯¾k›‹—)I5   3CYPC 172100Z 16013KT 15SM BKN028 BKN040 M11/M16 A2946 RMK SC5SC2 LOWER LAYER LENTICULAR SLP977CYPC2018-12-17T21:00:00Z69.37-124.07-11.0-16.01601315.029.459646997.7MVFRSPECI6.02018-12-17 21:16:49?›‹—)5   3FACT 172100Z 31011KT 6000 BKN002 16/15 Q1011 TEMPO 4500 BRFACT2018-12-17T21:00:00Z-33.9718.616.015.0310113.7329.852362LIFRSPECI42.02018-12-17 21:16:49K›‹—)5     3FAGG 172100Z AUTO 10009KT 0900 R29/1300D FG VV001 22/21 Q1010FAGG2018-12-17T21:00:00Z-34.022.3722.021.010090.5629.822834TRUEFGLIFR100SPECI193.02018-12-17 21:16:495›‹—(u5   3FAHS 172100Z AUTO 10002KT //// // ////// 28/18 Q1015FAHS2018-12-17T21:00:00Z-24.3731.0228.018.0100229.970472TRUEMETAR500.02018-12-17 21:16:49 1S‘݁8›‹—"({5   3LKPD 172100Z 05003KT 010V080 CAVOK 01/M01 Q1026 RMK BLULKPD2018-12-17T21:00:00Z50.0215.731.0-1.05036.2130.295275VFRSPECI226.02018-12-17 21:16:49.›‹—!(c5    3LFAT 172100Z AUTO 16005KT CAVOK 07/06 Q1022LFAT2018-12-17T21:00:00Z50.521.627.06.016056.2130.177166TRUEVFRMETAR14.02018-12-17 21:16:49<›‹— (}5    3LFRK 172100Z AUTO 15009KT 9999 SCT016 SCT200 08/07 Q1021LFRK2018-12-17T21:00:00Z49.17-0.458.07.015096.2130.147638TRUEVFRMETAR67.02018-12-17 21:16:49X›‹—)35    3LFPN 172100Z AUTO 19008KT 9999 FEW021 BKN080 BKN140 06/06 Q1025 TEMPO 0600 FG VV///LFPN2018-12-17T21:00:00Z48.752.126.06.019086.2130.265747TRUEVFRMETAR164.02018-12-17 21:16:49I›‹—)5    3LFRC 172100Z AUTO 19013KT 9000 OVC007 09/07 Q1019 BECMG 18015G25KTLFRC2018-12-17T21:00:00Z49.63-1.479.07.0190135.5930.088583TRUEIFRMETAR138.02018-12-17 21:16:49 Ã/k†Ã=›‹—&(y5   3CYOY 172100Z AUTO 23003KT 9SM M00/M03 A2950 RMK SLP998CYOY2018-12-17T21:00:00Z46.88-71.50.0-3.023039.029.500984999.8TRUEMETAR168.02018-12-17 21:16:49_›‹—%)'5    3CYPH 172100Z AUTO 35033G40KT 3/4SM -SN OVC012 M05/M06 A2927 RMK PRESRR SLP914CYPH2018-12-17T21:00:00Z58.45-78.08-5.0-6.035033400.7529.27067991.4TRUE-SNLIFRMETAR3.02018-12-17 21:16:49>›‹—$(w5     3LKLN 172100Z AUTO 23007KT 9999 -RA OVC011 02/01 Q1026LKLN2018-12-17T21:00:00Z49.6813.272.01.023076.2130.295275TRUE-RAMVFRMETAR362.02018-12-17 21:16:49K›‹—#)5     3LKNA 172100Z VRB03KT 2500 BR BKN045 M01/M01 Q1025 NOSIG RMK YLO YLOLKNA2018-12-17T21:00:00Z49.1716.12-1.0-1.0031.5530.265747TRUEBRIFRSPECI472.02018-12-17 21:16:49 {8b{a›‹—*)%5   3CYKQ 172100Z 28017G26KT 1/2SM SN BLSN OVC015 M08/M10 A2988 RMK SN6SC2 SLP121CYKQ2018-12-17T21:00:00Z51.47-78.75-8.0-10.028017260.529.8789371012.1SN BLSNLIFRMETAR23.02018-12-17 21:16:49P›‹—))5   3CYLA 172100Z 22005KT 15SM SCT035 OVC085 M06/M08 A2922 RMK SC3AC5 SLP898CYLA2018-12-17T21:00:00Z59.28-69.58-6.0-8.0220515.029.220472989.8VFRMETAR35.02018-12-17 21:16:49`›‹—()35    3CYMH 172100Z AUTO 20003KT 080V220 9SM SCT190 BKN210 BKN240 M04/M08 A2973 RMK SLP070CYMH2018-12-17T21:00:00Z52.28-55.85-4.0-8.020039.029.7312981007.0TRUEVFRMETAR11.02018-12-17 21:16:49\›‹—')5   3CYMU 172100Z 30025G33KT 3SM -SN DRSN OVC012 M04/M05 A2929 RMK ST8 SLP926CYMU2018-12-17T21:00:00Z56.52-76.52-4.0-5.030025333.029.291338992.6-SN DRSNMVFRMETAR71.02018-12-17 21:16:49 ªHxªH›‹—.)5   3CYBX 172100Z 31003KT 15SM OVC011 M03/M04 A2976 RMK SC8 SLP083CYBX2018-12-17T21:00:00Z51.45-57.17-3.0-4.0310315.029.7608261008.3MVFRMETAR35.02018-12-17 21:16:49J›‹—-)5    3CYGV 172100Z AUTO 07009KT 9SM OVC024 M02/M03 A2965 RMK SLP043CYGV2018-12-17T21:00:00Z50.27-63.62-2.0-3.07099.029.6486231004.3TRUEMVFRMETAR33.02018-12-17 21:16:49O›‹—,) 5    3CYHA 172100Z 14007KT 1SM -SN VV023 M03/M04 A2916 RMK SN8 SLP878CYHA2018-12-17T21:00:00Z61.03-69.62-3.0-4.014071.029.161417987.8-SNLIFR2300METAR30.02018-12-17 21:16:49]›‹—+)'5    3CYKG 172100Z 30005KT 3SM -SN BR SCT008 OVC024 M07/M08 A2917 RMK ST4SC4 SLP893CYKG2018-12-17T21:00:00Z61.57-71.92-7.0-8.030053.029.170275989.3-SN BRMVFRMETAR151.02018-12-17 21:16:49 i!IiZ›‹—2)%5    3CYSJ 172100Z 01012KT 3SM -RA BR SCT004 OVC012 00/M00 A2933 RMK SF4SC4 SLP937CYSJ2018-12-17T21:00:00Z45.32-65.870.00.010123.029.329725993.7-RA BRMVFRMETAR109.02018-12-17 21:16:49L›‹—1) 5    3CYTQ 172100Z 22007KT 6SM -SN OVC026 M03/M05 A2924 RMK SC8 SLP905CYTQ2018-12-17T21:00:00Z58.67-69.95-3.0-5.022076.029.241142990.5-SNMVFRMETAR31.02018-12-17 21:16:49‚›‹—0)_5   3CYYG 172100Z 05014G20KT 3/4SM R03/4000VP6000FT/D -SN DRSN VV005 M01/M01 A2941 RMK SN8 /S05/ PRESFR SLP964CYYG2018-12-17T21:00:00Z46.27-63.12-1.0-1.05014200.7529.409449996.4DRSN -SNLIFR500METAR54.02018-12-17 21:16:49Y›‹—/)#5    3CYAS 172100Z 29011KT 15SM -SN BKN010 BKN022 M04/M05 A2917 RMK SC5SC2 SLP890CYAS2018-12-17T21:00:00Z60.02-70.0-4.0-5.02901115.029.170275989.0-SNMVFRMETAR117.02018-12-17 21:16:49 kü)AkP›‹—6)5   3CYDP 172100Z 20003KT 15SM SCT022 OVC100 M02/M10 A2943 RMK SC4AS4 SLP968CYDP2018-12-17T21:00:00Z56.53-61.67-2.0-10.0200315.029.430119996.8VFRMETAR7.02018-12-17 21:16:49b›‹—5)'5    3CYGW 172100Z AUTO 31024G35KT 1/8SM +SN BKN015 OVC024 M05/M06 A2952 RMK SLP000CYGW2018-12-17T21:00:00Z55.27-77.77-5.0-6.031024350.1329.5187021000.0TRUE+SNLIFRMETAR12.02018-12-17 21:16:49M›‹—4) 5  3CYLU 172100Z 15020G25KT 12SM OVC028 M02/M07 A2929 RMK SC8 SLP923CYLU2018-12-17T21:00:00Z58.72-65.97-2.0-7.0150202512.029.291338992.3MVFRMETAR60.02018-12-17 21:16:49~›‹—3)i5   3CYNC 172100Z 31013G27KT 1SM BLSN BKN012 OVC022 M06/M07 A2976 RMK BLSN6SC1SC1 LAST STFD OBS/NEXT 181400Z SLP079CYNC2018-12-17T21:00:00Z53.02-78.82-6.0-7.031013271.029.7608261007.9BLSNIFRMETAR14.02018-12-17 21:16:49 “+VY“@›‹—:(u5     3NZCH 172100Z AUTO 36008KT 9999 NCD 21/10 Q1006 NOSIGNZCH2018-12-17T21:00:00Z-43.47172.5521.010.036086.2129.704725TRUETRUEVFRMETAR34.02018-12-17 21:16:49w›‹—9)]5   3CYWH 172100Z 00000KT 15SM FEW004 SCT030 BKN075 OVC120 09/07 A2979 RMK SF1SC2AC2AC3 CVCTV CLD EMBD SLP090CYWH2018-12-17T21:00:00Z48.42-123.389.07.00015.029.7903541009.0OVC12000VFRMETAR10.02018-12-17 21:16:49O›‹—8)5    3CYAY 172100Z AUTO 21005KT 9SM OVC013 M02/M03 A2977 RMK ICG SLP084CYAY2018-12-17T21:00:00Z51.38-56.07-2.0-3.021059.029.7696861008.4TRUEMVFRMETAR28.02018-12-17 21:16:49O›‹—7)5   3CYDF 172100Z 04003KT 15SM FEW025 BKN200 M05/M08 A2977 RMK SC1CI5 SLP084CYDF2018-12-17T21:00:00Z49.22-57.4-5.0-8.040315.029.7696861008.4VFRMETAR22.02018-12-17 21:16:49 ¯4gˆ¯S›‹—>)5     3TTPP 172100Z 09012KT 9999 VCSH FEW025 28/23 Q1014 NOSIG RMK VCSH-NNE/NETTPP2018-12-17T21:00:00Z10.58-61.3528.023.090126.2129.940945TRUEVCSHVFRMETAR15.02018-12-17 21:16:49Y›‹—=)'5     3TTCP 172100Z 11012KT 9999 VCSH FEW018 BKN038 26/21 Q1014 NOSIG RMK VCSH N/ NWTTCP2018-12-17T21:00:00Z11.15-60.8526.021.0110126.2129.940945TRUEVCSHVFRMETAR8.02018-12-17 21:16:49G›‹—<)5     3NZAA 172100Z AUTO 19004KT 120V270 9999 NCD 21/17 Q1018 NOSIGNZAA2018-12-17T21:00:00Z-37.02174.821.017.019046.2130.059055TRUETRUEVFRMETAR6.02018-12-17 21:16:49F›‹—;)5     3NZWN 172100Z AUTO 01021KT 9999 BKN020/// 20/15 Q1013 NOSIGNZWN2018-12-17T21:00:00Z-41.32174.820.015.010216.2129.911417TRUETRUEMVFRMETAR7.02018-12-17 21:16:49 FIÆ F@›‹—C(5    3RJFR 172100Z 26010KT 9999 -SHRA FEW030 BKN045 10/01 Q1019RJFR2018-12-17T21:00:00Z33.82131.0310.01.0260106.2130.088583-SHRAVFRMETAR6.02018-12-17 21:16:494›‹—B(o5    3RJAH 172100Z VRB01KT 9999 MIFG FEW030 01/01 Q1008RJAH2018-12-17T21:00:00Z36.17140.421.01.0016.2129.763779MIFGVFRMETAR35.02018-12-17 21:16:49D›‹—A)5    3RJOH 172100Z 24010KT 9999 -SHRA FEW030 SCT035 BKN060 07/M02 Q1016RJOH2018-12-17T21:00:00Z35.47133.257.0-2.0240106.2130.0-SHRAVFRMETAR9.02018-12-17 21:16:493›‹—@(s5   3ROIG 172100Z 01009KT 9999 FEW030 SCT045 16/09 Q1022ROIG2018-12-17T21:00:00Z24.32124.1716.09.01096.2130.177166VFRMETAR7.02018-12-17 21:16:491›‹—?(s5   3RJFS 172100Z 24006KT 9999 FEW050 SCT060 08/01 Q1020RJFS2018-12-17T21:00:00Z33.15130.38.01.024066.2130.11811VFRMETAR5.02018-12-17 21:16:49 3M‹ªì33›‹—H(s5    3RJBB 172100Z 30025KT 9999 FEW025 08/M00 Q1016 NOSIGRJBB2018-12-17T21:00:00Z34.42135.258.00.0300256.2130.0TRUEVFRMETAR8.02018-12-17 21:16:498›‹—G)5   3RJOO 172100Z VRB02KT 9999 FEW025 04/01 Q1016 RMK 1CU025 A3002RJOO2018-12-17T21:00:00Z34.77135.434.01.0026.2130.0VFRMETAR15.02018-12-17 21:16:49[›‹—F)?5   3ROAH 172100Z 01014KT 9999 FEW040 SCT050 BKN060 18/06 Q1022 RMK 1CU040 3SC050 5SC060 A3018ROAH2018-12-17T21:00:00Z26.17127.6518.06.010146.2130.177166VFRMETAR8.02018-12-17 21:16:49<›‹—E(5    3RJGG 172100Z 31009KT 9999 FEW015 BKN050 07/03 Q1014 NOSIGRJGG2018-12-17T21:00:00Z34.87136.87.03.031096.2129.940945TRUEVFRMETAR5.02018-12-17 21:16:49-›‹—D(e5   3RJSS 172100Z 30011KT 9999 FEW030 04/00 Q1009RJSS2018-12-17T21:00:00Z38.12140.924.00.0300116.2129.793306VFRMETAR5.02018-12-17 21:16:49 ¼!T¼K›‹—L)5    3RJFF 172100Z 32009KT 9999 FEW040 09/M01 Q1019 NOSIG RMK 1CU040 A3012RJFF2018-12-17T21:00:00Z33.57130.439.0-1.032096.2130.088583TRUEVFRMETAR12.02018-12-17 21:16:49A›‹—K) 5   3RJFK 172100Z 35006KT 9999 FEW030 04/M01 Q1019 RMK 1CU030 A3010RJFK2018-12-17T21:00:00Z31.8130.724.0-1.035066.2130.088583VFRMETAR275.02018-12-17 21:16:49G›‹—J) 5    3RJNK 172100Z 15006KT 9999 -SHRA FEW008 BKN030 BKN050 03/02 Q1015RJNK2018-12-17T21:00:00Z36.37136.423.02.015066.2129.970472-SHRAMVFRMETAR9.02018-12-17 21:16:49Y›‹—I)?5   3RJAA 172100Z VRB02KT 9999 FEW015 BKN070 04/03 Q1009 BECMG 32005KT RMK 1CU015 5AC070 A2980RJAA2018-12-17T21:00:00Z35.77140.374.03.0026.2129.793306VFRMETAR44.02018-12-17 21:16:49 CK–Ú&C]›‹—Q)35    3SKAR 172100Z 32003KT 280V010 8000 VCSH FEW020CB BKN023 28/17 A2992 RMK CB VCSH/NE/ESKAR2018-12-17T21:00:00Z4.45-75.7728.017.032034.9729.920275VCSHMVFRMETAR1219.02018-12-17 21:16:49.›‹—P(e5   3SKVV 172100Z 08004KT 9999 FEW023 31/19 A2988SKVV2018-12-17T21:00:00Z4.17-73.6231.019.08046.2129.878937VFRMETAR431.02018-12-17 21:16:496›‹—O(s5   3SKNV 172100Z 20006KT 9999 FEW050 BKN120 34/16 A2977SKNV2018-12-17T21:00:00Z2.97-75.2834.016.020066.2129.769686VFRMETAR443.02018-12-17 21:16:49/›‹—N(e5   3SKPS 172100Z 04006KT 9999 BKN028 21/16 A3010SKPS2018-12-17T21:00:00Z1.4-77.2821.016.04066.2130.100393MVFRMETAR1826.02018-12-17 21:16:49/›‹—M(e5   3SKIP 172100Z 09006KT 9999 BKN018 14/09 A3036SKIP2018-12-17T21:00:00Z0.88-77.6714.09.09066.2130.360237MVFRMETAR2961.02018-12-17 21:16:49 @/}¯û@5›‹—V(s5   3SKEJ 172100Z 02003KT 9999 FEW020 SCT200 33/23 A2974SKEJ2018-12-17T21:00:00Z7.02-73.7833.023.02036.2129.740158VFRMETAR134.02018-12-17 21:16:49.›‹—U(e5   3SKUC 172100Z 15007KT 9999 FEW033 30/18 A2998SKUC2018-12-17T21:00:00Z7.07-70.7230.018.015076.2129.97933VFRMETAR128.02018-12-17 21:16:49H›‹—T)5   3SKMD 172100Z 36014KT 9999 FEW040CB SCT200 26/15 A3003 RMK CB/SE/SWSKMD2018-12-17T21:00:00Z6.22-75.5826.015.0360146.2130.029528VFRMETAR1499.02018-12-17 21:16:49,›‹—S(e5   3SKPC 172100Z 05005KT 9999 FEW023 34/21 A2979SKPC2018-12-17T21:00:00Z6.17-67.534.021.05056.2129.790354VFRMETAR55.02018-12-17 21:16:49K›‹—R)5    3SKUI 172100Z 00000KT 8000 TS BKN018CB BKN080 27/26 A2976 REDZ RMK CB NESKUI2018-12-17T21:00:00Z5.72-76.6227.026.0004.9729.760826TSMVFRMETAR33.02018-12-17 21:16:49 tE‘Û(t.›‹—[(e5   3SKSM 172100Z 03014KT 9999 FEW020 32/22 A2977SKSM2018-12-17T21:00:00Z11.12-74.2232.022.030146.2129.769686VFRMETAR4.02018-12-17 21:16:49-›‹—Z(e5   3SKRH 172100Z 02008KT 9999 SCT020 29/24 A2981SKRH2018-12-17T21:00:00Z11.52-72.9229.024.02086.2129.811024VFRMETAR4.02018-12-17 21:16:490›‹—Y(e5   3SKVP 172100Z 05010KT 9999 FEW020 35/15 A2982SKVP2018-12-17T21:00:00Z10.42-73.2535.015.050106.2129.819881VFRMETAR138.02018-12-17 21:16:49.›‹—X(e5   3SKMR 172100Z 31008KT 9999 FEW020 31/25 A2977SKMR2018-12-17T21:00:00Z8.82-75.8331.025.031086.2129.769686VFRMETAR26.02018-12-17 21:16:495›‹—W(s5   3SKLC 172100Z 35012KT 9999 SCT023 SCT300 29/23 A2980SKLC2018-12-17T21:00:00Z7.82-76.729.023.0350126.2129.799213VFRMETAR30.02018-12-17 21:16:49 Å=z¥ÅZ›‹—_)+5     3UKLI 172100Z 00000MPS 0800 +SHSN BKN004 BKN013CB M03/M03 Q1025 R10/491030 NOSIGUKLI2018-12-17T21:00:00Z48.8824.68-3.0-3.0000.530.265747TRUE+SHSNLIFRMETAR280.02018-12-17 21:16:49O›‹—^)5    3UKKK 172100Z 12004MPS 080V150 9999 OVC008 M06/M07 Q1029 R08/810340 NOSIGUKKK2018-12-17T21:00:00Z50.430.45-6.0-7.012086.2130.383858TRUEIFRMETAR179.02018-12-17 21:16:49=›‹—])5   3UKKM 172100Z AUTO 10002MPS 9000 // ///007/// M06/M06 Q1029UKKM2018-12-17T21:00:00Z50.630.2-6.0-6.010045.5930.383858TRUEMETAR157.02018-12-17 21:16:49=›‹—\)5   3SKPV 172100Z 06004KT 350V100 9999 FEW018 BKN200 29/22 A2991SKPV2018-12-17T21:00:00Z13.37-81.3329.022.06046.2129.911417VFRMETAR6.02018-12-17 21:16:49 ²1[²W›‹—c)5   3VEGY 172100Z 14011KT 1500 -RA SCT018 FEW030CB SCT025 OVC080 15/14 Q1018VEGY2018-12-17T21:00:00Z24.7584.9515.014.0140110.9330.059055-RAOVC8000LIFRMETAR116.02018-12-17 21:16:49F›‹—b)5     3VEBS 172100Z 06015KT 3000 -RA BKN016 OVC080 18/17 Q1012 NOSIGVEBS2018-12-17T21:00:00Z20.2585.8218.017.060151.8629.88189TRUE-RAIFRMETAR46.02018-12-17 21:16:49P›‹—a)5     3VIDP 172100Z 00000KT 1500 R28/P2000 R29/P2000 BR FEW100 09/06 Q1019 NOSIGVIDP2018-12-17T21:00:00Z28.5777.129.06.0000.9330.088583TRUEBRLIFRMETAR233.02018-12-17 21:16:49I›‹—`)5   3EIME 172100Z 18026G37KT 9999 -DZ FEW012 BKN018 BKN065 12/09 Q1001EIME2018-12-17T21:00:00Z53.3-6.4512.09.018026376.2129.557087-DZMVFRMETAR93.02018-12-17 21:16:49 EF‡ÈE9›‹—h(s5     3ZUCK 172100Z 02002MPS 4500 BR NSC 06/04 Q1023 NOSIGZUCK2018-12-17T21:00:00Z29.72106.636.04.02042.830.206694TRUEBRIFRMETAR416.02018-12-17 21:16:49>›‹—g(w5    3ZYCC 172100Z 27003MPS 9999 FEW030 M09/M17 Q1014 NOSIGZYCC2018-12-17T21:00:00Z43.98125.68-9.0-17.027066.2129.940945TRUEVFRMETAR238.02018-12-17 21:16:499›‹—f(k5    3ZYHB 172100Z 27005MPS CAVOK M14/M19 Q1012 NOSIGZYHB2018-12-17T21:00:00Z45.62126.25-14.0-19.0270106.2129.88189TRUEVFRMETAR140.02018-12-17 21:16:499›‹—e(w5     3VOMM 172100Z 00000KT 3000 BR FEW020 23/21 Q1012 NOSIGVOMM2018-12-17T21:00:00Z13.080.1723.021.0001.8629.88189TRUEBRIFRMETAR16.02018-12-17 21:16:494›‹—d(q5     3VIAR 172100Z 00000KT 2000 BR NSC 06/06 Q1020 NOSIGVIAR2018-12-17T21:00:00Z31.774.86.06.0001.2430.11811TRUEBRIFRMETAR234.02018-12-17 21:16:49 >?{»þ>:›‹—m(s5    3ZJHK 172100Z 27002MPS 6000 BKN023 13/13 Q1020 NOSIGZJHK2018-12-17T21:00:00Z19.93110.4713.013.027043.7330.11811TRUEMVFRMETAR23.02018-12-17 21:16:497›‹—l(s5    3ZJSY 172100Z VRB01MPS 9999 FEW033 18/16 Q1018 NOSIGZJSY2018-12-17T21:00:00Z18.3109.4218.016.0026.2130.059055TRUEVFRMETAR27.02018-12-17 21:16:49:›‹—k(k5    3ZLLL 172100Z 36003MPS CAVOK M11/M18 Q1021 NOSIGZLLL2018-12-17T21:00:00Z36.52103.62-11.0-18.036066.2130.147638TRUEVFRMETAR1947.02018-12-17 21:16:49>›‹—j(w5     3ZSNJ 172100Z 25002MPS 3500 BR NSC M01/M01 Q1024 NOSIGZSNJ2018-12-17T21:00:00Z31.75118.87-1.0-1.025042.1730.236221TRUEBRIFRMETAR33.02018-12-17 21:16:49;›‹—i(u5     3ZSOF 172100Z 12001MPS 3800 BR NSC 02/M00 Q1022 NOSIGZSOF2018-12-17T21:00:00Z31.98116.972.00.012022.3630.177166TRUEBRIFRMETAR63.02018-12-17 21:16:49 "8g£ç"?›‹—r)5    3VTSG 172100Z 03004KT 350V060 8000 FEW020 24/24 Q1011 NOSIGVTSG2018-12-17T21:00:00Z8.198.9824.024.03044.9729.852362TRUEMVFRMETAR25.02018-12-17 21:16:496›‹—q(q5    3VTSP 172100Z 00000KT 8000 FEW020 25/23 Q1011 NOSIGVTSP2018-12-17T21:00:00Z8.1298.3225.023.0004.9729.852362TRUEMVFRMETAR10.02018-12-17 21:16:49>›‹—p(5    3VTSS 172100Z 07003KT 9999 FEW020 BKN100 25/24 Q1011 NOSIGVTSS2018-12-17T21:00:00Z6.92100.3825.024.07036.2129.852362TRUEVFRMETAR35.02018-12-17 21:16:49K›‹—o)5     3ZBHH 172100Z 06002MPS 010V140 5000 BR NSC M15/M17 Q1019 NOSIGZBHH2018-12-17T21:00:00Z40.85111.82-15.0-17.06043.1130.088583TRUEBRMVFRMETAR1065.02018-12-17 21:16:49B›‹—n)5     3ZHHH 172100Z 07002MPS 030V120 3200 BR NSC 04/01 Q1023 NOSIGZHHH2018-12-17T21:00:00Z30.78114.224.01.07041.9930.206694TRUEBRIFRMETAR33.02018-12-17 21:16:49 PA„à P6›‹—w(q5    3VTBD 172100Z 01007KT 9999 FEW030 25/21 Q1014 NOSIGVTBD2018-12-17T21:00:00Z13.92100.625.021.01076.2129.940945TRUEVFRMETAR3.02018-12-17 21:16:491›‹—v(e5    3VTBS 172100Z 05006KT CAVOK 25/19 Q1013 NOSIGVTBS2018-12-17T21:00:00Z13.68100.7525.019.05066.2129.911417TRUEVFRMETAR2.02018-12-17 21:16:49;›‹—u(w5     3VTBU 172100Z 01006KT 5000 BR FEW020 24/19 Q1012 NOSIGVTBU2018-12-17T21:00:00Z12.68101.024.019.01063.1129.88189TRUEBRMVFRMETAR5.02018-12-17 21:16:497›‹—t(q5    3VTCC 172100Z 00000KT 9999 FEW035 20/19 Q1018 NOSIGVTCC2018-12-17T21:00:00Z18.7798.9720.019.0006.2130.059055TRUEVFRMETAR314.02018-12-17 21:16:499›‹—s(q5     3VTCT 172100Z 00000KT 4000 BR NSC 16/16 Q1017 NOSIGVTCT2018-12-17T21:00:00Z19.9599.8816.016.0002.4930.029528TRUEBRIFRMETAR390.02018-12-17 21:16:49 lLŽÅl&›‹—|(Y5   3DABT 172100Z 14008KT CAVOK 04/02 Q1030DABT2018-12-17T21:00:00Z35.756.324.02.014086.2130.413385VFRMETAR823.02018-12-17 21:16:49'›‹—{([5   3DAUZ 172100Z 07004KT CAVOK 09/M05 Q1027DAUZ2018-12-17T21:00:00Z28.059.629.0-5.07046.2130.324802VFRMETAR562.02018-12-17 21:16:49C›‹—z)5     3VILK 172100Z 00000KT 2000 BR FEW020 SCT100 12/08 Q1017 NOSIGVILK2018-12-17T21:00:00Z26.7580.8712.08.0001.2430.029528TRUEBRIFRMETAR128.02018-12-17 21:16:498›‹—y(o5     3FMEE 172100Z AUTO 13015KT CAVOK 24/19 Q1016 NOSIGFMEE2018-12-17T21:00:00Z-20.8755.5224.019.0130156.2130.0TRUETRUEVFRMETAR25.02018-12-17 21:16:49.›‹—x(c5    3FMEP 172100Z AUTO 11013KT CAVOK 25/16 Q1016FMEP2018-12-17T21:00:00Z-21.3255.4225.016.0110136.2130.0TRUEVFRMETAR18.02018-12-17 21:16:49 iN¢ñ$i5›‹˜(u5   3DTTN 172100Z 30005KT 210V010 6000 SCT020 13/08 Q1027DTTN2018-12-17T21:00:00Z36.478.813.08.030053.7330.324802MVFRMETAR144.02018-12-17 21:16:49G›‹˜)5     3VECC 172100Z 35010KT 2600 -DZ SCT018 OVC090 16/15 Q1014 NOSIGVECC2018-12-17T21:00:00Z22.6588.4316.015.0350101.6229.940945TRUE-DZIFRMETAR6.02018-12-17 21:16:49+›‹—(e5   3DAAE 172100Z 23004KT 9999 FEW020 11/08 Q1030DAAE2018-12-17T21:00:00Z36.725.0711.08.023046.2130.413385VFRMETAR2.02018-12-17 21:16:49&›‹—~([5   3DAAJ 172100Z VRB03KT CAVOK 09/M05 Q1027DAAJ2018-12-17T21:00:00Z24.289.479.0-5.0036.2130.324802VFRMETAR968.02018-12-17 21:16:49,›‹—}(e5   3DAAV 172100Z 23003KT 9999 SCT020 11/10 Q1030DAAV2018-12-17T21:00:00Z36.85.8811.010.023036.2130.413385VFRMETAR11.02018-12-17 21:16:49 WE‰ÔWA›‹˜) 5   3RPVP 172100Z 24002KT 9999 FEW019 BKN080 27/24 Q1011 RMK A2985 RPVP2018-12-17T21:00:00Z9.75118.7227.024.024026.2129.852362VFRMETAR16.02018-12-17 21:16:490›‹˜(k5  3DTTB 172100Z 30023G34KT 9999 SCT016 14/06 Q1024DTTB2018-12-17T21:00:00Z37.259.814.06.030023346.2130.236221VFRMETAR3.02018-12-17 21:16:49/›‹˜(o5   3DTTD 172100Z AUTO 30003KT 270V340 NCD 13/00 Q1027DTTD2018-12-17T21:00:00Z32.3210.413.00.0300330.324802TRUEMETAR301.02018-12-17 21:16:496›‹˜(u5   3DTTK 172100Z 32010KT 240V360 9999 FEW023 15/05 Q1025DTTK2018-12-17T21:00:00Z35.6710.0815.05.0320106.2130.265747VFRMETAR68.02018-12-17 21:16:495›‹˜(u5   3DTTL 172100Z AUTO 31012G25KT 260V350 NCD 14/06 Q1022DTTL2018-12-17T21:00:00Z36.8511.0714.06.0310122530.177166TRUEMETAR30.02018-12-17 21:16:49 \@n¸ \+›‹˜ (e5   3DAOO 172100Z 06004KT 9999 FEW013 11/10 Q1028DAOO2018-12-17T21:00:00Z35.62-0.611.010.06046.2130.35433VFRMETAR90.02018-12-17 21:16:49%›‹˜ (Y5   3DAUH 172100Z 00000KT CAVOK 11/02 Q1027DAUH2018-12-17T21:00:00Z31.676.1511.02.0006.2130.324802VFRMETAR142.02018-12-17 21:16:490›‹˜ (e5    3LERT 172100Z 06004KT CAVOK 10/09 Q1026 NOSIGLERT2018-12-17T21:00:00Z36.63-6.3310.09.06046.2130.295275TRUEVFRMETAR26.02018-12-17 21:16:49L›‹˜)5    3RPLC 172100Z 35004KT 9999 FEW020 SCT300 24/20 Q1015 NOSIG RMK A2997RPLC2018-12-17T21:00:00Z15.17120.5824.020.035046.2129.970472TRUEVFRMETAR196.02018-12-17 21:16:49:›‹˜(5    3RPVD 172100Z 00000KT 8000 RA OVC014 25/24 Q1011 RMK A2985RPVD2018-12-17T21:00:00Z9.33123.325.024.0004.9729.852362RAMVFRMETAR8.02018-12-17 21:16:49 €T¤â1€+›‹˜(e5   3DAAG 172100Z 10001KT 9999 FEW026 08/07 Q1031DAAG2018-12-17T21:00:00Z36.723.228.07.010016.2130.442913VFRMETAR25.02018-12-17 21:16:49+›‹˜([5   3DAAT 172100Z 34004KT CAVOK 11/M13 Q1027DAAT2018-12-17T21:00:00Z22.825.4711.0-13.034046.2130.324802VFRMETAR1377.02018-12-17 21:16:49<›‹˜)5   3DABB 172100Z 29005KT 9999 FEW023 FEW026TCU SCT033 12/09 Q1028DABB2018-12-17T21:00:00Z36.827.8212.09.029056.2130.35433VFRMETAR4.02018-12-17 21:16:49*›‹˜ (e5   3DABC 172100Z VRB02KT 9999 FEW030 06/04 Q1030DABC2018-12-17T21:00:00Z36.276.626.04.0026.2130.413385VFRMETAR694.02018-12-17 21:16:49&›‹˜ (Y5   3DAON 172100Z 00000KT CAVOK 10/09 Q1027DAON2018-12-17T21:00:00Z35.02-1.4710.09.0006.2130.324802VFRMETAR247.02018-12-17 21:16:49 zL æ'z'›‹˜(Y5   3LEVT 172100Z 19005KT CAVOK 04/01 Q1026LEVT2018-12-17T21:00:00Z42.87-2.724.01.019056.2130.295275VFRMETAR509.02018-12-17 21:16:499›‹˜(q5    3LEVX 172100Z 19011KT 9000 SCT050 10/04 Q1022 NOSIGLEVX2018-12-17T21:00:00Z42.22-8.6210.04.0190115.5930.177166TRUEVFRMETAR256.02018-12-17 21:16:494›‹˜(q5  3LEXJ 172100Z 21009G19KT 160V270 CAVOK 13/M00 Q1022LEXJ2018-12-17T21:00:00Z43.42-3.8213.00.02109196.2130.177166VFRMETAR6.02018-12-17 21:16:49&›‹˜(Y5   3LEZG 172100Z 10003KT CAVOK 05/03 Q1028LEZG2018-12-17T21:00:00Z41.67-1.025.03.010036.2130.35433VFRMETAR258.02018-12-17 21:16:49.›‹˜(e5    3LEZL 172100Z 03002KT CAVOK 09/07 Q1027 NOSIGLEZL2018-12-17T21:00:00Z37.42-5.99.07.03026.2130.324802TRUEVFRMETAR31.02018-12-17 21:16:49 aCŽÉ a$›‹˜(Y5   3LERS 172100Z 03005KT CAVOK 04/02 Q1029LERS2018-12-17T21:00:00Z41.131.174.02.03056.2130.383858VFRMETAR76.02018-12-17 21:16:498›‹˜(y5    3LESO 172100Z AUTO 21003KT 190V280 9999 NCD 07/05 Q1024LESO2018-12-17T21:00:00Z43.35-1.87.05.021036.2130.236221TRUEVFRMETAR8.02018-12-17 21:16:49?›‹˜(5    3LEST 172100Z 19014KT 9999 FEW040 BKN049 09/04 Q1021 NOSIGLEST2018-12-17T21:00:00Z42.88-8.429.04.0190146.2130.147638TRUEVFRMETAR367.02018-12-17 21:16:49/›‹˜(e5    3LETO 172100Z 02006KT CAVOK 02/01 Q1028 NOSIGLETO2018-12-17T21:00:00Z40.47-3.472.01.02066.2130.35433TRUEVFRMETAR608.02018-12-17 21:16:497›‹˜(u5    3LEVC 172100Z 30003KT 260V340 CAVOK 07/04 Q1029 NOSIGLEVC2018-12-17T21:00:00Z39.5-0.477.04.030036.2130.383858TRUEVFRMETAR62.02018-12-17 21:16:49Y88@HPX`hpx€ˆ˜ ¨°¸ÀÈÐØàèðø (08@HPX`hpx€ˆ˜ ¨°¸ÀÈÐØàèðø (08@HPX`hpx€ˆ˜ ¨°¸ÀÈÐØàèðø ¨°¸ÀÈÐØàèðø¦›‹–q§›‹–v¨›‹–{©›‹—ª›‹—«›‹— ¬›‹—­›‹—®›‹—¯›‹—°›‹—"±›‹—&¦›‹–q§›‹–v¨›‹–{©›‹—ª›‹—«›‹— ¬›‹—­›‹—®›‹—¯›‹—°›‹—"±›‹—&²›‹—*³›‹—.´›‹—2µ›‹—6¶›‹—:·›‹—>¸›‹—C¹›‹—Hº›‹—L»›‹—Q¼›‹—V½›‹—[¾›‹—_¿›‹—cÀ›‹—hÁ›‹—m›‹—rۋ—w싗|ś‹˜ƛ‹˜Ǜ‹˜ ț‹˜ɛ‹˜ʛ‹˜̛‹˜͛‹˜#Λ‹˜'ϛ‹˜+Л‹˜/ћ‹˜3қ‹˜7ӛ‹˜:ԛ‹˜>՛‹˜B֛‹˜Fכ‹˜J؛‹˜Nٛ‹˜Rڛ‹˜Vۛ‹˜Zܛ‹˜^ݛ‹˜bޛ‹˜fߛ‹˜jà›‹˜nᛋ˜r⛋˜v㛋˜z䛋˜~囋™曋™盋™ 蛋™雋™ꛋ™뛋™웋™훋™"™&™*𛋙.ñ›‹™2ò›‹™6󛋙:ô›‹™>õ›‹™Bö›‹™F÷›‹™Jø›‹™Où›‹™Sú›‹™Wû›‹™[ü›‹™_ý›‹™cþ›‹™gÿ›‹™k gUœêg0›‹˜(e5    3LEMD 172100Z 31004KT CAVOK 02/01 Q1028 NOSIGLEMD2018-12-17T21:00:00Z40.48-3.572.01.031046.2130.35433TRUEVFRMETAR582.02018-12-17 21:16:49G›‹˜)5    3LEMG 172100Z 10003KT 060V140 9999 SCT015 BKN020 15/12 Q1029 NOSIGLEMG2018-12-17T21:00:00Z36.67-4.515.012.010036.2130.383858TRUEMVFRMETAR7.02018-12-17 21:16:49,›‹˜(e5   3LEMH 172100Z 33004KT 9999 FEW035 10/08 Q1029LEMH2018-12-17T21:00:00Z39.874.2210.08.033046.2130.383858VFRMETAR82.02018-12-17 21:16:493›‹˜(q5    3LEPA 172100Z 06003KT 9999 FEW030 05/05 Q1029 NOSIGLEPA2018-12-17T21:00:00Z39.532.725.05.06036.2130.383858TRUEVFRMETAR8.02018-12-17 21:16:49%›‹˜(Y5   3LEPP 172100Z VRB02KT CAVOK 04/02 Q1027LEPP2018-12-17T21:00:00Z42.77-1.654.02.0026.2130.324802VFRMETAR459.02018-12-17 21:16:49 ÔIv¦ÔL›‹˜#) 5    3K1A5 172100Z AUTO 30008KT 10SM CLR 13/02 A3008 RMK AO2 T01300018K1A52018-12-17T21:00:00Z35.22-83.4213.01.8300810.030.079725TRUETRUEVFRMETAR616.02018-12-17 21:16:49J›‹˜") 5    3K7W6 172100Z AUTO 26008KT 10SM CLR 14/04 A2989 RMK AO2 T01370041K7W62018-12-17T21:00:00Z35.55-75.9513.74.1260810.029.890747TRUETRUEVFRMETAR2.02018-12-17 21:16:49M›‹˜!)5    3KAFP 172100Z AUTO 28004KT 10SM CLR 18/M01 A2999 RMK AO2 T01751012KAFP2018-12-17T21:00:00Z35.02-80.0817.5-1.2280410.029.991142TRUETRUEVFRMETAR92.02018-12-17 21:16:491›‹˜ (i5    3LELL 172100Z AUTO 27003KT 9999 NCD 06/03 Q1029LELL2018-12-17T21:00:00Z41.522.16.03.027036.2130.383858TRUEVFRMETAR250.02018-12-17 21:16:49 ¿-e‘¿L›‹˜')5    3KSCR 172100Z AUTO 30003KT 10SM CLR 16/M01 A2997 RMK AO2 T01551012KSCR2018-12-17T21:00:00Z35.7-79.515.5-1.2300310.029.970472TRUETRUEVFRMETAR188.02018-12-17 21:16:49N›‹˜&)5   3KSVH 172100Z AUTO 29009G17KT 10SM CLR 15/M02 A3000 RMK AO2 T01541024KSVH2018-12-17T21:00:00Z35.75-80.9515.4-2.429091710.030.0TRUETRUEVFRMETAR294.02018-12-17 21:16:49B›‹˜%({5    3KUKF 172100Z AUTO 28004KT 10SM CLR 13/M03 A3005 RMK AO2KUKF2018-12-17T21:00:00Z36.22-81.113.0-3.0280410.030.050198TRUETRUEVFRMETAR396.02018-12-17 21:16:49M›‹˜$)5    3KVUJ 172100Z AUTO 29004KT 10SM CLR 17/M01 A3002 RMK AO2 T01671008KVUJ2018-12-17T21:00:00Z35.42-80.1516.7-0.8290410.030.02067TRUETRUEVFRMETAR186.02018-12-17 21:16:49 Â&S}5›‹˜+(i5    3KLHZ 172100Z AUTO 10SM CLR 14/00 A2996 RMK AO2KLHZ2018-12-17T21:00:00Z36.02-78.3314.00.010.029.958662TRUETRUEVFRMETAR113.02018-12-17 21:16:49P›‹˜*)5   3KOCW 172100Z AUTO 26008G15KT 10SM CLR 16/03 A2992 RMK AO2 T01550025KOCW2018-12-17T21:00:00Z35.57-77.0515.52.526081510.029.920275TRUETRUEVFRMETAR12.02018-12-17 21:16:49M›‹˜))5    3KRHP 172100Z AUTO 06008KT 10SM CLR 13/M02 A3010 RMK AO2 T01251022KRHP2018-12-17T21:00:00Z35.18-83.8512.5-2.260810.030.100393TRUETRUEVFRMETAR518.02018-12-17 21:16:49T›‹˜()5   3KRUQ 172100Z AUTO 29010G15KT 10SM CLR 16/M01 A2999 RMK AO2 T01551014KRUQ2018-12-17T21:00:00Z35.65-80.5215.5-1.4290101510.029.991142TRUETRUEVFRMETAR236.02018-12-17 21:16:49 Á/i£Á\›‹˜/)5    3CYZG 172100Z 02020KT 1/4SM SN BLSN VV003 M08/M09 A2930 RMK BLSN8 SLP943CYZG2018-12-17T21:00:00Z62.17-75.67-8.0-9.020200.2529.300198994.3SN BLSNLIFR300METAR226.02018-12-17 21:16:49@›‹˜.(5    3FZAA 172100Z 26004KT 9999 SCT014 BKN100 22/21 Q1015 NOSIGFZAA2018-12-17T21:00:00Z-4.3815.4522.021.026046.2129.970472TRUEVFRMETAR312.02018-12-17 21:16:49@›‹˜-({5    3KFQD 172100Z AUTO 00000KT 10SM CLR 16/M02 A3002 RMK AO2KFQD2018-12-17T21:00:00Z35.42-81.9316.0-2.00010.030.02067TRUETRUEVFRMETAR329.02018-12-17 21:16:49K›‹˜,) 5    3KGWW 172100Z AUTO 27007KT 10SM CLR 16/04 A2994 RMK AO2 T01600035KGWW2018-12-17T21:00:00Z35.47-77.9716.03.5270710.029.940945TRUETRUEVFRMETAR41.02018-12-17 21:16:49 p&?Zpd›‹˜3)/5    3CWLY 172100Z AUTO 20013G27KT 170V230 9SM -RA BKN055 OVC065 07/04 A2974 RMK SLP079CWLY2018-12-17T21:00:00Z50.22-121.587.04.020013279.029.7401581007.9TRUE-RAVFRMETAR229.02018-12-17 21:16:49_›‹˜2)15    3CYQI 172100Z 33008KT 2SM -SHRA BR OVC007 03/02 A2927 RMK SF8 CVCTV CLD EMBD SLP914CYQI2018-12-17T21:00:00Z43.83-66.083.02.033082.029.27067991.4-SHRA BRIFRMETAR43.02018-12-17 21:16:49a›‹˜1)#5   3CYSK 172100Z 31040G47KT 1/8SM SN +BLSN VV000 M07/M09 A2949 RMK BLSN8 SLP990CYSK2018-12-17T21:00:00Z56.53-79.25-7.0-9.031040470.1329.489174999.0SN +BLSNLIFR0METAR26.02018-12-17 21:16:49T›‹˜0)5    3CYWK 172100Z 18007KT 12SM -SHSN OVC021 M05/M08 A2945 RMK CU8 SLP009CYWK2018-12-17T21:00:00Z52.92-66.87-5.0-8.0180712.029.4507871000.9-SHSNMVFRMETAR551.02018-12-17 21:16:49 ¨Co‰¨[›‹˜7)%5    3CYDL 172100Z AUTO 06004KT 030V100 9SM FEW080 BKN100 M10/M12 A2926 RMK SLP955CYDL2018-12-17T21:00:00Z58.42-130.02-10.0-12.06049.029.258858995.5TRUEVFRMETAR816.02018-12-17 21:16:49`›‹˜6);5   3CYGE 172100Z 10003KT 080V170 20SM FEW018 SCT050 BKN100 03/01 A2983 RMK SC2SC2AC2 SLP130CYGE2018-12-17T21:00:00Z51.3-116.983.01.0100320.029.8287411013.0VFRMETAR785.02018-12-17 21:16:49N›‹˜5)5   3CYIN 172100Z AUTO 15011G19KT 9SM CLR 02/M02 A2963 RMK SLP059CYIN2018-12-17T21:00:00Z51.27-121.682.0-2.015011199.029.6309051005.9TRUEVFRMETAR1128.02018-12-17 21:16:497›‹˜4(q5     3VABB 172100Z 04007KT 3000 FU NSC 24/10 Q1013 NOSIGVABB2018-12-17T21:00:00Z19.172.8724.010.04071.8629.911417TRUEFUIFRMETAR8.02018-12-17 21:16:49 #"#y›‹˜:)a5    3CYCD 172100Z CCA 14006KT 15SM -SHRA SCT009 BKN015 OVC045 09/07 A2977 RMK SF3SC2SC3 CVCTV CLD ASOCTD SLP083CYCD2018-12-17T21:00:00Z49.05-123.879.07.0140615.029.7696861008.3-SHRAMVFRSPECI30.02018-12-17 21:16:49p›‹˜9)K5   3CYCG 172100Z 12005KT 15SM FEW004 FEW032 SCT043 BKN050 03/02 A2995 RMK SF1SC2SC2SC3 SF TR SLP161CYCG2018-12-17T21:00:00Z49.28-117.623.02.0120515.029.9498021016.1BKN5000VFRMETAR495.02018-12-17 21:16:49b›‹˜8);5   3CYDA 172100Z 00000KT 20SM FEW055 BKN130 OVC200 M19/M21 A2905 RMK SC1AC6CI2 SC TR SLP877CYDA2018-12-17T21:00:00Z64.03-139.12-19.0-21.00020.029.049213987.7VFRMETAR369.02018-12-17 21:16:49 DåDJ›‹˜>)5   3CYXS 172100Z AUTO 19010G15KT 9SM CLR 05/01 A2953 RMK SLP027CYXS2018-12-17T21:00:00Z53.9-122.685.01.019010159.029.5305121002.7TRUEVFRMETAR691.02018-12-17 21:16:49j›‹˜=)E5   3CYZT 172100Z 11024G34KT 12SM -RA FEW010 BKN043 OVC060 07/05 A2941 RMK SF1SC6SC2 SF TR SLP961CYZT2018-12-17T21:00:00Z50.67-127.377.05.0110243412.029.409449996.1-RAVFRMETAR22.02018-12-17 21:16:49[›‹˜<)'5     3CBBC 172100Z AUTO 11005KT 9SM -RA BKN050 OVC065 07/04 A2932 RMK PRESFR SLP933CBBC2018-12-17T21:00:00Z52.18-128.157.04.011059.029.320866993.3TRUE-RAVFRMETAR43.02018-12-17 21:16:49‚›‹˜;)‚%5    3CYBD 172100Z 00000KT 15SM -RA FEW003 BKN075 OVC085 02/02 A2946 RMK SF2AC5AS1 VIS W 3 IN LO CLD, MIFG W RWY, FG OVR RIVER, FU E PRESFR SLP979CYBD2018-12-17T21:00:00Z52.37-126.572.02.00015.029.459646997.9-RAVFRMETAR35.02018-12-17 21:16:49 ­"U­N›‹˜B)5    3CYVL 172100Z AUTO 14005KT 9SM OVC013 M15/M17 A2929 RMK SLP948CYVL2018-12-17T21:00:00Z67.02-126.13-15.0-17.014059.029.291338994.8TRUEMVFRMETAR259.02018-12-17 21:16:49N›‹˜A)5   3CYXC 172100Z 18009KT 25SM FEW035 FEW060 07/00 A2987 RMK SC1SC1 SLP141CYXC2018-12-17T21:00:00Z49.6-115.777.00.0180925.029.8700791014.1VFRMETAR939.02018-12-17 21:16:49G›‹˜@)5   3CYXE 172100Z 20010KT 15SM BKN260 01/M03 A2961 RMK CI7 SLP059CYXE2018-12-17T21:00:00Z52.17-106.71.0-3.02001015.029.6102371005.9VFRMETAR504.02018-12-17 21:16:49X›‹˜?)'5   3CYXQ 172100Z 00000KT 30SM BKN180 OVC240 M21/M24 A2895 RMK AC6CI2 FROIN SLP871CYXQ2018-12-17T21:00:00Z62.42-140.87-21.0-24.00030.028.948818987.1VFRMETAR649.02018-12-17 21:16:49 §-cŠ§]›‹˜F)-5    3CYPR 172100Z AUTO 10011G17KT 9SM -RA FEW031 BKN039 OVC050 07/04 A2925 RMK SLP908CYPR2018-12-17T21:00:00Z54.28-130.427.04.010011179.029.25990.8TRUE-RAVFRMETAR34.02018-12-17 21:16:49S›‹˜E) 5   3CYQD 172100Z AUTO 12017G27KT 9SM OVC100 M09/M14 A2983 RMK SLP129CYQD2018-12-17T21:00:00Z53.97-101.08-9.0-14.012017279.029.8287411012.9TRUEVFRMETAR271.02018-12-17 21:16:49D›‹˜D(}5    3CYQZ 172100Z AUTO 18003KT 9SM CLR 05/01 A2957 RMK SLP034CYQZ2018-12-17T21:00:00Z53.02-122.525.01.018039.029.5688971003.4TRUEVFRMETAR545.02018-12-17 21:16:49M›‹˜C) 5     3CYRV 172100Z AUTO 00000KT 9SM -RA OVC009 01/01 A2990 RMK SLP143CYRV2018-12-17T21:00:00Z50.97-118.171.01.0009.029.8996071014.3TRUE-RAIFRMETAR443.02018-12-17 21:16:49 *PvS›‹˜J)5   3CYFO 172100Z 13008KT 100V170 15SM OVC085 M10/M15 A2982 RMK AC8 SLP127CYFO2018-12-17T21:00:00Z54.67-101.67-10.0-15.0130815.029.8198811012.7VFRMETAR304.02018-12-17 21:16:49T›‹˜I)!5    3CYHE 172100Z AUTO 09003KT 360V120 9SM FEW040 BKN110 07/06 A2986 RMK SLP113CYHE2018-12-17T21:00:00Z49.37-121.57.06.09039.029.8612211011.3TRUEVFRMETAR39.02018-12-17 21:16:49T›‹˜H)5   3CYIV 172100Z 15005KT 15SM FEW070 SCT220 M16/M20 A3016 RMK AC1CI2 SLP243CYIV2018-12-17T21:00:00Z53.85-94.65-16.0-20.0150515.030.1594491024.3VFRMETAR237.02018-12-17 21:16:49P›‹˜G)5   3CYKY 172100Z 22006KT 15SM SCT070 OVC120 04/M00 A2963 RMK AC3AC5 SLP063CYKY2018-12-17T21:00:00Z51.52-109.174.00.0220615.029.6309051006.3VFRMETAR694.02018-12-17 21:16:49 ‰"S‚‰s›‹˜N)Y5  3CYDB 172100Z 13018G31KT 30SM FEW100 SCT180 SCT220 00/M05 A2889 RMK AC1AC2CI1 SLP820 DENSITY ALT 2700FTCYDB2018-12-17T21:00:00Z61.37-139.050.0-5.0130183130.028.889763982.0VFRMETAR801.02018-12-17 21:16:49K›‹˜M)5   3CYDC 172100Z 26004KT 220V280 8SM OVC005 01/01 A2984 RMK ST8 SLP126CYDC2018-12-17T21:00:00Z49.47-120.521.01.026048.029.8405511012.6IFRMETAR700.02018-12-17 21:16:49I›‹˜L)5    3CYDQ 172100Z AUTO 13008KT 9SM CLR M01/M03 A2948 RMK SLP022CYDQ2018-12-17T21:00:00Z55.75-120.17-1.0-3.013089.029.4803141002.2TRUEVFRMETAR655.02018-12-17 21:16:49X›‹˜K)#5    3CYEV 172100Z 02004KT 15SM -SN BKN016 OVC061 M20/M24 A2940 RMK SC5SC3 SLP966CYEV2018-12-17T21:00:00Z68.32-133.5-20.0-24.020415.029.40059996.6-SNMVFRMETAR68.02018-12-17 21:16:49 g2Ig\›‹˜R))5   3CYCA 172100Z AUTO 21007G17KT 9SM SCT170 BKN190 BKN210 M03/M07 A2967 RMK SLP051CYCA2018-12-17T21:00:00Z53.68-57.03-3.0-7.02107179.029.669291005.1TRUEVFRMETAR12.02018-12-17 21:16:49c›‹˜Q)95     3UNBB 172100Z 23004MPS 9999 -SN SCT010 BKN040 M10/M12 Q1029 R24/492537 NOSIG RMK QFE749UNBB2018-12-17T21:00:00Z53.3783.53-10.0-12.023086.2130.383858TRUE-SNVFRMETAR255.02018-12-17 21:16:49Y›‹˜P)+5   3CYKA 172100Z 10018KT 40SM FEW060 FEW140 BKN240 08/02 A2976 RMK SC1AC1CI5 SLP088CYKA2018-12-17T21:00:00Z50.7-120.458.02.01001840.029.7608261008.8VFRMETAR346.02018-12-17 21:16:49i›‹˜O)G5   3CYCQ 172100Z 22002KT 15SM FEW040 FEW170 M08/M11 A2949 RMK CU1AS2 CU TR DIST PCPN VLY W SLP030CYCQ2018-12-17T21:00:00Z55.7-121.62-8.0-11.0220215.029.4891741003.0VFRMETAR609.02018-12-17 21:16:49 z7dzd›‹˜V)=5  3CYFT 172100Z 22010G16KT 15SM OVC022 M00/M06 A2954 RMK SC8 LAST OBS/NEXT181000 UTC SLP008CYFT2018-12-17T21:00:00Z55.07-59.170.0-6.0220101615.029.539371000.8MVFRMETAR71.02018-12-17 21:16:49M›‹˜U) 5    3CYGP 172100Z 00000KT 3SM -SN VV006 M03/M04 A2960 RMK SN8 SLP028CYGP2018-12-17T21:00:00Z48.77-64.47-3.0-4.0003.029.6013771002.8-SNLIFR600METAR33.02018-12-17 21:16:49[›‹˜T)35    3CZST 172100Z VRB02KT 12SM -RA FEW015 BKN045 OVC065 01/01 A2938 RMK SC2SC3SC3 SLP949CZST2018-12-17T21:00:00Z55.93-129.981.01.00212.029.379921994.9-RAVFRMETAR7.02018-12-17 21:16:49b›‹˜S);5   3CWSW 172100Z 16009KT 130V190 15SM FEW018 SCT030 BKN040 04/00 A2990 RMK SC1SC2SC3 SLP155CWSW2018-12-17T21:00:00Z49.75-114.874.00.0160915.029.8996071015.5VFRMETAR1138.02018-12-17 21:16:49 Ã!0{Á2›‹˜Z(i5    3LEBT 172100Z AUTO 35002KT 9999 NCD 06/03 Q1029LEBT2018-12-17T21:00:00Z39.58-0.456.03.035026.2130.383858TRUEVFRMETAR50.02018-12-17 21:16:49/›‹˜Y(i5   3LELO 172100Z 14003KT 110V180 CAVOK 03/02 Q1027LELO2018-12-17T21:00:00Z42.45-2.323.02.014036.2130.324802VFRMETAR363.02018-12-17 21:16:49k›‹˜X)M5    3UUEE 172100Z 08002MPS 2900 -SN BR OVC004 M12/M12 Q1035 R24C/450130 R24L/450145 TEMPO 1000 -SN BRUUEE2018-12-17T21:00:00Z55.9737.42-12.0-12.08041.830.561024-SN BRLIFRMETAR190.02018-12-17 21:16:49Y›‹˜W)!5  3CYAM 172100Z 31016G22KT 15SM BKN018 OVC024 M02/M05 A3009 RMK CU5CU3 SLP200CYAM2018-12-17T21:00:00Z46.47-84.52-2.0-5.0310162215.030.0885831020.0MVFRMETAR192.02018-12-17 21:16:49 ¿HtŽ¿I›‹˜^)5    3CYHD 172100Z AUTO 17004KT 9SM CLR M09/M15 A3019 RMK SLP262CYHD2018-12-17T21:00:00Z49.82-92.75-9.0-15.017049.030.1889761026.2TRUEVFRMETAR413.02018-12-17 21:16:49`›‹˜])#5    3CYMO 172100Z AUTO 28014G21KT 4SM -SN SCT026 OVC039 M10/M13 A2998 RMK SLP156CYMO2018-12-17T21:00:00Z51.28-80.62-10.0-13.028014214.029.979331015.6TRUE-SNMVFRMETAR10.02018-12-17 21:16:49N›‹˜\)5   3OICC 172100Z 10014KT 8000 FEW025 SCT040CB BKN070 07/03 Q1022 A3018 RESHRAOICC2018-12-17T21:00:00Z34.3547.177.03.0100144.9730.177166MVFRMETAR1322.02018-12-17 21:16:492›‹˜[(i5    3LEHC 172100Z AUTO 36002KT 9999 NCD 01/01 Q1028LEHC2018-12-17T21:00:00Z42.08-0.321.01.036026.2130.35433TRUEVFRMETAR539.02018-12-17 21:16:49 ŠFyŠi›‹˜b)75   3CYHI 172100Z 10028G40KT 5SM BLSN BKN140 BKN160 M16/M20 A2960 RMK AC5AC2 PRESRR SLP029CYHI2018-12-17T21:00:00Z70.77-117.78-16.0-20.010028405.029.6013771002.9BLSNMVFRMETAR36.02018-12-17 21:16:49G›‹˜a(5    3CYHK 172100Z 31013KT 15SM IC SKC M33/M35 A3003 RMK SLP180CYHK2018-12-17T21:00:00Z68.62-95.83-33.0-35.03101315.030.0295281018.0ICVFRMETAR46.02018-12-17 21:16:49I›‹˜`)5   3CYQT 172100Z 31008KT 20SM SCT230 M05/M13 A3022 RMK CI4 SLP250CYQT2018-12-17T21:00:00Z48.37-89.32-5.0-13.0310820.030.2214571025.0VFRMETAR199.02018-12-17 21:16:49e›‹˜_)75   3CYND 172100Z 32017G26KT 12SM -SN FEW025 OVC082 M01/M09 A2973 RMK SC1AC7 PRESRR SLP074CYND2018-12-17T21:00:00Z45.52-75.57-1.0-9.0320172612.029.7312981007.4-SNVFRMETAR64.02018-12-17 21:16:49 Ÿ&W}ŸX›‹˜f)5    3CYCS 172100Z 29012KT 13SM IC DRSN FEW070 M23/M26 A2998 RMK AC2 SLP156CYCS2018-12-17T21:00:00Z63.35-90.72-23.0-26.02901213.029.979331015.6IC DRSNVFRMETAR11.02018-12-17 21:16:49T›‹˜e)5   3CYFS 172100Z 14005KT 15SM FEW150 SCT210 M15/M17 A2938 RMK AC1CI3 SLP968CYFS2018-12-17T21:00:00Z61.75-121.22-15.0-17.0140515.029.379921996.8VFRMETAR169.02018-12-17 21:16:49I›‹˜d)5   3CYGH 172100Z 23004KT 20SM FEW012 M23/M26 A2935 RMK SC2 SLP949CYGH2018-12-17T21:00:00Z66.27-128.62-23.0-26.0230420.029.350393994.9VFRMETAR66.02018-12-17 21:16:49T›‹˜c)5   3CYGT 172100Z 36010KT 15SM FEW047 SCT055 M22/M24 A2974 RMK SC2SC2 SLP080CYGT2018-12-17T21:00:00Z69.37-81.82-22.0-24.03601015.029.7401581008.0VFRMETAR51.02018-12-17 21:16:49 ¢(Su¢M›‹˜j) 5   3CYZR 172100Z AUTO 31009G17KT 9SM OVC029 01/M04 A3007 RMK SLP191CYZR2018-12-17T21:00:00Z43.0-82.31.0-4.03109179.030.0708661019.1TRUEMVFRMETAR181.02018-12-17 21:16:49X›‹˜i)5   3CYBB 172100Z 25012G17KT 15SM DRSN FEW080 M28/M31 A2999 RMK AC1 SLP159CYBB2018-12-17T21:00:00Z68.52-89.82-28.0-31.0250121715.029.9911421015.9DRSNVFRMETAR15.02018-12-17 21:16:49O›‹˜h) 5    3CYCB 172100Z 10006KT 10SM IC BKN120 M28/M32 A3001 RMK AC7 SLP170CYCB2018-12-17T21:00:00Z69.08-105.12-28.0-32.0100610.030.0088581017.0ICVFRMETAR27.02018-12-17 21:16:49R›‹˜g)5    3CYCO 172100Z 15012KT 15SM -SN BKN055 M12/M17 A2959 RMK SC7 SLP024CYCO2018-12-17T21:00:00Z67.82-115.15-12.0-17.01501215.029.5895671002.4-SNVFRMETAR22.02018-12-17 21:16:49 i(?]in›‹˜n)75   3CYWA 172100Z AUTO 31014G24KT 9SM OVC027 OVC049 OVC072 OVC080 M05/M11 A2985 RMK SLP118CYWA2018-12-17T21:00:00Z45.95-77.32-5.0-11.031014249.029.849411011.8TRUEOVC8000MVFRMETAR130.02018-12-17 21:16:49\›‹˜m)5    3CYXR 172100Z AUTO 31016G21KT 9SM -SN OVC031 M07/M11 A2993 RMK ICG SLP152CYXR2018-12-17T21:00:00Z47.7-79.83-7.0-11.031016219.029.9291341015.2TRUE-SNVFRMETAR243.02018-12-17 21:16:49c›‹˜l)?5    3CYYY 172100Z 09003KT 070V140 1SM R06/P6000FT/D -SN OVC015 M02/M03 A2953 RMK SN4SC4 SLP005CYYY2018-12-17T21:00:00Z48.6-68.22-2.0-3.09031.029.5305121000.5-SNIFRMETAR52.02018-12-17 21:16:49R›‹˜k) 5   3CYZE 172100Z AUTO 30013G19KT 9SM BKN027 M02/M06 A3001 RMK SLP173CYZE2018-12-17T21:00:00Z45.87-82.57-2.0-6.030013199.030.0088581017.3TRUEMVFRMETAR193.02018-12-17 21:16:49  $P} W›‹˜r)5   3CYTS 172100Z 32011G19KT 10SM -SN OVC023 M08/M13 A2997 RMK SC8 SLP171CYTS2018-12-17T21:00:00Z48.57-81.37-8.0-13.0320111910.029.9704721017.1-SNMVFRMETAR295.02018-12-17 21:16:49M›‹˜q) 5   3CYTZ 172100Z AUTO 29013G19KT 9SM OVC043 03/M05 A2991 RMK SLP132CYTZ2018-12-17T21:00:00Z43.63-79.43.0-5.029013199.029.9114171013.2TRUEVFRMETAR77.02018-12-17 21:16:49N›‹˜p)5    3CYVP 172100Z 20006KT 5SM -SN OVC040 M03/M04 A2927 RMK SN1SC7 SLP916CYVP2018-12-17T21:00:00Z58.12-68.42-3.0-4.020065.029.27067991.6-SNMVFRMETAR60.02018-12-17 21:16:49V›‹˜o)5  3CYVV 172100Z 31011G16KT 270V350 15SM BKN030 M00/M06 A2996 RMK SC6 SLP155CYVV2018-12-17T21:00:00Z44.75-81.080.0-6.0310111615.029.9586621015.5MVFRMETAR222.02018-12-17 21:16:49 ƒ0F]ƒT›‹˜v)5   3CYHY 172100Z 17008KT 15SM FEW080 BKN230 M13/M16 A2945 RMK AC1CI4 SLP990CYHY2018-12-17T21:00:00Z60.82-115.77-13.0-16.0170815.029.450787999.0VFRMETAR166.02018-12-17 21:16:49c›‹˜u)5   3CYRJ 172100Z 31018G26KT 3/4SM -SN DRSN VV017 M05/M07 A2958 RMK SN8 SLP030CYRJ2018-12-17T21:00:00Z48.52-72.27-5.0-7.031018260.7529.580711003.0-SN DRSNLIFR1700METAR179.02018-12-17 21:16:49d›‹˜t);5   3CYRL 172100Z 12005KT 15SM FEW180 FEW200 SCT220 M10/M15 A3017 RMK AC1CI1CS3 CI TR SLP253CYRL2018-12-17T21:00:00Z51.07-93.78-10.0-15.0120515.030.1712591025.3VFRMETAR383.02018-12-17 21:16:49J›‹˜s)5    3CYTL 172100Z AUTO 28007KT 9SM CLR M15/M18 A3017 RMK SLP243CYTL2018-12-17T21:00:00Z53.82-89.88-15.0-18.028079.030.1712591024.3TRUEVFRMETAR224.02018-12-17 21:16:49 )Ir\›‹˜z)+5   3CYLK 172100Z 14004KT 120V240 25SM SCT036 SCT200 M10/M14 A2956 RMK SC3CI1 SLP032CYLK2018-12-17T21:00:00Z62.42-110.67-10.0-14.0140425.029.560041003.2VFRMETAR179.02018-12-17 21:16:49Q›‹˜y) 5    3CYOA 172100Z 15021KT 3/4SM -SN BLSN OVC020 M15/M17 A2950 RMK SC8CYOA2018-12-17T21:00:00Z64.7-110.62-15.0-17.0150210.7529.500984-SN BLSNLIFRMETAR469.02018-12-17 21:16:49Z›‹˜x)5    3CYJF 172100Z 22010KT 15SM IC DRSN SCT240 M19/M22 A2943 RMK CI3 SLP991CYJF2018-12-17T21:00:00Z60.22-123.47-19.0-22.02201015.029.430119999.1IC DRSNVFRMETAR215.02018-12-17 21:16:49Q›‹˜w)5   3CYKD 172100Z 35005KT 15SM FEW036 OVC059 M20/M24 A2943 RMK SC2SC6 SLP969CYKD2018-12-17T21:00:00Z68.22-135.0-20.0-24.0350515.029.430119996.9VFRMETAR7.02018-12-17 21:16:49 p=]pg›‹˜~)15   3CYTE 172100Z 35015G21KT 6SM -SN DRSN SCT031 BKN050 M10/M12 A2944 RMK SC4SC3 SLP975CYTE2018-12-17T21:00:00Z64.22-76.52-10.0-12.035015216.029.438976997.5-SN DRSNVFRMETAR47.02018-12-17 21:16:49Z›‹˜})5    3CYRA 172100Z 15007KT 130V200 10SM -SN OVC011 M13/M15 A2943 RMK SC8 SLP990CYRA2018-12-17T21:00:00Z64.12-117.32-13.0-15.0150710.029.430119999.0-SNMVFRMETAR213.02018-12-17 21:16:49Z›‹˜|)!5    3CYRT 172100Z 32014KT 10SM IC BKN023 BKN270 M25/M28 A3003 RMK SC5CI2 SLP176CYRT2018-12-17T21:00:00Z62.82-92.12-25.0-28.03201410.030.0295281017.6ICMVFRMETAR32.02018-12-17 21:16:49]›‹˜{)5    3CYSY 172100Z 13023KT 1/2SM SN BLSN VV009 M13/M15 A2943 RMK BLSN8 SLP979CYSY2018-12-17T21:00:00Z72.0-125.27-13.0-15.0130230.529.430119997.9SN BLSNLIFR900METAR86.02018-12-17 21:16:49 xó6x8›‹™(o5     3LFKB 172100Z AUTO 23006KT CAVOK 08/03 Q1025 NOSIGLFKB2018-12-17T21:00:00Z42.539.478.03.023066.2130.265747TRUETRUEVFRMETAR12.02018-12-17 21:16:49W›‹™)%5    3CYHZ 172100Z 06012KT 2 1/2SM -DZ BR OVC005 02/02 A2923 RMK ST8 PRESFR SLP904CYHZ2018-12-17T21:00:00Z44.87-63.52.02.060122.529.22933990.4-DZ BRIFRMETAR145.02018-12-17 21:16:49Z›‹™)5     3CYWE 172100Z AUTO 16008KT 9SM -SN OVC014 M13/M14 A2943 RMK ICG SLP007CYWE2018-12-17T21:00:00Z64.18-114.08-13.0-14.016089.029.4301191000.7TRUE-SNMVFRMETAR371.02018-12-17 21:16:49‚›‹˜)‚5   3CYVM 172100Z 20004KT 15SM OVC220 M21/M25 A2975 RMK CS8 -19.9/-26.7/0.0/25 SNW COV/MUCH LOOSE/LAST STFD OBS/NXT 181300 SLP077CYVM2018-12-17T21:00:00Z67.53-64.02-21.0-25.0200415.029.7490161007.7VFRMETAR6.02018-12-17 21:16:49 µ*Xvµ;›‹™(y5    3LEBG 172100Z AUTO 17007KT 140V200 9999 NCD 03/01 Q1025LEBG2018-12-17T21:00:00Z42.37-3.623.01.017076.2130.265747TRUEVFRMETAR891.02018-12-17 21:16:49\›‹™)+5     3USPP 172100Z 28005MPS 9999 -SN OVC012 M05/M07 Q1031 R21/290150 NOSIG RMK QFE762USPP2018-12-17T21:00:00Z57.9256.02-5.0-7.0280106.2130.442913TRUE-SNMVFRMETAR123.02018-12-17 21:16:49L›‹™) 5     3LFRQ 172100Z AUTO 19012KT 160V220 9999 OVC011 12/10 Q1018 NOSIGLFRQ2018-12-17T21:00:00Z47.97-4.1712.010.0190126.2130.059055TRUETRUEMVFRSPECI94.02018-12-17 21:16:49P›‹™)5    3LFRH 172100Z AUTO 20013KT 9999 BKN015 BKN021 12/09 Q1020 BECMG 17020G35KTLFRH2018-12-17T21:00:00Z47.77-3.4512.09.0200136.2130.11811TRUEMVFRMETAR44.02018-12-17 21:16:49 l@Ql_›‹™ )+5   3CYBW 172100Z AUTO 26016G22KT 9SM CLR 07/M05 A2967 RMK SLP087 DENSITY ALT 4100FTCYBW2018-12-17T21:00:00Z51.1-114.377.0-5.026016229.029.669291008.7TRUEVFRMETAR1200.02018-12-17 21:16:49i›‹™ )G5   3CYCY 172100Z 26009KT 10SM FEW065 FEW160 FEW260 M22/M24 A2974 RMK SC1AC1CI1 SC TR CI TR SLP078CYCY2018-12-17T21:00:00Z70.47-68.52-22.0-24.0260910.029.7401581007.8VFRMETAR26.02018-12-17 21:16:49S›‹™)#5    3USCC 172100Z 27003MPS 6000 BKN031 M09/M10 Q1031 R27/350040 NOSIG RMK QFE753USCC2018-12-17T21:00:00Z55.361.5-9.0-10.027063.7330.442913TRUEMVFRMETAR234.02018-12-17 21:16:49a›‹™))5   3CYUT 172100Z 35024G31KT 3SM BLSN SCT015 BKN080 M21/M24 A2984 RMK SC3AC3 SLP109CYUT2018-12-17T21:00:00Z66.52-86.25-21.0-24.035024313.029.8405511010.9BLSNMVFRMETAR24.02018-12-17 21:16:49 £F_x£O›‹™) 5    3CYXN 172100Z 30010KT 15SM IC FEW250 M26/M29 A3005 RMK CI1 SLP180CYXN2018-12-17T21:00:00Z62.22-92.58-26.0-29.03001015.030.0501981018.0ICVFRMETAR20.02018-12-17 21:16:49a›‹™ )35    3CYXP 172100Z 11009KT 040V140 12SM -SN SCT059 OVC070 M12/M18 A2958 RMK SC4AC4 SLP021CYXP2018-12-17T21:00:00Z66.15-65.72-12.0-18.0110912.029.580711002.1-SNVFRMETAR23.02018-12-17 21:16:49a›‹™ )+5   3CYZS 172100Z 33016G22KT 15SM DRSN FEW020 BKN100 M17/M20 A2970 RMK SC1AC4 SLP068CYZS2018-12-17T21:00:00Z64.2-83.37-17.0-20.0330162215.029.6988181006.8DRSNVFRMETAR64.02018-12-17 21:16:494›‹™ (k5    3CWRF 172100Z AUTO 34017KT M29/ A2980 RMK SLP147CWRF2018-12-17T21:00:00Z69.42-89.72-29.03401729.7992131014.7TRUEMETAR325.02018-12-17 21:16:49 ©0k}©N›‹™)5   3CYXJ 172100Z 02002KT 15SM FEW180 M07/M08 A2946 RMK AC1 AC TR SLP023CYXJ2018-12-17T21:00:00Z56.25-120.73-7.0-8.020215.029.4596461002.3VFRMETAR695.02018-12-17 21:16:49h›‹™)A5    3CYXT 172100Z 00000KT 3/4SM -RA BR SCT002 BKN018 OVC030 01/01 A2939 RMK FG2SF2SC3SC1 SLP963CYXT2018-12-17T21:00:00Z54.47-128.571.01.0000.7529.388779996.3-RA BRLIFRMETAR217.02018-12-17 21:16:49?›‹™(y5    3KCGE 172100Z AUTO 23006KT 10SM CLR 10/02 A2981 RMK A01KCGE2018-12-17T21:00:00Z38.53-76.0310.02.0230610.029.811024TRUETRUEVFRSPECI6.02018-12-17 21:16:49J›‹™)5   3CYWY 172100Z 13006KT 15SM FEW017 M16/M19 A2936 RMK SC2 SLP959CYWY2018-12-17T21:00:00Z63.22-123.42-16.0-19.0130615.029.359253995.9VFRMETAR150.02018-12-17 21:16:49 …(Io…d›‹™)?5  3CYPW 172100Z 12016G25KT 15SM FEW011 SCT054 OVC140 08/06 A2971 RMK SF1SC2AC5 PRESFR SLP064CYPW2018-12-17T21:00:00Z49.82-124.58.06.0120162515.029.710631006.4VFRMETAR130.02018-12-17 21:16:49T›‹™)5   3CYQH 172100Z 00000KT 20SM SCT008 OVC015 M15/M17 A2936 RMK SF3SC5 SLP001CYQH2018-12-17T21:00:00Z60.12-128.82-15.0-17.00020.029.3592531000.1MVFRMETAR690.02018-12-17 21:16:49Y›‹™)'5   3CYQU 172100Z 34005KT 25SM FEW040 FEW240 M07/M10 A2954 RMK SC1CI2 SC TR SLP045CYQU2018-12-17T21:00:00Z55.18-118.88-7.0-10.0340525.029.539371004.5VFRMETAR669.02018-12-17 21:16:49R›‹™)5   3CYWL 172100Z 11014KT 15SM FEW100 BKN200 04/M02 A2960 RMK AC1CI6 SLP049CYWL2018-12-17T21:00:00Z52.18-122.074.0-2.01101415.029.6013771004.9VFRMETAR940.02018-12-17 21:16:49 Dß9Do›‹™)=5    3CYSM 172100Z 12005KT 090V160 15SM -SN DRSN BKN024 OVC220 M11/M13 A2953 RMK SC7CI1 SLP022CYSM2018-12-17T21:00:00Z60.03-111.97-11.0-13.0120515.029.5305121002.2-SN DRSNMVFRMETAR203.02018-12-17 21:16:49D›‹™(}5    3CYLW 172100Z AUTO 21007KT 9SM CLR 07/03 A2987 RMK SLP127CYLW2018-12-17T21:00:00Z49.95-119.377.03.021079.029.8700791012.7TRUEVFRMETAR430.02018-12-17 21:16:49V›‹™)!5  3CYMA 172100Z 06009G16KT 20SM SCT062 BKN130 M01/M08 A2906 RMK SC4AC3 SLP874CYMA2018-12-17T21:00:00Z63.62-135.87-1.0-8.06091620.029.061024987.4VFRMETAR504.02018-12-17 21:16:49‚›‹™)‚5 #  3CYOC 172100Z 06013G21KT 030V090 25SM DRSN VCBLSN FEW010 FEW038 FEW230 M19/M22 A2917 RMK ST1SC1CI1 ST TR CI TR VIS NE 1 1/2 SLP911CYOC2018-12-17T21:00:00Z67.57-139.82-19.0-22.060132125.029.170275991.1DRSN VCBLSNVFRMETAR251.02018-12-17 21:16:49 ¦:s¦G›‹™)5    3CYED 172100Z AUTO 00000KT 9SM CLR M03/M09 A2960 RMK SLP062CYED2018-12-17T21:00:00Z53.67-113.47-3.0-9.0009.029.6013771006.2TRUEVFRMETAR688.02018-12-17 21:16:49A›‹™(y5   3CYIO 172100Z 22002KT 15SM SKC M28/M30 A2980 RMK SLP105CYIO2018-12-17T21:00:00Z72.67-77.97-28.0-30.0220215.029.7992131010.5VFRMETAR57.02018-12-17 21:16:49T›‹™)5   3CYLJ 172100Z 31006KT 15SM SCT160 BKN180 M09/M12 A2959 RMK AC3AS4 SLP058CYLJ2018-12-17T21:00:00Z54.12-108.52-9.0-12.0310615.029.5895671005.8VFRMETAR480.02018-12-17 21:16:49f›‹™)?5    3CYLT 172100Z 00000KT 5SM -SN OVC031 M29/M32 A3022 RMK SC8 LAST OBS/NEXT 180600 UTC SLP241CYLT2018-12-17T21:00:00Z82.52-62.27-29.0-32.0005.030.2214571024.1-SNMVFRMETAR31.02018-12-17 21:16:49 ¤)Is¤I›‹™")5   3CYPE 172100Z 22006KT 15SM FEW005 M06/M08 A2952 RMK SF2 SLP035CYPE2018-12-17T21:00:00Z56.22-117.45-6.0-8.0220615.029.5187021003.5VFRMETAR571.02018-12-17 21:16:49P›‹™!)5   3CYQV 172100Z AUTO 15013G23KT 9SM CLR M08/M11 A2980 RMK SLP130CYQV2018-12-17T21:00:00Z51.27-102.47-8.0-11.015013239.029.7992131013.0TRUEVFRMETAR498.02018-12-17 21:16:49Z›‹™ )5    3CYSF 172100Z AUTO 09011G16KT 9SM -SN OVC050 M14/M18 A2973 RMK SLP099CYSF2018-12-17T21:00:00Z59.25-105.82-14.0-18.09011169.029.7312981009.9TRUE-SNVFRMETAR250.02018-12-17 21:16:49Q›‹™)5   3CYMJ 172100Z 15007KT 15SM BKN160 OVC200 04/M01 A2973 RMK AC6CI2 SLP096CYMJ2018-12-17T21:00:00Z50.32-105.534.0-1.0150715.029.7312981009.6VFRMETAR577.02018-12-17 21:16:49 ˜Br˜T›‹™&)5   3CYQR 172100Z 14010KT 15SM BKN140 OVC220 M03/M05 A2975 RMK AC6CI2 SLP111CYQR2018-12-17T21:00:00Z50.43-104.67-3.0-5.01401015.029.7490161011.1VFRMETAR577.02018-12-17 21:16:49J›‹™%)5   3CYPA 172100Z 10007KT 15SM BKN250 M07/M10 A2965 RMK CI6 SLP076CYPA2018-12-17T21:00:00Z53.22-105.67-7.0-10.0100715.029.6486231007.6VFRMETAR428.02018-12-17 21:16:49T›‹™$)5   3CYPG 172100Z 14015KT 15SM FEW090 BKN240 M08/M12 A3007 RMK AC1CI6 SLP206CYPG2018-12-17T21:00:00Z49.88-98.27-8.0-12.01401515.030.0708661020.6VFRMETAR269.02018-12-17 21:16:49^›‹™#)/5   3CYOD 172100Z 24006KT 15SM FEW100 SCT190 BKN250 M10/M13 A2961 RMK AC1AC2CI3 SLP068CYOD2018-12-17T21:00:00Z54.4-110.28-10.0-13.0240615.029.6102371006.8VFRMETAR544.02018-12-17 21:16:49 LwT›‹™*)5   3CYBR 172100Z 13013KT 15SM FEW090 BKN250 M06/M11 A2995 RMK AC1CI6 SLP177CYBR2018-12-17T21:00:00Z49.92-99.95-6.0-11.01301315.029.9498021017.7VFRMETAR409.02018-12-17 21:16:49O›‹™))5    3CYBU 172100Z AUTO 11009KT 9SM CLR M08/M11 A2971 RMK PRESFR SLP093CYBU2018-12-17T21:00:00Z53.32-104.0-8.0-11.011099.029.710631009.3TRUEVFRMETAR374.02018-12-17 21:16:49I›‹™()5    3CYDN 172100Z AUTO 13008KT 9SM CLR M08/M11 A2992 RMK SLP161CYDN2018-12-17T21:00:00Z51.1-100.03-8.0-11.013089.029.9202751016.1TRUEVFRMETAR305.02018-12-17 21:16:49_›‹™')15   3CYWJ 172100Z 10007KT 50SM FEW016 FEW090 M15/M17 A2930 RMK SC1AC1 HZ DIST SE SLP945CYWJ2018-12-17T21:00:00Z65.22-123.43-15.0-17.0100750.029.300198994.5VFRMETAR176.02018-12-17 21:16:49 ˆ""_ˆQ›‹™.)5    3CWHN 172100Z AUTO 23003KT 190V310 9SM CLR M07/M12 A2954 RMK SLP049CWHN2018-12-17T21:00:00Z54.88-109.97-7.0-12.023039.029.539371004.9TRUEVFRMETAR636.02018-12-17 21:16:49=›‹™-(y5   3CYAB 172100Z VRB02KT 15SM SKC M28/M30 A2985 RMK SLP114CYAB2018-12-17T21:00:00Z73.0-85.05-28.0-30.00215.029.849411011.4VFRMETAR22.02018-12-17 21:16:49z›‹™,)U5   3CYBK 172100Z 30004KT 20SM IC FEW020 FEW050 SCT110 SCT240 M27/M30 A3009 RMK SC1SC1AC2CI1 SC TR SLP195CYBK2018-12-17T21:00:00Z64.28-96.07-27.0-30.0300420.030.0885831019.5ICSCT24000VFRMETAR18.02018-12-17 21:16:49X›‹™+)#5    3CYBQ 172100Z AUTO 12008KT 9SM BKN120 BKN140 M24/M27 A2998 RMK PRESFR SLP194CYBQ2018-12-17T21:00:00Z58.7-98.5-24.0-27.012089.029.979331019.4TRUEVFRMETAR262.02018-12-17 21:16:49 } $U}R›‹™2)5   3CYZW 172100Z 09005KT 30SM FEW030 OVC100 M09/M11 A2920 RMK SC1AC7 SLP937CYZW2018-12-17T21:00:00Z60.17-132.75-9.0-11.090530.029.199802993.7VFRMETAR705.02018-12-17 21:16:49I›‹™1)5    3CYZY 172100Z AUTO 15004KT 9SM OVC015 02/01 A2953 RMK SLP028CYZY2018-12-17T21:00:00Z55.28-123.122.01.015049.029.5305121002.8TRUEMVFRMETAR690.02018-12-17 21:16:49b›‹™0)55  3CZFA 172100Z 14014G19KT 30SM FEW060 SCT140 BKN220 M08/M12 A2915 RMK SC2AC2CI3 SLP920CZFA2018-12-17T21:00:00Z62.2-133.37-8.0-12.0140141930.029.149607992.0VFRMETAR717.02018-12-17 21:16:49n›‹™/)S5  3CZMT 172100Z 14015G35KT 15SM BKN025TCU BKN050 09/05 A2911 RMK TCU5SC2 SH S SLP861 DENSITY ALT 200FTCZMT2018-12-17T21:00:00Z54.03-132.139.05.0140153515.029.111221986.1MVFRMETAR8.02018-12-17 21:16:49 )Qp]›‹™6)/5   3CYXY 172100Z 17016KT 40SM FEW035 BKN140 BKN220 M03/M07 A2909 RMK SC2AC3CI2 SLP891CYXY2018-12-17T21:00:00Z60.72-135.07-3.0-7.01701640.029.090551989.1VFRMETAR703.02018-12-17 21:16:49[›‹™5)/5   3CYYD 172100Z 14004KT 25SM FEW040 BKN120 OVC230 M00/M02 A2943 RMK SC2AC5CI1 SLP987CYYD2018-12-17T21:00:00Z54.82-127.180.0-2.0140425.029.430119998.7VFRMETAR523.02018-12-17 21:16:49R›‹™4)5   3CYYE 172100Z 00000KT 15SM SCT006 BKN120 M17/M19 A2942 RMK SC3AC2 SLP998CYYE2018-12-17T21:00:00Z58.82-122.57-17.0-19.00015.029.421259999.8VFRMETAR382.02018-12-17 21:16:49Q›‹™3)5   3CYYF 172100Z 17012KT 15SM BKN028 BKN160 06/02 A2990 RMK SC6AC1 SLP135CYYF2018-12-17T21:00:00Z49.47-119.586.02.01701215.029.8996071013.5MVFRMETAR344.02018-12-17 21:16:49 ZCXZx›‹™:)S5   3CYVT 172100Z 18005KT 15SM FEW080 SCT100 BKN150 BKN220 M11/M15 A2958 RMK AC2AC2AC1CI1 VIRGA S SLP055CYVT2018-12-17T21:00:00Z55.82-108.42-11.0-15.0180515.029.580711005.5BKN22000VFRMETAR434.02018-12-17 21:16:49e›‹™9)?5   3CYXH 172100Z 22012KT 30SM SCT150 BKN270 10/M00 A2970 RMK AC3CI4 SLP076 DENSITY ALT 2500FTCYXH2018-12-17T21:00:00Z50.02-110.7210.00.02201230.029.6988181007.6VFRMETAR716.02018-12-17 21:16:49I›‹™8)5   3CYZU 172100Z 22003KT 15SM FEW190 M05/M10 A2958 RMK AC1 SLP067CYZU2018-12-17T21:00:00Z54.15-115.78-5.0-10.0220315.029.580711006.7VFRMETAR785.02018-12-17 21:16:49h›‹™7)=5    3CYBG 172100Z 26005KT 6SM -SHSN BKN010 OVC025 M01/M03 A2953 RMK SC6SC2 VIS VRB 4-8 SLP011CYBG2018-12-17T21:00:00Z48.33-70.98-1.0-3.026056.029.5305121001.1-SHSNMVFRMETAR159.02018-12-17 21:16:49 }?R}O›‹™>)5    3CYFB 172100Z 11009KT 4SM -SN OVC026 M06/M09 A2935 RMK SN6SC2 SLP944CYFB2018-12-17T21:00:00Z63.75-68.55-6.0-9.011094.029.350393994.4-SNMVFRMETAR34.02018-12-17 21:16:49g›‹™=)=5     3CYFC 172100Z AUTO 01009KT 1 1/4SM -SN FEW008 OVC015 M01/M01 A2941 RMK ICG PAST HR SLP963CYFC2018-12-17T21:00:00Z45.87-66.52-1.0-1.01091.2529.409449996.3TRUE-SNIFRMETAR20.02018-12-17 21:16:49Y›‹™<)#5    3CYUB 172100Z 30004KT 10SM -SN SCT050 OVC070 M19/M22 A2942 RMK SC3AC5 SLP964CYUB2018-12-17T21:00:00Z69.45-133.02-19.0-22.0300410.029.421259996.4-SNVFRMETAR5.02018-12-17 21:16:49\›‹™;)%5    3CYUX 172100Z 32013KT 15SM DRSN FEW030 SCT080 M21/M23 A2975 RMK SC2AC2 SLP077CYUX2018-12-17T21:00:00Z68.77-81.25-21.0-23.03201315.029.7490161007.7DRSNVFRMETAR8.02018-12-17 21:16:49 ›/r›Q›‹™B)5   3CYJT 172100Z 08013KT 15SM BKN023 BKN080 M01/M04 A2971 RMK SC5AC2 SLP065CYJT2018-12-17T21:00:00Z48.55-58.57-1.0-4.0801315.029.710631006.5MVFRMETAR26.02018-12-17 21:16:497›‹™A(q5    3UTAM 172100Z 36004KT 6000 OVC066 03/02 Q1029 NOSIGUTAM2018-12-17T21:00:00Z37.6261.93.02.036043.7330.383858TRUEMVFRMETAR222.02018-12-17 21:16:49h›‹™@)15   3CYGL 172100Z 29020G26KT 5SM -SN DRSN BKN015 OVC022 M07/M10 A2962 RMK SC6SC2 SLP049CYGL2018-12-17T21:00:00Z53.62-77.7-7.0-10.029020265.029.6190951004.9-SN DRSNMVFRMETAR195.02018-12-17 21:16:49]›‹™?)/5   3CYEG 172100Z 18005KT 20SM FEW120 SCT170 SCT250 M03/M07 A2961 RMK AC1AC2CI1 SLP068CYEG2018-12-17T21:00:00Z53.28-113.57-3.0-7.0180520.029.6102371006.8VFRMETAR723.02018-12-17 21:16:49 Â2q“K›‹™F)5   3CXMD 172100Z AUTO 14010KT M06/M11 RMK AO1 SOG 16 6031 SLP208 T10551109CXMD2018-12-17T21:00:00Z49.22-98.08-5.5-10.9140101020.8TRUETRUEMETAR301.02018-12-17 21:16:49X›‹™E)!5    3CYMX 172100Z 31011KT 15SM -SN BKN026 OVC080 01/M03 A2963 RMK SC6AC2 SLP039CYMX2018-12-17T21:00:00Z45.67-74.021.0-3.03101115.029.6309051003.9-SNMVFRMETAR82.02018-12-17 21:16:49;›‹™D(y5   3SGES 172100Z 30008KT 9999 FEW030 FEW040TCU 36/20 Q1009SGES2018-12-17T21:00:00Z-25.45-54.8536.020.030086.2129.793306VFRSPECI849.02018-12-17 21:16:49H›‹™C)5     3ZPPP 172100Z 23004MPS 5000 BR SCT009 OVC030 10/08 Q1024 NOSIGZPPP2018-12-17T21:00:00Z25.0102.7510.08.023083.1130.236221TRUEBRMVFRMETAR1892.02018-12-17 21:16:49 »&W‰»H›‹™J) 5    3CXWN 172100Z AUTO 13002KT M06/M12 RMK AO1 SLP218 T10621121 57030CXWN2018-12-17T21:00:00Z49.88-97.13-6.2-12.113021021.8TRUETRUE-3.0METAR230.02018-12-17 21:16:49H›‹™I)5   3CWGW 172100Z AUTO 16007KT 04/M00 RMK AO1 SOG 10 6007 SLP132 T00401003CWGW2018-12-17T21:00:00Z49.75-114.94.0-0.316071013.2TRUETRUEMETAR1137.02018-12-17 21:16:49I›‹™H)5   3CWGX 172100Z AUTO 02002KT M22/M25 RMK AO1 SOG 17 8020 SLP224 T12201252CWGX2018-12-17T21:00:00Z56.35-94.7-22.0-25.22021022.4TRUETRUEMETAR145.02018-12-17 21:16:49T›‹™G)5   3CYOW 172100Z 33019G26KT 3SM -SN OVC029 M02/M05 A2973 RMK SC8 SLP075CYOW2018-12-17T21:00:00Z45.32-75.67-2.0-5.033019263.029.7312981007.5-SNMVFRMETAR114.02018-12-17 21:16:49 1eÌûa›‹™O)55    3CYRB 172100Z 32004KT 290V360 12SM R35/3500VP6000FT/N IC SKC M34/M37 A3002 RMK SLP181CYRB2018-12-17T21:00:00Z74.72-94.97-34.0-37.0320412.030.020671018.1ICVFRMETAR67.02018-12-17 21:16:49K›‹™N)5   3CXOX 172100Z AUTO 13006KT M09/M14 RMK AO1 SOG 30 6034 SLP074 T10941135CXOX2018-12-17T21:00:00Z55.15-105.27-9.4-13.513061007.4TRUETRUEMETAR379.02018-12-17 21:16:49›‹™M(O5   3CXRH 172100Z AUTO 09005KT RMK AO1CXRH2018-12-17T21:00:00Z49.57-57.88905TRUETRUEMETAR68.02018-12-17 21:16:49F›‹™L) 5    3CXSH 172100Z AUTO 32005KT M00/M03 RMK AO1 SLP009 T10011030 53003CXSH2018-12-17T21:00:00Z46.58-72.73-0.1-3.032051000.9TRUETRUE0.3METAR110.02018-12-17 21:16:49I›‹™K)5   3CXTP 172100Z AUTO 15004KT M05/M07 RMK AO1 SOG 21 6014 SLP109 T10481066CXTP2018-12-17T21:00:00Z48.55-53.97-4.8-6.615041010.9TRUETRUEMETAR107.02018-12-17 21:16:49 ž'MmžI›‹™S)5   3CYPL 172100Z 25003KT 15SM FEW240 M11/M17 A3016 RMK CI1 SLP250CYPL2018-12-17T21:00:00Z51.47-90.2-11.0-17.0250315.030.1594491025.0VFRMETAR373.02018-12-17 21:16:49Z›‹™R)5    3CYPO 172100Z AUTO 29012G19KT 9SM -SN OVC015 M13/M16 A3003 RMK SLP179CYPO2018-12-17T21:00:00Z54.98-85.43-13.0-16.029012199.030.0295281017.9TRUE-SNMVFRMETAR53.02018-12-17 21:16:49T›‹™Q)5   3CYQA 172100Z AUTO 33016G26KT 9SM OVC035 M02/M07 A2985 RMK ICG SLP124CYQA2018-12-17T21:00:00Z44.97-79.28-2.0-7.033016269.029.849411012.4TRUEVFRMETAR282.02018-12-17 21:16:49S›‹™P)5   3CYQK 172100Z 17004KT 20SM FEW160 FEW250 M07/M14 A3017 RMK AC1CI1 SLP250CYQK2018-12-17T21:00:00Z49.77-94.37-7.0-14.0170420.030.1712591025.0VFRMETAR411.02018-12-17 21:16:49 ¦Py¦M›‹™W) 5  3CYKZ 172100Z 31011G20KT 15SM OVC029 02/M05 A2988 RMK SC8 SLP126CYKZ2018-12-17T21:00:00Z43.87-79.372.0-5.0310112015.029.8789371012.6MVFRMETAR198.02018-12-17 21:16:49Q›‹™V)5   3CYLD 172100Z 32009KT 300V010 15SM SCT025 M08/M13 A3001 RMK CU3 SLP194CYLD2018-12-17T21:00:00Z47.82-83.33-8.0-13.0320915.030.0088581019.4VFRMETAR447.02018-12-17 21:16:49H›‹™U)5    3CYLH 172100Z AUTO 28005KT 9SM CLR M10/M15 A3015 RMK SLP235CYLH2018-12-17T21:00:00Z52.2-87.93-10.0-15.028059.030.150591023.5TRUEVFRMETAR254.02018-12-17 21:16:49\›‹™T)'5   3CYOO 172100Z AUTO 31014G22KT 9SM SCT028 BKN036 OVC045 01/M03 A2987 RMK SLP121CYOO2018-12-17T21:00:00Z43.92-78.91.0-3.031014229.029.8700791012.1TRUEVFRMETAR139.02018-12-17 21:16:49 œ)X‡œe›‹™[)=5   3CYOJ 172100Z 18003KT 150V240 8SM FEW009 FEW017 SCT260 M11/M13 A2945 RMK SC1SC1CI1 SLP005CYOJ2018-12-17T21:00:00Z58.62-117.17-11.0-13.018038.029.4507871000.5VFRMETAR338.02018-12-17 21:16:49K›‹™Z) 5    3KCTZ 172100Z AUTO 27005KT 10SM CLR 18/04 A2995 RMK AO2 T01760041KCTZ2018-12-17T21:00:00Z34.98-78.3717.64.1270510.029.949802TRUETRUEVFRMETAR45.02018-12-17 21:16:49K›‹™Y) 5    3KCPC 172100Z AUTO 26004KT 10SM CLR 17/06 A2997 RMK AO2 T01720060KCPC2018-12-17T21:00:00Z34.28-78.7217.26.0260410.029.970472TRUETRUEVFRMETAR29.02018-12-17 21:16:49Q›‹™X)5   3CYQB 172100Z 21006KT 10SM BKN032 OVC045 M01/M02 A2952 RMK SC5SC3 SLP001CYQB2018-12-17T21:00:00Z46.78-71.37-1.0-2.0210610.029.5187021000.1VFRMETAR73.02018-12-17 21:16:49 ¡%Kv¡O›‹™_)5   3CYGX 172100Z 04002KT 15SM BKN250 M22/M25 A3013 RMK CI5 PRESFR SLP226CYGX2018-12-17T21:00:00Z56.35-94.7-22.0-25.040215.030.1299211022.6VFRMETAR145.02018-12-17 21:16:49O›‹™^)5    3CYKJ 172100Z AUTO 13010KT 9SM BKN120 M13/M16 A2962 RMK SLP081CYKJ2018-12-17T21:00:00Z57.25-105.62-13.0-16.0130109.029.6190951008.1TRUEVFRMETAR509.02018-12-17 21:16:49T›‹™])5   3CYLL 172100Z 28013KT 15SM FEW180 BKN260 M06/M09 A2957 RMK AC2CI5 SLP061CYLL2018-12-17T21:00:00Z53.32-110.07-6.0-9.02801315.029.5688971006.1VFRMETAR669.02018-12-17 21:16:49U›‹™\)5    3CYNE 172100Z AUTO 16004KT 110V180 9SM OVC090 M11/M14 A3006 RMK SLP206CYNE2018-12-17T21:00:00Z53.97-97.82-11.0-14.016049.030.0590551020.6TRUEVFRMETAR223.02018-12-17 21:16:49 ¸2\¸R›‹™c) 5   3CYAT 172100Z AUTO 30015G23KT 9SM OVC024 M10/M14 A2999 RMK SLP158CYAT2018-12-17T21:00:00Z52.93-82.43-10.0-14.030015239.029.9911421015.8TRUEMVFRMETAR9.02018-12-17 21:16:49F›‹™b)5   3KDMW 172100Z AUTO 31009G15KT 10SM CLR 07/M06 A2984 RMK AO2KDMW2018-12-17T21:00:00Z39.6-77.07.0-6.031091510.029.840551TRUETRUEVFRSPECI241.02018-12-17 21:16:49P›‹™a)5    3CYKP 172100Z AUTO 29008KT 9SM FEW027 M10/M14 A3011 RMK ICG SLP218CYKP2018-12-17T21:00:00Z51.67-85.9-10.0-14.029089.030.1092531021.8TRUEVFRMETAR179.02018-12-17 21:16:49H›‹™`)5    3CYET 172100Z AUTO 28002KT 9SM CLR M01/M06 A2958 RMK SLP065CYET2018-12-17T21:00:00Z53.57-116.47-1.0-6.028029.029.580711006.5TRUEVFRMETAR925.02018-12-17 21:16:49 ¦Ky¦M›‹™g)5    3CYZH 172100Z AUTO 17005KT 9SM SCT220 M07/M11 A2957 RMK SLP053CYZH2018-12-17T21:00:00Z55.28-114.77-7.0-11.017059.029.5688971005.3TRUEVFRMETAR581.02018-12-17 21:16:49L›‹™f)5    3CZVL 172100Z AUTO 22005KT 9SM BKN180 M04/M07 A2960 RMK SLP063CZVL2018-12-17T21:00:00Z53.67-113.85-4.0-7.022059.029.6013771006.3TRUEVFRMETAR686.02018-12-17 21:16:49H›‹™e) 5  3CYXU 172100Z 30016G22KT 15SM OVC021 00/M04 A3000 RMK SC8 SLP172CYXU2018-12-17T21:00:00Z43.02-81.150.0-4.0300162215.030.01017.2MVFRMETAR278.02018-12-17 21:16:49a›‹™d)75   3CYXZ 172100Z 33004KT 300V020 15SM FEW025 FEW280 M05/M12 A3008 RMK CU1CI1 CU TR SLP206CYXZ2018-12-17T21:00:00Z47.97-84.77-5.0-12.0330415.030.0797251020.6VFRMETAR287.02018-12-17 21:16:49 ®(S}®I›‹™k)5    3CYQW 172100Z AUTO 14004KT 9SM CLR M03/M06 A2959 RMK SLP055CYQW2018-12-17T21:00:00Z52.77-108.25-3.0-6.014049.029.5895671005.5TRUEVFRMETAR548.02018-12-17 21:16:49P›‹™j)5   3CYVC 172100Z 11006KT 15SM SCT250 M09/M14 A2967 RMK CI3 PRESFR SLP082CYVC2018-12-17T21:00:00Z55.15-105.27-9.0-14.0110615.029.669291008.2VFRMETAR379.02018-12-17 21:16:49O›‹™i)5    3CYYL 172100Z AUTO 12010KT 9SM OVC065 M19/M21 A2989 RMK SLP169CYYL2018-12-17T21:00:00Z56.87-101.07-19.0-21.0120109.029.8907471016.9TRUEVFRMETAR357.02018-12-17 21:16:49R›‹™h)5    3CYYN 172100Z AUTO 22012KT 9SM BKN120 OVC140 04/M01 A2970 RMK SLP086CYYN2018-12-17T21:00:00Z50.27-107.674.0-1.0220129.029.6988181008.6TRUEVFRMETAR818.02018-12-17 21:16:49 ¸F~¸@›‹™o({5    3KAXV 172059Z AUTO 31003KT 10SM CLR 04/M04 A3011 RMK AO2KAXV2018-12-17T20:59:00Z40.5-84.34.0-4.0310310.030.109253TRUETRUEVFRMETAR279.02018-12-17 21:16:49B›‹™n({5    3KPMH 172059Z AUTO 27006KT 10SM CLR 09/M05 A3009 RMK AO2KPMH2018-12-17T20:59:00Z38.83-82.859.0-5.0270610.030.088583TRUETRUEVFRSPECI202.02018-12-17 21:16:49N›‹™m) 5   3CYQG 172100Z AUTO 30009G17KT 9SM OVC038 03/M04 A3008 RMK SLP195CYQG2018-12-17T21:00:00Z42.27-82.973.0-4.03009179.030.0797251019.5TRUEVFRMETAR190.02018-12-17 21:16:49`›‹™l))5   3CYQM 172100Z 03018G23KT 2SM -SN DRSN OVC006 M01/M01 A2939 RMK SF8 /S03/ SLP958CYQM2018-12-17T21:00:00Z46.12-64.67-1.0-1.03018232.029.388779995.8-SN DRSNIFRMETAR71.02018-12-17 21:16:49